SQLite format 3@ *¡(ë`SÊ*¡(-â)ìûöñìvƒ?tablebuoy_nowbuoy_nowCREATE TABLE buoy_now ( STN, LAT, LON, YYYY, MM, DD, hh, minute, WDIR, WSPD, GST, WVHT, DPD, APD, MWD, PRES, PTDY, ATMP, WTMP, DEWP, VIS, TIDE, raw_text DEFAULT '', timestamp TIMESTAMP DEFAULT CURRENT_TIMESTAMP )jƒ7tablebuoybuoyCREATE TABLE buoy ( STN, LAT, LON, YYYY, MM, DD, hh, minute, WDIR, WSPD, GST, WVHT, DPD, APD, MWD, PRES, PTDY, ATMP, WTMP, DEWP, VIS, TIDE, raw_text DEFAULT '', timestamp TIMESTAMP DEFAULT C   Ø­øðèàØÐÈÀ¸°¨ ˜ˆ€xph`XPH@80( øðèàØÐÈÀ¸°¨ ˜ˆ€xph`XPH@80( øðèàØÐÈÀ¸°¨ ˜ˆ€xph`XPH@80( øðèàØ19#ɯŸ¯c#n¯Ÿ¬j#¯Ÿ©y"¸¯Ÿ§ "]¯Ÿ£r"¯Ÿ q!§¯Ÿž !L¯Ÿ› ñ¯Ÿ—| –¯Ÿ”j ;¯Ÿ‘^௟Žu…¯Ÿ‹x*¯Ÿ‰ϯŸ†:t¯Ÿ„¯Ÿ¾¯žýlc¯žúF¯ž÷L­¯žõ5R¯žó÷¯žðQœ¯ží`A¯žêx毞è ‹¯žäh0¯žâÕ¯žßz¯žÛn¯žØKįžÕNi¯žÒd¯žÏr³¯žÌ}X¯žÊý¯žÇ¢¯žÃcG¯žÀ=쯞½ ‘¯žº"6¯ž·:Û¯ž´Q€¯ž±k%¯ž¯ʯž¬o¯ž©!¯ž¦¹¯ž£^¯ž 2¯ž@¨¯žšM¯ž— ò¯ž”!—¯ž‘2<¯žŽ:ᯞ‹P†¯žˆT+¯ž…FЯž‚u¯þd¯û> ¿¯øE d¯õ^ ¯òw ®¯ð S¯í% ø¯ê/ ¯çF B¯äV 篝áC Œ¯ÞJ 1¯ÛR Ö¯Ø[ {¯ÕJ ¯ÒMůÏ8j¯ÌA¯ÉQ´¯ÆVY¯Ãnþ¯À{£¯½TH¯ºí¯¶’¯´7¯±#ܯ®;¯«P&¯¨f˯¥yp¯£¯ º¯ _¯š¯–w¯§—m¯¥®7Hį£¥($¯¡šJ$€¯ŸŽu jƒ7tablebuoybuoyCREATE TABLE buoy ( STN, LAT, LON, YYYY, MM, DD, hh, minute, WDIR, WSPD, GST, WVHT, DPD, APD, MWD, PRES, PTDY, ATMP, WTMP, DEWP, VIS, TIDE, raw_text DEFAULT '', timestamp TIMESTAMP DEFAULT CURRENT_TIMESTAMP )vƒ?tablebuoy_nowbuoy_nowCREATE TABLE buoy_now ( STN, LAT, LON, YYYY, MM, DD, hh, minute, WDIR, WSPD, GST, WVHT, DPD, APD, MWD, PRES, PTDY, ATMP, WTMP, DEWP, VIS, TIDE, raw_text DEFAULT '', timestamp TIMESTAMP DEFAULT CURRENT_TIMESTAMP ) nnj…‰}tablemetarmetarCREATE TABLE metar ( raw_text DEFAULT '', station_id, observation_time, latitude, longitude, temp_c, dewpoint_c, wind_dir_degrees, wind_speed_kt, wind_gust_kt, visibility_statute_mi, altim_in_hg, sea_level_pressure_mb, corrected, auto, auto_station, maintenance_indicator_on, no_signal, lightning_sensor_off, freezing_rain_sensor_off, present_weather_sensor_off, wx_string, sky_cover, cloud_base_ft_agl, flight_category, three_hr_pressure_tendency_mb, maxT_c, minT_c, maxT24hr_c, minT24hr_c, precip_in, pcp3hr_in, pcp6hr_in, pcp24hr_in, snow_in, vert_vis_ft, metar_type, elevation_m, timestamp TIMESTAMP DEFAULT CURRENT_TIMESTAMP ) ÊÚûúôîèâÜÖÐÊÎÉÄ¿ºµ°«¦¡œ—’ˆƒ~ytojd^XRLF@:4.(" þøòìæàÚÔÎȼ¶°ª¤ž˜’Œ†€ztnhb\VPJD>82,& üöðêäÞØÒÌÆÀº´®¨¢œ–Š„~xrlf`ZTNHB<60*$ A×Q„7×P„2×O„-×N„(×M„#×L„×K„×J„×I„×H„ ×G„ ×F„×E„×Dƒ}×Cƒy×Bƒu×Aƒq×@ƒm×?ƒi×>ƒd×=ƒ_×<ƒZ×;ƒU×:ƒP×9ƒK×8ƒF×7ƒA×6ƒ<×5ƒ7×4ƒ2×3ƒ-×2ƒ)×1ƒ%×0ƒ!×/ƒ×.ƒ×-ƒ×,ƒ×+ƒ ×*ƒ×)ƒ×(‚~×'‚y×&‚t×%‚o×$‚j×#‚e×"‚`×!‚[× ‚WׂSׂOׂKׂGׂCׂ?ׂ:ׂ6ׂ1ׂ,ׂ(ׂ$ׂ ׂׂׂׂׂ × ‚× ‚× ‚× |× xׁuׁqׁmׁiׁeׁaׁ]ׁYׁUÖÿQÖþMÖýIÖüDÖû?Öú:Öù6Öø1Ö÷,Öö'Öõ"ÖôÖóÖòÖñÖð ÖïÖîÖí|ÖìwÖësÖêoÖéjÖèeÖçaÖæ]ÖåYÖäUÖãQÖâMÖáIÖàEÖßAÖÞ<ÖÝ8ÖÜ4ÖÛ0ڊ¢zÚžKÙ¨šcÙ7—ØƓJØU×Ռ#×U‡×Tƒy ‹‹)‡…Štablemetar_nowmetar_nowCREATE TABLE metar_now ( raw_text DEFAULT '', station_id, observation_time, latitude, longitude, temp_c, dewpoint_c, wind_dir_degrees, wind_speed_kt, wind_gust_kt, visibility_statute_mi, altim_in_hg, sea_level_pressure_mb, corrected, auto, auto_station, maintenance_indicator_on, no_signal, lightning_sensor_off, freezing_rain_sensor_off, present_weather_sensor_off, wx_string, sky_cover, cloud_base_ft_agl, flight_category, three_hr_pressure_tendency_mb, maxT_c, minT_c, maxT24hr_c, minT24hr_c, precip_in, pcp3hr_in, pcp6hr_in, pcp24hr_in, snow_in, vert_vis_ft, metar_type, elevation_m, timestamp TIMESTAMP DEFAULT CURRENT_TIMESTAMP )Tƒ tableshipship CREATE TABLE ship (day, dewpoint_c, gust, latitude, longitude, maxgst, sea_level_pressure_mb, station_id, temp_c, wind, raw_text DEFAULT '', timestamp TIMESTAMP DEFAULT CURRENT_TIMESTAMP )pâ+øðèàØÐÈÀ¸°¨ ˜ˆ€xph`XPH@80( øðèàØÐÈÀ¸°¨ ˜ˆ€xph`XPH@80( øðèàØÐÈÀ¸°¨ ˜ˆ€xph`XPH@80( øðèàØ9.Ü‚â¬yÜ‚â¬kÜ‚â¬]Ü‚â¬P܂â¬CÛÿ‚â¬5Ûþ‚â¬'Ûý‚â¬Ûü‚⬠Ûû‚â¬Ûú‚â«sÛù‚â«eÛø‚â«XÛ÷‚â«KÛö‚â«=Ûõ‚â«0Ûô‚â«#Ûó‚â«Ûò‚â« Ûñ‚âª{Ûð‚âªnÛï‚âªaÛî‚âªTÛí‚âªGÛì‚âª:Ûë‚âª-Ûê‚âªÛé‚⪠Ûè‚â©~Ûç‚â©qÛæ‚â©dÛå‚â©VÛä‚â©IÛã‚â©:Ûâ‚â©,Ûá‚â©Ûà‚â©Û߂â©Ûނâ¨wÛ݂â¨jÛ܂â¨]Ûۂâ¨PÛڂâ¨CÛقâ¨6Û؂â¨(Ûׂâ¨Ûւ⨠ÛՂâ§}ÛԂâ§oÛӂâ§aÛ҂â§SÛтâ§EÛЂâ§8Ûςâ§+Û΂â§Û͂â§Û̂â§Û˂â¦vÛʂâ¦hÛɂâ¦[ÛȂâ¦MÛǂâ¦?ÛƂâ¦1Ûłâ¦#ÛĂâ¦ÛÂâ¦Û‚â¥xÛÁ‚â¥jÛÀ‚â¥[Û¿‚â¥MÛ¾‚â¥?Û½‚â¥1Û¼‚â¥$Û»‚â¥Ûº‚⥠۹‚â¤{Û¸‚â¤nÛ·‚â¤aÛ¶‚â¤TÛµ‚â¤GÛ´‚â¤9Û³‚â¤,Û²‚â¤áЂãÍ>áu‚ãÅ%á‚ã»`࿂ã²àd‚ã¨Fà ‚ãžqß®‚ã•%ßS‚ã‹eÞø‚ã‚ޝ‚âøBÞB‚âîwÝç‚âå.݌‚âÛeÝ1‚âÒÜւâÈFÜo‚â¿Ü‚âµ4Ü‚â«e Óä\ûöñìçâÝØӈ=I   319/1422.7G1427.5-71.51021.14104728.9160102019-07-19 14:13:17I   319/1423.6G1423.8-68.41021.24104628.7080122019-07-19 14:13:17I   319/1424.1G1221.6-58.61020.74104428.4110102019-07-19 14:13:17I   319/1424.2G1421.1-64.81020.44104328.3100122019-07-19 14:13:17I   319/1423.2G1414.6-53.01016.84104027.5060122019-07-19 14:13:17I   319/1425.4G2335.0-75.41016.84102528.4240192019-07-19 14:13:17I   319/1426.2G1433.4-77.71018.14101328.8240122019-07-19 14:13:17B   319/1424.1G1028.9-78.54101029.217082019-07-19 14:13:17G   319/1424.1G428.5-80.21019.74100928.323042019-07-19 14:13:17I   319/1426.0G1632.5-79.11018.74100428.7240142019-07-19 14:13:17I   319/1424.7G1431.9-74.91020.44100228.7220122019-07-19 14:13:17I   319/1425.1G2134.5-72.51019.34100128.5230172019-07-19 14:13:17F    319/1424.323.ä[zäZmäY_äXQäWCäV5äU(äTäS ââż=u­ŸWFuindexi3buoyCREATE UNIQUE INDEX i3 ON buoy(STN,YYYY,MM,DD,hh,mm)F kindexi2metar_nowCREATE UNIQUE INDEX i2 ON metar_now(station_id)`ƒtableship_nowship_now CREATE TABLE ship_now (day, dewpoint_c, gust, latitude, longitude, maxgst, sea_level_pressure_mb, station_id, temp_c, wind, raw_text DEFAULT '', timestamp TIMESTAMP DEFAULT CURRENT_TIMESTAMP )tƒ;tablestationss`ƒtableship_nowship_now CREATE TABLE ship_now (day, dewpoint_c, gust, latitude, longitude, maxgst, sea_level_pressure_mb, station_id, temp_c, wind, raw_text DEFAULT '', timestamp TIMESTAMP DEFAULT CURRENT_TIMESTAMP )tƒ;tablestationsstations CREATE TABLE stations ( metar TEXT, wmob INT, wmos INT, city TEXT, state TEXT, country TEXT, latitude DOUBLE, longitude DOUBLE, elevation DOUBLE, x DOUBLE, y DOUBLE, z DOUBLE, humor TEXT, source TEXT )B[indexi_metarstations CREATE INDEX i_metar ON stations(metar) ÊèˆúôîèâÜÖÐÊÎÉÄ¿º´®¨¢œ–Š„~xrlf`ZTNHB<60*$ úôîèâÜÖÐÊľ¸²¬¦ š”Žˆ‚|vpjd^XRLF@:4.(" þøòìæàÚÔÎȼ¶°ª¤ž˜’Œ†€ztnhb\VPJD>82,& DDäވuä݈mä܈eäۈ\äڈSäوJä؈Aä׈8äֈ/äՈ&äԈäӈä҈ äшäЇyäχoä·eä͇[ä̇RäˇIäʇ@äɇ7äȇ.äLJ$äƇäŇäćäÆ|ä†räÁ†häÀ†^俆T來I但?伆5仆+了!乆丆䷆䶅~䵅u䴅l䳅c䲅Z䱅Q䰅H䯅?䮅6䭅-䬅$䫅䪅䩅䨄䧄v䦄m䥄d䤄[䣄R䢄J䡄B䠄9䟄0䞄'䝄䜄䛄 䚄䙃{䘃r䗃i䖃`䕃W䔃O䓃G䒃>䑃6䐃.䏃'䎃䍃䌃 䋃䊂z䉂q䈂i䇂`䆂X䅂O䄂F䃂>䂂6䁂.䀂%ä‚ä~‚ä}‚ ä|‚ä{{äzräyiäx`äwYävQäuIät@äs7är.äq%äpäoän ämälzäkräjjèÂ#离Sç5´}æĬqæS¤qåâAåb–cäâäá‡yòë$òå×É»­Ÿ‘ƒugYK=/!÷éÛÍ¿±£•‡yk]OA3% ûíßÑõ§™‹}oaSE7) ÿñãÕǹ«…{ë KNBG éë KMSS ´ë KMJXë KMAI <ë KLOT ë KLAM Íë KJFX_ë KIGC ^ë KHRL ,ë KHCD öë KGPT Ãë KFYV ‹ë KFGN Së KESF ë KECP çë KDNV ²ë KD19 zë KCOS Cë KCEW ë KBUR Ôë KBIH ™ë KAWI cë KALY1ë K9W7æë K87Q³ë K62W„ë K4A6cë K36Yë K25Råë K13A«ë HSTR!×ë HFFF7ë GUMAêÿ GCLAÃêþ FYWBêý FQLCVêü FLMPêû FCOGØêú FAMM£êù ETUNwêø ESSK4ê÷ EPSKêö ENHEÓêõ EHMA ñêô EGSY[êó EGDYêò EDSB×êñ EBLB§êð DISSfêï DABCêî CYYUïêí CYSK¥êì CYLK^êë CYCQêê CXOXïêé CXBKÛêè CWVOžêç CWRHZêæ CWMZêå CWIUÊêä CWET€êãCWAR4ë# KMJXÊê×îÜʸ¦”‚p^L:(òàμ«™‡ucQ?- ÷æÔ°žŒzhVD2 üêØÆ´¢~õçÙËêk ¿¼ŸÅ£|DA êj ¿¾%ý*þ%åêi ¿¿ÔA Vêh ¿ÀЫ“M©Pêg ¿ÂJ×÷ ÀÛüêf ¿ÃK÷ñWX1¿êe ¿Ä#쇡Ìè ƒêd ¿Å Ù¦Z= Íêc ¿Åàp”q#aêb ¿ÆÚȚÛÙ êa ¿Çóò†ª²-Èê` ¿É+Ÿ;>}ûiê_ ¿Ê Qò­zãê^ ¿ËD÷ìN•v*ê] ¿Ì˜\ó}èê\ ¿Í½\‚Ÿ„? =ê[ ¿Î­Ñ‰p# êZ ¿Ï”UÒ”ZñêY ¿Ð_üð¬Ì€êX ¿Ñ"~ª~¶êW ¿Ñî:þ£_õAêV ¿Ò´Öâ2×ÚêU ¿Óh)L¸%ï >êT ¿Ô¥+’ÅÈvêS ¿Ôè!%瀕WêR ¿ÕÉV¡/mŒ#êQ ¿Övfrí©ôßêP ¿×&±F:f TêO ¿×l9Îxõ÷#êN ¿×æã™IÒ½êM ¿ØFÌw¨Ÿ êL ¿Ø’'žùƒ4zêK ¿ØÛQWšõGêJ ¿ÙP«W¿M>êI ¿ÙØ;h#«é EêH ¿ÚNŽhß5 ‡êG ¿Ú½…Ž¿êF ¿Û=ü^‚Ï-0êE ¿Ü¤v“£#êD ¿Ýõ1¡°}{êC ¿ÞÌ\Y%BêB ¿ßÛ]x”>0LêA ¿àõðÕù#Ÿê@ ¿á³Ña¤Óc>ê? ¿âšÉ MªÖê> ¿ã›rp‰ÛË#¶ê= ¿äà “þðÓê£ ?âáU«WsUyêo ?ÃÅbƒy+Ý¡ên ¿ÂJ×÷ ÀÛüÊê/îÜʸ¦”‚p^L:(òàμª˜†tbP>,öäÒÀ®œŠxfTB0 úèÖIJ Ž| þðâÔéà ¿çW†ðŸéÁgé ¿çfØ>‰« éÁ ¿çy–#8¼éÀ ¿ç‹ß[J´é¿ ¿ç™)™ùYG bé¾ ¿ç¬¸@™ Šé½ ¿ç¿OŒÝ-‰é¼ ¿çΜ éé¾¸é» ¿çÞóufbõ+éº ¿çìÍàÎÆ é¹ ¿èÓ°%àlÃé¸ ¿èið$ ƒé· ¿è/…bh® §é¶ ¿èE5xeŒãéµ ¿è_ƒLÆé]é´ ¿èxniôñðé³ ¿è¡z20£@Êé² ¿èÊ¢Àžy@é± ¿èäQ@d«šòé° ¿é ÙÙç¡1 é¯ ¿é.7¶… ;Ûé® ¿éQÃøpG"é­ ¿é}ÙGd¼K ãé¬ ¿é›‹Ï`qxþé« ¿é¸^·ƒ* ½éª ¿éÔ­ ß·A Té© ¿é÷öعTŸé¨ ¿êÐÛä„Ié§ ¿ê,¢½ áéé¦ ¿êK³Vbª­é¥ ¿êt çê͗½é¤ ¿êšÞ°ò !1é£ ¿ê¼NÑÄi~ éé¢ ¿êà÷Åè÷ [é¡ ¿ë Ñ-p !é  ¿ë8Hó‚J  éŸ ¿ë_ÅáõwNéž ¿ë…Å«‘\4ëé ¿ëJi‚r/éœ ¿ëºíGÀVïé› ¿ëãí>Ò^#éš ¿ìÿNßÝOAé™ ¿ì%c‰g¤ßé˜ ¿ìRCÈ(ë _é— ¿ì€'ååé– ¿íT63pÖé• ¿í•{2‡tf¶éû ?Ò¿t‘/õ(ˆéÇ ¿Û•à|0ÛieéÆ ¿ç¬¸@™ ŠÊé‡îÜʸ¦”‚p^L:(òàμª˜†tbP>,öäÒÀ®œŠxfTB0 úèÖIJ Ž|!÷éÛé ?à1m¸rOGúé ?à¤ÉZZé ?ß­PU¥Ä^…é ?ß=@©!Àé ?Þ·Írø!Åé ?ÞO=¨òž8é ?Ýᵇ¼jÁé ?Ý 45174= 45173< 45172; 45170: 451699 451688 451667 451656 451635 451624 450293 450282 450261 450250 45024/ 45023. 45022- 45012, 45008+ 45007* 45005) 45004( 45002' 45001& 44098% 44095$ 44066# 44065" 44020! 44017 44011 44008 42059 42058 42057 42056 42055 42040 42039 42036 42035 42020 42012 42003 42001 41110 41049 41048 41047 41046 41044 41043 41040 41025 41013 41010 41009 41004 41002 4ä] 46005A ÜäOêÔ¾¨’zbL6  ôÜ̶ Št^H2ðÚÄ®˜‚lV@*þèÒ¼¦zdåÓân4209719/01Xº7âm4205918/22X®÷âl4205719/01X¹Ôâk4205519/04XÄöâj4203919/07XÐ]âi4203519/10XÛkâh4201219/13Xæšâg4200318/16X˜#âf4200118/19X£Œâe4111918/15X”Áâd4111518/18XŸèâc4111318/21X«râb4111019/01X¹Éâa4106419/03XÃSâ`4105319/05XÊÀâ_4104919/09X׬â^4104719/12Xâ§â]4104618/15X”Hâ\4104318/18XŸcâ[4103818/20X©kâZ4103318/22X¯âY4102519/02X½[âX4101319/05XȗâW4100919/08XÔâV4100419/11XÞóâU4100119/14Xê?âT3FOB519/09XÙÇâS3EQX719/06XÏÂâR3297518ä(WDC692519/06XϨäSNDP518/21X¬¸ãÙPILA219/01X»mã±MACM419/12Xäã‹FPKG118/17Xž¾ãcDBLN619/01Xºâã=BATFR7219/10XÜhãAMOUK0518/22X°gâñ6215419/04XÇ÷âÊ5176818/20X©œâž4620518/16X›oâr4514818/14X’Ìâq4203919/07XÐ] 6l°çB¯„(y5    3KMHV 181420Z AUTO 21009KT 10SM CLR 23/08 A2999 RMK A01KMHV2019-07-18T14:20:00Z35.07-118.1523.08.0210910.029.991142TRUETRUEVFRMETAR849.02019-07-18 14:22:34C¯„~(y5    3KMVH 181420Z AUTO 01003KT 10SM CLR 18/10 A2986 RMK AO2KMVH2019-07-18T14:20:00Z46.83-108.9318.010.010310.029.861221TRUETRUEVFRMETAR1355.02019-07-18 14:22:346¯„}(u5   3ESNX 181420Z 11008KT 060V140 9999 SCT048 19/06 Q1013ESNX2019-07-18T14:20:00Z65.5819.2819.06.011086.2129.911417VFRMETAR379.02019-07-18 14:22:34D¯„|)5    3LATI 181420Z 26006KT 220V310 9999 FEW040TCU 29/16 Q1011 NOSIGLATI2019-07-18T14:20:00Z41.4219.7229.016.026066.2129.852362TRUEVFRMETAR90.02019-07-18 14:22:34D¯„{(y5    3KSTK 181420Z AUTO 19006KT 10SM CLR 22/15 A2991 RMK AO2KSTK2019-07-18T14:20:00Z40.62-103.2722.015.0190610.029.911417TRUETRUEVFRSPECI1231.02019-07-18 14:22:34 %:r¬ø%M¯…)5   3CYFT 181418Z 29014G20KT 5SM -DZ OVC007 06/04 A2948 RMK ST8 SLP987CYFT2019-07-18T14:18:00Z55.07-59.176.04.029014205.029.480314998.7-DZIFRSPECI71.02019-07-18 14:22:34.¯…(e5   3KMTN 181418Z 15005KT 10SM BKN050 29/27 A2990KMTN2019-07-18T14:18:00Z39.32-76.4229.027.0150510.029.899607VFRSPECI7.02019-07-18 14:22:34@¯…(y5    3K04V 181418Z AUTO 00000KT 10SM CLR 16/02 A3034 RMK AO2K04V2019-07-18T14:18:00Z38.1-106.1716.02.00010.030.339567TRUETRUEVFRSPECI2385.02019-07-18 14:22:34B¯…(y5    3K2V6 181419Z AUTO 29009KT 10SM CLR 26/07 A2991 RMK AO2K2V62019-07-18T14:19:00Z40.1-102.7226.07.0290910.029.911417TRUETRUEVFRSPECI1261.02019-07-18 14:22:34@¯…(w5    3KMCC 181420Z AUTO 19010KT 9SM CLR 20/13 A2988 RMK AO2KMCC2019-07-18T14:20:00Z38.67-121.420.013.0190109.029.878937TRUETRUEVFRMETAR23.02019-07-18 14:22:34 ©&a©`¯…))5   3KPVC 181418Z AUTO 06012G20KT 10SM OVC004 21/19 A2997 RMK AO2 CIG 003V008 PNO $KPVC2019-07-18T14:18:00Z42.07-70.2221.019.060122010.029.970472TRUETRUETRUELIFRSPECI2.02019-07-18 14:22:34L¯…) 5    3KRZT 181418Z AUTO 00000KT 10SM BKN015 BKN023 26/23 A2999 RMK AO2KRZT2019-07-18T14:18:00Z39.43-83.0226.023.00010.029.991142TRUETRUEMVFRMETAR221.02019-07-18 14:22:34?¯…(y5    3KSAZ 181418Z AUTO 00000KT 10SM CLR 23/18 A2968 RMK AO2KSAZ2019-07-18T14:18:00Z46.37-94.823.018.00010.029.681103TRUETRUEVFRMETAR392.02019-07-18 14:22:34T¯…)5    3KY50 181418Z AUTO 25004KT 10SM BKN016 BKN020 22/21 A2982 RMK AO2 PRESRRKY502019-07-18T14:18:00Z44.03-89.322.021.0250410.029.819881TRUETRUEMVFRSPECI262.02019-07-18 14:22:34 Ÿ0X}ŸX¯… )5     3PAWM 181418Z AUTO 15004KT 1/2SM FG VV001 11/11 A2984 RMK AO2 PNO $PAWM2019-07-18T14:18:00Z64.68-163.4211.011.015040.529.840551TRUETRUETRUEFGLIFR100SPECI82.02019-07-18 14:22:34U¯… )5     3KMRT 181418Z AUTO 20004KT 10SM SCT015 27/22 A3000 RMK AO2 P0001 T02650221KMRT2019-07-18T14:18:00Z40.22-83.3526.522.1200410.030.0TRUETRUEVFR0.01METAR312.02019-07-18 14:22:34R¯… )5     3KPOV 181418Z AUTO 26004KT 10SM CLR 26/18 A3000 RMK AO2 T02550183 PWINOKPOV2019-07-18T14:18:00Z41.22-81.2525.518.3260410.030.0TRUETRUETRUEVFRMETAR365.02019-07-18 14:22:34J¯… ) 5    3KPTN 181418Z AUTO VRB03KT 10SM BKN018 BKN024 30/26 A3009 RMK AO2KPTN2019-07-18T14:18:00Z29.72-91.3230.026.00310.030.088583TRUETRUEMVFRSPECI3.02019-07-18 14:22:34 ° Iw°A¯…(y5    3KTGI 181418Z AUTO 21013KT 10SM CLR 30/26 A2991 RMK AO1KTGI2019-07-18T14:18:00Z37.82-75.9830.026.02101310.029.911417TRUETRUEVFRMETAR2.02019-07-18 14:22:34L¯…) 5    3KD39 181418Z AUTO 27003KT 10SM CLR 24/19 A2970 RMK AO2 T02360185KD392019-07-18T14:18:00Z45.7-94.9323.618.5270310.029.698818TRUETRUEVFRMETAR380.02019-07-18 14:22:34=¯…(y5    3KI23 181418Z AUTO 25005KT 10SM CLR 27/23 A3000 RMK AO1KI232019-07-18T14:18:00Z39.57-83.4227.023.0250510.030.0TRUETRUEVFRMETAR299.02019-07-18 14:22:34n¯… )=5      3PAOO 181418Z AUTO 24007KT 3SM -RA BR BKN008 OVC013 11/11 A3002 RMK AO2 CIG 004V009 P0000PAOO2019-07-18T14:18:00Z60.53-165.1211.011.024073.030.02067TRUETRUE-RA BRIFR0.005SPECI18.02019-07-18 14:22:34 ª"OsªC¯…(5    3PAGL 181417Z AUTO 26008KT 10SM OVC005 12/11 A2985 RMK AO2PAGL2019-07-18T14:17:00Z64.55-163.0312.011.0260810.029.84941TRUETRUEIFRSPECI8.02019-07-18 14:22:34V¯…)!5    3KRQB 181417Z AUTO 22006KT 10SM SCT034 BKN080 25/21 A2990 RMK AO2 T02470214KRQB2019-07-18T14:17:00Z43.72-85.524.721.4220610.029.899607TRUETRUEVFRMETAR302.02019-07-18 14:22:34M¯…) 5    3KOZW 181417Z AUTO 19008KT 10SM CLR 26/20 A2995 RMK AO2 T02610197KOZW2019-07-18T14:17:00Z42.62-83.9726.119.7190810.029.949802TRUETRUEVFRMETAR293.02019-07-18 14:22:34X¯…)'5   3CYXU 181418Z 13005KT 8SM OVC010 25/22 A2996 RMK SF8 SLP143 DENSITY ALT 2200FTCYXU2019-07-18T14:18:00Z43.02-81.1525.022.013058.029.9586621014.3MVFRSPECI278.02019-07-18 14:22:34 ·-e·R¯…)5     3KHIB 181417Z AUTO 00000KT 6SM BR OVC001 19/19 A2966 RMK AO2 T01940194KHIB2019-07-18T14:17:00Z47.38-92.8319.419.4006.029.660433TRUETRUEBRLIFRSPECI412.02019-07-18 14:22:34P¯…)5    3KMGN 181417Z AUTO 22006KT 10SM OVC040 25/21 A2982 RMK AO2 T02530209KMGN2019-07-18T14:17:00Z45.43-84.9225.320.9220610.029.819881TRUETRUEVFRMETAR209.02019-07-18 14:22:34B¯…(y5    3KMVE 181417Z AUTO 25003KT 10SM CLR 25/18 A2972 RMK AO2KMVE2019-07-18T14:17:00Z44.97-95.7225.018.0250310.029.719488TRUETRUEVFRMETAR315.02019-07-18 14:22:34M¯…) 5    3KRMY 181417Z AUTO 19005KT 10SM CLR 26/26 A2993 RMK AO2 T02570257KRMY2019-07-18T14:17:00Z42.23-84.9525.725.7190510.029.929134TRUETRUEVFRMETAR287.02019-07-18 14:22:34 Z-<4ZT¯…)5    3CYUX 181417Z 05006KT 3SM -RA BR OVC003 03/03 A2944 RMK ST8 CIG RAG SLP972CYUX2019-07-18T14:17:00Z68.77-81.253.03.05063.029.438976997.2-RA BRLIFRSPECI8.02019-07-18 14:22:34‚¯…)o5    3CYIV 181417Z 11003KT 040V120 6SM -SHRA BR SCT010 OVC050 17/16 A2950 RMK SF4SC4 TCU EMBD SLP995 DENSITY ALT 1700FTCYIV2019-07-18T14:17:00Z53.85-94.6517.016.011036.029.500984999.5-SHRA BRVFRSPECI237.02019-07-18 14:22:34k¯…)A5      3KENW 181417Z 00000KT 3/4SM +RA BR FEW030 BKN060 OVC110 23/23 A2997 RMK AO2 P0011 T02280228KENW2019-07-18T14:17:00Z42.6-87.9322.822.8000.7529.970472TRUE+RA BRLIFR0.11SPECI219.02019-07-18 14:22:34M¯…) 5    3KHCD 181417Z AUTO 13004KT 10SM CLR 26/23 A2973 RMK AO2 T02550229KHCD2019-07-18T14:17:00Z44.87-94.3825.522.9130410.029.731298TRUETRUEVFRMETAR323.02019-07-18 14:22:34 ¶-I~¶B¯… (y5    3KCBG 181417Z AUTO 15005KT 10SM CLR 28/20 A2970 RMK AO2KCBG2019-07-18T14:17:00Z45.57-93.2728.020.0150510.029.698818TRUETRUEVFRMETAR287.02019-07-18 14:22:34E¯…(5    3KJMR 181417Z AUTO 25005KT 10SM BKN041 24/21 A2970 RMK AO2KJMR2019-07-18T14:17:00Z45.88-93.2724.021.0250510.029.698818TRUETRUEVFRMETAR309.02019-07-18 14:22:34^¯…)/5    3KLWA 181417Z AUTO 25004KT 10SM SCT044 BKN060 BKN100 25/23 A2992 RMK AO2 T02510226KLWA2019-07-18T14:17:00Z42.35-86.2525.122.6250410.029.920275TRUETRUEVFRMETAR203.02019-07-18 14:22:34M¯…) 5    3KSLH 181417Z AUTO 21006KT 10SM CLR 25/19 A2981 RMK AO2 T02540191KSLH2019-07-18T14:17:00Z45.65-84.5225.419.1210610.029.811024TRUETRUEVFRMETAR195.02019-07-18 14:22:34 “Nf“M¯…$) 5    3KJYM 181416Z AUTO 19007KT 10SM CLR 26/22 A2996 RMK AO2 T02600224KJYM2019-07-18T14:16:00Z41.92-84.5826.022.4190710.029.958662TRUETRUEVFRSPECI360.02019-07-18 14:22:34b¯…#)55     3KLDM 181416Z AUTO 23005KT 7SM -RA SCT015 BKN050 OVC080 22/21 A2987 RMK AO2 T02210210KLDM2019-07-18T14:16:00Z43.97-86.422.121.023057.029.870079TRUETRUE-RAVFRSPECI197.02019-07-18 14:22:34D¯…"(5    3KLYV 181416Z AUTO 00000KT 10SM BKN015 24/21 A2975 RMK AO2KLYV2019-07-18T14:16:00Z43.62-96.2224.021.00010.029.749016TRUETRUEMVFRSPECI436.02019-07-18 14:22:34b¯…!)+5      3KBID 181417Z AUTO 21003KT 10SM -RA OVC005 22/22 A2996 RMK AO2 CIG 002V008 P0007KBID2019-07-18T14:17:00Z41.17-71.5822.022.0210310.029.958662TRUETRUE-RAIFR0.07SPECI33.02019-07-18 14:22:34 Ã,bŒÃC¯…((y5    3KFSE 181416Z AUTO 20010KT 10SM CLR 21/18 A2965 RMK AO2KFSE2019-07-18T14:16:00Z47.58-95.7721.018.02001010.029.648623TRUETRUEVFRSPECI389.02019-07-18 14:22:34P¯…')5    3KGYL 181416Z AUTO 17003KT 10SM BKN012 25/24 A2971 RMK AO2 T02540243KGYL2019-07-18T14:16:00Z44.77-94.0825.424.3170310.029.71063TRUETRUEMVFRSPECI302.02019-07-18 14:22:34D¯…&(5    3KHCO 181416Z AUTO 24003KT 10SM SCT070 23/21 A2958 RMK AO2KHCO2019-07-18T14:16:00Z48.75-96.9323.021.0240310.029.58071TRUETRUEVFRSPECI250.02019-07-18 14:22:34N¯…%) 5    3KHYX 181416Z AUTO 19010KT 10SM SCT048 SCT055 26/18 A2991 RMK AO2KHYX2019-07-18T14:16:00Z43.43-83.8726.018.01901010.029.911417TRUETRUEVFRSPECI183.02019-07-18 14:22:34 º8b—ºW¯…,)5    3KTOB 181416Z AUTO 16014G18KT 10SM BKN020 23/19 A2973 RMK AO2 PWINOKTOB2019-07-18T14:16:00Z44.02-92.8223.019.0160141810.029.731298TRUETRUETRUEMVFRSPECI398.02019-07-18 14:22:34E¯…+(5    3KULM 181416Z AUTO 16003KT 10SM BKN017 24/21 A2972 RMK AO2KULM2019-07-18T14:16:00Z44.32-94.524.021.0160310.029.719488TRUETRUEMVFRSPECI308.02019-07-18 14:22:34P¯…*)5    3KELO 181416Z AUTO 20003KT 7SM BKN004 21/21 A2967 RMK AO2 LTG DSNT NEKELO2019-07-18T14:16:00Z47.82-91.8221.021.020037.029.66929TRUETRUELIFRSPECI443.02019-07-18 14:22:34B¯…)(y5    3KFFM 181416Z AUTO 20003KT 10SM CLR 22/18 A2968 RMK AO2KFFM2019-07-18T14:16:00Z46.28-96.1522.018.0200310.029.681103TRUETRUEVFRSPECI361.02019-07-18 14:22:34 Ù/g¬ÙM¯…0) 5    3KCDA 181416Z AUTO 18003KT 10SM CLR 21/15 A3005 RMK AO2 T02100151KCDA2019-07-18T14:16:00Z44.57-72.0221.015.1180310.030.050198TRUETRUEVFRSPECI363.02019-07-18 14:22:345¯…/(s5   3SBFL 181416Z 31006KT 9999 FEW020 BKN035 18/17 Q1028SBFL2019-07-18T14:16:00Z-27.67-48.5318.017.031066.2130.35433VFRSPECI5.02019-07-18 14:22:34B¯….(y5    3KPHN 181416Z AUTO 19004KT 10SM CLR 26/18 A2994 RMK AO2KPHN2019-07-18T14:16:00Z42.92-82.5226.018.0190410.029.940945TRUETRUEVFRSPECI198.02019-07-18 14:22:34K¯…-) 5    3KPEX 181416Z AUTO 00000KT 10SM CLR 24/21 A2970 RMK AO2 T02350207KPEX2019-07-18T14:16:00Z45.37-94.7323.520.70010.029.698818TRUETRUEVFRSPECI360.02019-07-18 14:22:34 °Kx°B¯…4(y5    3KCKN 181416Z AUTO 22005KT 10SM CLR 21/19 A2963 RMK AO2KCKN2019-07-18T14:16:00Z47.85-96.6221.019.0220510.029.630905TRUETRUEVFRSPECI273.02019-07-18 14:22:34M¯…3) 5    3KAMN 181416Z AUTO 18005KT 10SM CLR 26/21 A2991 RMK AO2 T02590209KAMN2019-07-18T14:16:00Z43.32-84.6825.920.9180510.029.911417TRUETRUEVFRSPECI230.02019-07-18 14:22:34L¯…2) 5    3KRNP 181416Z AUTO 20008KT 10SM CLR 26/21 A2992 RMK AO2 T02620205KRNP2019-07-18T14:16:00Z43.0-84.1326.220.5200810.029.920275TRUETRUEVFRSPECI224.02019-07-18 14:22:34]¯…1)/5    3KACB 181416Z AUTO 18003KT 10SM BKN045 BKN050 BKN075 26/20 A2983 RMK AO2 T02550200KACB2019-07-18T14:16:00Z44.98-85.225.520.0180310.029.828741TRUETRUEVFRSPECI190.02019-07-18 14:22:34 ^U2^N¯…8)5    3KARA 181416Z 17005KT 10SM BKN015 BKN021 29/27 A3008 RMK AO2 T02940267KARA2019-07-18T14:16:00Z30.03-91.8829.426.7170510.030.079725TRUEMVFRSPECI18.02019-07-18 14:22:34‚¯…7)‚5      3KORD 181416Z 15007KT 6SM -TSRA BR FEW018 SCT042CB OVC120 22/22 A2990 RMK AO2 LTG DSNT ALQDS OCNL LTGICCG E-S TS E-S MOV E P0021 T02220217KORD2019-07-18T14:16:00Z41.98-87.9322.221.715076.029.899607TRUE-TSRA BRVFR0.21SPECI200.02019-07-18 14:22:34B¯…6(y5    3KAIT 181416Z AUTO 21003KT 10SM CLR 23/21 A2966 RMK AO2KAIT2019-07-18T14:16:00Z46.53-93.6723.021.0210310.029.660433TRUETRUEVFRMETAR367.02019-07-18 14:22:34]¯…5)/5    3KDUJ 181416Z AUTO 28003KT 10SM OVC010 22/20 A3000 RMK AO2 CIG 007V016 T02220200 $KDUJ2019-07-18T14:16:00Z41.17-78.922.220.0280310.030.0TRUETRUETRUEMVFRSPECI554.02019-07-18 14:22:34 °=jƒ°M¯…<) 5    3KY31 181416Z AUTO 15005KT 10SM CLR 24/20 A2989 RMK AO2 T02360196KY312019-07-18T14:16:00Z44.25-84.1823.619.6150510.029.890747TRUETRUEVFRMETAR269.02019-07-18 14:22:34a¯…;)35   3KERY 181416Z AUTO 18009G16KT 7SM SCT017 BKN022 OVC060 22/19 A2979 RMK AO2 T02160193KERY2019-07-18T14:16:00Z46.3-85.4521.619.31809167.029.790354TRUETRUEMVFRMETAR265.02019-07-18 14:22:34M¯…:) 5    3KIKW 181416Z AUTO 18005KT 10SM CLR 26/20 A2990 RMK AO2 T02600200KIKW2019-07-18T14:16:00Z43.67-84.2726.020.0180510.029.899607TRUETRUEVFRMETAR194.02019-07-18 14:22:34=¯…9(y5    3KLBE 181416Z COR 27005KT 8SM OVC012 OVC020 24/24 A2999KLBE2019-07-18T14:16:00Z40.27-79.424.024.027058.029.991142TRUEMVFRSPECI361.02019-07-18 14:22:34 g;GgZ¯…@)#5    3KMLF 181416Z AUTO 21010KT 10SM CLR 22/01 A3011 RMK AO2 WSHFT 1402 T02220006KMLF2019-07-18T14:16:00Z38.42-113.0222.20.62101010.030.109253TRUETRUEVFRSPECI1534.02019-07-18 14:22:34n¯…?)G5     3KMLP 181416Z AUTO VRB05KT 10SM SCT007 BKN012 OVC018 08/07 A2992 RMK AO2 RAE07 P0000 T00830067KMLP2019-07-18T14:16:00Z47.45-115.678.36.70510.029.920275TRUETRUEMVFR0.005SPECI1837.02019-07-18 14:22:34M¯…>) 5    3KVLL 181416Z AUTO 21006KT 10SM CLR 28/14 A2996 RMK AO2 T02750143KVLL2019-07-18T14:16:00Z42.55-83.1827.514.3210610.029.958662TRUETRUEVFRMETAR222.02019-07-18 14:22:34l¯…=)E5     3KVPZ 181416Z AUTO 22008KT 10SM VCTS FEW050 SCT060 26/22 A2993 RMK AO2 LTG DSNT W-N T02610217KVPZ2019-07-18T14:16:00Z41.45-87.026.121.7220810.029.929134TRUETRUEVCTSVFRSPECI231.02019-07-18 14:22:34 ¡9c~¡W¯…D)!5    3KIMT 181416Z AUTO 30006KT 10SM SCT008 BKN110 22/19 A2973 RMK AO2 T02170194KIMT2019-07-18T14:16:00Z45.82-88.1221.719.4300610.029.731298TRUETRUEVFRSPECI349.02019-07-18 14:22:34_¯…C)/5    3KISQ 181416Z AUTO 20007KT 10SM BKN014 BKN065 OVC085 20/19 A2978 RMK AO2 T02040188KISQ2019-07-18T14:16:00Z45.97-86.1720.418.8200710.029.778543TRUETRUEMVFRMETAR209.02019-07-18 14:22:34P¯…B)5    3KISW 181416Z AUTO 20004KT 10SM SCT007 23/21 A2981 RMK AO2 T02280206KISW2019-07-18T14:16:00Z44.37-89.8322.820.6200410.029.811024TRUETRUEVFRSPECI307.02019-07-18 14:22:34A¯…A(y5    3KLXL 181416Z AUTO 22003KT 10SM CLR 23/21 A2969 RMK AO2KLXL2019-07-18T14:16:00Z45.95-94.3323.021.0220310.029.68996TRUETRUEVFRMETAR342.02019-07-18 14:22:34 °6Y†°P¯…H)5    3K40B 181416Z AUTO VRB03KT 19/07 A3006 RMK AO1 SLP183 T01920068 50000K40B2019-07-18T14:16:00Z46.62-69.5219.26.80330.0590551018.3TRUETRUE0.0SPECI314.02019-07-18 14:22:34M¯…G) 5    3KCFS 181416Z AUTO 19005KT 10SM CLR 27/19 A2992 RMK AO2 T02720191KCFS2019-07-18T14:16:00Z43.47-83.4527.219.1190510.029.920275TRUETRUEVFRMETAR214.02019-07-18 14:22:34W¯…F)!5     3KCKC 181416Z AUTO 00000KT 1 1/2SM BR OVC002 19/18 A2970 RMK AO2 LTG DSNT SKCKC2019-07-18T14:16:00Z47.83-90.3719.018.0001.529.698818TRUETRUEBRLIFRMETAR548.02019-07-18 14:22:34D¯…E(5    3KHZX 181416Z AUTO 22004KT 10SM SCT070 22/21 A2967 RMK AO2KHZX2019-07-18T14:16:00Z46.62-93.3222.021.0220410.029.66929TRUETRUEVFRMETAR374.02019-07-18 14:22:34 «+`š«i¯…L)35      3PAOU 181415Z AUTO 31010KT 6SM -RA BR FEW006 SCT019 OVC026 11/10 A3015 RMK AO2 P0000PAOU2019-07-18T14:15:00Z56.0-161.1711.010.0310106.030.15059TRUETRUE-RA BRMVFR0.005SPECI4.02019-07-18 14:22:34@¯…K(y5    3KLRJ 181415Z AUTO 20004KT 10SM CLR 27/25 A2971 RMK AO2KLRJ2019-07-18T14:15:00Z42.77-96.227.025.0200410.029.71063TRUETRUEVFRSPECI365.02019-07-18 14:22:34E¯…J)5     3KL52 181415Z AUTO VRB04KT 2SM BR OVC004 14/13 A2998 RMK A01KL522019-07-18T14:15:00Z35.1-120.6214.013.0042.029.97933TRUETRUEBRLIFRMETAR4.02019-07-18 14:22:34O¯…I)5    3CYUB 181416Z 05004KT 6SM -DZ OVC005 08/08 A2981 RMK ST8 CIG RAG SLP096CYUB2019-07-18T14:16:00Z69.45-133.028.08.05046.029.8110241009.6-DZIFRSPECI5.02019-07-18 14:22:34 Ü:v¯ÜM¯…P) 5    3KCFJ 181415Z AUTO 23005KT 10SM CLR 28/22 A2996 RMK AO2 T02760215KCFJ2019-07-18T14:15:00Z39.98-86.9227.621.5230510.029.958662TRUETRUEVFRSPECI244.02019-07-18 14:22:34A¯…O(y5    3KBXK 181415Z AUTO 00000KT 10SM CLR 30/15 A2993 RMK A01KBXK2019-07-18T14:15:00Z33.42-112.6830.015.00010.029.929134TRUETRUEVFRMETAR315.02019-07-18 14:22:34>¯…N(w5    3KBNW 181415Z AUTO 00000KT 9SM CLR 25/25 A2976 RMK AO2KBNW2019-07-18T14:15:00Z42.03-93.8325.025.0009.029.760826TRUETRUEVFRSPECI354.02019-07-18 14:22:34@¯…M(y5    3KBVU 181415Z AUTO 00000KT 10SM CLR 29/03 A2994 RMK AO2KBVU2019-07-18T14:15:00Z35.95-114.8729.03.00010.029.940945TRUETRUEVFRSPECI671.02019-07-18 14:22:34 °Lu°?¯…T(y5    3KCCA 181415Z AUTO VRB03KT 10SM CLR 28/25 A3001 RMK AO2KCCA2019-07-18T14:15:00Z35.6-92.4528.025.00310.030.008858TRUETRUEVFRSPECI157.02019-07-18 14:22:34Q¯…S)5   3KCCY 181415Z AUTO 15010G15KT 9SM FEW005 FEW011 23/22 A2979 RMK AO2KCCY2019-07-18T14:15:00Z43.07-92.6223.022.015010159.029.790354TRUETRUEVFRSPECI343.02019-07-18 14:22:34?¯…R(w5    3KCDN 181415Z AUTO 24008KT 9SM CLR 30/22 A3003 RMK AO2KCDN2019-07-18T14:15:00Z34.28-80.5730.022.024089.030.029528TRUETRUEVFRSPECI92.02019-07-18 14:22:34i¯…Q)K5   3CYRA 181415Z 04003KT 320V130 15SM SKC 16/07 A2977 RMK R0 AFT 0000 UTC SLP087 DENSITY ALT 1200FTCYRA2019-07-18T14:15:00Z64.12-117.3216.07.040315.029.7696861008.7VFRSPECI213.02019-07-18 14:22:34 Ô4`œÔB¯…X(y5    3KCIN 181415Z AUTO 31008KT 10SM CLR 28/24 A2970 RMK AO2KCIN2019-07-18T14:15:00Z42.03-94.7728.024.0310810.029.698818TRUETRUEVFRSPECI375.02019-07-18 14:22:34>¯…W(y5    3KCGC 181415Z AUTO 00000KT 10SM CLR 28/23 A3011 RMK AO2KCGC2019-07-18T14:15:00Z28.87-82.5728.023.00010.030.109253TRUETRUEVFRSPECI3.02019-07-18 14:22:34N¯…V)5     3KCAV 181415Z AUTO 17010KT 10SM CLR 26/24 A2976 RMK AO2 PWINOKCAV2019-07-18T14:15:00Z42.75-93.7726.024.01701010.029.760826TRUETRUETRUEVFRSPECI354.02019-07-18 14:22:34F¯…U(}5   3KCBF 181415Z AUTO 21011G18KT 9SM CLR 26/26 A2973 RMK AO2KCBF2019-07-18T14:15:00Z41.27-95.7726.026.021011189.029.731298TRUETRUEVFRSPECI382.02019-07-18 14:22:34 Í:s«ÍX¯…\)%5    3KCNB 181415Z AUTO 05003KT 10SM CLR 23/19 A2970 RMK AO2 LTG DSNT SW T02320193KCNB2019-07-18T14:15:00Z44.73-96.2723.219.350310.029.698818TRUETRUEVFRSPECI364.02019-07-18 14:22:34B¯…[(y5    3KCLS 181415Z AUTO 21004KT 10SM CLR 15/14 A3005 RMK AO2KCLS2019-07-18T14:15:00Z46.68-122.9815.014.0210410.030.050198TRUETRUEVFRMETAR54.02019-07-18 14:22:34A¯…Z(y5    3KCLW 181415Z AUTO 11003KT 10SM CLR 29/22 A3010 RMK AO2KCLW2019-07-18T14:15:00Z27.98-82.7529.022.0110310.030.100393TRUETRUEVFRSPECI22.02019-07-18 14:22:34@¯…Y(y5    3KCKM 181415Z AUTO 24003KT 10SM CLR 29/28 A3005 RMK A01KCKM2019-07-18T14:15:00Z34.3-90.5229.028.0240310.030.050198TRUETRUEVFRSPECI53.02019-07-18 14:22:34 Í9`’́?¯…`(y5    3KCQW 181415Z AUTO VRB04KT 10SM CLR 28/23 A3001 RMK AO2KCQW2019-07-18T14:15:00Z34.72-79.9528.023.00410.030.008858TRUETRUEVFRSPECI73.02019-07-18 14:22:34H¯…_(5   3KCNC 181415Z AUTO 23015G20KT 10SM CLR 29/24 A2980 RMK AO2KCNC2019-07-18T14:15:00Z41.02-93.3729.024.0230152010.029.799213TRUETRUEVFRSPECI320.02019-07-18 14:22:34S¯…^)5   3KCPT 181415Z AUTO 18013G21KT 10SM SCT015 SCT020 26/23 A3004 RMK AO2KCPT2019-07-18T14:15:00Z32.35-97.4326.023.0180132110.030.041338TRUETRUEVFRMETAR260.02019-07-18 14:22:34A¯…](y5    3KCMR 181415Z AUTO 21009KT 10SM CLR 22/09 A3030 RMK AO2KCMR2019-07-18T14:15:00Z35.3-112.222.09.0210910.030.301182TRUETRUEVFRMETAR2036.02019-07-18 14:22:34 Ò2kÒE¯…d(}5    3KD57 181415Z AUTO 28005KT 10SM 19/15 A2969 RMK AO2 PWINOKD572019-07-18T14:15:00Z46.82-101.8719.015.0280510.029.68996TRUETRUETRUESPECI637.02019-07-18 14:22:34H¯…c(5   3KD50 181415Z AUTO 27016G22KT 10SM CLR 20/12 A2962 RMK AO2KD502019-07-18T14:15:00Z48.93-103.320.012.0270162210.029.619095TRUETRUEVFRSPECI595.02019-07-18 14:22:34A¯…b(5    3KCVH 181415Z AUTO 00000KT 10SM OVC005 13/12 A2998 RMK A01KCVH2019-07-18T14:15:00Z36.9-121.4213.012.00010.029.97933TRUETRUEIFRMETAR70.02019-07-18 14:22:34H¯…a(5   3KCSQ 181415Z AUTO 22013G20KT 10SM CLR 29/23 A2979 RMK AO2KCSQ2019-07-18T14:15:00Z41.02-94.3729.023.0220132010.029.790354TRUETRUEVFRSPECI394.02019-07-18 14:22:34 ¯/\y¯D¯…h) 5    3KDPL 181415Z AUTO 24007KT 190V260 10SM CLR 31/24 A3000 RMK AO2KDPL2019-07-18T14:15:00Z35.0-77.9731.024.0240710.030.0TRUETRUEVFRSPECI42.02019-07-18 14:22:34]¯…g)/5    3KDRM 181415Z AUTO 16006KT 10SM SCT035 SCT044 BKN065 21/15 A2986 RMK AO2 T02140150KDRM2019-07-18T14:15:00Z46.0-83.7521.415.0160610.029.861221TRUETRUEVFRSPECI204.02019-07-18 14:22:34M¯…f) 5    3KDUH 181415Z AUTO 21004KT 10SM CLR 28/24 A2994 RMK AO2 T02750235KDUH2019-07-18T14:15:00Z41.73-83.6527.523.5210410.029.940945TRUETRUEVFRSPECI204.02019-07-18 14:22:34K¯…e) 5    3KEFK 181415Z AUTO 00000KT 10SM CLR 20/16 A3004 RMK AO2 T01950160KEFK2019-07-18T14:15:00Z44.88-72.2319.516.00010.030.041338TRUETRUEVFRSPECI284.02019-07-18 14:22:34 8q®àG¯…m(5   3K08D 181415Z AUTO 26014G19KT 10SM CLR 21/14 A2965 RMK AO2K08D2019-07-18T14:15:00Z48.3-102.421.014.0260141910.029.648623TRUETRUEVFRSPECI684.02019-07-18 14:22:34H¯…l(5   3KFFL 181415Z AUTO 21010G17KT 10SM CLR 29/23 A2980 RMK A01KFFL2019-07-18T14:15:00Z41.03-91.9729.023.0210101710.029.799213TRUETRUEVFRSPECI244.02019-07-18 14:22:34=¯…k(y5    3KDLZ 181415Z AUTO 21005KT 10SM CLR 27/22 A3000 RMK AO2KDLZ2019-07-18T14:15:00Z40.28-83.1227.022.0210510.030.0TRUETRUEVFRSPECI289.02019-07-18 14:22:34A¯…j(y5    3KDNA 181415Z AUTO VRB03KT 10SM CLR 23/17 A3011 RMK AO2KDNA2019-07-18T14:15:00Z31.88-106.723.017.00310.030.109253TRUETRUEVFRMETAR1253.02019-07-18 14:22:34B¯…i(y5    3KDNS 181415Z AUTO 36006KT 10SM CLR 27/25 A2972 RMK AO2KDNS2019-07-18T14:15:00Z41.97-95.3727.025.0360610.029.719488TRUETRUEVFRSPECI388.02019-07-18 14:22:34 Ì5k¢ÌP¯…q)5    3K22N 181415Z AUTO 00000KT 7SM SCT007 BKN014 OVC046 25/22 A2992 RMK AO2K22N2019-07-18T14:15:00Z40.8-75.7725.022.0007.029.920275TRUETRUEMVFRSPECI163.02019-07-18 14:22:34C¯…p(y5    3K20U 181415Z AUTO 30008KT 10SM CLR 21/15 A2976 RMK AO2K20U2019-07-18T14:15:00Z46.93-103.9821.015.0300810.029.760826TRUETRUEVFRSPECI840.02019-07-18 14:22:34D¯…o(5    3K1R7 181415Z AUTO 06004KT 10SM BKN013 28/25 A3012 RMK AO2K1R72019-07-18T14:15:00Z31.6-90.4228.025.060410.030.121063TRUETRUEMVFRSPECI149.02019-07-18 14:22:34E¯…n(5    3K06D 181415Z AUTO 22008KT 10SM OVC095 19/17 A2959 RMK AO2K06D2019-07-18T14:15:00Z48.88-99.6219.017.0220810.029.589567TRUETRUEVFRSPECI556.02019-07-18 14:22:34 Ö-gžÖB¯…u(y5    3K46D 181415Z AUTO 25008KT 10SM CLR 22/18 A2965 RMK AO2K46D2019-07-18T14:15:00Z47.45-99.1522.018.0250810.029.648623TRUETRUEVFRSPECI490.02019-07-18 14:22:34C¯…t(y5    3K33V 181415Z AUTO 17005KT 10SM CLR 15/01 A3028 RMK AO1K33V2019-07-18T14:15:00Z40.75-106.2815.01.0170510.030.280512TRUETRUEVFRSPECI2484.02019-07-18 14:22:34@¯…s(y5    3K24J 181415Z AUTO 25003KT 10SM CLR 29/25 A3011 RMK A01K24J2019-07-18T14:15:00Z30.3-83.0329.025.0250310.030.109253TRUETRUEVFRSPECI32.02019-07-18 14:22:34M¯…r)5     3K2D5 181415Z AUTO 20009KT 10SM CLR 22/22 A2968 RMK AO2 PWINOK2D52019-07-18T14:15:00Z46.17-98.0822.022.0200910.029.681103TRUETRUETRUEVFRSPECI407.02019-07-18 14:22:34 —2j—M¯…y) 5    3KMRN 181415Z AUTO 25003KT 10SM CLR 28/19 A3008 RMK AO2 T02830187KMRN2019-07-18T14:15:00Z35.82-81.6228.318.7250310.030.079725TRUETRUEVFRSPECI387.02019-07-18 14:22:34B¯…x(y5    3KMOX 181415Z AUTO 18004KT 10SM CLR 23/20 A2964 RMK AO2KMOX2019-07-18T14:15:00Z45.57-95.9723.020.0180410.029.639763TRUETRUEVFRSPECI344.02019-07-18 14:22:34_¯…w))5     3K2P2 181415Z AUTO 23007KT 10SM -DZ BKN012 OVC020 22/21 A2976 RMK AO2 T02180205K2P22019-07-18T14:15:00Z45.38-86.9221.820.5230710.029.760826TRUETRUE-DZMVFRSPECI199.02019-07-18 14:22:34c¯…v)95    3KLNL 181415Z AUTO 20007KT 170V230 10SM BKN100 24/19 A2976 RMK AO2 LTG DSNT W T02400186KLNL2019-07-18T14:15:00Z46.15-89.2224.018.6200710.029.760826TRUETRUEVFRSPECI520.02019-07-18 14:22:34 Ó7o¨ÓO¯…}) 5    3KDEH 181415Z AUTO 12009G17KT 4SM BR OVC030 20/20 A2979 RMK AO2KDEH2019-07-18T14:15:00Z43.27-91.7220.020.01209174.029.790354TRUETRUEBRMVFRSPECI353.02019-07-18 14:22:34A¯…|(y5    3KSLB 181415Z AUTO 19010KT 10SM CLR 27/24 A2971 RMK AO2KSLB2019-07-18T14:15:00Z42.6-95.2227.024.01901010.029.71063TRUETRUEVFRSPECI454.02019-07-18 14:22:34B¯…{(y5    3KMUT 181415Z AUTO 15006KT 10SM CLR 27/23 A2983 RMK AO2KMUT2019-07-18T14:15:00Z41.37-91.1527.023.0150610.029.828741TRUETRUEVFRSPECI167.02019-07-18 14:22:34C¯…z(5    3KMWM 181415Z AUTO 20004KT 10SM OVC007 24/22 A2975 RMK AO2KMWM2019-07-18T14:15:00Z43.9-95.124.022.0200410.029.749016TRUETRUEIFRSPECI430.02019-07-18 14:22:34 È2]ŒÈ>¯†)5     3KMGC 181415Z AUTO 21004KT 10SM BKN060 BKN110 A2993 RMK AO2KMGC2019-07-18T14:15:00Z41.7-86.82210410.029.929134TRUETRUEVFRSPECI200.02019-07-18 14:22:34K¯†) 5    3KOEB 181415Z AUTO 17003KT 7SM CLR 26/25 A2994 RMK AO2 T02610245KOEB2019-07-18T14:15:00Z41.92-85.0326.124.517037.029.940945TRUETRUEVFRSPECI292.02019-07-18 14:22:34O¯…)5    3KOCW 181415Z AUTO 21008KT 10SM SCT017 30/25 A2999 RMK AO2 T02960250KOCW2019-07-18T14:15:00Z35.57-77.0529.625.0210810.029.991142TRUETRUEVFRSPECI12.02019-07-18 14:22:34H¯…~(5   3KD60 181415Z AUTO 27014G19KT 10SM CLR 19/15 A2966 RMK AO2KD602019-07-18T14:15:00Z48.38-102.919.015.0270141910.029.660433TRUETRUEVFRSPECI693.02019-07-18 14:22:34 È7pšÈL¯†) 5    3KM21 181415Z AUTO 20003KT 10SM CLR 25/23 A3002 RMK AO2 T02460230KM212019-07-18T14:15:00Z37.22-87.1524.623.0200310.030.02067TRUETRUEVFRSPECI129.02019-07-18 14:22:34P¯†) 5     3KM25 181415Z AUTO 22008KT 10SM OVC100 24/23 A3001 RMK AO2 PWINOKM252019-07-18T14:15:00Z36.77-88.5824.023.0220810.030.008858TRUETRUETRUEVFRSPECI160.02019-07-18 14:22:34A¯†(y5    3KM40 181415Z AUTO 23009KT 10SM CLR 29/19 A3008 RMK AO2KM402019-07-18T14:15:00Z33.87-88.4829.019.0230910.030.079725TRUETRUEVFRSPECI69.02019-07-18 14:22:34C¯†(y5    3KMAN 181415Z AUTO 31007KT 10SM CLR 21/10 A2996 RMK A01KMAN2019-07-18T14:15:00Z43.58-116.5221.010.0310710.029.958662TRUETRUEVFRSPECI774.02019-07-18 14:22:34 Ò;s¥ÒM¯† ) 5    3KBAX 181415Z AUTO 19005KT 10SM CLR 26/18 A2992 RMK AO2 T02550181KBAX2019-07-18T14:15:00Z43.78-82.9825.518.1190510.029.920275TRUETRUEVFRSPECI234.02019-07-18 14:22:34H¯†(5   3KBKN 181415Z AUTO 20019G25KT 10SM CLR 31/23 A2992 RMK AO2KBKN2019-07-18T14:15:00Z36.75-97.3531.023.0200192510.029.920275TRUETRUEVFRSPECI314.02019-07-18 14:22:34B¯†(}5     3KLRO 181415Z AUTO 25006KT 6SM HZ CLR 30/24 A3005 RMK AO2KLRO2019-07-18T14:15:00Z32.9-79.7830.024.025066.030.050198TRUETRUEHZVFRSPECI4.02019-07-18 14:22:34?¯†(w5    3KLUX 181415Z AUTO 25006KT 7SM CLR 30/23 A3004 RMK AO2KLUX2019-07-18T14:15:00Z34.5-81.9530.023.025067.030.041338TRUETRUEVFRSPECI213.02019-07-18 14:22:34 Û9n£ÛB¯† (}5     3KARW 181415Z AUTO 00000KT 5SM HZ CLR 30/23 A3006 RMK AO2KARW2019-07-18T14:15:00Z32.42-80.6330.023.0005.030.059055TRUETRUEHZMVFRSPECI4.02019-07-18 14:22:34E¯† (y5    3KATS 181415Z AUTO 24011KT 10SM CLR 31/13 A2999 RMK AO2KATS2019-07-18T14:15:00Z32.85-104.4731.013.02401110.029.991142TRUETRUEVFRSPECI1081.02019-07-18 14:22:34E¯† (5    3KAXA 181415Z AUTO 21008KT 10SM SCT017 27/25 A2972 RMK A01KAXA2019-07-18T14:15:00Z43.07-94.2727.025.0210810.029.719488TRUETRUEVFRSPECI372.02019-07-18 14:22:34A¯† (y5    3KBAC 181415Z AUTO 22007KT 10SM CLR 21/20 A2967 RMK AO2KBAC2019-07-18T14:15:00Z46.93-98.0221.020.0220710.029.66929TRUETRUEVFRSPECI427.02019-07-18 14:22:34 ¸1W¸C¯†(y5    3KAIB 181415Z AUTO 11008KT 10SM CLR 21/00 A3022 RMK AO2KAIB2019-07-18T14:15:00Z38.23-108.5721.00.0110810.030.221457TRUETRUEVFRSPECI1811.02019-07-18 14:22:34P¯†)5    3KAIG 181415Z AUTO 25006KT 10SM SCT007 22/21 A2980 RMK AO2 T02170207KAIG2019-07-18T14:15:00Z45.15-89.1221.720.7250610.029.799213TRUETRUEVFRSPECI464.02019-07-18 14:22:34T¯†)5    3KAIO 181415Z AUTO 17009KT 10SM FEW065 FEW080 FEW110 26/25 A2973 RMK AO2KAIO2019-07-18T14:15:00Z41.38-95.0326.025.0170910.029.731298TRUETRUEVFRSPECI360.02019-07-18 14:22:34I¯†)5     3KAQX 181415Z AUTO 00000KT 10SM CLR 29/23 A3006 RMK AO2 TSNOKAQX2019-07-18T14:15:00Z32.98-81.2729.023.00010.030.059055TRUETRUETRUEVFRSPECI49.02019-07-18 14:22:34 3n¢×6¯†(u5    3K7L2 181415Z AUTO 21007KT 190V250 10SM A2972 RMK AO2K7L22019-07-18T14:15:00Z46.22-100.25210710.029.719488TRUETRUESPECI543.02019-07-18 14:22:34E¯†(5    3K9D7 181415Z AUTO 23009KT 10SM FEW120 23/18 A2962 RMK AO2K9D72019-07-18T14:15:00Z48.48-99.2323.018.0230910.029.619095TRUETRUEVFRSPECI452.02019-07-18 14:22:34F¯†(5    3KACQ 181415Z AUTO 16009KT 10SM OVC017 22/20 A2973 RMK AO2KACQ2019-07-18T14:15:00Z44.07-93.5522.020.0160910.029.731298TRUETRUEMVFRSPECI343.02019-07-18 14:22:34?¯†(y5    3KADC 181415Z AUTO 00000KT 10SM CLR 23/20 A2969 RMK AO2KADC2019-07-18T14:15:00Z46.45-95.2223.020.00010.029.68996TRUETRUEVFRSPECI418.02019-07-18 14:22:34G¯†(5   3KADU 181415Z AUTO 22011G20KT 10SM CLR 25/23 A2977 RMK AO2KADU2019-07-18T14:15:00Z41.7-94.9225.023.0220112010.029.769686TRUETRUEVFRSPECI392.02019-07-18 14:22:34 Ô9hŸÔE¯†(5    3K5H4 181415Z AUTO 24007KT 10SM SCT080 20/18 A2964 RMK AO2K5H42019-07-18T14:15:00Z47.78-99.9320.018.0240710.029.639763TRUETRUEVFRSPECI490.02019-07-18 14:22:34C¯†(5    3K6B9 181415Z AUTO 00000KT 10SM SCT017 25/21 A2997 RMK AO2K6B92019-07-18T14:15:00Z42.92-76.4325.021.00010.029.970472TRUETRUEVFRSPECI316.02019-07-18 14:22:34K¯†) 5    3K6L4 181415Z AUTO 00000KT 10SM BKN008 OVC014 24/23 A3006 RMK AO2K6L42019-07-18T14:15:00Z37.85-81.9224.023.00010.030.059055TRUETRUEIFRSPECI508.02019-07-18 14:22:34A¯†(y5    3K74V 181415Z AUTO 00000KT 10SM CLR 20/02 A3009 RMK AO2K74V2019-07-18T14:15:00Z40.28-110.0520.02.00010.030.088583TRUETRUEVFRSPECI1576.02019-07-18 14:22:34 À4o‘ÀK¯†) 5    3KOQN 181415Z AUTO 00000KT 10SM SCT008 OVC100 27/23 A2991 RMK AO2KOQN2019-07-18T14:15:00Z39.98-75.5827.023.00010.029.911417TRUETRUEVFRSPECI142.02019-07-18 14:22:34X¯†)5   3KOLZ 181415Z AUTO 12010G15KT 7SM BKN006 BKN014 BKN021 21/21 A2982 RMK A01KOLZ2019-07-18T14:15:00Z42.67-91.9721.021.012010157.029.819881TRUETRUEIFRSPECI328.02019-07-18 14:22:34?¯†(y5    3K4A6 181415Z AUTO 00000KT 10SM CLR 26/24 A3011 RMK AO2K4A62019-07-18T14:15:00Z34.68-86.026.024.00010.030.109253TRUETRUEVFRSPECI198.02019-07-18 14:22:34F¯†)5     3K4M9 181415Z AUTO 18004KT 10SM CLR 26/26 A3000 RMK AO2 PWINOK4M92019-07-18T14:15:00Z36.4-90.6526.026.0180410.030.0TRUETRUETRUEVFRSPECI90.02019-07-18 14:22:34 ¼.W‚¼@¯†"(y5    3KPLR 181415Z AUTO 00000KT 10SM CLR 28/27 A3010 RMK A01KPLR2019-07-18T14:15:00Z33.57-86.2528.027.00010.030.100393TRUETRUEVFRSPECI148.02019-07-18 14:22:34O¯†!)5    3KPMH 181415Z AUTO 00000KT 10SM OVC012 24/22 A3001 RMK AO2 T02410221KPMH2019-07-18T14:15:00Z38.83-82.8524.122.10010.030.008858TRUETRUEMVFRSPECI202.02019-07-18 14:22:34Q¯† )5    3KPVB 181415Z AUTO 12009KT 10SM OVC003 20/20 A2987 RMK AO1 T02040204KPVB2019-07-18T14:15:00Z42.68-90.4320.420.4120910.029.870079TRUETRUELIFRSPECI313.02019-07-18 14:22:34L¯†) 5    3KONZ 181415Z AUTO 19004KT 10SM CLR 26/20 A2994 RMK AO2 T02550199KONZ2019-07-18T14:15:00Z42.1-83.1525.519.9190410.029.940945TRUETRUEVFRSPECI180.02019-07-18 14:22:34 Ë/g™ËH¯†&(5   3KSDA 181415Z AUTO 18012G17KT 10SM CLR 29/23 A2975 RMK AO2KSDA2019-07-18T14:15:00Z40.75-95.4229.023.0180121710.029.749016TRUETRUEVFRSPECI296.02019-07-18 14:22:34H¯†%(5   3KRUG 181415Z AUTO 21007G13KT 10SM CLR 21/19 A2959 RMK AO2KRUG2019-07-18T14:15:00Z48.38-100.0221.019.021071310.029.589567TRUETRUEVFRSPECI472.02019-07-18 14:22:34B¯†$(y5    3KPAN 181415Z AUTO 00000KT 10SM CLR 23/11 A3022 RMK AO2KPAN2019-07-18T14:15:00Z34.25-111.3323.011.00010.030.221457TRUETRUEVFRSPECI1572.02019-07-18 14:22:34K¯†#) 5    3KPCZ 181415Z AUTO 00000KT 10SM CLR 23/22 A2978 RMK AO2 T02280220KPCZ2019-07-18T14:15:00Z44.33-89.0222.822.00010.029.778543TRUETRUEVFRSPECI252.02019-07-18 14:22:34 ‡#Yv‡i¯†*)55     3KRRT 181415Z AUTO 25005KT 10SM -VCTSDZ SCT041 20/18 A2961 RMK AO2 LTG DSNT W THRU NEKRRT2019-07-18T14:15:00Z48.93-95.3320.018.0250510.029.610237TRUETRUEVCTS -DZVFRSPECI327.02019-07-18 14:22:34]¯†))/5    3KSJX 181415Z AUTO 19009KT 10SM SCT028 SCT048 BKN070 22/19 A2982 RMK AO2 T02210188KSJX2019-07-18T14:15:00Z45.7-85.5722.118.8190910.029.819881TRUETRUEVFRSPECI204.02019-07-18 14:22:34D¯†((5    3KSDC 181415Z AUTO 00000KT 10SM OVC011 23/19 A2997 RMK AO2KSDC2019-07-18T14:15:00Z43.23-77.1223.019.00010.029.970472TRUETRUEMVFRSPECI129.02019-07-18 14:22:34W¯†')!5    3KSGS 181415Z AUTO 16006KT 10SM SCT022 SCT039 23/22 A2972 RMK AO2 T02290216KSGS2019-07-18T14:15:00Z44.87-93.0322.921.6160610.029.719488TRUETRUEVFRSPECI250.02019-07-18 14:22:34 {I{H¯†.(5   3KRDK 181415Z AUTO 20013G20KT 10SM CLR 29/24 A2976 RMK AO2KRDK2019-07-18T14:15:00Z41.02-95.2729.024.0200132010.029.760826TRUETRUEVFRSPECI318.02019-07-18 14:22:34L¯†-) 5    3KRGK 181415Z AUTO 09004KT 10SM BKN044 OVC050 23/20 A2972 RMK AO2KRGK2019-07-18T14:15:00Z44.58-92.4823.020.090410.029.719488TRUETRUEVFRSPECI239.02019-07-18 14:22:34a¯†,)95    3KROS 181415Z AUTO 15006KT 10SM SCT009 SCT041 23/21 A2971 RMK AO2 LTG DSNT NE T02330208KROS2019-07-18T14:15:00Z45.7-92.9523.320.8150610.029.71063TRUETRUEVFRSPECI281.02019-07-18 14:22:34x¯†+)W5      3KROX 181415Z AUTO 21013KT 10SM RA SCT005 SCT020 BKN031 19/16 A2959 RMK AO2 LTG DSNT NE S AND SW P0001KROX2019-07-18T14:15:00Z48.85-95.719.016.02101310.029.589567TRUETRUERAVFR0.01SPECI323.02019-07-18 14:22:34 È2Z“ȁE¯†2(5    3KSYM 181415Z AUTO 20005KT 10SM OVC007 24/23 A3004 RMK AO2KSYM2019-07-18T14:15:00Z38.22-83.5824.023.0200510.030.041338TRUETRUEIFRSPECI313.02019-07-18 14:22:34A¯†1(}5    3KSHL 181415Z AUTO 00000KT 9SM SCT008 24/24 A2973 RMK AO2KSHL2019-07-18T14:15:00Z43.22-95.8224.024.0009.029.731298TRUETRUEVFRSPECI432.02019-07-18 14:22:34R¯†0)5   3KPZQ 181415Z AUTO 20010G17KT 10SM CLR 25/18 A2986 RMK AO2 T02520179KPZQ2019-07-18T14:15:00Z45.4-83.8225.217.9200101710.029.861221TRUETRUEVFRSPECI204.02019-07-18 14:22:34H¯†/(5   3KRCE 181415Z AUTO 20016G26KT 10SM CLR 29/21 A2994 RMK AO2KRCE2019-07-18T14:15:00Z35.48-97.8229.021.0200162610.029.940945TRUETRUEVFRSPECI413.02019-07-18 14:22:34 Ê,d“ʁC¯†6(y5    3KSVE 181415Z AUTO 32004KT 10SM CLR 18/08 A3006 RMK AO2KSVE2019-07-18T14:15:00Z40.37-120.5718.08.0320410.030.059055TRUETRUEVFRSPECI1263.02019-07-18 14:22:34K¯†5) 5    3KSVH 181415Z AUTO 00000KT 10SM CLR 29/22 A3003 RMK AO2 T02870217KSVH2019-07-18T14:15:00Z35.75-80.9528.721.70010.030.029528TRUETRUEVFRSPECI294.02019-07-18 14:22:34B¯†4(y5    3KSXK 181415Z AUTO 36005KT 10SM CLR 25/24 A2972 RMK AO2KSXK2019-07-18T14:15:00Z42.98-96.1725.024.0360510.029.719488TRUETRUEVFRSPECI430.02019-07-18 14:22:34N¯†3) 5    3KSXU 181415Z AUTO 26005KT 10SM CLR 27/08 A3003 RMK AO2 T02690081KSXU2019-07-18T14:15:00Z34.93-104.6526.98.1260510.030.029528TRUETRUEVFRMETAR1460.02019-07-18 14:22:34 Ç#^Ç@¯†:(y5    3KSMS 181415Z AUTO 24006KT 10SM CLR 30/24 A3003 RMK AO2KSMS2019-07-18T14:15:00Z34.0-80.3730.024.0240610.030.029528TRUETRUEVFRSPECI56.02019-07-18 14:22:34K¯†9) 5    3KSNC 181415Z AUTO 07004KT 10SM BKN008 OVC015 25/23 A2994 RMK AO2KSNC2019-07-18T14:15:00Z41.38-72.525.023.070410.029.940945TRUETRUEIFRSPECI127.02019-07-18 14:22:34?¯†8(w5    3KSOW 181415Z AUTO 00000KT 9SM CLR 22/10 A3030 RMK AO2KSOW2019-07-18T14:15:00Z34.27-110.022.010.0009.030.301182TRUETRUEVFRSPECI1954.02019-07-18 14:22:34W¯†7)!5    3KSTE 181415Z AUTO 16008KT 10SM SCT010 SCT018 22/22 A2978 RMK AO2 T02210215KSTE2019-07-18T14:15:00Z44.55-89.5322.121.5160810.029.778543TRUETRUEVFRSPECI338.02019-07-18 14:22:34 Ê"O†Ê6¯†>(u5   3KORS 181415Z AUTO 19007KT BKN075 15/12 A2998 RMK AO2KORS2019-07-18T14:15:00Z48.7-122.9215.012.0190729.97933TRUETRUESPECI9.02019-07-18 14:22:34C¯†=(y5    3KOXV 181415Z AUTO 24010KT 10SM CLR 27/23 A2978 RMK AO2KOXV2019-07-18T14:15:00Z41.28-93.1227.023.02401010.029.778543TRUETRUEVFRSPECI283.02019-07-18 14:22:34M¯†<)5     3KTNU 181415Z AUTO 22007KT 10SM CLR 27/25 A2977 RMK AO2 PWINOKTNU2019-07-18T14:15:00Z41.67-93.0227.025.0220710.029.769686TRUETRUETRUEVFRSPECI290.02019-07-18 14:22:34X¯†;)!5   3KTFP 181415Z AUTO 16012G17KT 10SM SCT019 31/26 A3001 RMK AO2 T03140257 PNOKTFP2019-07-18T14:15:00Z27.92-97.2231.425.7160121710.030.008858TRUETRUEVFRMETAR6.02019-07-18 14:22:34 À-\‰ÀC¯†B(5    3KTPF 181415Z AUTO 18003KT 10SM OVC100 30/24 A3011 RMK AO2KTPF2019-07-18T14:15:00Z27.92-82.4530.024.0180310.030.109253TRUETRUEVFRSPECI3.02019-07-18 14:22:34M¯†A) 5    3KTQK 181415Z AUTO 20008KT 10SM CLR 25/19 A2985 RMK AO1 T02450186KTQK2019-07-18T14:15:00Z38.47-100.8824.518.6200810.029.84941TRUETRUEVFRSPECI904.02019-07-18 14:22:34K¯†@) 5    3KTTA 181415Z AUTO 26007KT 10SM CLR 29/22 A2999 RMK AO2 T02870224KTTA2019-07-18T14:15:00Z35.58-79.128.722.4260710.029.991142TRUETRUEVFRSPECI75.02019-07-18 14:22:34M¯†?) 5    3KTTF 181415Z AUTO 17006KT 10SM CLR 28/23 A2994 RMK AO2 T02750226KTTF2019-07-18T14:15:00Z41.93-83.4227.522.6170610.029.940945TRUETRUEVFRSPECI188.02019-07-18 14:22:34 Ì6w´Ìb¯†F)75     3PFSH 181415Z AUTO 26013KT 2SM BR FEW006 BKN018 OVC024 14/13 A2985 RMK AO2 VIS 1 1/4V5PFSH2019-07-18T14:15:00Z64.37-161.2214.013.0260132.029.84941TRUETRUEBRIFRSPECI7.02019-07-18 14:22:34=¯†E(q5     3KUOX 181415Z AUTO 9SM CLR 28/24 A3008 RMK AO2 TSNOKUOX2019-07-18T14:15:00Z34.38-89.5328.024.09.030.079725TRUETRUETRUEVFRSPECI137.02019-07-18 14:22:349¯†D(q5   3KVVV 181415Z AUTO 20004KT 10SM 23/19 A2969 RMK AO2KVVV2019-07-18T14:15:00Z45.3-96.4223.019.0200410.029.68996TRUETRUESPECI335.02019-07-18 14:22:34D¯†C(5    3KUKT 181415Z AUTO 00000KT 10SM OVC011 26/24 A2992 RMK A01KUKT2019-07-18T14:15:00Z40.43-75.3826.024.00010.029.920275TRUETRUEMVFRSPECI160.02019-07-18 14:22:34  *.\ 6¯†J(s5     3KOLG 181415Z AUTO 18006KT 10SM OVC005 A2970 RMK AO1KOLG2019-07-18T14:15:00Z46.3-91.82180610.029.698818TRUETRUEIFRSPECI336.02019-07-18 14:22:34L¯†I) 5    3KSCD 181415Z AUTO 27003KT 10SM CLR 29/23 A3010 RMK AO2 T02900234KSCD2019-07-18T14:15:00Z33.17-86.329.023.4270310.030.100393TRUETRUEVFRSPECI173.02019-07-18 14:22:34v¯†H)Y5    3CYFO 181415Z 06004KT 030V090 6SM -DZ BR BKN008 OVC015 16/15 A2953 RMK SC5SC3 SLP006 DENSITY ALT 1800FTCYFO2019-07-18T14:15:00Z54.67-101.6716.015.06046.029.5305121000.6-DZ BRIFRSPECI304.02019-07-18 14:22:34P¯†G)5    3KY70 181415Z AUTO 19006KT 10SM SCT090 26/21 A2991 RMK AO2 T02620207KY702019-07-18T14:15:00Z42.93-85.0726.220.7190610.029.911417TRUETRUEVFRSPECI250.02019-07-18 14:22:34 Ä.eŸÄU¯†N)5   3KJXI 181415Z AUTO 16007G16KT 10SM OVC015 27/23 A3005 RMK AO2 T02670231KJXI2019-07-18T14:15:00Z32.7-94.9526.723.116071610.030.050198TRUETRUEMVFRMETAR127.02019-07-18 14:22:34@¯†M(y5    3KLJF 181415Z AUTO 28003KT 10SM CLR 27/23 A2971 RMK AO2KLJF2019-07-18T14:15:00Z45.1-94.5227.023.0280310.029.71063TRUETRUEVFRSPECI348.02019-07-18 14:22:34C¯†L(}5    3KMXO 181415Z AUTO 10006KT 9SM FEW120 22/22 A2982 RMK AO2KMXO2019-07-18T14:15:00Z42.22-91.1722.022.010069.029.819881TRUETRUEVFRSPECI259.02019-07-18 14:22:34L¯†K) 5    3KOCQ 181415Z AUTO 07003KT 10SM CLR 22/21 A2976 RMK AO1 T02210214KOCQ2019-07-18T14:15:00Z44.87-87.9222.121.470310.029.760826TRUETRUEVFRSPECI183.02019-07-18 14:22:34 Í.b“́@¯†R(y5    3KGPC 181415Z AUTO 00000KT 10SM CLR 27/23 A2997 RMK AO2KGPC2019-07-18T14:15:00Z39.63-86.8227.023.00010.029.970472TRUETRUEVFRSPECI257.02019-07-18 14:22:34I¯†Q)5    3KI68 181415Z AUTO 00000KT 10SM SCT012 27/27 A3000 RMK AO1 T02710271KI682019-07-18T14:15:00Z39.47-84.2527.127.10010.030.0TRUETRUEVFRSPECI274.02019-07-18 14:22:34F¯†P(5    3KIDI 181415Z AUTO 31003KT 10SM OVC016 23/22 A3003 RMK A01KIDI2019-07-18T14:15:00Z40.62-79.0823.022.0310310.030.029528TRUETRUEMVFRSPECI429.02019-07-18 14:22:34L¯†O)5    3KJVY 181415Z AUTO 24006KT 10SM OVC011 26/23 A3000 RMK AO2 T02600228KJVY2019-07-18T14:15:00Z38.37-85.7326.022.8240610.030.0TRUETRUEMVFRSPECI145.02019-07-18 14:22:34 ©9[…©V¯†V)5   3KFLY 181415Z AUTO 32012G20KT 10SM CLR 27/M02 A3018 RMK AO2 T02651023KFLY2019-07-18T14:15:00Z38.95-104.5726.5-2.3320122010.030.180119TRUETRUEVFRMETAR2096.02019-07-18 14:22:34P¯†U)5    3KGCD 181415Z AUTO 00000KT 10SM OVC050 17/10 A3001 RMK AO2 T01690100KGCD2019-07-18T14:15:00Z44.38-118.9716.910.00010.030.008858TRUETRUEVFRMETAR1127.02019-07-18 14:22:34X¯†T)!5    3KGFL 181415Z AUTO 32006KT 10SM BKN028 OVC038 24/17 A2997 RMK AO2 T02390172KGFL2019-07-18T14:15:00Z43.33-73.6223.917.2320610.029.970472TRUETRUEMVFRSPECI103.02019-07-18 14:22:34A¯†S(y5    3KGHW 181415Z AUTO 17003KT 10SM CLR 23/19 A2971 RMK AO2KGHW2019-07-18T14:15:00Z45.63-95.3223.019.0170310.029.71063TRUETRUEVFRSPECI425.02019-07-18 14:22:34 >kV¯†Z)!5    3KESF 181415Z AUTO 23006KT 10SM FEW008 BKN015 27/25 A3009 RMK AO2 T02720250KESF2019-07-18T14:15:00Z31.4-92.2827.225.0230610.030.088583TRUETRUEMVFRSPECI28.02019-07-18 14:22:34M¯†Y)5    3KEST 181415Z AUTO 20007KT 8SM OVC005 24/23 A2974 RMK AO2 T02390228KEST2019-07-18T14:15:00Z43.4-94.7523.922.820078.029.740158TRUETRUEIFRSPECI401.02019-07-18 14:22:34Q¯†X)5   3KEYF 181415Z AUTO 22010G14KT 10SM CLR 30/23 A3001 RMK AO2 T03040230KEYF2019-07-18T14:15:00Z34.6-78.5830.423.0220101410.030.008858TRUETRUEVFRSPECI41.02019-07-18 14:22:34e¯†W)95    3KFKS 181415Z AUTO 21010G15KT 7SM RA SCT013 BKN060 OVC085 24/20 A2985 RMK AO2 T02410202KFKS2019-07-18T14:15:00Z44.63-86.224.120.221010157.029.84941TRUETRUERAVFRSPECI193.02019-07-18 14:22:34 Å.f‹Å@¯†^(y5    3KX07 181415Z AUTO 18005KT 10SM CLR 29/25 A3013 RMK A01KX072019-07-18T14:15:00Z27.9-81.6229.025.0180510.030.129921TRUETRUEVFRSPECI39.02019-07-18 14:22:34U¯†])#5    3KX60 181415Z AUTO 00000KT 10SM CLR 28/24 A3012 RMK AO2 LTG DSNT E T02780238KX602019-07-18T14:15:00Z29.35-82.4727.823.80010.030.121063TRUETRUEVFRSPECI23.02019-07-18 14:22:34B¯†\(y5    3KY19 181415Z AUTO 22008KT 10SM CLR 19/19 A2970 RMK AO2KY192019-07-18T14:15:00Z46.77-100.919.019.0220810.029.698818TRUETRUEVFRSPECI593.02019-07-18 14:22:34L¯†[) 5    3KEMV 181415Z AUTO 22007KT 10SM CLR 29/24 A2997 RMK AO2 T02940238KEMV2019-07-18T14:15:00Z36.68-77.4829.423.8220710.029.970472TRUETRUEVFRSPECI39.02019-07-18 14:22:34 À9o–ÀP¯†b)5    3KTYQ 181415Z AUTO 23005KT 10SM BKN060 28/26 A2997 RMK AO2 T02760255KTYQ2019-07-18T14:15:00Z40.03-86.2527.625.5230510.029.970472TRUETRUEVFRSPECI281.02019-07-18 14:22:34S¯†a)5   3KU42 181415Z AUTO 15014G18KT 10SM CLR 26/04 A3002 RMK AO1 T02560041KU422019-07-18T14:15:00Z40.62-111.9825.64.1150141810.030.02067TRUETRUEVFRMETAR1402.02019-07-18 14:22:34D¯†`(5    3KUKF 181415Z AUTO 27003KT 10SM BKN110 27/23 A3010 RMK AO2KUKF2019-07-18T14:15:00Z36.22-81.127.023.0270310.030.100393TRUETRUEVFRSPECI396.02019-07-18 14:22:34A¯†_(y5    3KW63 181415Z AUTO 28004KT 10SM CLR 29/22 A2997 RMK AO1KW632019-07-18T14:15:00Z36.6-78.5529.022.0280410.029.970472TRUETRUEVFRSPECI129.02019-07-18 14:22:34 Ï2h ÏK¯†f) 5    3KSCR 181415Z AUTO 24004KT 10SM CLR 29/22 A3001 RMK AO2 T02930220KSCR2019-07-18T14:15:00Z35.7-79.529.322.0240410.030.008858TRUETRUEVFRSPECI188.02019-07-18 14:22:34B¯†e(y5    3KTDF 181415Z AUTO 28004KT 10SM CLR 28/21 A3001 RMK AO2KTDF2019-07-18T14:15:00Z36.28-78.9828.021.0280410.030.008858TRUETRUEVFRSPECI186.02019-07-18 14:22:34D¯†d(}5     3KTKX 181415Z AUTO 20006KT 6SM BR CLR 27/26 A2999 RMK AO2KTKX2019-07-18T14:15:00Z36.22-90.0227.026.020066.029.991142TRUETRUEBRVFRSPECI80.02019-07-18 14:22:34H¯†c(5   3KTVY 181415Z AUTO 19016G21KT 10SM CLR 27/00 A2998 RMK AO2KTVY2019-07-18T14:15:00Z40.62-112.3527.00.0190162110.029.97933TRUETRUEVFRMETAR1317.02019-07-18 14:22:34 É.[’ɁC¯†j(5    3KPQN 181415Z AUTO 00000KT 10SM SCT026 23/22 A2974 RMK AO2KPQN2019-07-18T14:15:00Z43.97-96.3223.022.00010.029.740158TRUETRUEVFRSPECI529.02019-07-18 14:22:34C¯†i(y5    3KPVF 181415Z AUTO 14007KT 10SM CLR 22/12 A2999 RMK AO1KPVF2019-07-18T14:15:00Z38.72-120.7522.012.0140710.029.991142TRUETRUEVFRMETAR789.02019-07-18 14:22:34M¯†h) 5    3KPCD 181415Z AUTO 16006KT 10SM CLR 25/22 A2997 RMK AO2 T02450218KPCD2019-07-18T14:15:00Z37.87-89.8724.521.8160610.029.970472TRUETRUEVFRSPECI113.02019-07-18 14:22:34L¯†g)5   3KORH 181415Z 04007G17KT 10SM OVC012 18/16 A3001 RMK AO2 T01780156KORH2019-07-18T14:15:00Z42.27-71.8717.815.64071710.030.008858TRUEMVFRSPECI304.02019-07-18 14:22:34 Ó9q™Ó@¯†n(y5    3KAWG 181415Z AUTO VRB05KT 10SM CLR 27/25 A2980 RMK AO2KAWG2019-07-18T14:15:00Z41.27-91.6727.025.00510.029.799213TRUETRUEVFRSPECI230.02019-07-18 14:22:34R¯†m)5   3KAXS 181415Z AUTO 19015G19KT 10SM CLR 28/21 A2995 RMK AO2 T02810206KAXS2019-07-18T14:15:00Z34.7-99.3328.120.6190151910.029.949802TRUETRUEVFRSPECI437.02019-07-18 14:22:34B¯†l(y5    3KBBB 181415Z AUTO 16003KT 10SM CLR 24/19 A2970 RMK AO2KBBB2019-07-18T14:15:00Z45.32-95.6524.019.0160310.029.698818TRUETRUEVFRSPECI317.02019-07-18 14:22:34A¯†k(y5    3KBBP 181415Z AUTO 20006KT 10SM CLR 30/23 A3001 RMK AO2KBBP2019-07-18T14:15:00Z34.62-79.7330.023.0200610.030.008858TRUETRUEVFRSPECI45.02019-07-18 14:22:34 »-Iƒ»B¯†r(y5    3KL08 181415Z AUTO 19003KT 10SM CLR 26/06 A2986 RMK AO2KL082019-07-18T14:15:00Z33.27-116.3226.06.0190310.029.861221TRUETRUEVFRSPECI159.02019-07-18 14:22:34@¯†q(y5    3KDNN 181415Z AUTO 00000KT 10SM CLR 30/22 A3010 RMK AO2KDNN2019-07-18T14:15:00Z34.72-84.8730.022.00010.030.100393TRUETRUEVFRSPECI216.02019-07-18 14:22:34^¯†p)/5    3KCAD 181415Z AUTO 21008KT 10SM BKN034 BKN043 OVC085 25/21 A2989 RMK AO2 T02520210KCAD2019-07-18T14:15:00Z44.27-85.4225.221.0210810.029.890747TRUETRUEVFRSPECI398.02019-07-18 14:22:34M¯†o) 5    3KASW 181415Z AUTO 23004KT 10SM SCT055 BKN065 27/22 A2994 RMK AO2KASW2019-07-18T14:15:00Z41.27-85.8327.022.0230410.029.940945TRUETRUEVFRSPECI259.02019-07-18 14:22:34 ¥=w¥L¯†v) 5    3KAFP 181415Z AUTO 27003KT 10SM CLR 30/22 A3001 RMK AO2 T02960222KAFP2019-07-18T14:15:00Z35.02-80.0829.622.2270310.030.008858TRUETRUEVFRSPECI92.02019-07-18 14:22:34@¯†u(y5    3KTME 181415Z AUTO 20010KT 10SM CLR 30/25 A3006 RMK AO2KTME2019-07-18T14:15:00Z29.8-95.930.025.02001010.030.059055TRUETRUEVFRSPECI51.02019-07-18 14:22:34E¯†t(5    3KBWW 181415Z AUTO 25004KT 10SM OVC075 21/17 A2965 RMK AO2KBWW2019-07-18T14:15:00Z46.17-103.321.017.0250410.029.648623TRUETRUEVFRMETAR910.02019-07-18 14:22:34r¯†s)?5     3KC35 181415Z AUTO 19011G17KT 10SM BKN013 OVC110 21/21 A2980 RMK AO2 P0001 T02100210 PWINOKC352019-07-18T14:15:00Z43.53-89.9821.021.0190111710.029.799213TRUETRUETRUEMVFR0.01SPECI276.02019-07-18 14:22:34 ”+8u”[¯†z)%5     3K82C 181415Z AUTO 19005KT 5SM BR BKN013 OVC100 22/21 A2980 RMK AO2 T02170205K82C2019-07-18T14:15:00Z43.83-90.1321.720.519055.029.799213TRUETRUEBRMVFRSPECI276.02019-07-18 14:22:34=¯†y(y5    3K82V 181415Z AUTO 00000KT 10SM CLR 21/10 A3000 RMK AO2K82V2019-07-18T14:15:00Z41.15-104.1321.010.00010.030.0TRUETRUEVFRMETAR1570.02019-07-18 14:22:34m¯†x)E5   3K9MN 181415Z AUTO 15011G21KT 110V170 10SM SCT021 BKN027 BKN032 23/20 A2973 RMK AO1 T02300197K9MN2019-07-18T14:15:00Z44.02-92.4823.019.7150112110.029.731298TRUETRUEMVFRSPECI355.02019-07-18 14:22:34O¯†w)5    3KAEJ 181415Z AUTO 31003KT 10SM CLR 15/M01 A3033 RMK AO2 T01541007KAEJ2019-07-18T14:15:00Z38.82-106.1215.4-0.7310310.030.33071TRUETRUEVFRMETAR2422.02019-07-18 14:22:34 ¸/]Ž¸P¯†~)5    3K1P1 181415Z AUTO 11006KT 10SM OVC042 21/14 A3004 RMK AO2 T02100141K1P12019-07-18T14:15:00Z43.78-71.7521.014.1110610.030.041338TRUETRUEVFRSPECI154.02019-07-18 14:22:34I¯†})5     3K42J 181415Z AUTO VRB03KT 10SM CLR 28/24 A3012 RMK A01 TSNOK42J2019-07-18T14:15:00Z29.85-82.0528.024.00310.030.121063TRUETRUETRUEVFRSPECI60.02019-07-18 14:22:34L¯†|)5   3K4S2 181415Z AUTO 29007G16KT 10SM SCT050 16/11 A2999 RMK AO2K4S22019-07-18T14:15:00Z45.68-121.5516.011.029071610.029.991142TRUETRUEVFRMETAR192.02019-07-18 14:22:34K¯†{) 5    3K4V0 181415Z AUTO 00000KT 10SM CLR 16/01 A3010 RMK AO2 T01620014K4V02019-07-18T14:15:00Z40.1-108.7716.21.40010.030.100393TRUETRUEVFRMETAR1608.02019-07-18 14:22:34 Í:c™ÍF¯‡(}5    3KECU 181415Z AUTO 15013KT 9SM BKN015 24/20 A3013 RMK AO2KECU2019-07-18T14:15:00Z29.95-100.1724.020.0150139.030.129921TRUETRUEMVFRMETAR725.02019-07-18 14:22:34D¯‡(5    3KRVL 181415Z AUTO 00000KT 10SM OVC028 26/24 A2993 RMK AO2KRVL2019-07-18T14:15:00Z40.68-77.6326.024.00010.029.929134TRUETRUEMVFRSPECI250.02019-07-18 14:22:34Q¯‡)5    3KRZL 181415Z AUTO 21006KT 10SM OVC041 26/22 A2993 RMK AO2 LTG DSNT NKRZL2019-07-18T14:15:00Z40.95-87.1826.022.0210610.029.929134TRUETRUEVFRSPECI213.02019-07-18 14:22:34@¯†(y5    3K0S9 181415Z AUTO 00000KT 10SM CLR 15/11 A3001 RMK AO2K0S92019-07-18T14:15:00Z48.05-122.8215.011.00010.030.008858TRUETRUEVFRMETAR33.02019-07-18 14:22:34 ›8js›R¯‡)5   3KCWC 181415Z AUTO 19010G16KT 10SM CLR 29/21 A2998 RMK AO2 T02860205KCWC2019-07-18T14:15:00Z33.85-98.4828.620.5190101610.029.97933TRUETRUEVFRMETAR305.02019-07-18 14:22:34q¯‡)O5   3KDLL 181415Z AUTO 22013G18KT 10SM SCT010 BKN110 21/19 A2981 RMK AO2 LTG DSNT SE THRU SW T02060191KDLL2019-07-18T14:15:00Z43.52-89.7720.619.1220131810.029.811024TRUETRUEVFRSPECI299.02019-07-18 14:22:34H¯‡)5   3KEDC 181415Z AUTO 19007G14KT 9SM SCT015 28/23 A3005 RMK AO2KEDC2019-07-18T14:15:00Z30.4-97.5728.023.01907149.030.050198TRUETRUEVFRMETAR189.02019-07-18 14:22:34B¯‡(y5    3KDXX 181415Z AUTO 22005KT 10SM CLR 25/20 A2970 RMK AO2KDXX2019-07-18T14:15:00Z44.98-96.1825.020.0220510.029.698818TRUETRUEVFRSPECI330.02019-07-18 14:22:34 šS{š[¯‡ )5     3KCLI 181415Z AUTO 17008KT 10SM OVC003 23/21 A2978 RMK AO2 P0001 T02270210KCLI2019-07-18T14:15:00Z44.62-88.7322.721.0170810.029.778543TRUETRUELIFR0.01SPECI250.02019-07-18 14:22:34R¯‡ )!5    3KCOQ 181415Z AUTO 00000KT 7SM SCT002 BKN090 21/19 A2968 RMK AO2 LTG DSNT EKCOQ2019-07-18T14:15:00Z46.7-92.521.019.0007.029.681103TRUETRUEVFRSPECI390.02019-07-18 14:22:34@¯‡(y5    3KCQM 181415Z AUTO 00000KT 10SM CLR 21/19 A2966 RMK AO2KCQM2019-07-18T14:15:00Z47.82-92.6821.019.00010.029.660433TRUETRUEVFRSPECI404.02019-07-18 14:22:34a¯‡)55   3KCVX 181415Z AUTO 20009G14KT 10SM BKN038 BKN049 OVC075 26/20 A2985 RMK AO2 T02610201KCVX2019-07-18T14:15:00Z45.3-85.2726.120.120091410.029.84941TRUETRUEVFRSPECI204.02019-07-18 14:22:34 9heB¯‡(y5    3KEDU 181415Z AUTO 18004KT 10SM CLR 18/13 A2986 RMK AO1KEDU2019-07-18T14:15:00Z38.53-121.7818.013.0180410.029.861221TRUETRUEVFRMETAR21.02019-07-18 14:22:34}¯‡ )]5      3KEFT 181415Z AUTO 17007KT 2 1/2SM +TSRA OVC003 21/21 A2992 RMK AO2 VIS 1V4 LTG DSNT ALQS P0004 T02100205KEFT2019-07-18T14:15:00Z42.62-89.621.020.517072.529.920275TRUETRUE+TSRALIFR0.04METAR331.02019-07-18 14:22:34K¯‡ )5    3KCDI 181415Z AUTO 17003KT 10SM OVC005 23/23 A3000 RMK AO2 T02300226KCDI2019-07-18T14:15:00Z39.97-81.5823.022.6170310.030.0TRUETRUEIFRSPECI244.02019-07-18 14:22:34A¯‡ (y5    3KCKI 181415Z AUTO 20008KT 10SM CLR 30/23 A3003 RMK AO2KCKI2019-07-18T14:15:00Z33.72-79.8530.023.0200810.030.029528TRUETRUEVFRSPECI21.02019-07-18 14:22:34 Ä9h˜ÄN¯‡) 5    3KDKX 181415Z AUTO 23008KT 10SM BKN017 BKN026 28/24 A3006 RMK A01KDKX2019-07-18T14:15:00Z35.97-83.8728.024.0230810.030.059055TRUETRUEMVFRMETAR254.02019-07-18 14:22:34J¯‡) 5    3KDLO 181415Z AUTO 00000KT 10SM CLR 19/06 A2990 RMK AO2 T01890059KDLO2019-07-18T14:15:00Z35.75-119.2318.95.90010.029.899607TRUETRUEVFRMETAR96.02019-07-18 14:22:34K¯‡) 5    3KDNV 181415Z AUTO 23008KT 10SM CLR 27/24 A2993 RMK AO2 T02720235KDNV2019-07-18T14:15:00Z40.2-87.627.223.5230810.029.929134TRUETRUEVFRMETAR212.02019-07-18 14:22:34A¯‡(y5    3KDTL 181415Z AUTO 22006KT 10SM CLR 22/17 A2969 RMK AO2KDTL2019-07-18T14:15:00Z46.82-95.8722.017.0220610.029.68996TRUETRUEVFRMETAR426.02019-07-18 14:22:34 à5w§àA¯‡(y5    3KCXP 181415Z AUTO 00000KT 10SM CLR 17/08 A3006 RMK AO2KCXP2019-07-18T14:15:00Z39.18-119.7317.08.00010.030.059055TRUETRUEVFRMETAR1435.02019-07-18 14:22:34J¯‡) 5    3KCXU 181415Z AUTO 00000KT 10SM CLR 29/25 A3009 RMK AO1 T02930246KCXU2019-07-18T14:15:00Z31.22-84.2329.324.60010.030.088583TRUETRUEVFRMETAR53.02019-07-18 14:22:348¯‡(w5    3KCXW 181415Z AUTO 00000KT 9SM CLR 30/25 A3000 RMK A01KCXW2019-07-18T14:15:00Z35.02-92.5530.025.0009.030.0TRUETRUEVFRMETAR84.02019-07-18 14:22:34E¯‡(5    3KCZT 181415Z AUTO 15009KT 10SM SCT022 28/21 A2999 RMK AO2KCZT2019-07-18T14:15:00Z28.52-99.8228.021.0150910.029.991142TRUETRUEVFRMETAR183.02019-07-18 14:22:34 Ê)X‘ʁA¯‡(y5    3K3J7 181415Z AUTO 26003KT 10SM CLR 30/23 A3008 RMK AO2K3J72019-07-18T14:15:00Z33.6-83.1330.023.0260310.030.079725TRUETRUEVFRMETAR206.02019-07-18 14:22:34A¯‡(y5    3KEKS 181415Z AUTO VRB03KT 10SM CLR 17/09 A2997 RMK AO2KEKS2019-07-18T14:15:00Z45.27-111.6517.09.00310.029.970472TRUETRUEVFRMETAR1641.02019-07-18 14:22:34K¯‡) 5    3KENL 181415Z AUTO 19006KT 10SM CLR 26/23 A2998 RMK AO2 T02570225KENL2019-07-18T14:15:00Z38.52-89.125.722.5190610.029.97933TRUETRUEVFRMETAR163.02019-07-18 14:22:34Q¯‡)5    3KERV 181415Z AUTO 17012KT 10SM SCT024 25/21 A3007 RMK AO2 T02490211KERV2019-07-18T14:15:00Z29.98-99.0824.921.11701210.030.070866TRUETRUEVFRMETAR510.02019-07-18 14:22:34 ½0]›½X¯‡)%5    3K40J 181415Z AUTO 29003KT 10SM CLR 30/26 A3011 RMK AO2 LTG DSNT SW T03030260K40J2019-07-18T14:15:00Z30.07-83.5730.326.0290310.030.109253TRUETRUEVFRMETAR13.02019-07-18 14:22:34<¯‡(u5   3K3K8 181415Z AUTO 19015G21KT CLR 29/19 A2990 RMK AO2K3K82019-07-18T14:15:00Z37.22-99.3329.019.0190152129.899607TRUETRUEMETAR636.02019-07-18 14:22:34M¯‡) 5    3K3LF 181415Z AUTO 19009KT 10SM CLR 26/23 A2997 RMK AO2 T02600228K3LF2019-07-18T14:15:00Z39.17-89.6726.022.8190910.029.970472TRUETRUEVFRMETAR210.02019-07-18 14:22:34J¯‡) 5    3K3S8 181415Z AUTO VRB06KT 10SM SCT047 BKN055 18/14 A3005 RMK AO2K3S82019-07-18T14:15:00Z42.5-123.418.014.00610.030.050198TRUETRUEVFRMETAR343.02019-07-18 14:22:34 P=¯‡"(y5    3KEDJ 181415Z AUTO 20005KT 10SM CLR 26/23 A3000 RMK AO1KEDJ2019-07-18T14:15:00Z40.37-83.8226.023.0200510.030.0TRUETRUEVFRSPECI342.02019-07-18 14:22:34I¯‡!) 5    3KEDN 181415Z AUTO 00000KT 10SM CLR 29/25 A3010 RMK AO2 T02880248KEDN2019-07-18T14:15:00Z31.3-85.928.824.80010.030.100393TRUETRUEVFRSPECI110.02019-07-18 14:22:34^¯‡ ))5   3KEGV 181415Z AUTO 22011G15KT 190V260 10SM SCT100 24/18 A2975 RMK AO2 T02410175KEGV2019-07-18T14:15:00Z45.93-89.2724.117.5220111510.029.749016TRUETRUEVFRSPECI500.02019-07-18 14:22:34w¯‡)U5       3PAGY 181415Z AUTO 00000KT 4SM BR SCT022 BKN080 OVC090 13/13 A2967 RMK AO2 RAE09 P0000 T01330128 TSNOPAGY2019-07-18T14:15:00Z59.47-135.313.312.8004.029.66929TRUETRUETRUEBRMVFR0.005SPECI5.02019-07-18 14:22:34 7l¥ÝC¯‡'(y5    3K1U7 181415Z AUTO 35003KT 10SM CLR 15/08 A3008 RMK A01K1U72019-07-18T14:15:00Z42.25-111.3315.08.0350310.030.079725TRUETRUEVFRMETAR1807.02019-07-18 14:22:34B¯‡&(y5    3K2A0 181415Z AUTO 20004KT 10SM CLR 27/24 A3008 RMK A01K2A02019-07-18T14:15:00Z35.48-84.9327.024.0200410.030.079725TRUETRUEVFRMETAR219.02019-07-18 14:22:34A¯‡%(5    3K2LS 181415Z AUTO VRB04KT 10SM FEW018 30/25 A3010 RMK AO2K2LS2019-07-18T14:15:00Z29.42-90.330.025.00410.030.100393TRUETRUEVFRMETAR-2.02019-07-18 14:22:34E¯‡$(5    3K2M2 181415Z AUTO 25004KT 10SM FEW110 25/24 A3008 RMK A01K2M22019-07-18T14:15:00Z35.23-87.2525.024.0250410.030.079725TRUETRUEVFRMETAR286.02019-07-18 14:22:34C¯‡#(5    3K33N 181415Z AUTO 23005KT 10SM SCT019 29/25 A2989 RMK A01K33N2019-07-18T14:15:00Z39.22-75.629.025.0230510.029.890747TRUETRUEVFRMETAR17.02019-07-18 14:22:34 ¦)P~¦R¯‡+)5   3K13K 181415Z AUTO 19017G25KT 10SM CLR 28/23 A2989 RMK AO2 T02830227K13K2019-07-18T14:15:00Z37.85-96.328.322.7190172510.029.890747TRUETRUEVFRMETAR369.02019-07-18 14:22:34L¯‡*) 5    3K1A9 181415Z AUTO 26004KT 10SM CLR 29/24 A3008 RMK AO2 T02850242K1A92019-07-18T14:15:00Z32.43-86.5228.524.2260410.030.079725TRUETRUEVFRMETAR69.02019-07-18 14:22:34S¯‡))5   3K1K1 181415Z AUTO 20020G27KT 10SM CLR 28/21 A2987 RMK AO2 T02800207K1K12019-07-18T14:15:00Z37.77-97.1228.020.7200202710.029.870079TRUETRUEVFRMETAR416.02019-07-18 14:22:34Q¯‡()5    3K1M5 181415Z AUTO VRB05KT 10SM SCT019 SCT024 SCT050 27/23 A3005 RMK A01K1M52019-07-18T14:15:00Z36.6-86.4827.023.00510.030.050198TRUETRUEVFRMETAR250.02019-07-18 14:22:34 Ï%_œÏG¯‡/(5   3KGMJ 181415Z AUTO 20014G18KT 10SM CLR 28/22 A2996 RMK AO2KGMJ2019-07-18T14:15:00Z36.6-94.7328.022.0200141810.029.958662TRUETRUEVFRMETAR254.02019-07-18 14:22:34=¯‡.(y5    3KGOO 181415Z AUTO 12005KT 10SM CLR 22/12 A3000 RMK A01KGOO2019-07-18T14:15:00Z39.22-121.022.012.0120510.030.0TRUETRUEVFRMETAR962.02019-07-18 14:22:34@¯‡-(y5    3K05U 181415Z AUTO 21005KT 10SM CLR 19/02 A3015 RMK A01K05U2019-07-18T14:15:00Z39.6-116.019.02.0210510.030.15059TRUETRUEVFRMETAR1816.02019-07-18 14:22:34U¯‡,)5    3K0A9 181415Z AUTO 25003KT 10SM SCT009 BKN012 OVC017 24/23 A3009 RMK AO2K0A92019-07-18T14:15:00Z36.37-82.1724.023.0250310.030.088583TRUETRUEMVFRMETAR486.02019-07-18 14:22:34 ¥%T¥V¯‡3)5   3KGCY 181415Z AUTO 23005G10KT 9SM BKN008 BKN014 OVC024 25/23 A3009 RMK A01KGCY2019-07-18T14:15:00Z36.2-82.8225.023.02305109.030.088583TRUETRUEIFRMETAR490.02019-07-18 14:22:34M¯‡2) 5    3KGDB 181415Z AUTO 21003KT 10SM CLR 25/23 A2974 RMK AO2 T02530227KGDB2019-07-18T14:15:00Z44.75-95.5525.322.7210310.029.740158TRUETRUEVFRMETAR319.02019-07-18 14:22:34K¯‡1) 5    3KGKT 181415Z AUTO VRB06KT 10SM SCT021 SCT026 29/24 A3006 RMK A01KGKT2019-07-18T14:15:00Z35.85-83.5329.024.00610.030.059055TRUETRUEVFRMETAR309.02019-07-18 14:22:34U¯‡0)5    3KGLW 181415Z AUTO 25009KT 230V300 10SM CLR 27/21 A3004 RMK AO2 T02720213KGLW2019-07-18T14:15:00Z37.03-85.9527.221.3250910.030.041338TRUETRUEVFRMETAR218.02019-07-18 14:22:34 Ô6f ÔF¯‡7(5   3KFYE 181415Z AUTO 23006G11KT 10SM CLR 28/25 A3004 RMK A01KFYE2019-07-18T14:15:00Z35.2-89.3828.025.023061110.030.041338TRUETRUEVFRMETAR133.02019-07-18 14:22:34@¯‡6(w5    3KFYM 181415Z AUTO 22004KT 9SM CLR 25/23 A3009 RMK A01KFYM2019-07-18T14:15:00Z35.07-86.5725.023.022049.030.088583TRUETRUEVFRMETAR300.02019-07-18 14:22:34J¯‡5)5     3KGAF 181415Z AUTO 25008KT 9SM CLR 24/19 A2960 RMK AO2 PWINOKGAF2019-07-18T14:15:00Z48.4-97.3724.019.025089.029.601377TRUETRUETRUEVFRMETAR252.02019-07-18 14:22:34D¯‡4)5     3KGAO 181415Z AUTO 19004KT 10SM SCT017 SCT023 BKN033 A3009 RMK AO2KGAO2019-07-18T14:15:00Z29.45-90.27190410.030.088583TRUETRUEVFRMETAR1.02019-07-18 14:22:34 Å,a›ÅP¯‡;)5    3KFGX 181415Z AUTO 27004KT 10SM OVC009 27/25 A3003 RMK AO2 T02690251KFGX2019-07-18T14:15:00Z38.55-83.7526.925.1270410.030.029528TRUETRUEIFRMETAR278.02019-07-18 14:22:34@¯‡:(y5    3KFQD 181415Z AUTO 00000KT 10SM CLR 27/23 A3006 RMK AO2KFQD2019-07-18T14:15:00Z35.42-81.9327.023.00010.030.059055TRUETRUEVFRMETAR329.02019-07-18 14:22:34E¯‡9(5    3KFRR 181415Z AUTO 32006KT 10SM BKN100 28/22 A2993 RMK AO1KFRR2019-07-18T14:15:00Z38.92-78.2528.022.0320610.029.929134TRUETRUEVFRMETAR216.02019-07-18 14:22:34N¯‡8)5   3KFWB 181415Z AUTO 21009G14KT 160V240 10SM CLR 28/24 A3001 RMK AO2KFWB2019-07-18T14:15:00Z36.7-93.428.024.021091410.030.008858TRUETRUEVFRMETAR406.02019-07-18 14:22:34 »:k»N¯‡?) 5    3KF05 181415Z AUTO 20015KT 10SM CLR 29/21 A2995 RMK AO1 T02940205KF052019-07-18T14:15:00Z34.23-99.2829.420.52001510.029.949802TRUETRUEVFRMETAR386.02019-07-18 14:22:34V¯‡>)!5    3KF17 181415Z AUTO 19007KT 10SM SCT015 SCT023 27/23 A3009 RMK AO2 T02730232KF172019-07-18T14:15:00Z31.83-94.1527.323.2190710.030.088583TRUETRUEVFRMETAR97.02019-07-18 14:22:34I¯‡=)5     3KF45 181415Z AUTO 33005KT 10SM TS SCT031 30/25 A3013 RMK AO2KF452019-07-18T14:15:00Z26.85-80.2230.025.0330510.030.129921TRUETRUETSVFRMETAR7.02019-07-18 14:22:34@¯‡<(y5    3KFCH 181415Z AUTO 00000KT 10SM CLR 22/13 A2990 RMK A01KFCH2019-07-18T14:15:00Z36.72-119.8222.013.00010.029.899607TRUETRUEVFRMETAR85.02019-07-18 14:22:34 º,QºA¯‡C(y5    3K46U 181415Z AUTO 00000KT 10SM CLR 14/08 A3009 RMK A01K46U2019-07-18T14:15:00Z43.18-111.0514.08.00010.030.088583TRUETRUEVFRMETAR1717.02019-07-18 14:22:34J¯‡B) 5    3K49A 181415Z AUTO 00000KT 10SM CLR 26/22 A3015 RMK AO2 T02610221K49A2019-07-18T14:15:00Z34.63-84.5326.122.10010.030.15059TRUETRUEVFRMETAR453.02019-07-18 14:22:34U¯‡A)!5    3KEXX 181415Z AUTO 27004KT 10SM BKN075 BKN095 28/24 A3002 RMK AO2 T02790244KEXX2019-07-18T14:15:00Z35.78-80.327.924.4270410.030.02067TRUETRUEVFRMETAR223.02019-07-18 14:22:34N¯‡@) 5    3KF00 181415Z AUTO 20013KT 10SM CLR 28/23 A3001 RMK AO2 T02810229KF002019-07-18T14:15:00Z33.62-96.1828.122.92001310.030.008858TRUETRUEVFRMETAR188.02019-07-18 14:22:34 täFtL¯‡G) 5    3K54J 181415Z AUTO 31005KT 10SM CLR 29/23 A3010 RMK AO2 T02900231K54J2019-07-18T14:15:00Z30.73-86.1529.023.1310510.030.100393TRUETRUEVFRMETAR88.02019-07-18 14:22:34P¯‡F)5     3K4S1 181415Z AUTO 36006KT 5SM BR BKN047 OVC055 16/15 A3001 RMK AO2K4S12019-07-18T14:15:00Z42.42-124.4216.015.036065.030.008858TRUETRUEBRMVFRMETAR5.02019-07-18 14:22:34B¯‡E(y5    3K4O4 181415Z AUTO 21007KT 10SM CLR 27/22 A3001 RMK AO2K4O42019-07-18T14:15:00Z33.92-94.8727.022.0210710.030.008858TRUETRUEVFRMETAR144.02019-07-18 14:22:34‚¯‡D)‚ 5      3K4R5 181415Z AUTO 20004KT 1 1/2SM +VCTSRA SCT021 BKN040 OVC050 22/21 A2969 RMK AO2 VIS 3/4V5 LTG DSNT E THRU SW P0013 T02150210K4R52019-07-18T14:15:00Z46.78-90.7721.521.020041.529.68996TRUETRUEVCTS +RAIFR0.13METAR198.02019-07-18 14:22:34 À9iˆÀB¯‡K(y5    3KA39 181415Z AUTO 16004KT 10SM CLR 30/15 A2998 RMK AO2KA392019-07-18T14:15:00Z32.98-111.9230.015.0160410.029.97933TRUETRUEVFRMETAR396.02019-07-18 14:22:34[¯‡J))5    3KAFK 181415Z AUTO 21011KT 10SM SCT110 28/23 A2979 RMK AO2 LTG DSNT W T02760226KAFK2019-07-18T14:15:00Z40.6-95.8527.622.62101110.029.790354TRUETRUEVFRMETAR354.02019-07-18 14:22:34J¯‡I) 5    3KAJR 181415Z AUTO 29004KT 7SM CLR 27/22 A3010 RMK AO2 T02710224KAJR2019-07-18T14:15:00Z34.5-83.5527.122.429047.030.100393TRUETRUEVFRMETAR441.02019-07-18 14:22:34A¯‡H(y5    3K54A 181415Z AUTO 12006KT 10SM CLR 28/24 A3011 RMK AO2K54A2019-07-18T14:15:00Z26.85-82.2528.024.0120610.030.109253TRUETRUEVFRMETAR14.02019-07-18 14:22:34 Á1\”ÁM¯‡O) 5    3K7W4 181415Z AUTO 23004KT 10SM CLR 30/24 A2994 RMK AO1 T02950236K7W42019-07-18T14:15:00Z37.97-77.7529.523.6230410.029.940945TRUETRUEVFRMETAR106.02019-07-18 14:22:34B¯‡N(y5    3K8A3 181415Z AUTO 23008KT 10SM CLR 26/22 A3008 RMK A01K8A32019-07-18T14:15:00Z36.42-85.3226.022.0230810.030.079725TRUETRUEVFRMETAR419.02019-07-18 14:22:34O¯‡M)5    3K8W2 181415Z AUTO 22003KT 10SM SCT080 28/23 A2994 RMK AO1 T02810226K8W22019-07-18T14:15:00Z38.65-78.728.122.6220310.029.940945TRUETRUEVFRMETAR297.02019-07-18 14:22:34I¯‡L) 5    3K9A5 181415Z AUTO 00000KT 7SM CLR 27/21 A3010 RMK AO2 T02710208K9A52019-07-18T14:15:00Z34.68-85.2827.120.8007.030.100393TRUETRUEVFRMETAR237.02019-07-18 14:22:34 ¾7d¾K¯‡S) 5    3K5M9 181415Z AUTO 00000KT 10SM CLR 23/22 A3001 RMK AO2 T02310223K5M92019-07-18T14:15:00Z37.33-88.1223.122.30010.030.008858TRUETRUEVFRMETAR199.02019-07-18 14:22:34O¯‡R)5    3K5R8 181415Z AUTO 18006KT 10SM SCT013 29/25 A3007 RMK AO2 T02860250K5R82019-07-18T14:15:00Z30.43-93.4728.625.0180610.030.070866TRUETRUEVFRMETAR24.02019-07-18 14:22:34M¯‡Q)5   3K5T9 181415Z AUTO 14009G16KT 10SM BKN020 28/22 A3001 RMK A01K5T92019-07-18T14:15:00Z28.85-100.5228.022.014091610.030.008858TRUETRUEMVFRMETAR270.02019-07-18 14:22:34C¯‡P(y5    3K6S0 181415Z AUTO 25010KT 10SM CLR 19/09 A2987 RMK A01K6S02019-07-18T14:15:00Z45.8-109.9719.09.02501010.029.870079TRUETRUEVFRMETAR1363.02019-07-18 14:22:34 ²-Hz²B¯‡W(y5    3KOVL 181415Z AUTO 23003KT 10SM CLR 25/21 A2972 RMK AO2KOVL2019-07-18T14:15:00Z44.78-95.0325.021.0230310.029.719488TRUETRUEVFRMETAR328.02019-07-18 14:22:34H¯‡V(5   3KOWI 181415Z AUTO 20016G22KT 10SM CLR 29/23 A2986 RMK AO2KOWI2019-07-18T14:15:00Z38.53-95.2529.023.0200162210.029.861221TRUETRUEVFRMETAR292.02019-07-18 14:22:34_¯‡U))5     3KOWP 181415Z AUTO 19006KT 170V230 10SM CLR 30/24 A2995 RMK AO2 T02970235 PWINOKOWP2019-07-18T14:15:00Z36.18-96.1529.723.5190610.029.949802TRUETRUETRUEVFRMETAR272.02019-07-18 14:22:34M¯‡T)5   3KOZA 181415Z AUTO 20014G24KT 10SM OVC015 25/19 A3008 RMK AO2KOZA2019-07-18T14:15:00Z30.73-101.225.019.0200142410.030.079725TRUETRUEMVFRMETAR726.02019-07-18 14:22:34 Ä5l™ÄO¯‡[)5    3KOEO 181415Z AUTO 16008KT 10SM OVC008 23/22 A2975 RMK AO2 T02300217KOEO2019-07-18T14:15:00Z45.32-92.723.021.7160810.029.749016TRUETRUEIFRMETAR275.02019-07-18 14:22:34M¯‡Z) 5    3KOKZ 181415Z AUTO 24004KT 10SM CLR 27/19 A3008 RMK AO2 T02740190KOKZ2019-07-18T14:15:00Z32.97-82.8327.419.0240410.030.079725TRUETRUEVFRMETAR134.02019-07-18 14:22:34C¯‡Y(5    3KOLE 181415Z AUTO 00000KT 10SM OVC010 20/20 A3002 RMK AO2KOLE2019-07-18T14:15:00Z42.23-78.3720.020.00010.030.02067TRUETRUEMVFRMETAR651.02019-07-18 14:22:34E¯‡X(5    3KOMH 181415Z AUTO 23005KT 10SM BKN070 30/22 A2993 RMK AO2KOMH2019-07-18T14:15:00Z38.25-78.0530.022.0230510.029.929134TRUETRUEVFRMETAR142.02019-07-18 14:22:34 ×-Fƒ×&¯‡_(]5    3KPCM 181415Z AUTO 10SM CLR A3013 RMK AO2KPCM2019-07-18T14:15:00Z28.0-82.1710.030.129921TRUETRUEVFRMETAR47.02019-07-18 14:22:34=¯‡^(w5    3KO69 181415Z AUTO 00000KT 8SM CLR 14/14 A2992 RMK A01KO692019-07-18T14:15:00Z38.25-122.614.014.0008.029.920275TRUETRUEVFRMETAR28.02019-07-18 14:22:34a¯‡])/5     3KOBE 181415Z AUTO 28003KT 10SM VCTS SCT019 30/25 A3011 RMK AO2 LTG DSNT NE THRU SKOBE2019-07-18T14:15:00Z27.27-80.8530.025.0280310.030.109253TRUETRUEVCTSVFRMETAR11.02019-07-18 14:22:34M¯‡\) 5    3KOEL 181415Z AUTO 23007KT 10SM CLR 27/19 A2985 RMK AO1 T02660185KOEL2019-07-18T14:15:00Z39.12-100.8226.618.5230710.029.84941TRUETRUEVFRMETAR929.02019-07-18 14:22:34 Ô7o§ÔM¯‡c) 5    3KPMV 181415Z AUTO 19007KT 10SM CLR 26/23 A2978 RMK AO2 T02630231KPMV2019-07-18T14:15:00Z40.95-95.9226.323.1190710.029.778543TRUETRUEVFRMETAR367.02019-07-18 14:22:34B¯‡b(y5    3KPCW 181415Z AUTO 17005KT 10SM CLR 27/22 A2994 RMK AO2KPCW2019-07-18T14:15:00Z41.52-82.8727.022.0170510.029.940945TRUETRUEVFRMETAR178.02019-07-18 14:22:34B¯‡a(y5    3KPHT 181415Z AUTO 24008KT 10SM CLR 26/24 A3003 RMK A01KPHT2019-07-18T14:15:00Z36.33-88.3826.024.0240810.030.029528TRUETRUEVFRMETAR177.02019-07-18 14:22:34C¯‡`(y5    3KP08 181415Z AUTO 20006KT 10SM CLR 31/15 A2997 RMK AO2KP082019-07-18T14:15:00Z32.93-111.4331.015.0200610.029.970472TRUETRUEVFRMETAR481.02019-07-18 14:22:34 Î.g¡ÎM¯‡g) 5    3KPXE 181415Z AUTO 25006KT 10SM CLR 31/23 A3009 RMK AO2 T03060229KPXE2019-07-18T14:15:00Z32.52-83.7730.622.9250610.030.088583TRUETRUEVFRMETAR127.02019-07-18 14:22:34@¯‡f(y5    3KPTD 181415Z AUTO 05006KT 10SM CLR 23/16 A2998 RMK AO2KPTD2019-07-18T14:15:00Z44.68-74.9523.016.050610.029.97933TRUETRUEVFRMETAR144.02019-07-18 14:22:34A¯‡e(y5    3KPVE 181415Z AUTO 24004KT 10SM CLR 26/25 A3005 RMK A01KPVE2019-07-18T14:15:00Z35.65-88.226.025.0240410.030.050198TRUETRUEVFRMETAR149.02019-07-18 14:22:34L¯‡d) 5    3KPTB 181415Z AUTO 22005KT 10SM CLR 30/23 A2995 RMK AO2 T03020229KPTB2019-07-18T14:15:00Z37.17-77.5230.222.9220510.029.949802TRUETRUEVFRMETAR59.02019-07-18 14:22:34 ¬&Rt¬B¯‡k(y5    3KRKR 181415Z AUTO 20007KT 10SM CLR 29/23 A2999 RMK AO2KRKR2019-07-18T14:15:00Z35.02-94.6229.023.0200710.029.991142TRUETRUEVFRMETAR138.02019-07-18 14:22:34X¯‡j)!5    3KRFI 181415Z AUTO 20005KT 10SM SCT015 BKN022 27/23 A3008 RMK AO2 T02700232KRFI2019-07-18T14:15:00Z32.15-94.8527.023.2200510.030.079725TRUETRUEMVFRMETAR135.02019-07-18 14:22:34N¯‡i) 5    3KRGA 181415Z AUTO 23006KT 10SM BKN011 OVC022 26/24 A3003 RMK AO2KRGA2019-07-18T14:15:00Z37.63-84.3326.024.0230610.030.029528TRUETRUEMVFRMETAR305.02019-07-18 14:22:34T¯‡h)5   3KPYX 181415Z AUTO 21016G22KT 10SM CLR 28/17 A2991 RMK AO2 T02810165KPYX2019-07-18T14:15:00Z36.42-100.7528.116.5210162210.029.911417TRUETRUEVFRMETAR889.02019-07-18 14:22:34 ª.cª_¯‡o)/5    3KRNH 181415Z AUTO 19005KT 10SM SCT009 SCT016 OVC021 22/20 A2974 RMK AO2 T02200197KRNH2019-07-18T14:15:00Z45.15-92.5322.019.7190510.029.740158TRUETRUEMVFRMETAR304.02019-07-18 14:22:34N¯‡n)5    3KRMN 181415Z AUTO 26003KT 10SM OVC075 30/25 A2995 RMK AO2 T03030251KRMN2019-07-18T14:15:00Z38.4-77.4530.325.1260310.029.949802TRUETRUEVFRMETAR65.02019-07-18 14:22:34E¯‡m(5    3KRNC 181415Z AUTO 26008KT 10SM OVC016 25/23 A3009 RMK A01KRNC2019-07-18T14:15:00Z35.7-85.8525.023.0260810.030.088583TRUETRUEMVFRMETAR315.02019-07-18 14:22:34L¯‡l) 5    3KRKW 181415Z AUTO VRB06KT 10SM BKN013 BKN110 26/22 A3010 RMK A01KRKW2019-07-18T14:15:00Z35.92-84.6826.022.00610.030.100393TRUETRUEMVFRMETAR508.02019-07-18 14:22:34 €6ch€b¯‡s)75    3KRZN 181415Z AUTO 20003KT 10SM SCT041 SCT047 BKN070 25/21 A2972 RMK AO2 T02450211 PNOKRZN2019-07-18T14:15:00Z45.82-92.3724.521.1200310.029.719488TRUETRUEVFRMETAR301.02019-07-18 14:22:34u¯‡r)Q5    3KRYV 181415Z AUTO 15012G15KT 5SM -RA SCT080 OVC110 21/21 A2983 RMK AO2 LTG DSNT SW AND W T02070207KRYV2019-07-18T14:15:00Z43.17-88.7220.720.715012155.029.828741TRUETRUE-RAMVFRMETAR254.02019-07-18 14:22:34M¯‡q) 5    3KRSV 181415Z AUTO 21004KT 10SM CLR 26/23 A2999 RMK AO2 T02570232KRSV2019-07-18T14:15:00Z39.02-87.6525.723.2210410.029.991142TRUETRUEVFRMETAR141.02019-07-18 14:22:34D¯‡p(y5    3KRTS 181415Z AUTO 29010KT 10SM CLR 19/06 A3010 RMK AO2KRTS2019-07-18T14:15:00Z39.67-119.8819.06.02901010.030.100393TRUETRUEVFRMETAR1540.02019-07-18 14:22:34 Ú:Z”ځ4¯‡w(s5   3PALP 181415Z 07012KT 10SM SCT008 BKN120 06/04 A2984PALP2019-07-18T14:15:00Z70.33-150.936.04.0701210.029.840551VFRSPECI5.02019-07-18 14:22:34@¯‡v(}5    3KAJZ 181415Z AUTO 10SM CLR 22/01 A3015 RMK AO2 T02190014KAJZ2019-07-18T14:15:00Z38.78-108.0721.91.410.030.15059TRUETRUEVFRMETAR1583.02019-07-18 14:22:34Z¯‡u)'5   3PAUT 181415Z AUTO 31016G22KT 10SM BKN005 OVC021 09/08 A3026 RMK AO2 T00870081PAUT2019-07-18T14:15:00Z54.15-165.68.78.1310162210.030.259842TRUETRUEIFRMETAR25.02019-07-18 14:22:34@¯‡t(y5    3KTCY 181415Z AUTO 00000KT 10SM CLR 22/12 A2987 RMK A01KTCY2019-07-18T14:15:00Z37.68-121.4322.012.00010.029.870079TRUETRUEVFRMETAR59.02019-07-18 14:22:34 ±-Ty±B¯‡{(5   3KAQR 181415Z AUTO 20010G15KT 10SM CLR 28/21 A3000 RMK AO2KAQR2019-07-18T14:15:00Z34.4-96.1528.021.0200101510.030.0TRUETRUEVFRMETAR189.02019-07-18 14:22:34U¯‡z)!5    3KAPS 181415Z AUTO 28005KT 10SM SCT036 BKN043 32/26 A3009 RMK AO2 T03170261KAPS2019-07-18T14:15:00Z30.08-90.5831.726.1280510.030.088583TRUETRUEVFRMETAR2.02019-07-18 14:22:34S¯‡y)5   3KAPY 181415Z AUTO 16011G17KT 10SM CLR 28/20 A2999 RMK AO2 T02910197KAPY2019-07-18T14:15:00Z26.97-99.2528.019.7160111710.029.991142TRUETRUEVFRMETAR129.02019-07-18 14:22:34M¯‡x) 5    3KALX 181415Z AUTO 26003KT 10SM CLR 29/24 A3011 RMK AO2 T02880238KALX2019-07-18T14:15:00Z32.92-85.9728.823.8260310.030.109253TRUETRUEVFRMETAR209.02019-07-18 14:22:34 Ä$R™ÄO¯‡)5    3KAXH 181415Z AUTO 21004KT 10SM SCT016 29/26 A3006 RMK AO2 T02870255KAXH2019-07-18T14:15:00Z29.52-95.4828.725.5210410.030.059055TRUETRUEVFRMETAR21.02019-07-18 14:22:343¯‡~(m5     3KAVC 181415Z AUTO 26007KT 10SM CLR A3002 RMK AO2KAVC2019-07-18T14:15:00Z36.68-78.03260710.030.02067TRUETRUEVFRMETAR135.02019-07-18 14:22:34L¯‡}) 5    3KARM 181415Z AUTO 14009KT 10SM CLR 29/24 A3006 RMK AO2 T02890241KARM2019-07-18T14:15:00Z29.25-96.1528.924.1140910.030.059055TRUETRUEVFRMETAR31.02019-07-18 14:22:34V¯‡|)#5    3KASN 181415Z AUTO 00000KT 10SM CLR 27/25 A3010 RMK AO2 LTG DSNT S T02730253KASN2019-07-18T14:15:00Z33.57-86.0527.325.30010.030.100393TRUETRUEVFRMETAR162.02019-07-18 14:22:34 Á.ežÁW¯ˆ)#5    3KBYY 181415Z AUTO 18008KT 150V210 10SM SCT019 31/26 A3004 RMK AO2 T03140260KBYY2019-07-18T14:15:00Z28.97-95.8731.426.0180810.030.041338TRUETRUEVFRMETAR14.02019-07-18 14:22:34A¯ˆ(y5    3KAZC 181415Z AUTO 00000KT 10SM CLR 20/06 A3018 RMK AO2KAZC2019-07-18T14:15:00Z36.97-113.0220.06.00010.030.180119TRUETRUEVFRMETAR1486.02019-07-18 14:22:34C¯ˆ(y5    3KAVK 181415Z AUTO 19016KT 10SM CLR 31/20 A2988 RMK AO2KAVK2019-07-18T14:15:00Z36.77-98.6731.020.01901610.029.878937TRUETRUEVFRMETAR449.02019-07-18 14:22:34L¯ˆ) 5    3KAVQ 181415Z AUTO 09003KT 10SM CLR 29/14 A2999 RMK AO2 T02910138KAVQ2019-07-18T14:15:00Z32.4-111.2229.113.890310.029.991142TRUETRUEVFRMETAR619.02019-07-18 14:22:34 ­-\­L¯ˆ)5    3KREG 181415Z AUTO 00000KT 10SM SCT017 29/24 A3008 RMK AO2 T02860243KREG2019-07-18T14:15:00Z30.17-90.9328.624.30010.030.079725TRUETRUEVFRMETAR4.02019-07-18 14:22:34W¯ˆ)!5    3KRWV 181415Z AUTO 19009KT 10SM BKN013 BKN020 28/25 A3005 RMK AO2 T02830248KRWV2019-07-18T14:15:00Z30.52-96.728.324.8190910.030.050198TRUETRUEMVFRMETAR119.02019-07-18 14:22:34K¯ˆ) 5    3KBQK 181415Z AUTO 23004KT 10SM CLR 29/23 A3008 RMK AO2 T02930235KBQK2019-07-18T14:15:00Z31.25-81.4729.323.5230410.030.079725TRUETRUEVFRMETAR8.02019-07-18 14:22:34M¯ˆ)5    3KBXA 181415Z AUTO 00000KT 10SM SCT011 30/24 A3010 RMK AO2 T03000241KBXA2019-07-18T14:15:00Z30.82-89.8730.024.10010.030.100393TRUETRUEVFRMETAR36.02019-07-18 14:22:34 ¸Fj†¸H¯ˆ (5   3KOZS 181415Z AUTO 22012G18KT 10SM CLR 28/21 A2995 RMK AO2KOZS2019-07-18T14:15:00Z37.97-92.6828.021.0220121810.029.949802TRUETRUEVFRMETAR324.02019-07-18 14:22:34^¯ˆ )/5    3KPBX 181415Z AUTO 24003KT 10SM SCT011 SCT024 BKN031 25/25 A3006 RMK AO2 T02540250KPBX2019-07-18T14:15:00Z37.57-82.5725.425.0240310.030.059055TRUETRUEVFRMETAR449.02019-07-18 14:22:34V¯ˆ )!5    3KPKV 181415Z AUTO 17010KT 10SM SCT021 SCT025 31/26 A3003 RMK AO2 T03060256KPKV2019-07-18T14:15:00Z28.65-96.6830.625.61701010.030.029528TRUETRUEVFRMETAR9.02019-07-18 14:22:344¯ˆ(o5   3KPMU 181415Z AUTO 25004KT CLR 28/25 A3006 RMK AO2KPMU2019-07-18T14:15:00Z34.37-89.928.025.0250430.059055TRUETRUEMETAR67.02019-07-18 14:22:34 ²-eŠ²R¯ˆ)5   3KOKV 181415Z AUTO 30008G15KT 10SM SCT028 SCT055 27/21 A2995 RMK AO2KOKV2019-07-18T14:15:00Z39.13-78.1527.021.030081510.029.949802TRUETRUEVFRMETAR222.02019-07-18 14:22:34U¯ˆ)5    3KONP 181415Z AUTO 36006KT 10SM BKN016 BKN026 OVC042 15/14 A3011 RMK AO2KONP2019-07-18T14:15:00Z44.57-124.0315.014.0360610.030.109253TRUETRUEMVFRMETAR48.02019-07-18 14:22:34B¯ˆ (y5    3KOPN 181415Z AUTO 25007KT 10SM CLR 30/21 A3012 RMK AO2KOPN2019-07-18T14:15:00Z32.95-84.2730.021.0250710.030.121063TRUETRUEVFRMETAR243.02019-07-18 14:22:34M¯ˆ )5    3KORG 181415Z AUTO 18007KT 10SM SCT020 30/26 A3008 RMK AO2 T02980263KORG2019-07-18T14:15:00Z30.07-93.829.826.3180710.030.079725TRUETRUEVFRMETAR4.02019-07-18 14:22:34 Ê'bœÊL¯ˆ) 5    3KMWO 181415Z AUTO 19003KT 10SM CLR 28/24 A2999 RMK AO2 T02760240KMWO2019-07-18T14:15:00Z39.53-84.427.624.0190310.029.991142TRUETRUEVFRMETAR198.02019-07-18 14:22:34@¯ˆ(y5    3KO54 181415Z AUTO 00000KT 10SM CLR 14/09 A3001 RMK AO1KO542019-07-18T14:15:00Z40.75-122.9214.09.00010.030.008858TRUETRUEVFRMETAR717.02019-07-18 14:22:34?¯ˆ(y5    3KOGS 181415Z AUTO VRB05KT 10SM CLR 23/16 A2996 RMK AO2KOGS2019-07-18T14:15:00Z44.67-75.4723.016.00510.029.958662TRUETRUEVFRMETAR91.02019-07-18 14:22:34S¯ˆ)5   3KOKM 181415Z AUTO 20013G17KT 10SM CLR 30/23 A2997 RMK AO2 T02980226KOKM2019-07-18T14:15:00Z35.67-95.9529.822.6200131710.029.970472TRUETRUEVFRMETAR220.02019-07-18 14:22:34 ¶/\‰¶M¯ˆ) 5    3KLXN 181415Z AUTO 21008KT 10SM CLR 26/21 A2978 RMK AO2 T02550213KLXN2019-07-18T14:15:00Z40.78-99.7725.521.3210810.029.778543TRUETRUEVFRMETAR734.02019-07-18 14:22:34M¯ˆ) 5    3KMDD 181415Z AUTO 18014KT 10SM CLR 27/19 A3002 RMK AO2 T02750192KMDD2019-07-18T14:15:00Z32.03-102.127.519.21801410.030.02067TRUETRUEVFRMETAR854.02019-07-18 14:22:34M¯ˆ) 5    3KMDQ 181415Z AUTO 13003KT 10SM CLR 24/22 A3010 RMK A02 T02450224KMDQ2019-07-18T14:15:00Z34.87-86.5524.522.4130310.030.100393TRUETRUEVFRMETAR230.02019-07-18 14:22:34K¯ˆ) 5    3KMQS 181415Z AUTO 00000KT 10SM SCT012 SCT100 27/25 A2993 RMK AO2KMQS2019-07-18T14:15:00Z39.98-75.8727.025.00010.029.929134TRUETRUEVFRMETAR201.02019-07-18 14:22:34 Ç9h™ÇL¯ˆ) 5    3KLKU 181415Z AUTO 27007KT 10SM CLR 29/24 A2998 RMK AO2 T02880236KLKU2019-07-18T14:15:00Z38.02-77.9728.823.6270710.029.97933TRUETRUEVFRMETAR150.02019-07-18 14:22:34I¯ˆ) 5    3KLNQ 181415Z AUTO 00000KT 10SM CLR 30/25 A3010 RMK AO2 T02970253KLNQ2019-07-18T14:15:00Z29.35-89.4329.725.30010.030.100393TRUETRUEVFRMETAR1.02019-07-18 14:22:34K¯ˆ)5    3KLOM 181415Z AUTO 10SM BKN016 OVC095 27/24 A2990 RMK AO2 T02690243KLOM2019-07-18T14:15:00Z40.13-75.2726.924.310.029.899607TRUETRUEMVFRMETAR92.02019-07-18 14:22:34A¯ˆ(y5    3KLUA 181415Z AUTO 21003KT 10SM CLR 28/22 A2995 RMK AO2KLUA2019-07-18T14:15:00Z38.67-78.528.022.0210310.029.949802TRUETRUEVFRMETAR275.02019-07-18 14:22:34Y8q8@HPX`hpx€ˆ˜ ¨°¸ÀÈÐØàèðø (08@HPX`hpx€ˆ˜ ¨°¸ÀÈÐØàèðø (08@HPX`hpx€ˆ˜ ¨°¸ÀÈÐØàèðø ¨°¸ÀÈÐØàèðø¯„¯…¯…¯… ¯…¯…¯…¯… ¯… !¯…$"¯…(#¯…,¯„¯…¯…¯… ¯…¯…¯…¯… ¯… !¯…$"¯…(#¯…,$¯…0%¯…4&¯…8'¯…<(¯…@)¯…D*¯…H+¯…L,¯…P-¯…T.¯…X/¯…\0¯…`1¯…d2¯…h3¯…m4¯…q5¯…u6¯…y7¯…}8¯†9¯†:¯† ;¯† <¯†=¯†>¯†?¯†@¯†"A¯†&B¯†*C¯†.D¯†2E¯†6F¯†:G¯†>H¯†BI¯†FJ¯†JK¯†NL¯†RM¯†VN¯†ZO¯†^P¯†bQ¯†fR¯†jS¯†nT¯†rU¯†vV¯†zW¯†~X¯‡Y¯‡Z¯‡ [¯‡\¯‡]¯‡^¯‡_¯‡`¯‡"a¯‡'b¯‡+c¯‡/d¯‡3e¯‡7f¯‡;g¯‡?h¯‡Ci¯‡Gj¯‡Kk¯‡Ol¯‡Sm¯‡Wn¯‡[o¯‡_p¯‡cY8Í8@HPX`hpx€ˆ˜ ¨°¸ÀÈÐØàèðø (08@HPX`hpx€ˆ˜ ¨°¸ÀÈÐØàèðø (08@HPX`hpx€ˆ˜ ¨°¸ÀÈÐØàèðø ¨°¸ÀÈÐØàèðør¯‡ks¯‡ot¯‡su¯‡wv¯‡{w¯‡x¯ˆy¯ˆz¯ˆ {¯ˆ|¯ˆ}¯ˆr¯‡ks¯‡ot¯‡su¯‡wv¯‡{w¯‡x¯ˆy¯ˆz¯ˆ {¯ˆ|¯ˆ}¯ˆ~¯ˆ¯ˆ‚¯ˆ#ƒ¯ˆ(„¯ˆ,…¯ˆ0†¯ˆ4‡¯ˆ8ˆ¯ˆ<‰¯ˆ@Š¯ˆD‹¯ˆHŒ¯ˆL¯ˆPŽ¯ˆT¯ˆX¯ˆ\‘¯ˆ`’¯ˆd“¯ˆh”¯ˆl•¯ˆp–¯ˆt—¯ˆx˜¯ˆ|™¯‰š¯‰›¯‰œ¯‰ ¯‰ž¯‰Ÿ¯‰ ¯‰¡¯‰ ¢¯‰$£¯‰(¤¯‰,¥¯‰0¦¯‰4§¯‰8¨¯‰<©¯‰@ª¯‰D«¯‰H¬¯‰L­¯‰P®¯‰T¯¯‰X°¯‰\±¯‰`²¯‰d³¯‰h´¯‰lµ¯‰p¶¯‰t·¯‰x¸¯‰|¹¯Šº¯Š»¯Š¼¯Š ½¯Š¾¯Š¿¯ŠÀ¯ŠÁ¯Š ¯Š$(įŠ,ůŠ0ƯŠ4ǯŠ9ȯŠ=ɯŠAʯŠE˯ŠI̯ŠM ….&U…J¯ˆ)5     3KIOB 181415Z AUTO 27006KT 4SM BR OVC003 24/23 A3005 RMK AO2KIOB2019-07-18T14:15:00Z38.05-83.9824.023.027064.030.050198TRUETRUEBRLIFRMETAR311.02019-07-18 14:22:34K¯ˆ) 5    3KJAQ 181415Z AUTO 00000KT 10SM CLR 22/14 A2993 RMK AO1 T02180140KJAQ2019-07-18T14:15:00Z38.37-120.821.814.00010.029.929134TRUETRUEVFRMETAR512.02019-07-18 14:22:34‚¯ˆ)c5      3KJOT 181415Z AUTO 34005KT 10SM -TSRA SCT020 BKN027 OVC055 24/24 A2995 RMK AO2 LTG DSNT ALQS P0004 T02370237KJOT2019-07-18T14:15:00Z41.52-88.1823.723.7340510.029.949802TRUETRUE-TSRAMVFR0.04METAR177.02019-07-18 14:22:34L¯ˆ) 5    3KJZP 181415Z AUTO 35005KT 10SM CLR 27/21 A3015 RMK AO2 T02660209KJZP2019-07-18T14:15:00Z34.45-84.4726.620.9350510.030.15059TRUETRUEVFRMETAR468.02019-07-18 14:22:34 º,gŒºL¯ˆ#)5    3KHVS 181415Z AUTO 25006KT 10SM CLR 28/23 A3002 RMK AO2 LTG DSNT EKHVS2019-07-18T14:15:00Z34.4-80.1228.023.0250610.030.02067TRUETRUEVFRMETAR111.02019-07-18 14:22:34U¯ˆ")!5    3KHWY 181415Z AUTO 00000KT 10SM BKN065 OVC080 30/22 A2992 RMK AO2 T03020216KHWY2019-07-18T14:15:00Z38.58-77.7230.221.60010.029.920275TRUETRUEVFRMETAR103.02019-07-18 14:22:34?¯ˆ!(w5    3KHYW 181415Z AUTO 22008KT 7SM CLR 30/23 A3003 RMK AO2KHYW2019-07-18T14:15:00Z33.83-79.1230.023.022087.030.029528TRUETRUEVFRMETAR11.02019-07-18 14:22:34N¯ˆ ) 5    3KIBM 181415Z AUTO 26008KT 10SM CLR 26/08 A2997 RMK AO2 T02560079KIBM2019-07-18T14:15:00Z41.18-103.6825.67.9260810.029.970472TRUETRUEVFRMETAR1501.02019-07-18 14:22:34 3`¦ßG¯ˆ((5    3KGVT 181415Z AUTO 19013KT 10SM BKN018 29/23 A3003 RMK AO2KGVT2019-07-18T14:15:00Z33.07-96.0729.023.01901310.030.029528TRUETRUEMVFRMETAR163.02019-07-18 14:22:34A¯ˆ'(y5    3KHCR 181415Z AUTO 00000KT 10SM CLR 16/04 A3010 RMK AO2KHCR2019-07-18T14:15:00Z40.48-111.4316.04.00010.030.100393TRUETRUEVFRMETAR1706.02019-07-18 14:22:344¯ˆ&(m5     3KHHG 181415Z AUTO 20005KT 10SM CLR A2994 RMK AO2KHHG2019-07-18T14:15:00Z40.85-85.45200510.029.940945TRUETRUEVFRMETAR246.02019-07-18 14:22:34M¯ˆ%) 5    3KHJH 181415Z AUTO 16009KT 10SM CLR 28/21 A2978 RMK AO2 T02840214KHJH2019-07-18T14:15:00Z40.15-97.5828.421.4160910.029.778543TRUETRUEVFRMETAR447.02019-07-18 14:22:34G¯ˆ$) 5    3KHRJ 181415Z AUTO 23004KT 10SM CLR 30/24 A3000 RMK AO2 T02970243KHRJ2019-07-18T14:15:00Z35.38-78.7329.724.3230410.030.0TRUETRUEVFRMETAR60.02019-07-18 14:22:34 Ç,]šÇM¯ˆ,) 5    3KBIE 181415Z AUTO 15008KT 10SM CLR 29/23 A2978 RMK AO2 T02870226KBIE2019-07-18T14:15:00Z40.28-96.7528.722.6150810.029.778543TRUETRUEVFRMETAR403.02019-07-18 14:22:34=¯ˆ+(y5    3KBIJ 181415Z AUTO 00000KT 10SM CLR 29/21 A3009 RMK AO2KBIJ2019-07-18T14:15:00Z31.4-84.929.021.00010.030.088583TRUETRUEVFRMETAR65.02019-07-18 14:22:34I¯ˆ*)5   3KGOP 181415Z AUTO 17013G21KT 7SM FEW020 27/22 A3005 RMK AO2KGOP2019-07-18T14:15:00Z31.42-97.827.022.017013217.030.050198TRUETRUEVFRMETAR276.02019-07-18 14:22:34N¯ˆ)) 5    3KGRN 181415Z AUTO 28008KT 10SM CLR 23/19 A2980 RMK AO2 T02310185KGRN2019-07-18T14:15:00Z42.8-102.1723.118.5280810.029.799213TRUETRUEVFRMETAR1086.02019-07-18 14:22:34 Â3eÂE¯ˆ0)5   3KAXX 181415Z AUTO 00000KT 10SM 11/07 A3039 RMK AO2 T01100068KAXX2019-07-18T14:15:00Z36.42-105.2811.06.80010.030.389763TRUETRUEMETAR2548.02019-07-18 14:22:34R¯ˆ/)5     3KAYS 181415Z AUTO 00000KT 10SM CLR 30/23 A3009 RMK AO2 T03030231 TSNOKAYS2019-07-18T14:15:00Z31.25-82.430.323.10010.030.088583TRUETRUETRUEVFRMETAR46.02019-07-18 14:22:34H¯ˆ.(5   3KBBD 181415Z AUTO 18015G23KT 10SM CLR 26/19 A3004 RMK AO2KBBD2019-07-18T14:15:00Z31.18-99.3226.019.0180152310.030.041338TRUETRUEVFRMETAR557.02019-07-18 14:22:34G¯ˆ-)5   3KBDG 181415Z AUTO 00000KT 10SM 23/M02 A3026 RMK AO1 T02301018KBDG2019-07-18T14:15:00Z37.58-109.4723.0-1.80010.030.259842TRUETRUEMETAR1788.02019-07-18 14:22:34 Ê9b§ÊW¯ˆ4)!5    3KASL 181415Z AUTO 20006KT 10SM BKN014 BKN020 26/23 A3008 RMK AO1 T02640234KASL2019-07-18T14:15:00Z32.52-94.326.423.4200610.030.079725TRUETRUEMVFRMETAR109.02019-07-18 14:22:345¯ˆ3(s5   3KATW 181415Z 00000KT 10SM SCT009 BKN100 22/22 A2976KATW2019-07-18T14:15:00Z44.27-88.5222.022.00010.029.760826VFRSPECI280.02019-07-18 14:22:34Q¯ˆ2)5   3KAUH 181415Z AUTO 17009G15KT 10SM CLR 28/22 A2976 RMK AO2 T02770215KAUH2019-07-18T14:15:00Z40.88-98.027.721.517091510.029.760826TRUETRUEVFRMETAR550.02019-07-18 14:22:34A¯ˆ1(y5    3KAUN 181415Z AUTO 00000KT 10SM CLR 22/14 A2992 RMK A01KAUN2019-07-18T14:15:00Z38.95-121.0822.014.00010.029.920275TRUETRUEVFRMETAR467.02019-07-18 14:22:34 »-Z‚»A¯ˆ8(y5    3KADH 181415Z AUTO 20007KT 10SM CLR 28/21 A2999 RMK AO2KADH2019-07-18T14:15:00Z34.8-96.6728.021.0200710.029.991142TRUETRUEVFRMETAR308.02019-07-18 14:22:34R¯ˆ7)5   3KAHQ 181415Z AUTO 21010G16KT 10SM CLR 30/21 A2976 RMK AO2 T02960211KAHQ2019-07-18T14:15:00Z41.23-96.629.621.1210101610.029.760826TRUETRUEVFRMETAR374.02019-07-18 14:22:34M¯ˆ6) 5    3KAJG 181415Z AUTO 24004KT 10SM CLR 26/23 A2999 RMK AO2 T02600226KAJG2019-07-18T14:15:00Z38.62-87.7326.022.6240410.029.991142TRUETRUEVFRMETAR131.02019-07-18 14:22:34M¯ˆ5) 5    3KANW 181415Z AUTO 21009KT 10SM CLR 26/24 A2974 RMK AO2 T02580238KANW2019-07-18T14:15:00Z42.57-100.025.823.8210910.029.740158TRUETRUEVFRMETAR789.02019-07-18 14:22:34 «?d’«a¯ˆ<)35     3K9V9 181415Z AUTO 07006KT 5SM BR SCT003 BKN011 OVC080 24/24 A2972 RMK AO2 T02430243K9V92019-07-18T14:15:00Z43.77-99.3224.324.37065.029.719488TRUETRUEBRMVFRMETAR519.02019-07-18 14:22:34L¯ˆ;) 5    3KA08 181415Z AUTO 29004KT 10SM CLR 31/25 A3008 RMK AO2 T03060245KA082019-07-18T14:15:00Z32.52-87.3830.624.5290410.030.079725TRUETRUEVFRMETAR69.02019-07-18 14:22:34U¯ˆ:)5    3KAAA 181415Z AUTO 21007KT 180V240 10SM CLR 29/24 A2990 RMK AO2 T02890240KAAA2019-07-18T14:15:00Z40.17-89.3328.924.0210710.029.899607TRUETRUEVFRMETAR182.02019-07-18 14:22:34;¯ˆ9(q5   3KAAS 181415Z AUTO 23006KT 10SM 26/21 A3009 RMK AO1KAAS2019-07-18T14:15:00Z37.35-85.3226.021.0230610.030.088583TRUETRUEMETAR281.02019-07-18 14:22:34 Æ:fŽÆB¯ˆ@(y5    3K6A2 181415Z AUTO 28006KT 10SM CLR 28/23 A3011 RMK AO2K6A22019-07-18T14:15:00Z33.23-84.2728.023.0280610.030.109253TRUETRUEVFRMETAR292.02019-07-18 14:22:34R¯ˆ?)5   3K6P9 181415Z AUTO 20013G20KT 10SM CLR 26/21 A3003 RMK AO2 T02600205K6P92019-07-18T14:15:00Z32.43-98.626.020.5200132010.030.029528TRUETRUEVFRMETAR449.02019-07-18 14:22:34N¯ˆ>)5    3K6R3 181415Z AUTO 20006KT 10SM SCT014 29/27 A3006 RMK AO2 T02880270K6R32019-07-18T14:15:00Z30.35-95.028.827.0200610.030.059055TRUETRUEVFRMETAR46.02019-07-18 14:22:34@¯ˆ=(y5    3K8A0 181415Z AUTO 00000KT 10SM CLR 27/22 A3012 RMK AO2K8A02019-07-18T14:15:00Z34.23-86.2527.022.00010.030.121063TRUETRUEVFRMETAR315.02019-07-18 14:22:34 «4P~«M¯ˆD) 5    3K5A6 181415Z AUTO 24006KT 10SM CLR 28/25 A3007 RMK AO2 T02800249K5A62019-07-18T14:15:00Z33.47-89.7328.024.9240610.030.070866TRUETRUEVFRMETAR111.02019-07-18 14:22:34L¯ˆC) 5    3K5C1 181415Z AUTO 19008KT 10SM SCT018 SCT023 25/22 A3008 RMK AO1K5C12019-07-18T14:15:00Z29.72-98.725.022.0190810.030.079725TRUETRUEVFRMETAR423.02019-07-18 14:22:34^¯ˆB)15    3K66R 181415Z AUTO 18007KT 140V200 10SM SCT015 SCT021 29/24 A3005 RMK AO2 T02940236K66R2019-07-18T14:15:00Z29.65-96.5229.423.6180710.030.050198TRUETRUEVFRMETAR74.02019-07-18 14:22:34F¯ˆA)5   3K6A1 181415Z AUTO 31004KT 10SM 31/21 A3011 RMK AO2 T03060213K6A12019-07-18T14:15:00Z32.57-84.2530.621.3310410.030.109253TRUETRUEMETAR203.02019-07-18 14:22:34 »/^„»C¯ˆH(y5    3K3K3 181415Z AUTO 26006KT 10SM CLR 23/15 A2988 RMK AO2K3K32019-07-18T14:15:00Z38.0-101.7523.015.0260610.029.878937TRUETRUEVFRMETAR1013.02019-07-18 14:22:34T¯ˆG)!5    3K3T5 181415Z AUTO 19006KT 10SM SCT015 SCT023 29/26 A3002 RMK AO2 T02910262K3T52019-07-18T14:15:00Z29.9-96.9529.126.2190610.030.02067TRUETRUEVFRMETAR99.02019-07-18 14:22:34K¯ˆF) 5    3K41U 181415Z AUTO 00000KT 10SM CLR 14/03 A3015 RMK AO1 T01440031K41U2019-07-18T14:15:00Z39.33-111.7214.43.10010.030.15059TRUETRUEVFRMETAR1676.02019-07-18 14:22:34K¯ˆE) 5    3K4A9 181415Z AUTO 00000KT 10SM CLR 26/23 A3010 RMK AO2 T02590226K4A92019-07-18T14:15:00Z34.47-85.7225.922.60010.030.100393TRUETRUEVFRMETAR267.02019-07-18 14:22:34 ±#R‹±T¯ˆL)5   3K19S 181415Z AUTO 21015G21KT 10SM CLR 28/17 A2987 RMK AO2 T02820173K19S2019-07-18T14:15:00Z37.48-100.8328.217.3210152110.029.870079TRUETRUEVFRMETAR886.02019-07-18 14:22:34A¯ˆK(y5    3K28J 181415Z AUTO 22003KT 10SM CLR 28/23 A3012 RMK AO2K28J2019-07-18T14:15:00Z29.65-81.5828.023.0220310.030.121063TRUETRUEVFRMETAR15.02019-07-18 14:22:34K¯ˆJ) 5    3K2J5 181415Z AUTO 26005KT 10SM CLR 31/23 A3006 RMK AO2 T03110228K2J52019-07-18T14:15:00Z32.9-81.9731.122.8260510.030.059055TRUETRUEVFRMETAR72.02019-07-18 14:22:34W¯ˆI)!5    3K3F3 181415Z AUTO 18009KT 10SM BKN017 BKN024 29/25 A3011 RMK AO2 T02870251K3F32019-07-18T14:15:00Z32.07-93.7728.725.1180910.030.109253TRUETRUEMVFRMETAR96.02019-07-18 14:22:34 §.[‰§\¯ˆP)15    3KZPH 181415Z AUTO 00000KT 10SM CLR 28/24 A3012 RMK A02 LTG DSNT E AND SE T02830236KZPH2019-07-18T14:15:00Z28.23-82.1528.323.60010.030.121063TRUETRUEVFRMETAR26.02019-07-18 14:22:34L¯ˆO) 5    3K0E0 181415Z AUTO 00000KT 10SM CLR 22/12 A3021 RMK AO2 T02200119K0E02019-07-18T14:15:00Z34.98-106.022.011.90010.030.209646TRUETRUEVFRMETAR1890.02019-07-18 14:22:34M¯ˆN) 5    3K0V4 181415Z AUTO 25009KT 10SM CLR 31/23 A2997 RMK AO1 T03090230K0V42019-07-18T14:15:00Z37.15-79.0230.923.0250910.029.970472TRUETRUEVFRMETAR182.02019-07-18 14:22:34L¯ˆM) 5    3K17J 181415Z AUTO 30005KT 10SM CLR 29/25 A3009 RMK AO2 T02890252K17J2019-07-18T14:15:00Z31.07-84.9228.925.2300510.030.088583TRUETRUEVFRMETAR45.02019-07-18 14:22:34 Ã)Y•ÃL¯ˆT) 5    3KW81 181415Z AUTO 22003KT 10SM CLR 29/25 A2995 RMK AO1 T02850245KW812019-07-18T14:15:00Z37.18-78.128.524.5220310.029.949802TRUETRUEVFRMETAR129.02019-07-18 14:22:34>¯ˆS(y5    3KWBF 181415Z AUTO 00000KT 10SM CLR 30/25 A3011 RMK A01KWBF2019-07-18T14:15:00Z26.93-90.530.025.00010.030.109253TRUETRUEVFRMETAR10.02019-07-18 14:22:34J¯ˆR)5   3KXIH 181415Z AUTO 19009G15KT 10SM FEW022 30/24 A3005 RMK A01KXIH2019-07-18T14:15:00Z29.18-94.5230.024.019091510.030.050198TRUETRUEVFRMETAR75.02019-07-18 14:22:34Q¯ˆQ)5    3KXPY 181415Z AUTO 22005KT 10SM SCT017 SCT024 BKN039 29/27 A3010 RMK A01KXPY2019-07-18T14:15:00Z29.12-90.229.027.0220510.030.100393TRUETRUEVFRMETAR2.02019-07-18 14:22:34 É.hŽÉ?¯ˆX(y5    3KVOA 181415Z AUTO 00000KT 10SM CLR 29/25 A3011 RMK A01KVOA2019-07-18T14:15:00Z29.23-87.7829.025.00010.030.109253TRUETRUEVFRMETAR53.02019-07-18 14:22:34T¯ˆW)5     3KVWU 181415Z AUTO 21005KT 10SM -RA SCT013 SCT020 21/19 A2964 RMK AO2KVWU2019-07-18T14:15:00Z48.15-94.5221.019.0210510.029.639763TRUETRUE-RAVFRMETAR360.02019-07-18 14:22:34@¯ˆV(}5    3KW31 181415Z AUTO 10SM CLR 28/24 A2997 RMK AO1 T02780235KW312019-07-18T14:15:00Z36.95-78.1827.823.510.029.970472TRUETRUEVFRMETAR162.02019-07-18 14:22:34L¯ˆU) 5    3KW78 181415Z AUTO 26006KT 10SM CLR 30/21 A2998 RMK AO1 T03000212KW782019-07-18T14:15:00Z36.68-78.8530.021.2260610.029.97933TRUETRUEVFRMETAR129.02019-07-18 14:22:34 Ë;d‘ˁ@¯ˆ\(5    3KUYF 181415Z AUTO 18003KT 10SM SCT013 27/26 A3000 RMK AO2KUYF2019-07-18T14:15:00Z39.93-83.4727.026.0180310.030.0TRUETRUEVFRMETAR330.02019-07-18 14:22:34M¯ˆ[) 5    3KVAF 181415Z AUTO 17011KT 10SM FEW020 FEW028 31/24 A3006 RMK A01KVAF2019-07-18T14:15:00Z27.35-94.6331.024.01701110.030.059055TRUETRUEVFRMETAR46.02019-07-18 14:22:34Q¯ˆZ)5    3KVJI 181415Z AUTO 25007KT 10SM OVC011 23/22 A3012 RMK AO2 T02320222KVJI2019-07-18T14:15:00Z36.67-82.0223.222.2250710.030.121063TRUETRUEMVFRMETAR631.02019-07-18 14:22:34?¯ˆY(y5    3KVKY 181415Z AUTO 00000KT 10SM CLR 29/25 A3012 RMK A01KVKY2019-07-18T14:15:00Z29.25-88.4329.025.00010.030.121063TRUETRUEVFRMETAR32.02019-07-18 14:22:34 ­H€­M¯ˆ`) 5    3KTKV 181415Z AUTO 23003KT 10SM CLR 23/20 A2977 RMK AO2 T02300195KTKV2019-07-18T14:15:00Z45.47-89.8223.019.5230310.029.769686TRUETRUEVFRMETAR453.02019-07-18 14:22:34B¯ˆ_(y5    3KTYL 181415Z AUTO 00000KT 10SM CLR 22/11 A3026 RMK AO2KTYL2019-07-18T14:15:00Z34.45-110.1222.011.00010.030.259842TRUETRUEVFRMETAR1745.02019-07-18 14:22:34I¯ˆ^)5    3KU68 181415Z AUTO 27005KT 10SM SCT120 20/M33 A2985 RMK AO2KU682019-07-18T14:15:00Z44.92-108.4520.0-33.0270510.029.84941TRUETRUEVFRMETAR1247.02019-07-18 14:22:34c¯ˆ])+5      3KUNI 181415Z AUTO 00000KT 10SM OVC003 24/24 A2999 RMK AO2 P0001 T02370237 PWINOKUNI2019-07-18T14:15:00Z39.22-82.2323.723.70010.029.991142TRUETRUETRUELIFR0.01METAR193.02019-07-18 14:22:34 š-PwšW¯ˆd)5   3KSLR 181415Z AUTO 19012G16KT 10SM OVC015 29/24 A3004 RMK AO2 T02850236KSLR2019-07-18T14:15:00Z33.17-95.6228.523.6190121610.030.041338TRUETRUEMVFRMETAR149.02019-07-18 14:22:34S¯ˆc)5   3KSNL 181415Z AUTO 20012G21KT 10SM CLR 29/22 A2996 RMK AO2 T02870219KSNL2019-07-18T14:15:00Z35.35-96.9528.721.9200122110.029.958662TRUETRUEVFRMETAR327.02019-07-18 14:22:34W¯ˆb)!5    3KSYN 181415Z AUTO 02006KT 10SM BKN021 OVC033 23/20 A2972 RMK AO2 T02250202KSYN2019-07-18T14:15:00Z44.47-93.0222.520.220610.029.719488TRUETRUEMVFRMETAR280.02019-07-18 14:22:34M¯ˆa) 5    3KTIP 181415Z AUTO 22008KT 10SM CLR 27/24 A2993 RMK AO2 T02710235KTIP2019-07-18T14:15:00Z40.28-88.1527.123.5220810.029.929134TRUETRUEVFRMETAR225.02019-07-18 14:22:34 |0S}|{¯ˆh)]5      3KRPJ 181415Z AUTO 14005KT 7SM -RA SCT003 BKN045 OVC060 22/22 A2991 RMK AO2 LTG DSNT ALQS P0001 T02200220KRPJ2019-07-18T14:15:00Z41.88-89.0822.022.014057.029.911417TRUETRUE-RAVFR0.01METAR238.02019-07-18 14:22:34P¯ˆg)5    3KRSN 181415Z AUTO 25006KT 10SM BKN011 27/23 A3012 RMK AO2 T02680234KRSN2019-07-18T14:15:00Z32.52-92.5826.823.4250610.030.121063TRUETRUEMVFRMETAR95.02019-07-18 14:22:34W¯ˆf)!5    3KRYW 181415Z AUTO 19008KT 10SM BKN015 BKN020 26/23 A3007 RMK AO2 T02620225KRYW2019-07-18T14:15:00Z30.5-97.9726.222.5190810.030.070866TRUETRUEMVFRMETAR376.02019-07-18 14:22:34J¯ˆe)5    3KS52 181415Z AUTO 35008KT CLR 16/03 A2985 RMK AO2 PWINO T01640032KS522019-07-18T14:15:00Z48.38-120.1516.43.2350829.84941TRUETRUETRUEMETAR520.02019-07-18 14:22:34 Ã.Y”ÁK¯ˆl) 5    3KRAS 181415Z AUTO 16008KT 10SM CLR 30/26 A3003 RMK AO2 T03000258KRAS2019-07-18T14:15:00Z27.82-97.0830.025.8160810.030.029528TRUETRUEVFRMETAR2.02019-07-18 14:22:34?¯ˆk(y5    3KRBW 181415Z AUTO 00000KT 10SM CLR 29/22 A3006 RMK AO2KRBW2019-07-18T14:15:00Z32.92-80.6329.022.00010.030.059055TRUETRUEVFRMETAR31.02019-07-18 14:22:34O¯ˆj) 5    3KRCV 181415Z AUTO 27011KT 10SM CLR 17/02 A3035 RMK AO2 T01720017KRCV2019-07-18T14:15:00Z37.72-106.3517.21.72701110.030.351377TRUETRUEVFRMETAR2424.02019-07-18 14:22:34L¯ˆi) 5    3KRNV 181415Z AUTO 23006KT 10SM CLR 28/28 A3005 RMK AO2 T02840283KRNV2019-07-18T14:15:00Z33.77-90.7528.428.3230610.030.050198TRUETRUEVFRMETAR41.02019-07-18 14:22:34 «%_}«L¯ˆp) 5    3KPRS 181415Z AUTO 00000KT 10SM CLR 27/16 A3007 RMK AO2 T02700155KPRS2019-07-18T14:15:00Z29.63-104.3527.015.50010.030.070866TRUETRUEVFRMETAR896.02019-07-18 14:22:34\¯ˆo)'5   3KPSN 181415Z AUTO 18009G15KT 10SM SCT010 BKN016 27/24 A3006 RMK AO2 T02730244KPSN2019-07-18T14:15:00Z31.78-95.727.324.418091510.030.059055TRUETRUEMVFRMETAR129.02019-07-18 14:22:34@¯ˆn(w5    3KPUJ 181415Z AUTO 30003KT 7SM CLR 27/21 A3012 RMK AO2KPUJ2019-07-18T14:15:00Z33.92-84.9327.021.030037.030.121063TRUETRUEVFRMETAR393.02019-07-18 14:22:34U¯ˆm)5   3KPVW 181415Z AUTO 20013G21KT 10SM CLR 26/16 A2999 RMK AO2 T02600161KPVW2019-07-18T14:15:00Z34.17-101.7226.016.1200132110.029.991142TRUETRUEVFRMETAR1028.02019-07-18 14:22:34 ®:i–®b¯ˆt)55     3KPDC 181415Z AUTO 04005KT 7SM -RA SCT009 SCT014 OVC048 20/20 A2983 RMK AO2 T02030196KPDC2019-07-18T14:15:00Z43.02-91.1220.319.64057.029.828741TRUETRUE-RAVFRMETAR201.02019-07-18 14:22:34M¯ˆs) 5    3KPIM 181415Z AUTO 25005KT 10SM CLR 29/23 A3011 RMK AO2 T02900231KPIM2019-07-18T14:15:00Z32.83-84.8829.023.1250510.030.109253TRUETRUEVFRMETAR275.02019-07-18 14:22:34K¯ˆr) 5    3KPLU 181415Z AUTO VRB03KT 10SM BKN055 OVC065 15/12 A3003 RMK AO2KPLU2019-07-18T14:15:00Z47.1-122.2815.012.00310.030.029528TRUETRUEVFRMETAR164.02019-07-18 14:22:34@¯ˆq(y5    3KPOY 181415Z AUTO 00000KT 10SM CLR 18/06 A2989 RMK AO2KPOY2019-07-18T14:15:00Z44.87-108.818.06.00010.029.890747TRUETRUEVFRMETAR1552.02019-07-18 14:22:34 ž&CqžM¯ˆx) 5    3KN03 181415Z AUTO 13003KT 10SM BKN011 BKN018 24/21 A2996 RMK AO2KN032019-07-18T14:15:00Z42.6-76.2224.021.0130310.029.958662TRUETRUEMVFRMETAR366.02019-07-18 14:22:34L¯ˆw) 5    3KONL 181415Z AUTO 17011KT 7SM CLR 26/26 A2972 RMK AO2 T02620256KONL2019-07-18T14:15:00Z42.47-98.6726.225.6170117.029.719488TRUETRUEVFRMETAR619.02019-07-18 14:22:34]¯ˆv)/5    3KOPL 181415Z AUTO 25003KT 10SM BKN010 BKN015 BKN021 28/26 A3008 RMK AO2 T02760255KOPL2019-07-18T14:15:00Z30.55-92.127.625.5250310.030.079725TRUETRUEMVFRMETAR23.02019-07-18 14:22:34T¯ˆu)5   3KOSA 181415Z AUTO 20009G15KT 10SM SCT015 28/23 A3005 RMK AO1 T02770229KOSA2019-07-18T14:15:00Z33.1-94.9727.722.920091510.030.050198TRUETRUEVFRMETAR111.02019-07-18 14:22:34 ÙHoÙ>¯ˆ|(y5    3KMIS 181415Z AUTO 00000KT 10SM CLR 30/25 A3010 RMK A01KMIS2019-07-18T14:15:00Z29.3-88.8530.025.00010.030.100393TRUETRUEVFRMETAR32.02019-07-18 14:22:34L¯ˆ{) 5    3KMMH 181415Z AUTO 00000KT 10SM CLR 11/04 A3025 RMK AO2 T01050039KMMH2019-07-18T14:15:00Z37.62-118.8210.53.90010.030.250984TRUETRUEVFRMETAR2173.02019-07-18 14:22:34S¯ˆz)5   3KMQB 181415Z AUTO 23011G17KT 10SM CLR 27/23 A2988 RMK AO2 T02680230KMQB2019-07-18T14:15:00Z40.52-90.6526.823.0230111710.029.878937TRUETRUEVFRMETAR215.02019-07-18 14:22:342¯ˆy(m5     3KMZZ 181415Z AUTO 00000KT 10SM CLR A2996 RMK AO2KMZZ2019-07-18T14:15:00Z40.48-85.680010.029.958662TRUETRUEVFRMETAR262.02019-07-18 14:22:34 Å6m”ŁI¯‰(5   3KLUV 181415Z AUTO 18019G23KT 10SM CLR 27/18 A3001 RMK AO2KLUV2019-07-18T14:15:00Z32.75-101.9227.018.0180192310.030.008858TRUETRUEVFRMETAR912.02019-07-18 14:22:34S¯ˆ)5   3KLYO 181415Z AUTO 20015G18KT 10SM CLR 27/21 A2982 RMK AO2 T02670208KLYO2019-07-18T14:15:00Z38.35-98.2326.720.8200151810.029.819881TRUETRUEVFRMETAR515.02019-07-18 14:22:34C¯ˆ~(5    3KMDS 181415Z AUTO 00000KT 10SM BKN005 23/23 A2978 RMK AO2KMDS2019-07-18T14:15:00Z44.02-97.0823.023.00010.029.778543TRUETRUEIFRMETAR524.02019-07-18 14:22:34D¯ˆ}(5    3KMEZ 181415Z AUTO 22006KT 10SM SCT018 28/26 A3006 RMK AO2KMEZ2019-07-18T14:15:00Z34.55-94.228.026.0220610.030.059055TRUETRUEVFRMETAR329.02019-07-18 14:22:34 ­.U€­M¯‰) 5    3KLNN 181415Z AUTO 26007KT 10SM CLR 26/18 A2996 RMK AO1 T02610176KLNN2019-07-18T14:15:00Z41.67-81.3726.117.6260710.029.958662TRUETRUEVFRMETAR191.02019-07-18 14:22:34O¯‰) 5    3KLRU 181415Z AUTO 12003KT 10SM CLR 24/17 A3012 RMK AO2 T02400166KLRU2019-07-18T14:15:00Z32.27-106.9224.016.6120310.030.121063TRUETRUEVFRMETAR1358.02019-07-18 14:22:34S¯‰)5   3KLUD 181415Z AUTO 19010G15KT 10SM CLR 28/20 A3001 RMK AO2 T02770204KLUD2019-07-18T14:15:00Z33.25-97.5827.720.4190101510.030.008858TRUETRUEVFRMETAR319.02019-07-18 14:22:34L¯‰) 5    3KLUL 181415Z AUTO 28005KT 10SM CLR 29/25 A3010 RMK A02 T02900250KLUL2019-07-18T14:15:00Z31.67-89.1729.025.0280510.030.100393TRUETRUEVFRMETAR73.02019-07-18 14:22:34  Fr L¯‰) 5    3KLCG 181415Z AUTO 22004KT 10SM CLR 27/24 A2971 RMK AO2 T02650240KLCG2019-07-18T14:15:00Z42.25-96.9826.524.0220410.029.71063TRUETRUEVFRMETAR436.02019-07-18 14:22:34N¯‰)5    3KLCK 181415Z AUTO 20004KT 7SM BKN007 24/24 A2999 RMK AO2 T02390237KLCK2019-07-18T14:15:00Z39.82-82.9223.923.720047.029.991142TRUETRUEIFRMETAR227.02019-07-18 14:22:34D¯‰(5    3KLCQ 181415Z AUTO 22004KT 10SM OVC008 26/24 A3012 RMK AO2KLCQ2019-07-18T14:15:00Z30.18-82.5826.024.0220410.030.121063TRUETRUEIFRMETAR61.02019-07-18 14:22:34j¯‰)?5    3KLNA 181415Z AUTO 13009G14KT 10SM VCTS SCT090 32/25 A3010 RMK AO2 LTG DSNT ALQS T03200247KLNA2019-07-18T14:15:00Z26.6-80.0232.024.713091410.030.100393TRUETRUEVCTSVFRMETAR11.02019-07-18 14:22:34 Ò6o–ҁ>¯‰ (y5    3KJSV 181415Z AUTO 00000KT 10SM CLR 30/23 A2998 RMK AO2KJSV2019-07-18T14:15:00Z35.43-94.830.023.00010.029.97933TRUETRUEVFRMETAR161.02019-07-18 14:22:34S¯‰ )5   3KJWG 181415Z AUTO 19016G22KT 10SM CLR 29/21 A2995 RMK AO2 T02860214KJWG2019-07-18T14:15:00Z35.87-98.4228.621.4190162210.029.949802TRUETRUEVFRMETAR472.02019-07-18 14:22:34A¯‰ (y5    3KL35 181415Z AUTO 00000KT 10SM CLR 11/02 A3024 RMK AO2KL352019-07-18T14:15:00Z34.27-116.8511.02.00010.030.239174TRUETRUEVFRMETAR2059.02019-07-18 14:22:34D¯‰ )5   3KLAM 181415Z AUTO 00000KT 10SM 22/03 A3029 RMK AO2 T02180029KLAM2019-07-18T14:15:00Z35.87-106.2721.82.90010.030.28937TRUETRUEMETAR2179.02019-07-18 14:22:34 ¹,g”¹U¯‰)5    3KJAS 181415Z AUTO 16005KT 7SM BKN012 BKN018 24/23 A3009 RMK AO2 T02430233KJAS2019-07-18T14:15:00Z30.88-94.0324.323.316057.030.088583TRUETRUEMVFRMETAR65.02019-07-18 14:22:34M¯‰) 5    3KJDD 181415Z AUTO 18007KT 10SM BKN016 BKN022 28/23 A3004 RMK AO2KJDD2019-07-18T14:15:00Z32.75-95.528.023.0180710.030.041338TRUETRUEMVFRMETAR132.02019-07-18 14:22:34?¯‰(y5    3KJGG 181415Z AUTO 00000KT 10SM CLR 31/24 A2994 RMK AO1KJGG2019-07-18T14:15:00Z37.23-76.7231.024.00010.029.940945TRUETRUEVFRMETAR15.02019-07-18 14:22:34N¯‰ )5    3KJKA 181415Z AUTO 32004KT 10SM SCT015 30/26 A3009 RMK AO2 T03000257KJKA2019-07-18T14:15:00Z30.28-87.6730.025.7320410.030.088583TRUETRUEVFRMETAR5.02019-07-18 14:22:34 Å8_ˆÅ=¯‰(y5    3KI74 181415Z AUTO 23004KT 10SM CLR 26/23 A3000 RMK AO2KI742019-07-18T14:15:00Z40.35-83.7526.023.0230410.030.0TRUETRUEVFRMETAR325.02019-07-18 14:22:34Q¯‰)5   3KI75 181415Z AUTO 22012G20KT 7SM CLR 29/23 A2979 RMK AO2 T02930227KI752019-07-18T14:15:00Z41.05-93.6829.322.722012207.029.790354TRUETRUEVFRMETAR339.02019-07-18 14:22:34S¯‰)5   3KIJX 181415Z AUTO 21011G14KT 10SM CLR 28/24 A2990 RMK AO2 T02750235KIJX2019-07-18T14:15:00Z39.77-90.2527.523.5210111410.029.899607TRUETRUEVFRMETAR190.02019-07-18 14:22:34B¯‰(5    3KIKT 181415Z AUTO 00000KT 10SM FEW018 33/24 A3012 RMK A01KIKT2019-07-18T14:15:00Z28.52-88.2833.024.00010.030.121063TRUETRUEVFRMETAR25.02019-07-18 14:22:34 ´2\’´X¯‰)!5    3KHLX 181415Z AUTO 28006KT 10SM BKN017 OVC025 24/22 A3011 RMK AO2 T02420220KHLX2019-07-18T14:15:00Z36.77-80.8224.222.0280610.030.109253TRUETRUEMVFRMETAR834.02019-07-18 14:22:34D¯‰(5   3KHQI 181415Z AUTO VRB06G12KT 10SM CLR 29/24 A3007 RMK A01KHQI2019-07-18T14:15:00Z27.93-93.6729.024.0061210.030.070866TRUETRUEVFRMETAR26.02019-07-18 14:22:34P¯‰)5   3KHRX 181415Z AUTO 21016G22KT 10SM CLR 27/17 A3000 RMK AO2 T02690168KHRX2019-07-18T14:15:00Z34.87-102.3326.916.8210162210.030.0TRUETRUEVFRMETAR1154.02019-07-18 14:22:34H¯‰) 5    3KHSB 181415Z AUTO 24003KT 10SM CLR 25/22 A3000 RMK AO2 T02490221KHSB2019-07-18T14:15:00Z37.82-88.5524.922.1240310.030.0TRUETRUEVFRMETAR121.02019-07-18 14:22:34 Ï6^—ρB¯‰(}5    3KGRY 181415Z AUTO 11006KT 9SM FEW018 28/25 A3011 RMK A01KGRY2019-07-18T14:15:00Z27.63-90.4528.025.011069.030.109253TRUETRUEVFRMETAR58.02019-07-18 14:22:34A¯‰(y5    3KGUL 181415Z AUTO 16012KT 10SM CLR 29/24 A3009 RMK A01KGUL2019-07-18T14:15:00Z27.3-93.5329.024.01601210.030.088583TRUETRUEVFRMETAR30.02019-07-18 14:22:34R¯‰)5   3KHHF 181415Z AUTO 21013G22KT 10SM CLR 28/19 A2990 RMK AO2 T02830191KHHF2019-07-18T14:15:00Z35.9-100.428.319.1210132210.029.899607TRUETRUEVFRMETAR712.02019-07-18 14:22:34D¯‰(}5   3KHHV 181415Z AUTO 16008G15KT 9SM CLR 29/24 A3006 RMK A01KHHV2019-07-18T14:15:00Z26.93-94.6829.024.01608159.030.059055TRUETRUEVFRMETAR25.02019-07-18 14:22:34 ÃRÃF¯‰ (5    3KFXY 181415Z AUTO 20009KT 10SM BKN021 27/25 A2973 RMK AO2KFXY2019-07-18T14:15:00Z43.23-93.6227.025.0200910.029.731298TRUETRUEMVFRMETAR375.02019-07-18 14:22:34=¯‰(y5    3KGBK 181415Z AUTO VRB04KT 10SM CLR 29/25 A2999 RMK A01KGBK2019-07-18T14:15:00Z27.2-92.229.025.00410.029.991142TRUETRUEVFRMETAR59.02019-07-18 14:22:34G¯‰(5   3KGCM 181415Z AUTO 20014G18KT 10SM CLR 28/23 A2997 RMK AO2KGCM2019-07-18T14:15:00Z36.3-95.4828.023.0200141810.029.970472TRUETRUEVFRMETAR221.02019-07-18 14:22:34[¯‰)5    3KGLE 181415Z AUTO 19013G19KT 10SM CLR 28/20 A3002 RMK AO2 T02750200 PWINOKGLE2019-07-18T14:15:00Z33.65-97.227.520.0190131910.030.02067TRUETRUETRUEVFRMETAR256.02019-07-18 14:22:34 £-R~£U¯‰$)5   3KF46 181415Z AUTO 21012G19KT 10SM SCT016 28/23 A3002 RMK AO2 T02790231KF462019-07-18T14:15:00Z32.93-96.4327.923.1210121910.030.02067TRUETRUEVFRMETAR176.02019-07-18 14:22:34N¯‰#) 5    3KFET 181415Z AUTO 20010KT 10SM CLR 29/20 A2975 RMK AO2 T02900201KFET2019-07-18T14:15:00Z41.45-96.5229.020.12001010.029.749016TRUETRUEVFRMETAR367.02019-07-18 14:22:34U¯‰")!5    3KFHB 181415Z AUTO 23007KT 10SM SCT017 SCT047 29/23 A3010 RMK AO2 T02950227KFHB2019-07-18T14:15:00Z30.62-81.4729.522.7230710.030.100393TRUETRUEVFRMETAR5.02019-07-18 14:22:34M¯‰!) 5    3KFOA 181415Z AUTO 23006KT 10SM CLR 29/23 A2999 RMK AO2 T02850231KFOA2019-07-18T14:15:00Z38.67-88.4528.523.1230610.029.991142TRUETRUEVFRMETAR144.02019-07-18 14:22:34 º7lºA¯‰((y5    3KEIR 181415Z AUTO 16006KT 10SM CLR 29/26 A3011 RMK A01KEIR2019-07-18T14:15:00Z28.63-91.4829.026.0160610.030.109253TRUETRUEVFRMETAR28.02019-07-18 14:22:34e¯‰');5    3KMUI 181415Z 00000KT 10SM BKN013 BKN030 BKN042 26/23 A2991 RMK AO2A BKN013 V OVC SLP128KMUI2019-07-18T14:15:00Z40.42-76.5726.023.00010.029.9114171012.8TRUEMVFRSPECI149.02019-07-18 14:22:34E¯‰&(5    3KEMK 181415Z AUTO 16012KT 10SM FEW019 31/25 A3007 RMK A01KEMK2019-07-18T14:15:00Z27.82-94.3231.025.01601210.030.070866TRUETRUEVFRMETAR26.02019-07-18 14:22:34C¯‰%(y5    3KEVU 181415Z AUTO 22010KT 10SM CLR 30/13 A2981 RMK AO2KEVU2019-07-18T14:15:00Z40.35-94.9230.013.02201010.029.811024TRUETRUEVFRMETAR349.02019-07-18 14:22:34 «)S~«M¯‰,) 5    3KDUC 181415Z AUTO 20016KT 10SM CLR 28/21 A2998 RMK AO2 T02850212KDUC2019-07-18T14:15:00Z34.47-97.9728.521.22001610.029.97933TRUETRUEVFRMETAR339.02019-07-18 14:22:34O¯‰+)5    3KDZJ 181415Z AUTO 27004KT 10SM SCT018 27/23 A3014 RMK AO2 T02670226KDZJ2019-07-18T14:15:00Z34.85-84.026.722.6270410.030.138779TRUETRUEVFRMETAR582.02019-07-18 14:22:34P¯‰*) 5    3KE38 181415Z AUTO 23010KT 10SM CLR 25/14 A3018 RMK AO2 T02450136KE382019-07-18T14:15:00Z30.38-103.6824.513.62301010.030.180119TRUETRUEVFRMETAR1376.02019-07-18 14:22:34Q¯‰)) 5     3KECS 181415Z AUTO 16004KT 1 3/4SM BR OVC003 18/17 A2987 RMK AO2KECS2019-07-18T14:15:00Z43.88-104.3218.017.016041.7529.870079TRUETRUEBRLIFRMETAR1273.02019-07-18 14:22:34 Ä8eÄS¯‰0)5   3KCUH 181415Z AUTO 21015G20KT 10SM CLR 29/23 A2993 RMK AO2 T02910225KCUH2019-07-18T14:15:00Z35.95-96.7729.122.5210152010.029.929134TRUETRUEVFRMETAR279.02019-07-18 14:22:34B¯‰/(y5    3KCZL 181415Z AUTO 22004KT 10SM CLR 27/22 A3011 RMK AO2KCZL2019-07-18T14:15:00Z34.47-84.9327.022.0220410.030.109253TRUETRUEVFRMETAR195.02019-07-18 14:22:34M¯‰.)5    3KDED 181415Z AUTO 18005KT 10SM CLR 29/24 A3010 RMK AO2 LTG DSNT EKDED2019-07-18T14:15:00Z29.07-81.2829.024.0180510.030.100393TRUETRUEVFRMETAR24.02019-07-18 14:22:34B¯‰-)5    3KDLP 181415Z AUTO 8SM SCT016 BKN023 BKN029 M40/ A3008 RMK A01KDLP2019-07-18T14:15:00Z29.12-89.55-40.08.030.079725TRUETRUEMVFRMETAR36.02019-07-18 14:22:34 ¨.n‡¨Y¯‰4)!5    3KCFD 181415Z AUTO 20010KT 10SM BKN016 BKN026 29/26 A3006 RMK AO2 T02850264KCFD2019-07-18T14:15:00Z30.72-96.3328.526.42001010.030.059055TRUETRUEMVFRMETAR112.02019-07-18 14:22:34a¯‰3)15     3KCMY 181415Z AUTO 20004KT 10SM TS OVC080 20/18 A2980 RMK AO2 LTG DSNT SW T01950181KCMY2019-07-18T14:15:00Z43.97-90.7319.518.1200410.029.799213TRUETRUETSVFRMETAR256.02019-07-18 14:22:34:¯‰2(q5   3KCQF 181415Z AUTO 34004KT 10SM 29/26 A3009 RMK AO2KCQF2019-07-18T14:15:00Z30.47-87.8829.026.0340410.030.088583TRUETRUEMETAR28.02019-07-18 14:22:34L¯‰1) 5    3KCTJ 181415Z AUTO 33004KT 10SM CLR 27/23 A3015 RMK AO2 T02690233KCTJ2019-07-18T14:15:00Z33.63-85.1526.923.3330410.030.15059TRUETRUEVFRMETAR354.02019-07-18 14:22:34  Fs M¯‰8) 5    3KBTA 181415Z AUTO 22004KT 10SM CLR 26/22 A2977 RMK AO2 T02640216KBTA2019-07-18T14:15:00Z41.42-96.1226.421.6220410.029.769686TRUETRUEVFRMETAR396.02019-07-18 14:22:34M¯‰7) 5    3KBVN 181415Z AUTO 18006KT 10SM CLR 27/25 A2974 RMK AO2 T02680247KBVN2019-07-18T14:15:00Z41.73-98.0526.824.7180610.029.740158TRUETRUEVFRMETAR551.02019-07-18 14:22:34K¯‰6) 5    3KBYL 181415Z AUTO 24005KT 10SM FEW016 SCT041 27/24 A3007 RMK AO1KBYL2019-07-18T14:15:00Z36.8-84.227.024.0240510.030.070866TRUETRUEVFRMETAR359.02019-07-18 14:22:34c¯‰5)55   3KC29 181415Z AUTO 19016G22KT 10SM SCT008 SCT025 BKN120 21/21 A2985 RMK AO1 T02140214KC292019-07-18T14:15:00Z43.12-89.5321.421.4190162210.029.84941TRUETRUEVFRMETAR283.02019-07-18 14:22:34 ¿0W…¿@¯‰<(y5    3KATP 181415Z AUTO 11006KT 10SM CLR 32/25 A3011 RMK A01KATP2019-07-18T14:15:00Z27.2-90.0332.025.0110610.030.109253TRUETRUEVFRMETAR62.02019-07-18 14:22:34L¯‰;) 5    3KBBF 181415Z AUTO 18014KT 10SM SCT022 SCT028 29/24 A3002 RMK A01KBBF2019-07-18T14:15:00Z27.83-96.0229.024.01801410.030.02067TRUETRUEVFRMETAR36.02019-07-18 14:22:34S¯‰:)!5    3KBJI 181415Z AUTO 00000KT 10SM SCT050 BKN070 19/19 A2967 RMK AO2 T01910185KBJI2019-07-18T14:15:00Z47.5-94.9219.118.50010.029.66929TRUETRUEVFRMETAR420.02019-07-18 14:22:34J¯‰9) 5    3KBQX 181415Z AUTO 17012KT 9SM FEW023 FEW029 29/25 A3005 RMK A01KBQX2019-07-18T14:15:00Z28.5-95.7229.025.0170129.030.050198TRUETRUEVFRMETAR34.02019-07-18 14:22:34 »7e‰»H¯‰@(5   3K3AU 181415Z AUTO 19016G21KT 10SM CLR 28/21 A2988 RMK AO2K3AU2019-07-18T14:15:00Z37.67-97.0828.021.0190162110.029.878937TRUETRUEVFRMETAR405.02019-07-18 14:22:34V¯‰?)!5    3K3R7 181415Z AUTO 23004KT 10SM BKN012 BKN018 29/25 A3007 RMK AO2 T02880252K3R72019-07-18T14:15:00Z30.25-92.6728.825.2230410.030.070866TRUETRUEMVFRMETAR7.02019-07-18 14:22:34L¯‰>) 5    3K48A 181415Z AUTO 30007KT 10SM CLR 31/22 A3008 RMK AO2 T03140224K48A2019-07-18T14:15:00Z32.4-83.2731.422.4300710.030.079725TRUETRUEVFRMETAR115.02019-07-18 14:22:34C¯‰=(5    3K6S2 181415Z AUTO 00000KT 10SM OVC048 16/14 A3007 RMK AO2K6S22019-07-18T14:15:00Z43.98-124.1216.014.00010.030.070866TRUETRUEVFRMETAR16.02019-07-18 14:22:34 ².f”²\¯‰D)/5    3KSEF 181415Z AUTO 10004KT 7SM CLR 29/25 A3012 RMK AO2 LTG DSNT E AND SE T02860248KSEF2019-07-18T14:15:00Z27.45-81.3528.624.810047.030.121063TRUETRUEVFRMETAR19.02019-07-18 14:22:34L¯‰C) 5    3KSBS 181415Z AUTO 00000KT 10SM CLR 12/05 A3021 RMK AO1 T01180047KSBS2019-07-18T14:15:00Z40.52-106.8711.84.70010.030.209646TRUETRUEVFRMETAR2096.02019-07-18 14:22:34B¯‰B(y5    3KSBO 181415Z AUTO 25004KT 10SM CLR 31/23 A3008 RMK AO2KSBO2019-07-18T14:15:00Z32.62-82.3731.023.0250410.030.079725TRUETRUEVFRMETAR100.02019-07-18 14:22:34L¯‰A) 5    3KSAR 181415Z AUTO 18008KT 10SM CLR 25/23 A2999 RMK AO2 T02490229KSAR2019-07-18T14:15:00Z38.15-89.724.922.9180810.029.991142TRUETRUEVFRMETAR164.02019-07-18 14:22:34 ©Iw©H¯‰H(5    3KSOA 181415Z AUTO 12012KT 10SM BKN018 26/21 A3010 RMK AO2KSOA2019-07-18T14:15:00Z30.58-100.6526.021.01201210.030.100393TRUETRUEMVFRMETAR652.02019-07-18 14:22:34L¯‰G) 5    3KSLO 181415Z AUTO 20004KT 10SM CLR 27/23 A2998 RMK AO2 T02660232KSLO2019-07-18T14:15:00Z38.65-88.9726.623.2200410.029.97933TRUETRUEVFRMETAR175.02019-07-18 14:22:34L¯‰F) 5    3KSFQ 181415Z AUTO 21011KT 10SM CLR 30/24 A2996 RMK AO2 T02990243KSFQ2019-07-18T14:15:00Z36.68-76.629.924.32101110.029.958662TRUETRUEVFRMETAR22.02019-07-18 14:22:34_¯‰E)/5    3KSJS 181415Z AUTO 26004KT 10SM BKN012 BKN029 OVC047 26/24 A3005 RMK AO2 T02570236KSJS2019-07-18T14:15:00Z37.75-82.6325.723.6260410.030.050198TRUETRUEMVFRMETAR372.02019-07-18 14:22:34 ¶9d‰¶M¯‰L) 5    3K1H2 181415Z AUTO 21007KT 10SM CLR 27/21 A2999 RMK AO2 T02720206K1H22019-07-18T14:15:00Z39.07-88.5327.220.6210710.029.991142TRUETRUEVFRMETAR179.02019-07-18 14:22:34U¯‰K)5    3K2G9 181415Z AUTO 29005KT 10SM BKN015 BKN022 BKN027 23/20 A3003 RMK AO2K2G92019-07-18T14:15:00Z40.03-79.0223.020.0290510.030.029528TRUETRUEMVFRMETAR693.02019-07-18 14:22:34O¯‰J)5    3K2I0 181415Z AUTO 19004KT 10SM SCT095 26/23 A3001 RMK AO2 T02610225K2I02019-07-18T14:15:00Z37.35-87.426.122.5190410.030.008858TRUETRUEVFRMETAR134.02019-07-18 14:22:34A¯‰I(y5    3KSZT 181415Z AUTO 24008KT 10SM CLR 17/09 A2980 RMK AO2KSZT2019-07-18T14:15:00Z48.3-116.5717.09.0240810.029.799213TRUETRUEVFRMETAR648.02019-07-18 14:22:34 ¿W{¿6¯‰P(i5    3K0VG 181415Z AUTO 10SM CLR 25/23 A3010 RMK AO2K0VG2019-07-18T14:15:00Z36.65-83.2225.023.010.030.100393TRUETRUEVFRMETAR430.02019-07-18 14:22:34V¯‰O)!5    3K11R 181415Z AUTO 18009KT 10SM SCT016 SCT021 29/25 A3005 RMK AO2 T02930245K11R2019-07-18T14:15:00Z30.22-96.3729.324.5180910.030.050198TRUETRUEVFRMETAR94.02019-07-18 14:22:34@¯‰N(}5    3K18H 181415Z AUTO 00000KT 8SM FEW021 33/24 A3008 RMK A01K18H2019-07-18T14:15:00Z26.13-92.0333.024.0008.030.079725TRUETRUEVFRMETAR10.02019-07-18 14:22:34]¯‰M)/5    3K1A6 181415Z AUTO 00000KT 10SM BKN021 BKN028 BKN033 26/24 A3008 RMK AO2 T02590240K1A62019-07-18T14:15:00Z36.62-83.7325.924.00010.030.079725TRUETRUEMVFRMETAR352.02019-07-18 14:22:34 Œ%RiŒW¯‰T)!5    3KY23 181415Z AUTO 21006KT 10SM BKN029 OVC037 22/20 A2975 RMK AO2 T02220203KY232019-07-18T14:15:00Z45.3-91.6322.220.3210610.029.749016TRUETRUEMVFRMETAR322.02019-07-18 14:22:34c¯‰S)95     3K06C 181415Z AUTO 00000KT 7SM SCT028 SCT049 OVC110 23/23 A2993 RMK AO2 P0002 T02320226K06C2019-07-18T14:15:00Z41.98-88.123.222.6007.029.929134TRUETRUEVFR0.02METAR244.02019-07-18 14:22:34M¯‰R)5   3K0F2 181415Z AUTO 18010G16KT 10SM CLR 28/21 A3000 RMK AO2 T02790210K0F22019-07-18T14:15:00Z33.6-97.7827.921.0180101610.030.0TRUETRUEVFRMETAR336.02019-07-18 14:22:34U¯‰Q)!5    3K0R4 181415Z AUTO 22005KT 10SM BKN009 BKN013 28/26 A3009 RMK AO2 T02770259K0R42019-07-18T14:15:00Z31.57-91.527.725.9220510.030.088583TRUETRUEIFRMETAR17.02019-07-18 14:22:34 Ê/i›ÊK¯‰X) 5    3KW96 181415Z AUTO 20006KT 10SM CLR 29/24 A2992 RMK AO1 T02910241KW962019-07-18T14:15:00Z37.5-77.1229.124.1200610.029.920275TRUETRUEVFRMETAR37.02019-07-18 14:22:34H¯‰W(5   3KWWR 181415Z AUTO 15016G21KT 10SM CLR 28/16 A2993 RMK AO2KWWR2019-07-18T14:15:00Z36.45-99.5228.016.0150162110.029.929134TRUETRUEVFRMETAR667.02019-07-18 14:22:34@¯‰V(y5    3KXNX 181415Z AUTO VRB04KT 10SM CLR 26/22 A3008 RMK A01KXNX2019-07-18T14:15:00Z36.38-86.4226.022.00410.030.079725TRUETRUEVFRMETAR178.02019-07-18 14:22:34K¯‰U) 5    3KXSA 181415Z AUTO 23008KT 10SM CLR 30/25 A2993 RMK AO2 T03000246KXSA2019-07-18T14:15:00Z37.87-76.930.024.6230810.029.929134TRUETRUEVFRMETAR42.02019-07-18 14:22:34 Æ(YÆD¯‰\(5    3KVKS 181415Z AUTO 24007KT 10SM SCT016 29/26 A3009 RMK A01KVKS2019-07-18T14:15:00Z32.23-90.9329.026.0240710.030.088583TRUETRUEVFRMETAR32.02019-07-18 14:22:34C¯‰[(5    3KVNC 181415Z AUTO 14006KT 10SM BKN070 30/24 A3011 RMK AO2KVNC2019-07-18T14:15:00Z27.07-82.4330.024.0140610.030.109253TRUETRUEVFRMETAR6.02019-07-18 14:22:34I¯‰Z)5    3KW13 181415Z AUTO 00000KT 10SM SCT026 27/22 A3000 RMK AO1 T02740224KW132019-07-18T14:15:00Z38.08-78.9527.422.40010.030.0TRUETRUEVFRMETAR443.02019-07-18 14:22:34R¯‰Y)5    3KW75 181415Z AUTO 22009KT 180V280 10SM CLR 29/25 A2992 RMK AO1 T02940254KW752019-07-18T14:15:00Z37.6-76.4529.425.4220910.029.920275TRUETRUEVFRMETAR9.02019-07-18 14:22:34 Õ,cÕB¯‰`(y5    3KUCY 181415Z AUTO 22006KT 10SM CLR 26/25 A3001 RMK A01KUCY2019-07-18T14:15:00Z36.38-88.9826.025.0220610.030.008858TRUETRUEVFRMETAR104.02019-07-18 14:22:34@¯‰_(w5    3KUSE 181415Z AUTO 22007KT 9SM CLR 29/28 A2995 RMK AO2KUSE2019-07-18T14:15:00Z41.62-84.1329.028.022079.029.949802TRUETRUEVFRMETAR238.02019-07-18 14:22:34C¯‰^({5    3KUTA 181415Z AUTO 23005KT 10SM 28/25 A3005 RMK AO2 TSNOKUTA2019-07-18T14:15:00Z34.68-90.3528.025.0230510.030.050198TRUETRUETRUEMETAR59.02019-07-18 14:22:34N¯‰])5    3KVBW 181415Z AUTO 00000KT 10SM OVC042 27/23 A2997 RMK AO1 T02710229KVBW2019-07-18T14:15:00Z38.37-78.9727.122.90010.029.970472TRUETRUEVFRMETAR355.02019-07-18 14:22:34 ´"Vl´2¯‰d(m5     3KTMA 181415Z AUTO 00000KT 10SM CLR A3009 RMK AO2KTMA2019-07-18T14:15:00Z31.43-83.480010.030.088583TRUETRUEVFRMETAR109.02019-07-18 14:22:34d¯‰c)55   3KTNB 181415Z AUTO 30012G16KT 10SM SCT014 BKN021 OVC032 23/19 A3016 RMK AO2 T02250185KTNB2019-07-18T14:15:00Z36.2-81.6522.518.5300121610.030.159449TRUETRUEMVFRMETAR911.02019-07-18 14:22:34F¯‰b(5   3KTQH 181415Z AUTO 21008G15KT 10SM CLR 28/22 A2999 RMK AO2KTQH2019-07-18T14:15:00Z35.93-95.028.022.021081510.029.991142TRUETRUEVFRMETAR266.02019-07-18 14:22:34X¯‰a)#5    3KUBE 181415Z AUTO 19008KT 10SM OVC011 21/19 A2975 RMK AO2 LTG DSNT NE AND EKUBE2019-07-18T14:15:00Z45.5-91.9821.019.0190810.029.749016TRUETRUEMVFRMETAR379.02019-07-18 14:22:34 Ñ3w¥ÑN¯‰h) 5    3KSYF 181415Z AUTO 29003KT 10SM CLR 25/12 A2986 RMK AO2 T02520120KSYF2019-07-18T14:15:00Z39.77-101.825.212.0290310.029.861221TRUETRUEVFRMETAR1025.02019-07-18 14:22:34L¯‰g)5   3KSYI 181415Z AUTO 24005G10KT 10SM BKN014 26/24 A3008 RMK A01KSYI2019-07-18T14:15:00Z35.57-86.4526.024.024051010.030.079725TRUETRUEMVFRMETAR245.02019-07-18 14:22:346¯‰f(i5    3KTBX 181415Z AUTO 10SM CLR 20/02 A3015 RMK AO2KTBX2019-07-18T14:15:00Z43.47-108.2320.02.010.030.15059TRUETRUEVFRMETAR2225.02019-07-18 14:22:34G¯‰e(5   3KTHA 181415Z AUTO 22005G11KT 10SM CLR 24/22 A3009 RMK A01KTHA2019-07-18T14:15:00Z35.38-86.2524.022.022051110.030.088583TRUETRUEVFRMETAR331.02019-07-18 14:22:34 §*S€§S¯‰l)5   3KSNK 181415Z AUTO 19016G21KT 10SM CLR 26/20 A3001 RMK AO2 T02610202KSNK2019-07-18T14:15:00Z32.7-100.9526.120.2190162110.030.008858TRUETRUEVFRMETAR741.02019-07-18 14:22:34M¯‰k) 5    3KSRB 181415Z AUTO 24005KT 10SM SCT017 BKN050 27/23 A3009 RMK A01KSRB2019-07-18T14:15:00Z36.05-85.5327.023.0240510.030.088583TRUETRUEVFRMETAR313.02019-07-18 14:22:34Q¯‰j)5   3KSRR 181415Z AUTO 29009G14KT 270V330 10SM CLR 23/08 A3026 RMK AO2KSRR2019-07-18T14:15:00Z33.47-105.5223.08.029091410.030.259842TRUETRUEVFRMETAR2076.02019-07-18 14:22:34P¯‰i) 5    3KSVC 181415Z AUTO 30014KT 10SM CLR 24/12 A3017 RMK AO2 T02400120KSVC2019-07-18T14:15:00Z32.63-108.1524.012.03001410.030.171259TRUETRUEVFRMETAR1659.02019-07-18 14:22:34 Å*bŽÅC¯‰p(y5    3KSAA 181415Z AUTO 15010KT 10SM CLR 19/02 A3015 RMK AO2KSAA2019-07-18T14:15:00Z41.45-106.8319.02.01501010.030.15059TRUETRUEVFRMETAR2138.02019-07-18 14:22:34N¯‰o) 5    3KSCX 181415Z AUTO 24007KT 10SM SCT018 BKN022 26/22 A3009 RMK A01KSCX2019-07-18T14:15:00Z36.45-84.5826.022.0240710.030.088583TRUETRUEMVFRMETAR471.02019-07-18 14:22:34B¯‰n(y5    3KSEZ 181415Z AUTO 00000KT 10SM CLR 25/11 A3018 RMK AO2KSEZ2019-07-18T14:15:00Z34.85-111.7825.011.00010.030.180119TRUETRUEVFRMETAR1473.02019-07-18 14:22:34P¯‰m)5   3KSNH 181415Z AUTO 25008G13KT 220V280 10SM CLR 29/25 A3006 RMK A01KSNH2019-07-18T14:15:00Z35.17-88.2229.025.025081310.030.059055TRUETRUEVFRMETAR144.02019-07-18 14:22:34 Î.fŸÎK¯‰t) 5    3KN38 181415Z AUTO 02004KT 10SM FEW009 OVC017 23/22 A2998 RMK AO2KN382019-07-18T14:15:00Z41.73-77.423.022.020410.029.97933TRUETRUEMVFRMETAR577.02019-07-18 14:22:34A¯‰s(y5    3KRZR 181415Z AUTO 23008KT 10SM CLR 28/24 A3009 RMK A01KRZR2019-07-18T14:15:00Z35.22-84.828.024.0230810.030.088583TRUETRUEVFRMETAR263.02019-07-18 14:22:34B¯‰r(y5    3KS33 181415Z AUTO 06004KT 10SM CLR 17/11 A3001 RMK AO2KS332019-07-18T14:15:00Z44.67-121.1517.011.060410.030.008858TRUETRUEVFRMETAR743.02019-07-18 14:22:34L¯‰q) 5    3KS39 181415Z AUTO 33005KT 10SM SCT048 BKN055 17/11 A3002 RMK AO2KS392019-07-18T14:15:00Z44.28-120.917.011.0330510.030.02067TRUETRUEVFRMETAR991.02019-07-18 14:22:34 ¥#=n¥C¯‰x(y5    3KMPZ 181415Z AUTO 21010KT 10SM CLR 27/24 A2983 RMK AO2KMPZ2019-07-18T14:15:00Z40.95-91.5227.024.02101010.029.828741TRUETRUEVFRMETAR224.02019-07-18 14:22:34I¯‰w)5   3KMRC 181415Z AUTO VRB06G14KT 10SM FEW016 28/27 A3005 RMK A01KMRC2019-07-18T14:15:00Z35.55-87.1828.027.0061410.030.050198TRUETRUEVFRMETAR208.02019-07-18 14:22:34`¯‰v)+5       3KMRJ 181415Z AUTO 14005KT 10SM -RA SCT003 BKN014 BKN020 21/ A2987 RMK AO2 P0001KMRJ2019-07-18T14:15:00Z42.88-90.2321.0140510.029.870079TRUETRUE-RAMVFR0.01METAR359.02019-07-18 14:22:34W¯‰u)#5    3KMZH 181415Z AUTO 20004KT 10SM BKN004 BKN090 22/21 A2967 RMK AO2 LTG DSNT EKMZH2019-07-18T14:15:00Z46.42-92.822.021.0200410.029.66929TRUETRUELIFRMETAR328.02019-07-18 14:22:34 µ,UŠµO¯‰|)5    3KMNE 181415Z AUTO 22008KT 10SM BKN016 28/24 A3008 RMK AO2 T02790244KMNE2019-07-18T14:15:00Z32.65-93.327.924.4220810.030.079725TRUETRUEMVFRMETAR85.02019-07-18 14:22:34E¯‰{(5    3KMNV 181415Z AUTO 22005KT 10SM FEW014 27/24 A3009 RMK A01KMNV2019-07-18T14:15:00Z35.55-84.3827.024.0220510.030.088583TRUETRUEVFRMETAR314.02019-07-18 14:22:34Q¯‰z)5    3KMNZ 181415Z AUTO 21017KT 10SM SCT016 27/22 A3004 RMK AO2 T02650220KMNZ2019-07-18T14:15:00Z31.67-98.1526.522.02101710.030.041338TRUETRUEVFRMETAR396.02019-07-18 14:22:34N¯‰y) 5    3KMOR 181415Z AUTO 27008KT 10SM BKN014 OVC020 25/24 A3007 RMK A01KMOR2019-07-18T14:15:00Z36.18-83.3725.024.0270810.030.070866TRUETRUEMVFRMETAR400.02019-07-18 14:22:34 Õ/i®ÕS¯Š)5    3KMKN 181415Z AUTO 20013G20KT BKN003 26/21 A3003 RMK AO2 T02630212 PWINOKMKN2019-07-18T14:15:00Z31.92-98.626.321.2200132030.029528TRUETRUETRUEMETAR423.02019-07-18 14:22:345¯‰(i5    3KMKS 181415Z AUTO 10SM CLR 30/24 A3005 RMK AO2KMKS2019-07-18T14:15:00Z33.18-80.0330.024.010.030.050198TRUETRUEVFRMETAR23.02019-07-18 14:22:34@¯‰~(y5    3KMLJ 181415Z AUTO 00000KT 10SM CLR 31/23 A3008 RMK AO2KMLJ2019-07-18T14:15:00Z33.15-83.2331.023.00010.030.079725TRUETRUEVFRMETAR117.02019-07-18 14:22:34K¯‰})5    3KMMI 181415Z AUTO VRB06KT 250V320 10SM FEW018 28/23 A3010 RMK A01KMMI2019-07-18T14:15:00Z35.4-84.5728.023.00610.030.100393TRUETRUEVFRMETAR266.02019-07-18 14:22:34 À$O‡ÀA¯Š(y5    3KMEV 181415Z AUTO 00000KT 10SM CLR 15/08 A3008 RMK AO2KMEV2019-07-18T14:15:00Z38.98-119.7515.08.00010.030.079725TRUETRUEVFRMETAR1439.02019-07-18 14:22:34B¯Š(5     3KMFV 181415Z AUTO 23007G14KT 10SM CLR A2993 RMK AO2 PWINOKMFV2019-07-18T14:15:00Z37.63-75.7723071410.029.929134TRUETRUETRUEVFRMETAR15.02019-07-18 14:22:34O¯Š) 5     3KMJQ 181415Z AUTO 24005KT 7SM OVC003 24/22 A2975 RMK AO2 PWINOKMJQ2019-07-18T14:15:00Z43.63-94.9724.022.024057.029.749016TRUETRUETRUELIFRMETAR441.02019-07-18 14:22:34V¯Š)!5    3KMKJ 181415Z AUTO 25006KT 10SM BKN008 OVC021 23/22 A3015 RMK AO2 T02340223KMKJ2019-07-18T14:15:00Z36.88-81.3323.422.3250610.030.15059TRUETRUEIFRMETAR780.02019-07-18 14:22:34 ¬Ht¬B¯Š(y5    3KM75 181415Z AUTO 25005KT 10SM CLR 19/11 A2967 RMK A01KM752019-07-18T14:15:00Z48.37-107.9219.011.0250510.029.66929TRUETRUEVFRMETAR687.02019-07-18 14:22:34N¯Š) 5     3KMBO 181415Z AUTO 28005KT 10SM SCT014 28/27 A3009 RMK AO2 PWINOKMBO2019-07-18T14:15:00Z32.43-90.128.027.0280510.030.088583TRUETRUETRUEVFRMETAR99.02019-07-18 14:22:34F¯Š(5    3KMBT 181415Z AUTO 22004KT 10SM OVC015 25/22 A3006 RMK A01KMBT2019-07-18T14:15:00Z35.88-86.3825.022.0220410.030.059055TRUETRUEMVFRMETAR188.02019-07-18 14:22:34f¯Š)=5   3KMDZ 181415Z AUTO 20010G15KT 10SM SCT016 BKN100 22/19 A2979 RMK AO2 LTG DSNT N T02210192KMDZ2019-07-18T14:15:00Z45.1-90.322.119.2200101510.029.790354TRUETRUEVFRMETAR448.02019-07-18 14:22:34 Ì5m¦ÌT¯Š )5   3KLZZ 181415Z AUTO 20010G16KT 10SM SCT018 27/21 A3003 RMK AO2 T02660212KLZZ2019-07-18T14:15:00Z31.1-98.226.621.2200101610.030.029528TRUETRUEVFRMETAR371.02019-07-18 14:22:34A¯Š (y5    3KM04 181415Z AUTO 23004KT 10SM CLR 27/25 A3003 RMK A01KM042019-07-18T14:15:00Z35.58-89.5827.025.0230410.030.029528TRUETRUEVFRMETAR85.02019-07-18 14:22:34B¯Š (y5    3KM08 181415Z AUTO 24006KT 10SM CLR 30/25 A3005 RMK A01KM082019-07-18T14:15:00Z35.22-89.0530.025.0240610.030.050198TRUETRUEVFRMETAR152.02019-07-18 14:22:34E¯Š (5    3KM54 181415Z AUTO 22004KT 10SM SCT075 26/22 A3004 RMK A01KM542019-07-18T14:15:00Z36.18-86.3226.022.0220410.030.041338TRUETRUEVFRMETAR180.02019-07-18 14:22:34  Lq K¯Š) 5    3KLMO 181415Z AUTO 00000KT 10SM CLR 26/08 A3002 RMK AO2 T02570082KLMO2019-07-18T14:15:00Z40.17-105.1725.78.20010.030.02067TRUETRUEVFRMETAR1541.02019-07-18 14:22:34U¯Š)5     3KLNC 181415Z AUTO 21013KT 4SM HZ SCT018 28/23 A3003 RMK AO2 T02770228KLNC2019-07-18T14:15:00Z32.58-96.7227.722.8210134.030.029528TRUETRUEHZMVFRMETAR153.02019-07-18 14:22:34J¯Š) 5    3KLUG 181415Z AUTO VRB03KT 10SM BKN100 BKN120 27/24 A3007 RMK A01KLUG2019-07-18T14:15:00Z35.52-86.827.024.00310.030.070866TRUETRUEVFRMETAR219.02019-07-18 14:22:34^¯Š )'5   3KLXY 181415Z AUTO 19013G22KT 10SM BKN022 BKN029 27/23 A3004 RMK AO2 T02720231KLXY2019-07-18T14:15:00Z31.63-96.5227.223.1190132210.030.041338TRUETRUEMVFRMETAR166.02019-07-18 14:22:34 Ä8Z‹ÄA¯Š(y5    3KKNB 181415Z AUTO 00000KT 10SM CLR 18/02 A3020 RMK A01KKNB2019-07-18T14:15:00Z37.02-112.5318.02.00010.030.200787TRUETRUEVFRMETAR1484.02019-07-18 14:22:34I¯Š)5     3KL18 181415Z AUTO 00000KT 5SM BR OVC004 16/15 A2999 RMK AO2KL182019-07-18T14:15:00Z33.35-117.2516.015.0005.029.991142TRUETRUEBRLIFRMETAR216.02019-07-18 14:22:34X¯Š)!5    3KLHB 181415Z AUTO 19010KT 10SM BKN014 BKN022 27/25 A3005 RMK AO2 T02730249KLHB2019-07-18T14:15:00Z30.87-96.6227.324.91901010.030.050198TRUETRUEMVFRMETAR87.02019-07-18 14:22:34B¯Š(y5    3KLHM 181415Z AUTO 17006KT 10SM CLR 21/12 A2986 RMK AO1KLHM2019-07-18T14:15:00Z38.92-121.3521.012.0170610.029.861221TRUETRUEVFRMETAR37.02019-07-18 14:22:34 µ'Z‚µG¯Š(5   3KJWN 181415Z AUTO 26006G12KT 10SM CLR 27/23 A3003 RMK A01KJWN2019-07-18T14:15:00Z36.18-86.8827.023.026061210.030.029528TRUETRUEVFRMETAR151.02019-07-18 14:22:34R¯Š)5    3KJWY 181415Z AUTO 17012KT 10SM BKN018 28/23 A3003 RMK AO2 T02780226KJWY2019-07-18T14:15:00Z32.45-96.9227.822.61701210.030.029528TRUETRUEMVFRMETAR217.02019-07-18 14:22:34G¯Š)5    3KJYL 181415Z AUTO 00000KT CLR 31/23 A3008 RMK AO2 T03100233 PWINOKJYL2019-07-18T14:15:00Z32.65-81.631.023.30030.079725TRUETRUETRUEMETAR57.02019-07-18 14:22:34S¯Š)5   3KK88 181415Z AUTO 20014G23KT 10SM CLR 28/23 A2991 RMK AO1 T02810226KK882019-07-18T14:15:00Z37.87-95.3828.122.6200142310.029.911417TRUETRUEVFRMETAR309.02019-07-18 14:22:34 Í9j§ÍT¯Š)5   3KINJ 181415Z AUTO 19017G24KT 10SM SCT017 27/24 A3002 RMK AO2 T02700241KINJ2019-07-18T14:15:00Z32.08-97.127.024.1190172410.030.02067TRUETRUEVFRMETAR209.02019-07-18 14:22:34=¯Š(y5    3KIZA 181415Z AUTO 00000KT 1/2SM FG 11/11 A2998 RMK AO2KIZA2019-07-18T14:15:00Z34.6-120.0711.011.0000.529.97933TRUETRUEFGMETAR205.02019-07-18 14:22:34I¯Š)5    3KJAU 181415Z AUTO 22007KT 200V260 9SM CLR 29/21 A3010 RMK A01KJAU2019-07-18T14:15:00Z36.33-84.1729.021.022079.030.100393TRUETRUEVFRMETAR360.02019-07-18 14:22:34A¯Š(y5    3KJTC 181415Z AUTO 00000KT 10SM CLR 20/08 A3035 RMK AO2KJTC2019-07-18T14:15:00Z34.13-109.3220.08.00010.030.351377TRUETRUEVFRMETAR2150.02019-07-18 14:22:34 7`UB¯Š (y5    3KIFP 181415Z AUTO 19005KT 10SM CLR 31/07 A2986 RMK AO2KIFP2019-07-18T14:15:00Z35.15-114.5731.07.0190510.029.861221TRUETRUEVFRMETAR212.02019-07-18 14:22:34‚¯Š)_5     3KIGQ 181415Z AUTO 33010G15KT 10SM -VCTSRA SCT041 OVC048 23/23 A2994 RMK AO2 LTG DSNT ALQS P0004 T02280228KIGQ2019-07-18T14:15:00Z41.53-87.5322.822.8330101510.029.940945TRUETRUEVCTS -RAVFR0.04METAR188.02019-07-18 14:22:34Q¯Š)5    3KIMM 181415Z AUTO 05003KT 10SM FEW020 31/25 A3009 RMK AO2 LTG DSNT NE-SKIMM2019-07-18T14:15:00Z26.43-81.431.025.050310.030.088583TRUETRUEVFRMETAR12.02019-07-18 14:22:34C¯Š(}5    3KIMS 181415Z AUTO 22003KT 5SM OVC004 25/25 A3002 RMK AO1KIMS2019-07-18T14:15:00Z38.75-85.4725.025.022035.030.02067TRUETRUELIFRMETAR250.02019-07-18 14:22:34 °'K€°J¯Š$)5   3KHSD 181415Z AUTO 19019G25KT 10SM CLR 30/M28 A2994 RMK A01KHSD2019-07-18T14:15:00Z35.6-97.7230.0-28.0190192510.029.940945TRUETRUEVFRMETAR364.02019-07-18 14:22:34E¯Š#(5    3KHZD 181415Z AUTO 24007KT 10SM FEW120 28/25 A3004 RMK A01KHZD2019-07-18T14:15:00Z36.08-88.4728.025.0240710.030.041338TRUETRUEVFRMETAR151.02019-07-18 14:22:34V¯Š")!5    3KI35 181415Z AUTO 00000KT 10SM SCT007 OVC014 24/22 A3009 RMK AO2 T02370221KI352019-07-18T14:15:00Z36.87-83.3723.722.10010.030.088583TRUETRUEMVFRMETAR473.02019-07-18 14:22:34S¯Š!)5    3KIER 181415Z AUTO 20004KT 7SM BKN009 OVC018 29/26 A3008 RMK AO2 T02900258KIER2019-07-18T14:15:00Z31.73-93.129.025.820047.030.079725TRUETRUEIFRMETAR37.02019-07-18 14:22:34 -SyV¯Š()!5    3KHFY 181415Z AUTO 22004KT 10SM BKN009 BKN065 27/25 A2998 RMK AO2 T02690246KHFY2019-07-18T14:15:00Z39.63-86.0826.924.6220410.029.97933TRUETRUEIFRMETAR251.02019-07-18 14:22:34T¯Š')5    3KHPT 181415Z AUTO 23008KT 10SM SCT048 SCT065 SCT075 24/20 A2975 RMK AO2KHPT2019-07-18T14:15:00Z42.58-93.2324.020.0230810.029.749016TRUETRUEVFRMETAR358.02019-07-18 14:22:34T¯Š&)5   3KHQG 181415Z AUTO 22013G18KT 10SM CLR 27/18 A2989 RMK AO2 T02700177KHQG2019-07-18T14:15:00Z37.17-101.3727.017.7220131810.029.890747TRUETRUEVFRMETAR956.02019-07-18 14:22:34M¯Š%) 5    3KHQU 181415Z AUTO 28005KT 10SM CLR 29/23 A3007 RMK AO2 T02950233KHQU2019-07-18T14:15:00Z33.53-82.5229.523.3280510.030.070866TRUETRUEVFRMETAR152.02019-07-18 14:22:34 Ó4jœÓC¯Š,(5    3KGZS 181415Z AUTO 00000KT 10SM FEW013 27/24 A3008 RMK A01KGZS2019-07-18T14:15:00Z35.15-87.0527.024.00010.030.079725TRUETRUEVFRMETAR209.02019-07-18 14:22:34H¯Š+)5  3KH71 181415Z AUTO 21014G19KT 180V240 7SM 29/24 A2995 RMK AO2KH712019-07-18T14:15:00Z36.22-95.3329.024.021014197.029.949802TRUETRUEMETAR190.02019-07-18 14:22:34D¯Š*(5    3KHDC 181415Z AUTO 26003KT 10SM SCT018 28/24 A3009 RMK AO2KHDC2019-07-18T14:15:00Z30.52-90.4228.024.0260310.030.088583TRUETRUEVFRMETAR13.02019-07-18 14:22:34F¯Š)(5   3KHFJ 181415Z AUTO 21012G21KT 10SM CLR 27/23 A2998 RMK AO2KHFJ2019-07-18T14:15:00Z36.9-94.0227.023.0210122110.029.97933TRUETRUEVFRMETAR401.02019-07-18 14:22:34 »T‡»F¯Š0(5   3KCRX 181415Z AUTO 27005G12KT 10SM CLR 29/24 A3006 RMK AO2KCRX2019-07-18T14:15:00Z34.92-88.629.024.027051210.030.059055TRUETRUEVFRMETAR130.02019-07-18 14:22:34G¯Š/)5    3KCWV 181415Z AUTO 00000KT CLR 30/25 A3008 RMK AO2 T03020248 PWINOKCWV2019-07-18T14:15:00Z32.2-81.8730.224.80030.079725TRUETRUETRUEMETAR33.02019-07-18 14:22:34A¯Š.(y5    3KGWB 181415Z AUTO 21003KT 10SM CLR 27/23 A2995 RMK AO2KGWB2019-07-18T14:15:00Z41.3-85.0727.023.0210310.029.949802TRUETRUEVFRMETAR269.02019-07-18 14:22:34_¯Š-)15    3KGYB 181415Z AUTO 18009KT 150V210 10SM SCT013 SCT021 29/25 A3005 RMK AO2 T02910246KGYB2019-07-18T14:15:00Z30.17-96.9829.124.6180910.030.050198TRUETRUEVFRMETAR148.02019-07-18 14:22:34 ½1^½J¯Š4) 5    3KCKP 181415Z AUTO 00000KT 10SM CLR 27/25 A2971 RMK AO2 T02670250KCKP2019-07-18T14:15:00Z42.73-95.5526.725.00010.029.71063TRUETRUEVFRMETAR374.02019-07-18 14:22:34K¯Š3) 5    3KCKZ 181415Z AUTO 11003KT 8SM BKN008 OVC012 25/25 A2992 RMK AO2KCKZ2019-07-18T14:15:00Z40.38-75.2825.025.011038.029.920275TRUETRUEIFRMETAR173.02019-07-18 14:22:34M¯Š2) 5    3KCMD 181415Z AUTO 22003KT 10SM CLR 26/23 A3013 RMK AO2 T02550226KCMD2019-07-18T14:15:00Z34.27-86.8525.522.6220310.030.129921TRUETRUEVFRMETAR294.02019-07-18 14:22:34I¯Š1) 5    3KCPK 181415Z AUTO 24006KT 7SM CLR 29/24 A2996 RMK AO2 T02930242KCPK2019-07-18T14:15:00Z36.67-76.3229.324.224067.029.958662TRUETRUEVFRMETAR6.02019-07-18 14:22:34 5q¬Ø@¯Š9(y5    3KC83 181415Z AUTO 00000KT 10SM CLR 21/12 A2988 RMK AO2KC832019-07-18T14:15:00Z37.83-121.6221.012.00010.029.878937TRUETRUEVFRMETAR24.02019-07-18 14:22:34N¯Š8)5     3KCBK 181415Z AUTO 25003KT 10SM CLR 23/16 A2986 RMK AO2 PWINOKCBK2019-07-18T14:15:00Z39.43-101.0523.016.0250310.029.861221TRUETRUETRUEVFRMETAR971.02019-07-18 14:22:34?¯Š7(w5    3KCCB 181415Z AUTO 00000KT 8SM CLR 18/15 A2999 RMK AO2KCCB2019-07-18T14:15:00Z34.12-117.6818.015.0008.029.991142TRUETRUEVFRMETAR440.02019-07-18 14:22:34>¯Š6(w5    3KCDH 181415Z AUTO 02007KT 9SM CLR 29/24 A3004 RMK AO2KCDH2019-07-18T14:15:00Z33.62-92.7729.024.02079.030.041338TRUETRUEVFRMETAR35.02019-07-18 14:22:34E¯Š5(5    3KCEY 181415Z AUTO 22008KT 10SM BKN110 24/24 A3001 RMK AO1KCEY2019-07-18T14:15:00Z36.67-88.3724.024.0220810.030.008858TRUETRUEVFRMETAR176.02019-07-18 14:22:34 ¾9l™¾U¯Š=)5    3KBKT 181415Z AUTO 22008KT 200V260 10SM CLR 29/23 A2996 RMK AO1 T02900234KBKT2019-07-18T14:15:00Z37.07-77.9529.023.4220810.029.958662TRUETRUEVFRMETAR134.02019-07-18 14:22:34M¯Š<) 5    3KFPK 181415Z AUTO 20005KT 10SM CLR 26/23 A2992 RMK AO2 T02580225KFPK2019-07-18T14:15:00Z42.57-84.8225.822.5200510.029.920275TRUETRUEVFRSPECI272.02019-07-18 14:22:34G¯Š;)5    3KFMH 181415Z 00000KT 8SM SCT010 BKN013 OVC020 24/22 A2994 RMK AO2KFMH2019-07-18T14:15:00Z41.63-70.5224.022.0008.029.940945TRUEMVFRMETAR40.02019-07-18 14:22:34A¯Š:)5    3KBMT 181415Z AUTO 21008KT 10SM BKN019 30/25 RMK AO2 T03010246KBMT2019-07-18T14:15:00Z30.07-94.2230.124.6210810.0TRUETRUEMVFRMETAR10.02019-07-18 14:22:34 ¥'V¥T¯ŠA)!5    3KW99 181415Z AUTO 00000KT 10SM SCT042 BKN048 28/22 A2996 RMK AO2 T02750215KW992019-07-18T14:15:00Z39.0-79.1527.521.50010.029.958662TRUETRUEVFRMETAR293.02019-07-18 14:22:34Q¯Š@)5   3KXBP 181415Z AUTO 20009G14KT 10SM CLR 28/20 A3002 RMK AO2 T02810197KXBP2019-07-18T14:15:00Z33.18-97.8328.119.720091410.030.02067TRUETRUEVFRMETAR260.02019-07-18 14:22:34K¯Š?) 5    3KXLL 181415Z AUTO 00000KT 10SM BKN008 OVC011 25/24 A2992 RMK AO2KXLL2019-07-18T14:15:00Z40.57-75.4825.024.00010.029.920275TRUETRUEIFRMETAR122.02019-07-18 14:22:34S¯Š>)5     3PAAD 181415Z AUTO 06007KT 10SM -RA OVC007 06/05 A2984 RMK AO2 T00600053PAAD2019-07-18T14:15:00Z70.13-146.286.05.360710.029.840551TRUETRUE-RAIFRMETAR8.02019-07-18 14:22:34 ³&b€³G¯ŠE(5   3KULS 181415Z AUTO 21015G18KT 10SM CLR 27/17 A2985 RMK AO2KULS2019-07-18T14:15:00Z37.6-101.3727.017.0210151810.029.84941TRUETRUEVFRMETAR936.02019-07-18 14:22:34\¯ŠD)/5    3KUXL 181415Z AUTO 19006KT 10SM SCT016 SCT021 SCT030 30/25 A3007 RMK AO2 T03000250KUXL2019-07-18T14:15:00Z30.13-93.3830.025.0190610.030.070866TRUETRUEVFRMETAR4.02019-07-18 14:22:34>¯ŠC(y5    3KVDI 181415Z AUTO 00000KT 10SM CLR 31/21 A3009 RMK AO2KVDI2019-07-18T14:15:00Z32.2-82.3731.021.00010.030.088583TRUETRUEVFRMETAR84.02019-07-18 14:22:34T¯ŠB)5    3KW22 181415Z AUTO 28004KT 10SM FEW012 SCT020 BKN025 25/23 A3004 RMK AO2KW222019-07-18T14:15:00Z39.0-80.2725.023.0280410.030.041338TRUETRUEMVFRMETAR499.02019-07-18 14:22:34 Ë:qœËK¯ŠI) 5    3KBRG 181415Z AUTO 00000KT 10SM CLR 27/05 A3015 RMK AO2 T02720052KBRG2019-07-18T14:15:00Z34.65-106.8327.25.20010.030.15059TRUETRUEVFRMETAR1585.02019-07-18 14:22:34O¯ŠH) 5    3KTIF 181415Z AUTO 27010KT 10SM CLR 27/22 A2978 RMK AO2 T02670216KTIF2019-07-18T14:15:00Z41.97-100.5726.721.62701010.029.778543TRUETRUEVFRMETAR892.02019-07-18 14:22:34C¯ŠG(5    3KTMK 181415Z AUTO 00000KT 10SM SCT024 14/13 A3009 RMK AO2KTMK2019-07-18T14:15:00Z45.42-123.8214.013.00010.030.088583TRUETRUEVFRMETAR11.02019-07-18 14:22:34@¯ŠF(y5    3KTVI 181415Z AUTO 24003KT 10SM CLR 28/25 A3011 RMK AO2KTVI2019-07-18T14:15:00Z30.9-83.8828.025.0240310.030.109253TRUETRUEVFRMETAR80.02019-07-18 14:22:34 žHpžL¯ŠM) 5    3KC65 181415Z AUTO 20006KT 10SM FEW048 FEW055 28/23 A2992 RMK A01KC652019-07-18T14:15:00Z41.37-86.328.023.0200610.029.920275TRUETRUEVFRMETAR244.02019-07-18 14:22:34R¯ŠL)5   3KCHK 181415Z AUTO 19013G23KT 10SM CLR 29/21 A2993 RMK AO2 T02880213KCHK2019-07-18T14:15:00Z35.1-97.9728.821.3190132310.029.929134TRUETRUEVFRMETAR351.02019-07-18 14:22:34A¯ŠK(}5    3KBVS 181415Z AUTO 00000KT 9SM FEW070 13/12 A3001 RMK A01KBVS2019-07-18T14:15:00Z48.47-122.4213.012.0009.030.008858TRUETRUEVFRMETAR43.02019-07-18 14:22:34k¯ŠJ)?5      3KBUU 181415Z AUTO 12006KT 3SM RA SCT016 BKN028 OVC038 20/20 A2990 RMK AO2 P0003 T02030203KBUU2019-07-18T14:15:00Z42.68-88.320.320.312063.029.899607TRUETRUERAMVFR0.03METAR237.02019-07-18 14:22:34 Å7jŽÅC¯ŠQ(5    3KBGF 181415Z AUTO 00000KT 10SM SCT023 25/22 A3010 RMK A01KBGF2019-07-18T14:15:00Z35.18-86.0725.022.00010.030.100393TRUETRUEVFRMETAR299.02019-07-18 14:22:34V¯ŠP)!5    3KBKS 181415Z AUTO 16011KT 10SM SCT020 SCT090 30/24 A2999 RMK AO1 T03020239KBKS2019-07-18T14:15:00Z27.2-98.1230.223.91601110.029.991142TRUETRUEVFRMETAR34.02019-07-18 14:22:34G¯ŠO(}5   3KBPC 181415Z AUTO 22016G23KT 7SM CLR 29/16 A2992 RMK AO2KBPC2019-07-18T14:15:00Z35.88-101.0329.016.022016237.029.920275TRUETRUEVFRMETAR845.02019-07-18 14:22:34C¯ŠN) 5    3CWPF 181415Z AUTO 28007KT 14/10 RMK AO1 SLP154 T01440099 53012CWPF2019-07-18T14:15:00Z48.43-123.4314.49.928071015.4TRUETRUE1.2METAR12.02019-07-18 14:22:34 ‹?U‹D¯ŠU(5    3KFRH 181415Z AUTO 22003KT 10SM SCT012 25/21 A3001 RMK AO1KFRH2019-07-18T14:15:00Z38.5-86.6325.021.0220310.030.008858TRUETRUEVFRSPECI241.02019-07-18 14:22:34d¯ŠT)55     3KBCK 181415Z AUTO 19003KT 7SM -RA SCT013 SCT019 BKN027 22/21 A2977 RMK AO2 T02200207KBCK2019-07-18T14:15:00Z44.25-90.8522.020.719037.029.769686TRUETRUE-RAMVFRMETAR255.02019-07-18 14:22:34R¯ŠS)5   3KBEC 181415Z AUTO 19020G23KT 10SM CLR 28/21 A2987 RMK AO2 T02790211KBEC2019-07-18T14:15:00Z37.7-97.2227.921.1190202310.029.870079TRUETRUEVFRMETAR429.02019-07-18 14:22:34c¯ŠR);5     3KBFW 181415Z AUTO 00000KT 2SM BR OVC002 18/17 A2968 RMK AO2 VIS 1 1/2V2 1/2 LTG DSNT SEKBFW2019-07-18T14:15:00Z47.25-91.418.017.0002.029.681103TRUETRUEBRLIFRMETAR331.02019-07-18 14:22:34 Á(R‹ÁD¯ŠY) 5    3KFSO 181415Z AUTO 00000KT 10SM CLR 24/16 A3000 RMK AO2 T02440162KFSO2019-07-18T14:15:00Z44.93-73.124.416.20010.030.0TRUETRUEVFRSPECI70.02019-07-18 14:22:34A¯ŠX(y5    3KFSW 181415Z AUTO 22007KT 10SM CLR 27/24 A2985 RMK AO2KFSW2019-07-18T14:15:00Z40.67-91.3227.024.0220710.029.84941TRUETRUEVFRSPECI221.02019-07-18 14:22:34P¯ŠW)5    3KGEV 181415Z AUTO 29006KT 10SM OVC016 22/19 A3015 RMK AO2 T02230190KGEV2019-07-18T14:15:00Z36.43-81.4222.319.0290610.030.15059TRUETRUEMVFRSPECI969.02019-07-18 14:22:34R¯ŠV)5   3KSEP 181415Z AUTO 19009G14KT 10SM CLR 26/21 A3006 RMK AO2 T02570205KSEP2019-07-18T14:15:00Z32.22-98.1725.720.519091410.030.059055TRUETRUEVFRMETAR402.02019-07-18 14:22:34 È._•ÈG¯Š](5   3KIKV 181415Z AUTO 24007G16KT 10SM CLR 29/23 A2975 RMK AO2KIKV2019-07-18T14:15:00Z41.68-93.5729.023.024071610.029.749016TRUETRUEVFRSPECI275.02019-07-18 14:22:34D¯Š\(y5    3KHEQ 181415Z AUTO 30004KT 10SM CLR 29/13 A2987 RMK AO2KHEQ2019-07-18T14:15:00Z40.57-102.2829.013.0300410.029.870079TRUETRUEVFRSPECI1137.02019-07-18 14:22:34I¯Š[)5     3KHAF 181415Z AUTO 14009KT 1SM BR OVC003 13/13 A2996 RMK AO2KHAF2019-07-18T14:15:00Z37.52-122.513.013.014091.029.958662TRUETRUEBRLIFRSPECI21.02019-07-18 14:22:34L¯ŠZ) 5    3KGNT 181415Z AUTO 34005KT 10SM CLR 22/08 A3029 RMK AO2 T02180080KGNT2019-07-18T14:15:00Z35.17-107.921.88.0340510.030.28937TRUETRUEVFRMETAR1987.02019-07-18 14:22:34 ¹)V‘¹R¯Ša)5     3KSUW 181415Z AUTO 19006KT 4SM BR OVC002 17/17 A2969 RMK AO2 T01720172KSUW2019-07-18T14:15:00Z46.68-92.117.217.219064.029.68996TRUETRUEBRLIFRMETAR206.02019-07-18 14:22:34?¯Š`(y5    3K2C8 181415Z AUTO 00000KT 10SM CLR 22/17 A2956 RMK AO2K2C82019-07-18T14:15:00Z48.78-97.6322.017.00010.029.56004TRUETRUEVFRMETAR272.02019-07-18 14:22:34M¯Š_) 5    3KAID 181415Z AUTO 20005KT 10SM CLR 28/24 A2997 RMK AO2 T02820237KAID2019-07-18T14:15:00Z40.12-85.6228.223.7200510.029.970472TRUETRUEVFRMETAR280.02019-07-18 14:22:34Q¯Š^)5    3KIIB 181415Z AUTO 11007KT 10SM OVC020 24/23 A2980 RMK AO2 T02400227KIIB2019-07-18T14:15:00Z42.45-91.9524.022.7110710.029.799213TRUETRUEMVFRSPECI298.02019-07-18 14:22:34 ¼.[¼M¯Še)5     3KHNR 181415Z AUTO 23007KT 10SM CLR 26/24 A2975 RMK AO2 PWINOKHNR2019-07-18T14:15:00Z41.58-95.3326.024.0230710.029.749016TRUETRUETRUEVFRSPECI375.02019-07-18 14:22:34F¯Šd)5    3KHYI 181415Z 17015KT 10SM BKN015 BKN019 28/24 A3005 RMK AO2KHYI2019-07-18T14:15:00Z29.88-97.8728.024.01701510.030.050198TRUEMVFRSPECI182.02019-07-18 14:22:34M¯Šc) 5    3KVTI 181415Z AUTO 15006KT 10SM CLR 27/24 A2979 RMK AO2 T02720235KVTI2019-07-18T14:15:00Z42.22-92.0227.223.5150610.029.790354TRUETRUEVFRMETAR255.02019-07-18 14:22:34L¯Šb) 5    3KDYA 181415Z AUTO 26004KT 10SM CLR 29/24 A3008 RMK AO2 T02850240KDYA2019-07-18T14:15:00Z32.47-87.9528.524.0260410.030.079725TRUETRUEVFRSPECI34.02019-07-18 14:22:34 8v¨áD¯Šj(y5    3KHZE 181415Z AUTO 26011KT 10SM CLR 22/17 A2968 RMK AO2KHZE2019-07-18T14:15:00Z47.28-101.5822.017.02601110.029.681103TRUETRUEVFRSPECI553.02019-07-18 14:22:34A¯Ši(y5    3KI67 181415Z AUTO 14004KT 10SM CLR 27/22 A2998 RMK AO1KI672019-07-18T14:15:00Z39.25-84.7827.022.0140410.029.97933TRUETRUEVFRSPECI178.02019-07-18 14:22:34H¯Šh(5   3KICL 181415Z AUTO 21012G17KT 10SM CLR 29/24 A2980 RMK AO2KICL2019-07-18T14:15:00Z40.72-95.0229.024.0210121710.029.799213TRUETRUEVFRSPECI303.02019-07-18 14:22:34<¯Šg(q5   3KGWR 181415Z AUTO 22010KT 10SM 23/20 A2966 RMK A01KGWR2019-07-18T14:15:00Z46.22-97.6523.020.02201010.029.660433TRUETRUESPECI386.02019-07-18 14:22:34B¯Šf(y5    3KGZL 181415Z AUTO 22014KT 10SM CLR 30/22 A2999 RMK AO2KGZL2019-07-18T14:15:00Z35.28-95.130.022.02201410.029.991142TRUETRUEVFRSPECI183.02019-07-18 14:22:34 Ð*_—ЁA¯Šn(y5    3KS32 181415Z AUTO 25008KT 10SM CLR 20/19 A2965 RMK AO2KS322019-07-18T14:15:00Z47.42-98.120.019.0250810.029.648623TRUETRUEVFRMETAR684.02019-07-18 14:22:34B¯Šm(}5    3K27K 181415Z AUTO 26005KT 5SM OVC006 24/23 A3002 RMK AO1K27K2019-07-18T14:15:00Z38.23-84.4324.023.026055.030.02067TRUETRUEIFRSPECI289.02019-07-18 14:22:34E¯Šl) 5   3KMZG 181415Z AUTO 23008G14KT FEW023 FEW030 30/25 A3003 RMK A01KMZG2019-07-18T14:15:00Z27.73-96.1830.025.023081430.029528TRUETRUEMETAR29.02019-07-18 14:22:34P¯Šk)5    3KTXW 181415Z AUTO 17013KT 10SM BKN110 29/23 A2997 RMK AO2 T02930234KTXW2019-07-18T14:15:00Z26.18-97.9729.323.41701310.029.970472TRUETRUEVFRMETAR21.02019-07-18 14:22:34 Ë-fžËM¯Šr) 5    3KC62 181415Z AUTO 17007KT 10SM CLR 27/23 A2995 RMK AO2 T02740230KC622019-07-18T14:15:00Z41.47-85.2527.423.0170710.029.949802TRUETRUEVFRMETAR306.02019-07-18 14:22:34B¯Šq(}5     3KINF 181415Z AUTO 00000KT 5SM BR CLR 28/26 A3012 RMK AO2KINF2019-07-18T14:15:00Z28.8-82.3228.026.0005.030.121063TRUETRUEBRMVFRSPECI15.02019-07-18 14:22:34A¯Šp(y5    3KIXA 181415Z AUTO 25007KT 10SM CLR 27/26 A2997 RMK AO2KIXA2019-07-18T14:15:00Z36.33-77.6327.026.0250710.029.970472TRUETRUEVFRSPECI44.02019-07-18 14:22:34M¯Šo)5    3KLDJ 181415Z AUTO 00000KT 10SM OVC012 25/23 A2991 RMK AO2 T02500230KLDJ2019-07-18T14:15:00Z40.62-74.2525.023.00010.029.911417TRUETRUEMVFRMETAR7.02019-07-18 14:22:34 µ%QƒµH¯Šv(5   3KLBO 181415Z AUTO 22012G20KT 10SM CLR 28/23 A2999 RMK AO2KLBO2019-07-18T14:15:00Z37.65-92.6528.023.0220122010.029.991142TRUETRUEVFRSPECI403.02019-07-18 14:22:34H¯Šu(5   3KCLK 181415Z AUTO 19015G22KT 10SM CLR 27/18 A2994 RMK AO2KCLK2019-07-18T14:15:00Z35.53-98.9327.018.0190152210.029.940945TRUETRUEVFRSPECI492.02019-07-18 14:22:34N¯Št)5    3KDCM 181415Z AUTO 21003KT 10SM CLR 28/21 A3004 RMK AO2 LTG DSNT SEKDCM2019-07-18T14:15:00Z34.78-81.228.021.0210310.030.041338TRUETRUEVFRSPECI200.02019-07-18 14:22:34U¯Šs)5    3K2G4 181415Z AUTO 27005KT 10SM SCT006 BKN012 OVC022 20/20 A3007 RMK AO1K2G42019-07-18T14:15:00Z39.58-79.3320.020.0270510.030.070866TRUETRUEMVFRSPECI894.02019-07-18 14:22:34 Â8p†Â>¯Šz(y5    3KVDF 181415Z AUTO 00000KT 10SM CLR 28/23 A3011 RMK AO2KVDF2019-07-18T14:15:00Z28.02-82.3328.023.00010.030.109253TRUETRUEVFRMETAR7.02019-07-18 14:22:34d¯Šy)55   3KY51 181415Z AUTO 16010G14KT 10SM SCT008 BKN013 OVC070 20/20 A2980 RMK AO1 T02020202KY512019-07-18T14:15:00Z43.58-90.920.220.2160101410.029.799213TRUETRUEMVFRSPECI394.02019-07-18 14:22:34B¯Šx(y5    3KVNW 181415Z AUTO 21007KT 10SM CLR 28/23 A2997 RMK AO2KVNW2019-07-18T14:15:00Z40.87-84.6228.023.0210710.029.970472TRUETRUEVFRSPECI239.02019-07-18 14:22:34B¯Šw(y5    3KSPA 181415Z AUTO 27003KT 10SM CLR 26/21 A3005 RMK AO2KSPA2019-07-18T14:15:00Z34.92-81.9326.021.0270310.030.050198TRUETRUEVFRSPECI303.02019-07-18 14:22:34 Ç6n“ǁF¯Š~(}5   3KLRY 181415Z AUTO 22012G18KT 7SM CLR 29/22 A2991 RMK AO2KLRY2019-07-18T14:15:00Z38.62-94.3529.022.022012187.029.911417TRUETRUEVFRMETAR279.02019-07-18 14:22:34U¯Š})!5   3KMCJ 181415Z AUTO VRB06G12KT 150V210 9SM BKN019 BKN025 30/24 A3004 RMK A01KMCJ2019-07-18T14:15:00Z29.72-95.430.024.006129.030.041338TRUETRUEMVFRSPECI69.02019-07-18 14:22:34B¯Š|(y5    3KRID 181415Z AUTO 25005KT 10SM CLR 26/26 A3001 RMK AO2KRID2019-07-18T14:15:00Z39.75-84.8526.026.0250510.030.008858TRUETRUEVFRSPECI348.02019-07-18 14:22:34D¯Š{(y5    3KSPF 181415Z AUTO 28003KT 10SM CLR 22/17 A2984 RMK AO2KSPF2019-07-18T14:15:00Z44.47-103.7722.017.0280310.029.840551TRUETRUEVFRSPECI1188.02019-07-18 14:22:34 È7pšÈL¯‹) 5    3KLQK 181415Z AUTO 29005KT 10SM CLR 28/24 A3006 RMK AO2 T02760244KLQK2019-07-18T14:15:00Z34.82-82.727.624.4290510.030.059055TRUETRUEVFRSPECI309.02019-07-18 14:22:34P¯‹)5    3KANK 181415Z AUTO 34005KT 10SM CLR 17/M01 A3037 RMK AO1 T01661006KANK2019-07-18T14:15:00Z38.53-106.0516.6-0.6340510.030.369095TRUETRUEVFRSPECI2293.02019-07-18 14:22:34A¯‹(y5    3K96D 181415Z AUTO 26003KT 10SM CLR 23/18 A2957 RMK AO2K96D2019-07-18T14:15:00Z48.93-97.923.018.0260310.029.568897TRUETRUEVFRSPECI290.02019-07-18 14:22:34C¯Š(y5    3KEOE 181415Z AUTO 27010KT 10SM CLR 30/25 A3007 RMK AO2KEOE2019-07-18T14:15:00Z34.32-81.6330.025.02701010.030.070866TRUETRUEVFRMETAR174.02019-07-18 14:22:34 ³.Pˆ³O¯‹) 5    3KJHN 181415Z AUTO 21008KT 10SM CLR 27/18 A2988 RMK AO2 T02700177KJHN2019-07-18T14:15:00Z37.58-101.7327.017.7210810.029.878937TRUETRUEVFRSPECI1013.02019-07-18 14:22:34B¯‹(y5    3KJKJ 181415Z AUTO 19004KT 10SM CLR 22/17 A2966 RMK AO2KJKJ2019-07-18T14:15:00Z46.83-96.6722.017.0190410.029.660433TRUETRUEVFRSPECI280.02019-07-18 14:22:34X¯‹)!5    3KJSO 181415Z AUTO 22004KT 10SM BKN011 BKN017 26/23 A3009 RMK AO2 T02680241KJSO2019-07-18T14:15:00Z31.87-95.2226.823.0220410.030.088583TRUETRUEMVFRMETAR206.02019-07-18 14:22:34L¯‹)5    3KJVW 181415Z AUTO 26007KT 230V290 10SM FEW011 28/27 A3009 RMK AO2KJVW2019-07-18T14:15:00Z32.3-90.4228.027.0260710.030.088583TRUETRUEVFRSPECI76.02019-07-18 14:22:34 ›E3a›@¯‹ (y5    3KMAO 181415Z AUTO 23005KT 10SM CLR 28/23 A3002 RMK AO2KMAO2019-07-18T14:15:00Z34.18-79.3328.023.0230510.030.02067TRUETRUEVFRSPECI28.02019-07-18 14:22:34L¯‹ ) 5    3KIRS 181415Z AUTO 21005KT 10SM CLR 27/25 A2993 RMK AO2 T02720246KIRS2019-07-18T14:15:00Z41.8-85.4327.224.6210510.029.929134TRUETRUEVFRSPECI282.02019-07-18 14:22:34‚ ¯‹)q5      3KIWD 181415Z AUTO 23008KT 10SM VCTS -RA FEW017 BKN043 OVC060 22/20 A2975 RMK AO2 LTG DSNT ALQDS TSB09 PRESRR P0000KIWD2019-07-18T14:15:00Z46.52-90.1222.020.0230810.029.749016TRUETRUEVCTS -RAVFR0.005SPECI375.02019-07-18 14:22:345¯‹(i5    3KJFX 181415Z AUTO 10SM CLR 30/25 A3009 RMK AO2KJFX2019-07-18T14:15:00Z33.9-87.3230.025.010.030.088583TRUETRUEVFRSPECI148.02019-07-18 14:22:34 œ BlœJ¯‹)5   3KSUZ 181415Z AUTO 25009G15KT 9SM BKN012 28/25 A3003 RMK A01KSUZ2019-07-18T14:15:00Z34.58-92.4828.025.02509159.030.029528TRUETRUEMVFRMETAR119.02019-07-18 14:22:34P¯‹ ) 5    3KMHL 181415Z AUTO 29010G16KT 10SM CLR 28/23 A2989 RMK AO2 TSNOKMHL2019-07-18T14:15:00Z39.1-93.228.023.0290101610.029.890747TRUETRUETRUEVFRSPECI237.02019-07-18 14:22:34C¯‹ (y5    3K2V5 181415Z AUTO 29006KT 10SM CLR 25/12 A2988 RMK AO2K2V52019-07-18T14:15:00Z40.1-102.2525.012.0290610.029.878937TRUETRUEVFRSPECI1118.02019-07-18 14:22:34o¯‹ )75      3KUNU 181415Z AUTO 16017G26KT 10SM -RA OVC100 21/20 A2979 RMK AO2 P0001 T02070202 TSNOKUNU2019-07-18T14:15:00Z43.42-88.720.720.2160172610.029.790354TRUETRUETRUE-RAVFR0.01METAR285.02019-07-18 14:22:34 ×7xŸ×B¯‹(y5    3KPLD 181415Z AUTO 20005KT 10SM CLR 28/21 A2996 RMK AO2KPLD2019-07-18T14:15:00Z40.45-84.9828.021.0200510.029.958662TRUETRUEVFRSPECI282.02019-07-18 14:22:34S¯‹)5   3KPTS 181415Z AUTO 21016G24KT 10SM CLR 28/24 A2992 RMK AO2 T02790236KPTS2019-07-18T14:15:00Z37.45-94.7327.923.6210162410.029.920275TRUETRUEVFRMETAR290.02019-07-18 14:22:349¯‹(5    3KSIF 181415Z AUTO CLR 30/22 A3000 RMK AO2 T02950215 PWINOKSIF2019-07-18T14:15:00Z36.43-79.8529.521.530.0TRUETRUETRUEMETAR211.02019-07-18 14:22:34C¯‹)5     3KSIK 181415Z AUTO 18003KT 10SM -DZ CLR 25/23 A3000 RMK AO2KSIK2019-07-18T14:15:00Z36.9-89.5725.023.0180310.030.0TRUETRUE-DZVFRMETAR96.02019-07-18 14:22:34 Ø9fŸØA¯‹(y5    3KGGE 181415Z AUTO 26008KT 10SM CLR 30/22 A3005 RMK AO2KGGE2019-07-18T14:15:00Z33.32-79.3230.022.0260810.030.050198TRUETRUEVFRMETAR12.02019-07-18 14:22:34A¯‹(y5    3KJNX 181415Z AUTO 24007KT 10SM CLR 30/25 A2999 RMK AO2KJNX2019-07-18T14:15:00Z35.53-78.3830.025.0240710.029.991142TRUETRUEVFRMETAR50.02019-07-18 14:22:34M¯‹) 5    3KMCX 181415Z AUTO 21006KT 10SM CLR 28/22 A2993 RMK AO2 T02820224KMCX2019-07-18T14:15:00Z40.72-86.7728.222.4210610.029.929134TRUETRUEVFRSPECI206.02019-07-18 14:22:34A¯‹(y5    3KO22 181415Z AUTO 00000KT 10SM CLR 19/14 A2997 RMK A01KO222019-07-18T14:15:00Z38.03-120.4219.014.00010.029.970472TRUETRUEVFRSPECI646.02019-07-18 14:22:34 ¶-O¶Q¯‹)5    3K1S5 181415Z AUTO 25008KT 10SM SCT050 18/11 A2990 RMK AO2 T01810112K1S52019-07-18T14:15:00Z46.33-119.9718.111.2250810.029.899607TRUETRUEVFRSPECI234.02019-07-18 14:22:34<¯‹(w5    3KJZI 181415Z AUTO 23007KT 9SM CLR 31/25 A3006 RMK AO2KJZI2019-07-18T14:15:00Z32.7-80.031.025.023079.030.059055TRUETRUEVFRSPECI6.02019-07-18 14:22:34X¯‹)!5    3KRPD 181415Z AUTO 19006KT 10SM BKN025 OVC050 22/21 A2976 RMK AO2 T02230212KRPD2019-07-18T14:15:00Z45.42-91.7722.321.2190610.029.760826TRUETRUEMVFRSPECI338.02019-07-18 14:22:34M¯‹) 5    3KEZS 181415Z AUTO 18005KT 10SM CLR 24/22 A2976 RMK AO2 T02360221KEZS2019-07-18T14:15:00Z44.78-88.5723.622.1180510.029.760826TRUETRUEVFRSPECI248.02019-07-18 14:22:34 8p©àA¯‹(y5    3KBNL 181415Z AUTO 24006KT 10SM CLR 31/22 A3006 RMK AO2KBNL2019-07-18T14:15:00Z33.25-81.3831.022.0240610.030.059055TRUETRUEVFRMETAR75.02019-07-18 14:22:34C¯‹(5    3KBRY 181415Z AUTO 00000KT 10SM BKN015 25/22 A3001 RMK AO1KBRY2019-07-18T14:15:00Z37.82-85.525.022.00010.030.008858TRUETRUEMVFRMETAR204.02019-07-18 14:22:34A¯‹(y5    3KDYB 181415Z AUTO 25004KT 10SM CLR 29/22 A3007 RMK AO1KDYB2019-07-18T14:15:00Z33.07-80.2829.022.0250410.030.070866TRUETRUEVFRMETAR18.02019-07-18 14:22:34B¯‹(y5    3KAIK 181415Z AUTO 24009KT 10SM CLR 28/22 A3008 RMK AO2KAIK2019-07-18T14:15:00Z33.65-81.6828.022.0240910.030.079725TRUETRUEVFRMETAR161.02019-07-18 14:22:34B¯‹(y5    3KANQ 181415Z AUTO 20006KT 10SM CLR 27/23 A2994 RMK AO2KANQ2019-07-18T14:15:00Z41.63-85.0827.023.0200610.029.940945TRUETRUEVFRSPECI303.02019-07-18 14:22:34 Æ8pŒÆ@¯‹#(y5    3K2J9 181415Z AUTO 29004KT 10SM CLR 29/24 A3011 RMK AO2K2J92019-07-18T14:15:00Z30.6-84.5529.024.0290410.030.109253TRUETRUEVFRMETAR69.02019-07-18 14:22:34^¯‹"))5     3K3D2 181415Z AUTO 22004KT 10SM -RA SCT070 OVC095 21/20 A2977 RMK AO2 T02130203K3D22019-07-18T14:15:00Z45.13-87.1821.320.3220410.029.769686TRUETRUE-RAVFRSPECI234.02019-07-18 14:22:34B¯‹!(y5    3KKY8 181415Z AUTO 24005KT 10SM CLR 27/27 A3001 RMK A01KKY82019-07-18T14:15:00Z37.95-86.8727.027.0240510.030.008858TRUETRUEVFRSPECI126.02019-07-18 14:22:34B¯‹ (5    3KBDN 181415Z AUTO 00000KT 10SM FEW038 14/11 A3002 RMK AO2KBDN2019-07-18T14:15:00Z44.1-121.214.011.00010.030.02067TRUETRUEVFRSPECI1055.02019-07-18 14:22:34 £7e¬£‚¯‹')g5     3KD25 181415Z AUTO 21004KT 10SM -VCTSRA BKN014 BKN030 OVC055 21/21 A2974 RMK AO2 LTG DSNT SW THRU NE T02100210KD252019-07-18T14:15:00Z46.12-89.8821.021.0210410.029.740158TRUETRUEVCTS -RAMVFRSPECI491.02019-07-18 14:22:343¯‹&(m5     3KD55 181415Z AUTO 25006KT 10SM CLR A2961 RMK AO2KD552019-07-18T14:15:00Z48.75-98.4250610.029.610237TRUETRUEVFRSPECI491.02019-07-18 14:22:34L¯‹%) 5    3KEHO 181415Z AUTO 27004KT 10SM CLR 28/22 A3004 RMK AO2 T02810224KEHO2019-07-18T14:15:00Z35.25-81.628.122.4270410.030.041338TRUETRUEVFRMETAR258.02019-07-18 14:22:34C¯‹$(y5    3KEOK 181415Z AUTO 22014KT 10SM CLR 27/24 A2983 RMK AO2KEOK2019-07-18T14:15:00Z40.47-91.4227.024.02201410.029.828741TRUETRUEVFRSPECI205.02019-07-18 14:22:34 ›0Zk›J¯‹+)5     3KI43 181415Z AUTO 24005KT 5SM BR OVC003 24/22 A3001 RMK AO2KI432019-07-18T14:15:00Z38.98-82.5824.022.024055.030.008858TRUETRUEBRLIFRSPECI221.02019-07-18 14:22:34i¯‹*)G5    3KLUM 181415Z AUTO 20007KT 10SM SCT038 SCT045 OVC050 21/18 A2974 RMK AO2 LTG DSNT NE T02120184KLUM2019-07-18T14:15:00Z44.9-91.8721.218.4200710.029.740158TRUETRUEVFRSPECI273.02019-07-18 14:22:34P¯‹))5    3KGGI 181415Z AUTO 23007KT 10SM SCT100 27/23 A2980 RMK AO2 T02700230KGGI2019-07-18T14:15:00Z41.72-92.7327.023.0230710.029.799213TRUETRUEVFRSPECI307.02019-07-18 14:22:34J¯‹((5   3KALM 181415Z AUTO 17012G18KT 10SM CLR 25/15 A3009 RMK AO2KALM2019-07-18T14:15:00Z32.82-105.9725.015.0170121810.030.088583TRUETRUEVFRSPECI1279.02019-07-18 14:22:34 º/_ŒºL¯‹/) 5    3KSUT 181415Z AUTO 23010KT 10SM CLR 31/24 A3003 RMK AO2 T03060242KSUT2019-07-18T14:15:00Z33.93-78.0830.624.22301010.030.029528TRUETRUEVFRMETAR8.02019-07-18 14:22:34M¯‹.) 5    3KOIN 181415Z AUTO 21004KT 10SM CLR 25/19 A2985 RMK AO1 T02450193KOIN2019-07-18T14:15:00Z39.83-100.5324.519.3210410.029.84941TRUETRUEVFRMETAR824.02019-07-18 14:22:34J¯‹-) 5    3KMNI 181415Z AUTO 24008KT 220V280 10SM CLR 29/22 A3004 RMK AO2KMNI2019-07-18T14:15:00Z33.58-80.2229.022.0240810.030.041338TRUETRUEVFRMETAR32.02019-07-18 14:22:34K¯‹,) 5    3KHNZ 181415Z AUTO 00000KT 10SM CLR 28/21 A2999 RMK AO2 T02800208KHNZ2019-07-18T14:15:00Z36.37-78.5328.020.80010.029.991142TRUETRUEVFRMETAR161.02019-07-18 14:22:34 Ô:|¡ÔG¯‹3(5   3KRCM 181415Z AUTO 21011G19KT 10SM CLR 27/22 A2989 RMK AO2KRCM2019-07-18T14:15:00Z38.78-93.827.022.0210111910.029.890747TRUETRUEVFRMETAR244.02019-07-18 14:22:34U¯‹2)5     3KRRL 181415Z AUTO 22007KT 10SM CLR 23/21 A2980 RMK AO2 T02330207 TSNOKRRL2019-07-18T14:15:00Z45.2-89.7223.320.7220710.029.799213TRUETRUETRUEVFRSPECI401.02019-07-18 14:22:348¯‹1(o5   3KSEM 181415Z AUTO 28006KT 9SM 29/23 A3009 RMK AO2KSEM2019-07-18T14:15:00Z32.35-86.9829.023.028069.030.088583TRUETRUEMETAR51.02019-07-18 14:22:34@¯‹0({5    3KSTF 181415Z AUTO 23004KT CLR 27/23 A3009 RMK AO2 PWINOKSTF2019-07-18T14:15:00Z33.43-88.8527.023.0230430.088583TRUETRUETRUEMETAR102.02019-07-18 14:22:34 ¥.p™¥n¯‹7)G5    3KPBH 181415Z AUTO 24007G14KT 10SM VCTS SCT043 OVC050 22/20 A2975 RMK AO2 LTG DSNT N T02240203KPBH2019-07-18T14:15:00Z45.7-90.422.420.324071410.029.749016TRUETRUEVCTSVFRSPECI449.02019-07-18 14:22:34Q¯‹6)5   3KPEA 181415Z AUTO 24009G14KT 10SM CLR 28/22 A2980 RMK AO2 T02800220KPEA2019-07-18T14:15:00Z41.4-92.9528.022.024091410.029.799213TRUETRUEVFRSPECI270.02019-07-18 14:22:348¯‹5(w5    3KPGV 181415Z AUTO 25006KT 7SM CLR 29/23 A3000 RMK AO2KPGV2019-07-18T14:15:00Z35.62-77.429.023.025067.030.0TRUETRUEVFRMETAR8.02019-07-18 14:22:34L¯‹4) 5    3KPSO 181415Z AUTO 00000KT 10SM CLR 17/01 A3034 RMK AO2 T01700014KPSO2019-07-18T14:15:00Z37.28-107.0517.01.40010.030.339567TRUETRUEVFRSPECI2334.02019-07-18 14:22:34Y8(8@HPX`hpx€ˆ˜ ¨°¸ÀÈÐØàèðø (08@HPX`hpx€ˆ˜ ¨°¸ÀÈÐØàèðø (08@HPX`hpx€ˆ˜ ¨°¸ÀÈÐØàèðø ¨°¸ÀÈÐØàèðøߝŠUϯŠYЯŠ]ѯŠaÒ¯ŠeÓ¯ŠjÔ¯ŠnÕ¯ŠrÖ¯ŠvׯŠzدŠ~Ù¯‹ߝŠUϯŠYЯŠ]ѯŠaÒ¯ŠeÓ¯ŠjÔ¯ŠnÕ¯ŠrÖ¯ŠvׯŠzدŠ~Ù¯‹Ú¯‹Û¯‹ ܯ‹ݯ‹Þ¯‹߯‹௝‹ᯝ‹#⯝‹'㯝‹+䯝‹/寝‹3毝‹7话‹;鯝‹?ꯝ‹C믝‹G쯝‹Kí¯‹O‹Sﯝ‹W𯝋[ñ¯‹_ò¯‹c󯝋gô¯‹kõ¯‹oö¯‹s÷¯‹wø¯‹{ù¯‹ú¯Œû¯Œü¯Œ ý¯Œþ¯Œÿ¯Œ¯Œ¯Œ¯Œ#¯Œ'¯Œ+¯Œ/¯Œ3¯Œ7¯Œ; ¯Œ? ¯ŒC ¯ŒH ¯ŒM ¯ŒQ¯ŒU¯ŒY¯Œ]¯Œa¯Œe¯Œj¯Œn¯Œr¯Œv¯Œ{¯¯¯¯ ¯¯¯¯ ¯ !¯%"¯*#¯/$¯4%¯9&¯>'¯C ™%Mp™Q¯‹;)5     3KPNE 181414Z 11004KT 6SM HZ SCT014 BKN020 28/24 A2991 RMK AO2 T02830244KPNE2019-07-18T14:14:00Z40.08-75.0228.324.411046.029.911417TRUEHZMVFRSPECI28.02019-07-18 14:22:34W¯‹:)!5    3KMGJ 181414Z AUTO 04009KT 10SM BKN014 OVC036 23/22 A2993 RMK AO2 T02280222KMGJ2019-07-18T14:14:00Z41.52-74.2722.822.240910.029.929134TRUETRUEMVFRSPECI108.02019-07-18 14:22:34R¯‹9)5     3KMPO 181414Z AUTO 06005KT 2SM BR OVC002 21/21 A2998 RMK AO2 T02110211KMPO2019-07-18T14:14:00Z41.13-75.3821.121.16052.029.97933TRUETRUEBRLIFRSPECI577.02019-07-18 14:22:34U¯‹8)!5    3KELZ 181414Z AUTO 01004KT 10SM SCT008 OVC017 23/20 A3002 RMK AO2 T02280200KELZ2019-07-18T14:14:00Z42.1-77.9822.820.010410.030.02067TRUETRUEMVFRSPECI646.02019-07-18 14:22:34 ²%d‰²Q¯‹?)5   3KFOZ 181414Z AUTO 23012G16KT 203V263 7SM SCT002 21/20 A2971 RMK AO2KFOZ2019-07-18T14:14:00Z47.77-93.6521.020.023012167.029.71063TRUETRUEVFRSPECI411.02019-07-18 14:22:34U¯‹>)5   3CYHE 181414Z AUTO 28014G19KT 9SM BKN047 BKN055 15/11 A2991 RMK SLP131CYHE2019-07-18T14:14:00Z49.37-121.515.011.028014199.029.9114171013.1TRUEVFRSPECI39.02019-07-18 14:22:34;¯‹=)5   3CWIL 181414Z AUTO 35018KT ////SM FEW004 FEW060 05/04 A2970CWIL2019-07-18T14:14:00Z68.32-100.075.04.03501829.698818TRUESPECI36.02019-07-18 14:22:34U¯‹<)5    3KJST 181414Z AUTO 31008KT 9SM FEW008 OVC015 22/21 A3002 RMK AO2 T02220206KJST2019-07-18T14:14:00Z40.32-78.8322.220.631089.030.02067TRUETRUEMVFRSPECI694.02019-07-18 14:22:34 Œ0eƒŒq¯‹C)U5    3CYWL 181414Z 21003KT 140V250 15SM -RA BKN055 OVC090 08/06 A2982 RMK SC7AC1 SLP109 DENSITY ALT 3100FTCYWL2019-07-18T14:14:00Z52.18-122.078.06.0210315.029.8198811010.9-RAVFRSPECI940.02019-07-18 14:22:34\¯‹B)%5     3PAGS 181414Z AUTO 00000KT 10SM SCT012 OVC021 13/13 A2970 RMK AO2 RAE09 P0000PAGS2019-07-18T14:14:00Z58.42-135.7313.013.00010.029.698818TRUETRUEMVFR0.005METAR9.02019-07-18 14:22:34E¯‹A(5    3PHNY 181414Z AUTO 04007KT 10SM SCT027 20/20 A3006 RMK AO2PHNY2019-07-18T14:14:00Z20.77-156.9320.020.040710.030.059055TRUETRUEVFRSPECI399.02019-07-18 14:22:34J¯‹@) 5    3KPVG 181414Z AUTO 23009KT 10SM CLR 29/24 A2996 RMK AO2 TSB13E14KPVG2019-07-18T14:14:00Z36.78-76.4529.024.0230910.029.958662TRUETRUEVFRMETAR7.02019-07-18 14:22:34 X#Z;X]¯‹G)!5     3KHOP 181413Z AUTO 00000KT 10SM -DZ FEW010 24/24 A3003 RMK AO2 DZB13 SLP166KHOP2019-07-18T14:13:00Z36.67-87.524.024.00010.030.0295281016.6TRUETRUE-DZVFRSPECI174.02019-07-18 14:22:34‚¯‹F)‚5     3RJTR 181413Z AUTO 16004KT 2 1/2SM -RA BR BKN003 BKN008 OVC018 24/23 A2991 RMK AO2 VIS 2 1/4V2 3/4 CIG 003V010 BKN003 V SCT SLP127RJTR2019-07-18T14:13:00Z35.52139.424.023.016042.529.9114171012.7TRUETRUE-RA BRLIFRMETAR109.02019-07-18 14:22:34C¯‹E(5    3KORB 181413Z AUTO 00000KT 10SM SCT120 21/19 A2964 RMK AO2KORB2019-07-18T14:13:00Z48.02-92.8721.019.00010.029.639763TRUETRUEVFRSPECI397.02019-07-18 14:22:34W¯‹D)5   3K4BM 181413Z AUTO 24009G14KT 10SM CLR 12/M06 A3058 RMK AO2 LTG DSNT NWK4BM2019-07-18T14:13:00Z39.05-105.5212.0-6.024091410.030.578741TRUETRUEVFRSPECI3438.02019-07-18 14:22:34 h&;ChU¯‹K)%5    3KDWH 181413Z 22009KT 10SM SCT022 BKN026 BKN033 28/24 A3005 RMK AO2 T02780239KDWH2019-07-18T14:13:00Z30.07-95.5527.823.9220910.030.050198TRUEMVFRMETAR46.02019-07-18 14:22:34r¯‹J)M5       3KFOD 181413Z AUTO 22004KT 10SM FEW070 A2974 RMK AO2 LTG DSNT E TSE1358B00E07RAE12 P0000 FZRANO $KFOD2019-07-18T14:13:00Z42.53-94.17220410.029.740158TRUETRUETRUETRUEVFR0.005METAR355.02019-07-18 14:22:34e¯‹I)35      3PAWG 181413Z 02003KT 2 1/2SM -RA BR BKN011 OVC018 13/13 A2976 RMK AO2 RAB1359 P0000PAWG2019-07-18T14:13:00Z56.48-132.3713.013.02032.529.760826TRUE-RA BRIFR0.005METAR11.02019-07-18 14:22:34T¯‹H) 5    3KHLR 181413Z AUTO 20013KT 10SM SCT018 27/22 A2999 RMK AO2 SLP143KHLR2019-07-18T14:13:00Z31.13-97.7227.022.02001310.029.9911421014.3TRUETRUEVFRSPECI283.02019-07-18 14:22:34 ˆ9TˆF¯‹O) 5    3KSHV 181413Z 22008KT 10SM SCT017 28/24 A3006 RMK AO2 T02830244KSHV2019-07-18T14:13:00Z32.45-93.8328.324.4220810.030.059055TRUEVFRSPECI83.02019-07-18 14:22:34_¯‹N)/5    3KMFI 181413Z AUTO 19007KT 10SM FEW008 BKN015 OVC090 23/20 A2979 RMK AO2 T02280200KMFI2019-07-18T14:13:00Z44.63-90.1822.820.0190710.029.790354TRUETRUEMVFRMETAR389.02019-07-18 14:22:34S¯‹M)%5    3KMGW 181413Z VRB03KT 10SM SCT009 BKN019 BKN031 25/22 A3002 RMK AO2 T02500217KMGW2019-07-18T14:13:00Z39.65-79.9225.021.70310.030.02067TRUEMVFRMETAR378.02019-07-18 14:22:34h¯‹L)C5     3KFOK 181413Z 15005KT 10SM BKN005 BKN011 OVC019 24/23 A2995 RMK AO2 RAB01E11 P0000 T02390233KFOK2019-07-18T14:13:00Z40.85-72.6223.923.3150510.029.949802TRUEIFR0.005METAR33.02019-07-18 14:22:34 ,â,S¯‹S)5   3KCCU 181412Z AUTO 24009G16KT 190V260 10SM CLR 15/M02 A3061 RMK AO2KCCU2019-07-18T14:12:00Z39.48-106.1515.0-2.024091610.030.611221TRUETRUEVFRMETAR3680.02019-07-18 14:22:34|¯‹R)a5      3KUGN 181413Z 34005KT 4SM -RA BR BKN008 OVC060 22/21 A2994 RMK AO2 LTG DSNT SE AND S PRESRR P0005 T02220211KUGN2019-07-18T14:13:00Z42.42-87.8722.221.134054.029.940945TRUE-RA BRIFR0.05METAR222.02019-07-18 14:22:34U¯‹Q)!5    3KVAY 181413Z AUTO 00000KT 10SM FEW010 OVC018 27/25 A2989 RMK AO2 T02720250KVAY2019-07-18T14:13:00Z39.93-74.8327.225.00010.029.890747TRUETRUEMVFRMETAR15.02019-07-18 14:22:34‚¯‹P)‚5      3KRFD 181413Z 11008KT 7SM -TSRA FEW006 SCT029CB OVC070 22/22 A2988 RMK AO2 LTG DSNT N AND NW OCNL LTGIC NW-N TS NW-N MOV E P0007 T02220217KRFD2019-07-18T14:13:00Z42.2-89.122.221.711087.029.878937TRUE-TSRAVFR0.07SPECI221.02019-07-18 14:22:34 ²9r{²C¯‹W)5    3EHGR 181412Z AUTO 24006KT 170V280 9999 OVC036 22/14 Q1011 BLUEHGR2019-07-18T14:12:00Z51.574.9222.014.024066.2129.852362TRUEVFRSPECI13.02019-07-18 14:22:34q¯‹V)A5     3ETAD 181412Z AUTO 24010KT 9999 -RA FEW070 SCT090 SCT190 23/09 A2991 RMK AO2 RAB12 SLP110 $ETAD2019-07-18T14:12:00Z49.986.723.09.0240106.2129.9114171011.0TRUETRUETRUE-RAVFRMETAR365.02019-07-18 14:22:34A¯‹U(y5    3KBDU 181412Z AUTO 00000KT 10SM CLR 24/06 A3003 RMK AO2KBDU2019-07-18T14:12:00Z40.03-105.2324.06.00010.030.029528TRUETRUEVFRSPECI1612.02019-07-18 14:22:34A¯‹T(y5    3K20V 181412Z AUTO 00000KT 10SM CLR 12/03 A3030 RMK AO2K20V2019-07-18T14:12:00Z40.05-106.3712.03.00010.030.301182TRUETRUEVFRSPECI2259.02019-07-18 14:22:34 ©8aŠ©[¯‹[)-5    3KRKP 181412Z AUTO 15011KT 9SM SCT018 SCT023 BKN032 30/25 A3001 RMK AO2 T03000250KRKP2019-07-18T14:12:00Z28.08-97.0530.025.0150119.030.008858TRUETRUEVFRMETAR6.02019-07-18 14:22:34Q¯‹Z)5     3KSDM 181412Z AUTO 07003KT 6SM BR OVC007 17/15 A2998 RMK AO2 T01670150KSDM2019-07-18T14:12:00Z32.58-117.016.715.07036.029.97933TRUETRUEBRIFRSPECI159.02019-07-18 14:22:34Q¯‹Y) 5    3KGAI 181412Z AUTO 29007KT 10SM BKN020 28/23 A2993 RMK AO2 PNO $KGAI2019-07-18T14:12:00Z39.17-77.1728.023.0290710.029.929134TRUETRUETRUEMVFRMETAR165.02019-07-18 14:22:34B¯‹X(5    3KXVG 181412Z AUTO 00000KT 10SM SCT110 22/19 A2966 RMK AO2KXVG2019-07-18T14:12:00Z46.98-94.222.019.00010.029.660433TRUETRUEVFRSPECI407.02019-07-18 14:22:34 š$P|š\¯‹_)#5     3KAVX 181412Z AUTO 00000KT 2 1/2SM BR OVC002 16/16 A3001 RMK AO2 T01560156 $KAVX2019-07-18T14:12:00Z33.4-118.4215.615.6002.530.008858TRUETRUETRUEBRLIFRMETAR482.02019-07-18 14:22:34N¯‹^)5    3KAEX 181412Z 20003KT 10SM SCT006 BKN014 27/26 A3007 RMK AO2 T02670256KAEX2019-07-18T14:12:00Z31.33-92.5726.725.6200310.030.070866TRUEMVFRMETAR27.02019-07-18 14:22:34N¯‹])5    3KMPV 181412Z AUTO 00000KT 10SM BKN022 20/17 A3006 RMK AO2 T02000172KMPV2019-07-18T14:12:00Z44.2-72.5720.017.20010.030.059055TRUETRUEMVFRMETAR343.02019-07-18 14:22:34V¯‹\)5     3KPYM 181412Z AUTO 03012KT 3/4SM BR OVC002 21/20 A2995 RMK AO2 T02060200KPYM2019-07-18T14:12:00Z41.92-70.7320.620.030120.7529.949802TRUETRUEBRLIFRMETAR43.02019-07-18 14:22:34 HõHK¯‹c)5   3K5SM 181411Z AUTO 22009G17KT 10SM CLR 12/M02 A3054 RMK AO2K5SM2019-07-18T14:11:00Z39.43-107.3812.0-2.022091710.030.540354TRUETRUEVFRSPECI3232.02019-07-18 14:22:34y¯‹b)G5     3RJTY 181412Z AUTO 20004KT 10SM BKN010 23/22 A2995 RMK AO2 RAE11 CIG 007 RWY18 SLP139 FZRANO $RJTY2019-07-18T14:12:00Z35.75139.3323.022.0200410.029.9498021013.9TRUETRUETRUETRUEMVFRMETAR139.02019-07-18 14:22:34W¯‹a)!5    3KDKK 181412Z AUTO 34006KT 10SM FEW013 BKN024 26/22 A2997 RMK AO2 T02560217KDKK2019-07-18T14:12:00Z42.5-79.2825.621.7340610.029.970472TRUETRUEMVFRMETAR202.02019-07-18 14:22:34‚¯‹`)k5     3KDPA 181412Z 14005G14KT 1 1/2SM +TSRA BR FEW009 BKN041 OVC085 23/21 A2991 RMK AO2 LTG DSNT E-SW P0012 T02280211KDPA2019-07-18T14:12:00Z41.92-88.2522.821.11405141.529.911417TRUE+TSRA BRIFR0.12METAR231.02019-07-18 14:22:34 ‹-*a‹P¯‹g)5    3PFKT 181411Z AUTO 21013KT 7SM OVC006 11/11 A2983 RMK AO2 CIG 004V011PFKT2019-07-18T14:11:00Z65.33-166.4711.011.0210137.029.828741TRUETRUEIFRSPECI9.02019-07-18 14:22:34C¯‹f)5    3YMLT 181411Z AUTO 33012KT 9999 // SCT006 SCT026 08/08 Q1004YMLT2019-07-18T14:11:00Z-41.52147.188.08.0330126.2129.64567TRUEVFRSPECI178.02019-07-18 14:22:34}¯‹e)c5     3CYTL 181411Z AUTO 09004KT 050V120 2SM -RA BR BKN005 BKN011 OVC014 16/16 A2942 RMK SLP967 DENSITY ALT 1500FTCYTL2019-07-18T14:11:00Z53.82-89.8816.016.09042.029.421259996.7TRUE-RA BRIFRSPECI224.02019-07-18 14:22:34M¯‹d)5    3KBKB 181411Z AUTO VRB03KT 10SM BKN010 28/25 A3006 RMK AO2 T02830250KBKB2019-07-18T14:11:00Z31.0-92.9228.325.00310.030.059055TRUETRUEMVFRSPECI94.02019-07-18 14:22:34 µ8VƒµH¯‹k) 5     3KGON 181411Z 15005KT 3SM BR OVC008 24/22 A2993 RMK AO2 T02440222KGON2019-07-18T14:11:00Z41.33-72.0524.422.215053.029.929134TRUEBRIFRMETAR3.02019-07-18 14:22:34M¯‹j)5    3KRME 181411Z 11006KT 10SM FEW016 SCT023 25/21 A2995 RMK AO2 T02500211KRME2019-07-18T14:11:00Z43.22-75.425.021.1110610.029.949802TRUEVFRMETAR154.02019-07-18 14:22:34\¯‹i)/5    3KSEG 181411Z AUTO 00000KT 10SM SCT013 SCT021 OVC041 27/23 A2992 RMK AO2 T02670228KSEG2019-07-18T14:11:00Z40.82-76.8726.722.80010.029.920275TRUETRUEVFRMETAR134.02019-07-18 14:22:34B¯‹h(y5    3KETH 181411Z AUTO 19003KT 10SM CLR 23/18 A2968 RMK AO2KETH2019-07-18T14:11:00Z45.78-96.5523.018.0190310.029.681103TRUETRUEVFRSPECI313.02019-07-18 14:22:34 T29PTv¯‹o)E5     3KTCM 181411Z AUTO 19005KT 9SM -RA FEW008 OVC019 13/13 A3003 RMK AO2 RAB11 OVC V BKN SLP172 $KTCM2019-07-18T14:11:00Z47.12-122.4713.013.019059.030.0295281017.2TRUETRUETRUE-RAMVFRSPECI98.02019-07-18 14:22:34c¯‹n)?5   3CYKD 181411Z 32008KT 15SM BKN011 BKN061 OVC120 13/12 A2980 RMK SC5SC1AC2 CF ASOCTD SLP092CYKD2019-07-18T14:11:00Z68.22-135.013.012.0320815.029.7992131009.2MVFRSPECI7.02019-07-18 14:22:34s¯‹m)[5     3KACK 181411Z 00000KT 1SM R24/P6000FT -RA BR BKN004 OVC021 23/22 A2994 RMK AO2 CIG 003V009 T02280222 PNOKACK2019-07-18T14:11:00Z41.25-70.0722.822.2001.029.940945TRUE-RA BRLIFRMETAR16.02019-07-18 14:22:34H¯‹l) 5    3KBAZ 181411Z 19012KT 10SM FEW015 28/23 A3003 RMK AO2 T02830228KBAZ2019-07-18T14:11:00Z29.72-98.0528.322.81901210.030.029528TRUEVFRMETAR195.02019-07-18 14:22:34 (LYC¯‹s(y5    3KWYS 181410Z AUTO 22011KT 10SM CLR 15/07 A3002 RMK AO2KWYS2019-07-18T14:10:00Z44.67-111.1215.07.02201110.030.02067TRUETRUEVFRSPECI2025.02019-07-18 14:22:34m¯‹r)W5    3CYVM 181411Z 05005KT 2SM VCFG FEW002 BKN006 BKN008 05/05 A2949 RMK FG1ST1ST5ST1 ST TR VIS S 10 SLP990CYVM2019-07-18T14:11:00Z67.53-64.025.05.05052.029.489174999.0VCFGIFRSPECI6.02019-07-18 14:22:34V¯‹q)5   3KNBT 181411Z AUTO 21014G19KT 10SM BKN019 30/26 A3000 RMK AO2 T03000256 $KNBT2019-07-18T14:11:00Z35.02-76.4730.025.6210141910.030.0TRUETRUETRUEMVFRMETAR5.02019-07-18 14:22:34R¯‹p)5    3KNJM 181411Z AUTO 23013KT 9SM BKN009 30/27 A3002 RMK AO2 T03000267 $KNJM2019-07-18T14:11:00Z34.67-77.0230.026.7230139.030.02067TRUETRUETRUEIFRSPECI7.02019-07-18 14:22:34 º5e„ºD¯‹w(5    3K65S 181410Z AUTO 24004KT 10SM BKN055 15/09 A2976 RMK AO2K65S2019-07-18T14:10:00Z48.73-116.315.09.0240410.029.760826TRUETRUEVFRMETAR713.02019-07-18 14:22:34[¯‹v)!5   3K6S5 181410Z AUTO 20006G11KT 10SM SCT070 BKN080 OVC095 18/10 A2988 RMK AO2K6S52019-07-18T14:10:00Z46.25-114.1318.010.020061110.029.878937TRUETRUEVFRMETAR1110.02019-07-18 14:22:34J¯‹u)5    3KFOT 181410Z AUTO 29007KT M1/4SM OVC002 15/15 A2999 RMK AO1KFOT2019-07-18T14:10:00Z40.55-124.1315.015.029070.2529.991142TRUETRUELIFRMETAR120.02019-07-18 14:22:34E¯‹t(5    3KE16 181410Z AUTO 14011KT 10SM OVC004 13/12 A2998 RMK AO2KE162019-07-18T14:10:00Z37.08-121.613.012.01401110.029.97933TRUETRUELIFRMETAR86.02019-07-18 14:22:34 ­D”­a¯‹{)/5   3CYHD 181410Z AUTO 21009G15KT 9SM BKN010 21/19 A2958 RMK SLP021 DENSITY ALT 2700FTCYHD2019-07-18T14:10:00Z49.82-92.7521.019.02109159.029.580711002.1TRUEMVFRSPECI413.02019-07-18 14:22:34g¯‹z)95     3KSMP 181410Z AUTO VRB06KT 1/2SM -RA FG BKN002 OVC006 07/06 A3001 RMK AO2 T00670056 PNOKSMP2019-07-18T14:10:00Z47.28-121.336.75.6060.530.008858TRUETRUE-RA FGLIFRSPECI1208.02019-07-18 14:22:34=¯‹y(}5    3PPNU 181410Z AUTO 10SM SCT006 OVC110 05/05 A2985 RMK AO1PPNU2019-07-18T14:10:00Z70.42-150.035.05.010.029.84941TRUETRUEVFRMETAR27.02019-07-18 14:22:346¯‹x(q5   3KO86 181410Z AUTO 28003KT 10SM 16/10 A3000 RMK AO1KO862019-07-18T14:10:00Z40.98-122.716.010.0280310.030.0TRUETRUEMETAR729.02019-07-18 14:22:34 ~;\~X¯‹)!5    3KAUW 181410Z AUTO 22006KT 10SM BKN012 BKN018 23/21 A2978 RMK AO2 T02280206KAUW2019-07-18T14:10:00Z44.93-89.6222.820.6220610.029.778543TRUETRUEMVFRMETAR362.02019-07-18 14:22:34Y¯‹~)/5    3KBGM 181410Z 07003KT 10SM BKN006 OVC010 22/20 A2997 RMK AO2 CIG 004V008 T02170200KBGM2019-07-18T14:10:00Z42.22-75.9821.720.070310.029.970472TRUEIFRMETAR490.02019-07-18 14:22:34A¯‹})5    3PAVD 181410Z 00000KT 10SM FEW090 BKN300 10/09 A2970 RMK AO2PAVD2019-07-18T14:10:00Z61.13-146.2510.09.00010.029.698818TRUEVFRSPECI37.02019-07-18 14:22:34x¯‹|)I5      3KBKX 181410Z AUTO 30010KT 8SM VCTS -RA OVC005 22/22 A2982 RMK AO2 TSB10RAB06 CIG 002V006 P0000KBKX2019-07-18T14:10:00Z44.28-96.8222.022.0300108.029.819881TRUETRUEVCTS -RAIFR0.005SPECI502.02019-07-18 14:22:34 Š,VpŠ`¯Œ)5     3PACZ 181410Z AUTO 23009KT 10SM -SHRA BKN003 10/10 A2994 RMK AO2 SLP140PACZ2019-07-18T14:10:00Z61.78-166.0310.010.0230910.029.9409451014.0TRUETRUE-SHRALIFRMETAR146.02019-07-18 14:22:34`¯Œ)35     3RCTP 181410Z 25004KT 9999 VCSH FEW012 BKN020 BKN050 28/26 Q0997 NOSIG RMK R23 A2945RCTP2019-07-18T14:10:00Z25.07121.2228.026.025046.2129.438976TRUEVCSHMVFRMETAR33.02019-07-18 14:22:34P¯Œ)5    3KPSF 181410Z AUTO 06008KT 10SM OVC014 22/19 A2997 RMK AO2 T02170189KPSF2019-07-18T14:10:00Z42.43-73.2821.718.960810.029.970472TRUETRUEMVFRMETAR355.02019-07-18 14:22:34N¯Œ)5    3KFIG 181410Z AUTO 00000KT 10SM OVC013 24/22 A2998 RMK AO2 T02440217KFIG2019-07-18T14:10:00Z41.05-78.4224.421.70010.029.97933TRUETRUEMVFRMETAR462.02019-07-18 14:22:34 “Fm“T¯Œ)%5    3KSTP 181409Z 17008KT 10SM FEW009 BKN040 OVC055 24/21 A2971 RMK AO2 T02390211KSTP2019-07-18T14:09:00Z44.93-93.0523.921.1170810.029.71063TRUEVFRSPECI219.02019-07-18 14:22:34S¯Œ)!5    3CYBB 181409Z 01012KT 3SM BR BKN004 OVC020 06/06 A2943 RMK FG4ST3SC1 SLP968CYBB2019-07-18T14:09:00Z68.52-89.826.06.010123.029.430119996.8BRLIFRSPECI15.02019-07-18 14:22:34C¯Œ(5    3KYKN 181409Z AUTO 08005KT 10SM SCT005 26/24 A2971 RMK AO2KYKN2019-07-18T14:09:00Z42.92-97.3726.024.080510.029.71063TRUETRUEVFRSPECI398.02019-07-18 14:22:34k¯Œ)?5     3CYRV 181409Z AUTO 11003KT 9SM -RA FEW011 OVC070 12/11 A2976 RMK SLP082 DENSITY ALT 1600FTCYRV2019-07-18T14:09:00Z50.97-118.1712.011.011039.029.7608261008.2TRUE-RAVFRSPECI443.02019-07-18 14:22:34 T":T`¯Œ )75    3KBLF 181409Z AUTO 29007KT 9SM BKN010 OVC016 22/19 A3013 RMK AO2 CIG 008V013 T02170189KBLF2019-07-18T14:09:00Z37.3-81.221.718.929079.030.129921TRUETRUEMVFRSPECI873.02019-07-18 14:22:34P¯Œ )5    3KHOT 181409Z AUTO 25008KT 10SM BKN014 28/26 A3003 RMK AO2 T02830256KHOT2019-07-18T14:09:00Z34.48-93.128.325.6250810.030.029528TRUETRUEMVFRSPECI162.02019-07-18 14:22:34‚ ¯Œ ){5      3KMIW 181409Z AUTO 03003KT 9SM -TSRA FEW027 BKN100 OVC110 26/24 A2977 RMK AO2 LTG DSNT NW-NE RAB02 TSB03 P0000 T02560244KMIW2019-07-18T14:09:00Z42.12-92.9225.624.43039.029.769686TRUETRUE-TSRAVFR0.005SPECI296.02019-07-18 14:22:34X¯Œ)!5    3KRBG 181409Z AUTO 36004KT 10SM SCT020 OVC034 18/16 A3003 RMK AO2 T01830161KRBG2019-07-18T14:09:00Z43.23-123.3518.316.1360410.030.029528TRUETRUEVFRSPECI154.02019-07-18 14:22:34 Î/g˜ÎD¯Œ) 5    3PABR 181408Z 12009KT 10SM SCT009 08/06 A2977 RMK AO2 T00780061PABR2019-07-18T14:08:00Z71.28-156.777.86.1120910.029.769686TRUEVFRSPECI7.02019-07-18 14:22:34I¯Œ)5     3PMDY 181408Z AUTO 09010KT 6SM BR BKN010 26/24 A3008 RMK AO2PMDY2019-07-18T14:08:00Z28.22-177.3726.024.090106.030.079725TRUETRUEBRMVFRMETAR4.02019-07-18 14:22:34B¯Œ (}5    3KSFZ 181408Z AUTO 02013KT 7SM OVC006 18/18 A2999 RMK AO2KSFZ2019-07-18T14:08:00Z41.92-71.518.018.020137.029.991142TRUETRUEIFRSPECI134.02019-07-18 14:22:34K¯Œ ) 5    3PAFM 181408Z AUTO 00000KT 10SM BKN029 OVC065 12/11 A2980 RMK AO2PAFM2019-07-18T14:08:00Z67.1-157.8512.011.00010.029.799213TRUETRUEMVFRSPECI88.02019-07-18 14:22:34 Å+^ÅE¯Œ) 5    3KRDG 181408Z 00000KT 10SM OVC009 27/24 A2989 RMK AO2 T02670244KRDG2019-07-18T14:08:00Z40.37-75.9726.724.40010.029.890747TRUEIFRSPECI109.02019-07-18 14:22:34H¯Œ) 5    3KROC 181408Z 36005KT 10SM BKN015 24/20 A2997 RMK AO2 T02440200KROC2019-07-18T14:08:00Z43.12-77.6824.420.0360510.029.970472TRUEMVFRSPECI178.02019-07-18 14:22:34G¯Œ) 5    3KSSF 181408Z 16009KT 10SM SCT014 28/22 A3001 RMK AO2 T02830217KSSF2019-07-18T14:08:00Z29.33-98.4728.321.7160910.030.008858TRUEVFRSPECI176.02019-07-18 14:22:34O¯Œ)5    3KTYS 181408Z 23008KT 10SM BKN015 BKN250 27/23 A3007 RMK AO2 T02720228KTYS2019-07-18T14:08:00Z35.82-83.9827.222.8230810.030.070866TRUEMVFRSPECI302.02019-07-18 14:22:34 Ê1d“ʁC¯Œ(y5    3KMNH 181407Z AUTO 23005KT 10SM CLR 22/06 A3020 RMK AO2KMNH2019-07-18T14:07:00Z39.22-104.6522.06.0230510.030.200787TRUETRUEVFRSPECI2152.02019-07-18 14:22:34K¯Œ)5    3KHFD 181408Z 02009KT 10SM BKN009 OVC018 26/22 A2992 RMK AO2 T02560222KHFD2019-07-18T14:08:00Z41.73-72.6525.622.220910.029.920275TRUEIFRSPECI4.02019-07-18 14:22:34G¯Œ) 5    3KHWD 181408Z 34004KT 10SM BKN009 16/13 A2993 RMK AO2 T01560128KHWD2019-07-18T14:08:00Z37.67-122.1215.612.8340410.029.929134TRUEIFRSPECI21.02019-07-18 14:22:34I¯Œ) 5    3KOXR 181408Z 03005KT 8SM OVC016 18/15 A2997 RMK AO2 T01830150 $KOXR2019-07-18T14:08:00Z34.2-119.218.315.03058.029.970472TRUETRUEMVFRSPECI20.02019-07-18 14:22:34 p)E]pg¯Œ)95    3CYOD 181407Z 27003KT 5SM SHRA BR FEW012 BKN030 OVC140 14/13 A2950 RMK SF2SC5AC1 SLP995CYOD2019-07-18T14:07:00Z54.4-110.2814.013.027035.029.500984999.5SHRA BRMVFRSPECI544.02019-07-18 14:22:34b¯Œ)-5    3KRDR 181407Z 24007KT 10SM FEW160 FEW190 22/18 A2960 RMK SLP025 T02220184 58001 $KRDR2019-07-18T14:07:00Z47.97-97.422.218.4240710.029.6013771002.5TRUEVFR-0.1SPECI278.02019-07-18 14:22:34^¯Œ)/5    3KHYR 181407Z AUTO 19008KT 10SM FEW005 SCT100 SCT120 22/21 A2973 RMK AO2 T02220211KHYR2019-07-18T14:07:00Z46.02-91.4522.221.1190810.029.731298TRUETRUEVFRSPECI370.02019-07-18 14:22:34Q¯Œ)5    3KPIR 181407Z AUTO 07009KT 10SM BKN014 21/19 A2970 RMK AO2 T02110194KPIR2019-07-18T14:07:00Z44.38-100.2821.119.470910.029.698818TRUETRUEMVFRSPECI526.02019-07-18 14:22:34 Ä.cŽÄD¯Œ({5    3KCPW 181406Z AUTO 21004KT 10SM CLR 11/M03 A3069 RMK AO2KCPW2019-07-18T14:06:00Z37.45-106.811.0-3.0210410.030.690945TRUETRUEVFRMETAR3584.02019-07-18 14:22:34O¯Œ) 5    3PAVA 181407Z AUTO 26006KT 10SM OVC012 11/09 A2997 RMK AO2 PNO $PAVA2019-07-18T14:07:00Z61.53-165.611.09.0260610.029.970472TRUETRUETRUEMVFRSPECI23.02019-07-18 14:22:34E¯Œ(5    3KOTG 181407Z AUTO 26005KT 10SM SCT003 24/22 A2977 RMK AO2KOTG2019-07-18T14:07:00Z43.63-95.5724.022.0260510.029.769686TRUETRUEVFRSPECI480.02019-07-18 14:22:34L¯Œ) 5    3KSQI 181407Z AUTO 10008KT 9SM FEW007 OVC028 22/22 A2989 RMK AO2KSQI2019-07-18T14:07:00Z41.75-89.6722.022.010089.029.890747TRUETRUEMVFRSPECI197.02019-07-18 14:22:34 C8BqC‚(¯Œ#)‚E5     3RJBB 181406Z AUTO 17004KT 2200 R06R/1600VP2000N R06L/P2000N RA BR FEW002 SCT015 BKN034 //////TCU 23/23 Q1013 RMK A2991 RI007 TCU OHD MOV E AND 40KM E MOV NERJBB2019-07-18T14:06:00Z34.42135.2523.023.017041.3729.911417TRUERA BRIFRSPECI8.02019-07-18 14:22:34K¯Œ")5    3KHUA 181406Z 00000KT 7SM -RA BR OVC130 24/23 A3009 RMK SLP184KHUA2019-07-18T14:06:00Z34.68-86.6824.023.0007.030.0885831018.4-RA BRVFRSPECI209.02019-07-18 14:22:34p¯Œ!);5   3RODN 181406Z AUTO 13019G27KT 9SM SCT017 OVC023 29/26 A2962 RMK AO2 CIG 018V025 SLP035 $RODN2019-07-18T14:06:00Z26.35127.7729.026.013019279.029.6190951003.5TRUETRUETRUEMVFRSPECI45.02019-07-18 14:22:34B¯Œ ({5    3K7BM 181406Z AUTO 00000KT 10SM CLR 17/M03 A3046 RMK AO2K7BM2019-07-18T14:06:00Z38.78-106.2217.0-3.00010.030.46063TRUETRUEVFRSPECI2995.02019-07-18 14:22:34 L <CLq¯Œ')U5    3CYNE 181406Z AUTO 07005KT 030V100 9SM SCT008 BKN025 OVC034 18/16 A2951 RMK SLP999 DENSITY ALT 1600FTCYNE2019-07-18T14:06:00Z53.97-97.8218.016.07059.029.509842999.9TRUEMVFRSPECI223.02019-07-18 14:22:34s¯Œ&)Y5    3CYPA 181406Z CCA 10006KT 5SM BR BKN007 OVC120 15/15 A2953 RMK ST7AC1 CIG RAG SLP006 DENSITY ALT 2300FTCYPA2019-07-18T14:06:00Z53.22-105.6715.015.010065.029.5305121000.6BRIFRSPECI428.02019-07-18 14:22:34K¯Œ%) 5    3KHEZ 181406Z AUTO 24007KT 10SM SCT011 SCT017 28/25 A3011 RMK AO2KHEZ2019-07-18T14:06:00Z31.62-91.328.025.0240710.030.109253TRUETRUEVFRSPECI83.02019-07-18 14:22:34m¯Œ$)=5    3CBBC 181406Z AUTO 25005KT 200V320 9SM SCT015 SCT021 BKN040 OVC075 14/12 A2991 RMK SLP131CBBC2019-07-18T14:06:00Z52.18-128.1514.012.025059.029.9114171013.1TRUEOVC7500VFRSPECI43.02019-07-18 14:22:34 ƒ%HVƒM¯Œ+) 5    3K6I2 181405Z AUTO 22005KT 10SM SCT015 SCT022 27/23 A3004 RMK AO2K6I22019-07-18T14:05:00Z37.63-85.2527.023.0220510.030.041338TRUETRUEVFRMETAR264.02019-07-18 14:22:34l¯Œ*)C5      3KBOS 181406Z 05012KT 2SM -RA BR FEW005 OVC022 20/15 A3001 RMK AO2 SFC VIS 3 P0000 T02000150KBOS2019-07-18T14:06:00Z42.37-71.0220.015.050122.030.008858TRUE-RA BRIFR0.005SPECI6.02019-07-18 14:22:34W¯Œ))%5    3KMKG 181406Z 23010KT 10SM FEW011 SCT018 BKN025 25/22 A2992 RMK AO2 T02500217KMKG2019-07-18T14:06:00Z43.17-86.2325.021.72301010.029.920275TRUEMVFRSPECI191.02019-07-18 14:22:34U¯Œ()5    3KAAF 181406Z AUTO 25004KT 10SM BKN028 31/24 A3009 RMK AO2 T03110244 $KAAF2019-07-18T14:06:00Z29.73-85.0331.124.4250410.030.088583TRUETRUETRUEMVFRSPECI5.02019-07-18 14:22:34 Ñ@m©ÑR¯Œ/)5   3KGWW 181405Z AUTO 21010G15KT 10SM CLR 29/25 A2999 RMK AO2 T02910246KGWW2019-07-18T14:05:00Z35.47-77.9729.124.6210101510.029.991142TRUETRUEVFRSPECI41.02019-07-18 14:22:34>¯Œ.(w5    3KCGE 181405Z AUTO 22004KT 9SM CLR 30/25 A2989 RMK A01KCGE2019-07-18T14:05:00Z38.53-76.0330.025.022049.029.890747TRUETRUEVFRSPECI6.02019-07-18 14:22:34M¯Œ-)5    3K1A5 181405Z AUTO 00000KT 7SM OVC004 22/21 A3017 RMK AO2 T02220208K1A52019-07-18T14:05:00Z35.22-83.4222.220.8007.030.171259TRUETRUELIFRSPECI616.02019-07-18 14:22:34:¯Œ,(q5   3KO32 181405Z AUTO 00000KT 10SM 22/10 A2991 RMK AO2KO322019-07-18T14:05:00Z36.67-119.4522.010.00010.029.911417TRUETRUEMETAR117.02019-07-18 14:22:34 F+K-Fa¯Œ3)55      3KDLH 181405Z 28004KT 6SM BR SCT003 SCT030 BKN120 21/19 A2968 RMK AO2 P0001 T02060189KDLH2019-07-18T14:05:00Z46.85-92.220.618.928046.029.681103TRUEBRVFR0.01SPECI435.02019-07-18 14:22:34‚¯Œ2)‚5   #   3KASX 181405Z AUTO 27008KT 5SM VCTS -RA BR BKN014 BKN070 OVC110 22/21 A2970 RMK AO2 LTG DSNT E-S CIG 010V023 P0000 T02220211KASX2019-07-18T14:05:00Z46.55-90.9222.221.127085.029.698818TRUETRUEVCTS -RA BRMVFR0.005SPECI251.02019-07-18 14:22:34Z¯Œ1))5    3KBDR 181405Z 10007KT 10SM FEW006 BKN019 OVC024 23/22 A2992 RMK AO2 T02330222 $KBDR2019-07-18T14:05:00Z41.17-73.1323.322.2100710.029.920275TRUETRUEMVFRSPECI7.02019-07-18 14:22:34O¯Œ0)5    3KHBI 181405Z AUTO 23003KT 10SM SCT080 27/23 A3004 RMK AO2 T02710225KHBI2019-07-18T14:05:00Z35.65-79.927.122.5230310.030.041338TRUETRUEVFRSPECI205.02019-07-18 14:22:34 P%HgP‚¯Œ7)w5   #   3KPWK 181404Z 10010KT 5SM VCTS -RA BR FEW041 SCT070 BKN110 23/21 A2990 RMK AO2 LTG DSNT ALQDS PRESFR P0002 T02330211 $KPWK2019-07-18T14:04:00Z42.12-87.923.321.1100105.029.899607TRUETRUEVCTS -RA BRMVFR0.02SPECI203.02019-07-18 14:22:34[¯Œ6)5    3KTRL 181405Z AUTO 18011KT 10SM SCT019 28/23 A3003 RMK AO2 T02780228 PNO $KTRL2019-07-18T14:05:00Z32.72-96.2727.822.81801110.030.029528TRUETRUETRUEVFRSPECI145.02019-07-18 14:22:34W¯Œ5)-5    3KPMP 181405Z 14008KT 10SM BKN060 31/24 A3009 RMK AO2 LTG DSNT E AND NW T03060244KPMP2019-07-18T14:05:00Z26.25-80.1230.624.4140810.030.088583TRUEVFRSPECI6.02019-07-18 14:22:34U¯Œ4)%5    3KCKB 181405Z 30005KT 10SM BKN013 BKN021 OVC031 26/22 A3001 RMK AO2 T02610217KCKB2019-07-18T14:05:00Z39.3-80.2226.121.7300510.030.008858TRUEMVFRSPECI360.02019-07-18 14:22:34 ›)Lb›A¯Œ;(y5    3K2W6 181403Z AUTO 24008KT 10SM CLR 29/23 A2992 RMK AO1K2W62019-07-18T14:03:00Z38.32-76.5529.023.0240810.029.920275TRUETRUEVFRSPECI44.02019-07-18 14:22:34d¯Œ:)I5    3RJOP 181404Z 13003KT 6000 SHRA FEW005 SCT015 BKN030 23/22 Q1012 RMK 1ST005 3CU015 7CU030 A2991RJOP2019-07-18T14:04:00Z34.0134.6223.022.013033.7329.88189SHRAMVFRSPECI6.02019-07-18 14:22:34W¯Œ9)+5    3LHKE 181404Z 14002KT 9999 FEW040 BKN050 BKN100 19/18 Q1013 RESHRA NOSIG RMK BLULHKE2019-07-18T14:04:00Z46.9219.7519.018.014026.2129.911417TRUEVFRSPECI115.02019-07-18 14:22:34Q¯Œ8)5     3KZZV 181404Z AUTO 00000KT 1 1/4SM BR OVC002 23/22 A3000 RMK AO2 T02280217KZZV2019-07-18T14:04:00Z39.95-81.922.821.7001.2530.0TRUETRUEBRLIFRSPECI268.02019-07-18 14:22:34 lMNl\¯Œ?)'5    3CWHN 181402Z AUTO 04003KT 010V080 9SM FEW015 FEW025 FEW036 SCT043 16/15 A2949CWHN2019-07-18T14:02:00Z54.88-109.9716.015.04039.029.489174TRUESCT4300VFRSPECI636.02019-07-18 14:22:34y¯Œ>)E5     3BGTL 181402Z 11019KT 9999 -RA FEW009 SCT037 BKN045 OVC055 09/07 A2969 RMK AO2A SLP036 TSNO $BGTL2019-07-18T14:02:00Z76.53-68.79.07.0110196.2129.689961003.6TRUETRUETRUE-RAOVC5500VFRSPECI77.02019-07-18 14:22:34L¯Œ=) 5    3KFME 181403Z AUTO 24005KT 10SM SCT050 BKN055 27/25 A2992 RMK AO1KFME2019-07-18T14:03:00Z39.08-76.7727.025.0240510.029.920275TRUETRUEVFRMETAR46.02019-07-18 14:22:34[¯Œ<)/5    3KCGS 181403Z AUTO 00000KT 10SM SCT024 SCT030 BKN050 30/22 A2989 RMK AO1 T02960223KCGS2019-07-18T14:03:00Z38.98-76.9229.622.30010.029.890747TRUETRUEVFRSPECI15.02019-07-18 14:22:34 > 'I>‚¯ŒC)‚5    3URMM 181400Z 31006MPS 9999 VCTS BKN058CB 27/16 Q1008 R30/090070 TEMPO VRB07G23MPS 1000 TSRAGR SCT005 BKN020CB RMK QFE728/0971URMM2019-07-18T14:00:00Z44.2243.127.016.0310126.2129.763779VCTSVFRSPECI314.02019-07-18 14:22:34X¯ŒB)35    3URML 181400Z 05003MPS 030V090 9999 NSC 28/19 Q1005 R14/01//70 NOSIG RMK QFE753/1005URML2019-07-18T14:00:00Z42.8247.6528.019.05066.2129.675198TRUEVFRMETAR4.02019-07-18 14:22:34^¯ŒA)5    3EGUN 181401Z AUTO 32010KT 9999 SCT035 BKN060 22/15 A2979 RMK AO2 SLP091 $EGUN2019-07-18T14:01:00Z52.370.4722.015.0320106.2129.7903541009.1TRUETRUETRUEVFRMETAR10.02019-07-18 14:22:34o¯Œ@)C5   3OKAS 181401Z 34023G35KT 1200 BLDU CLR 45/05 A2947 RMK SLP973 WND DATA ESTMD T04460052 56003OKAS2019-07-18T14:01:00Z29.3547.3544.65.234023350.7529.471457997.3BLDULIFR-0.3METAR144.02019-07-18 14:22:34 ’P¦ñA’)¯ŒH(Y5   3SBAT 181400Z 13005KT CAVOK 33/15 Q1017SBAT2019-07-18T14:00:00Z-9.87-56.133.015.013056.2130.029528VFRMETAR288.02019-07-18 14:22:34*¯ŒG(Y5   3SBCC 181400Z 12009KT CAVOK 27/14 Q1018SBCC2019-07-18T14:00:00Z-9.32-54.9527.014.012096.2130.059055VFRMETAR536.02019-07-18 14:22:34/¯ŒF(e5   3SBCI 181400Z 07008KT 9999 SCT040 34/19 Q1017SBCI2019-07-18T14:00:00Z-7.32-47.4734.019.07086.2130.029528VFRMETAR183.02019-07-18 14:22:34$¯ŒE(Y5   3SBEK 181400Z 24003KT CAVOK 31/25 Q1016SBEK2019-07-18T14:00:00Z-6.23-57.7831.025.024036.2130.0VFRMETAR98.02019-07-18 14:22:34*¯ŒD(e5   3SBHT 181400Z 05003KT 9999 BKN020 30/23 Q1016SBHT2019-07-18T14:00:00Z-3.25-52.2730.023.05036.2130.0MVFRMETAR74.02019-07-18 14:22:34 DX§ðDU¯ŒM)-5   3URMN 181400Z 33002MPS 9999 FEW/// BKN/// 28/16 Q1007 R24/010070 NOSIG RMK QFE719URMN2019-07-18T14:00:00Z43.5243.6328.016.033046.2129.734253TRUESPECI445.02019-07-18 14:22:34K¯ŒL)5   3KC99 181400Z AUTO 28006G20KT 10SM CLR 13/M06 A3049 RMK AO2KC992019-07-18T14:00:00Z29.87-105.5513.0-6.028062010.030.490158TRUETRUEVFRSPECI3320.02019-07-18 14:22:341¯ŒK(k5    3VEGY 181400Z 00000KT 3000 HZ FEW018 34/25 Q1000VEGY2019-07-18T14:00:00Z24.7584.9534.025.0001.8629.52756HZIFRMETAR116.02019-07-18 14:22:34+¯ŒJ(Y5   3SBPJ 181400Z 11008KT CAVOK 31/10 Q1017SBPJ2019-07-18T14:00:00Z-10.28-48.3731.010.011086.2130.029528VFRMETAR236.02019-07-18 14:22:34"¯ŒI(e5    3SBAA 181400Z 10006KT 9999 SCT030 ///// Q1016SBAA2019-07-18T14:00:00Z-8.35-49.310066.2130.0VFRSPECI199.02019-07-18 14:22:34 t%ANtT¯ŒQ)#5    3URMT 181400Z 36004MPS 8000 SCT040CB 19/18 Q1010 R07/290055 NOSIG RMK QFE718URMT2019-07-18T14:00:00Z45.1242.1219.018.036084.9729.822834TRUEMVFRSPECI453.02019-07-18 14:22:34m¯ŒP)=5    3CYPR 181400Z AUTO 20003KT 130V240 9SM SCT016 BKN022 BKN030 OVC043 13/12 A2985 RMK SLP110CYPR2019-07-18T14:00:00Z54.28-130.4213.012.020039.029.849411011.0TRUEOVC4300MVFRMETAR34.02019-07-18 14:22:34^¯ŒO)35   3CYHI 181400Z 11013KT 15SM BKN054 BKN240 11/05 A2981 RMK SC5CS1 CS TR CIG RAG SLP098CYHI2019-07-18T14:00:00Z70.77-117.7811.05.01101315.029.8110241009.8VFRMETAR36.02019-07-18 14:22:34U¯ŒN))5    3URMO 181400Z 27005MPS 9999 BKN043 26/18 Q1008 R09/010070 NOSIG RMK QFE713/0950URMO2019-07-18T14:00:00Z43.244.626.018.0270106.2129.763779TRUEVFRMETAR510.02019-07-18 14:22:34 o*o5¯ŒU(u5   3SKPV 181400Z 08008KT 340V110 9999 SCT017 29/25 A2993SKPV2019-07-18T14:00:00Z13.37-81.3329.025.08086.2129.929134VFRMETAR6.02019-07-18 14:22:34X¯ŒT)-5    3URWA 181400Z 36005MPS 330V030 CAVOK 33/09 Q1005 R09/010070 NOSIG RMK QFE756/1008URWA2019-07-18T14:00:00Z46.2848.0233.09.0360106.2129.675198TRUEVFRSPECI-20.02019-07-18 14:22:34v¯ŒS)y5  3URRP 181400Z 18005MPS 9999 FEW///CB 23/16 Q1010 R23/CLRD70 TEMPO VRB09G14MPS 2000 TSRA SCT006 BKN020CB RMK QFE749/0999URRP2019-07-18T14:00:00Z47.539.9223.016.0180106.2129.822834METAR65.02019-07-18 14:22:34v¯ŒR)k5    3URSS 181400Z 28002MPS 9999 OVC056 26/20 Q1007 WS ALL RWY R02/010070 R06/010070 NOSIG RMK R06/28004G07MPS QFE754URSS2019-07-18T14:00:00Z43.4539.9526.020.028046.2129.734253TRUEVFRMETAR16.02019-07-18 14:22:34 ¸5k‘¸S¯ŒY)#5    3UNBB 181400Z 27003MPS 9999 FEW040CB 19/16 Q1007 R24/290250 NOSIG RMK QFE733UNBB2019-07-18T14:00:00Z53.3783.5319.016.027066.2129.734253TRUEVFRMETAR255.02019-07-18 14:22:34T¯ŒX)#5    3UNEE 181400Z 17001MPS 6000 SCT023CB 19/19 Q1005 R23/CLRD60 NOSIG RMK QFE731UNEE2019-07-18T14:00:00Z55.2786.0819.019.017023.7329.675198TRUEMVFRMETAR260.02019-07-18 14:22:34D¯ŒW)5     3VORY 181400Z 25005KT 5000 HZ FEW020 BKN090 31/24 Q1000 NOSIGVORY2019-07-18T14:00:00Z17.181.8231.024.025053.1129.52756TRUEHZMVFRMETAR46.02019-07-18 14:22:34E¯ŒV) 5    3CWEQ 181400Z AUTO 24002KT 16/16 RMK AO1 SLP998 T01570157 58005CWEQ2019-07-18T14:00:00Z52.12-101.2215.715.72402999.8TRUETRUE-0.5METAR335.02019-07-18 14:22:34 ¤1?Y¤/¯Œ](e5   3AYPY 181400Z 14010KT 9999 BKN080 24/21 Q1012AYPY2019-07-18T14:00:00Z-9.42147.2224.021.0140106.2129.88189VFRMETAR47.02019-07-18 14:22:34`¯Œ\)E5   3URWW 181400Z 26003MPS 210V300 CAVOK 29/12 Q1008 R24/010070 TEMPO 1000 TSRAGR BKN007 BKN040CBURWW2019-07-18T14:00:00Z48.7844.3329.012.026066.2129.763779VFRSPECI147.02019-07-18 14:22:34l¯Œ[)a5   3USCM 181400Z 01003MPS 9999 SCT040CB 28/16 Q1010 R36/090065 TEMPO VRB18MPS 2000 TSRA SQ BKN010CB RMK QFE719USCM2019-07-18T14:00:00Z53.458.7528.016.01066.2129.822834VFRMETAR435.02019-07-18 14:22:34I¯ŒZ)5    3UNAA 181400Z 27002MPS CAVOK 21/16 Q1004 R20/090065 NOSIG RMK QFE731UNAA2019-07-18T14:00:00Z53.7591.421.016.027046.2129.64567TRUEVFRMETAR245.02019-07-18 14:22:34 ]%@]]¯Œa)'5   3CYPX 181400Z AUTO 21021G27KT 9SM CLR 14/10 A2961 RMK SLP031 DENSITY ALT 300FTCYPX2019-07-18T14:00:00Z60.03-77.2714.010.021021279.029.6102371003.1TRUEVFRMETAR23.02019-07-18 14:22:34_¯Œ`)95   3CYQI 181400Z 03004KT 350V110 15SM BKN250 23/16 A2996 RMK CI6 SLP146 DENSITY ALT 1100FTCYQI2019-07-18T14:00:00Z43.83-66.0823.016.030415.029.9586621014.6VFRMETAR43.02019-07-18 14:22:34f¯Œ_)A5  3CYSK 181400Z 20015G21KT 15SM SCT050 BKN220 14/09 A2979 RMK SC4CS1 SLP092 DENSITY ALT 200FTCYSK2019-07-18T14:00:00Z56.53-79.2514.09.0200152115.029.7903541009.2VFRMETAR26.02019-07-18 14:22:34i¯Œ^)a5  3URWI 181400Z 04003MPS 360V060 9999 FEW///CB 30/09 Q1008 R27/010065 TEMPO VRB10G20MPS 0800 +TSRAGR BKN030CBURWI2019-07-18T14:00:00Z46.3744.3330.09.04066.2129.763779SPECI150.02019-07-18 14:22:34 …1Vn…c¯Œe)95    3CYMT 181400Z AUTO 18007KT 120V200 9SM BKN220 19/08 A3003 RMK SLP174 DENSITY ALT 1900FTCYMT2019-07-18T14:00:00Z49.77-74.5219.08.018079.030.0295281017.4TRUEVFRMETAR387.02019-07-18 14:22:34b¯Œd)/5   3CYNM 181400Z AUTO 18010G18KT 9SM BKN180 19/10 A2995 RMK SLP148 DENSITY ALT 1500FTCYNM2019-07-18T14:00:00Z49.77-77.8219.010.018010189.029.9498021014.8TRUEVFRMETAR281.02019-07-18 14:22:34U¯Œc))5   3CYOY 181400Z 00000KT 15SM FEW180 SCT240 21/09 A3005 RMK AC1CI2 DA1322FT SLP178CYOY2019-07-18T14:00:00Z46.88-71.521.09.00015.030.0501981017.8VFRMETAR168.02019-07-18 14:22:34I¯Œb)5   3CYPH 181400Z AUTO 18017G27KT 9SM CLR 10/07 A2972 RMK SLP066CYPH2019-07-18T14:00:00Z58.45-78.0810.07.018017279.029.7194881006.6TRUEVFRMETAR3.02019-07-18 14:22:34 d¤îL¯Œj) 5    3CYGT 181400Z 13010KT 3/8SM FG VV002 04/04 A2946 RMK FG8 SLP981CYGT2019-07-18T14:00:00Z69.37-81.824.04.0130100.3829.459646998.1FGLIFR200METAR51.02019-07-18 14:22:340¯Œi(e5   3SBJU 181400Z 20007KT 9999 SCT021 28/15 Q1022SBJU2019-07-18T14:00:00Z-7.22-39.2728.015.020076.2130.177166VFRMETAR409.02019-07-18 14:22:34:¯Œh(s5   3SBQV 181400Z 16013KT 9999 SCT012 OVC018 15/11 Q1027SBQV2019-07-18T14:00:00Z-14.87-40.8715.011.0160136.2130.324802MVFRMETAR893.02019-07-18 14:22:342¯Œg(s5   3NGTA 181400Z VRB02KT 9999 FEW019 BKN300 28/24 Q1009NGTA2019-07-18T14:00:00Z1.37173.1328.024.0026.2129.793306VFRMETAR2.02019-07-18 14:22:34^¯Œf)-5   3CYMH 181400Z AUTO 32012G17KT 9SM FEW050 18/08 A2944 RMK SLP970 DENSITY ALT 900FTCYMH2019-07-18T14:00:00Z52.28-55.8518.08.032012179.029.438976997.0TRUEVFRSPECI11.02019-07-18 14:22:34 {¯Œn)q5    3UUBC 181400Z 19002MPS 160V220 9999 -TSRA BKN043CB 16/12 Q1005 R31/CLRD60 TEMPO 0700 +TSRA OVC008CB RMK QFE737/0982UUBC2019-07-18T14:00:00Z54.5536.3716.012.019046.2129.675198-TSRAVFRMETAR199.02019-07-18 14:22:34c¯Œm)95     3UUBP 181400Z 17003MPS 9999 -SHRA SCT026CB 17/11 Q1006 R34/CLRD70 NOSIG RMK QFE737/0983UUBP2019-07-18T14:00:00Z53.2234.1817.011.017066.2129.704725TRUE-SHRAVFRSPECI202.02019-07-18 14:22:34‚¯Œl)‚5   3CYFS 181400Z 33013KT 15SM FEW085 SCT110 BKN130 BKN250 16/14 A2964 RMK AC2AC2AC1CS2 CVCTV CLDS EMBD SLP042 DENSITY ALT 1200FTCYFS2019-07-18T14:00:00Z61.75-121.2216.014.03301315.029.6397631004.2BKN25000VFRMETAR169.02019-07-18 14:22:34_¯Œk)75   3CYGH 181400Z 06003KT 010V100 20SM FEW065 17/12 A2973 RMK SC1 SLP073 DENSITY ALT 900FTCYGH2019-07-18T14:00:00Z66.27-128.6217.012.060320.029.7312981007.3VFRMETAR66.02019-07-18 14:22:34 ŽHgŽS¯Œr)#5    3UNTT 181400Z 24002MPS 9999 FEW040CB 21/18 Q1005 R21/090060 NOSIG RMK QFE738UNTT2019-07-18T14:00:00Z56.3885.2221.018.024046.2129.675198TRUEVFRMETAR182.02019-07-18 14:22:34[¯Œq)35    3USTR 181400Z 24003MPS CAVOK 25/14 Q1011 R30/CLRD65 R21/CLRD65 NOSIG RMK QFE749/0998USTR2019-07-18T14:00:00Z57.1765.3225.014.024066.2129.852362TRUEVFRSPECI115.02019-07-18 14:22:34C¯Œp) 5    3USHH 181400Z 00000MPS 9999 SCT040 20/15 Q1009 R06/010060 NOSIGUSHH2019-07-18T14:00:00Z61.0369.0820.015.0006.2129.793306TRUEVFRMETAR23.02019-07-18 14:22:34i¯Œo)G5     3ULWC 181400Z 07004MPS 9999 -SHRA BKN006 OVC015CB 17/17 Q1005 R03/290257 NOSIG RMK QFE744/0992ULWC2019-07-18T14:00:00Z59.2838.0217.017.07086.2129.675198TRUE-SHRAIFRMETAR115.02019-07-18 14:22:34 ¢0Fu¢M¯Œv)5   3UUOB 181400Z 26005G11MPS 210V290 CAVOK 23/08 Q1009 R29/010060 NOSIGUUOB2019-07-18T14:00:00Z50.6536.5823.08.026010216.2129.793306TRUEVFRMETAR224.02019-07-18 14:22:34K¯Œu)5    3UNKL 181400Z 12002MPS CAVOK 23/16 Q1005 R11/CLRD65 NOSIG RMK QFE728UNKL2019-07-18T14:00:00Z56.1792.4823.016.012046.2129.675198TRUEVFRMETAR276.02019-07-18 14:22:34d¯Œt)C5    3UNNT 181400Z 19002MPS 9999 BKN023CB 18/17 Q1006 R07/290155 R34/290155 NOSIG RMK QFE745/0993UNNT2019-07-18T14:00:00Z55.0282.6318.017.019046.2129.704725TRUEMVFRMETAR111.02019-07-18 14:22:34J¯Œs)5    3UNOO 181400Z 33004MPS CAVOK 25/10 Q1011 R25/CLRD60 NOSIG RMK QFE750UNOO2019-07-18T14:00:00Z54.9773.3225.010.033086.2129.852362TRUEVFRMETAR95.02019-07-18 14:22:34 P•¤Ý>¯Œ{(}5    3HKML 181400Z 21008KT 9999 SHRA BKN021 BKN080 25/23 Q1015HKML2019-07-18T14:00:00Z-3.2240.125.023.021086.2129.970472SHRAMVFRMETAR23.02019-07-18 14:22:34A¯Œz(5    3HKMO 181400Z 21013KT 9999 BKN019 BKN080 24/21 Q1015 NOSIGHKMO2019-07-18T14:00:00Z-4.0239.6224.021.0210136.2129.970472TRUEMVFRMETAR55.02019-07-18 14:22:34k¯Œy)K5    3CYGW 181400Z AUTO 18005KT 9SM CLR 20/09 A2986 RMK TS/LTNG TEMPO UNAVBL SLP112 DENSITY ALT 600FTCYGW2019-07-18T14:00:00Z55.27-77.7720.09.018059.029.8612211011.2TRUEVFRSPECI12.02019-07-18 14:22:345¯Œx(k5    3RKSM 181400Z 36003KT 8000 BR SCT200 26/21 A2979RKSM2019-07-18T14:00:00Z37.42127.1226.021.036034.9729.790354BRMVFRMETAR20.02019-07-18 14:22:34*¯Œw(Y5   3SBPF 181400Z 07016KT CAVOK 13/08 Q1026SBPF2019-07-18T14:00:00Z-28.25-52.3313.08.070166.2130.295275VFRMETAR684.02019-07-18 14:22:34 XF‹Ù&XH¯)5    3ULMM 181400Z 03003MPS CAVOK 15/08 Q1019 R13/090070 NOSIG RMK QFE757ULMM2019-07-18T14:00:00Z68.7832.7515.08.03066.2130.088583TRUEVFRMETAR51.02019-07-18 14:22:34-¯Œ(o5  3CXAK 181400Z AUTO 26005KT 13/13 RMK AO1 T01300128CXAK2019-07-18T14:00:00Z52.35-112.613.012.82605TRUETRUEMETAR795.02019-07-18 14:22:34,¯Œ~(o5   3LOAV 181400Z 30004KT 30KM BKN040CU FEW040CB 26/10LOAV2019-07-18T14:00:00Z47.9716.2726.010.0300418.64VFRMETAR233.02019-07-18 14:22:345¯Œ}(o5   3HRYR 181400Z 17006KT 9999 SCT02525/11 Q1020 NOSIGHRYR2019-07-18T14:00:00Z-1.9730.1225.011.017066.2130.11811TRUESPECI1497.02019-07-18 14:22:344¯Œ|(u5   3FALW 181400Z AUTO 36015KT //// // ////// 15/14 Q1019FALW2019-07-18T14:00:00Z-32.9718.1715.014.03601530.088583TRUESPECI0.02019-07-18 14:22:34 ‡5g‡Z¯)/5   3UUEE 181400Z 17004G10MPS 9999 FEW060TCU 21/10 Q1004 R24L/CLRD62 R24C/CLRD62 NOSIGUUEE2019-07-18T14:00:00Z55.9737.4221.010.01708196.2129.64567TRUEVFRMETAR190.02019-07-18 14:22:34H¯)5    3UUWW 181400Z 17005MPS 9999 SCT033TCU 20/11 Q1004 R24/000070 NOSIGUUWW2019-07-18T14:00:00Z55.637.2720.011.0170106.2129.64567TRUEVFRMETAR203.02019-07-18 14:22:34c¯)G5    3UUMO 181400Z 20004MPS 140V240 9999 SCT043 SCT160 20/12 Q1004 R08/290050 NOSIG RMK QFE739/0985UUMO2019-07-18T14:00:00Z55.5237.520.012.020086.2129.64567TRUEVFRMETAR174.02019-07-18 14:22:34\¯)95    3ULAA 181400Z 08007MPS 060V130 9999 SCT026 23/11 Q1014 R08/CLRD68 NOSIG RMK QFE760/1013ULAA2019-07-18T14:00:00Z64.640.7223.011.080146.2129.940945TRUEVFRMETAR19.02019-07-18 14:22:34 …(dp…e¯)O5   3UUOL 181400Z 25005MPS 9999 SCT040CB 24/12 Q1007 R15/090060 TEMPO VRB15MPS 1000 TSRAGR SQ BKN020CBUUOL2019-07-18T14:00:00Z52.739.5324.012.0250106.2129.734253VFRMETAR176.02019-07-18 14:22:34n¯)[5    3ULLI 181400Z 35005MPS 330V030 9999 -SHRA BKN009 BKN017CB OVC040 17/15 Q1005 R88/290050 TEMPO 3000 -SHRAULLI2019-07-18T14:00:00Z59.830.2717.015.0350106.2129.675198-SHRAIFRMETAR4.02019-07-18 14:22:34>¯(}5    3UUDD 181400Z 18005MPS CAVOK 21/11 Q1005 R88/CLRD70 NOSIGUUDD2019-07-18T14:00:00Z55.437.921.011.0180106.2129.675198TRUEVFRMETAR168.02019-07-18 14:22:34R¯)#5    3UUDL 181400Z 11003MPS 9999 BKN025CB 22/17 Q1004 R23/190055 NOSIG RMK QFE745UUDL2019-07-18T14:00:00Z57.5740.1722.017.011066.2129.64567TRUEMVFRMETAR88.02019-07-18 14:22:34 ¹5^¹N¯ )5   3UERP 181400Z 02003G08MPS CAVOK 11/01 Q1021 R35/090060 NOSIG RMK QFE722UERP2019-07-18T14:00:00Z66.4112.0311.01.0206166.2130.147638TRUEVFRMETAR509.02019-07-18 14:22:34K¯ )5    3UERR 181400Z 05006MPS CAVOK 12/04 Q1015 R07/CLRD60 NOSIG RMK QFE731UERR2019-07-18T14:00:00Z62.53114.0512.04.050126.2129.970472TRUEVFRMETAR347.02019-07-18 14:22:34Q¯ )5    3UOOO 181400Z 10005MPS CAVOK 23/11 Q1017 R01/CLRD60 NOSIG RMK QFE748/0997UOOO2019-07-18T14:00:00Z69.3287.3323.011.0100106.2130.029528TRUEVFRMETAR175.02019-07-18 14:22:34E¯ ) 5    3UUBW 181400Z 19003MPS 9999 SCT040 21/13 Q1004 R30/010060 NOSIGUUBW2019-07-18T14:00:00Z55.5538.1521.013.019066.2129.64567TRUEVFRMETAR115.02019-07-18 14:22:34 DlI¯)5    3USCC 181400Z 25001MPS CAVOK 27/15 Q1010 R09/000060 NOSIG RMK QFE737USCC2019-07-18T14:00:00Z55.361.527.015.025026.2129.822834TRUEVFRSPECI234.02019-07-18 14:22:34R¯)#5    3USNN 181400Z 29003MPS 9999 FEW030CB 23/19 Q1008 R21/0///65 NOSIG RMK QFE751USNN2019-07-18T14:00:00Z60.9576.4823.019.029066.2129.763779TRUEVFRMETAR54.02019-07-18 14:22:34K¯)5    3USRR 181400Z 26005MPS CAVOK 21/14 Q1009 R25/CLRD60 NOSIG RMK QFE752USRR2019-07-18T14:00:00Z61.3373.4221.014.0260106.2129.793306TRUEVFRSPECI44.02019-07-18 14:22:34e¯ )G5    3USSS 181400Z 24002MPS 160V310 CAVOK 27/13 Q1010 R26L/010060 R26R/010060 NOSIG RMK QFE737/0983USSS2019-07-18T14:00:00Z56.7560.8227.013.024046.2129.822834TRUEVFRSPECI233.02019-07-18 14:22:34 š,IxšX¯)-5    3UWOO 181400Z 11005MPS 9999 BKN040CB 31/16 Q1005 R08/CLRD65 NOSIG RMK QFE743/0991UWOO2019-07-18T14:00:00Z51.855.4731.016.0110106.2129.675198TRUEVFRSPECI109.02019-07-18 14:22:34K¯)5    3UWSS 181400Z 35003MPS CAVOK 26/14 Q1008 R30/010095 NOSIG RMK QFE742UWSS2019-07-18T14:00:00Z51.5746.0726.014.035066.2129.763779TRUEVFRSPECI166.02019-07-18 14:22:34]¯)95    3UWWW 181400Z 28004MPS 240V330 9999 SCT033 28/18 Q1005 R33/CLRD60 NOSIG RMK QFE743/0991UWWW2019-07-18T14:00:00Z53.550.1728.018.028086.2129.675198TRUEVFRSPECI146.02019-07-18 14:22:34N¯)5    3UWUU 181400Z 06003MPS 030V100 9999 BKN046 29/18 Q1006 R14R/0///60 NOSIGUWUU2019-07-18T14:00:00Z54.5755.8729.018.06066.2129.704725TRUEVFRSPECI137.02019-07-18 14:22:34 ¤+X¤U¯)#5   3UWKE 181400Z 08007G12MPS CAVOK 26/15 Q1007 R03/090070 NOSIG RMK QFE738/0984UWKE2019-07-18T14:00:00Z55.5752.0826.015.08014236.2129.734253TRUEVFRSPECI196.02019-07-18 14:22:34S¯)#5    3UWKS 181400Z 28004MPS 9999 SCT040CB 24/19 Q1006 R24/010060 NOSIG RMK QFE741UWKS2019-07-18T14:00:00Z56.0847.3524.019.028086.2129.704725TRUEVFRMETAR170.02019-07-18 14:22:34M¯)5    3UWLW 181400Z 27006MPS 8000 NSC 25/17 Q1006 R02/CLRD60 NOSIG RMK QFE747UWLW2019-07-18T14:00:00Z54.448.825.017.0270124.9729.704725TRUEMVFRSPECI66.02019-07-18 14:22:34O¯)5    3UWOR 181400Z 18005MPS CAVOK 36/05 Q1008 R25/CLRD65 NOSIG RMK QFE732/0977UWOR2019-07-18T14:00:00Z51.0758.636.05.0180106.2129.763779TRUEVFRMETAR277.02019-07-18 14:22:34  )P„ ^¯)95    3UUOK 181400Z 25006MPS 220V290 9999 SCT033 22/09 Q1008 R30/CLRD65 NOSIG RMK QFE737/0983UUOK2019-07-18T14:00:00Z51.7536.2822.09.0250126.2129.763779TRUEVFRMETAR209.02019-07-18 14:22:34F¯) 5    3UWGG 181400Z 22002MPS 9999 SCT030 24/16 Q1006 R18L/090070 NOSIGUWGG2019-07-18T14:00:00Z56.2343.7824.016.022046.2129.704725TRUEVFRSPECI73.02019-07-18 14:22:34S¯)#5    3USPP 181400Z 32002MPS 280V350 CAVOK 23/12 Q1010 R21/090060 NOSIG RMK QFE747USPP2019-07-18T14:00:00Z57.9256.0223.012.032046.2129.822834TRUEVFRSPECI123.02019-07-18 14:22:34Q¯)5    3UWKD 181400Z 11007MPS CAVOK 28/14 Q1006 R11/CLRD70 NOSIG RMK QFE744/0992UWKD2019-07-18T14:00:00Z55.6249.2828.014.0110146.2129.704725TRUEVFRSPECI126.02019-07-18 14:22:34 ‚&3‚+¯ (Y5   3SBBU 181400Z 06010KT CAVOK 19/12 Q1026SBBU2019-07-18T14:00:00Z-22.32-49.0719.012.060106.2130.295275VFRMETAR590.02019-07-18 14:22:34m¯)O5     3ULOO 181400Z 31003MPS 270V350 P5000 -SHRA BKN021CB OVC042 18/16 Q1005 R01/090070 NOSIG RMK QFE749ULOO2019-07-18T14:00:00Z57.7828.418.016.031063.1129.675198TRUE-SHRAMVFRMETAR47.02019-07-18 14:22:34q¯)W5     3ULPB 181400Z 12004MPS 080V160 9999 -SHRA FEW016 BKN056CB 17/14 Q1009 R01/290250 NOSIG RMK QFE752/1003ULPB2019-07-18T14:00:00Z61.8834.1517.014.012086.2129.793306TRUE-SHRAVFRMETAR46.02019-07-18 14:22:34]¯)95    3UMKK 181400Z 31005MPS 280V340 9999 SCT018 19/14 Q1013 R24/CLRD60 NOSIG RMK QFE759/1012UMKK2019-07-18T14:00:00Z54.8820.619.014.0310106.2129.911417TRUEVFRMETAR21.02019-07-18 14:22:34 mIŒÜ*m7¯%(s5   3SBAF 181400Z 11007KT 9999 FEW015 OVC050 22/14 Q1029SBAF2019-07-18T14:00:00Z-22.87-43.3722.014.011076.2130.383858VFRMETAR34.02019-07-18 14:22:34,¯$(Y5   3SBAX 181400Z 10011KT CAVOK 19/10 Q1026SBAX2019-07-18T14:00:00Z-19.57-46.9719.010.0100116.2130.295275VFRMETAR998.02019-07-18 14:22:34*¯#(Y5   3SBBH 181400Z 11015KT CAVOK 19/07 Q1028SBBH2019-07-18T14:00:00Z-19.85-43.9519.07.0110156.2130.35433VFRMETAR785.02019-07-18 14:22:347¯"(s5   3SBBI 181400Z 04007KT 9999 BKN011 BKN020 15/11 Q1029SBBI2019-07-18T14:00:00Z-25.4-49.2315.011.04076.2130.383858MVFRMETAR923.02019-07-18 14:22:341¯!(e5   3SBBQ 181400Z 09007KT 9999 BKN015 15/09 Q1031SBBQ2019-07-18T14:00:00Z-21.25-43.7715.09.09076.2130.442913MVFRMETAR1171.02019-07-18 14:22:34 WI™ÚW>¯*(5  3SBIL 181400Z 17015G26KT 9999 FEW020 FEW025TCU 26/17 Q1023SBIL2019-07-18T14:00:00Z-14.8-39.0226.017.017015266.2130.206694VFRMETAR5.02019-07-18 14:22:349¯)(u5   3SBKG 181400Z 18012KT 120V210 9999 BKN029 24/16 Q1020SBKG2019-07-18T14:00:00Z-7.27-35.8724.016.0180126.2130.11811MVFRMETAR560.02019-07-18 14:22:349¯((s5   3SBLE 181400Z 16006KT 9999 SCT020 BKN025 21/16 Q1024SBLE2019-07-18T14:00:00Z-12.48-41.2821.016.016066.2130.236221MVFRMETAR511.02019-07-18 14:22:34*¯'(e5   3SBMS 181400Z 18011KT 9999 FEW030 34/17 Q1016SBMS2019-07-18T14:00:00Z-5.2-37.3734.017.0180116.2130.0VFRMETAR18.02019-07-18 14:22:341¯&(e5   3SBUF 181400Z 12012KT 9999 BKN020 27/17 Q1021SBUF2019-07-18T14:00:00Z-9.4-38.2527.017.0120126.2130.147638MVFRMETAR252.02019-07-18 14:22:34 vQ”ë,v0¯/(e5   3SBCX 181400Z 03010KT 9999 FEW030 14/10 Q1026SBCX2019-07-18T14:00:00Z-29.2-51.1814.010.030106.2130.295275VFRMETAR754.02019-07-18 14:22:349¯.(y5    3SBJV 181400Z 19002KT 4000 BR BKN005 BKN010 16/15 Q1028SBJV2019-07-18T14:00:00Z-26.22-48.816.015.019022.4930.35433BRIFRMETAR4.02019-07-18 14:22:34#¯-(e5   3SBTU 181400Z /////KT 9999 FEW020 ///// Q1018SBTU2019-07-18T14:00:00Z-3.78-49.726.2130.059055VFRSPECI40.02019-07-18 14:22:347¯,({5    3SBUA 181400Z 04002KT 9999 -RA FEW025 BKN080 22/22 Q1016SBUA2019-07-18T14:00:00Z-0.15-66.9822.022.04026.2130.0-RAVFRMETAR79.02019-07-18 14:22:34)¯+(Y5   3SBVH 181400Z 09009KT CAVOK 27/18 Q1020SBVH2019-07-18T14:00:00Z-12.72-60.1227.018.09096.2130.11811VFRMETAR652.02019-07-18 14:22:34 €Oœî=€7¯4(u5   3SBTA 181400Z 04010KT 010V070 9999 FEW030 18/10 Q1028SBTA2019-07-18T14:00:00Z-23.03-45.518.010.040106.2130.35433VFRMETAR586.02019-07-18 14:22:34+¯3(Y5   3SBUL 181400Z 07019KT CAVOK 22/12 Q1025SBUL2019-07-18T14:00:00Z-18.87-48.2222.012.070196.2130.265747VFRMETAR922.02019-07-18 14:22:34(¯2(Y5   3SBYS 181400Z VRB03KT CAVOK 16/08 Q1026SBYS2019-07-18T14:00:00Z-21.97-47.3216.08.0036.2130.295275VFRMETAR598.02019-07-18 14:22:34-¯1(_5  3SBCA 181400Z 06025G35KT CAVOK 16/05 Q1025SBCA2019-07-18T14:00:00Z-25.0-53.516.05.06025356.2130.265747VFRMETAR754.02019-07-18 14:22:34+¯0(Y5   3SBCH 181400Z 10016KT CAVOK 15/07 Q1025SBCH2019-07-18T14:00:00Z-27.13-52.6715.07.0100166.2130.265747VFRMETAR650.02019-07-18 14:22:34 l;Ël*¯9(Y5   3SBMT 181400Z 10010KT CAVOK 17/09 Q1028SBMT2019-07-18T14:00:00Z-23.52-46.6217.09.0100106.2130.35433VFRMETAR722.02019-07-18 14:22:34)¯8(Y5   3SBPR 181400Z 10014KT CAVOK 19/09 Q1028SBPR2019-07-18T14:00:00Z-19.9-43.9819.09.0100146.2130.35433VFRMETAR927.02019-07-18 14:22:34<¯7)5   3SBSC 181400Z 02008KT 9999 FEW025 SCT030 BKN070 21/14 Q1028SBSC2019-07-18T14:00:00Z-22.92-43.7221.014.02086.2130.35433VFRMETAR3.02019-07-18 14:22:34(¯6(Y5   3SBSR 181400Z 09008KT CAVOK 20/10 Q1024SBSR2019-07-18T14:00:00Z-20.8-49.420.010.09086.2130.236221VFRMETAR543.02019-07-18 14:22:34?¯5)5   3SBST 181400Z 13007KT 090V170 9999 SCT040 SCT052 21/16 Q1027SBST2019-07-18T14:00:00Z-23.92-46.2821.016.013076.2130.324802VFRMETAR3.02019-07-18 14:22:34 mQ–×m*¯>(Y5   3SBIP 181400Z 02003KT CAVOK 22/10 Q1027SBIP2019-07-18T14:00:00Z-19.47-42.4822.010.02036.2130.324802VFRMETAR239.02019-07-18 14:22:344¯=(s5   3SBJR 181400Z 03006KT 9999 FEW020 BKN040 22/16 Q1028SBJR2019-07-18T14:00:00Z-22.97-43.3722.016.03066.2130.35433VFRMETAR3.02019-07-18 14:22:349¯<(u5   3SBLS 181400Z 13014KT 100V160 9999 FEW027 18/09 Q1027SBLS2019-07-18T14:00:00Z-19.67-43.8818.09.0130146.2130.324802VFRMETAR852.02019-07-18 14:22:345¯;(s5   3SBME 181400Z 03002KT 9999 BKN020 BKN070 23/15 Q1028SBME2019-07-18T14:00:00Z-22.35-41.7723.015.03026.2130.35433MVFRMETAR2.02019-07-18 14:22:34)¯:(Y5   3SBMK 181400Z 11009KT CAVOK 23/09 Q1025SBMK2019-07-18T14:00:00Z-16.7-43.8223.09.011096.2130.265747VFRMETAR646.02019-07-18 14:22:34 ^B}Ã^.¯C(e5   3SBCO 181400Z VRB02KT 9999 FEW009 16/13 Q1026SBCO2019-07-18T14:00:00Z-29.95-51.1516.013.0026.2130.295275VFRMETAR47.02019-07-18 14:22:34+¯B(Y5   3SBDN 181400Z 10010KT CAVOK 19/09 Q1024SBDN2019-07-18T14:00:00Z-22.18-51.4319.09.0100106.2130.236221VFRMETAR435.02019-07-18 14:22:344¯A(s5   3SBES 181400Z VRB02KT 9999 SCT020 BKN030 20/15 Q1028SBES2019-07-18T14:00:00Z-22.82-42.120.015.0026.2130.35433MVFRMETAR11.02019-07-18 14:22:34?¯@(}5    3SBFS 181400Z 13006KT 9999 VCSH FEW015 BKN020 21/16 Q1028SBFS2019-07-18T14:00:00Z-22.02-41.0721.016.013066.2130.35433VCSHMVFRMETAR3.02019-07-18 14:22:348¯?(u5   3SBGW 181400Z 06007KT 010V130 8000 FEW015 18/11 Q1029SBGW2019-07-18T14:00:00Z-22.77-45.218.011.06074.9730.383858MVFRMETAR533.02019-07-18 14:22:34 ‡]©õC‡6¯H(w5   3FYRU 181400Z AUTO 11007KT //// // ////// 26/M00 Q1024FYRU2019-07-18T14:00:00Z-17.9519.7226.00.0110730.236221TRUEMETAR1100.02019-07-18 14:22:34,¯G(i5   3HKKI 181400Z 22009KT 9999 FEW026CB 26/16 Q1016HKKI2019-07-18T14:00:00Z-0.134.7526.016.022096.2130.0VFRMETAR1146.02019-07-18 14:22:34.¯F(e5   3HKNW 181400Z 07005KT 9999 SCT025 23/09 Q1021HKNW2019-07-18T14:00:00Z-1.3236.8223.09.07056.2130.147638VFRMETAR1679.02019-07-18 14:22:34.¯E(e5   3FNUG 181400Z 27006KT 8000 FEW022 30/16 Q1012FNUG2019-07-18T14:00:00Z-7.615.2830.016.027064.9729.88189MVFRMETAR829.02019-07-18 14:22:34¯D(e5    3FNSO 181400Z 22005KT 7000 SCT014 ///// Q////FNSO2019-07-18T14:00:00Z-6.1312.3722054.35MVFRMETAR5.02019-07-18 14:22:34 CD~±ôC+¯M(Y5   3SBMG 181400Z 08013KT CAVOK 20/10 Q1023SBMG2019-07-18T14:00:00Z-23.48-52.0220.010.080136.2130.206694VFRMETAR542.02019-07-18 14:22:347¯L(u5   3SBSM 181400Z 12005KT 090V150 9999 SCT003 12/12 Q1024SBSM2019-07-18T14:00:00Z-29.72-53.712.012.012056.2130.236221VFRMETAR85.02019-07-18 14:22:34G¯K(5   3KGZN 181400Z AUTO 19012G19KT 10SM CLR 26/21 A3002 RMK AO2KGZN2019-07-18T14:00:00Z32.37-99.0226.021.0190121910.030.02067TRUETRUEVFRMETAR522.02019-07-18 14:22:34@¯J(w5    3KJSL 181400Z AUTO 12010KT 8SM CLR 30/24 A3009 RMK A01KJSL2019-07-18T14:00:00Z26.23-95.2530.024.0120108.030.088583TRUETRUEVFRMETAR10.02019-07-18 14:22:346¯I(s5   3NFNA 181400Z 07003KT 9999 BKN016 OVC045 23/23 Q1013NFNA2019-07-18T14:00:00Z-18.05178.5723.023.07036.2129.911417MVFRMETAR5.02019-07-18 14:22:34 êAÂêR¯Q)5     3VOCB 181400Z 20010KT 5000 BR FEW010 SCT015 FEW020TCU 25/22 Q1006 NOSIGVOCB2019-07-18T14:00:00Z11.0277.0325.022.0200103.1129.704725TRUEBRMVFRMETAR399.02019-07-18 14:22:349¯P(q5    3SCVD 181400Z 02005KT 9999 -SHRA BKN027 07/07 Q1026SCVD2019-07-18T14:00:00Z-39.65-73.077.07.02056.2130.295275-SHRAMVFRMETAR14.02019-07-18 14:22:34:¯O(q5    3HSSS 181400Z 22010KT 9999 FEW050 36/17 Q1009 NOSIGHSSS2019-07-18T14:00:00Z15.5832.5336.017.0220106.2129.793306TRUEVFRMETAR380.02019-07-18 14:22:349¯N(q5     3VAAH 181400Z 19005KT 4000 FU NSC 34/23 Q1000 NOSIGVAAH2019-07-18T14:00:00Z23.0772.6234.023.019052.4929.52756TRUEFUIFRMETAR55.02019-07-18 14:22:34 ûKÒ5¯V(w5   3FYKM 181400Z AUTO 09007KT //// // ////// 25/M01 Q1021FYKM2019-07-18T14:00:00Z-17.6324.1825.0-1.090730.147638TRUEMETAR958.02019-07-18 14:22:348¯U(w5   3FYKT 181400Z AUTO 23003KT //// // ////// 27/M11 Q1036FYKT2019-07-18T14:00:00Z-26.5218.1227.0-11.0230330.590551TRUEMETAR1061.02019-07-18 14:22:345¯T(u5   3FYLZ 181400Z AUTO 20012KT //// // ////// 22/06 Q1019FYLZ2019-07-18T14:00:00Z-26.6715.2522.06.02001230.088583TRUEMETAR130.02019-07-18 14:22:34*¯S([5   3FYOA 181400Z 09007KT CAVOK 30/M00 Q1019FYOA2019-07-18T14:00:00Z-17.8815.9730.00.09076.2130.088583VFRMETAR1095.02019-07-18 14:22:34¯R)u5   3CYKY 181400Z 24005KT 15SM FEW100 FEW140 FEW260 14/12 A2949 RMK AC1AC1CI1 AC TR AC TR CI TR SLP986 DENSITY ALT 3200FTCYKY2019-07-18T14:00:00Z51.52-109.1714.012.0240515.029.489174998.6VFRMETAR694.02019-07-18 14:22:34 <EwÃ<S¯[)'5    3UUYY 181400Z 01002MPS 300V040 CAVOK 21/09 Q1013 R36/61D NOSIG RMK QFE750/1001UUYY2019-07-18T14:00:00Z61.6550.8221.09.01046.2129.911417TRUEVFRSPECI119.02019-07-18 14:22:34(¯Z(Y5   3HETR 181400Z 31019KT CAVOK 34/22 Q1004HETR2019-07-18T14:00:00Z28.2233.6534.022.0310196.2129.64567VFRMETAR35.02019-07-18 14:22:34.¯Y(e5   3HEIS 181400Z 35012KT 9999 FEW025 35/18 Q1007HEIS2019-07-18T14:00:00Z30.5832.2535.018.0350126.2129.734253VFRMETAR3.02019-07-18 14:22:34H¯X) 5    3URFF 181400Z 19002MPS 9999 SCT040CB 24/14 Q1011 R01/090095 NOSIGURFF2019-07-18T14:00:00Z45.0333.9824.014.019046.2129.852362TRUEVFRMETAR188.02019-07-18 14:22:345¯W(w5   3FYGB 181400Z AUTO 07004KT //// // ////// 26/M07 Q1025FYGB2019-07-18T14:00:00Z-22.518.9726.0-7.070430.265747TRUEMETAR1442.02019-07-18 14:22:34 J"f«úJ*¯`([5   3FYWB 181400Z 25012KT CAVOK 36/M00 Q1018FYWB2019-07-18T14:00:00Z-22.9814.6536.00.0250126.2130.059055VFRMETAR46.02019-07-18 14:22:34+¯_([5   3FYWE 181400Z VRB02KT CAVOK 25/M11 Q1027FYWE2019-07-18T14:00:00Z-22.6217.0825.0-11.0026.2130.324802VFRMETAR1700.02019-07-18 14:22:345¯^(g5    3FYWH 181400Z 00000KT CAVOK 24/M10 Q1027 NOSIGFYWH2019-07-18T14:00:00Z-22.4717.4724.0-10.0006.2130.324802TRUEVFRMETAR1700.02019-07-18 14:22:346¯](w5   3FYWW 181400Z AUTO 05003KT //// // ////// 26/M12 Q1026FYWW2019-07-18T14:00:00Z-22.5717.126.0-12.050330.295275TRUEMETAR1725.02019-07-18 14:22:34X¯\)/5    3UUOO 181400Z 22003MPS 190V260 9999 BKN040 24/07 Q1007 R30/090070 NOSIG RMK QFE742UUOO2019-07-18T14:00:00Z51.8239.2324.07.022066.2129.734253TRUEVFRSPECI157.02019-07-18 14:22:34 UR•×U?¯e(5    3VTBS 181400Z 20012KT 9999 FEW020 SCT100 30/25 Q1004 NOSIGVTBS2019-07-18T14:00:00Z13.68100.7530.025.0200126.2129.64567TRUEVFRMETAR2.02019-07-18 14:22:347¯d(q5    3VTBU 181400Z 23009KT 9999 FEW020 29/24 Q1005 NOSIGVTBU2019-07-18T14:00:00Z12.68101.029.024.023096.2129.675198TRUEVFRMETAR5.02019-07-18 14:22:348¯c(q5    3VTCC 181400Z 23007KT 9999 SCT035 33/22 Q1004 NOSIGVTCC2019-07-18T14:00:00Z18.7798.9733.022.023076.2129.64567TRUEVFRMETAR314.02019-07-18 14:22:347¯b(w5   3FYOW 181400Z AUTO 10003KT //// // ////// 25/M06 Q1022FYOW2019-07-18T14:00:00Z-20.4316.6725.0-6.0100330.177166TRUEMETAR1481.02019-07-18 14:22:34(¯a(Y5   3FYRN 181400Z 09008KT CAVOK 26/02 Q1022FYRN2019-07-18T14:00:00Z-20.0213.8526.02.09086.2130.177166VFRMETAR756.02019-07-18 14:22:34 7Cƒºý7@¯j)5   3FQNP 181400Z 17004KT 9999 FEW010 BKN020 BKN100 20/18 Q1021FQNP2019-07-18T14:00:00Z-15.0839.2720.018.017046.2130.147638MVFRMETAR441.02019-07-18 14:22:347¯i(q5    3GABS 181400Z VRB05KT 9999 SCT020 31/22 Q1015 NOSIGGABS2019-07-18T14:00:00Z12.52-7.9531.022.0056.2129.970472TRUEVFRMETAR381.02019-07-18 14:22:34C¯h) 5   3GFLL 181400Z 33004KT 9000 BKN010 FEW027CB 27/24 Q1014 RMK-CB-NEGFLL2019-07-18T14:00:00Z8.62-13.1827.024.033045.5929.940945MVFRSPECI27.02019-07-18 14:22:34:¯g(q5    3GGOV 181400Z 35007KT 9999 BKN014 30/24 Q1014 NOSIGGGOV2019-07-18T14:00:00Z11.87-15.6530.024.035076.2129.940945TRUEMVFRMETAR36.02019-07-18 14:22:347¯f(q5    3DIAP 181400Z 24011KT 9000 FEW012 28/23 Q1014 NOSIGDIAP2019-07-18T14:00:00Z5.25-3.9228.023.0240115.5929.940945TRUEVFRMETAR8.02019-07-18 14:22:34 ã&g£ã:¯n(q5    3VTUQ 181400Z 20007KT 9000 FEW030 30/24 Q1005 NOSIGVTUQ2019-07-18T14:00:00Z14.95102.3230.024.020075.5929.675198TRUEVFRMETAR234.02019-07-18 14:22:34>¯m({5    3VTUU 181400Z 18003KT 100V230 9000 NSC 30/25 Q1004 NOSIGVTUU2019-07-18T14:00:00Z15.25104.8730.025.018035.5929.64567TRUEVFRMETAR127.02019-07-18 14:22:349¯l(q5    3VTUV 181400Z 16006KT 9000 FEW025 30/24 Q1004 NOSIGVTUV2019-07-18T14:00:00Z16.12103.7830.024.016065.5929.64567TRUEVFRMETAR138.02019-07-18 14:22:34T¯k)%5    3UEEE 181400Z 33003MPS 9999 FEW050CB 10/03 Q1006 R23L/09//60 NOSIG RMK QFE746UEEE2019-07-18T14:00:00Z62.08129.7710.03.033066.2129.704725TRUEVFRMETAR103.02019-07-18 14:22:34 ÙWÙ>¯r(5    3VTSS 181400Z 06002KT 9999 FEW020 BKN100 26/24 Q1008 NOSIGVTSS2019-07-18T14:00:00Z6.92100.3826.024.06026.2129.763779TRUEVFRMETAR35.02019-07-18 14:22:344¯q(e5    3VTUD 181400Z 15004KT CAVOK 32/25 Q1003 NOSIGVTUD2019-07-18T14:00:00Z17.37102.7832.025.015046.2129.616142TRUEVFRMETAR182.02019-07-18 14:22:349¯p(q5    3VTUI 181400Z 16003KT 9999 FEW040 31/27 Q1003 NOSIGVTUI2019-07-18T14:00:00Z17.2104.1231.027.016036.2129.616142TRUEVFRMETAR172.02019-07-18 14:22:34d¯o)75     3VTUK 181400Z 35004KT 290V090 9000 -TSRA FEW018CB BKN030 BKN080 26/25 Q1003 RERA NOSIGVTUK2019-07-18T14:00:00Z16.47102.7826.025.035045.5929.616142TRUE-TSRAMVFRMETAR204.02019-07-18 14:22:34 _5a“_‚.¯v)‚I5  3CYJF 181400Z 05011G20KT 020V090 15SM FEW020 FEW096 SCT140 BKN240 16/14 A2959 RMK CF1AC1AC2CI2 CF TR FU/R00 AFT 00UTC 2.6/SNW CVR/NIL SLP025 DENSITY ALT 1400FTCYJF2019-07-18T14:00:00Z60.22-123.4716.014.050112015.029.589567BKN24000VFRMETAR215.02019-07-18 14:22:34H¯u) 5     3VTCT 181400Z 20003KT 9999 TS FEW030CB SCT035 31/23 Q1003 NOSIGVTCT2019-07-18T14:00:00Z19.9599.8831.023.020036.2129.616142TRUETSVFRMETAR390.02019-07-18 14:22:34N¯t)5     3VTSG 181400Z 17004KT 120V210 8000 -RA BKN020 BKN100 24/24 Q1009 NOSIGVTSG2019-07-18T14:00:00Z8.198.9824.024.017044.9729.793306TRUE-RAMVFRMETAR25.02019-07-18 14:22:34E¯s)5     3VTSP 181400Z VRB02KT 8000 -DZ SCT020 BKN100 25/23 Q1009 NOSIGVTSP2019-07-18T14:00:00Z8.1298.3225.023.0024.9729.793306TRUE-DZMVFRMETAR10.02019-07-18 14:22:34 6<.6r¯z)U5  3CYWH 181400Z 25014G21KT 15SM FEW012 FEW030 FEW070 14/11 A2999 RMK CF1CU1AC1 CF TR CU TR AC TR SLP158CYWH2019-07-18T14:00:00Z48.42-123.3814.011.0250142115.029.9911421015.8VFRMETAR10.02019-07-18 14:22:34‚¯y)q5   3CYBD 181400Z 30007KT 260V320 8SM -SHRA FEW012 FEW036 BKN054TCU OVC070 11/10 A2991 RMK SC1SC1TCU4AC2 VIS E 4 SLP129CYBD2019-07-18T14:00:00Z52.37-126.5711.010.030078.029.9114171012.9-SHRAOVC7000VFRMETAR35.02019-07-18 14:22:34M¯x)5   3CYHK 181400Z 35018KT 15SM FEW070 10/07 A2956 RMK AC2 VIA CYHZ SLP016CYHK2019-07-18T14:00:00Z68.62-95.8310.07.03501815.029.560041001.6VFRMETAR46.02019-07-18 14:22:34k¯w)M5   3CYHY 181400Z 06004KT 020V100 15SM FEW060 FEW100 15/13 A2957 RMK SC1AC1 SLP018 DENSITY ALT 1100FTCYHY2019-07-18T14:00:00Z60.82-115.7715.013.060415.029.5688971001.8VFRMETAR166.02019-07-18 14:22:34 xDã(x*¯(e5   3DAFH 181400Z 14008KT 9999 BKN030 35/12 Q1016DAFH2019-07-18T14:00:00Z32.933.3235.012.014086.2130.0MVFRMETAR774.02019-07-18 14:22:345¯~(u5   3DAOV 181400Z 35007KT 280V050 9999 FEW030 34/10 Q1015DAOV2019-07-18T14:00:00Z35.20.1534.010.035076.2129.970472VFRMETAR514.02019-07-18 14:22:34'¯}(Y5   3DAOF 181400Z 29008KT CAVOK 38/03 Q1008DAOF2019-07-18T14:00:00Z27.7-8.1738.03.029086.2129.763779VFRMETAR431.02019-07-18 14:22:34.¯|(_5   3DAOL 181400Z 35018KT 8000 NSC 31/14 Q1013DAOL2019-07-18T14:00:00Z35.53-0.5231.014.0350184.9729.911417MVFRMETAR112.02019-07-18 14:22:346¯{(i5    3DAOR 181400Z 12011KT 1500 BLDU NSC 38/04 Q1011DAOR2019-07-18T14:00:00Z31.65-2.2738.04.0120110.9329.852362BLDULIFRMETAR773.02019-07-18 14:22:34 hP£ç,h>¯Ž(w5     3VLVT 181400Z 09002KT 4000 BR FEW050 30/27 Q1002 NOSIGVLVT2019-07-18T14:00:00Z17.98102.5730.027.09022.4929.586615TRUEBRIFRMETAR171.02019-07-18 14:22:345¯Ž(s5   3VDSR 181400Z 19004KT 9000 SCT015 SCT040 28/25 Q1004VDSR2019-07-18T14:00:00Z13.42103.8328.025.019045.5929.64567VFRMETAR15.02019-07-18 14:22:346¯Ž(s5   3VDPP 181400Z 23007KT 9000 SCT017 SCT040 30/24 Q1005VDPP2019-07-18T14:00:00Z11.55104.8330.024.023075.5929.675198VFRMETAR10.02019-07-18 14:22:34'¯Ž(Y5   3DAAP 181400Z 04012KT CAVOK 43/09 Q1010DAAP2019-07-18T14:00:00Z26.728.6243.09.040126.2129.822834VFRMETAR558.02019-07-18 14:22:34*¯Ž(Y5   3DAAY 181400Z 16014KT CAVOK 37/16 Q1020DAAY2019-07-18T14:00:00Z33.53-0.2537.016.0160146.2130.11811VFRMETAR1149.02019-07-18 14:22:34 2=€¼2H¯Ž )5    3VYYY 181400Z 21004KT 7000 SCT016 FEW020CB BKN100 29/25 Q1004 NOSIGVYYY2019-07-18T14:00:00Z16.996.1329.025.021044.3529.64567TRUEMVFRMETAR33.02019-07-18 14:22:346¯Ž(s5   3GOOY 181400Z 28010KT 9999 FEW015 SCT013 29/24 Q1015GOOY2019-07-18T14:00:00Z14.72-17.529.024.0280106.2129.970472VFRMETAR24.02019-07-18 14:22:34>¯Ž)5   3GOSS 181400Z 28014KT 9999 FEW010 SCT130 BKN230 29/22 Q1014GOSS2019-07-18T14:00:00Z16.05-16.4329.022.0280146.2129.940945VFRMETAR4.02019-07-18 14:22:347¯Ž(s5   3GOTT 181400Z 26010KT 9999 BKN016 SCT230 32/26 Q1012GOTT2019-07-18T14:00:00Z13.73-13.6532.026.0260106.2129.88189MVFRMETAR50.02019-07-18 14:22:34=¯Ž)5   3VDSV 181400Z VRB02KT 9000 SCT015 FEW017CB 28/26 Q1006 CB:SWVDSV2019-07-18T14:00:00Z10.58103.6328.026.0025.5929.704725VFRMETAR10.02019-07-18 14:22:34 D0rµìD"¯Ž(m5    3LOAN 181400Z 15007KT 28KM FEW040CB SCT060CU RETSLOAN2019-07-18T14:00:00Z47.8516.25150717.4VFRMETAR272.02019-07-18 14:22:34C¯Ž )5    3VVCT 181400Z 20003KT 9999 FEW015TCU SCT040 27/25 Q1007 NOSIGVVCT2019-07-18T14:00:00Z10.08105.7227.025.020036.2129.734253TRUEVFRMETAR3.02019-07-18 14:22:347¯Ž (q5    3VVCI 181400Z 14005KT 9999 FEW018 31/28 Q1000 NOSIGVVCI2019-07-18T14:00:00Z20.82106.7331.028.014056.2129.52756TRUEVFRMETAR3.02019-07-18 14:22:348¯Ž (q5    3VVCR 181400Z 12002KT 9999 FEW015 30/25 Q1005 NOSIGVVCR2019-07-18T14:00:00Z12.0109.2230.025.012026.2129.675198TRUEVFRMETAR12.02019-07-18 14:22:34J¯Ž )5    3VYNT 181400Z 17006KT 6000 SCT020 FEW025TCU FEW110 29/25 Q1004 NOSIGVYNT2019-07-18T14:00:00Z19.6296.229.025.017063.7329.64567TRUEMVFRMETAR610.02019-07-18 14:22:34 Ð7U‹Ð5¯Ž(y5    3CWEK 181400Z AUTO 13/12 RMK AO1 SLP103 T01300115 51014CWEK2019-07-18T14:00:00Z54.58-130.713.011.51010.3TRUETRUE1.4METAR8.02019-07-18 14:22:34D¯Ž) 5    3CWWL 181400Z AUTO 26010KT 13/11 RMK AO1 SLP114 T01250111 51009CWWL2019-07-18T14:00:00Z53.5-130.6312.511.1260101011.4TRUETRUE0.9METAR17.02019-07-18 14:22:34\¯Ž)15     3CWQS 181400Z AUTO 24007KT 13/12 RMK AO1 2PAST HR 1002 SLP116 P0005 T01280117 50012CWQS2019-07-18T14:00:00Z53.32-132.7712.811.724071011.6TRUETRUE1.20.05METAR14.02019-07-18 14:22:34C¯Ž) 5    3CXTN 181400Z AUTO 22004KT 13/08 RMK AO1 SLP100 T01310078 51008CXTN2019-07-18T14:00:00Z69.2-122.3513.17.822041010.0TRUETRUE0.8METAR552.02019-07-18 14:22:34 6q¦Ø:¯Ž(}5     3CWXC 181400Z AUTO 36001KT 19/ RMK AO1 SLP170 T0186 58003CWXC2019-07-18T14:00:00Z48.88-71.0318.636011017.0TRUETRUE-0.3METAR300.02019-07-18 14:22:34H¯Ž)5    3CXDK 181400Z AUTO 00000KT 13/13 RMK AO1 1009 SLP057 T01340128 50001CXDK2019-07-18T14:00:00Z61.27-124.4713.412.8001005.7TRUETRUE0.1METAR283.02019-07-18 14:22:34E¯Ž) 5    3CXYH 181400Z AUTO 35001KT 15/14 RMK AO1 SLP041 T01460141 53011CXYH2019-07-18T14:00:00Z61.25-123.7514.614.135011004.1TRUETRUE1.1METAR204.02019-07-18 14:22:34?¯Ž)5  3CWFJ 181400Z AUTO 03005KT 14/07 RMK AO1 PK WND 26018/1303 T01360069CWFJ2019-07-18T14:00:00Z49.2-113.2713.66.9305TRUETRUEMETAR1136.02019-07-18 14:22:34D¯Ž) 5    3CWDC 181400Z AUTO 06001KT 20/12 RMK AO1 SLP007 T01970118 53002CWDC2019-07-18T14:00:00Z59.57-108.4719.711.86011000.7TRUETRUE0.2METAR318.02019-07-18 14:22:34 MƒÄe¯Ž)=5     3VVPQ 181400Z 21008KT 160V260 6000 -SHRA SCT015 FEW017CB BKN040 26/24 Q1006 NOSIG CB/S/SWVVPQ2019-07-18T14:00:00Z10.23103.9726.024.021083.7329.704725TRUE-SHRAMVFRMETAR4.02019-07-18 14:22:34>¯Ž(5    3VVPB 181400Z 07003KT 9999 FEW020 SCT060 31/27 Q1003 NOSIGVVPB2019-07-18T14:00:00Z16.38107.731.027.07036.2129.616142TRUEVFRMETAR17.02019-07-18 14:22:349¯Ž(u5    3VVNB 181400Z 14008KT 110V180 CAVOK 32/27 Q1000 NOSIGVVNB2019-07-18T14:00:00Z21.22105.832.027.014086.2129.52756TRUEVFRMETAR12.02019-07-18 14:22:34D¯Ž)5   3WMKM 181400Z 11006KT 050V170 9999 FEW027 SCT140 BKN270 28/24 Q1008WMKM2019-07-18T14:00:00Z2.27102.2528.024.011066.2129.763779VFRMETAR9.02019-07-18 14:22:34-¯Ž(o5  3CWDZ 181400Z AUTO 13003KT 13/09 RMK AO1 T01280094CWDZ2019-07-18T14:00:00Z51.42-112.6712.89.41303TRUETRUEMETAR678.02019-07-18 14:22:34 H9x·H3¯Ž!(e5    3OEAH 181400Z 29014KT CAVOK 43/02 Q0998 NOSIGOEAH2019-07-18T14:00:00Z25.2749.4743.02.0290146.2129.468504TRUEVFRMETAR172.02019-07-18 14:22:340¯Ž (g5   3OEAO 181400Z 19008KT 9999 SCT040 42/M03 Q1010OEAO2019-07-18T14:00:00Z26.4838.1242.0-3.019086.2129.822834VFRMETAR624.02019-07-18 14:22:34;¯Ž(q5    3OEAB 181400Z 18006KT 7000 SCT020 25/12 Q1021 NOSIGOEAB2019-07-18T14:00:00Z18.2242.6325.012.018064.3530.147638TRUEMVFRMETAR2084.02019-07-18 14:22:34;¯Ž(5    3VVDN 181400Z VRB02KT 9999 FEW015 BKN060 31/27 Q1004 NOSIGVVDN2019-07-18T14:00:00Z16.02108.231.027.0026.2129.64567TRUEVFRMETAR7.02019-07-18 14:22:34A¯Ž(5    3VVTS 181400Z 23011KT 9999 FEW017 SCT050 28/25 Q1006 NOSIGVVTS2019-07-18T14:00:00Z10.82106.6728.025.0230116.2129.704725TRUEVFRMETAR19.02019-07-18 14:22:34 CA‚³ûC2¯Ž&(e5    3OEJN 181400Z 29008KT CAVOK 37/14 Q1003 NOSIGOEJN2019-07-18T14:00:00Z21.6839.1537.014.029086.2129.616142TRUEVFRMETAR15.02019-07-18 14:22:342¯Ž%(g5   3OEDM 181400Z 33020KT 6000 SCT040 38/M01 Q1008OEDM2019-07-18T14:00:00Z24.4544.1238.0-1.0330203.7329.763779MVFRMETAR922.02019-07-18 14:22:34I¯Ž$)5    3OEGN 181400Z 28019KT 260V330 8000 SCT030 SCT100 35/26 Q1003 NOSIGOEGN2019-07-18T14:00:00Z16.8842.5735.026.0280194.9729.616142TRUEMVFRMETAR3.02019-07-18 14:22:349¯Ž#(q5    3OEBA 181400Z 06014KT 9999 BKN030 34/07 Q1015 NOSIGOEBA2019-07-18T14:00:00Z20.341.6234.07.060146.2129.970472TRUEMVFRMETAR1656.02019-07-18 14:22:349¯Ž"(q5    3OEBH 181400Z 03010KT 9999 SCT030 38/04 Q1010 NOSIGOEBH2019-07-18T14:00:00Z19.9742.6238.04.030106.2129.822834TRUEVFRMETAR1157.02019-07-18 14:22:34 #L…Ë#l¯Ž+)S5   3CYYJ 181400Z 33004KT 300V360 30SM FEW015 FEW060 FEW080 15/08 A2998 RMK CF1SC1AC1 CF TR SC TR SLP154CYYJ2019-07-18T14:00:00Z48.63-123.4215.08.0330430.029.979331015.4VFRSPECI19.02019-07-18 14:22:340¯Ž*(e5   3OEGS 181400Z 35017KT 7000 SCT040 41/10 Q1006OEGS2019-07-18T14:00:00Z26.343.7741.010.0350174.3529.704725MVFRMETAR650.02019-07-18 14:22:344¯Ž)(e5    3OEGT 181400Z 28016KT CAVOK 38/10 Q1005 NOSIGOEGT2019-07-18T14:00:00Z31.4237.2738.010.0280166.2129.675198TRUEVFRMETAR499.02019-07-18 14:22:34A¯Ž((5    3OEHL 181400Z 33016KT 9999 FEW040 SCT100 39/07 Q1011 NOSIGOEHL2019-07-18T14:00:00Z27.4241.6739.07.0330166.2129.852362TRUEVFRMETAR1013.02019-07-18 14:22:34.¯Ž'(e5    3OEJB 181400Z VRB03KT CAVOK 42/06 Q0996 NOSIGOEJB2019-07-18T14:00:00Z27.0549.3842.06.0036.2129.409449TRUEVFRMETAR8.02019-07-18 14:22:34 ;@ƒÊ;F¯Ž0)5     3VIDP 181400Z 23004KT 3500 HZ SCT040 BKN100 30/24 Q1001 NOSIGVIDP2019-07-18T14:00:00Z28.5777.1230.024.023042.1729.557087TRUEHZIFRMETAR233.02019-07-18 14:22:34=¯Ž/(w5     3VOHS 181400Z 23004KT 6000 HZ SCT015 29/23 Q1005 NOSIGVOHS2019-07-18T14:00:00Z17.2378.4329.023.023043.7329.675198TRUEHZMVFRMETAR1.02019-07-18 14:22:343¯Ž.(k5    3VABV 181400Z 19012KT 5000 FU FEW025 32/25 Q1000VABV2019-07-18T14:00:00Z21.7572.232.025.0190123.1129.52756FUMVFRMETAR11.02019-07-18 14:22:347¯Ž-(s5   3VOBG 181400Z 28006KT 8000 SCT012 SCT080 26/19 Q1008VOBG2019-07-18T14:00:00Z12.9577.6326.019.028064.9729.763779MVFRMETAR897.02019-07-18 14:22:34:¯Ž,(q5    3VABP 181400Z 27003KT 6000 FEW025 34/20 Q1003 NOSIGVABP2019-07-18T14:00:00Z23.2777.3334.020.027033.7329.616142TRUEMVFRMETAR523.02019-07-18 14:22:34 Ò6v¸Ò`¯Ž4)35    3CYXR 181400Z AUTO 14008KT 110V170 9SM CLR 22/14 A2993 RMK SLP138 DENSITY ALT 1700FTCYXR2019-07-18T14:00:00Z47.7-79.8322.014.014089.029.9291341013.8TRUEVFRMETAR243.02019-07-18 14:22:348¯Ž3(q5    3VASU 181400Z 20005KT 6000 FEW020 30/25 Q1002 NOSIGVASU2019-07-18T14:00:00Z21.1272.7330.025.020053.7329.586615TRUEMVFRMETAR5.02019-07-18 14:22:34:¯Ž2(q5    3VOHY 181400Z 25002KT 6000 SCT015 32/24 Q1005 NOSIGVOHY2019-07-18T14:00:00Z17.4578.4532.024.025023.7329.675198TRUEMVFRMETAR545.02019-07-18 14:22:34D¯Ž1)5     3VERC 181400Z 04002KT 3000 HZ SCT018 BKN100 28/23 Q1004 NOSIGVERC2019-07-18T14:00:00Z23.3285.3228.023.04021.8629.64567TRUEHZIFRMETAR652.02019-07-18 14:22:34 Æ\¯Æc¯Ž8)95    3CYQD 181400Z AUTO 06005KT 030V130 9SM OVC005 16/15 A2951 RMK SLP998 DENSITY ALT 1700FTCYQD2019-07-18T14:00:00Z53.97-101.0816.015.06059.029.509842999.8TRUEIFRMETAR271.02019-07-18 14:22:34'¯Ž7(Y5   3FQIN 181400Z 05008KT CAVOK 25/15 Q1020FQIN2019-07-18T14:00:00Z-23.8735.3725.015.05086.2130.11811VFRMETAR15.02019-07-18 14:22:347¯Ž6(q5    3WAJJ 181400Z 00000KT 9999 FEW013 25/22 Q1009 NOSIGWAJJ2019-07-18T14:00:00Z-2.58140.5225.022.0006.2129.793306TRUEVFRMETAR88.02019-07-18 14:22:34a¯Ž5)35    3CYDN 181400Z AUTO 34007KT 290V360 9SM CLR 19/16 A2953 RMK SLP002 DENSITY ALT 2100FTCYDN2019-07-18T14:00:00Z51.1-100.0319.016.034079.029.5305121000.2TRUEVFRMETAR305.02019-07-18 14:22:34 g;ƒÒ#g6¯Ž=(s5    3OETF 181400Z 04009KT 9999 BKN030 35/M04 Q1016 NOSIGOETF2019-07-18T14:00:00Z21.4740.5335.0-4.04096.2130.0TRUEMVFRMETAR1449.02019-07-18 14:22:34)¯Ž<(Y5   3OETR 181400Z 27014KT CAVOK 36/14 Q1009OETR2019-07-18T14:00:00Z31.738.7336.014.0270146.2129.793306VFRMETAR855.02019-07-18 14:22:34+¯Ž;(e5   3OEWD 181400Z 00000KT 9999 SCT040 41/12 Q1003OEWD2019-07-18T14:00:00Z20.545.241.012.0006.2129.616142VFRMETAR617.02019-07-18 14:22:342¯Ž:(e5    3OEWJ 181400Z 27008KT CAVOK 34/29 Q1003 NOSIGOEWJ2019-07-18T14:00:00Z26.1836.4734.029.027086.2129.616142TRUEVFRMETAR16.02019-07-18 14:22:34?¯Ž9(5    3OEYN 181400Z 27016KT 9999 FEW040 SCT100 39/22 Q1001 NOSIGOEYN2019-07-18T14:00:00Z24.1338.0739.022.0270166.2129.557087TRUEVFRMETAR8.02019-07-18 14:22:34 iA“×i(¯ŽB(Y5   3OERF 181400Z 33017KT CAVOK 44/03 Q1004OERF2019-07-18T14:00:00Z29.6243.4744.03.0330176.2129.64567VFRMETAR447.02019-07-18 14:22:34:¯ŽA(q5    3OERR 181400Z 22006KT 6000 SCT040 40/13 Q1005 NOSIGOERR2019-07-18T14:00:00Z30.8841.1240.013.022063.7329.675198TRUEMVFRMETAR552.02019-07-18 14:22:346¯Ž@(q5    3OESH 181400Z 01004KT 9999 SCT040 40/08 Q1004 NOSIGOESH2019-07-18T14:00:00Z17.4747.1240.08.01046.2129.64567TRUEVFRMETAR722.02019-07-18 14:22:34(¯Ž?(Y5   3OESK 181400Z 31013KT CAVOK 42/03 Q1009OESK2019-07-18T14:00:00Z29.7740.142.03.0310136.2129.793306VFRMETAR684.02019-07-18 14:22:349¯Ž>(q5    3OETB 181400Z 26016KT 9999 SCT040 42/00 Q1009 NOSIGOETB2019-07-18T14:00:00Z28.3736.6242.00.0260166.2129.793306TRUEVFRMETAR770.02019-07-18 14:22:34 D:tÇD9¯ŽG({5   3NIUE 181400Z AUTO 13006KT //// // ///////// 22/22 Q1013NIUE2019-07-18T14:00:00Z-19.07-169.9222.022.0130629.911417TRUEMETAR20.02019-07-18 14:22:34>¯ŽF(w5     3OEKM 181400Z 22010KT 5000 DU SCT022 31/07 Q1020 NOSIGOEKM2019-07-18T14:00:00Z18.342.7831.07.0220103.1130.11811TRUEDUMVFRMETAR2054.02019-07-18 14:22:34'¯ŽE(Y5   3OEMK 181400Z 36014KT CAVOK 40/00 Q1004OEMK2019-07-18T14:00:00Z21.4340.040.00.0360146.2129.64567VFRMETAR369.02019-07-18 14:22:34@¯ŽD(5    3OENG 181400Z 35009KT 9999 SCT030 SCT090 36/06 Q1009 NOSIGOENG2019-07-18T14:00:00Z17.6244.4236.06.035096.2129.793306TRUEVFRMETAR1203.02019-07-18 14:22:34@¯ŽC(u5     3OEPA 181400Z 36015KT 5000 BLDU SKC 44/07 Q1001 NOSIGOEPA2019-07-18T14:00:00Z28.3246.1244.07.0360153.1129.557087TRUEBLDUMVFRMETAR355.02019-07-18 14:22:34 >JyÄ >E¯ŽL) 5    3CWGD 181400Z AUTO 17007KT 25/21 RMK AO1 SLP133 T02490207 55002CWGD2019-07-18T14:00:00Z43.77-81.7224.920.717071013.3TRUETRUE-0.2METAR214.02019-07-18 14:22:345¯ŽK(s5   3AGGH 181400Z 16003KT 9999 FEW015 BKN100 24/24 Q1010AGGH2019-07-18T14:00:00Z-9.42160.0524.024.016036.2129.822834VFRMETAR9.02019-07-18 14:22:34/¯ŽJ(i5   3LKKU 181400Z 28003KT 180V350 CAVOK 26/07 Q1012LKKU2019-07-18T14:00:00Z49.0517.4526.07.028036.2129.88189VFRMETAR177.02019-07-18 14:22:34K¯ŽI) 5    3KGNB 181400Z AUTO 00000KT 10SM CLR 10/01 A3034 RMK AO2 T00970014KGNB2019-07-18T14:00:00Z40.08-105.929.71.40010.030.339567TRUETRUEVFRMETAR2500.02019-07-18 14:22:340¯ŽH(e5   3TDPD 181400Z 11011KT 9999 BKN015 30/25 Q1018TDPD2019-07-18T14:00:00Z15.55-61.330.025.0110116.2130.059055MVFRMETAR14.02019-07-18 14:22:34 Ó$YŽÓ5¯ŽP(y5    3CWEZ 181400Z AUTO 13/10 RMK AO1 SLP148 T01340098 51015CWEZ2019-07-18T14:00:00Z48.78-123.0513.49.81014.8TRUETRUE1.5METAR7.02019-07-18 14:22:34E¯ŽO) 5    3CWFF 181400Z AUTO 10006KT 16/15 RMK AO1 SLP996 T01590152 58010CWFF2019-07-18T14:00:00Z52.82-104.5815.915.21006999.6TRUETRUE-1.0METAR490.02019-07-18 14:22:34E¯ŽN) 5    3CWFQ 181400Z AUTO 11003KT 22/11 RMK AO1 SLP159 T02150111 55001CWFQ2019-07-18T14:00:00Z45.03-72.8221.511.111031015.9TRUETRUE-0.1METAR152.02019-07-18 14:22:34V¯ŽM)-5    3CWGB 181400Z AUTO 25014KT 14/11 RMK AO1 PK WND 28019/1317 SLP146 T01440108 51015CWGB2019-07-18T14:00:00Z49.35-124.1714.410.8250141014.6TRUETRUE1.5METAR5.02019-07-18 14:22:34 Í7[ŽÍ;¯ŽT)5   3WBKW 181400Z 00000KT 9999 FEW017 SCT140 BKN280 26/24 Q1009WBKW2019-07-18T14:00:00Z4.32118.1226.024.0006.2129.793306VFRMETAR20.02019-07-18 14:22:34G¯ŽS)5    3CWEB 181400Z AUTO 01005KT 12/12 RMK AO1 1008 SLP164 T01230118 50011CWEB2019-07-18T14:00:00Z49.38-126.5512.311.81051016.4TRUETRUE1.1METAR7.02019-07-18 14:22:34V¯ŽR)-5    3CWEL 181400Z AUTO 32012KT 16/12 RMK AO1 PK WND 32018/1315 SLP146 T01610115 51015CWEL2019-07-18T14:00:00Z49.22-123.7816.111.5320121014.6TRUETRUE1.5METAR5.02019-07-18 14:22:34C¯ŽQ) 5    3CWEW 181400Z AUTO 07005KT 20/12 RMK AO1 SLP179 T02010119 56002CWEW2019-07-18T14:00:00Z45.82-73.4320.111.97051017.9TRUETRUE-0.2METAR21.02019-07-18 14:22:34 W@€ÇW:¯ŽY)5   3WBGS 181400Z 00000KT 9999 FEW018 SCT150 BKN300 25/24 Q1008WBGS2019-07-18T14:00:00Z2.27111.9825.024.0006.2129.763779VFRMETAR8.02019-07-18 14:22:34*¯ŽX(g5   3WBGY 181400Z AUTO 00000KT //// // 24/23 Q1008WBGY2019-07-18T14:00:00Z1.22111.4324.023.00029.763779TRUEMETAR34.02019-07-18 14:22:343¯ŽW(s5   3WBKL 181400Z VRB02KT 9999 FEW016 BKN290 28/25 Q1009WBKL2019-07-18T14:00:00Z5.28115.2528.025.0026.2129.793306VFRMETAR30.02019-07-18 14:22:34:¯ŽV)5   3WBKS 181400Z VRB02KT 9999 FEW016 SCT140 BKN300 28/24 Q1008WBKS2019-07-18T14:00:00Z5.9118.0728.024.0026.2129.763779VFRMETAR13.02019-07-18 14:22:34:¯ŽU)5   3WBKT 181400Z VRB01KT 9999 FEW015 SCT140 BKN280 27/25 Q1009WBKT2019-07-18T14:00:00Z6.92116.8227.025.0016.2129.793306VFRMETAR5.02019-07-18 14:22:34 *G‡Â÷*G¯Ž^) 5    3WMKP 181400Z 21005KT 8000 FEW025 SCT140 BKN270 29/26 Q1007 NOSIGWMKP2019-07-18T14:00:00Z5.28100.2729.026.021054.9729.734253TRUEMVFRMETAR4.02019-07-18 14:22:34E¯Ž])5   3WMSA 181400Z 14003KT 070V170 9999 FEW024 SCT140 BKN270 29/24 Q1008WMSA2019-07-18T14:00:00Z3.13101.5529.024.014036.2129.763779VFRMETAR27.02019-07-18 14:22:34?¯Ž\(5    3WBSB 181400Z 21001KT 9999 FEW015 BKN300 28/26 Q1009 NOSIGWBSB2019-07-18T14:00:00Z4.92114.9228.026.021016.2129.793306TRUEVFRMETAR15.02019-07-18 14:22:34:¯Ž[)5   3WBGB 181400Z VRB01KT 9999 FEW016 SCT150 BKN300 26/25 Q1008WBGB2019-07-18T14:00:00Z3.12113.0226.025.0016.2129.763779VFRMETAR5.02019-07-18 14:22:343¯ŽZ(s5   3WBGR 181400Z VRB03KT 9999 FEW016 BKN300 26/25 Q1009WBGR2019-07-18T14:00:00Z4.32113.9726.025.0036.2129.793306VFRMETAR18.02019-07-18 14:22:34 Ð+g“Ё=¯Žb(5    3WBGG 181400Z 00000KT 9999 FEW020 BKN300 27/24 Q1008 NOSIGWBGG2019-07-18T14:00:00Z1.47110.3527.024.0006.2129.763779TRUEVFRMETAR27.02019-07-18 14:22:34N¯Ža)5    3WBKK 181400Z 10003KT 080V140 9999 FEW014 SCT140 BKN270 28/26 Q1008 NOSIGWBKK2019-07-18T14:00:00Z5.92116.0328.026.010036.2129.763779TRUEVFRMETAR3.02019-07-18 14:22:34>¯Ž`)5   3WMKJ 181400Z 18003KT 140V210 9999 FEW023 BKN280 28/24 Q1008WMKJ2019-07-18T14:00:00Z1.62103.6728.024.018036.2129.763779VFRMETAR40.02019-07-18 14:22:34O¯Ž_)5    3WMKK 181400Z 13004KT 070V170 9999 FEW030 SCT140 BKN280 28/24 Q1007 NOSIGWMKK2019-07-18T14:00:00Z2.75101.7228.024.013046.2129.734253TRUEVFRMETAR22.02019-07-18 14:22:34 ·)iŒ·O¯Žf)!5    3RCMQ 181400Z 00000KT 9999 FEW012 SCT040 BKN120 26/25 Q0999 NOSIG RMK A2950RCMQ2019-07-18T14:00:00Z24.27120.6226.025.0006.2129.498032TRUEVFRSPECI5.02019-07-18 14:22:34W¯Že)/5    3RCNN 181400Z 05004KT 9999 VCSH FEW010 SCT020 BKN050 26/25 Q0997 RMK A2946 VCSH NERCNN2019-07-18T14:00:00Z22.93120.226.025.05046.2129.438976VCSHVFRSPECI19.02019-07-18 14:22:34:¯Žd(u5    3VMMC 181400Z 27004KT 230V320 CAVOK 30/25 Q0999 NOSIGVMMC2019-07-18T14:00:00Z22.15113.5830.025.027046.2129.498032TRUEVFRMETAR6.02019-07-18 14:22:34Q¯Žc)!5    3RCKH 181400Z 04005KT 9999 FEW012 BKN022 BKN060 28/27 Q0997 NOSIG RMK A2945RCKH2019-07-18T14:00:00Z22.57120.3328.027.04056.2129.438976TRUEMVFRMETAR9.02019-07-18 14:22:34 Æ=€Æ4¯Žj(o5    3YGEL 181400Z AUTO 02009KT 9999 // NCD 09/07 Q1017YGEL2019-07-18T14:00:00Z-28.8114.79.07.02096.2130.029528TRUEVFRMETAR37.02019-07-18 14:22:347¯Ži(o5    3YPWR 181400Z AUTO 07007KT 9999 // NCD 09/01 Q1021YPWR2019-07-18T14:00:00Z-31.12136.829.01.07076.2130.147638TRUEVFRMETAR167.02019-07-18 14:22:34K¯Žh)5    3YHID 181400Z AUTO 13011KT 9999 // SCT017 SCT023 SCT045 24/20 Q1013YHID2019-07-18T14:00:00Z-10.58142.324.020.0130116.2129.911417TRUEVFRMETAR13.02019-07-18 14:22:34l¯Žg)S5    3RCSS 181400Z 26012KT 9999 FEW014 BKN020 BKN040 29/27 Q0997 NOSIG RMK 26010KT/R10 A2944 RA AMT 0.2MMRCSS2019-07-18T14:00:00Z25.07121.5329.027.0260126.2129.438976TRUEMVFRSPECI6.02019-07-18 14:22:34 [D†» [,¯Žo(Y5   3FNKU 181400Z 18010KT CAVOK 24/17 Q1021FNKU2019-07-18T14:00:00Z-12.3716.9324.017.0180106.2130.147638VFRMETAR1699.02019-07-18 14:22:34(¯Žn(Y5   3FNBG 181400Z 34006KT CAVOK 24/18 Q1013FNBG2019-07-18T14:00:00Z-12.6213.424.018.034066.2129.911417VFRMETAR36.02019-07-18 14:22:34E¯Žm)5    3TVSA 181400Z 08006KT 9999 FEW020CB SCT022 30/25 Q1016 ,CB-SW NOSIG TVSA2019-07-18T14:00:00Z13.15-61.1530.025.08066.2130.0TRUEVFRMETAR17.02019-07-18 14:22:348¯Žl(o5    3YGLA 181400Z AUTO 21004KT 9999 // NCD 13/00 Q1019YGLA2019-07-18T14:00:00Z-23.87151.2213.00.021046.2130.088583TRUEVFRMETAR52.02019-07-18 14:22:346¯Žk(o5    3YCFS 181400Z AUTO 27003KT 9999 // NCD 06/05 Q1018YCFS2019-07-18T14:00:00Z-30.32153.126.05.027036.2130.059055TRUEVFRMETAR5.02019-07-18 14:22:34 ËBs’ˁA¯Žs)5    3RJSM 181400Z VRB01KT 2000 BR SCT000 BKN001 OVC003 18/17 Q1011RJSM2019-07-18T14:00:00Z40.7141.3718.017.0011.2429.852362BRLIFRMETAR36.02019-07-18 14:22:34[¯Žr))5    3CYXS 181400Z AUTO 17008KT 9SM OVC029 09/06 A2974 RMK SLP082 DENSITY ALT 2300FTCYXS2019-07-18T14:00:00Z53.9-122.689.06.017089.029.7401581008.2TRUEMVFRMETAR691.02019-07-18 14:22:34I¯Žq)5    3CYZP 181400Z AUTO 25012KT 9SM BKN065 13/10 A2987 RMK SLP115CYZP2019-07-18T14:00:00Z53.25-131.8213.010.0250129.029.8700791011.5TRUEVFRMETAR6.02019-07-18 14:22:348¯Žp(q5    3VAAU 181400Z 30004KT 6000 FEW020 32/21 Q1004 NOSIGVAAU2019-07-18T14:00:00Z19.8575.432.021.030043.7329.64567TRUEMVFRMETAR579.02019-07-18 14:22:34Y8ƒ8@HPX`hpx€ˆ˜ ¨°¸ÀÈÐØàèðø (08@HPX`hpx€ˆ˜ ¨°¸ÀÈÐØàèðø (08@HPX`hpx€ˆ˜ ¨°¸ÀÈÐØàèðø ¨°¸ÀÈÐØàèðø)¯M*¯Q+¯V,¯[-¯`.¯e/¯j0¯n1¯r2¯v3¯z4¯)¯M*¯Q+¯V,¯[-¯`.¯e/¯j0¯n1¯r2¯v3¯z4¯5¯Ž6¯Ž 7¯Ž8¯Ž9¯Ž:¯Ž;¯Ž!<¯Ž&=¯Ž+>¯Ž0?¯Ž4@¯Ž8A¯Ž=B¯ŽBC¯ŽGD¯ŽLE¯ŽPF¯ŽTG¯ŽYH¯Ž^I¯ŽbJ¯ŽfK¯ŽjL¯ŽoM¯ŽsO¯ŽwP¯Ž{Q¯ŽR¯S¯T¯ U¯V¯W¯X¯Y¯!Z¯%[¯*\¯/]¯4^¯9_¯>`¯Ca¯Hb¯Lc¯Pd¯Te¯Yf¯^g¯ch¯hi¯lj¯pk¯ul¯zm¯n¯o¯p¯ q¯r¯s¯t¯u¯v¯#w¯'x¯+y¯/z¯3{¯7|¯;}¯?~¯C¯G€¯L¯Q‚¯V YòY3¯Žw(s5   3CYUA 181400Z AUTO 33004KT ////SM OVC006 10/09 A2981CYUA2019-07-18T14:00:00Z68.95-137.2810.09.0330429.811024TRUEMETAR38.02019-07-18 14:22:34Z¯Žv)#5    3CYVL 181400Z AUTO 21005KT 9SM CLR 16/10 A2977 RMK SLP092 DENSITY ALT 1300FTCYVL2019-07-18T14:00:00Z67.02-126.1316.010.021059.029.7696861009.2TRUEVFRMETAR259.02019-07-18 14:22:34‚¯Žu)‚ 5   3CYXC 181400Z 16009KT 10SM -SHRA FEW003 FEW020 SCT040CB BKN080 10/09 A2976 RMK CF1SC1CB3AC4 CF TR SC TR SLP076 DENSITY ALT 3400FTCYXC2019-07-18T14:00:00Z49.6-115.7710.09.0160910.029.7608261007.6-SHRABKN8000VFRMETAR939.02019-07-18 14:22:34l¯Žt)Q5   3CYXE 181400Z 15005KT 15SM BKN090 BKN120 BKN300 17/14 A2951 RMK AC5AC1CI1 SLP998 DENSITY ALT 2800FTCYXE2019-07-18T14:00:00Z52.17-106.717.014.0150515.029.509842999.8VFRMETAR504.02019-07-18 14:22:34 ÃKn™ÃP¯Ž{)5   3CYBG 181400Z 30003KT 25SM FEW025 SCT250 18/11 A3007 RMK CU1CI3 SLP184CYBG2019-07-18T14:00:00Z48.33-70.9818.011.0300325.030.0708661018.4VFRSPECI159.02019-07-18 14:22:34O¯Žz)5   3CYZT 181400Z 21005KT 12SM FEW040 SCT060 12/10 A2998 RMK CU1SC2 SLP152CYZT2019-07-18T14:00:00Z50.67-127.3712.010.0210512.029.979331015.2VFRMETAR22.02019-07-18 14:22:34W¯Žy))5   3CYAW 181400Z 36007KT 15SM FEW040 BKN260 22/14 A2995 RMK CU1CI4 DA1141FT SLP142CYAW2019-07-18T14:00:00Z44.63-63.522.014.0360715.029.9498021014.2VFRMETAR51.02019-07-18 14:22:34/¯Žx(e5    3LEMO 181400Z VRB04KT CAVOK 33/14 Q1012 NOSIGLEMO2019-07-18T14:00:00Z37.17-5.6233.014.0046.2129.88189TRUEVFRMETAR88.02019-07-18 14:22:34 *Wto¯Ž)S5  3CYGL 181400Z 20011G16KT 160V220 15SM SCT140 SCT240 20/03 A2991 RMK AC3CI1 SLP134 DENSITY ALT 1400FTCYGL2019-07-18T14:00:00Z53.62-77.720.03.0200111615.029.9114171013.4VFRSPECI195.02019-07-18 14:22:34]¯Ž~)-5    3CYEG 181400Z 32006KT 3SM BR OVC003 12/12 A2954 RMK SF8 SLP009 DENSITY ALT 3100FTCYEG2019-07-18T14:00:00Z53.28-113.5712.012.032063.029.539371000.9BRLIFRSPECI723.02019-07-18 14:22:34M¯Ž})5   3CYFB 181400Z 16004KT 30SM BKN070 BKN280 11/04 A2951 RMK AC6CI1 SLP996CYFB2019-07-18T14:00:00Z63.75-68.5511.04.0160430.029.509842999.6VFRSPECI34.02019-07-18 14:22:34P¯Ž|)!5    3CYFC 181400Z AUTO VRB05KT 9SM CLR 21/13 A3000 RMK SLP159 DENSITY ALT 700FTCYFC2019-07-18T14:00:00Z45.87-66.5221.013.0059.030.01015.9TRUEVFRSPECI20.02019-07-18 14:22:34 C&BCy¯)k5   3CYQB 181400Z 13003KT 040V170 30SM FEW030 FEW180 SCT250 20/10 A3005 RMK SC1AC1CI3 SC TR SLP178 DENSITY ALT 800FTCYQB2019-07-18T14:00:00Z46.78-71.3720.010.0130330.030.0501981017.8VFRSPECI73.02019-07-18 14:22:34^¯)75   3CYMX 181400Z 07005KT 340V110 45SM SCT260 20/13 A3004 RMK CI3 SLP173 DENSITY ALT 800FTCYMX2019-07-18T14:00:00Z45.67-74.0220.013.070545.030.0413381017.3VFRSPECI82.02019-07-18 14:22:34e¯)=5  3CYJT 181400Z 30015G23KT 270V330 15SM FEW025 16/10 A2974 RMK SC1 SLP074 DENSITY ALT 500FTCYJT2019-07-18T14:00:00Z48.55-58.5716.010.0300152315.029.7401581007.4VFRSPECI26.02019-07-18 14:22:34i¯)M5   3CYHZ 181400Z 02006KT 310V050 15SM FEW024 BKN320 20/14 A2995 RMK CU1CI4 SLP141 DENSITY ALT 1200FTCYHZ2019-07-18T14:00:00Z44.87-63.520.014.020615.029.9498021014.1VFRSPECI145.02019-07-18 14:22:34 &ý*&~¯)w5   3CYQM 181400Z 04004KT 340V060 15SM FEW040 FEW150 SCT250 20/11 A2996 RMK CU1AC1CI4 CU TR AC TR SLP146 DENSITY ALT 900FTCYQM2019-07-18T14:00:00Z46.12-64.6720.011.040415.029.9586621014.6VFRSPECI71.02019-07-18 14:22:34M¯)5   3CYQQ 181400Z 28004KT 20SM SCT075 SCT250 14/09 A2998 RMK AC3CI1 SLP152CYQQ2019-07-18T14:00:00Z49.72-124.914.09.0280420.029.979331015.2VFRSPECI24.02019-07-18 14:22:34‚¯)k5  3CYQX 181400Z 29017G26KT 15SM FEW008 SCT015 BKN026 BKN080 19/16 A2950 RMK SF1CF3SC2AC1 SLP993 DENSITY ALT 1600FTCYQX2019-07-18T14:00:00Z48.95-54.5819.016.0290172615.029.500984999.3BKN8000MVFRSPECI151.02019-07-18 14:22:34s¯)[5  3CYOW 181400Z 09013G20KT 15SM FEW180 FEW240 22/11 A3002 RMK AC1CI1 AC TR CI TR SLP166 DENSITY ALT 1200FTCYOW2019-07-18T14:00:00Z45.32-75.6722.011.090132015.030.020671016.6VFRSPECI114.02019-07-18 14:22:34 H!AŒH‚>¯ )‚_5   3CYYC 181400Z CCA 29013KT 30SM FEW050 FEW090 BKN150 BKN220 BKN230 15/02 A2959 RMK SC1AC2AC3CC1CI1 SC TR CC TR VIRGA S - SW CVCTV CLD EMBD PRESRR SLP015 DENSITY ALT 4900FTCYYC2019-07-18T14:00:00Z51.12-114.0215.02.02901330.029.5895671001.5BKN22000VFRSPECI1084.02019-07-18 14:22:34/¯ (i5    3CWRF 181400Z AUTO 01016KT 04/ A2939 RMK SLP979CWRF2019-07-18T14:00:00Z69.42-89.724.0101629.388779997.9TRUEMETAR325.02019-07-18 14:22:34Z¯ ))5    3CYBW 181400Z AUTO VRB02KT 9SM SCT210 13/05 A2961 RMK SLP022 DENSITY ALT 4900FTCYBW2019-07-18T14:00:00Z51.1-114.3713.05.0029.029.6102371002.2TRUEVFRMETAR1200.02019-07-18 14:22:34Y¯)#5    3CYQG 181400Z AUTO 18005KT 9SM CLR 27/16 A2995 RMK SLP139 DENSITY ALT 2000FTCYQG2019-07-18T14:00:00Z42.27-82.9727.016.018059.029.9498021013.9TRUEVFRSPECI190.02019-07-18 14:22:34 C*B'C^¯)95   3CYUL 181400Z 04009KT 30SM BKN250 21/12 A3002 RMK CI7 CC ASOCT SLP168 DENSITY ALT 800FTCYUL2019-07-18T14:00:00Z45.47-73.7321.012.040930.030.020671016.8VFRSPECI36.02019-07-18 14:22:34‚¯)‚ 5  3CYVR 181400Z 26019G24KT 30SM FEW018 FEW045 FEW080 FEW250 16/12 A2994 RMK CF1CU1AC1CS2 CF TR CU TR AC TR SLP140 DENSITY ALT 200FTCYVR2019-07-18T14:00:00Z49.17-123.1716.012.0260192430.029.9409451014.0FEW25000VFRSPECI2.02019-07-18 14:22:34b¯ )=5   3CYWG 181400Z 24005KT 15SM SCT120 BKN200 20/17 A2954 RMK AC4CI3 SLP006 DENSITY ALT 2100FTCYWG2019-07-18T14:00:00Z49.88-97.2220.017.0240515.029.539371000.6VFRSPECI239.02019-07-18 14:22:34P¯ )5   3CYXX 181400Z 18009KT 25SM FEW055 BKN080 14/11 A2997 RMK SC2AC4 SLP149CYXX2019-07-18T14:00:00Z49.03-122.3814.011.0180925.029.9704721014.9VFRSPECI58.02019-07-18 14:22:34 e,9Je_¯)95   3CYYQ 181400Z 28003KT 260V330 15SM BKN270 20/13 A2950 RMK CI7 SLP992 DENSITY ALT 1300FTCYYQ2019-07-18T14:00:00Z58.75-94.0720.013.0280315.029.500984999.2VFRSPECI29.02019-07-18 14:22:34i¯)=5   3CYYR 181400Z 32016G26KT 15SM -SHRA SCT020 BKN030 BKN060 11/08 A2954 RMK SC3SC2SC2 SLP004CYYR2019-07-18T14:00:00Z53.32-60.4211.08.0320162615.029.539371000.4-SHRAMVFRSPECI49.02019-07-18 14:22:34m¯)M5  3CYQY 181400Z 32012G20KT 15SM FEW025 FEW250 18/11 A2986 RMK CF1CI2 CF TR SLP115 DENSITY ALT 700FTCYQY2019-07-18T14:00:00Z46.17-60.0318.011.0320122015.029.8612211011.5VFRSPECI62.02019-07-18 14:22:34N¯)5   3CYTR 181400Z 06005KT 15SM SCT094 BKN240 24/18 A2996 RMK AC3CI3 SLP146CYTR2019-07-18T14:00:00Z44.12-77.5224.018.060515.029.9586621014.6VFRSPECI86.02019-07-18 14:22:34 H ,,H^¯)/5  3CYYT 181400Z 27022G30KT 15SM OVC007 16/15 A2951 RMK SF8 SLP996 DENSITY ALT 1200FTCYYT2019-07-18T14:00:00Z47.62-52.7216.015.0270223015.029.509842999.6IFRSPECI140.02019-07-18 14:22:34z¯)g5  3CYYZ 181400Z 13006G15KT 100V160 15SM FEW012 SCT025 BKN200 24/20 A2995 RMK SC2SC2CI3 SLP141 DENSITY ALT 1700FTCYYZ2019-07-18T14:00:00Z43.67-79.6224.020.013061515.029.9498021014.1VFRSPECI173.02019-07-18 14:22:34Z¯))5   3CYZF 181400Z 05014KT 15SM FEW240 17/10 A2965 RMK CI1 SLP047 DENSITY ALT 1400FTCYZF2019-07-18T14:00:00Z62.47-114.4517.010.0501415.029.6486231004.7VFRSPECI206.02019-07-18 14:22:34n¯)S5  3CYZV 181400Z 31009G23KT 270V340 30SM FEW050 FEW210 20/07 A2987 RMK CU1CI1 SLP118 DENSITY ALT 1000FTCYZV2019-07-18T14:00:00Z50.22-66.2720.07.031092330.029.8700791011.8VFRSPECI55.02019-07-18 14:22:34 MD€ÅM2¯(}5    3FTTD 181400Z 28006KT 9999 FEW040TCU FEW050CB 30/// Q1010FTTD2019-07-18T14:00:00Z8.6216.0728066.2129.822834VFRMETAR422.02019-07-18 14:22:34:¯(}5    3FTTA 181400Z 04007KT 9999 TS SCT020 FEW050CB 23/22 Q1012FTTA2019-07-18T14:00:00Z9.1518.3723.022.04076.2129.88189TSVFRMETAR365.02019-07-18 14:22:345¯(w5   3FDMY 181400Z AUTO 15004KT //// // ////// 29/M00 Q1027FDMY2019-07-18T14:00:00Z-25.8731.5229.00.0150430.324802TRUEMETAR480.02019-07-18 14:22:34>¯)5   3DXNG 181400Z 27007KT 220V300 9999 BKN008 FEW016CB 28/22 Q1015DXNG2019-07-18T14:00:00Z9.771.128.022.027076.2129.970472IFRMETAR343.02019-07-18 14:22:346¯(q5    3DXXX 181400Z 21013KT 9999 FEW014 30/23 Q1012 NOSIGDXXX2019-07-18T14:00:00Z6.171.2530.023.0210136.2129.88189TRUEVFRMETAR25.02019-07-18 14:22:34 S˜Î܁9¯!(q5    3DFFD 181400Z 26010KT 9999 FEW020 27/23 Q1012 NOSIGDFFD2019-07-18T14:00:00Z12.33-1.5227.023.0260106.2129.88189TRUEVFRMETAR306.02019-07-18 14:22:34l¯ )Q5   3CYCG 181400Z VRB02KT 15SM FEW004 SCT025 SCT080 13/13 A2977 RMK SF1SC2AC1 SLP083 DENSITY ALT 2000FTCYCG2019-07-18T14:00:00Z49.28-117.6213.013.00215.029.7696861008.3VFRMETAR495.02019-07-18 14:22:34D¯)5   3NSFA 181400Z 00000KT 9999 FEW024 SCT036 BKN130 24/23 Q1011 RMK NILNSFA2019-07-18T14:00:00Z-13.83-172.024.023.0006.2129.852362VFRSPECI5.02019-07-18 14:22:345¯(q5    3DBBB 181400Z 23014KT 9999 FEW013 27/24 Q1012 NOSIGDBBB2019-07-18T14:00:00Z6.332.3727.024.0230146.2129.88189TRUEVFRMETAR9.02019-07-18 14:22:34'¯(e5    3FTTC 181400Z 18006KT 9999 BKN040 34/// Q1009FTTC2019-07-18T14:00:00Z13.8320.8518066.2129.793306VFRMETAR549.02019-07-18 14:22:34 É8†¼Ém¯%)A5     3CYDL 181400Z AUTO 20003KT 140V250 9SM -RA OVC004 10/10 A2966 RMK SLP045 DENSITY ALT 2900FTCYDL2019-07-18T14:00:00Z58.42-130.0210.010.020039.029.6604331004.5TRUE-RALIFRMETAR816.02019-07-18 14:22:34D¯$)5   3CYZX 181400Z 05006KT 15SM FEW250 21/12 A2997 RMK CI2 SLP150CYZX2019-07-18T14:00:00Z44.98-64.9221.012.050615.029.9704721015.0VFRSPECI28.02019-07-18 14:22:34,¯#(e5   3DAAD 181400Z 04006KT 9999 FEW030 36/11 Q1013DAAD2019-07-18T14:00:00Z35.324.236.011.04066.2129.911417VFRMETAR461.02019-07-18 14:22:34B¯")5    3FTTJ 181400Z 18006KT 180V250 9999 FEW030 34/23 Q1007 NOSIGFTTJ2019-07-18T14:00:00Z12.1215.0234.023.018066.2129.734253TRUEVFRMETAR295.02019-07-18 14:22:34 Ra²R,¯*(_5   3DRRT 181400Z 24019KT 8000 NSC 35/20 Q1010DRRT2019-07-18T14:00:00Z14.95.2535.020.0240194.9729.822834MVFRMETAR391.02019-07-18 14:22:34(¯)(Y5   3DRZA 181400Z 27015KT CAVOK 37/19 Q1010DRZA2019-07-18T14:00:00Z16.978.037.019.0270156.2129.822834VFRMETAR502.02019-07-18 14:22:34)¯((Y5   3DRZR 181400Z 22012KT CAVOK 34/19 Q1010DRZR2019-07-18T14:00:00Z13.778.9734.019.0220126.2129.822834VFRMETAR453.02019-07-18 14:22:348¯'(q5    3DGAA 181400Z 22014KT 9999 FEW034 28/23 Q1013 NOSIGDGAA2019-07-18T14:00:00Z5.58-0.1728.023.0220146.2129.911417TRUEVFRMETAR69.02019-07-18 14:22:34[¯&)15   3CYDA 181400Z 00000KT 20SM FEW100 SCT140 BKN220 10/08 A2973 RMK AC2AC2CI2 FU SLP077CYDA2019-07-18T14:00:00Z64.03-139.1210.08.00020.029.7312981007.7VFRMETAR369.02019-07-18 14:22:34 80ƒ¼û8=¯/(5    3WMKD 181400Z VRB02KT 9999 FEW024 BKN280 28/25 Q1008 NOSIGWMKD2019-07-18T14:00:00Z3.77103.2228.025.0026.2129.763779TRUEVFRMETAR16.02019-07-18 14:22:34;¯.)5   3WMKL 181400Z VRB01KT 9999 FEW017CB SCT140 BKN270 28/26 Q1008WMKL2019-07-18T14:00:00Z6.3299.7228.026.0016.2129.763779VFRMETAR7.02019-07-18 14:22:34A¯-)5    3DNMM 181400Z 27004KT 9999 BKN011 FEW020CB 27/24 Q1014 NOSIGDNMM2019-07-18T14:00:00Z6.573.3227.024.027046.2129.940945TRUEMVFRMETAR38.02019-07-18 14:22:34'¯,(Y5   3DRRM 181400Z 22008KT CAVOK 35/18 Q1010DRRM2019-07-18T14:00:00Z13.57.1235.018.022086.2129.822834VFRMETAR373.02019-07-18 14:22:34J¯+)5    3DRRN 181400Z 36005KT 300V040 9999 FEW020 FEW030CB 31/22 Q1011 NOSIGDRRN2019-07-18T14:00:00Z13.472.1731.022.036056.2129.852362TRUEVFRMETAR227.02019-07-18 14:22:34 [LŽÙ[4¯4(w5   3OIMT 181400Z AUTO 35002KT //// // ////// 44/M01 Q1000OIMT2019-07-18T14:00:00Z33.6756.9244.0-1.0350229.52756TRUEMETAR711.02019-07-18 14:22:34>¯3(5    3SKSM 181400Z 27004KT 9999 FEW020 SCT200 31/24 A2985 NOSIGSKSM2019-07-18T14:00:00Z11.12-74.2231.024.027046.2129.84941TRUEVFRMETAR4.02019-07-18 14:22:34/¯2(e5   3SKRH 181400Z 10016KT 9999 FEW020 31/23 A2984SKRH2019-07-18T14:00:00Z11.52-72.9231.023.0100166.2129.840551VFRMETAR4.02019-07-18 14:22:348¯1(u5   3SKVP 181400Z 07011KT 030V100 9999 FEW025 31/22 A2988SKVP2019-07-18T14:00:00Z10.42-73.2531.022.070116.2129.878937VFRMETAR138.02019-07-18 14:22:34.¯0(e5   3SKMR 181400Z 26005KT 9999 FEW018 30/26 A2981SKMR2019-07-18T14:00:00Z8.82-75.8330.026.026056.2129.811024VFRMETAR26.02019-07-18 14:22:34 B;ÃÿB7¯9(u5   3UTFF 181400Z 35006KT 9999 NSC 36/10 Q1003 R18/CLRD70UTFF2019-07-18T14:00:00Z40.3771.7736.010.035066.2129.616142VFRMETAR577.02019-07-18 14:22:34>¯8(}5    3UTTT 181400Z 22006KT CAVOK 39/04 Q1002 R26R/CLRD70 NOSIGUTTT2019-07-18T14:00:00Z41.2769.2739.04.022066.2129.586615TRUEVFRMETAR489.02019-07-18 14:22:348¯7(q5    3DIYO 181400Z 22004KT 9999 BKN013 31/23 Q1014 NOSIGDIYO2019-07-18T14:00:00Z6.9-5.3331.023.022046.2129.940945TRUEMVFRMETAR213.02019-07-18 14:22:344¯6(q5    3DIBK 181400Z 32006KT 9999 BKN013 28/23 Q1016 NOSIGDIBK2019-07-18T14:00:00Z7.72-5.0728.023.032066.2130.0TRUEMVFRMETAR376.02019-07-18 14:22:34?¯5)5   3DFOO 181400Z 18005KT 120V240 9999 SCT016 SCT026 30/24 Q1014DFOO2019-07-18T14:00:00Z11.17-4.3230.024.018056.2129.940945VFRMETAR460.02019-07-18 14:22:34 9<|Ãÿ9@¯>)5    3UTSA 181400Z 01008KT 9999 NSC 40/02 Q1002 R07/CLRD70 NOSIGUTSA2019-07-18T14:00:00Z40.1265.1740.02.01086.2129.586615TRUEVFRSPECI346.02019-07-18 14:22:34>¯=({5    3UTSB 181400Z 34006KT CAVOK 39/14 Q1001 R01/CLRD70 NOSIGUTSB2019-07-18T14:00:00Z39.7764.4839.014.034066.2129.557087TRUEVFRSPECI226.02019-07-18 14:22:343¯<(o5   3UTSK 181400Z 02014KT CAVOK 40/04 Q1000 R34/CLRD70UTSK2019-07-18T14:00:00Z38.8365.7740.04.020146.2129.52756VFRSPECI1365.02019-07-18 14:22:34:¯;({5    3UTSS 181400Z 07006KT 9999 NSC 36/08 Q1004 R09/70D NOSIGUTSS2019-07-18T14:00:00Z39.766.9836.08.07066.2129.64567TRUEVFRMETAR724.02019-07-18 14:22:34>¯:({5    3UTST 181400Z 25002KT CAVOK 39/14 Q0997 R88/CLRD70 NOSIGUTST2019-07-18T14:00:00Z37.2867.3239.014.025026.2129.438976TRUEVFRSPECI302.02019-07-18 14:22:34 2={«ë23¯C(s5   3WMKI 181400Z 00000KT 9999 FEW030 BKN280 28/25 Q1008WMKI2019-07-18T14:00:00Z4.57101.0828.025.0006.2129.763779VFRMETAR39.02019-07-18 14:22:34:¯B)5   3WMKN 181400Z VRB02KT 9999 FEW020 SCT150 BKN300 29/25 Q1007WMKN2019-07-18T14:00:00Z5.37103.0829.025.0026.2129.734253VFRMETAR6.02019-07-18 14:22:34J¯A)5    3UTFN 181400Z 27004KT 200V320 9999 NSC 35/13 Q1002 R28/CLRD70 NOSIGUTFN2019-07-18T14:00:00Z40.9871.5735.013.027046.2129.586615TRUEVFRMETAR490.02019-07-18 14:22:34<¯@({5    3UTNN 181400Z 34008KT CAVOK 41/06 Q1003 R33/CLRD60 NOSIGUTNN2019-07-18T14:00:00Z42.4859.6341.06.034086.2129.616142TRUEVFRSPECI67.02019-07-18 14:22:34=¯?({5    3UTNU 181400Z 35004KT CAVOK 40/16 Q1003 R31/CLRD70 NOSIGUTNU2019-07-18T14:00:00Z41.5860.6340.016.035046.2129.616142TRUEVFRSPECI98.02019-07-18 14:22:34 .QÄí.9¯H)5   3WMBA 181400Z 00000KT 9000 FEW032 SCT150 BKN280 28/25 Q1007WMBA2019-07-18T14:00:00Z4.22100.728.025.0005.5929.734253VFRMETAR8.02019-07-18 14:22:34Q¯G)!5    3WMKA 181400Z 19010KT 150V290 7000 -TSRA FEW017CB SCT028 BKN260 26/25 Q1008WMKA2019-07-18T14:00:00Z6.2100.426.025.0190104.3529.763779-TSRAMVFRMETAR5.02019-07-18 14:22:34E¯F) 5    3WMKB 181400Z VRB02KT 8000 FEW024 SCT140 BKN280 28/26 Q1007 NOSIGWMKB2019-07-18T14:00:00Z5.47100.3728.026.0024.9729.734253TRUEMVFRMETAR4.02019-07-18 14:22:34<¯E)5   3WMKC 181400Z VRB02KT 9999 FEW017CB SCT140 BKN280 28/26 Q1007WMKC2019-07-18T14:00:00Z6.17102.2728.026.0026.2129.734253VFRMETAR5.02019-07-18 14:22:34)¯D(g5   3WMKE 181400Z AUTO VRB02KT //// // 27/25 Q1007WMKE2019-07-18T14:00:00Z4.53103.4327.025.00229.734253TRUEMETAR5.02019-07-18 14:22:34 eBhUej¯L)O5   3CYMA 181400Z VRB02KT 20SM FEW120 FEW230 14/08 A2970 RMK AC1CI1 AC TR FU SLP065 DENSITY ALT 2200FTCYMA2019-07-18T14:00:00Z63.62-135.8714.08.00220.029.6988181006.5VFRMETAR504.02019-07-18 14:22:34‚ ¯K)‚5   3CYGE 181400Z 15004KT 090V200 20SM FEW012 FEW070 SCT120 BKN170 11/10 A2973 RMK SC1AC2AC2AC1 SC TR SLP068 DENSITY ALT 3000FTCYGE2019-07-18T14:00:00Z51.3-116.9811.010.0150420.029.7312981006.8BKN17000VFRMETAR785.02019-07-18 14:22:34T¯J)#5   3CYCD 181400Z 23004KT 30SM FEW080 FEW250 13/08 A2998 RMK AC1CI1 AC TR SLP152CYCD2019-07-18T14:00:00Z49.05-123.8713.08.0230430.029.979331015.2VFRMETAR30.02019-07-18 14:22:348¯I)5   3WMAU 181400Z AUTO 14005KT 110V240 //// // 27/25 Q//// QFF1008WMAU2019-07-18T14:00:00Z2.38103.8827.025.014050.63TRUEMETAR45.02019-07-18 14:22:34 4"/4u¯P)W5    3CYQH 181400Z 29003KT 260V020 30SM VCSH BKN051 OVC074 13/12 A2966 RMK SC6AC2 SLP052 DENSITY ALT 2900FTCYQH2019-07-18T14:00:00Z60.12-128.8213.012.0290330.029.6604331005.2VCSHVFRMETAR690.02019-07-18 14:22:34m¯O)Q5   3CYQU 181400Z 24007KT 25SM FEW065 BKN080 OVC240 11/08 A2959 RMK SC2AC3CI3 SLP031 DENSITY ALT 2600FTCYQU2019-07-18T14:00:00Z55.18-118.8811.08.0240725.029.5895671003.1VFRMETAR669.02019-07-18 14:22:34p¯N)W5   3CYOC 181400Z 07004KT 15SM SCT050 BKN140 OVC220 14/13 A2976 RMK SC4AC3CI1 FU SLP084 DENSITY ALT 1200FTCYOC2019-07-18T14:00:00Z67.57-139.8214.013.070415.029.7608261008.4VFRMETAR251.02019-07-18 14:22:34b¯M)/5   3CYLW 181400Z AUTO 20013G21KT 9SM OVC090 17/05 A2980 RMK SLP086 DENSITY ALT 2100FTCYLW2019-07-18T14:00:00Z49.95-119.3717.05.020013219.029.7992131008.6TRUEVFRMETAR430.02019-07-18 14:22:34 63(6l¯T)Q5   3CYXY 181400Z 36004KT 40SM FEW090 BKN120 BKN170 13/09 A2969 RMK AC2AC3AC2 SLP065 DENSITY ALT 2900FTCYXY2019-07-18T14:00:00Z60.72-135.0713.09.0360440.029.689961006.5VFRSPECI703.02019-07-18 14:22:34‚¯S)a5  3CYXT 181400Z 21010G17KT 160V240 20SM -SHRA FEW009 SCT030 BKN065 OVC080 12/10 A2981 RMK CF2CU2SC2AC2 SLP101CYXT2019-07-18T14:00:00Z54.47-128.5712.010.0210101720.029.8110241010.1-SHRAOVC8000VFRMETAR217.02019-07-18 14:22:34b¯R)=5   3CYXJ 181400Z 23009KT 60SM SCT045 BKN210 12/07 A2956 RMK SC4CI3 SLP019 DENSITY ALT 2900FTCYXJ2019-07-18T14:00:00Z56.25-120.7312.07.0230960.029.560041001.9VFRMETAR695.02019-07-18 14:22:34_¯Q)75   3CYPW 181400Z 28006KT 270V330 25SM FEW074 15/08 A2997 RMK AC1 SLP149 DENSITY ALT 500FTCYPW2019-07-18T14:00:00Z49.82-124.515.08.0280625.029.9704721014.9VFRMETAR130.02019-07-18 14:22:34 ]j» ])¯Y(Y5   3SUAA 181400Z 01015KT CAVOK 13/09 Q1022SUAA2019-07-18T14:00:00Z-34.77-56.2513.09.010156.2130.177166VFRMETAR54.02019-07-18 14:22:34)¯X(Y5   3SUCA 181400Z 34005KT CAVOK 13/08 Q1022SUCA2019-07-18T14:00:00Z-34.45-57.7713.08.034056.2130.177166VFRMETAR23.02019-07-18 14:22:34)¯W(Y5   3SULS 181400Z 02010KT CAVOK 14/10 Q1023SULS2019-07-18T14:00:00Z-34.87-55.114.010.020106.2130.206694VFRMETAR30.02019-07-18 14:22:34(¯V(Y5   3SUSO 181400Z 05009KT CAVOK 15/08 Q1021SUSO2019-07-18T14:00:00Z-31.43-57.9815.08.05096.2130.147638VFRMETAR34.02019-07-18 14:22:34b¯U)=5   3CYYD 181400Z 00000KT 25SM FEW025 OVC060 10/10 A2974 RMK SF1SC7 SLP078 DENSITY ALT 1800FTCYYD2019-07-18T14:00:00Z54.82-127.1810.010.00025.029.7401581007.8VFRMETAR523.02019-07-18 14:22:34 !6išà!9¯^(}5   3SKVV 181400Z VRB02KT 9999 SCT017 BKN090 24/22 A3007 REDZSKVV2019-07-18T14:00:00Z4.17-73.6224.022.0026.2130.070866VFRMETAR431.02019-07-18 14:22:344¯](s5   3SUDU 181400Z 02007KT 9999 SCT010 BKN200 11/09 Q1023SUDU2019-07-18T14:00:00Z-33.35-56.511.09.02076.2130.206694VFRMETAR93.02019-07-18 14:22:34I¯\)5    3VOVZ 181400Z 12005KT 5000 HZ FU FEW018 BKN090 31/25 Q1000 TEMPO DZVOVZ2019-07-18T14:00:00Z17.7583.2231.025.012053.1129.52756HZ FUMVFRMETAR5.02019-07-18 14:22:34G¯[) 5     3VEBS 181400Z 09002KT 5000 HZ SCT018 FEW030CB 30/27 Q1001 NOSIGVEBS2019-07-18T14:00:00Z20.2585.8230.027.09023.1129.557087TRUEHZMVFRMETAR46.02019-07-18 14:22:34D¯Z)5   3RPLC 181400Z 18011KT 7000 SCT020 OVC100 26/23 Q1007 RMK A2974RPLC2019-07-18T14:00:00Z15.17120.5826.023.0180114.3529.734253MVFRMETAR196.02019-07-18 14:22:34 oDˆÖ$o/¯c(e5   3SKUC 181400Z 11005KT 9999 SCT015 29/26 A2999SKUC2019-07-18T14:00:00Z7.07-70.7229.026.011056.2129.991142VFRMETAR128.02019-07-18 14:22:34,¯b(_5   3SKMD 181400Z 01005KT 9999 NSC 24/14 A3014SKMD2019-07-18T14:00:00Z6.22-75.5824.014.01056.2130.138779VFRMETAR1499.02019-07-18 14:22:34,¯a(e5   3SKPC 181400Z 05004KT 9999 FEW017 29/23 A2994SKPC2019-07-18T14:00:00Z6.17-67.529.023.05046.2129.940945VFRMETAR55.02019-07-18 14:22:346¯`(s5   3SKUI 181400Z 24006KT 9999 BKN015 27/24 A2984 METAR SKUI2019-07-18T14:00:00Z5.72-76.6227.024.024066.2129.840551MVFRMETAR33.02019-07-18 14:22:346¯_(s5   3SKIB 181400Z 14006KT 9999 FEW030 SCT100 27/19 A3013SKIB2019-07-18T14:00:00Z4.42-75.1527.019.014066.2130.129921VFRMETAR928.02019-07-18 14:22:34 %QžÏ÷%L¯h)5    3KFFA 181400Z AUTO 22005KT 7SM SCT016 29/25 A2996 RMK AO2 T02940252KFFA2019-07-18T14:00:00Z36.02-75.6729.425.222057.029.958662TRUETRUEVFRMETAR4.02019-07-18 14:22:34R¯g)5    3KDMW 181400Z AUTO 26004KT 10SM SCT016 BKN047 OVC050 28/24 A2993 RMK AO2KDMW2019-07-18T14:00:00Z39.6-77.028.024.0260410.029.929134TRUETRUEVFRMETAR241.02019-07-18 14:22:34I¯f)5    3SKNV 181400Z VRB02KT 9999 VCSH FEW050 SCT110 30/17 A2997 RMK VCSH SSKNV2019-07-18T14:00:00Z2.97-75.2830.017.0026.2129.970472VCSHVFRMETAR443.02019-07-18 14:22:34-¯e(e5   3SKLC 181400Z 22005KT 9999 SCT018 28/25 A2984SKLC2019-07-18T14:00:00Z7.82-76.728.025.022056.2129.840551VFRMETAR30.02019-07-18 14:22:34)¯d(Y5   3SKEJ 181400Z 29003KT CAVOK 29/24 A2983SKEJ2019-07-18T14:00:00Z7.02-73.7829.024.029036.2129.828741VFRMETAR134.02019-07-18 14:22:34 #;hE¯l(}5     3KLHZ 181400Z AUTO 26004KT 5SM HZ CLR 28/22 A3002 RMK AO2KLHZ2019-07-18T14:00:00Z36.02-78.3328.022.026045.030.02067TRUETRUEHZMVFRMETAR113.02019-07-18 14:22:34M¯k)5    3KMQI 181400Z AUTO 23015KT 10SM SCT018 30/26 A2998 RMK AO2 T02950255KMQI2019-07-18T14:00:00Z35.92-75.729.525.52301510.029.97933TRUETRUEVFRMETAR4.02019-07-18 14:22:34b¯j)=5   3CYZW 181400Z VRB02KT 30SM BKN080 OVC140 13/12 A2966 RMK AC7AC1 SLP053 DENSITY ALT 2900FTCYZW2019-07-18T14:00:00Z60.17-132.7513.012.00230.029.6604331005.3VFRMETAR705.02019-07-18 14:22:34W¯i))5   3CYYF 181400Z VRB02KT 15SM SCT075 17/07 A2982 RMK CU4 SLP096 DENSITY ALT 1800FTCYYF2019-07-18T14:00:00Z49.47-119.5817.07.00215.029.8198811009.6VFRMETAR344.02019-07-18 14:22:34 „-fz„p¯p)[5    3CZFA 181400Z 00000KT 5SM BR BKN100 BKN210 08/08 A2972 RMK FG4AC1CC2 VIS E 1/4 SLP082 DENSITY ALT 2400FTCZFA2019-07-18T14:00:00Z62.2-133.378.08.0005.029.7194881008.2BRMVFRMETAR717.02019-07-18 14:22:34f¯o)G5   3CZMT 181400Z 21004KT 160V240 15SM FEW008 SCT040 BKN220 12/11 A2985 RMK CF1SC4CI3 CF TR SLP110CZMT2019-07-18T14:00:00Z54.03-132.1312.011.0210415.029.849411011.0VFRMETAR8.02019-07-18 14:22:34A¯n)5    3KONX 181400Z AUTO 10SM SCT014 29/26 A2997 RMK AO2 T02850258KONX2019-07-18T14:00:00Z36.4-76.0228.525.810.029.970472TRUETRUEVFRMETAR5.02019-07-18 14:22:34M¯m) 5    3KMWK 181400Z AUTO 22003KT 10SM CLR 28/24 A3005 RMK AO2 T02810237KMWK2019-07-18T14:00:00Z36.47-80.5528.123.7220310.030.050198TRUETRUEVFRMETAR380.02019-07-18 14:22:34 Hi¨üH.¯u(e5   3DAUK 181400Z 29009KT 6000 SCT040 40/15 Q1009DAUK2019-07-18T14:00:00Z33.086.1240.015.029093.7329.793306MVFRMETAR85.02019-07-18 14:22:34&¯t(Y5   3DAUO 181400Z 28007KT CAVOK 40/13 Q1008DAUO2019-07-18T14:00:00Z33.56.7840.013.028076.2129.763779VFRMETAR63.02019-07-18 14:22:34;¯s({5    3DAUE 181400Z 11015KT 060V150 2500 HZ BKN040 38/05 Q1009DAUE2019-07-18T14:00:00Z30.572.8738.05.0110151.5529.793306HZIFRMETAR397.02019-07-18 14:22:34.¯r(e5   3DAOY 181400Z 18009KT 9999 FEW030 30/09 Q1019DAOY2019-07-18T14:00:00Z33.721.0830.09.018096.2130.088583VFRMETAR1347.02019-07-18 14:22:34]¯q))5    3CYZY 181400Z AUTO 16011KT 9SM SCT034 10/08 A2966 RMK SLP057 DENSITY ALT 2400FTCYZY2019-07-18T14:00:00Z55.28-123.1210.08.0160119.029.6604331005.7TRUEVFRSPECI690.02019-07-18 14:22:34 ;L—ï7;v¯z)i5   3CYCY 181400Z 11009KT 25SM FEW032 FEW095 FEW210 06/05 A2955 RMK CF1AC1CI1 CF TR R1.2 AFT 23UTC/0 SNW CVR SLP010CYCY2019-07-18T14:00:00Z70.47-68.526.05.0110925.029.5511821001.0VFRMETAR26.02019-07-18 14:22:342¯y(s5   3DAUU 181400Z 02009KT 9999 SCT040 SCT100 40/07 Q1010DAUU2019-07-18T14:00:00Z31.925.440.07.02096.2129.822834VFRMETAR141.02019-07-18 14:22:34"¯x(_5    3DAUI 181400Z 05010KT 9000 NSC 47/// Q1004DAUI2019-07-18T14:00:00Z27.252.5250105.5929.64567VFRMETAR269.02019-07-18 14:22:34/¯w(s5    3DAUT 181400Z 12012KT 8000 SCT046 SCT062 45/// Q1005DAUT2019-07-18T14:00:00Z29.250.27120124.9729.675198MVFRMETAR312.02019-07-18 14:22:34.¯v(e5   3DAUL 181400Z 32008KT 9999 FEW033 35/15 Q1015DAUL2019-07-18T14:00:00Z33.772.9235.015.032086.2129.970472VFRMETAR765.02019-07-18 14:22:34 5+w¼5L¯)5   3CYEK 181400Z 02008KT 15SM BKN100 OVC130 10/08 A2959 RMK AC5AC3 SLP020CYEK2019-07-18T14:00:00Z61.1-94.0710.08.020815.029.5895671002.0VFRMETAR10.02019-07-18 14:22:34/¯~(e5   3SKMZ 181400Z 30008KT 9999 SCT100 19/14 A3031SKMZ2019-07-18T14:00:00Z5.03-75.4719.014.030086.2130.31004VFRMETAR2080.02019-07-18 14:22:345¯}(s5   3SKAR 181400Z VRB03KT 9999 SCT022 SCT200 23/19 A3004SKAR2019-07-18T14:00:00Z4.45-75.7723.019.0036.2130.041338VFRMETAR1219.02019-07-18 14:22:34.¯|(e5   3SKPS 181400Z 11009KT 9999 FEW025 22/11 A3015SKPS2019-07-18T14:00:00Z1.4-77.2822.011.011096.2130.15059VFRMETAR1826.02019-07-18 14:22:34O¯{)5    3CYED 181400Z AUTO 00000KT 9SM FEW005 OVC008 14/13 A2952 RMK SLP003CYED2019-07-18T14:00:00Z53.67-113.4714.013.0009.029.5187021000.3TRUEIFRMETAR688.02019-07-18 14:22:34 Ê.Q—ʁG¯)5     3ZBHH 181400Z 04002MPS 350V070 5000 BR NSC 23/19 Q1010 NOSIGZBHH2019-07-18T14:00:00Z40.85111.8223.019.04043.1129.822834TRUEBRMVFRMETAR1065.02019-07-18 14:22:344¯(g5    3ZGHA 181400Z 33004MPS CAVOK 28/25 Q1002 NOSIGZGHA2019-07-18T14:00:00Z28.18113.2228.025.033086.2129.586615TRUEVFRMETAR66.02019-07-18 14:22:34W¯)!5    3KRUQ 181400Z AUTO 23004KT 10SM BKN070 OVC085 27/23 A3003 RMK AO2 T02660226KRUQ2019-07-18T14:00:00Z35.65-80.5226.622.6230410.030.029528TRUETRUEVFRMETAR236.02019-07-18 14:22:34L¯) 5    3KRCZ 181400Z AUTO 25005KT 10SM CLR 28/20 A3002 RMK AO2 T02790200KRCZ2019-07-18T14:00:00Z34.88-79.7727.920.0250510.030.02067TRUETRUEVFRMETAR109.02019-07-18 14:22:34 Á;hžÁW¯)#5    3CYSF 181400Z AUTO 00000KT 9SM CLR 16/11 A2954 RMK SLP008 DENSITY ALT 1500FTCYSF2019-07-18T14:00:00Z59.25-105.8216.011.0009.029.539371000.8TRUEVFRMETAR250.02019-07-18 14:22:34D¯) 5    3CWWA 181400Z AUTO 04001KT 12/10 RMK AO1 SLP137 T01230101 51014CWWA2019-07-18T14:00:00Z49.35-123.1712.310.14011013.7TRUETRUE1.4METAR178.02019-07-18 14:22:34M¯) 5    3KVUJ 181400Z AUTO 24003KT 10SM CLR 29/23 A3006 RMK AO2 T02880225KVUJ2019-07-18T14:00:00Z35.42-80.1528.822.5240310.030.059055TRUETRUEVFRMETAR186.02019-07-18 14:22:34?¯(w5    3KW29 181400Z AUTO 25006KT 7SM CLR 28/24 A2990 RMK AO2KW292019-07-18T14:00:00Z38.98-76.3328.024.025067.029.899607TRUETRUEVFRMETAR15.02019-07-18 14:22:34 u =uB¯ )5   3CYLT 181400Z 08004KT 15SM FEW230 05/00 A2977 RMK CI2 SLP084CYLT2019-07-18T14:00:00Z82.52-62.275.00.080415.029.7696861008.4VFRMETAR31.02019-07-18 14:22:34G¯ )5   3CYMJ 181400Z 23014KT 15SM FEW095 18/11 A2956 RMK AC1 SLP011CYMJ2019-07-18T14:00:00Z50.32-105.5318.011.02301415.029.560041001.1VFRMETAR577.02019-07-18 14:22:34‚¯ )s5    3CYPE 181400Z 27003KT 15SM -RA VCFG FEW002 SCT020 OVC055 13/12 A2954 RMK ST1SC2SC5 VIS E 4 SLP012 DENSITY ALT 2600FTCYPE2019-07-18T14:00:00Z56.22-117.4513.012.0270315.029.539371001.2-RA VCFGVFRMETAR571.02019-07-18 14:22:34d¯)75    3CYQV 181400Z AUTO 16006KT 9SM BKN100 BKN120 16/15 A2952 RMK SLP000 DENSITY ALT 2500FTCYQV2019-07-18T14:00:00Z51.27-102.4716.015.016069.029.5187021000.0TRUEVFRMETAR498.02019-07-18 14:22:34 \'\:¯(}5   3CYUS 181400Z AUTO 36012G18KT ////SM //// NCD 10/08 A2951CYUS2019-07-18T14:00:00Z68.82-93.4210.08.0360121829.509842TRUEMETAR42.02019-07-18 14:22:34‚¯)q5   3CYVT 181400Z 15004KT 15SM SCT080 BKN100 BKN180 BKN250 17/14 A2950 RMK AC4AC2AC1CI1 CI TR SLP995 DENSITY ALT 2500FTCYVT2019-07-18T14:00:00Z55.82-108.4217.014.0150415.029.500984999.5BKN25000VFRMETAR434.02019-07-18 14:22:34m¯ )S5   3CYSM 181400Z 01002KT 12SM FEW100 FEW120 19/15 A2952 RMK FU2ACC1 ACC TR FU SLP999 DENSITY ALT 1800FTCYSM2019-07-18T14:00:00Z60.03-111.9719.015.010212.029.518702999.9VFRMETAR203.02019-07-18 14:22:34`¯ )=5   3CYTH 181400Z 00000KT 15SM BKN070 OVC120 17/13 A2954 RMK AC5AS3 SLP007 DENSITY ALT 1600FTCYTH2019-07-18T14:00:00Z55.78-97.8717.013.00015.029.539371000.7VFRMETAR218.02019-07-18 14:22:34 8÷ú8U¯)'5   3CZEM 181400Z 14008KT 15SM OVC180 18/09 A2988 RMK AC8 SLP118 DENSITY ALT 500FTCZEM2019-07-18T14:00:00Z52.22-78.5218.09.0140815.029.8789371011.8VFRMETAR7.02019-07-18 14:22:34a¯);5   3CZFM 181400Z 32005KT 35SM FEW040 SCT080 14/12 A2977 RMK CU1AC2 SLP085 DENSITY ALT 300FTCZFM2019-07-18T14:00:00Z67.4-134.8714.012.0320535.029.7696861008.5VFRMETAR43.02019-07-18 14:22:34w¯)_5    3CZPC 181400Z AUTO 33010KT 310V010 9SM SCT060 SCT099 14/08 A2967 RMK LTNG DIST W SLP038 DENSITY ALT 5000FTCZPC2019-07-18T14:00:00Z49.52-114.014.08.0330109.029.669291003.8TRUEVFRMETAR1190.02019-07-18 14:22:34‚¯){5   3CYXH 181400Z 23015KT 30SM FEW095 FEW160 FEW250 18/08 A2957 RMK AC1AC1CI1 AC TR AC TR WND ESTD SLP008 DENSITY ALT 3600FTCYXH2019-07-18T14:00:00Z50.02-110.7218.08.02301530.029.5688971000.8VFRMETAR716.02019-07-18 14:22:34 £9i£@¯)5    3CWFD 181400Z AUTO 34008KT ////SM //// FEW005 BKN036 OVC043 05/// A2941CWFD2019-07-18T14:00:00Z66.57-61.58340829.409449TRUEMETAR393.02019-07-18 14:22:34J¯)5   3CWGZ 181400Z VRB02KT 15SM OVC044 07/01 A2968 RMK SC8 DSTNT FOG SLP054CWGZ2019-07-18T14:00:00Z76.42-82.97.01.00215.029.6811031005.4VFRMETAR45.02019-07-18 14:22:34V¯)!5    3CWSA 181400Z AUTO 33012KT 9SM CLR 18/15 A2991 RMK SLP130 DENSITY ALT 300FTCWSA2019-07-18T14:00:00Z43.93-60.018.015.0330129.029.9114171013.0TRUEVFRMETAR4.02019-07-18 14:22:34e¯)75   3CYPD 181400Z AUTO 33010G17KT 300V360 9SM CLR 19/09 A2990 RMK SLP125 DENSITY ALT 900FTCYPD2019-07-18T14:00:00Z45.67-61.3719.09.033010179.029.8996071012.5TRUEVFRMETAR114.02019-07-18 14:22:34 55X¯)#5    3CYYL 181400Z AUTO VRB02KT 9SM CLR 20/13 A2955 RMK SLP010 DENSITY ALT 2400FTCYYL2019-07-18T14:00:00Z56.87-101.0720.013.0029.029.5511821001.0TRUEVFRMETAR357.02019-07-18 14:22:34‚¯)[5    3CYZH 181400Z AUTO 25009KT 9SM -RA SCT017 SCT050 BKN065 OVC080 13/12 A2952 RMK SLP002 DENSITY ALT 2600FTCYZH2019-07-18T14:00:00Z55.28-114.7713.012.025099.029.5187021000.2TRUE-RAOVC8000VFRMETAR581.02019-07-18 14:22:34e¯)75    3CZVL 181400Z AUTO 30004KT 9SM FEW008 OVC013 14/13 A2953 RMK SLP003 DENSITY ALT 3100FTCZVL2019-07-18T14:00:00Z53.67-113.8514.013.030049.029.5305121000.3TRUEMVFRMETAR686.02019-07-18 14:22:34v¯)g5   3CWEU 181400Z 26013KT 15SM FEW040 FEW100 FEW270 14/03 A2970 RMK CF1AC1CI1 CF TR AC TR SLP060 DENSITY ALT 200FTCWEU2019-07-18T14:00:00Z80.0-85.9214.03.02601315.029.6988181006.0VFRMETAR10.02019-07-18 14:22:34 B'!BY¯))5   3CYQL 181400Z 24012KT 60SM FEW060 16/07 A2962 RMK SC2 SLP022 DENSITY ALT 4300FTCYQL2019-07-18T14:00:00Z49.63-112.816.07.02401260.029.6190951002.2VFRMETAR929.02019-07-18 14:22:34‚¯)u5   3CYQR 181400Z 25006KT 15SM FEW010 FEW100 FEW250 18/15 A2957 RMK SC1AC1CI1 SC TR AC TR CI TR SLP015 DENSITY ALT 3100FTCYQR2019-07-18T14:00:00Z50.43-104.6718.015.0250615.029.5688971001.5VFRMETAR577.02019-07-18 14:22:34d¯)95    3CYQW 181400Z AUTO 18003KT 130V210 9SM FEW110 16/14 A2950 RMK SLP993 DENSITY ALT 2700FTCYQW2019-07-18T14:00:00Z52.77-108.2516.014.018039.029.500984999.3TRUEVFRMETAR548.02019-07-18 14:22:34i¯)I5   3CYVC 181400Z 16004KT 15SM FEW012 FEW250 17/15 A2954 RMK CU1CI2 CU TR SLP009 DENSITY ALT 2300FTCYVC2019-07-18T14:00:00Z55.15-105.2717.015.0160415.029.539371000.9VFRMETAR379.02019-07-18 14:22:34 5è  5e¯#)A5    3CYOJ 181400Z VRB02KT 3SM FU FEW026 BKN080 16/14 A2950 RMK SC2AC4 SLP995 DENSITY ALT 2000FTCYOJ2019-07-18T14:00:00Z58.62-117.1716.014.0023.029.500984999.5FUMVFRMETAR338.02019-07-18 14:22:34c¯")=5   3CYPG 181400Z 26005KT 15SM FEW009 BKN170 BKN240 20/17 A2955 RMK SF1AC4CI2 DA2358FT SLP006CYPG2019-07-18T14:00:00Z49.88-98.2720.017.0260515.029.5511821000.6VFRMETAR269.02019-07-18 14:22:34Y¯!)#5    3CYPY 181400Z AUTO 12003KT 9SM CLR 19/15 A2950 RMK SLP994 DENSITY ALT 1800FTCYPY2019-07-18T14:00:00Z58.77-111.1219.015.012039.029.500984999.4TRUEVFRMETAR232.02019-07-18 14:22:34‚¯ )‚ 5   3CYQF 181400Z 24005KT 15SM FEW010 FEW025 SCT040CB BKN120 BKN280 11/09 A2955 RMK SF1SC1CB2AC1CI1 CB NW-N SLP011 DENSITY ALT 3700FTCYQF2019-07-18T14:00:00Z52.17-113.911.09.0240515.029.5511821001.1BKN12000VFRMETAR905.02019-07-18 14:22:34 L";Li¯')M5   3CYGX 181400Z 04004KT 010V070 15SM FEW021 OVC084 17/10 A2952 RMK SC2AS6 SLP001 DENSITY ALT 1300FTCYGX2019-07-18T14:00:00Z56.35-94.717.010.040415.029.5187021000.1VFRMETAR145.02019-07-18 14:22:34\¯&))5    3CYKJ 181400Z AUTO 08003KT 9SM BKN130 15/13 A2957 RMK SLP020 DENSITY ALT 2400FTCYKJ2019-07-18T14:00:00Z57.25-105.6215.013.08039.029.5688971002.0TRUEVFRMETAR509.02019-07-18 14:22:34¯%)e5   3CYLL 181400Z 24005KT 15SM FEW004 FEW015 SCT080 BKN250 15/14 A2950 RMK SF1CU1AC2CI2 SLP994 DENSITY ALT 3200FTCYLL2019-07-18T14:00:00Z53.32-110.0715.014.0240515.029.500984999.4BKN25000VFRMETAR669.02019-07-18 14:22:34X¯$)#5    3CYMM 181400Z AUTO 09005KT 9SM CLR 17/13 A2947 RMK SLP985 DENSITY ALT 2200FTCYMM2019-07-18T14:00:00Z56.65-111.2217.013.09059.029.471457998.5TRUEVFRMETAR369.02019-07-18 14:22:34 s8NsU¯+)#5    3CYBQ 181400Z AUTO 02003KT 9SM CLR 21/11 A2954 RMK SLP006 DENSITY ALT 2200FTCYBQ2019-07-18T14:00:00Z58.7-98.521.011.02039.029.539371000.6TRUEVFRMETAR262.02019-07-18 14:22:34d¯*)95    3CYBU 181400Z AUTO 05005KT 360V060 9SM OVC003 16/16 A2952 RMK SLP003 DENSITY ALT 2000FTCYBU2019-07-18T14:00:00Z53.32-104.016.016.05059.029.5187021000.3TRUELIFRMETAR374.02019-07-18 14:22:34[¯))#5    3CYEN 181400Z AUTO 27015KT 9SM CLR 20/13 A2959 RMK SLP018 DENSITY ALT 3300FTCYEN2019-07-18T14:00:00Z49.22-102.9720.013.0270159.029.5895671001.8TRUEVFRMETAR581.02019-07-18 14:22:34a¯()55    3CYET 181400Z AUTO 25008KT 9SM -RA 09/09 A2962 RMK CLD MISG SLP036 DENSITY ALT 3400FTCYET2019-07-18T14:00:00Z53.57-116.479.09.025089.029.6190951003.6TRUE-RAMETAR925.02019-07-18 14:22:34 -40-}¯/)Y5   3CZUM 181400Z AUTO 30012G23KT 9SM FEW021 BKN036 BKN047 OVC060 11/09 A2970 RMK SLP070 DENSITY ALT 1500FTCZUM2019-07-18T14:00:00Z53.53-64.0811.09.030012239.029.6988181007.0TRUEOVC6000VFRMETAR440.02019-07-18 14:22:34_¯.)/5  3CYZU 181400Z 31012G19KT 15SM BKN078 11/09 A2957 RMK AC7 SLP022 DENSITY ALT 3200FTCYZU2019-07-18T14:00:00Z54.15-115.7811.09.0310121915.029.5688971002.2VFRMETAR785.02019-07-18 14:22:34‚¯-)‚5  3CYAB 181400Z 30020G26KT 20SM FEW005 FEW015 FEW025 SCT040 OVC060 02/02 A2950 RMK SC1SC1SC1SC2SC4 SC TR VIS S 6 BR LWR SW W CIG ESTD SLP992CYAB2019-07-18T14:00:00Z73.0-85.052.02.0300202620.029.500984999.2SCT4000VFRMETAR22.02019-07-18 14:22:34F¯,)5   3CYBK 181400Z 32014KT 20SM OVC010 10/07 A2960 RMK SC8 SLP028CYBK2019-07-18T14:00:00Z64.28-96.0710.07.03201420.029.6013771002.8MVFRMETAR18.02019-07-18 14:22:34 Z 5ZU¯3)!5    3CYHU 181400Z AUTO 02007KT 9SM CLR 20/14 A3002 RMK SLP166 DENSITY ALT 600FTCYHU2019-07-18T14:00:00Z45.52-73.4220.014.02079.030.020671016.6TRUEVFRMETAR27.02019-07-18 14:22:34e¯2)?5  3CYGP 181400Z 31011G16KT 290V350 15SM FEW059 21/08 A2986 RMK CU2 SLP115 DENSITY ALT 1000FTCYGP2019-07-18T14:00:00Z48.77-64.4721.08.0310111615.029.8612211011.5VFRMETAR33.02019-07-18 14:22:34^¯1)35   3CYGR 181400Z 29014KT 20SM FEW270 18/12 A2987 RMK CI1 CI TR SLP115 DENSITY ALT 500FTCYGR2019-07-18T14:00:00Z47.42-61.7718.012.02901420.029.8700791011.5VFRMETAR10.02019-07-18 14:22:34v¯0)c5   3CYAM 181400Z 13005KT 090V160 15SM FEW055 BKN073 OVC210 22/16 A2983 RMK CU2ACC3CI3 SLP103 DENSITY ALT 1700FTCYAM2019-07-18T14:00:00Z46.47-84.5222.016.0130515.029.8287411010.3VFRMETAR192.02019-07-18 14:22:34 x#Fdxf¯7)G5   3CYND 181400Z 07012KT 15SM FEW140 SCT240 21/11 A3002 RMK AC1CI3 AC TR SLP168 DENSITY ALT 900FTCYND2019-07-18T14:00:00Z45.52-75.5721.011.0701215.030.020671016.8VFRMETAR64.02019-07-18 14:22:34\¯6)'5   3CYNA 181400Z AUTO 27016G24KT 9SM CLR 16/10 A2971 RMK SLP063 DENSITY ALT 400FTCYNA2019-07-18T14:00:00Z50.17-61.8216.010.027016249.029.710631006.3TRUEVFRMETAR11.02019-07-18 14:22:34W¯5)'5   3CYKO 181400Z 23013KT 15SM SCT081 12/10 A2957 RMK AC3 SLP017 DENSITY ALT 200FTCYKO2019-07-18T14:00:00Z60.82-78.1512.010.02301315.029.5688971001.7VFRMETAR9.02019-07-18 14:22:34W¯4)!5    3CYMO 181400Z AUTO 16006KT 9SM CLR 20/13 A2978 RMK SLP086 DENSITY ALT 700FTCYMO2019-07-18T14:00:00Z51.28-80.6220.013.016069.029.7785431008.6TRUEVFRMETAR10.02019-07-18 14:22:34 L '>Ll¯;)Q5   3CYRL 181400Z 24009KT 15SM SCT010 SCT180 BKN220 20/18 A2952 RMK SC3AC1CI1 SLP998 DENSITY ALT 2700FTCYRL2019-07-18T14:00:00Z51.07-93.7820.018.0240915.029.518702999.8VFRMETAR383.02019-07-18 14:22:34c¯:)A5   3CYQT 181400Z VRB02KT 12SM OVC004 17/17 A2967 RMK ST8 VIS SW-W BR SLP051 DENSITY ALT 1400FTCYQT2019-07-18T14:00:00Z48.37-89.3217.017.00212.029.669291005.1LIFRMETAR199.02019-07-18 14:22:34s¯9)_5   3CYRJ 181400Z 08003KT 020V130 40SM FEW220 SCT066 BKN220 18/12 A3006 RMK CC2CI2CS1 SLP184 DENSITY ALT 900FTCYRJ2019-07-18T14:00:00Z48.52-72.2718.012.080340.030.0590551018.4VFRMETAR179.02019-07-18 14:22:34Z¯8))5    3CYPQ 181400Z AUTO VRB02KT 9SM SCT015 23/18 A2996 RMK SLP147 DENSITY ALT 1600FTCYPQ2019-07-18T14:00:00Z44.22-78.3723.018.0029.029.9586621014.7TRUEVFRMETAR191.02019-07-18 14:22:34 Wþ9QWt¯?)_5   3CYVP 181400Z 25012KT 230V290 15SM BKN055 BKN100 BKN240 16/10 A2973 RMK SC5AC1CI1 SLP069 DENSITY ALT 500FTCYVP2019-07-18T14:00:00Z58.12-68.4216.010.02501215.029.7312981006.9VFRSPECI60.02019-07-18 14:22:34b¯>);5   3CYVV 181400Z 18009KT 15SM BKN060 24/20 A2992 RMK SC7 WND ESTD SLP131 DENSITY ALT 2000FTCYVV2019-07-18T14:00:00Z44.75-81.0824.020.0180915.029.9202751013.1VFRMETAR222.02019-07-18 14:22:34?¯=(y5    3CYWA 181400Z AUTO ///// 9SM CLR 21/13 A2999 RMK SLP157CYWA2019-07-18T14:00:00Z45.95-77.3221.013.09.029.9911421015.7TRUEVFRMETAR130.02019-07-18 14:22:34|¯<)o5   3CYTS 181400Z 19008KT 150V210 15SM SCT096 BKN120 OVC200 20/13 A2986 RMK AC3AC3CI2 PRESRR SLP114 DENSITY ALT 1900FTCYTS2019-07-18T14:00:00Z48.57-81.3720.013.0190815.029.8612211011.4VFRMETAR295.02019-07-18 14:22:34 w?Ocwf¯C)C5  3CYBX 181400Z 28013G19KT 15SM FEW025 SCT100 18/09 A2951 RMK SC2AC1 SLP996 DENSITY ALT 1000FTCYBX2019-07-18T14:00:00Z51.45-57.1718.09.0280131915.029.509842999.6VFRMETAR35.02019-07-18 14:22:34f¯B);5   3CYGV 181400Z AUTO 29017G27KT 9SM FEW055 SCT250 20/08 A2977 RMK SLP083 DENSITY ALT 800FTCYGV2019-07-18T14:00:00Z50.27-63.6220.08.029017279.029.7696861008.3TRUEVFRMETAR33.02019-07-18 14:22:34j¯A)K5  3CYIK 181400Z 18015G21KT 15SM BKN008 OVC013 OVC100 10/09 A2947 RMK ST7ST1AS1 AS TR PRESFR SLP983CYIK2019-07-18T14:00:00Z62.42-77.9310.09.0180152115.029.471457998.3IFRMETAR42.02019-07-18 14:22:34;¯@(w5     3VECC 181400Z 17009KT 4000 HZ FEW020 32/26 Q1000 NOSIGVECC2019-07-18T14:00:00Z22.6588.4332.026.017092.4929.52756TRUEHZIFRMETAR6.02019-07-18 14:22:34 G00Gc¯G)=5   3CYSJ 181400Z 36008KT 15SM FEW036 SCT300 21/12 A2999 RMK CU1CI3 SLP157 DENSITY ALT 1100FTCYSJ2019-07-18T14:00:00Z45.32-65.8721.012.0360815.029.9911421015.7VFRSPECI109.02019-07-18 14:22:34z¯F)k5   3CYYG 181400Z 33010KT 300V360 15SM FEW025 SCT300 20/10 A2993 RMK CU1CI3 CU TR CONTRAILS SLP137 DENSITY ALT 800FTCYYG2019-07-18T14:00:00Z46.27-63.1220.010.03301015.029.9291341013.7VFRMETAR54.02019-07-18 14:22:34X¯E)#5    3CYAH 181400Z AUTO 28007KT 9SM CLR 17/09 A2996 RMK SLP153 DENSITY ALT 1300FTCYAH2019-07-18T14:00:00Z53.75-73.6717.09.028079.029.9586621015.3TRUEVFRMETAR306.02019-07-18 14:22:34l¯D)O5   3CYAS 181400Z 27020KT 15SM FEW018 SCT087 SCT230 14/10 A2962 RMK SC1AC2CS1 SLP035 DENSITY ALT 800FTCYAS2019-07-18T14:00:00Z60.02-70.014.010.02702015.029.6190951003.5VFRMETAR117.02019-07-18 14:22:34 qJ›ì;qD¯L) 5   3ZYHB 181400Z 06002MPS 7000 NSC 19/18 Q1006 BECMG TL1550 2000 BRZYHB2019-07-18T14:00:00Z45.62126.2519.018.06044.3529.704725MVFRSPECI140.02019-07-18 14:22:34+¯K(Y5   3SARP 181400Z 05010KT CAVOK 17/10 Q1022SARP2019-07-18T14:00:00Z-27.38-55.9717.010.050106.2130.177166VFRMETAR125.02019-07-18 14:22:34)¯J(_5  3LPOV 181400Z 34019G30KT CAVOK 21/15 Q1016LPOV2019-07-18T14:00:00Z40.92-8.6521.015.034019306.2130.0VFRMETAR17.02019-07-18 14:22:34)¯I(Y5   3LPMR 181400Z 34017KT CAVOK 23/13 Q1017LPMR2019-07-18T14:00:00Z39.82-8.8723.013.0340176.2130.029528VFRMETAR54.02019-07-18 14:22:340¯H(i5   3LPMT 181400Z 31012KT 310V010 CAVOK 29/15 Q1015LPMT2019-07-18T14:00:00Z38.7-9.0529.015.0310126.2129.970472VFRMETAR11.02019-07-18 14:22:34 *@z»ì*<¯Q(s5    3ZLLL 181400Z 34002MPS 9999 OVC040 18/17 Q1018 NOSIGZLLL2019-07-18T14:00:00Z36.52103.6218.017.034046.2130.059055TRUEVFRMETAR1947.02019-07-18 14:22:34I¯P)5    3ZSNJ 181400Z 07003MPS 6000 SCT017 BKN030 26/25 Q1002 RESHRA NOSIGZSNJ2019-07-18T14:00:00Z31.75118.8726.025.07063.7329.586615TRUEMVFRMETAR33.02019-07-18 14:22:349¯O(s5    3ZSOF 181400Z 01002MPS 9999 OVC040 28/24 Q1003 NOSIGZSOF2019-07-18T14:00:00Z31.98116.9728.024.01046.2129.616142TRUEVFRMETAR63.02019-07-18 14:22:34@¯N)5    3ZUCK 181400Z VRB01MPS 9999 FEW014 BKN040 26/25 Q1004 NOSIGZUCK2019-07-18T14:00:00Z29.72106.6326.025.0026.2129.64567TRUEVFRMETAR416.02019-07-18 14:22:34:¯M(s5    3ZYCC 181400Z VRB01MPS 6000 FEW030 24/20 Q1007 NOSIGZYCC2019-07-18T14:00:00Z43.98125.6824.020.0023.7329.734253TRUEMVFRMETAR238.02019-07-18 14:22:34 YGÑY9¯V(w5   3HTMU 181400Z 30012KT 9999 FEW027 FEW028CB 26/18 Q1017HTMU2019-07-18T14:00:00Z-1.533.7826.018.0300126.2130.029528VFRSPECI1147.02019-07-18 14:22:343¯U(g5    3ZHCC 181400Z VRB01MPS CAVOK 28/20 Q1005 NOSIGZHCC2019-07-18T14:00:00Z34.52113.8328.020.0026.2129.675198TRUEVFRMETAR151.02019-07-18 14:22:348¯T(m5    3ZHHH 181400Z 36002MPS 8000 NSC 28/25 Q1002 NOSIGZHHH2019-07-18T14:00:00Z30.78114.2228.025.036044.9729.586615TRUEMVFRMETAR33.02019-07-18 14:22:342¯S(g5    3ZJHK 181400Z VRB01MPS CAVOK 28/27 Q1001 NOSIGZJHK2019-07-18T14:00:00Z19.93110.4728.027.0026.2129.557087TRUEVFRMETAR23.02019-07-18 14:22:343¯R(g5    3ZJSY 181400Z 31002MPS CAVOK 29/27 Q1002 NOSIGZJSY2019-07-18T14:00:00Z18.3109.4229.027.031046.2129.586615TRUEVFRMETAR27.02019-07-18 14:22:34 ðRŸÍðW¯Z)'5   3CYKQ 181400Z 15008KT 15SM BKN140 19/10 A2987 RMK AC7 SLP117 DENSITY ALT 600FTCYKQ2019-07-18T14:00:00Z51.47-78.7519.010.0150815.029.8700791011.7VFRMETAR23.02019-07-18 14:22:34L¯Y)5    3SKIP 181400Z 10008KT 9999 VCSH FEW007 BKN016 11/08 A3043 RMK VCSH/ESKIP2019-07-18T14:00:00Z0.88-77.6711.08.010086.2130.431103VCSHMVFRMETAR2961.02019-07-18 14:22:34-¯X(i5   3LPST 181400Z 33014KT 300V360 CAVOK 25/13 Q1016LPST2019-07-18T14:00:00Z38.82-9.3225.013.0330146.2130.0VFRMETAR130.02019-07-18 14:22:34(¯W(Y5   3LPAR 181400Z 36014KT CAVOK 29/13 Q1015LPAR2019-07-18T14:00:00Z38.88-9.0329.013.0360146.2129.970472VFRMETAR3.02019-07-18 14:22:34 €G€A¯^) 5   3CWPX 181400Z AUTO 34012KT ////SM //// FEW005 OVC043 09/08 A2978CWPX2019-07-18T14:00:00Z69.02-107.829.08.03401229.778543TRUEMETAR165.02019-07-18 14:22:34D¯]) 5    3CWRX 181400Z AUTO 10007KT 080V220 10SM //// OVC050 07/06 A2948CWRX2019-07-18T14:00:00Z69.07-79.027.06.0100710.029.480314TRUEVFRMETAR41.02019-07-18 14:22:34¯\)k5    3CWSW 181400Z 18005KT 150V270 10SM -TSRA FEW012 OVC035CB 09/08 A2984 RMK SF1CB7 PRESRR SLP110 DENSITY ALT 4100FTCWSW2019-07-18T14:00:00Z49.75-114.879.08.0180510.029.8405511011.0-TSRAVFRMETAR1138.02019-07-18 14:22:34d¯[)=5   3CYYE 181400Z 31004KT 15SM SCT085 OVC120 15/12 A2955 RMK AC3AS5 SLP011 DENSITY ALT 2000FTCYYE2019-07-18T14:00:00Z58.82-122.5715.012.0310415.029.5511821001.1VFRMETAR382.02019-07-18 14:22:34 ‘6Y‘B¯b) 5   3CWUW 181400Z AUTO 13010G16KT 080V140 ////SM FEW150 10/05 A2947CWUW2019-07-18T14:00:00Z68.65-71.1710.05.0130101629.471457TRUEMETAR527.02019-07-18 14:22:34W¯a)+5   3CZST 181400Z 00000KT 12SM SCT018 BKN045 OVC055 12/12 A2976 RMK SC4SC2SC2 SLP080CZST2019-07-18T14:00:00Z55.93-129.9812.012.00012.029.7608261008.0VFRMETAR7.02019-07-18 14:22:34`¯`)/5     3CYAT 181400Z AUTO 14003KT 9SM -RA OVC095 16/12 A2972 RMK SLP065 DENSITY ALT 300FTCYAT2019-07-18T14:00:00Z52.93-82.4316.012.014039.029.7194881006.5TRUE-RAVFRMETAR9.02019-07-18 14:22:34^¯_)15    3CZBF 181400Z AUTO 28006KT 250V010 9SM CLR 21/08 A2997 RMK SLP150 DENSITY ALT 800FTCZBF2019-07-18T14:00:00Z47.62-65.7521.08.028069.029.9704721015.0TRUEVFRSPECI59.02019-07-18 14:22:34 cBÔc.¯g(e5   3HKWJ 181400Z 18009KT 9999 SCT038 34/14 Q1011HKWJ2019-07-18T14:00:00Z1.7540.0734.014.018096.2129.852362VFRMETAR244.02019-07-18 14:22:347¯f(w5   3FYML 181400Z AUTO 19001KT //// // ////// 28/M10 Q1025FYML2019-07-18T14:00:00Z-24.617.9328.0-10.0190130.265747TRUEMETAR1113.02019-07-18 14:22:346¯e(w5   3FYOO 181400Z AUTO 09003KT //// // ////// 28/M02 Q1021FYOO2019-07-18T14:00:00Z-19.1515.9228.0-2.090330.147638TRUEMETAR1192.02019-07-18 14:22:34,¯d(_5   3SLRB 181400Z 00000KT 9999 NSC 24/21 Q1019SLRB2019-07-18T14:00:00Z-18.32-59.7524.021.0006.2130.088583VFRMETAR284.02019-07-18 14:22:348¯c(}5   3CZCP 181400Z AUTO 30010KT ////SM //// OVC002 03/02 A2977CZCP2019-07-18T14:00:00Z70.17-124.723.02.03001029.769686TRUEMETAR93.02019-07-18 14:22:34 …"Je…Z¯k)'5    3CYER 181400Z AUTO 16007KT 9SM BKN070 19/14 A2955 RMK SLP009 DENSITY ALT 900FTCYER2019-07-18T14:00:00Z56.02-87.6819.014.016079.029.5511821000.9TRUEVFRMETAR16.02019-07-18 14:22:34_¯j)15    3CYBC 181400Z AUTO 20012KT 190V320 9SM CLR 19/11 A2996 RMK SLP148 DENSITY ALT 400FTCYBC2019-07-18T14:00:00Z49.12-68.219.011.0200129.029.9586621014.8TRUEVFRMETAR22.02019-07-18 14:22:34R¯i)5    3CYBN 181400Z AUTO 19007KT 160V220 9SM OVC016 24/20 A2995 RMK SLP139CYBN2019-07-18T14:00:00Z44.27-79.9224.020.019079.029.9498021013.9TRUEMVFRMETAR223.02019-07-18 14:22:34X¯h)#5    3CYCK 181400Z AUTO 17006KT 9SM CLR 25/22 A2995 RMK SLP141 DENSITY ALT 1800FTCYCK2019-07-18T14:00:00Z42.3-82.0825.022.017069.029.9498021014.1TRUEVFRMETAR198.02019-07-18 14:22:34 m'(m5¯o(u5   3DAAG 181400Z 03012KT 360V060 9999 FEW026 31/20 Q1014DAAG2019-07-18T14:00:00Z36.723.2231.020.030126.2129.940945VFRMETAR25.02019-07-18 14:22:34y¯n)m5   3CYGK 181400Z 02005KT 360V070 15SM FEW030 FEW080 BKN200 24/19 A2997 RMK CU1AC2CI5 CU TR SLP148 DENSITY ALT 1400FTCYGK2019-07-18T14:00:00Z44.22-76.5824.019.020515.029.9704721014.8VFRMETAR93.02019-07-18 14:22:34o¯m)Q5   3CYGQ 181400Z 20010KT 15SM BKN017 BKN085 BKN250 19/16 A2966 RMK SC5AC1CI1 SLP048 DENSITY ALT 2200FTCYGQ2019-07-18T14:00:00Z49.77-86.9219.016.02001015.029.6604331004.8MVFRMETAR351.02019-07-18 14:22:34^¯l)35   3CYFR 181400Z 05007KT 15SM SKC 18/13 A2955 RMK FU PRSNT 0/ SLP011 DENSITY ALT 1400FTCYFR2019-07-18T14:00:00Z61.17-113.6718.013.050715.029.5511821001.1VFRMETAR164.02019-07-18 14:22:34 ,O¦÷,\¯t))5    3CYOO 181400Z AUTO 13005KT 9SM BKN025 23/18 A2995 RMK SLP142 DENSITY ALT 1400FTCYOO2019-07-18T14:00:00Z43.92-78.923.018.013059.029.9498021014.2TRUEMVFRMETAR139.02019-07-18 14:22:34c¯s);5    3CYHM 181400Z 06004KT 2 1/2SM BR OVC004 22/22 A2996 RMK FG3ST5 SLP144 DENSITY ALT 1800FTCYHM2019-07-18T14:00:00Z43.17-79.9322.022.06042.529.9586621014.4BRLIFRMETAR238.02019-07-18 14:22:34)¯r(e5   3DABC 181400Z 35011KT 9999 FEW040 31/07 Q1016DABC2019-07-18T14:00:00Z36.276.6231.07.0350116.2130.0VFRMETAR694.02019-07-18 14:22:34#¯q(e5    3DAAT 181400Z 14007KT 6000 SCT046 40/// Q1016DAAT2019-07-18T14:00:00Z22.825.4714073.7330.0MVFRSPECI1377.02019-07-18 14:22:34+¯p(e5   3DABB 181400Z 01016KT 9999 FEW026 28/18 Q1012DABB2019-07-18T14:00:00Z36.827.8228.018.010166.2129.88189VFRMETAR4.02019-07-18 14:22:34 X7WXy¯x)i5   3CYQK 181400Z 19007KT 20SM SCT060CB OVC100 20/19 A2957 RMK CB3AC5 DIST LTNG SW MOVG E SLP014 DENSITY ALT 2700FTCYQK2019-07-18T14:00:00Z49.77-94.3720.019.0190720.029.5688971001.4VFRMETAR411.02019-07-18 14:22:34Z¯w)'5    3CYPO 181400Z AUTO 18009KT 9SM OVC080 18/13 A2960 RMK SLP024 DENSITY ALT 900FTCYPO2019-07-18T14:00:00Z54.98-85.4318.013.018099.029.6013771002.4TRUEVFRMETAR53.02019-07-18 14:22:34`¯v)15    3CYQA 181400Z AUTO 14009KT 9SM CLR 23/14 A2994 RMK PRESFR SLP139 DENSITY ALT 2000FTCYQA2019-07-18T14:00:00Z44.97-79.2823.014.014099.029.9409451013.9TRUEVFRMETAR282.02019-07-18 14:22:34]¯u)/5   3CYPL 181400Z 21013KT 12SM OVC010 18/16 A2953 RMK SC8 BR SLP003 DENSITY ALT 2500FTCYPL2019-07-18T14:00:00Z51.47-90.218.016.02101312.029.5305121000.3MVFRSPECI373.02019-07-18 14:22:34 } Dc}`¯|)35    3CYSC 181400Z AUTO 05005KT 360V100 9SM CLR 19/13 A3003 RMK SLP171 DENSITY ALT 1300FTCYSC2019-07-18T14:00:00Z45.43-71.6819.013.05059.030.0295281017.1TRUEVFRMETAR241.02019-07-18 14:22:34[¯{)-5    3CYSN 181400Z 11005KT 6SM BR BKN010 25/23 A2993 RMK SF5 SLP136 DENSITY ALT 1600FTCYSN2019-07-18T14:00:00Z43.2-79.1725.023.011056.029.9291341013.6BRMVFRMETAR98.02019-07-18 14:22:34V¯z)!5    3CYRQ 181400Z AUTO 09008KT 9SM CLR 21/11 A3004 RMK SLP174 DENSITY ALT 700FTCYRQ2019-07-18T14:00:00Z46.35-72.6821.011.09089.030.0413381017.4TRUEVFRMETAR61.02019-07-18 14:22:34Z¯y))5   3CYSB 181400Z 18010KT 20SM BKN020 21/14 A2995 RMK SC6 SLP142 DENSITY ALT 2100FTCYSB2019-07-18T14:00:00Z46.63-80.821.014.01801020.029.9498021014.2MVFRMETAR348.02019-07-18 14:22:34 ø2€¶ø8¯‘(q5    3HKJK 181400Z 04007KT 9999 SCT026 24/09 Q1022 NOSIGHKJK2019-07-18T14:00:00Z-1.3236.9224.09.04076.2130.177166TRUEVFRMETAR1624.02019-07-18 14:22:34D¯)5    3HUEN 181400Z 16012KT 9999 FEW022 FEW024CB 25/18 Q1017 NOSIGHUEN2019-07-18T14:00:00Z0.0332.4525.018.0160126.2130.029528TRUEVFRMETAR1155.02019-07-18 14:22:34,¯~(e5   3HCMM 181400Z 20015KT 9999 SCT024 27/19 Q1012HCMM2019-07-18T14:00:00Z2.0245.3527.019.0200156.2129.88189VFRMETAR9.02019-07-18 14:22:34H¯}) 5  3CYRB 181400Z 03021G26KT 12SM BKN110 07/04 A2962 RMK AC7 SLP039CYRB2019-07-18T14:00:00Z74.72-94.977.04.030212612.029.6190951003.9VFRSPECI67.02019-07-18 14:22:34 p¯‘)[5   3CYYH 181400Z 36010KT 15SM SCT060 SCT071 SCT120 12/07 A2951 RMK SC3AC1AS1 AS TR SLP997 DENSITY ALT 200FTCYYH2019-07-18T14:00:00Z69.53-93.5712.07.03601015.029.509842999.7VFRMETAR28.02019-07-18 14:22:34‚¯‘)k5  3CYYU 181400Z 18015G23KT 15SM FEW075 SCT100 BKN130 BKN260 21/13 A2979 RMK AC1AC2AC2CI2 SLP093 DENSITY ALT 1800FTCYYU2019-07-18T14:00:00Z49.42-82.4721.013.0180152315.029.7903541009.3BKN26000VFRMETAR227.02019-07-18 14:22:34b¯‘);5   3CYVQ 181400Z 10006KT 30SM FEW150 FEW270 16/10 A2977 RMK AC1CI1 SLP084 DENSITY ALT 600FTCYVQ2019-07-18T14:00:00Z65.27-126.7816.010.0100630.029.7696861008.4VFRMETAR74.02019-07-18 14:22:34t¯‘)W5   3CYSP 181400Z 19009G15KT 140V240 6SM BR FEW012 OVC023 18/17 A2970 RMK SC2SC6 SLP063 DENSITY ALT 1900FTCYSP2019-07-18T14:00:00Z48.75-86.3518.017.01909156.029.6988181006.3BRMVFRMETAR315.02019-07-18 14:22:34 $   $c¯‘)95    3CYYW 181400Z AUTO 20008KT 170V240 9SM BKN015 20/17 A2959 RMK SLP013 DENSITY ALT 2200FTCYYW2019-07-18T14:00:00Z50.3-88.920.017.020089.029.5895671001.3TRUEMVFRMETAR351.02019-07-18 14:22:34z¯‘)m5   3CYXL 181400Z 22007KT 180V250 15SM FEW008 BKN015 BKN220 21/18 A2958 RMK SF2SC5CI1 CI TR SLP020 DENSITY ALT 2600FTCYXL2019-07-18T14:00:00Z50.12-91.921.018.0220715.029.580711002.0MVFRMETAR390.02019-07-18 14:22:34w¯‘)e5   3CYXZ 181400Z 17006KT 15SM SCT027 BKN050 OVC120 19/17 A2976 RMK SC3SC4AC1 TCU EMBDD SLP079 DENSITY ALT 1900FTCYXZ2019-07-18T14:00:00Z47.97-84.7719.017.0170615.029.7608261007.9VFRMETAR287.02019-07-18 14:22:34p¯‘)S5  3CYYB 181400Z 14007G15KT 080V170 30SM SCT040 BKN250 21/14 A2995 RMK CU3CI3 SLP141 DENSITY ALT 2200FTCYYB2019-07-18T14:00:00Z46.35-79.4221.014.014071530.029.9498021014.1VFRMETAR371.02019-07-18 14:22:34 ˆ #Eˆ7¯‘ (q5    3TLPC 181400Z 10008KT 9999 SCT022 29/25 Q1017 NOSIGTLPC2019-07-18T14:00:00Z14.02-61.029.025.010086.2130.029528TRUEVFRMETAR2.02019-07-18 14:22:34X¯‘ )+5   3CYPC 181400Z 29005KT 15SM FEW040 SCT080 BKN200 11/08 A2978 RMK SC1AC3CI2 SLP085CYPC2019-07-18T14:00:00Z69.37-124.0711.08.0290515.029.7785431008.5VFRMETAR6.02019-07-18 14:22:34b¯‘ )95    3CZSJ 181400Z AUTO 03003KT 350V070 9SM OVC005 17/16 A2946 RMK SLP980 DENSITY ALT 1800FTCZSJ2019-07-18T14:00:00Z53.07-93.3517.016.03039.029.459646998.0TRUEIFRMETAR290.02019-07-18 14:22:34o¯‘ )M5     3CZMD 181400Z AUTO 03004KT 9SM -RA BKN007 BKN030 OVC039 16/15 A2944 RMK SLP974 DENSITY ALT 1800FTCZMD2019-07-18T14:00:00Z53.43-91.7716.015.03049.029.438976997.4TRUE-RAIFRMETAR278.02019-07-18 14:22:34 A7t±ûA4¯‘(s5   3MNBL 181400Z 10006KT 9999 SCT017 SCT080 29/24 Q1013MNBL2019-07-18T14:00:00Z12.0-83.7729.024.010066.2129.911417VFRMETAR5.02019-07-18 14:22:340¯‘(e5   3TRPG 181400Z 12013KT 9999 SCT014 29/25 Q1019TRPG2019-07-18T14:00:00Z16.78-62.229.025.0120136.2130.088583VFRMETAR168.02019-07-18 14:22:34=¯‘(u5     3NZAA 181400Z AUTO 02007KT 9999 NCD 11/11 Q1007 NOSIGNZAA2019-07-18T14:00:00Z-37.02174.811.011.02076.2129.734253TRUETRUEVFRMETAR6.02019-07-18 14:22:34=¯‘(u5     3NZWN 181400Z AUTO 01012KT 9999 NCD 10/08 Q1005 NOSIGNZWN2019-07-18T14:00:00Z-41.32174.810.08.010126.2129.675198TRUETRUEVFRMETAR7.02019-07-18 14:22:34C¯‘ )5     3NZCH 181400Z AUTO 09009KT 9999 BKN100/// 09/03 Q1000 NOSIGNZCH2019-07-18T14:00:00Z-43.47172.559.03.09096.2129.52756TRUETRUEVFRMETAR34.02019-07-18 14:22:34 >KœÜ>K¯‘) 5  3CWWU 181400Z 24013G18KT 15SM OVC012 17/16 A2956 RMK SC8 SLP008CWWU2019-07-18T14:00:00Z47.52-52.9817.016.0240131815.029.560041000.8MVFRMETAR13.02019-07-18 14:22:34G¯‘)5    3MNPC 181400Z 09006KT 6000 VCRA BKN016TCU 30/25 Q1013 TCURA/EMNPC2019-07-18T14:00:00Z14.05-83.3830.025.09063.7329.911417VCRA RAMVFRMETAR16.02019-07-18 14:22:34:¯‘(y5    3MNRS 181400Z 36006KT 9000 FEW016 SCT250 28/23 Q1012 HZMNRS2019-07-18T14:00:00Z11.42-85.8228.023.036065.5929.88189HZVFRMETAR53.02019-07-18 14:22:34)¯‘(g5   3MNJG 181400Z 36016KT 9999 SCT018 21/16 Q1Q015MNJG2019-07-18T14:00:00Z13.08-86.0221.016.0360166.21VFRMETAR985.02019-07-18 14:22:34/¯‘(e5   3MNJU 181400Z 28008KT 9999 SCT020 27/21 Q1013MNJU2019-07-18T14:00:00Z12.08-85.3727.021.028086.2129.911417VFRMETAR90.02019-07-18 14:22:34 oKšß$o/¯‘(g5   3OIFK 181400Z 05016KT CAVOK 44/M04 Q1002 A2960OIFK2019-07-18T14:00:00Z33.951.5844.0-4.050166.2129.586615VFRMETAR982.02019-07-18 14:22:345¯‘(q5   3OIHH 181400Z 36006KT 9999 BKN040 36/01 Q1011 A2988OIHH2019-07-18T14:00:00Z34.8748.5536.01.036066.2129.852362VFRMETAR1757.02019-07-18 14:22:345¯‘(q5   3OIHM 181400Z 22002KT 9999 BKN045 35/08 Q1013 A2993OIHM2019-07-18T14:00:00Z34.2848.8235.08.022026.2129.911417VFRMETAR1726.02019-07-18 14:22:34+¯‘([5   3OIIS 181400Z 12006KT CAVOK 41/M06 Q1007OIIS2019-07-18T14:00:00Z35.3853.6741.0-6.012066.2129.734253VFRMETAR1115.02019-07-18 14:22:34/¯‘(e5    3OIKO 181400Z 19008KT 4000 HZ NSC 35/25 Q0996OIKO2019-07-18T14:00:00Z27.1357.135.025.019082.4929.409449HZIFRMETAR27.02019-07-18 14:22:34 rHˆÛ%r-¯‘ (e5   3OINK 181400Z 19004KT CAVOK 33/24 Q1002 A2961OINK2019-07-18T14:00:00Z37.2555.133.024.019046.2129.586615VFRMETAR33.02019-07-18 14:22:340¯‘(g5   3OISA 181400Z 01004KT CAVOK 35/M10 Q1012 A2990OISA2019-07-18T14:00:00Z31.0352.7835.0-10.01046.2129.88189VFRMETAR2004.02019-07-18 14:22:34'¯‘(Y5   3OIAI 181400Z 26004KT CAVOK 45/01 Q0996OIAI2019-07-18T14:00:00Z32.049.2745.01.026046.2129.409449VFRMETAR372.02019-07-18 14:22:34:¯‘(5   3OICJ 181400Z 31008KT 9999 SCT035 BKN090 35/04 Q1012 A2988OICJ2019-07-18T14:00:00Z33.948.7535.04.031086.2129.88189VFRMETAR1600.02019-07-18 14:22:342¯‘(g5   3OICS 181400Z 30012KT CAVOK 36/M06 Q1010 A2985OICS2019-07-18T14:00:00Z35.2547.0236.0-6.0300126.2129.822834VFRMETAR1373.02019-07-18 14:22:34 Fr¦Ô<¯‘%(w5    3UKKK 181400Z 26007MPS CAVOK 21/10 Q1010 R26/70D NOSIGUKKK2019-07-18T14:00:00Z50.430.4521.010.0260146.2129.822834TRUEVFRMETAR179.02019-07-18 14:22:34L¯‘$)5    3UKKM 181400Z 27005MPS 230V310 9999 BKN048 21/08 Q1010 R33/CLRD70 NOSIGUKKM2019-07-18T14:00:00Z50.630.221.08.0270106.2129.822834TRUEVFRMETAR157.02019-07-18 14:22:34F¯‘#) 5    3UKOH 181400Z 30005MPS 270V330 CAVOK 28/08 Q1010 R03/CLRD// NOSIGUKOH2019-07-18T14:00:00Z46.6732.528.08.0300106.2129.822834TRUEVFRMETAR45.02019-07-18 14:22:34N¯‘")5    3UKWW 181400Z 30003MPS 270V330 9999 SCT033CB 19/11 Q1012 R31/0///65 NOSIGUKWW2019-07-18T14:00:00Z49.2528.619.011.030066.2129.88189TRUEVFRMETAR293.02019-07-18 14:22:344¯‘!(s5   3OINB 181400Z 00000KT 9999 FEW030 OVC090 29/23 Q1003OINB2019-07-18T14:00:00Z36.7252.6529.023.0006.2129.616142VFRMETAR-15.02019-07-18 14:22:34 Â/b•ÂM¯‘))5    3UKLR 181400Z 29006MPS 260V330 9999 SCT026 22/10 Q1012 R29/090070 NOSIGUKLR2019-07-18T14:00:00Z50.626.1322.010.0290126.2129.88189TRUEVFRMETAR230.02019-07-18 14:22:34G¯‘() 5    3UKLI 181400Z 32004MPS 260V020 CAVOK 23/08 Q1013 R28/090070 NOSIGUKLI2019-07-18T14:00:00Z48.8824.6823.08.032086.2129.911417TRUEVFRMETAR280.02019-07-18 14:22:34G¯‘') 5    3UKON 181400Z 33005MPS 300V020 CAVOK 26/06 Q1011 R04/090068 NOSIGUKON2019-07-18T14:00:00Z47.0531.9226.06.0330106.2129.852362TRUEVFRMETAR56.02019-07-18 14:22:34K¯‘&)5    3UKLU 181400Z 30004MPS 260V320 9999 NSC 25/10 Q1013 R10/090070 NOSIGUKLU2019-07-18T14:00:00Z48.6322.2725.010.030086.2129.911417TRUEVFRMETAR117.02019-07-18 14:22:34 eKÓe4¯‘.(q5    3TTCP 181400Z 12012KT 9999 FEW022 30/24 Q1016 NOSIGTTCP2019-07-18T14:00:00Z11.15-60.8530.024.0120126.2130.0TRUEVFRMETAR8.02019-07-18 14:22:34.¯‘-(e5   3EIDL 181400Z 26019KT 9999 FEW017 17/11 Q1006EIDL2019-07-18T14:00:00Z55.05-8.3317.011.0260196.2129.704725VFRMETAR9.02019-07-18 14:22:347¯‘,(u5   3EIKY 181400Z 27012KT 250V320 9999 FEW032 18/11 Q1011EIKY2019-07-18T14:00:00Z52.18-9.5218.011.0270126.2129.852362VFRMETAR34.02019-07-18 14:22:345¯‘+(s5   3EIME 181400Z 25016KT 9999 FEW020 BKN070 19/11 Q1008EIME2019-07-18T14:00:00Z53.3-6.4519.011.0250166.2129.763779VFRMETAR93.02019-07-18 14:22:34/¯‘*(u5    3EIWF 181400Z 24013KT 210V290 9999 FEW033 ///// Q1011EIWF2019-07-18T14:00:00Z52.18-7.08240136.2129.852362VFRMETAR36.02019-07-18 14:22:34 ‰.lp‰a¯‘2)35      3RJFF 181400Z AUTO 09005KT 9999 -RA FEW024 SCT037 BKN040 25/24 Q1010 NOSIG RMK A2983RJFF2019-07-18T14:00:00Z33.57130.4325.024.09056.2129.822834TRUETRUE-RAVFRMETAR12.02019-07-18 14:22:34v¯‘1)a5    3RJCC 181400Z 16012KT 1400 R19R/P2000N R19L/P2000N -DZ BR SCT001 BKN002 19/19 Q1013 RMK 3ST001 7ST002 A2992RJCC2019-07-18T14:00:00Z42.77141.6719.019.0160120.8729.911417-DZ BRLIFRMETAR30.02019-07-18 14:22:34<¯‘0)5   3RJNK 181400Z 07002KT 9999 FEW020 SCT050 BKN120 23/22 Q1010RJNK2019-07-18T14:00:00Z36.37136.4223.022.07026.2129.822834VFRMETAR9.02019-07-18 14:22:34L¯‘/)5     3TTPP 181400Z 12009KT 9999 VCSH BKN022 31/24 Q1016 NOSIG RMK VCSH E NTTPP2019-07-18T14:00:00Z10.58-61.3531.024.012096.2130.0TRUEVCSHMVFRMETAR15.02019-07-18 14:22:34 ¼=nœ¼Z¯‘6)35    3RJGG 181400Z 12004KT 9999 -SHRA FEW005 BKN045 BKN080 25/24 Q1013 TEMPO 4000 SHRA BRRJGG2019-07-18T14:00:00Z34.87136.825.024.012046.2129.911417-SHRAVFRMETAR5.02019-07-18 14:22:34L¯‘5)5    3RJFR 181400Z 05010KT 4000 SHRA BR FEW003 SCT010 BKN015 24/22 Q1011RJFR2019-07-18T14:00:00Z33.82131.0324.022.050102.4929.852362SHRA BRIFRMETAR6.02019-07-18 14:22:34I¯‘4) 5    3RJAH 181400Z 19003KT 7000 -SHRA FEW008 SCT020 BKN080 24/23 Q1012RJAH2019-07-18T14:00:00Z36.17140.4224.023.019034.3529.88189-SHRAMVFRMETAR35.02019-07-18 14:22:34=¯‘3)5   3RJOH 181400Z 23004KT 9999 FEW035 BKN130 BKN/// 23/21 Q1010RJOH2019-07-18T14:00:00Z35.47133.2523.021.023046.2129.822834VFRMETAR9.02019-07-18 14:22:34 'ØÛã'6¯‘:(s5   3DAUH 181400Z 34013KT 9999 SCT040 SCT100 40/11 Q1011DAUH2019-07-18T14:00:00Z31.676.1540.011.0340136.2129.852362VFRMETAR142.02019-07-18 14:22:34r¯‘9)W5     3RJAA 181400Z 19003KT 9999 -SHRA FEW020 BKN070 BKN100 24/24 Q1013 NOSIG RMK 1CU020 5AC070 7AC100 A2992RJAA2019-07-18T14:00:00Z35.77140.3724.024.019036.2129.911417TRUE-SHRAVFRSPECI44.02019-07-18 14:22:34w¯‘8)[5     3RJTT 181400Z 20010KT 5000 SHRA BR FEW006 SCT014 BKN040 26/25 Q1013 NOSIG RMK 1ST006 3CU014 5CU040 A2992RJTT2019-07-18T14:00:00Z35.53139.7726.025.0200103.1129.911417TRUESHRA BRMVFRMETAR8.02019-07-18 14:22:34‚"¯‘7)‚)5  3ROAH 181400Z 16024G34KT 6000 +SHRA FEW017 BKN025 FEW025CB BKN130 29/25 Q1002 RMK 1CU017 5CU025 2CB025 7AC130 A2959 LIGHTNING NW CB 8KM W MOV NROAH2019-07-18T14:00:00Z26.17127.6529.025.016024343.7329.586615+SHRABKN13000MVFRMETAR8.02019-07-18 14:22:34 NR¢ÆN>¯‘?({5  3FMNA 181400Z 14021G31KT 9999 FEW020 BSCT040 25/15 Q1015FMNA2019-07-18T14:00:00Z-12.3349.2825.015.014021316.2129.970472VFRMETAR105.02019-07-18 14:22:34.¯‘>(e5   3FMNN 181400Z 24002KT 9999 FEW020 28/17 Q1015FMNN2019-07-18T14:00:00Z-13.3248.3228.017.024026.2129.970472VFRMETAR9.02019-07-18 14:22:34V¯‘=)!5   3UMGG 181400Z 28005G08MPS 9999 BKN020CB BKN100 19/16 Q1008 R28/290050 NOSIGUMGG2019-07-18T14:00:00Z52.5331.0219.016.028010166.2129.763779TRUEMVFRMETAR144.02019-07-18 14:22:34*¯‘<(Y5   3DAON 181400Z 35016KT CAVOK 30/13 Q1013DAON2019-07-18T14:00:00Z35.02-1.4730.013.0350166.2129.911417VFRMETAR247.02019-07-18 14:22:34(¯‘;(Y5   3DAOO 181400Z 34015KT CAVOK 27/19 Q1013DAOO2019-07-18T14:00:00Z35.62-0.627.019.0340156.2129.911417VFRMETAR90.02019-07-18 14:22:34 f?‚Îf,¯‘D(_5   3SLSI 181400Z 00000KT 9999 NSC 27/19 Q1017SLSI2019-07-18T14:00:00Z-16.37-60.9527.019.0006.2130.029528VFRMETAR413.02019-07-18 14:22:340¯‘C(e5   3SLJE 181400Z 36005KT 9999 SCT070 27/19 Q1020SLJE2019-07-18T14:00:00Z-17.82-60.7527.019.036056.2130.11811VFRMETAR284.02019-07-18 14:22:34.¯‘B(e5   3FMSD 181400Z 08019KT 9999 FEW016 23/15 Q1022FMSD2019-07-18T14:00:00Z-25.0246.9523.015.080196.2130.177166VFRMETAR9.02019-07-18 14:22:347¯‘A(q5    3VTBD 181400Z 19009KT 9999 FEW020 30/26 Q1005 NOSIGVTBD2019-07-18T14:00:00Z13.92100.630.026.019096.2129.675198TRUEVFRMETAR3.02019-07-18 14:22:34;¯‘@(u5    3FMNM 181400Z 18005KT 130V230 CAVOK 30/12 Q1015 NOSIGFMNM2019-07-18T14:00:00Z-15.6746.3530.012.018056.2129.970472TRUEVFRMETAR18.02019-07-18 14:22:34 Ožê5.¯‘I(e5   3SLVM 181400Z 00000KT 9999 OVC070 19/16 Q1013SLVM2019-07-18T14:00:00Z-21.25-63.419.016.0006.2129.911417VFRMETAR400.02019-07-18 14:22:34/¯‘H(e5   3SLYA 181400Z 00000KT 9999 BKN070 16/14 Q1014SLYA2019-07-18T14:00:00Z-21.97-63.6516.014.0006.2129.940945VFRMETAR645.02019-07-18 14:22:34.¯‘G(_5   3SLRI 181400Z 19006KT 9999 NSC 28/22 Q1018SLRI2019-07-18T14:00:00Z-11.02-66.0828.022.019066.2130.059055VFRMETAR135.02019-07-18 14:22:34+¯‘F(e5   3SLSA 181400Z 00000KT 8000 SCT080 26/21 Q1016SLSA2019-07-18T14:00:00Z-13.77-65.4326.021.0004.9730.0MVFRMETAR144.02019-07-18 14:22:34+¯‘E(_5   3SLCP 181400Z 00000KT 9999 NSC 25/20 Q1020SLCP2019-07-18T14:00:00Z-16.15-62.0225.020.0006.2130.11811VFRMETAR497.02019-07-18 14:22:34 4Fu¯ñ47¯‘N(o5    3YPPD 181400Z AUTO 18005KT 9999 // NCD 15/07 Q1015YPPD2019-07-18T14:00:00Z-20.37118.6215.07.018056.2129.970472TRUEVFRMETAR6.02019-07-18 14:22:348¯‘M(o5    3YSCB 181400Z AUTO 34009KT 9999 // NCD 04/01 Q1018YSCB2019-07-18T14:00:00Z-35.28149.174.01.034096.2130.059055TRUEVFRMETAR577.02019-07-18 14:22:34@¯‘L(5    3YSDU 181400Z AUTO 11005KT 080V150 9999 // NCD 03/01 Q1021YSDU2019-07-18T14:00:00Z-32.22148.573.01.011056.2130.147638TRUEVFRMETAR275.02019-07-18 14:22:34K¯‘K) 5    3YSNF 181400Z AUTO 28018KT 9999 // BKN078 BKN091 17/13 Q1011 RERAYSNF2019-07-18T14:00:00Z-29.02167.9217.013.0280186.2129.852362TRUEVFRMETAR109.02019-07-18 14:22:344¯‘J(o5    3YSRI 181400Z AUTO 00000KT 9999 // NCD 02/00 Q1018YSRI2019-07-18T14:00:00Z-33.6150.772.00.0006.2130.059055TRUEVFRMETAR21.02019-07-18 14:22:34 BBƒÔB:¯‘S(q5    3YFRT 181400Z AUTO 17003KT 9999 // NCD 06/M08 Q1019YFRT2019-07-18T14:00:00Z-30.83128.126.0-8.017036.2130.088583TRUEVFRMETAR156.02019-07-18 14:22:34L¯‘R)5   3YMHB 181400Z 29010KT 9999 FEW028 BKN040 BKN055 11/03 Q1002 RF00.0/000.0YMHB2019-07-18T14:00:00Z-42.82147.5211.03.0290106.2129.586615VFRSPECI27.02019-07-18 14:22:34)¯‘Q(e5   3YPEA 181400Z 00000KT 9999 FEW033 12/11 Q1016YPEA2019-07-18T14:00:00Z-31.67116.0212.011.0006.2130.0VFRMETAR49.02019-07-18 14:22:349¯‘P(o5    3YPGV 181400Z AUTO 16005KT 9999 // NCD 21/19 Q1015YPGV2019-07-18T14:00:00Z-12.27136.8221.019.016056.2129.970472TRUEVFRMETAR55.02019-07-18 14:22:348¯‘O(o5    3YPKG 181400Z AUTO 02006KT 9999 // NCD 11/01 Q1018YPKG2019-07-18T14:00:00Z-30.77121.4511.01.02066.2130.059055TRUEVFRMETAR360.02019-07-18 14:22:34 MDˆË M8¯‘X(o5    3YBHM 181400Z AUTO 15009KT 9999 // NCD 18/10 Q1018YBHM2019-07-18T14:00:00Z-20.35148.9518.010.015096.2130.059055TRUEVFRMETAR5.02019-07-18 14:22:34:¯‘W(q5    3YBMA 181400Z AUTO 17006KT 9999 // NCD 13/M04 Q1020YBMA2019-07-18T14:00:00Z-20.67139.4713.0-4.017066.2130.11811TRUEVFRMETAR344.02019-07-18 14:22:347¯‘V(o5    3YBRK 181400Z AUTO 17001KT 9999 // NCD 09/03 Q1019YBRK2019-07-18T14:00:00Z-23.37150.479.03.017016.2130.088583TRUEVFRMETAR14.02019-07-18 14:22:346¯‘U(o5    3YBRM 181400Z AUTO 00000KT 9999 // NCD 18/15 Q1015YBRM2019-07-18T14:00:00Z-17.93122.2218.015.0006.2129.970472TRUEVFRMETAR9.02019-07-18 14:22:346¯‘T(o5    3YCIN 181400Z AUTO 00000KT 9999 // NCD 16/08 Q1014YCIN2019-07-18T14:00:00Z-17.58123.8316.08.0006.2129.940945TRUEVFRMETAR91.02019-07-18 14:22:34 -L˜Ý-k¯‘])K5   3CYVO 181400Z 17014KT 15SM FEW180 SCT260 21/10 A2996 RMK AC1CI3 PRESFR SLP151 DENSITY ALT 2100FTCYVO2019-07-18T14:00:00Z48.07-77.7721.010.01701415.029.9586621015.1VFRMETAR337.02019-07-18 14:22:349¯‘\(u5   3SLOR 181400Z 15003KT 9999 FEW070 BKN200 07/M05 Q1038SLOR2019-07-18T14:00:00Z-17.97-67.087.0-5.015036.2130.649607VFRMETAR3702.02019-07-18 14:22:345¯‘[(s5   3SLRQ 181400Z 00000KT 9999 FEW017 SCT200 26/23 Q1017SLRQ2019-07-18T14:00:00Z-14.42-67.526.023.0006.2130.029528VFRMETAR203.02019-07-18 14:22:34.¯‘Z(e5   3SLCA 181400Z 00000KT 9999 OVC070 17/14 Q1017SLCA2019-07-18T14:00:00Z-20.0-63.5317.014.0006.2130.029528VFRMETAR798.02019-07-18 14:22:34.¯‘Y(e5   3SLRY 181400Z 00000KT 9999 FEW080 26/21 Q1017SLRY2019-07-18T14:00:00Z-14.3-67.3726.021.0006.2130.029528VFRMETAR280.02019-07-18 14:22:34 ßE…»ßV¯‘a)'5   3CYNC 181400Z 14007KT 15SM BKN190 18/08 A2987 RMK CC7 SLP116 DENSITY ALT 500FTCYNC2019-07-18T14:00:00Z53.02-78.8218.08.0140715.029.8700791011.6VFRMETAR14.02019-07-18 14:22:34D¯‘`) 5    3VEJH 181400Z 00000KT 5000 TS SCT020 FEW030CB OVC080 26/24 Q1002VEJH2019-07-18T14:00:00Z21.9284.0826.024.0003.1129.586615TSMVFRMETAR230.02019-07-18 14:22:34:¯‘_(u5    3YMTG 181400Z AUTO 30006KT 9999 // SCT031 08/07 Q1017YMTG2019-07-18T14:00:00Z-37.75140.788.07.030066.2130.029528TRUEVFRMETAR65.02019-07-18 14:22:345¯‘^(o5    3YNAR 181400Z AUTO 00000KT 9999 // NCD 02/02 Q1021YNAR2019-07-18T14:00:00Z-34.7146.522.02.0006.2130.147638TRUEVFRMETAR145.02019-07-18 14:22:34 u=UuZ¯‘e)75   3CYCX 181400Z 36004KT 290V090 15SM FEW035 FEW250 20/13 A3000 RMK CU1CI2 DA899FT SLP160CYCX2019-07-18T14:00:00Z45.82-66.4220.013.0360415.030.01016.0VFRMETAR51.02019-07-18 14:22:34b¯‘d)=5  3CYDF 181400Z 30010G20KT 280V350 15SM SCT035 16/08 A2967 RMK SC4 SLP048 DENSITY ALT 600FTCYDF2019-07-18T14:00:00Z49.22-57.416.08.0300102015.029.669291004.8VFRMETAR22.02019-07-18 14:22:34W¯‘c)!5    3CYDP 181400Z 32010KT 13SM -SHRA OVC018 09/08 A2952 RMK SC8 WND ESTD SLP998CYDP2019-07-18T14:00:00Z56.53-61.679.08.03201013.029.518702999.8-SHRAMVFRMETAR7.02019-07-18 14:22:34`¯‘b);5   3CYLU 181400Z 28006KT 150V320 15SM FEW085 SCT120 BKN240 12/07 A2970 RMK AC2AS1CS3 SLP061CYLU2019-07-18T14:00:00Z58.72-65.9712.07.0280615.029.6988181006.1VFRMETAR60.02019-07-18 14:22:34 ˆA_ˆQ¯‘i)'5   3CYYY 181400Z 25009KT 30SM FEW240 18/10 A3000 RMK CI1 SLP162 DENSITY ALT 600FTCYYY2019-07-18T14:00:00Z48.6-68.2218.010.0250930.030.01016.2VFRMETAR52.02019-07-18 14:22:34\¯‘h))5    3CYZE 181400Z AUTO 17009KT 9SM OVC039 22/15 A2989 RMK SLP123 DENSITY ALT 1600FTCYZE2019-07-18T14:00:00Z45.87-82.5722.015.017099.029.8907471012.3TRUEVFRMETAR193.02019-07-18 14:22:34W¯‘g)#5    3CYZR 181400Z AUTO 17007KT 9SM CLR 26/20 A2993 RMK SLP135 DENSITY ALT 1900FTCYZR2019-07-18T14:00:00Z43.0-82.326.020.017079.029.9291341013.5TRUEVFRMETAR181.02019-07-18 14:22:34\¯‘f)'5   3CYAY 181400Z AUTO 26017G22KT 9SM CLR 17/10 A2948 RMK SLP985 DENSITY ALT 900FTCYAY2019-07-18T14:00:00Z51.38-56.0717.010.026017229.029.480314998.5TRUEVFRMETAR28.02019-07-18 14:22:34 ‘P[‘x¯‘m)[5   3CYZG 181400Z 21015G23KT 10SM -DZ BKN009 OVC050 11/10 A2952 RMK ST6SC2 CIG RAG SLP008 DENSITY ALT 1000FTCYZG2019-07-18T14:00:00Z62.17-75.6711.010.0210152310.029.5187021000.8-DZIFRMETAR226.02019-07-18 14:22:34F¯‘l)5   3CWLI 181400Z AUTO 32007KT ////SM //// BKN031 BKN037 OVC049 08/07 A2978CWLI2019-07-18T14:00:00Z69.58-130.98.07.0320729.778543TRUEMETAR102.02019-07-18 14:22:34o¯‘k)I5   3CWLY 181400Z AUTO 20013G20KT 9SM FEW065 16/08 A2981 RMK LTNG DIST NE SLP096 DENSITY ALT 1000FTCWLY2019-07-18T14:00:00Z50.22-121.5816.08.020013209.029.8110241009.6TRUEVFRMETAR229.02019-07-18 14:22:34*¯‘j(i5   3CWOB 181400Z AUTO ///// ////SM NCD 11/05 A2951CWOB2019-07-18T14:00:00Z63.32-64.1511.05.029.509842TRUEMETAR367.02019-07-18 14:22:34 †Q†E¯‘q) 5    3CWGL 181400Z AUTO 18006KT 22/15 RMK AO1 SLP142 T02160151 58001CWGL2019-07-18T14:00:00Z44.52-79.2221.615.118061014.2TRUETRUE-0.1METAR221.02019-07-18 14:22:34G¯‘p)5  3CWGM 181400Z AUTO 22017G26KT 16/04 RMK AO1 PK WND 22030/1300 T01630042CWGM2019-07-18T14:00:00Z49.13-113.7816.34.22201726TRUETRUEMETAR1296.02019-07-18 14:22:34x¯‘o)c5  3CYUY 181400Z 19010G16KT 140V210 15SM FEW120 SCT250 22/11 A2994 RMK ACC1CI3 ACC TR SLP144 DENSITY ALT 2000FTCYUY2019-07-18T14:00:00Z48.2-78.8222.011.0190101615.029.9409451014.4VFRSPECI301.02019-07-18 14:22:34^¯‘n)/5  3CYWK 181400Z 30014G24KT 15SM SCT036 15/06 A2984 RMK CU4 SLP119 DENSITY ALT 2300FTCYWK2019-07-18T14:00:00Z52.92-66.8715.06.0300142415.029.8405511011.9VFRSPECI551.02019-07-18 14:22:34 ,8n¥æ,4¯‘v(q5    3HTDA 181400Z 14011KT 9999 BKN016 27/22 Q1016 NOSIGHTDA2019-07-18T14:00:00Z-6.8839.227.022.0140116.2130.0TRUEMVFRSPECI55.02019-07-18 14:22:349¯‘u(q5    3HTDO 181400Z 09005KT 9999 FEW032 25/11 Q1019 NOSIGHTDO2019-07-18T14:00:00Z-6.1735.7725.011.09056.2130.088583TRUEVFRSPECI1120.02019-07-18 14:22:34C¯‘t) 5    3CWYJ 181400Z AUTO 26003KT 14/10 RMK AO1 SLP155 T01390103 53012CWYJ2019-07-18T14:00:00Z48.45-123.313.910.326031015.5TRUETRUE1.2METAR39.02019-07-18 14:22:34D¯‘s) 5    3CWYL 181400Z AUTO 25009KT 05/05 RMK AO1 SLP062 T00500046 50016CWYL2019-07-18T14:00:00Z51.45-116.325.04.625091006.2TRUETRUE1.6METAR1615.02019-07-18 14:22:34B¯‘r) 5    3CWGH 181400Z AUTO 03003KT 22/17 RMK AO1 SLP151 T02210172 51004CWGH2019-07-18T14:00:00Z44.42-75.8522.117.23031015.1TRUETRUE0.4METAR82.02019-07-18 14:22:34 "J‰Ó"\¯‘{)35    3CXKA 181400Z AUTO 18013G19KT 20/13 RMK AO1 PK WND 18023/1321 SLP076 T02010129 56024CXKA2019-07-18T14:00:00Z49.4-82.4520.112.918013191007.6TRUETRUE-2.4METAR218.02019-07-18 14:22:34I¯‘z)5    3CYQZ 181400Z AUTO 19003KT 9SM OVC047 10/09 A2979 RMK SLP101CYQZ2019-07-18T14:00:00Z53.02-122.5210.09.019039.029.7903541010.1TRUEVFRMETAR545.02019-07-18 14:22:340¯‘y(e5   3HTIR 181400Z 12015KT 9999 SCT021 22/07 Q1021HTIR2019-07-18T14:00:00Z-7.6735.7522.07.0120156.2130.147638VFRSPECI1428.02019-07-18 14:22:34;¯‘x(q5    3HTAR 181400Z 10010KT 9999 FEW031 22/13 Q1019 NOSIGHTAR2019-07-18T14:00:00Z-3.3736.6322.013.0100106.2130.088583TRUEVFRSPECI1387.02019-07-18 14:22:340¯‘w(e5   3HTBU 181400Z 12005KT 9999 FEW021 24/17 Q1017HTBU2019-07-18T14:00:00Z-1.3231.8224.017.012056.2130.029528VFRSPECI1137.02019-07-18 14:22:34 T^‚èTD¯’) 5    3CWYY 181400Z AUTO 35008KT 19/05 RMK AO1 SLP082 T01920046 52016CWYY2019-07-18T14:00:00Z49.03-119.4319.24.635081008.2TRUETRUE1.6METAR283.02019-07-18 14:22:34D¯‘) 5    3CWZA 181400Z AUTO 25004KT 15/10 RMK AO1 SLP141 T01500102 53014CWZA2019-07-18T14:00:00Z49.25-121.7715.010.225041014.1TRUETRUE1.4METAR15.02019-07-18 14:22:34¯‘~(O5   3CWZO 181400Z AUTO 26009KT RMK AO1CWZO2019-07-18T14:00:00Z48.55-123.232609TRUETRUEMETAR1.02019-07-18 14:22:34V¯‘})-5    3CWZQ 181400Z AUTO 32012KT 18/13 RMK AO1 PK WND 34017/1306 SLP120 T01800131 51007CWZQ2019-07-18T14:00:00Z46.53-61.0518.013.1320121012.0TRUETRUE0.7METAR17.02019-07-18 14:22:34¯‘|([5    3CXHM 181400Z AUTO 09004KT RMK AO1 50002CXHM2019-07-18T14:00:00Z43.28-79.9904TRUETRUE0.2METAR107.02019-07-18 14:22:34Y8Þ8@HPX`hpx€ˆ˜ ¨°¸ÀÈÐØàèðø (08@HPX`hpx€ˆ˜ ¨°¸ÀÈÐØàèðø (08@HPX`hpx€ˆ˜ ¨°¸ÀÈÐØàèðø ¨°¸ÀÈÐØàèðø„¯^…¯b†¯g‡¯kˆ¯o‰¯tŠ¯x‹¯|Œ¯‘¯‘Ž¯‘¯‘ „¯^…¯b†¯g‡¯kˆ¯o‰¯tŠ¯x‹¯|Œ¯‘¯‘Ž¯‘¯‘ ¯‘‘¯‘’¯‘“¯‘ ”¯‘%•¯‘)–¯‘.—¯‘2˜¯‘6™¯‘:š¯‘?›¯‘Dœ¯‘I¯‘Nž¯‘SŸ¯‘X ¯‘]¡¯‘a¢¯‘e£¯‘i¤¯‘m¥¯‘q¦¯‘v§¯‘{¨¯’ª¯’«¯’ ¬¯’ ­¯’®¯’¯¯’°¯’±¯’$²¯’)³¯’.´¯’3µ¯’8¶¯’=·¯’B¸¯’G¹¯’Kº¯’P»¯’U¼¯’Z½¯’_¾¯’c¿¯’hÀ¯’mÁ¯’q¯’uyį’}ů“Ư“ǯ“ ȯ“ɯ“ʯ“˯“̯“!ͯ“&ߝ“+ϯ“0Я“4ѯ“9Ò¯“>Ó¯“CÔ¯“HÕ¯“LÖ¯“Qׯ“Vد“[Ù¯“_Ú¯“dÛ¯“iܯ“mݯ“q ¯9Zx¯C¯’) 5    3CWCT 181400Z AUTO 07005KT 15/12 RMK AO1 SLP995 T01480123 50000CWCT2019-07-18T14:00:00Z52.07-111.4714.812.3705999.5TRUETRUE0.0METAR791.02019-07-18 14:22:34\¯’)15     3CWLB 181400Z AUTO 30004KT 14/12 RMK AO1 8PAST HR 6004 SLP991 P0003 T01360123 50011CWLB2019-07-18T14:00:00Z54.77-112.0213.612.33004999.1TRUETRUE1.10.03METAR567.02019-07-18 14:22:34Y¯’)-5    3CWEH 181400Z AUTO 25013KT 13/07 RMK AO1 PK WND 24018/1348 SLP031 T01290074 55004CWEH2019-07-18T14:00:00Z49.42-108.9712.97.4250131003.1TRUETRUE-0.4METAR1078.02019-07-18 14:22:34A¯’) 5    3CXKE 181400Z AUTO 08003KT 22/12 RMK AO1 SLP157 T02230124 50000CXKE2019-07-18T14:00:00Z45.0-75.6322.312.48031015.7TRUETRUE0.0METAR99.02019-07-18 14:22:34 lJ˜Ò l.¯’ (o5  3CXOL 181400Z AUTO 25006KT 13/08 RMK AO1 T01270076CXOL2019-07-18T14:00:00Z51.77-114.0812.77.62506TRUETRUEMETAR1046.02019-07-18 14:22:34,¯’(o5  3CXPL 181400Z AUTO 22004KT 13/10 RMK AO1 T01280095CXPL2019-07-18T14:00:00Z51.13-111.712.89.52204TRUETRUEMETAR750.02019-07-18 14:22:34@¯’)5  3CXSC 181400Z AUTO 24014KT 16/09 RMK AO1 PK WND 23017/1304 T01610091CXSC2019-07-18T14:00:00Z50.3-110.0816.19.124014TRUETRUEMETAR800.02019-07-18 14:22:34,¯’(o5  3CXSL 181400Z AUTO 01002KT 13/12 RMK AO1 T01290115CXSL2019-07-18T14:00:00Z54.28-112.512.911.5102TRUETRUEMETAR680.02019-07-18 14:22:340¯’(e5   3HTKA 181400Z 30010KT 9999 FEW023 27/15 Q1017HTKA2019-07-18T14:00:00Z-4.8729.6727.015.0300106.2130.029528VFRSPECI885.02019-07-18 14:22:34 ÌDz®Ì\¯’ )35    3CWRM 181400Z AUTO 32010G17KT 10/08 RMK AO1 PK WND 31017/1359 SLP016 T01040081 53013CWRM2019-07-18T14:00:00Z52.42-114.9210.48.132010171001.6TRUETRUE1.3METAR988.02019-07-18 14:22:34F¯’ ) 5    3CWVT 181400Z AUTO 15004KT 17/14 RMK AO1 SLP006 T01660135 58005CWVT2019-07-18T14:00:00Z55.82-108.4216.613.515041000.6TRUETRUE-0.5METAR434.02019-07-18 14:22:34D¯’ ) 5    3CWZW 181400Z AUTO 07002KT 13/12 RMK AO1 SLP053 T01250116 53015CWZW2019-07-18T14:00:00Z60.17-132.7312.511.67021005.3TRUETRUE1.5METAR705.02019-07-18 14:22:346¯’ ({5   3CXMO 181400Z AUTO 29004KT 12/09 RMK AO1 T01230094 50005CXMO2019-07-18T14:00:00Z51.67-112.6812.39.42904TRUETRUE0.5METAR836.02019-07-18 14:22:34 ªVtªD¯’) 5    3CWJD 181400Z AUTO 22002KT 18/17 RMK AO1 SLP991 T01840171 58002CWJD2019-07-18T14:00:00Z53.17-99.2718.417.12202999.1TRUETRUE-0.2METAR223.02019-07-18 14:22:34\¯’)15     3CWLP 181400Z AUTO 25008KT 12/11 RMK AO1 2PAST HR 1009 SLP147 P0005 T01200111 50012CWLP2019-07-18T14:00:00Z50.93-127.6312.011.125081014.7TRUETRUE1.20.05METAR17.02019-07-18 14:22:34C¯’) 5    3CWRO 181400Z AUTO 23008KT 12/11 RMK AO1 SLP104 T01170113 51011CWRO2019-07-18T14:00:00Z54.17-131.6711.711.323081010.4TRUETRUE1.1METAR7.02019-07-18 14:22:34[¯’)15     3CWZG 181400Z AUTO 24005KT 09/04 RMK AO1 3PAST HR 3009 SLP048 P0001 T00880043 50003CWZG2019-07-18T14:00:00Z51.2-115.538.84.324051004.8TRUETRUE0.30.01METAR1397.02019-07-18 14:22:34 Æ5W„Ɓ8¯’(q5    3HTKJ 181400Z 00000KT 9999 BKN030 26/16 Q1019 NOSIGHTKJ2019-07-18T14:00:00Z-3.4237.0726.016.0006.2130.088583TRUEMVFRSPECI896.02019-07-18 14:22:34M¯’)5    3CXSP 181400Z AUTO 35003KT 14/14 RMK AO1 5PAST HR M P0002 T01420141 50005CXSP2019-07-18T14:00:00Z54.02-111.2714.214.13503TRUETRUE0.50.02METAR649.02019-07-18 14:22:34X¯’)-5    3CWKO 181400Z AUTO 24013KT 16/08 RMK AO1 PK WND 25017/1357 SLP037 T01580075 56006CWKO2019-07-18T14:00:00Z49.17-105.9715.87.5240131003.7TRUETRUE-0.6METAR917.02019-07-18 14:22:34E¯’) 5    3CWOY 181400Z AUTO 17003KT 16/14 RMK AO1 SLP004 T01590139 55006CWOY2019-07-18T14:00:00Z51.77-104.215.913.917031000.4TRUETRUE-0.6METAR560.02019-07-18 14:22:34 zG”à.z.¯’(o5  3CXTH 181400Z AUTO 25007KT 14/14 RMK AO1 T01410141CXTH2019-07-18T14:00:00Z53.63-111.6814.114.12507TRUETRUEMETAR678.02019-07-18 14:22:34,¯’(o5  3CXVW 181400Z AUTO 27010KT 11/08 RMK AO1 T01100079CXVW2019-07-18T14:00:00Z55.1-117.211.07.927010TRUETRUEMETAR698.02019-07-18 14:22:34.¯’(o5  3CZOL 181400Z AUTO 33001KT 13/13 RMK AO1 T01290129CZOL2019-07-18T14:00:00Z53.65-113.3512.912.93301TRUETRUEMETAR665.02019-07-18 14:22:34-¯’(o5  3CPRO 181400Z AUTO 22002KT 13/10 RMK AO1 T01340098CPRO2019-07-18T14:00:00Z50.83-112.0513.49.82202TRUETRUEMETAR714.02019-07-18 14:22:343¯’(q5   3HTMG 181400Z 00000KT 9999 FW026 BKN080 26/17 Q1019HTMG2019-07-18T14:00:00Z-6.8237.6326.017.0006.2130.088583VFRMETAR526.02019-07-18 14:22:34 xLšç4x6¯’(q5    3HTMT 181400Z 17018KT 9999 FEW025 27/19 Q1016 NOSIGHTMT2019-07-18T14:00:00Z-10.2740.1727.019.0170186.2130.0TRUEVFRSPECI113.02019-07-18 14:22:34-¯’(o5  3CPXL 181400Z AUTO 21006KT 16/09 RMK AO1 T01640087CPXL2019-07-18T14:00:00Z49.87-111.3816.48.72106TRUETRUEMETAR799.02019-07-18 14:22:34-¯’(o5  3CPST 181400Z AUTO 22005KT 13/08 RMK AO1 T01330082CPST2019-07-18T14:00:00Z51.03-113.2813.38.22205TRUETRUEMETAR967.02019-07-18 14:22:34,¯’(o5  3CXVM 181400Z AUTO 00000KT 14/14 RMK AO1 T01420140CXVM2019-07-18T14:00:00Z53.35-110.8814.214.000TRUETRUEMETAR623.02019-07-18 14:22:34.¯’(o5  3CPSV 181400Z AUTO 20010KT 16/10 RMK AO1 T01610098CPSV2019-07-18T14:00:00Z49.92-110.9216.19.820010TRUETRUEMETAR766.02019-07-18 14:22:34 PHŒÌP8¯’$(o5    3YCBB 181400Z AUTO 26006KT 9999 // NCD 04/01 Q1021YCBB2019-07-18T14:00:00Z-31.33149.274.01.026066.2130.147638TRUEVFRMETAR645.02019-07-18 14:22:348¯’#(o5    3YCBP 181400Z AUTO 07008KT 9999 // NCD 11/00 Q1021YCBP2019-07-18T14:00:00Z-29.03134.7211.00.07086.2130.147638TRUEVFRMETAR226.02019-07-18 14:22:34:¯’"(q5    3YCCY 181400Z AUTO 19007KT 9999 // NCD 12/M05 Q1019YCCY2019-07-18T14:00:00Z-20.67140.512.0-5.019076.2130.088583TRUEVFRMETAR570.02019-07-18 14:22:346¯’!(q5    3WAMM 181400Z VRB02KT 9999 FEW022 25/22 Q1010 NOSIGWAMM2019-07-18T14:00:00Z1.55124.9225.022.0026.2129.822834TRUEVFRMETAR80.02019-07-18 14:22:342¯’ (u5   3FDBB 181400Z AUTO 08004KT //// // ////// 30/05 Q1015FDBB2019-07-18T14:00:00Z-26.8531.9230.05.080429.970472TRUEMETAR94.02019-07-18 14:22:34 VD‹ÍV9¯’)(o5    3YBWP 181400Z AUTO 10006KT 9999 // NCD 20/17 Q1015YBWP2019-07-18T14:00:00Z-12.68141.9220.017.010066.2129.970472TRUEVFRMETAR12.02019-07-18 14:22:342¯’((u5   3YBWX 181400Z AUTO 01008KT //// // ////// 16/13 Q1015YBWX2019-07-18T14:00:00Z-20.88115.416.013.010829.970472TRUEMETAR6.02019-07-18 14:22:348¯’'(o5    3YCAR 181400Z AUTO 19008KT 9999 // NCD 16/16 Q1017YCAR2019-07-18T14:00:00Z-24.88113.6716.016.019086.2130.029528TRUEVFRMETAR8.02019-07-18 14:22:343¯’&(u5   3YCAS 181400Z AUTO 29003KT //// // ////// 05/03 Q1019YCAS2019-07-18T14:00:00Z-28.88153.075.03.0290330.088583TRUEMETAR26.02019-07-18 14:22:346¯’%(o5    3YCBA 181400Z AUTO 05003KT 9999 // NCD 04/02 Q1022YCBA2019-07-18T14:00:00Z-31.53145.84.02.05036.2130.177166TRUEVFRMETAR221.02019-07-18 14:22:34 GAx¹ÿG2¯’.(o5    3YPLM 181400Z AUTO 25006KT 9999 // NCD 11/05 Q1016YPLM2019-07-18T14:00:00Z-22.22114.0711.05.025066.2130.0TRUEVFRMETAR6.02019-07-18 14:22:344¯’-(q5    3YPPH 181400Z 03005KT 9999 FEW020 13/12 Q1016 NOSIGYPPH2019-07-18T14:00:00Z-31.93115.9813.012.03056.2130.0TRUEVFRMETAR13.02019-07-18 14:22:349¯’,(o5    3YPTN 181400Z AUTO 14003KT 9999 // NCD 14/05 Q1015YPTN2019-07-18T14:00:00Z-14.52132.3814.05.014036.2129.970472TRUEVFRMETAR109.02019-07-18 14:22:34C¯’+)5   3YSSY 181400Z 31007KT CAVOK 09/02 Q1018 FM1500 MOD TURB BLW 5000FTYSSY2019-07-18T14:00:00Z-33.95151.179.02.031076.2130.059055VFRMETAR3.02019-07-18 14:22:349¯’*(q5    3YBUD 181400Z AUTO 24006KT 9999 // NCD 12/M01 Q1018YBUD2019-07-18T14:00:00Z-24.9152.3212.0-1.024066.2130.059055TRUEVFRMETAR82.02019-07-18 14:22:34 `C–Ö`5¯’3(o5    3YBTL 181400Z AUTO 00000KT 9999 // NCD 11/09 Q1018YBTL2019-07-18T14:00:00Z-19.25146.7511.09.0006.2130.059055TRUEVFRMETAR6.02019-07-18 14:22:345¯’2(q5    3YPAD 181400Z 03007KT 9999 FEW020 09/08 Q1020 NOSIGYPAD2019-07-18T14:00:00Z-34.95138.529.08.03076.2130.11811TRUEVFRMETAR4.02019-07-18 14:22:34:¯’1(u5    3YPCC 181400Z AUTO 10013KT 9999 // SCT031 26/21 Q1012YPCC2019-07-18T14:00:00Z-12.1796.8226.021.0100136.2129.88189TRUEVFRMETAR3.02019-07-18 14:22:34'¯’0(Y5   3YPDN 181400Z 00000KT CAVOK 21/16 Q1014YPDN2019-07-18T14:00:00Z-12.42130.921.016.0006.2129.940945VFRMETAR30.02019-07-18 14:22:347¯’/(o5    3YPKU 181400Z AUTO 00000KT 9999 // NCD 15/11 Q1014YPKU2019-07-18T14:00:00Z-15.77128.6815.011.0006.2129.940945TRUEVFRMETAR45.02019-07-18 14:22:34 &B·ï&C¯’8) 5    3CZCR 181400Z AUTO 27007KT 21/09 RMK AO1 SLP146 T02060092 56002CZCR2019-07-18T14:00:00Z47.97-66.3220.69.227071014.6TRUETRUE-0.2METAR38.02019-07-18 14:22:34B¯’7) 5    3CZDB 181400Z AUTO 02004KT 20/12 RMK AO1 SLP142 T02040123 50001CZDB2019-07-18T14:00:00Z45.42-63.4720.412.32041014.2TRUETRUE0.1METAR38.02019-07-18 14:22:34D¯’6) 5    3CZSP 181400Z AUTO 30010KT 19/11 RMK AO1 SLP136 T01890107 50000CZSP2019-07-18T14:00:00Z46.45-62.5818.910.7300101013.6TRUETRUE0.0METAR30.02019-07-18 14:22:34;¯’5(q5    3HTMW 181400Z 33010KT 9999 FEW026 27/15 Q1015 NOSIGHTMW2019-07-18T14:00:00Z-2.4732.9227.015.0330106.2129.970472TRUEVFRSPECI1140.02019-07-18 14:22:348¯’4(s5   3HTSO 181400Z 09013KT 9999 SCT023 BKN080 23/12 Q1023HTSO2019-07-18T14:00:00Z-10.6735.5723.012.090136.2130.206694VFRSPECI1067.02019-07-18 14:22:34 1(b˜ä1-¯’=(o5  3CXHP 181400Z AUTO 26006KT 12/10 RMK AO1 T01160100CXHP2019-07-18T14:00:00Z55.4-116.4811.610.02606TRUETRUEMETAR602.02019-07-18 14:22:34.¯’<(o5  3CXMG 181400Z AUTO 26002KT 14/14 RMK AO1 T01390136CXMG2019-07-18T14:00:00Z56.97-117.4513.913.62602TRUETRUEMETAR457.02019-07-18 14:22:34D¯’;) 5    3CERM 181400Z AUTO 30004KT 19/12 RMK AO1 SLP168 T01850117 50003CERM2019-07-18T14:00:00Z47.42-68.3218.511.730041016.8TRUETRUE0.3METAR154.02019-07-18 14:22:34@¯’:) 5    3CWBK 181400Z AUTO 01003KT 20/10 RMK AO1 SLP133 T01960095 50001CWBK2019-07-18T14:00:00Z45.77-62.6719.69.51031013.3TRUETRUE0.1METAR2.02019-07-18 14:22:34R¯’9)-5    3CWXI 181400Z AUTO 25013KT 12/09 RMK AO1 PK WND 24017/1353 SLP998 T01220090 50001CWXI2019-07-18T14:00:00Z51.02-57.112.29.025013999.8TRUETRUE0.1METAR6.02019-07-18 14:22:34 VL…¸V+¯’B(o5  3CWBS 181400Z AUTO 06007KT 19/11 RMK AO1 T01890109CWBS2019-07-18T14:00:00Z46.18-72.9218.910.9607TRUETRUEMETAR16.02019-07-18 14:22:34+¯’A(o5  3CWAF 181400Z AUTO 21011KT 13/10 RMK AO1 T01310095CWAF2019-07-18T14:00:00Z48.07-69.5313.19.521011TRUETRUEMETAR5.02019-07-18 14:22:34G¯’@) 5    3CWAQ 181400Z AUTO 24011KT 17/10 RMK AO1 SLP023 T01720103 55003CWAQ2019-07-18T14:00:00Z49.05-105.4817.210.3240111002.3TRUETRUE-0.3METAR756.02019-07-18 14:22:34A¯’?)5  3CXFM 181400Z AUTO 22013KT 19/07 RMK AO1 PK WND 22018/1359 T01890066CXFM2019-07-18T14:00:00Z49.48-111.4818.96.622013TRUETRUEMETAR881.02019-07-18 14:22:34.¯’>(o5  3CXHD 181400Z AUTO 30005KT 12/12 RMK AO1 T01240122CXHD2019-07-18T14:00:00Z53.18-112.2512.412.23005TRUETRUEMETAR688.02019-07-18 14:22:34 (5ƒ»ñ(C¯’G) 5    3CWCF 181400Z AUTO 32002KT 18/15 RMK AO1 SLP990 T01820151 51003CWCF2019-07-18T14:00:00Z52.35-97.0318.215.13202999.0TRUETRUE0.3METAR222.02019-07-18 14:22:34D¯’F) 5    3CWBT 181400Z AUTO 24007KT 16/10 RMK AO1 SLP090 T01590103 58011CWBT2019-07-18T14:00:00Z50.27-64.2315.910.324071009.0TRUETRUE-1.1METAR11.02019-07-18 14:22:34B¯’E) 5    3CWBZ 181400Z AUTO 07007KT 21/14 RMK AO1 SLP159 T02120141 53003CWBZ2019-07-18T14:00:00Z45.12-74.2721.214.17071015.9TRUETRUE0.3METAR49.02019-07-18 14:22:34,¯’D(o5  3CWBA 181400Z AUTO 16005KT 23/14 RMK AO1 T02260144CWBA2019-07-18T14:00:00Z46.72-79.122.614.41605TRUETRUEMETAR181.02019-07-18 14:22:34E¯’C) 5    3CWBO 181400Z AUTO 27011KT 19/08 RMK AO1 SLP998 T01860075 58003CWBO2019-07-18T14:00:00Z50.53-111.8318.67.527011999.8TRUETRUE-0.3METAR747.02019-07-18 14:22:34 Õ6l¡ÕF¯’K) 5    3CWDK 181400Z AUTO 29008KT 15/05 RMK AO1 SLP028 T01530054 55002CWDK2019-07-18T14:00:00Z50.02-113.6215.35.429081002.8TRUETRUE-0.2METAR1012.02019-07-18 14:22:34E¯’J) 5    3CWCO 181400Z AUTO 17005KT 25/20 RMK AO1 SLP123 T02500201 58006CWCO2019-07-18T14:00:00Z44.45-80.1725.020.117051012.3TRUETRUE-0.6METAR221.02019-07-18 14:22:34D¯’I) 5    3CWDJ 181400Z AUTO 25005KT 17/13 RMK AO1 SLP007 T01730133 50002CWDJ2019-07-18T14:00:00Z50.4-104.5817.313.325051000.7TRUETRUE0.2METAR573.02019-07-18 14:22:34D¯’H) 5    3CWCJ 181400Z AUTO 19006KT 17/16 RMK AO1 SLP056 T01700157 57008CWCJ2019-07-18T14:00:00Z48.6-86.2817.015.719061005.6TRUETRUE-0.8METAR206.02019-07-18 14:22:34 ,7[¨ì,:¯’P(5    3HTZA 181400Z 14007KT 9999 FEW015 BKN070 27/20 Q1016 NOSIGHTZA2019-07-18T14:00:00Z-6.2239.2227.020.014076.2130.0TRUEVFRSPECI15.02019-07-18 14:22:346¯’O(q5    3HTTB 181400Z 11010KT 9999 FEW025 28/12 Q1016 NOSIGHTTB2019-07-18T14:00:00Z-5.0732.8228.012.0110106.2130.0TRUEVFRSPECI1190.02019-07-18 14:22:34-¯’N(e5   3HTSU 181400Z 09008KT 9999 FEW027 21/08 Q1020HTSU2019-07-18T14:00:00Z-7.9531.6721.08.09086.2130.11811VFRSPECI1804.02019-07-18 14:22:34V¯’M)-5    3CWGR 181400Z AUTO 28014KT 18/12 RMK AO1 PK WND 29018/1346 SLP110 T01800119 58005CWGR2019-07-18T14:00:00Z47.42-61.818.011.9280141011.0TRUETRUE-0.5METAR60.02019-07-18 14:22:34C¯’L) 5    3CWGT 181400Z AUTO 27009KT 15/10 RMK AO1 SLP149 T01490103 51014CWGT2019-07-18T14:00:00Z49.48-124.4314.910.327091014.9TRUETRUE1.4METAR5.02019-07-18 14:22:34 _Qð@_[¯’U)15     3CWGW 181400Z AUTO 21003KT 09/08 RMK AO1 1PAST HR 3012 SLP084 P0012 T00870081 50092CWGW2019-07-18T14:00:00Z49.75-114.98.78.121031008.4TRUETRUE9.20.12METAR1137.02019-07-18 14:22:34*¯’T(Y5   3FNHU 181400Z 15007KT CAVOK 26/04 Q1023FNHU2019-07-18T14:00:00Z-12.8215.7726.04.015076.2130.206694VFRMETAR1701.02019-07-18 14:22:34'¯’S(Y5   3FNUE 181400Z 09009KT CAVOK 27/07 Q1020FNUE2019-07-18T14:00:00Z-11.7719.927.07.09096.2130.11811VFRMETAR1329.02019-07-18 14:22:34.¯’R(e5   3FNCA 181400Z 26007KT 9999 BKN023 26/21 Q1012FNCA2019-07-18T14:00:00Z-5.5812.1826.021.026076.2129.88189MVFRMETAR20.02019-07-18 14:22:34)¯’Q(e5   3TDCF 181400Z 32003KT 9999 BKN016 29/26 Q1016TDCF2019-07-18T14:00:00Z15.33-61.429.026.032036.2130.0MVFRMETAR5.02019-07-18 14:22:34 47m£ð46¯’Z(y5    3CWGY 181400Z AUTO 12/10 RMK AO1 SLP992 T01200103 50000CWGY2019-07-18T14:00:00Z51.67-110.212.010.3999.2TRUETRUE0.0METAR707.02019-07-18 14:22:34-¯’Y(o5  3CWHI 181400Z AUTO 27011KT 13/08 RMK AO1 T01250084CWHI2019-07-18T14:00:00Z51.7-113.2212.58.427011TRUETRUEMETAR907.02019-07-18 14:22:34D¯’X) 5    3CWHT 181400Z AUTO 24002KT 11/09 RMK AO1 SLP078 T01100087 53014CWHT2019-07-18T14:00:00Z60.77-137.5811.08.724021007.8TRUETRUE1.4METAR599.02019-07-18 14:22:34D¯’W) 5    3CWHV 181400Z AUTO 12006KT 19/10 RMK AO1 SLP176 T01880104 58004CWHV2019-07-18T14:00:00Z46.2-70.7718.810.412061017.6TRUETRUE-0.4METAR229.02019-07-18 14:22:34C¯’V) 5    3CWID 181400Z AUTO 05003KT 18/13 RMK AO1 SLP027 T01830134 51015CWID2019-07-18T14:00:00Z61.32-117.618.313.45031002.7TRUETRUE1.5METAR161.02019-07-18 14:22:34 :8m’ë:+¯’_(o5  3CWIZ 181400Z AUTO 04004KT 21/13 RMK AO1 T02070134CWIZ2019-07-18T14:00:00Z45.28-73.3320.713.4404TRUETRUEMETAR45.02019-07-18 14:22:34!¯’^(c5   3CWJB 181400Z AUTO 01002KT 20/ RMK AO1 T0200CWJB2019-07-18T14:00:00Z46.78-71.2720.0102TRUETRUEMETAR91.02019-07-18 14:22:34U¯’])-5    3CWJC 181400Z AUTO 08016KT 11/07 RMK AO1 PK WND 06021/1345 SLP031 T01110073 51013CWJC2019-07-18T14:00:00Z61.13-100.911.17.380161003.1TRUETRUE1.3METAR357.02019-07-18 14:22:34E¯’\) 5    3CWJH 181400Z AUTO 04002KT 16/13 RMK AO1 SLP011 T01590129 56004CWJH2019-07-18T14:00:00Z56.32-103.2715.912.94021001.1TRUETRUE-0.4METAR344.02019-07-18 14:22:34B¯’[) 5    3CWGX 181400Z AUTO 06003KT 17/10 RMK AO1 SLP998 T01690104 58007CWGX2019-07-18T14:00:00Z56.35-94.716.910.4603999.8TRUETRUE-0.7METAR145.02019-07-18 14:22:34 À5m‰ÀC¯’c) 5    3CWIS 181400Z AUTO 17002KT 16/09 RMK AO1 SLP187 T01550088 50004CWIS2019-07-18T14:00:00Z47.28-70.6315.58.817021018.7TRUETRUE0.4METAR719.02019-07-18 14:22:34^¯’b)35    3CWVP 181400Z AUTO 25010G15KT 15/06 RMK AO1 PK WND 24018/1328 SLP021 T01460064 58001CWVP2019-07-18T14:00:00Z49.63-109.5214.66.425010151002.1TRUETRUE-0.1METAR1271.02019-07-18 14:22:34B¯’a) 5    3CWIT 181400Z AUTO 04003KT 20/14 RMK AO1 SLP165 T02030137 53002CWIT2019-07-18T14:00:00Z45.17-73.6720.313.74031016.5TRUETRUE0.2METAR52.02019-07-18 14:22:34E¯’`) 5    3CWIW 181400Z AUTO 18005KT 16/14 RMK AO1 SLP000 T01580139 57004CWIW2019-07-18T14:00:00Z51.67-105.415.813.918051000.0TRUETRUE-0.4METAR526.02019-07-18 14:22:34 SE}µSB¯’h) 5    3CTCK 181400Z AUTO 09008KT 22/12 RMK AO1 SLP153 T02150115 52002CTCK2019-07-18T14:00:00Z45.25-74.9721.511.59081015.3TRUETRUE0.2METAR85.02019-07-18 14:22:34¯’g(O5   3CWIG 181400Z AUTO 25005KT RMK AO1CWIG2019-07-18T14:00:00Z47.07-70.532505TRUETRUEMETAR18.02019-07-18 14:22:34B¯’f) 5    3CWII 181400Z AUTO 29009KT 20/17 RMK AO1 SLP995 T01990168 52002CWII2019-07-18T14:00:00Z50.7-96.5719.916.82909999.5TRUETRUE0.2METAR220.02019-07-18 14:22:34B¯’e) 5    3CWIJ 181400Z AUTO 04005KT 07/04 RMK AO1 SLP112 T00670040 52008CWIJ2019-07-18T14:00:00Z65.77-111.236.74.04051011.2TRUETRUE0.8METAR500.02019-07-18 14:22:345¯’d)5   3CWIP 181400Z AUTO 32006KT 19/ RMK AO1 PK WND 31017/1304 T0194CWIP2019-07-18T14:00:00Z50.17-66.4319.43206TRUETRUEMETAR25.02019-07-18 14:22:34 7n§ÝA¯’m) 5    3CWPE 181400Z AUTO 01006KT 22/11 RMK AO1 SLP151 T02210106 51001CWPE2019-07-18T14:00:00Z45.07-66.4722.110.61061015.1TRUETRUE0.1METAR1.02019-07-18 14:22:34D¯’l) 5    3CWPR 181400Z AUTO 24005KT 14/03 RMK AO1 SLP111 T01360028 51014CWPR2019-07-18T14:00:00Z49.47-120.5213.62.824051011.1TRUETRUE1.4METAR700.02019-07-18 14:22:34A¯’k) 5    3CWPZ 181400Z AUTO 00000KT 09/07 RMK AO1 SLP075 T00870074 52008CWPZ2019-07-18T14:00:00Z54.38-125.978.77.4001007.5TRUETRUE0.8METAR713.02019-07-18 14:22:34C¯’j) 5    3CWPO 181400Z AUTO 20006KT 20/17 RMK AO1 SLP034 T01990167 58006CWPO2019-07-18T14:00:00Z49.2-98.919.916.720061003.4TRUETRUE-0.6METAR470.02019-07-18 14:22:34C¯’i) 5    3CWWZ 181400Z AUTO 06008KT 23/22 RMK AO1 SLP137 T02280216 57002CWWZ2019-07-18T14:00:00Z43.25-79.2222.821.66081013.7TRUETRUE-0.2METAR79.02019-07-18 14:22:34 Ú7m£ÚC¯’q) 5    3CWNQ 181400Z AUTO 06004KT 21/14 RMK AO1 SLP170 T02070137 58007CWNQ2019-07-18T14:00:00Z46.22-72.6520.713.76041017.0TRUETRUE-0.7METAR10.02019-07-18 14:22:34D¯’p) 5    3CWOC 181400Z AUTO 26008KT 19/11 RMK AO1 SLP137 T01870111 58001CWOC2019-07-18T14:00:00Z48.02-65.3218.711.126081013.7TRUETRUE-0.1METAR47.02019-07-18 14:22:34D¯’o) 5    3CWOD 181400Z AUTO 12002KT 19/09 RMK AO1 SLP164 T01910088 58003CWOD2019-07-18T14:00:00Z48.85-72.5519.18.812021016.4TRUETRUE-0.3METAR137.02019-07-18 14:22:34C¯’n) 5    3CWPD 181400Z AUTO 07004KT 16/09 RMK AO1 SLP159 T01570091 58004CWPD2019-07-18T14:00:00Z47.57-71.2215.79.17041015.9TRUETRUE-0.4METAR803.02019-07-18 14:22:34 ¿k¢¿]¯’u)35    3CWVN 181400Z AUTO 25013G19KT 18/07 RMK AO1 PK WND 25019/1344 SLP030 T01810074 56004CWVN2019-07-18T14:00:00Z49.07-107.5718.17.425013191003.0TRUETRUE-0.4METAR785.02019-07-18 14:22:34C¯’t) 5    3CWNE 181400Z AUTO 30014KT 18/13 RMK AO1 SLP137 T01800126 53001CWNE2019-07-18T14:00:00Z47.07-64.018.012.6300141013.7TRUETRUE0.1METAR15.02019-07-18 14:22:34,¯’s(o5  3CWNK 181400Z AUTO 24004KT 20/17 RMK AO1 T02000172CWNK2019-07-18T14:00:00Z49.5-98.0320.017.22404TRUETRUEMETAR268.02019-07-18 14:22:34]¯’r)15     3CWNP 181400Z AUTO 12002KT 13/12 RMK AO1 2PAST HR 3011 SLP079 P0001 T01270115 50002CWNP2019-07-18T14:00:00Z50.27-117.8212.711.512021007.9TRUETRUE0.20.01METAR524.02019-07-18 14:22:34 Î7sªÎV¯’y)-5    3CWUS 181400Z AUTO 33008KT 18/03 RMK AO1 PK WND 30017/1324 SLP107 T01750030 51021CWUS2019-07-18T14:00:00Z49.57-119.6517.53.033081010.7TRUETRUE2.1METAR454.02019-07-18 14:22:34C¯’x) 5    3CWUX 181400Z AUTO 28003KT 18/11 RMK AO1 SLP178 T01840112 50004CWUX2019-07-18T14:00:00Z48.3-70.9318.411.228031017.8TRUETRUE0.4METAR135.02019-07-18 14:22:34>¯’w)5  3CWVF 181400Z AUTO 28019KT 16/12 RMK AO1 PK WND 28023/1330 T01580124CWVF2019-07-18T14:00:00Z49.1-123.315.812.428019TRUETRUEMETAR1.02019-07-18 14:22:34C¯’v) 5    3CWVI 181400Z AUTO 26004KT 14/13 RMK AO1 SLP988 T01400134 51005CWVI2019-07-18T14:00:00Z53.52-112.114.013.42604998.8TRUETRUE0.5METAR639.02019-07-18 14:22:34 Ë8o“ˁB¯’}) 5    3CWTA 181400Z AUTO 04003KT 20/12 RMK AO1 SLP168 T01950119 56002CWTA2019-07-18T14:00:00Z45.5-73.5819.511.94031016.8TRUETRUE-0.2METAR63.02019-07-18 14:22:34V¯’|)-5    3CWTG 181400Z AUTO 26015KT 14/10 RMK AO1 PK WND 25019/1338 SLP139 T01410103 58005CWTG2019-07-18T14:00:00Z49.32-67.3714.110.3260151013.9TRUETRUE-0.5METAR5.02019-07-18 14:22:34C¯’{) 5    3CWTN 181400Z AUTO 16003KT 21/14 RMK AO1 SLP173 T02080137 58002CWTN2019-07-18T14:00:00Z47.07-70.7820.813.716031017.3TRUETRUE-0.2METAR6.02019-07-18 14:22:34B¯’z) 5    3CWTY 181400Z AUTO 06006KT 20/12 RMK AO1 SLP168 T01980119 58009CWTY2019-07-18T14:00:00Z46.35-72.5219.811.96061016.8TRUETRUE-0.9METAR6.02019-07-18 14:22:34 Ç9\’ǁE¯“) 5    3CWDV 181400Z AUTO 23005KT 19/18 RMK AO1 SLP044 T01900182 58002CWDV2019-07-18T14:00:00Z49.02-90.4719.018.223051004.4TRUETRUE-0.2METAR489.02019-07-18 14:22:34D¯“) 5    3CWNC 181400Z AUTO 14001KT 20/16 RMK AO1 SLP136 T01970160 56004CWNC2019-07-18T14:00:00Z43.95-78.1719.716.014011013.6TRUETRUE-0.4METAR78.02019-07-18 14:22:34W¯’)-5    3CWNZ 181400Z AUTO 18008KT 19/15 RMK AO1 PK WND 19020/1341 SLP065 T01890147 56018CWNZ2019-07-18T14:00:00Z49.75-84.1718.914.718081006.5TRUETRUE-1.8METAR256.02019-07-18 14:22:34A¯’~) 5    3CWWB 181400Z AUTO 03007KT 21/20 RMK AO1 SLP136 T02110195 50000CWWB2019-07-18T14:00:00Z43.3-79.7821.119.53071013.6TRUETRUE0.0METAR76.02019-07-18 14:22:34 (6k¡Ø(*¯“(o5  3CWHQ 181400Z AUTO 07002KT 22/10 RMK AO1 T02230095CWHQ2019-07-18T14:00:00Z46.68-71.9722.39.5702TRUETRUEMETAR55.02019-07-18 14:22:34C¯“) 5    3CWAJ 181400Z AUTO 10003KT 22/22 RMK AO1 SLP143 T02150216 53006CWAJ2019-07-18T14:00:00Z42.25-81.921.521.610031014.3TRUETRUE0.6METAR178.02019-07-18 14:22:34D¯“) 5    3CWBE 181400Z AUTO 09005KT 19/16 RMK AO1 SLP142 T01890158 55006CWBE2019-07-18T14:00:00Z45.98-81.4818.915.89051014.2TRUETRUE-0.6METAR196.02019-07-18 14:22:34E¯“) 5    3CWLS 181400Z AUTO 17008KT 24/20 RMK AO1 SLP141 T02380198 58001CWLS2019-07-18T14:00:00Z43.97-80.7523.819.817081014.1TRUETRUE-0.1METAR415.02019-07-18 14:22:34D¯“) 5    3CWPC 181400Z AUTO 16007KT 23/21 RMK AO1 SLP143 T02260210 53002CWPC2019-07-18T14:00:00Z42.87-79.2522.621.016071014.3TRUETRUE0.2METAR184.02019-07-18 14:22:34 Ò7oœÒD¯“ ) 5    3CWWK 181400Z AUTO 21003KT 15/10 RMK AO1 SLP150 T01450104 51015CWWK2019-07-18T14:00:00Z49.02-122.7814.510.421031015.0TRUETRUE1.5METAR15.02019-07-18 14:22:34M¯“ )5    3CWXA 181400Z AUTO 25006G16KT 14/M01 RMK AO1 SLP013 T01351014 55002CWXA2019-07-18T14:00:00Z51.07-115.0713.5-1.42506161001.3TRUETRUE-0.2METAR1298.02019-07-18 14:22:34B¯“) 5    3CWVQ 181400Z AUTO 04006KT 21/12 RMK AO1 SLP167 T02130123 55000CWVQ2019-07-18T14:00:00Z45.42-73.9221.312.34061016.7TRUETRUE0.0METAR39.02019-07-18 14:22:34C¯“) 5    3CWVU 181400Z AUTO 31005KT 14/12 RMK AO1 SLP172 T01390121 53005CWVU2019-07-18T14:00:00Z44.28-66.3313.912.131051017.2TRUETRUE0.5METAR16.02019-07-18 14:22:34 *4k¢Ý*-¯“(o5  3CPFI 181400Z AUTO 25011KT 17/09 RMK AO1 T01710089CPFI2019-07-18T14:00:00Z49.8-112.0317.18.925011TRUETRUEMETAR833.02019-07-18 14:22:34?¯“)5  3CPIR 181400Z AUTO 24008KT 14/09 RMK AO1 PK WND 25018/1302 T01400091CPIR2019-07-18T14:00:00Z49.9-112.7314.09.12408TRUETRUEMETAR858.02019-07-18 14:22:34C¯“ ) 5    3CWMT 181400Z AUTO 05006KT 16/09 RMK AO1 SLP066 T01620092 52014CWMT2019-07-18T14:00:00Z63.13-117.2516.29.25061006.6TRUETRUE1.4METAR271.02019-07-18 14:22:34C¯“ ) 5    3CZEV 181400Z AUTO 05007KT 12/10 RMK AO1 SLP089 T01210097 51006CZEV2019-07-18T14:00:00Z68.32-133.5212.19.75071008.9TRUETRUE0.6METAR103.02019-07-18 14:22:34F¯“ ) 5    3CZFS 181400Z AUTO 32011KT 16/13 RMK AO1 SLP043 T01610133 53017CZFS2019-07-18T14:00:00Z61.77-121.2316.113.3320111004.3TRUETRUE1.7METAR168.02019-07-18 14:22:34 9…¹úZ¯“)35    3CWBV 181400Z AUTO 01013G18KT 19/12 RMK AO1 PK WND 01024/1320 SLP130 T01880115 51008CWBV2019-07-18T14:00:00Z44.82-62.3218.811.51013181013.0TRUETRUE0.8METAR10.02019-07-18 14:22:349¯“(y5    3CWBU 181400Z AUTO 15/15 RMK AO1 SLP000 T01540147 58007CWBU2019-07-18T14:00:00Z53.33-104.0215.414.71000.0TRUETRUE-0.7METAR373.02019-07-18 14:22:34F¯“) 5    3CWIK 181400Z AUTO 19004KT 16/14 RMK AO1 SLP010 T01580144 55003CWIK2019-07-18T14:00:00Z50.37-102.5815.814.419041001.0TRUETRUE-0.3METAR602.02019-07-18 14:22:34.¯“(o5  3CPBT 181400Z AUTO 28011KT 16/07 RMK AO1 T01570068CPBT2019-07-18T14:00:00Z49.57-113.0515.76.828011TRUETRUEMETAR980.02019-07-18 14:22:34A¯“)5  3CPEH 181400Z AUTO 25015KT 17/06 RMK AO1 PK WND 24022/1332 T01680063CPEH2019-07-18T14:00:00Z50.18-112.4316.86.325015TRUETRUEMETAR801.02019-07-18 14:22:34 ×7p•×8¯“)5    3CWHO 181400Z AUTO 06/05 RMK AO1 1023 SLP991 T00590049 50003CWHO2019-07-18T14:00:00Z55.45-60.225.94.9999.1TRUETRUE0.3METAR8.02019-07-18 14:22:34U¯“)-5    3CWRN 181400Z AUTO 31014KT 18/13 RMK AO1 PK WND 30017/1303 SLP107 T01840127 50007CWRN2019-07-18T14:00:00Z45.35-60.9818.412.7310141010.7TRUETRUE0.7METAR8.02019-07-18 14:22:34A¯“) 5    3CWSS 181400Z AUTO 04005KT 22/11 RMK AO1 SLP161 T02160113 50001CWSS2019-07-18T14:00:00Z45.2-67.2521.611.34051016.1TRUETRUE0.1METAR26.02019-07-18 14:22:34C¯“) 5    3CWNH 181400Z AUTO 24004KT 18/08 RMK AO1 SLP180 T01810081 50010CWNH2019-07-18T14:00:00Z47.78-69.5318.18.124041018.0TRUETRUE1.0METAR148.02019-07-18 14:22:34 B7o¤ BB¯“) 5    3CXKT 181400Z AUTO 04003KT 19/12 RMK AO1 SLP146 T01910115 50000CXKT2019-07-18T14:00:00Z45.07-64.4819.111.54031014.6TRUETRUE0.0METAR49.02019-07-18 14:22:34¯“(O5   3CXBO 181400Z AUTO 10003KT RMK AO1CXBO2019-07-18T14:00:00Z46.83-71.21003TRUETRUEMETAR100.02019-07-18 14:22:34E¯“) 5    3CXCA 181400Z AUTO 16004KT 18/15 RMK AO1 SLP032 T01780153 58005CXCA2019-07-18T14:00:00Z49.15-88.3517.815.316041003.2TRUETRUE-0.5METAR228.02019-07-18 14:22:34B¯“) 5    3CXCK 181400Z AUTO 01001KT 10/08 RMK AO1 SLP065 T01000079 51018CXCK2019-07-18T14:00:00Z62.12-136.210.07.91011006.5TRUETRUE1.8METAR540.02019-07-18 14:22:34C¯“) 5    3CXDE 181400Z AUTO 09002KT 13/05 RMK AO1 SLP097 T01320053 51012CXDE2019-07-18T14:00:00Z65.22-123.4313.25.39021009.7TRUETRUE1.2METAR213.02019-07-18 14:22:34 Ù7m£ÙD¯“!) 5    3CXEA 181400Z AUTO 25005KT 21/17 RMK AO1 SLP006 T02080174 50001CXEA2019-07-18T14:00:00Z50.63-93.2220.817.425051000.6TRUETRUE0.1METAR355.02019-07-18 14:22:34D¯“ ) 5    3CZHY 181400Z AUTO 05009KT 15/12 RMK AO1 SLP011 T01470122 51015CZHY2019-07-18T14:00:00Z60.83-115.7814.712.25091001.1TRUETRUE1.5METAR164.02019-07-18 14:22:34D¯“) 5    3CZSM 181400Z AUTO 01002KT 19/14 RMK AO1 SLP000 T01900138 53002CZSM2019-07-18T14:00:00Z60.03-111.9319.013.81021000.0TRUETRUE0.2METAR203.02019-07-18 14:22:34C¯“) 5    3CXBK 181400Z AUTO 26007KT 18/14 RMK AO1 SLP001 T01770143 51001CXBK2019-07-18T14:00:00Z50.2-104.717.714.326071000.1TRUETRUE0.1METAR580.02019-07-18 14:22:34 06lÆû0E¯“&) 5    3CXMD 181400Z AUTO 23004KT 21/16 RMK AO1 SLP009 T02110159 58002CXMD2019-07-18T14:00:00Z49.22-98.0821.115.923041000.9TRUETRUE-0.2METAR301.02019-07-18 14:22:34E¯“%) 5    3CXEC 181400Z AUTO 32004KT 13/12 RMK AO1 SLP000 T01250124 51004CXEC2019-07-18T14:00:00Z53.57-113.5212.512.432041000.0TRUETRUE0.4METAR671.02019-07-18 14:22:34 ¯“$(_5  3CXEG 181400Z AUTO 12/12 RMK AO1 T01220120CXEG2019-07-18T14:00:00Z53.3-113.612.212.0TRUETRUEMETAR715.02019-07-18 14:22:34D¯“#) 5    3CXDI 181400Z AUTO 12002KT 22/21 RMK AO1 SLP138 T02210211 50004CXDI2019-07-18T14:00:00Z42.87-80.5522.121.112021013.8TRUETRUE0.4METAR232.02019-07-18 14:22:34D¯“") 5    3CXDW 181400Z AUTO 20004KT 21/16 RMK AO1 SLP011 T02060157 58004CXDW2019-07-18T14:00:00Z49.4-98.3220.615.720041001.1TRUETRUE-0.4METAR341.02019-07-18 14:22:34 69pÍ6F¯“+) 5    3CXOX 181400Z AUTO 15004KT 17/14 RMK AO1 SLP004 T01700138 56004CXOX2019-07-18T14:00:00Z55.15-105.2717.013.815041000.4TRUETRUE-0.4METAR379.02019-07-18 14:22:34E¯“*) 5    3CXET 181400Z AUTO 17006KT 23/19 RMK AO1 SLP140 T02330187 58001CXET2019-07-18T14:00:00Z44.23-79.7823.318.717061014.0TRUETRUE-0.1METAR251.02019-07-18 14:22:34¯“)([5    3CXGH 181400Z AUTO 26005KT RMK AO1 51001CXGH2019-07-18T14:00:00Z50.63-97.02605TRUETRUE0.1METAR217.02019-07-18 14:22:34C¯“() 5    3CXHA 181400Z AUTO 20005KT 26/16 RMK AO1 SLP127 T02610158 50002CXHA2019-07-18T14:00:00Z42.03-82.926.115.820051012.7TRUETRUE0.2METAR191.02019-07-18 14:22:34A¯“') 5    3CXIB 181400Z AUTO 34004KT 20/08 RMK AO1 SLP107 T01970080 50004CXIB2019-07-18T14:00:00Z46.67-60.3819.78.034041010.7TRUETRUE0.4METAR8.02019-07-18 14:22:34 P4S»PA¯“0) 5    3CWWE 181400Z AUTO 08005KT 21/15 RMK AO1 SLP144 T02050151 51009CWWE2019-07-18T14:00:00Z43.97-64.6720.515.18051014.4TRUETRUE0.9METAR9.02019-07-18 14:22:34¯“/([5    3CWEP 181400Z AUTO 30010KT RMK AO1 50004CWEP2019-07-18T14:00:00Z46.45-61.9730010TRUETRUE0.4METAR11.02019-07-18 14:22:34¯“.(O5   3CWER 181400Z AUTO 19006KT RMK AO1CWER2019-07-18T14:00:00Z47.0-70.821906TRUETRUEMETAR5.02019-07-18 14:22:34[¯“-)35    3CWSF 181400Z AUTO 27013G19KT 16/09 RMK AO1 PK WND 27023/1301 SLP121 T01620091 57006CWSF2019-07-18T14:00:00Z49.25-65.3216.29.127013191012.1TRUETRUE-0.6METAR29.02019-07-18 14:22:34F¯“,)5  3CXNM 181400Z AUTO 30014G24KT 14/10 RMK AO1 PK WND 30024/1354 T01430102CXNM2019-07-18T14:00:00Z46.82-60.6714.310.23001424TRUETRUEMETAR439.02019-07-18 14:22:34 ®5jw®C¯“4) 5    3CXSH 181400Z AUTO 04004KT 20/11 RMK AO1 SLP175 T02020110 51021CXSH2019-07-18T14:00:00Z46.58-72.7320.211.04041017.5TRUETRUE2.1METAR110.02019-07-18 14:22:34m¯“3)U5     3CXTP 181400Z AUTO 30008KT 18/18 RMK AO1 8PAST HR 6014 PK WND 29018/1345 SLP982 P0003 T01750181 50021CXTP2019-07-18T14:00:00Z48.55-53.9717.518.13008998.2TRUETRUE2.10.03METAR107.02019-07-18 14:22:34E¯“2) 5    3CXWN 181400Z AUTO 22003KT 21/15 RMK AO1 SLP003 T02140152 58001CXWN2019-07-18T14:00:00Z49.88-97.1321.415.222031000.3TRUETRUE-0.1METAR230.02019-07-18 14:22:34E¯“1) 5    3CWPK 181400Z AUTO 20002KT 19/11 RMK AO1 SLP179 T01860109 58005CWPK2019-07-18T14:00:00Z47.92-74.6218.610.920021017.9TRUETRUE-0.5METAR442.02019-07-18 14:22:34 LMƒÏLK¯“9)5    3CXAJ 181400Z AUTO 00000KT 13/13 RMK AO1 9PAST HR M P0004 T01250132 50009CXAJ2019-07-18T14:00:00Z54.77-112.8212.513.200TRUETRUE0.90.04METAR574.02019-07-18 14:22:34,¯“8(o5  3CXBA 181400Z AUTO 04006KT 16/14 RMK AO1 T01580135CXBA2019-07-18T14:00:00Z52.12-110.115.813.5406TRUETRUEMETAR687.02019-07-18 14:22:34.¯“7(o5  3CXBR 181400Z AUTO 23008KT 14/08 RMK AO1 T01430081CXBR2019-07-18T14:00:00Z49.62-113.8214.38.12308TRUETRUEMETAR1073.02019-07-18 14:22:34D¯“6) 5    3CXMM 181400Z AUTO 09005KT 17/11 RMK AO1 SLP980 T01680113 58004CXMM2019-07-18T14:00:00Z56.65-111.2216.811.3905998.0TRUETRUE-0.4METAR369.02019-07-18 14:22:34-¯“5(o5  3CXRH 181400Z AUTO 26010KT 16/11 RMK AO1 T01580105CXRH2019-07-18T14:00:00Z49.57-57.8815.810.526010TRUETRUEMETAR68.02019-07-18 14:22:34 ‚L›æ4‚,¯“>(o5  3CXHR 181400Z AUTO 24007KT 14/08 RMK AO1 T01380084CXHR2019-07-18T14:00:00Z51.18-112.513.88.42407TRUETRUEMETAR971.02019-07-18 14:22:34,¯“=(o5  3CXCD 181400Z AUTO 15002KT 10/10 RMK AO1 T00960096CXCD2019-07-18T14:00:00Z56.32-119.759.69.61502TRUETRUEMETAR630.02019-07-18 14:22:34/¯“<(o5  3CXCP 181400Z AUTO 24011KT 14/07 RMK AO1 T01390067CXCP2019-07-18T14:00:00Z50.28-113.3513.96.724011TRUETRUEMETAR1006.02019-07-18 14:22:34+¯“;(o5  3CXBW 181400Z AUTO 24008KT 14/09 RMK AO1 T01390091CXBW2019-07-18T14:00:00Z49.8-112.313.99.12408TRUETRUEMETAR824.02019-07-18 14:22:34.¯“:(o5  3CXAF 181400Z AUTO 25002KT 14/14 RMK AO1 T01350135CXAF2019-07-18T14:00:00Z54.28-112.9713.513.52502TRUETRUEMETAR664.02019-07-18 14:22:34 …MšÑ(…¯“C(Y5   3SBMD 181400Z /////KT CAVOK ///// Q1017SBMD2019-07-18T14:00:00Z-0.87-52.66.2130.029528VFRMETAR206.02019-07-18 14:22:34#¯“B(Y5   3SBMY 181400Z 02004KT CAVOK 30/25 Q1016SBMY2019-07-18T14:00:00Z-5.82-61.2830.025.02046.2130.0VFRMETAR49.02019-07-18 14:22:34C¯“A) 5    3CXSE 181400Z AUTO 29010KT 03/01 RMK AO1 SLP095 T00340013 53008CXSE2019-07-18T14:00:00Z73.77-105.283.41.3290101009.5TRUETRUE0.8METAR11.02019-07-18 14:22:34-¯“@(o5  3CXCS 181400Z AUTO 04006KT 13/13 RMK AO1 T01310127CXCS2019-07-18T14:00:00Z51.93-110.7213.112.7406TRUETRUEMETAR772.02019-07-18 14:22:34-¯“?(o5  3CXFR 181400Z AUTO 26004KT 11/10 RMK AO1 T01110098CXFR2019-07-18T14:00:00Z56.08-118.4311.19.82604TRUETRUEMETAR655.02019-07-18 14:22:34 cQŸï@cW¯“H)'5   3CYCS 181400Z 31018KT 15SM BKN016 11/06 A2951 RMK SC6 SLP997 DENSITY ALT 100FTCYCS2019-07-18T14:00:00Z63.35-90.7211.06.03101815.029.509842999.7MVFRMETAR11.02019-07-18 14:22:34)¯“G(e5   3SBIC 181400Z 07005KT 9999 FEW017 29/24 Q1016SBIC2019-07-18T14:00:00Z-3.12-58.4729.024.07056.2130.0VFRMETAR43.02019-07-18 14:22:34*¯“F(e5   3SBIH 181400Z /////KT 9999 SCT022 29/24 Q1015SBIH2019-07-18T14:00:00Z-4.25-56.029.024.06.2129.970472VFRSPECI34.02019-07-18 14:22:34,¯“E(e5   3SBIZ 181400Z 15010KT 9999 SCT007 32/25 Q1016SBIZ2019-07-18T14:00:00Z-5.52-47.4532.025.0150106.2130.0VFRMETAR123.02019-07-18 14:22:34)¯“D(s5   3SBLB 181400Z /////KT 9999 SCT015 ///// Q1028 W///S4SBLB2019-07-18T14:00:00Z-22.1-39.926.2130.35433VFRSPECI10.02019-07-18 14:22:34 Ä6P“āI¯“L) 5     3LFLW 181400Z AUTO 29006KT 240V330 9999 SCT040 21/09 Q1019 NOSIGLFLW2019-07-18T14:00:00Z44.882.4221.09.029066.2130.088583TRUETRUEVFRMETAR639.02019-07-18 14:22:347¯“K(s5    3LFQG 181400Z AUTO 27008KT 220V310 CAVOK 26/12 Q1015LFQG2019-07-18T14:00:00Z47.03.126.012.027086.2129.970472TRUEVFRMETAR181.02019-07-18 14:22:34`¯“J)75   3CYCB 181400Z 35011KT 15SM FEW020 SCT051 BKN081 10/07 A2977 RMK CU1SC4AC2 CU TR SLP083CYCB2019-07-18T14:00:00Z69.08-105.1210.07.03501115.029.7696861008.3VFRMETAR27.02019-07-18 14:22:34D¯“I)5   3CYCO 181400Z 09008KT 15SM BKN058 10/05 A2982 RMK SC7 SLP101CYCO2019-07-18T14:00:00Z67.82-115.1510.05.090815.029.8198811010.1VFRMETAR22.02019-07-18 14:22:34 zL˜Þ'z'¯“Q(Y5   3FNSA 181400Z 00000KT CAVOK 30/05 Q1018FNSA2019-07-18T14:00:00Z-9.6820.4330.05.0006.2130.059055VFRMETAR1093.02019-07-18 14:22:341¯“P(e5   3FNMO 181400Z 33010KT 9999 BKN014 22/18 Q1014FNMO2019-07-18T14:00:00Z-15.2712.1522.018.0330106.2129.940945MVFRMETAR64.02019-07-18 14:22:344¯“O(g5    3FABL 181400Z 28009KT CAVOK 22/M07 Q1023 NOSIGFABL2019-07-18T14:00:00Z-29.126.322.0-7.028096.2130.206694TRUEVFRMETAR1348.02019-07-18 14:22:34.¯“N(e5   3FAOB 181400Z 32020KT 9999 SCT025 21/09 Q1013FAOB2019-07-18T14:00:00Z-34.620.2721.09.0320206.2129.911417VFRMETAR75.02019-07-18 14:22:34.¯“M(c5    3LFHP 181400Z AUTO VRB04KT CAVOK 26/03 Q1017LFHP2019-07-18T14:00:00Z45.073.7726.03.0046.2130.029528TRUEVFRMETAR833.02019-07-18 14:22:34 ^S›Þ$^@¯“V) 5    3CXLB 181400Z AUTO 03006KT 21/14 RMK AO1 SLP141 T02070137 51009CXLB2019-07-18T14:00:00Z44.37-64.320.713.73061014.1TRUETRUE0.9METAR4.02019-07-18 14:22:344¯“U(w5   3FDOT 181400Z AUTO 07005KT //// // ////// 29/M02 Q1017FDOT2019-07-18T14:00:00Z-26.731.4329.0-2.070530.029528TRUEMETAR341.02019-07-18 14:22:347¯“T(w5   3FDPP 181400Z AUTO 10004KT //// // ////// 23/M02 Q1024FDPP2019-07-18T14:00:00Z-25.9731.2523.0-2.0100430.236221TRUEMETAR1099.02019-07-18 14:22:342¯“S(u5   3FDST 181400Z AUTO 00000KT //// // ////// 26/04 Q1019FDST2019-07-18T14:00:00Z-26.4331.9526.04.00030.088583TRUEMETAR667.02019-07-18 14:22:34'¯“R(e5    3FNSU 181400Z 25006KT 9999 FEW013 23/// Q1014FNSU2019-07-18T14:00:00Z-11.1713.8525066.2129.940945VFRMETAR11.02019-07-18 14:22:34 2L®ü2D¯“[) 5    3CZKD 181400Z AUTO 33002KT 18/13 RMK AO1 SLP996 T01760128 58006CZKD2019-07-18T14:00:00Z56.03-96.5217.612.83302999.6TRUETRUE-0.6METAR183.02019-07-18 14:22:34,¯“Z(o5  3CXWM 181400Z AUTO 21006KT 16/06 RMK AO1 T01600063CXWM2019-07-18T14:00:00Z49.5-112.1216.06.32106TRUETRUEMETAR944.02019-07-18 14:22:34[¯“Y)35    3CXZV 181400Z AUTO 31011G16KT 21/07 RMK AO1 PK WND 33019/1307 SLP115 T02080072 58008CXZV2019-07-18T14:00:00Z50.22-66.2520.87.231011161011.5TRUETRUE-0.8METAR52.02019-07-18 14:22:347¯“X(y5    3CXKI 181400Z AUTO 20/12 RMK AO1 SLP139 T02000117 55012CXKI2019-07-18T14:00:00Z48.22-80.020.011.71013.9TRUETRUE-1.2METAR324.02019-07-18 14:22:34.¯“W(o5  3CXKM 181400Z AUTO 30003KT 14/13 RMK AO1 T01390131CXKM2019-07-18T14:00:00Z52.82-111.8513.913.13003TRUETRUEMETAR675.02019-07-18 14:22:34 ºT‚ºB¯“_) 5    3CXVN 181400Z AUTO 04004KT 23/23 RMK AO1 SLP128 T02320232 57001CXVN2019-07-18T14:00:00Z43.18-79.423.223.24041012.8TRUETRUE-0.1METAR79.02019-07-18 14:22:34L¯“^)5    3CZMJ 181400Z AUTO 23011G16KT 18/12 RMK AO1 SLP012 T01770115 58007CZMJ2019-07-18T14:00:00Z50.33-105.5717.711.523011161001.2TRUETRUE-0.7METAR577.02019-07-18 14:22:34E¯“]) 5    3CZTB 181400Z AUTO 20002KT 17/16 RMK AO1 SLP051 T01710160 55001CZTB2019-07-18T14:00:00Z48.37-89.3217.116.020021005.1TRUETRUE-0.1METAR199.02019-07-18 14:22:34[¯“\)15     3CZZJ 181400Z AUTO 26007KT 10/08 RMK AO1 2PAST HR 1011 SLP041 P0001 T00950077 50002CZZJ2019-07-18T14:00:00Z53.58-116.479.57.726071004.1TRUETRUE0.20.01METAR927.02019-07-18 14:22:34 !Cb‘Ó!,¯“d(o5  3CXPA 181400Z AUTO 28007KT 11/08 RMK AO1 T01140081CXPA2019-07-18T14:00:00Z55.62-118.311.48.12807TRUETRUEMETAR621.02019-07-18 14:22:348¯“c(y5    3CXPC 181400Z AUTO 24/16 RMK AO1 SLP122 T02380155 58009CXPC2019-07-18T14:00:00Z45.35-80.0523.815.51012.2TRUETRUE-0.9METAR176.02019-07-18 14:22:34K¯“b)5    3CXRL 181400Z AUTO 16001KT 12/12 RMK AO1 1PAST HR M P0004 T01230123 50016CXRL2019-07-18T14:00:00Z54.5-111.712.312.31601TRUETRUE1.60.04METAR585.02019-07-18 14:22:34[¯“a)35    3CXTD 181400Z AUTO 34012G17KT 18/10 RMK AO1 PK WND 00019/1343 SLP136 T01770100 50006CXTD2019-07-18T14:00:00Z45.62-61.6817.710.034012171013.6TRUETRUE0.6METAR68.02019-07-18 14:22:347¯“`(y5    3CXTO 181400Z AUTO 23/17 RMK AO1 SLP139 T02260172 58001CXTO2019-07-18T14:00:00Z43.67-79.422.617.21013.9TRUETRUE-0.1METAR113.02019-07-18 14:22:34 .8]ë.7¯“i(k5    3FCBB 181400Z 10004KT 7000 NSC 29/21 Q1011 NOSIGFCBB2019-07-18T14:00:00Z-4.2515.2529.021.010044.3529.852362TRUEMVFRMETAR316.02019-07-18 14:22:34,¯“h(o5  3CWQH 181400Z AUTO 06003KT 19/14 RMK AO1 T01850137CWQH2019-07-18T14:00:00Z45.37-71.8218.513.7603TRUETRUEMETAR181.02019-07-18 14:22:34:¯“g(q5    3FMCH 181400Z 14015KT 9999 FEW020 27/19 Q1017 NOSIGFMCH2019-07-18T14:00:00Z-11.5243.2727.019.0140156.2130.029528TRUEVFRMETAR29.02019-07-18 14:22:34U¯“f)-5    3CWQK 181400Z AUTO 29016KT 12/10 RMK AO1 PK WND 28022/1300 SLP165 T01220104 53015CWQK2019-07-18T14:00:00Z48.3-123.5312.210.4290161016.5TRUETRUE1.5METAR5.02019-07-18 14:22:34B¯“e)5  3CXOY 181400Z AUTO 27011KT 15/11 RMK AO1 PK WND 26017/1345 T01470108CXOY2019-07-18T14:00:00Z51.38-110.3514.710.827011TRUETRUEMETAR767.02019-07-18 14:22:34 ·Kx‰·L¯“m)5    3FKYS 181400Z 20004KT 140V250 9999 BKN020 FEW023TCU 27/22 Q1015 NOSIGFKYS2019-07-18T14:00:00Z3.8211.5227.022.020046.2129.970472TRUEMVFRMETAR760.02019-07-18 14:22:34i¯“l)I5    3FEFF 181400Z 18025KT 1500 +TSSHRA OVC010 FEW033CB 29/29 Q1011 WS ALL RWY TEMPO TEMPO 4000 TSRAFEFF2019-07-18T14:00:00Z4.418.5229.029.0180250.9329.852362SHRA TSLIFRMETAR366.02019-07-18 14:22:34M¯“k)5     3FKKD 181400Z VRB04KT 2000 RADZ SCT005 BKN013 SCT016CB 24/24 Q1011 NOSIGFKKD2019-07-18T14:00:00Z4.09.7224.024.0041.2429.852362TRUERA DZIFRMETAR9.02019-07-18 14:22:34/¯“j(e5   3TQPF 181400Z 08014KT 9999 SCT019 29/24 Q1019TQPF2019-07-18T14:00:00Z18.18-63.0329.024.080146.2130.088583VFRMETAR31.02019-07-18 14:22:34 Í;Y•ÍB¯“q) 5    3CWQP 181400Z AUTO 04007KT 23/19 RMK AO1 SLP150 T02340191 53008CWQP2019-07-18T14:00:00Z43.83-77.1523.419.14071015.0TRUETRUE0.8METAR79.02019-07-18 14:22:34>¯“p)5  3CWQR 181400Z AUTO 26025KT 13/10 RMK AO1 PK WND 26028/1358 T01290095CWQR2019-07-18T14:00:00Z50.22-64.2212.99.526025TRUETRUEMETAR9.02019-07-18 14:22:34\¯“o)35    3CWMQ 181400Z AUTO 26013G22KT 20/06 RMK AO1 PK WND 29022/1350 SLP007 T01980059 58003CWMQ2019-07-18T14:00:00Z49.9-109.4719.85.926013221000.7TRUETRUE-0.3METAR767.02019-07-18 14:22:34?¯“n(5    3FCPP 181400Z 20007KT 7000 FEW013 OVC023 25/21 Q1011 NOSIGFCPP2019-07-18T14:00:00Z-4.8211.925.021.020074.3529.852362TRUEMVFRMETAR17.02019-07-18 14:22:34 Ä6k¬Äb¯“u)?5     3CWSL 181400Z AUTO 27003KT 12/07 RMK AO1 3PAST HR PRESRR 3025 SLP106 P0001 T01180071 50003CWSL2019-07-18T14:00:00Z50.7-119.2711.87.127031010.6TRUETRUE0.30.01METAR351.02019-07-18 14:22:349¯“t(}5     3CWSP 181400Z AUTO 28006KT 11/ RMK AO1 SLP169 T0113 53014CWSP2019-07-18T14:00:00Z48.38-123.9211.328061016.9TRUETRUE1.4METAR21.02019-07-18 14:22:34E¯“s) 5    3CWRJ 181400Z AUTO 22007KT 15/12 RMK AO1 SLP982 T01480116 58005CWRJ2019-07-18T14:00:00Z51.57-107.9214.811.62207998.2TRUETRUE-0.5METAR586.02019-07-18 14:22:34D¯“r) 5    3CWRK 181400Z AUTO 09003KT 22/16 RMK AO1 SLP158 T02210157 58004CWRK2019-07-18T14:00:00Z45.07-77.8722.115.79031015.8TRUETRUE-0.4METAR331.02019-07-18 14:22:34 è8\’è$¯“y(a5    3CWRZ 181400Z AUTO 31010G16KT RMK AO1 57008CWRZ2019-07-18T14:00:00Z48.42-64.323101016TRUETRUE-0.8METAR16.02019-07-18 14:22:34D¯“x) 5    3CWSD 181400Z AUTO 35007KT 20/11 RMK AO1 SLP137 T01950110 58005CWSD2019-07-18T14:00:00Z46.42-63.8519.511.035071013.7TRUETRUE-0.5METAR24.02019-07-18 14:22:34V¯“w)-5    3CWSG 181400Z AUTO 26018KT 15/11 RMK AO1 PK WND 26022/1337 SLP138 T01470108 58006CWSG2019-07-18T14:00:00Z49.12-66.6514.710.8260181013.8TRUETRUE-0.6METAR5.02019-07-18 14:22:34B¯“v) 5    3CWSK 181400Z AUTO 00000KT 13/13 RMK AO1 SLP131 T01340128 52018CWSK2019-07-18T14:00:00Z49.78-123.1713.412.8001013.1TRUETRUE1.8METAR60.02019-07-18 14:22:34 °8z°D¯“}) 5    3CMFM 181400Z AUTO 12003KT 17/06 RMK AO1 SLP184 T01730064 58004CMFM2019-07-18T14:00:00Z47.32-71.1517.36.412031018.4TRUETRUE-0.4METAR672.02019-07-18 14:22:348¯“|(}5     3CMGB 181400Z AUTO 01003KT 21/ RMK AO1 SLP159 T0214 58004CMGB2019-07-18T14:00:00Z45.37-72.7721.41031015.9TRUETRUE-0.4METAR86.02019-07-18 14:22:34^¯“{)A5    3CWRT 181400Z AUTO 27005KT 07/07 RMK AO1 4PAST HR M PK WND 27024/1323 P0017 T00730069 50046CWRT2019-07-18T14:00:00Z49.62-114.477.36.92705TRUETRUE4.60.17METAR1303.02019-07-18 14:22:34^¯“z)35    3CWRY 181400Z AUTO 21010G15KT 18/06 RMK AO1 PK WND 24017/1330 SLP031 T01790058 56004CWRY2019-07-18T14:00:00Z49.12-112.0317.95.821010151003.1TRUETRUE-0.4METAR1050.02019-07-18 14:22:34 À7l‰ÀC¯”) 5    3CWJR 181400Z AUTO 34004KT 15/08 RMK AO1 SLP081 T01470079 53016CWJR2019-07-18T14:00:00Z49.07-116.514.77.934041008.1TRUETRUE1.6METAR646.02019-07-18 14:22:34]¯”)35    3CWJI 181400Z AUTO 24013G18KT 16/09 RMK AO1 PK WND 24018/1348 SLP021 T01640091 56007CWJI2019-07-18T14:00:00Z49.72-105.9216.49.124013181002.1TRUETRUE-0.7METAR724.02019-07-18 14:22:34E¯“) 5    3CWSR 181400Z AUTO 11004KT 14/13 RMK AO1 SLP980 T01410131 57005CWSR2019-07-18T14:00:00Z53.37-107.5314.113.11104998.0TRUETRUE-0.5METAR584.02019-07-18 14:22:34C¯“~) 5    3CWST 181400Z AUTO 28006KT 20/12 RMK AO1 SLP179 T01970124 50011CWST2019-07-18T14:00:00Z47.35-70.0219.712.428061017.9TRUETRUE1.1METAR31.02019-07-18 14:22:34 Ðb™ÐC¯”) 5    3CWJX 181400Z AUTO 25009KT 16/09 RMK AO1 SLP991 T01590089 58001CWJX2019-07-18T14:00:00Z50.88-109.515.98.92509999.1TRUETRUE-0.1METAR672.02019-07-18 14:22:34C¯”) 5    3CWKG 181400Z AUTO 12003KT 22/15 RMK AO1 SLP149 T02190149 53002CWKG2019-07-18T14:00:00Z44.43-65.221.914.912031014.9TRUETRUE0.2METAR165.02019-07-18 14:22:347¯”(y5    3CWKH 181400Z AUTO 12/07 RMK AO1 SLP144 T01190074 53013CWKH2019-07-18T14:00:00Z48.57-123.5511.97.41014.4TRUETRUE1.3METAR366.02019-07-18 14:22:34[¯”)15     3CWKX 181400Z AUTO 19001KT 10/09 RMK AO1 2PAST HR 1020 SLP058 P0001 T00980086 50008CWKX2019-07-18T14:00:00Z58.43-130.029.88.619011005.8TRUETRUE0.80.01METAR793.02019-07-18 14:22:34 Õ1gÕB¯” ) 5    3CWMJ 181400Z AUTO 13008KT 21/10 RMK AO1 SLP170 T02060098 50001CWMJ2019-07-18T14:00:00Z46.27-76.020.69.813081017.0TRUETRUE0.1METAR200.02019-07-18 14:22:34D¯”) 5    3CWJT 181400Z AUTO 11003KT 21/11 RMK AO1 SLP169 T02090108 51003CWJT2019-07-18T14:00:00Z46.07-74.5720.910.811031016.9TRUETRUE0.3METAR239.02019-07-18 14:22:34D¯”) 5    3CWJV 181400Z AUTO 27002KT 15/06 RMK AO1 SLP080 T01540055 53008CWJV2019-07-18T14:00:00Z50.22-119.1815.45.527021008.0TRUETRUE0.8METAR556.02019-07-18 14:22:34I¯”)5    3CWJW 181400Z AUTO 14002KT 08/08 RMK AO1 3004 SLP054 T00840075 50003CWJW2019-07-18T14:00:00Z52.93-118.038.47.514021005.4TRUETRUE0.3METAR1020.02019-07-18 14:22:34 ÙT£ÙD¯” ) 5    3CTRA 181400Z AUTO 21004KT 21/19 RMK AO1 SLP997 T02060190 58005CTRA2019-07-18T14:00:00Z49.67-93.7320.619.02104999.7TRUETRUE-0.5METAR435.02019-07-18 14:22:34+¯” (o5  3CWLC 181400Z AUTO 00026KT 13/11 RMK AO1 T01300111CWLC2019-07-18T14:00:00Z54.3-130.6213.011.1026TRUETRUEMETAR27.02019-07-18 14:22:34E¯” ) 5    3CWLE 181400Z AUTO 24009KT 15/11 RMK AO1 SLP998 T01500110 58005CWLE2019-07-18T14:00:00Z50.95-107.1515.011.02409999.8TRUETRUE-0.5METAR665.02019-07-18 14:22:34[¯” )35    3CWLM 181400Z AUTO 28007G15KT 13/11 RMK AO1 PK WND 26021/1325 SLP157 T01290108 53014CWLM2019-07-18T14:00:00Z48.42-123.3212.910.82807151015.7TRUETRUE1.4METAR70.02019-07-18 14:22:34 ð5ƒ¹ðC¯”) 5    3CXNP 181400Z AUTO 03006KT 20/13 RMK AO1 SLP149 T02030127 58002CXNP2019-07-18T14:00:00Z45.75-64.2320.312.73061014.9TRUETRUE-0.2METAR20.02019-07-18 14:22:34D¯”) 5    3CWWS 181400Z AUTO 30001KT 19/17 RMK AO1 SLP990 T01910168 58003CWWS2019-07-18T14:00:00Z52.82-97.6219.116.83001999.0TRUETRUE-0.3METAR223.02019-07-18 14:22:34,¯”(o5  3CWTT 181400Z AUTO 08001KT 19/13 RMK AO1 T01940129CWTT2019-07-18T14:00:00Z45.27-72.1719.412.9801TRUETRUEMETAR209.02019-07-18 14:22:34E¯”) 5    3CTNK 181400Z AUTO 13003KT 22/14 RMK AO1 SLP147 T02210137 58012CTNK2019-07-18T14:00:00Z45.53-78.2722.113.713031014.7TRUETRUE-1.2METAR410.02019-07-18 14:22:34  {±îK¯”)5     3VOBZ 181400Z 00000KT 3000 BR SCT018 FEW030CB BKN080 27/25 Q1000 NOSIGVOBZ2019-07-18T14:00:00Z16.5280.7827.025.0001.8629.52756TRUEBRIFRMETAR24.02019-07-18 14:22:34=¯”(w5     3VEBN 181400Z 28002KT 4000 HZ FEW025 33/25 Q0999 NOSIGVEBN2019-07-18T14:00:00Z25.4582.8533.025.028022.4929.498032TRUEHZIFRMETAR83.02019-07-18 14:22:34D¯”) 5    3CWDQ 181400Z AUTO 23002KT 18/09 RMK AO1 SLP186 T01820094 58007CWDQ2019-07-18T14:00:00Z47.42-72.7818.29.423021018.6TRUETRUE-0.7METAR169.02019-07-18 14:22:34¯”(_5  3CXMY 181400Z AUTO 20/10 RMK AO1 T02020098CXMY2019-07-18T14:00:00Z44.98-62.4820.29.8TRUETRUEMETAR40.02019-07-18 14:22:34Z¯”)35    3CAHR 181400Z AUTO 35009G17KT 19/09 RMK AO1 PK WND 00017/1355 SLP137 T01900088 58002CAHR2019-07-18T14:00:00Z46.35-63.1719.08.83509171013.7TRUETRUE-0.2METAR53.02019-07-18 14:22:34 =Ep¯í=*¯”(e5   3FGBT 181400Z 22008KT 9999 SCT010 28/25 Q1010FGBT2019-07-18T14:00:00Z1.889.828.025.022086.2129.822834VFRMETAR8.02019-07-18 14:22:34<¯”(5    3FPST 181400Z 04004KT 9999 FEW020 BKN040 29/24 Q1013 NOSIGFPST2019-07-18T14:00:00Z0.376.7229.024.04046.2129.911417TRUEVFRMETAR13.02019-07-18 14:22:34;¯”(q5    3FZAA 181400Z 22010KT 6000 FEW022 29/20 Q1011 NOSIGFZAA2019-07-18T14:00:00Z-4.3815.4529.020.0220103.7329.852362TRUEMVFRMETAR312.02019-07-18 14:22:34O¯”)5     3FZIC 181400Z 03006KT 5000 HZ FEW029 FEW032TCU BKN300 31/23 Q1011 NOSIGFZIC2019-07-18T14:00:00Z0.4825.3331.023.03063.1129.852362TRUEHZMVFRMETAR432.02019-07-18 14:22:345¯”(k5    3FZWA 181400Z 10004KT 6000 NSC 32/09 Q1012 NOSIGFZWA2019-07-18T14:00:00Z-6.1223.5732.09.010043.7329.88189TRUEMVFRMETAR677.02019-07-18 14:22:34 Í'`ÍJ¯”)5   3FKKR 181400Z 28009KT 240V310 9999 BKN023 FEW030CB 34/23 Q1009 TEMPO TSFKKR2019-07-18T14:00:00Z9.3213.3734.023.028096.2129.793306MVFRMETAR244.02019-07-18 14:22:34=¯”(}5    3FKKN 181400Z 04004KT 9999 TS BKN020 FEW023CB 26/19 Q1013FKKN2019-07-18T14:00:00Z7.3313.5726.019.04046.2129.911417TSMVFRMETAR1104.02019-07-18 14:22:34A¯”)5   3FKKL 181400Z 21005KT 170V260 9999 FEW030 FEW035CB 34/24 Q1009FKKL2019-07-18T14:00:00Z10.4514.2534.024.021056.2129.793306VFRMETAR424.02019-07-18 14:22:34S¯”)'5     3FGSL 181400Z 25006KT 210V280 9999 TS SCT008 FEW020CB BKN040 25/24 Q1012 NOSIGFGSL2019-07-18T14:00:00Z3.758.7225.024.025066.2129.88189TRUETSVFRMETAR56.02019-07-18 14:22:34 VDˆÉV2¯”$(q5   3YRMD 181400Z AUTO 15007KT //// // NCD 08/M05 Q1018YRMD2019-07-18T14:00:00Z-20.7143.128.0-5.0150730.059055TRUEMETAR207.02019-07-18 14:22:345¯”#(q5    3YNTN 181400Z AUTO 18009KT 9999 // NCD 19/M02 Q1016YNTN2019-07-18T14:00:00Z-17.68141.0719.0-2.018096.2130.0TRUEVFRMETAR22.02019-07-18 14:22:349¯”"(q5    3YNWN 181400Z AUTO 00000KT 9999 // NCD 11/M10 Q1019YNWN2019-07-18T14:00:00Z-23.42119.811.0-10.0006.2130.088583TRUEVFRMETAR525.02019-07-18 14:22:346¯”!(o5    3YOLD 181400Z AUTO 00000KT 9999 // NCD 08/02 Q1021YOLD2019-07-18T14:00:00Z-30.48136.888.02.0006.2130.147638TRUEVFRMETAR105.02019-07-18 14:22:346¯” (o5    3YNBR 181400Z AUTO 00000KT 9999 // NCD 04/01 Q1021YNBR2019-07-18T14:00:00Z-30.32149.834.01.0006.2130.147638TRUEVFRMETAR240.02019-07-18 14:22:34 2?„Åý2E¯”)) 5    3CXBI 181400Z AUTO 13006KT 23/18 RMK AO1 SLP143 T02260175 58005CXBI2019-07-18T14:00:00Z44.48-79.5522.617.513061014.3TRUETRUE-0.5METAR289.02019-07-18 14:22:34B¯”() 5    3CXZC 181400Z AUTO 16003KT 20/13 RMK AO1 SLP084 T02010126 56033CXZC2019-07-18T14:00:00Z51.3-80.6220.112.616031008.4TRUETRUE-3.3METAR9.02019-07-18 14:22:349¯”'(o5    3YSNW 181400Z AUTO 29018KT 9999 // NCD 09/01 Q1017YSNW2019-07-18T14:00:00Z-34.95150.529.01.0290186.2130.029528TRUEVFRMETAR110.02019-07-18 14:22:345¯”&(o5    3YGFN 181400Z AUTO 00000KT 9999 // NCD 04/02 Q1019YGFN2019-07-18T14:00:00Z-29.77153.034.02.0006.2130.088583TRUEVFRMETAR34.02019-07-18 14:22:34;¯”%(q5    3YPBO 181400Z AUTO 07006KT 9999 // NCD 14/M14 Q1017YPBO2019-07-18T14:00:00Z-23.2117.7514.0-14.07066.2130.029528TRUEVFRMETAR1292.02019-07-18 14:22:34 ‘?b‘K¯”-)5    3VOMD 181400Z 29010KT 6000 SCT018 FEW025CB BKN090 31/22 Q1003 NOSIGVOMD2019-07-18T14:00:00Z9.8278.0731.022.0290103.7329.616142TRUEMVFRMETAR131.02019-07-18 14:22:34W¯”,)5    3KNEL 181400Z 00000KT 10SM OVC008 26/25 A2991 RMK AO2 SLP127 T02610250 $KNEL2019-07-18T14:00:00Z40.02-74.3326.125.00010.029.9114171012.7TRUETRUEIFRMETAR31.02019-07-18 14:22:34Z¯”+)35    3CWDM 181400Z AUTO 29014G21KT 19/08 RMK AO1 PK WND 30027/1309 SLP034 T01850080 58008CWDM2019-07-18T14:00:00Z50.47-59.6218.58.029014211003.4TRUETRUE-0.8METAR6.02019-07-18 14:22:34[¯”*)35    3CWDO 181400Z AUTO 30019G26KT 15/13 RMK AO1 PK WND 31031/1347 SLP989 T01460126 55003CWDO2019-07-18T14:00:00Z49.67-54.7814.612.63001926998.9TRUETRUE-0.3METAR92.02019-07-18 14:22:34 ™Yw™X¯”1)/5    3TNCM 181400Z 08012KT 050V110 9999 SCT018 31/24 Q1019 A3010 NOSIG RMK LGT HZ ALQDSTNCM2019-07-18T14:00:00Z18.05-63.1231.024.080126.2130.088583TRUEVFRMETAR4.02019-07-18 14:22:34\¯”0)55    3UHPP 181400Z 35003MPS 310V030 9999 NSC 15/13 Q1015 R34L/CLRD70 NOSIG RMK QFE758/1011UHPP2019-07-18T14:00:00Z53.17158.4515.013.035066.2129.970472TRUEVFRMETAR40.02019-07-18 14:22:34;¯”/(q5    3GMAG 181400Z 34018KT 8000 FEW016 23/13 Q1012 NOSIGGMAG2019-07-18T14:00:00Z29.03-10.0523.013.0340184.9729.88189TRUEMVFRMETAR333.02019-07-18 14:22:34`¯”.)/5   3CYLH 181400Z AUTO 20007G15KT 9SM OVC010 17/16 A2950 RMK SLP994 DENSITY ALT 1700FTCYLH2019-07-18T14:00:00Z52.2-87.9317.016.02007159.029.500984999.4TRUEMVFRMETAR254.02019-07-18 14:22:34 kD[kj¯”5)?5   3CYKL 181400Z AUTO 31013G21KT 290V360 9SM BKN021 12/08 A2980 RMK SLP107 DENSITY ALT 1900FTCYKL2019-07-18T14:00:00Z54.78-66.8212.08.031013219.029.7992131010.7TRUEMVFRSPECI521.02019-07-18 14:22:34c¯”4)=5   3CYLD 181400Z 16008KT 15SM FEW060 FEW260 20/14 A2982 RMK SC1CI1 SLP104 DENSITY ALT 2600FTCYLD2019-07-18T14:00:00Z47.82-83.3320.014.0160815.029.8198811010.4VFRMETAR447.02019-07-18 14:22:34P¯”3)5    3UHBB 181400Z 21002MPS CAVOK 20/17 Q1004 R36/090060 NOSIG RMK QFE735/0981UHBB2019-07-18T14:00:00Z50.43127.4220.017.021046.2129.64567TRUEVFRMETAR195.02019-07-18 14:22:34`¯”2)A5    3UHHH 181400Z 19002MPS 9000 TS BKN033CB 21/21 Q1003 R23L/290045 TEMPO -TSRA RMK QFE745/0994UHHH2019-07-18T14:00:00Z48.52135.1821.021.019045.5929.616142TSVFRMETAR72.02019-07-18 14:22:34 rTXr`¯”9)?5    3UHWW 181400Z 11003MPS 9999 BKN008 OVC023 20/20 Q1007 R25L/0///70 NOSIG RMK MT OBSC QFE754UHWW2019-07-18T14:00:00Z43.4132.1520.020.011066.2129.734253TRUEIFRMETAR14.02019-07-18 14:22:34v¯”8)i5    3UHMA 181400Z 30003MPS 9999 FEW004 SCT027 13/13 Q1007 R01/////// NOSIG RMK END R01/29002MPS MT OBSC QFE752/1002UHMA2019-07-18T14:00:00Z64.73177.7313.013.030066.2129.734253TRUEVFRMETAR62.02019-07-18 14:22:34C¯”7) 5    3CWMM 181400Z AUTO 19004KT 15/11 RMK AO1 SLP141 T01490112 53015CWMM2019-07-18T14:00:00Z49.22-122.6814.911.219041014.1TRUETRUE1.5METAR5.02019-07-18 14:22:34]¯”6))5    3CYKF 181400Z AUTO 11007KT 9SM OVC012 23/21 A2997 RMK SLP146 DENSITY ALT 2100FTCYKF2019-07-18T14:00:00Z43.47-80.3823.021.011079.029.9704721014.6TRUEMVFRMETAR317.02019-07-18 14:22:34 ‚>SS‚K¯”=)5    3FMEP 181400Z AUTO 11020G31KT 080V140 CAVOK 22/15 Q1022 NOSIGFMEP2019-07-18T14:00:00Z-21.3255.4222.015.011020316.2130.177166TRUETRUEVFRMETAR18.02019-07-18 14:22:34z¯”<)g5     3FMEE 181400Z AUTO 14014KT 9999 FEW054/// BKN068/// BKN080/// ///TCU 22/16 Q1023 TEMPO 11020G30KT BECMG FEW030FMEE2019-07-18T14:00:00Z-20.8755.5222.016.0140146.2130.206694TRUEVFR-2.0SPECI25.02019-07-18 14:22:34e¯”;)E5    3UHSS 181400Z 19004MPS 9999 SCT007 BKN023CB 18/17 Q1011 R19/70D NOSIG RMK MT OBSC QFE757/1009UHSS2019-07-18T14:00:00Z46.88142.7218.017.019086.2129.852362TRUEMVFRMETAR31.02019-07-18 14:22:34<¯”:(}5   3UHMM 181400Z 29001MPS 9999 OVC008 10/10 Q1008 RMK QFE741UHMM2019-07-18T14:00:00Z59.92150.7210.010.029026.2129.763779IFRMETAR175.02019-07-18 14:22:34 Ë2gË0¯”A(e5   3VOMY 181400Z 25008KT 6000 SCT015 26/21 Q1009VOMY2019-07-18T14:00:00Z12.2376.6526.021.025083.7329.793306MVFRMETAR722.02019-07-18 14:22:34`¯”@)A5    3VANP 181400Z 31004KT 3000 HZ FEW020 SCT025 FEW030CB 30/24 Q1003 TEMPO 1500 TSRA 05015G25KTVANP2019-07-18T14:00:00Z21.0879.0530.024.031041.8629.616142HZIFRSPECI310.02019-07-18 14:22:34E¯”?) 5    3VTSB 181400Z 19005KT 160V220 7000 -RA FEW004 SCT100 25/24 Q1008VTSB2019-07-18T14:00:00Z9.1299.1325.024.019054.3529.763779-RAMVFRMETAR11.02019-07-18 14:22:34H¯”>)5    3VTSM 181400Z 31006KT 270V360 9999 FEW020 SCT100 27/24 Q1008 NOSIGVTSM2019-07-18T14:00:00Z9.55100.0727.024.031066.2129.763779TRUEVFRMETAR17.02019-07-18 14:22:34 ,-Z æ,4¯”F(o5    3YBPN 181400Z AUTO 00000KT 9999 // NCD 08/06 Q1019YBPN2019-07-18T14:00:00Z-20.5148.558.06.0006.2130.088583TRUEVFRMETAR25.02019-07-18 14:22:344¯”E(o5    3YCDU 181400Z AUTO 04005KT 9999 // NCD 04/03 Q1020YCDU2019-07-18T14:00:00Z-32.12133.74.03.04056.2130.11811TRUEVFRMETAR15.02019-07-18 14:22:344¯”D(u5   3YCNM 181400Z AUTO 16006KT //// // ////// 05/02 Q1021YCNM2019-07-18T14:00:00Z-30.98148.385.02.0160630.147638TRUEMETAR184.02019-07-18 14:22:34M¯”C)5    3RJOS 181400Z 15006KT 5000 SHRA BR FEW008 SCT015 OVC030 22/22 Q1012RJOS2019-07-18T14:00:00Z34.12134.6222.022.015063.1129.88189SHRA BRMVFRMETAR11.02019-07-18 14:22:34M¯”B)5     3RJSD 181400Z AUTO VRB02KT 7000 -RA FEW020 SCT026 BKN030 23/22 Q1010RJSD2019-07-18T14:00:00Z38.03138.4223.022.0024.3529.822834TRUE-RAMVFRMETAR26.02019-07-18 14:22:34 3DŠÇ 3P¯”K)5    3ROMD 181400Z AUTO 16010KT 120V190 9999 FEW010 SCT170 BKN190 28/27 Q1009ROMD2019-07-18T14:00:00Z25.82131.2228.027.0160106.2129.793306TRUEVFRMETAR15.02019-07-18 14:22:348¯”J(o5    3YEML 181400Z AUTO 16009KT 9999 // NCD 12/01 Q1020YEML2019-07-18T14:00:00Z-23.57148.1812.01.016096.2130.11811TRUEVFRMETAR190.02019-07-18 14:22:34=¯”I(u5    3YESP 181400Z AUTO 02010KT 9999 // OVC069 13/12 Q1017YESP2019-07-18T14:00:00Z-33.68121.8213.012.020106.2130.029528TRUEVFRMETAR143.02019-07-18 14:22:344¯”H(q5    3YCOM 181400Z AUTO 32009KT 9999 // NCD 03/M04 Q1016YCOM2019-07-18T14:00:00Z-36.3148.973.0-4.032096.2130.0TRUEVFRMETAR941.02019-07-18 14:22:346¯”G(o5    3YDBY 181400Z AUTO 00000KT 9999 // NCD 18/11 Q1014YDBY2019-07-18T14:00:00Z-17.37123.6718.011.0006.2129.940945TRUEVFRMETAR7.02019-07-18 14:22:34 ®@„®P¯”O)5    3RJKI 181400Z AUTO 14012KT 090V180 9999 SCT011 BKN015 BKN019 28/27 Q1007RJKI2019-07-18T14:00:00Z28.32129.9228.027.0140126.2129.734253TRUEMVFRMETAR6.02019-07-18 14:22:346¯”N(i5    3RORK 181400Z AUTO 15019KT 9999 NSC 28/26 Q1009RORK2019-07-18T14:00:00Z25.92131.3228.026.0150196.2129.793306TRUEVFRMETAR22.02019-07-18 14:22:34P¯”M)5    3RORY 181400Z AUTO 15021G31KT 4100 BR SCT017 SCT170 BKN180 28/26 Q1004RORY2019-07-18T14:00:00Z27.05128.428.026.015021312.5529.64567TRUEBRIFRMETAR16.02019-07-18 14:22:34d¯”L)35    3ROYN 181400Z AUTO 21030G44KT 2400 +RA BR FEW007 SCT009 BKN010 //////TCU 26/25 Q0997ROYN2019-07-18T14:00:00Z24.47122.9726.025.021030441.4929.438976TRUE+RA BRIFRMETAR17.02019-07-18 14:22:34 C5w½C7¯”T(o5    3YBHI 181400Z AUTO 32006KT 9999 // NCD 09/02 Q1021YBHI2019-07-18T14:00:00Z-32.0141.479.02.032066.2130.147638TRUEVFRMETAR292.02019-07-18 14:22:347¯”S(o5    3YBMK 181400Z AUTO 25005KT 9999 // NCD 07/05 Q1019YBMK2019-07-18T14:00:00Z-21.17149.177.05.025056.2130.088583TRUEVFRMETAR31.02019-07-18 14:22:344¯”R(o5    3YBNA 181400Z AUTO 00000KT 9999 // NCD 06/05 Q1018YBNA2019-07-18T14:00:00Z-28.83153.576.05.0006.2130.059055TRUEVFRMETAR2.02019-07-18 14:22:348¯”Q(q5    3YBOK 181400Z AUTO 04005KT 9999 // NCD 01/M05 Q1020YBOK2019-07-18T14:00:00Z-27.42151.721.0-5.04056.2130.11811TRUEVFRMETAR407.02019-07-18 14:22:34E¯”P(}5     3RJDK 181400Z AUTO 08005KT 0300 -RA FG OVC001 24/24 Q1009RJDK2019-07-18T14:00:00Z33.02129.1724.024.08050.1929.793306TRUE-RA FGLIFRMETAR20.02019-07-18 14:22:34 IDŠÍI6¯”Y(o5    3YGTH 181400Z AUTO 00000KT 9999 // NCD 02/02 Q1021YGTH2019-07-18T14:00:00Z-34.25146.072.02.0006.2130.147638TRUEVFRMETAR134.02019-07-18 14:22:34B¯”X)5    3YHUG 181400Z AUTO 03004KT 360V090 9999 // NCD 07/M02 Q1019YHUG2019-07-18T14:00:00Z-20.82144.237.0-2.03046.2130.088583TRUEVFRMETAR318.02019-07-18 14:22:347¯”W(q5    3YKRY 181400Z AUTO 00000KT 9999 // NCD 02/M03 Q1020YKRY2019-07-18T14:00:00Z-26.57151.832.0-3.0006.2130.11811TRUEVFRMETAR434.02019-07-18 14:22:344¯”V(w5   3YLEC 181400Z AUTO 13004KT //// // ////// 06/M00 Q1022YLEC2019-07-18T14:00:00Z-30.6138.436.00.0130430.177166TRUEMETAR262.02019-07-18 14:22:346¯”U(o5    3YLIS 181400Z AUTO 02004KT 9999 // NCD 06/04 Q1019YLIS2019-07-18T14:00:00Z-28.83153.276.04.02046.2130.088583TRUEVFRMETAR11.02019-07-18 14:22:34 ¤A\¤W¯”])-5    3UIUU 181400Z 35002MPS 9999 FEW046CB 23/18 Q1004 R08/CLRD60 NOSIG RMK QFE708/0945UIUU2019-07-18T14:00:00Z51.8107.4523.018.035046.2129.64567TRUEVFRMETAR515.02019-07-18 14:22:34U¯”\)'5    3UIII 181400Z 30003MPS 9999 FEW050CB 23/18 Q1006 R30/60D NOSIG RMK QFE710/0947UIII2019-07-18T14:00:00Z52.27104.423.018.030066.2129.704725TRUEVFRMETAR513.02019-07-18 14:22:34_¯”[)=5    3UIBB 181400Z 04002MPS 360V070 9999 FEW050CB 20/18 Q1007 R30/CLRD60 NOSIG RMK QFE713/0951UIBB2019-07-18T14:00:00Z56.37101.720.018.04046.2129.734253TRUEVFRMETAR490.02019-07-18 14:22:349¯”Z(u5   3YGTE 181400Z AUTO 11004KT 9999 // ////// 19/18 Q1015YGTE2019-07-18T14:00:00Z-13.97136.4519.018.011046.2129.970472TRUEMETAR14.02019-07-18 14:22:34 ®!Ow®C¯”a)5   3CYSY 181400Z 16005KT 15SM BKN031 05/03 A2978 RMK SC7 SLP091CYSY2019-07-18T14:00:00Z72.0-125.275.03.0160515.029.7785431009.1VFRMETAR86.02019-07-18 14:22:34R¯”`)5    3CYTE 181400Z 28011KT 2SM -DZ BR OVC002 07/07 A2941 RMK FG2ST6 SLP962CYTE2019-07-18T14:00:00Z64.22-76.527.07.0280112.029.409449996.2-DZ BRLIFRSPECI47.02019-07-18 14:22:34L¯”_)5   3CYUT 181400Z 27004KT 50SM SCT025 SCT095 08/06 A2937 RMK CU3AC1 SLP948CYUT2019-07-18T14:00:00Z66.52-86.258.06.0270450.029.371063994.8VFRMETAR24.02019-07-18 14:22:34Y¯”^)%5  3CYLK 181400Z 06011G18KT 20SM SKC 14/07 A2965 RMK 0 SLP047 DENSITY ALT 1000FTCYLK2019-07-18T14:00:00Z62.42-110.6714.07.060111820.029.6486231004.7VFRMETAR179.02019-07-18 14:22:34 èP—è)¯”e(Y5   3FNGI 181400Z 06006KT CAVOK 29/01 Q1019FNGI2019-07-18T14:00:00Z-17.0515.6829.01.06066.2130.088583VFRMETAR1087.02019-07-18 14:22:343¯”d(k5    3SAWE 181400Z 29005KT 0800 FG SCT003 01/00 Q0996SAWE2019-07-18T14:00:00Z-53.78-67.751.00.029050.529.409449FGLIFRMETAR22.02019-07-18 14:22:34G¯”c) 5    3UIAA 181400Z AUTO 29002MPS 9999 NCD 19/16 Q1004 RMK QFE695/0926UIAA2019-07-18T14:00:00Z52.02113.3219.016.029046.2129.64567TRUEVFRMETAR685.02019-07-18 14:22:34]¯”b)15  3CYRT 181400Z 35015G20KT 30SM SCT015 SCT100 BKN270 11/07 A2954 RMK SC3AC1CI1 SLP007CYRT2019-07-18T14:00:00Z62.82-92.1211.07.0350152030.029.539371000.7VFRMETAR32.02019-07-18 14:22:34 HöHQ¯”i))5   3URKA 181400Z 02005MPS 9999 SCT/// 28/19 Q1008 R04/010070 NOSIG RMK QFE752/1003URKA2019-07-18T14:00:00Z45.037.3528.019.020106.2129.763779TRUESPECI53.02019-07-18 14:22:34Q¯”h)!5    3URKK 181400Z 08005MPS 9999 SCT032 25/18 Q1008 R05R/CLRD70 NOSIG RMK QFE753URKK2019-07-18T14:00:00Z45.0339.1525.018.080106.2129.763779TRUEVFRSPECI34.02019-07-18 14:22:34‚¯”g)‚5  3CYKG 181400Z 26020G26KT 12SM FEW025 FEW060TCU BKN073 BKN250 15/09 A2952 RMK SC1TCU1AS5CI1 TCU TR TCU EMBD/VIRGA SLP003 DENSITY ALT 1200FTCYKG2019-07-18T14:00:00Z61.57-71.9215.09.0260202612.029.5187021000.3BKN25000VFRMETAR151.02019-07-18 14:22:34`¯”f)35    3CYWE 181400Z AUTO 05006KT 020V090 9SM CLR 12/07 A2975 RMK SLP088 DENSITY ALT 1300FTCYWE2019-07-18T14:00:00Z64.18-114.0812.07.05069.029.7490161008.8TRUEVFRMETAR371.02019-07-18 14:22:34 yN Ú#y$¯”n(_5    3DAUA 181400Z 29004KT 8000 NSC 49/// Q1004DAUA2019-07-18T14:00:00Z27.83-0.1829044.9729.64567MVFRMETAR263.02019-07-18 14:22:341¯”m(k5   3DAUB 181400Z 30010KT 9999 FEW033TCU 40/13 Q1009DAUB2019-07-18T14:00:00Z34.785.7240.013.0300106.2129.793306VFRMETAR87.02019-07-18 14:22:34@¯”l) 5   3DAUG 181400Z 15009KT 100V190 9999 FEW033TCU BKN040 38/08 Q1013DAUG2019-07-18T14:00:00Z32.373.8238.08.015096.2129.911417VFRMETAR450.02019-07-18 14:22:34(¯”k(Y5   3DAOI 181400Z 36006KT CAVOK 32/16 Q1013DAOI2019-07-18T14:00:00Z36.221.3232.016.036066.2129.911417VFRMETAR143.02019-07-18 14:22:34,¯”j(Y5   3SBAN 181400Z 08016KT CAVOK 22/11 Q1025SBAN2019-07-18T14:00:00Z-16.22-48.9722.011.080166.2130.265747VFRMETAR1137.02019-07-18 14:22:34 ;S¥ñ ;_¯”s);5   3CYXP 181400Z 26008KT 15SM FEW045 SCT160 10/08 A2947 RMK CU1AC2 SLP981 DENSITY ALT 100FTCYXP2019-07-18T14:00:00Z66.15-65.7210.08.0260815.029.471457998.1VFRMETAR23.02019-07-18 14:22:34K¯”r)5   3CYZS 181400Z 21005KT 15SM BKN050 10/07 A2941 RMK SC7 VIA CYHZ SLP966CYZS2019-07-18T14:00:00Z64.2-83.3710.07.0210515.029.409449996.6VFRMETAR64.02019-07-18 14:22:34.¯”q(e5   3DAAS 181400Z 34005KT 9999 FEW030 30/06 Q1018DAAS2019-07-18T14:00:00Z36.185.3330.06.034056.2130.059055VFRMETAR1038.02019-07-18 14:22:34(¯”p(e5   3DABS 181400Z 30008KT 9999 FEW040 31/07 Q1016DABS2019-07-18T14:00:00Z35.438.1231.07.030086.2130.0VFRMETAR813.02019-07-18 14:22:34'¯”o(Y5   3DAOB 181400Z 30008KT CAVOK 32/05 Q1018DAOB2019-07-18T14:00:00Z35.331.4732.05.030086.2130.059055VFRMETAR989.02019-07-18 14:22:34 ¦+:[¦/¯”w(k5   3DAUZ 181400Z 05013KT 010V080 CAVOK 38/M00 Q1012DAUZ2019-07-18T14:00:00Z28.059.6238.00.050136.2129.88189VFRMETAR562.02019-07-18 14:22:34Y¯”v))5   3CYWJ 181400Z 10003KT 050V130 40SM SKC 13/06 A2978 RMK SLP095 DENSITY ALT 800FTCYWJ2019-07-18T14:00:00Z65.22-123.4313.06.0100340.029.7785431009.5VFRMETAR176.02019-07-18 14:22:34k¯”u)K5   3CYWY 181400Z 31003KT 290V010 15SM FEW055 BKN085 15/11 A2973 RMK SC2AC5 SLP073 DENSITY ALT 900FTCYWY2019-07-18T14:00:00Z63.22-123.4215.011.0310315.029.7312981007.3VFRMETAR150.02019-07-18 14:22:34O¯”t)5   3CYXN 181400Z 34012KT 15SM FEW020 BKN240 11/07 A2957 RMK SC1CI4 SLP014CYXN2019-07-18T14:00:00Z62.22-92.5811.07.03401215.029.5688971001.4VFRMETAR20.02019-07-18 14:22:34 `Nœð?`Y¯”|)35   3CYAZ 181400Z 33003KT 15SM FEW016TCU SCT042 BKN072 13/11 A3000 RMK TCU2SC2AC2 SLP161CYAZ2019-07-18T14:00:00Z49.08-125.7713.011.0330315.030.01016.1VFRMETAR24.02019-07-18 14:22:34+¯”{(e5   3DAAE 181400Z 06009KT 9999 FEW020 28/21 Q1014DAAE2019-07-18T14:00:00Z36.725.0728.021.06096.2129.940945VFRMETAR2.02019-07-18 14:22:34&¯”z(e5    3DAAJ 181400Z 21003KT 9999 FEW046 41/// Q1013DAAJ2019-07-18T14:00:00Z24.289.4721036.2129.911417VFRMETAR968.02019-07-18 14:22:34,¯”y(e5   3DAAV 181400Z 35005KT 9999 FEW020 28/21 Q1014DAAV2019-07-18T14:00:00Z36.85.8828.021.035056.2129.940945VFRMETAR11.02019-07-18 14:22:34,¯”x(e5   3DABT 181400Z 09006KT 9999 FEW023 32/02 Q1017DABT2019-07-18T14:00:00Z35.756.3232.02.09066.2130.029528VFRMETAR823.02019-07-18 14:22:34 âøÒâj¯”)M5   3CYBV 181400Z 32003KT 290V010 15SM SCT010 SCT040 18/16 A2950 RMK SC3SC1 SLP994 DENSITY ALT 1800FTCYBV2019-07-18T14:00:00Z52.35-97.0318.016.0320315.029.500984999.4VFRMETAR222.02019-07-18 14:22:34‚ ¯”~)‚5  ! 3CYCP 181400Z 19005KT 100V240 12SM -SHRA VCFG FEW002 SCT040 BKN060TCU BKN100 10/09 A2978 RMK SF1SC2TCU3AC1 SLP092 DENSITY ALT 2400FTCYCP2019-07-18T14:00:00Z52.13-119.2810.09.0190512.029.7785431009.2-SHRA VCFGBKN10000VFRMETAR683.02019-07-18 14:22:34‚¯”})m5   3CYCQ 181400Z 25007KT 35SM SCT045 SCT100 BKN120 OVC210 10/08 A2959 RMK SC3AC1AC1CI3 DEW SLP030 DENSITY ALT 2300FTCYCQ2019-07-18T14:00:00Z55.7-121.6210.08.0250735.029.5895671003.0OVC21000VFRMETAR609.02019-07-18 14:22:34 b!Kib‚¯•)y5   3CYDC 181400Z 23004KT 200V270 20SM FEW045 BKN051 BKN061 14/03 A2988 RMK SF1SC7SC1 SF TR SC TR SLP109 DENSITY ALT 2800FTCYDC2019-07-18T14:00:00Z49.47-120.5214.03.0230420.029.8789371010.9VFRMETAR700.02019-07-18 14:22:34\¯•))5    3CYDQ 181400Z AUTO 22004KT 9SM FEW240 12/08 A2957 RMK SLP022 DENSITY ALT 2600FTCYDQ2019-07-18T14:00:00Z55.75-120.1712.08.022049.029.5688971002.2TRUEVFRSPECI655.02019-07-18 14:22:34P¯•)5    3URMG 181400Z 10006MPS CAVOK 32/15 Q1005 R08/090070 NOSIG RMK QFE739/0986URMG2019-07-18T14:00:00Z43.3745.732.015.0100126.2129.675198TRUEVFRMETAR263.02019-07-18 14:22:34Y¯•)'5   3CYBL 181400Z 28003KT 240V310 30SM SCT055 BKN240 12/10 A2997 RMK SC3CI2 SLP152CYBL2019-07-18T14:00:00Z49.95-125.2712.010.0280330.029.9704721015.2VFRMETAR106.02019-07-18 14:22:34 }"J}G¯•) 5    3KOXD 181359Z AUTO 24003KT 10SM CLR 29/26 A3000 RMK AO2 T02850260KOXD2019-07-18T13:59:00Z39.5-84.7828.526.0240310.030.0TRUETRUEVFRMETAR317.02019-07-18 14:22:34R¯•)'5     3KTKC 181359Z AUTO 28005KT 10SM SCT014 SCT070 SCT090 A2978 RMK AO2 LTG DSNT SEKTKC2019-07-18T13:59:00Z44.25-95.62280510.029.778543TRUETRUEVFRMETAR408.02019-07-18 14:22:34o¯•)K5   3CYEV 181400Z 06008KT 15SM FEW010 FEW060 BKN110 BKN250 13/09 A2978 RMK ST1SC2AC4CI1 ST TR SLP087CYEV2019-07-18T14:00:00Z68.32-133.513.09.060815.029.7785431008.7BKN25000VFRMETAR68.02019-07-18 14:22:34c¯•)=5   3CYDB 181400Z 33004KT 30SM FEW070 BKN080 11/08 A2978 RMK AC2AC5 SLP101 DENSITY ALT 2900FTCYDB2019-07-18T14:00:00Z61.37-139.0511.08.0330430.029.7785431010.1VFRMETAR801.02019-07-18 14:22:34 ˆ:Zvˆh¯• )95    3KPOE 181358Z AUTO 20005KT 10SM OVC007 26/26 A3007 RMK AO2 CIG 005V007 SLP181 T02620255KPOE2019-07-18T13:58:00Z31.05-93.226.225.5200510.030.0708661018.1TRUETRUEIFRMETAR101.02019-07-18 14:22:34^¯• )5    3KLGF 181358Z AUTO 00000KT 10SM CLR 29/13 A2986 RMK AO2 SLP107 T02870130 $KLGF2019-07-18T13:58:00Z32.87-114.428.713.00010.029.8612211010.7TRUETRUETRUEVFRMETAR132.02019-07-18 14:22:34Z¯• )5    3KGUR 181358Z AUTO 00000KT 10SM CLR 20/14 A2994 RMK AO2 SLP090 T02020137KGUR2019-07-18T13:58:00Z42.25-104.7220.213.70010.029.9409451009.0TRUETRUEVFRSPECI1358.02019-07-18 14:22:34@¯•(y5    3K14Y 181359Z AUTO 27004KT 10SM CLR 23/19 A2971 RMK AO2K14Y2019-07-18T13:59:00Z45.9-94.8723.019.0270410.029.71063TRUETRUEVFRMETAR406.02019-07-18 14:22:34 q$:OqX¯•)5    3KWRI 181357Z 00000KT 10SM OVC006 26/24 A2989 RMK AO2A SLP120 T02570239 $KWRI2019-07-18T13:57:00Z40.02-74.5825.723.90010.029.8907471012.0TRUETRUEIFRSPECI41.02019-07-18 14:22:34e¯•)%5    3KBIF 181358Z AUTO 15009KT 10SM OVC150 25/16 A3006 RMK AO2 SLP110 T02460164 $KBIF2019-07-18T13:58:00Z31.85-106.3824.616.4150910.030.0590551011.0TRUETRUETRUEVFRMETAR1203.02019-07-18 14:22:34d¯• )/5    3KFHU 181358Z AUTO 00000KT 10SM BKN120 OVC150 22/16 A3018 RMK AO2 SLP145 T02210164KFHU2019-07-18T13:58:00Z31.58-110.3522.116.40010.030.1801191014.5TRUETRUEVFRMETAR1438.02019-07-18 14:22:34V¯• )5    3KBKF 181358Z 20006KT 10SM SCT220 23/06 A3007 RMK AO2A SLP102 T02310061KBKF2019-07-18T13:58:00Z39.72-104.7523.16.1200610.030.0708661010.2TRUEVFRSPECI1726.02019-07-18 14:22:34 M0RM¯•)Q5     3PHHI 181356Z AUTO 34004KT 10SM FEW027 SCT048 23/21 A3003 RMK AO2 DZB17E23 SLP158 P0000 T02330206 $PHHI2019-07-18T13:56:00Z21.48-158.0523.320.6340410.030.0295281015.8TRUETRUETRUEVFR0.005SPECI255.02019-07-18 14:22:34X¯•)5    3KHIF 181356Z AUTO 00000KT 10SM CLR 21/05 A3002 RMK AO2 SLP102 T02100045KHIF2019-07-18T13:56:00Z41.12-111.9721.04.50010.030.020671010.2TRUETRUEVFRMETAR1459.02019-07-18 14:22:34]¯•)5    3K1AW 181356Z AUTO 28010KT 10SM CLR 23/07 A3000 RMK AO2 SLP093 T02290067 $K1AW2019-07-18T13:56:00Z41.33-104.2722.96.72801010.030.01009.3TRUETRUETRUEVFRMETAR1667.02019-07-18 14:22:34g¯•)%5   3K1EM 181356Z AUTO 25017G24KT 10SM CLR 19/07 A2977 RMK AO2 SLP062 T01910072 $K1EM2019-07-18T13:56:00Z47.45-109.4219.17.2250172410.029.7696861006.2TRUETRUETRUEVFRMETAR1116.02019-07-18 14:22:34Y898@HPX`hpx€ˆ˜ ¨°¸ÀÈÐØàèðø (08@HPX`hpx€ˆ˜ ¨°¸ÀÈÐØàèðø (08@HPX`hpx€ˆ˜ ¨°¸ÀÈÐØàèðø ¨°¸ÀÈÐØàèðø߯“y௝“}ᯝ”⯝”㯝” 䯝” 寝”毝”篝”话”鯝”$ꯝ”)߯“y௝“}ᯝ”⯝”㯝” 䯝” 寝”毝”篝”话”鯝”$ꯝ”)믝”-쯝”1í¯”5”9ﯝ”=𯝔Añ¯”Fò¯”K󯝔Oô¯”Tõ¯”Yö¯”]÷¯”aø¯”eù¯”iú¯”nû¯”sü¯”wý¯”|þ¯”ÿ¯•¯•¯• ¯•¯•¯•¯•¯•¯•# ¯•' ¯•+ ¯•/ ¯•3 ¯•7¯•;¯•?¯•C¯•G¯•K¯•P¯•U¯•Z¯•^¯•b¯•f¯•j¯•n¯•r¯•v¯•z¯•~¯– ¯–!¯– "¯–#¯–$¯–%¯–&¯–'¯–"(¯–&)¯–**¯–.+¯–3,¯–8-¯–<.¯–@/¯–E0¯–J1¯–O2¯–T3¯–Y4¯–^5¯–c6¯–h7¯–m8¯–r ^>R^n¯•)95    3KGRF 181356Z AUTO 14005KT 10SM OVC021 13/13 A3001 RMK AO2 OVC V BKN SLP166 T01250125 $KGRF2019-07-18T13:56:00Z47.07-122.5712.512.5140510.030.0088581016.6TRUETRUETRUEMVFRMETAR92.02019-07-18 14:22:34f¯•);5    3KVOK 181356Z 19009KT 10SM BKN090 22/20 A2977 RMK A02A SLP075 WND DATA ESTMD ALSTG ESTMDKVOK2019-07-18T13:56:00Z43.92-90.2722.020.0190910.029.7696861007.5TRUEVFRSPECI277.02019-07-18 14:22:34W¯•)+5   3MUGM 181356Z 08011KT 9999 FEW030 SCT150 BKN280 32/23 A3004 RMK SLP170 T03170228MUGM2019-07-18T13:56:00Z19.9-75.231.722.880116.2130.0413381017.0VFRMETAR17.02019-07-18 14:22:34_¯•)+5    3PAED 181356Z 04004KT 10SM FEW100 FEW250 13/09 A2972 RMK AO2A SLP059 T01330093 $PAED2019-07-18T13:56:00Z61.25-149.813.39.340410.029.7194881005.9TRUETRUEVFRMETAR59.02019-07-18 14:22:34 d1Ldb¯•)5    3KSKA 181356Z AUTO 22012KT 10SM CLR 14/13 A2984 RMK AO2 SLP099 T01370132 $KSKA2019-07-18T13:56:00Z47.62-117.6513.713.22201210.029.8405511009.9TRUETRUETRUEVFRMETAR750.02019-07-18 14:22:34_¯•)5    3KBAB 181356Z AUTO 15004KT 10SM CLR 21/13 A2985 RMK AO2 SLP110 T02100132 $KBAB2019-07-18T13:56:00Z39.12-121.4221.013.2150410.029.849411011.0TRUETRUETRUEVFRMETAR34.02019-07-18 14:22:34`¯•)#5    3KLFI 181356Z AUTO 22010KT 8SM FEW140 30/24 A2994 RMK AO2 SLP145 T02960242 $KLFI2019-07-18T13:56:00Z37.07-76.3729.624.2220108.029.9409451014.5TRUETRUETRUEVFRMETAR3.02019-07-18 14:22:34c¯•)5    3KHMN 181356Z AUTO 13014KT 10SM CLR 25/16 A3009 RMK AO2 SLP112 T02470156 $KHMN2019-07-18T13:56:00Z32.85-106.0824.715.61301410.030.0885831011.2TRUETRUETRUEVFRMETAR1248.02019-07-18 14:22:34 “R‡“n¯•)c5   3LIBA 181355Z 08011KT 9999 FEW030 30/10 Q1011 RMK FEW VIS MIN 9999 WIND THR11 09013KT WIND THR29 /////KT BLULIBA2019-07-18T13:55:00Z41.5215.7230.010.080116.2129.852362VFRSPECI60.02019-07-18 14:22:34E¯•)5   3EBBE 181355Z 24010KT 9999 FEW045 SCT070 BKN200 22/12 Q1012 BLU BLUEBBE2019-07-18T13:55:00Z50.754.7722.012.0240106.2129.88189VFRSPECI127.02019-07-18 14:22:34?¯•(y5    3KCDD 181355Z AUTO 00000KT 10SM CLR 19/19 A2967 RMK AO2KCDD2019-07-18T13:55:00Z48.27-92.4819.019.00010.029.66929TRUETRUEVFRSPECI341.02019-07-18 14:22:34c¯•)%5    3MHSC 181356Z AUTO 33005KT 9999 FEW190 25/21 A3005 RMK AO2 SLP141 T02540206 $MHSC2019-07-18T13:56:00Z14.37-87.6225.420.633056.2130.0501981014.1TRUETRUETRUEVFRMETAR626.02019-07-18 14:22:34 Ù=iœÙ=¯•#(}5    3EBCV 181355Z AUTO 23011KT 9999 BKN047/// 23/12 Q1012 BLUEBCV2019-07-18T13:55:00Z50.573.8223.012.0230116.2129.88189TRUEVFRSPECI63.02019-07-18 14:22:34G¯•")5    3EBDT 181355Z AUTO 26008KT 9999 SCT085/// BKN160/// 23/11 Q1012 BLUEBDT2019-07-18T13:55:00Z51.025.0723.011.026086.2129.88189TRUEVFRSPECI54.02019-07-18 14:22:34N¯•!)%5   3EBFN 181355Z 24017KT 9999 FEW017 SCT020 BKN220 20/14 Q1011 WHT BLU TEMPO WHTEBFN2019-07-18T13:55:00Z51.072.6320.014.0240176.2129.852362VFRMETAR9.02019-07-18 14:22:34=¯• (}5    3EBLB 181355Z AUTO 22007KT 9999 BKN054/// 21/09 Q1014 BLUEBLB2019-07-18T13:55:00Z50.476.1721.09.022076.2129.940945TRUEVFRSPECI570.02019-07-18 14:22:34 )")s¯•')q5   3LIBN 181355Z 05008KT 9999 SCT025 28/24 Q1012 RMK BKN SCT200 VIS MIN 9999 WIND THR14 06010KT WIND THR32 05008KT BLULIBN2019-07-18T13:55:00Z40.2218.1328.024.05086.2129.88189VFRSPECI61.02019-07-18 14:22:34X¯•&)/5   3LIBQ 181355Z 29011KT 9999 BKN004 16/15 Q1017 RMK BKN MON LIB VAL NIL VIS MIN 9999LIBQ2019-07-18T13:55:00Z39.3216.3816.015.0290116.2130.029528LIFRSPECI1720.02019-07-18 14:22:34¯•%)‚5    3LIBV 181355Z 16006KT 120V220 9999 FEW030 30/08 Q1012 RMK BKN SCT200 VIS MIN 9999 WIND THR32 17006KT WIND THR14 20005KT BLULIBV2019-07-18T13:55:00Z40.7716.9230.08.016066.2129.88189VFR0.5SPECI350.02019-07-18 14:22:34u¯•$)q5   3LIBY 181355Z 24009KT 9999 FEW018 25/23 Q1012 RMK SCT SCT190 QUK 2 QUL 1 W VIS MAR 20 KM VIS MAX 20 KM VIS MIN 9999LIBY2019-07-18T13:55:00Z39.8218.3525.023.024096.2129.88189VFRSPECI112.02019-07-18 14:22:34 € 4Q€K¯•+)5   3LIMK 181355Z 07003KT 9999 SCT030 25/19 Q1014 RMK BKN VAL NIL VIS MIN 9999LIMK2019-07-18T13:55:00Z45.027.7225.019.07036.2129.940945VFRSPECI710.02019-07-18 14:22:34]¯•*)C5   3LIMN 181355Z 17005KT 150V210 9999 FEW030 FEW040TCU 28/18 Q1012 RMK SCT VIS MIN 9999 BLK BLULIMN2019-07-18T13:55:00Z45.528.6728.018.017056.2129.88189VFRSPECI169.02019-07-18 14:22:34f¯•))U5   3LIMU 181355Z 05006KT 9999 FEW020 SCT033 27/20 Q1013 RMK BKN QUK 2 QUL 1 E VIS MAR 25 KM VIS MIN 9999LIMU2019-07-18T13:55:00Z43.958.1727.020.05066.2129.911417VFRSPECI221.02019-07-18 14:22:34Z¯•()C5   3LIMV 181355Z /////KT 9999 FEW008 SCT010TCU 23/19 Q1014 RMK BKN MON LIB VAL NIL VIS MIN 9999LIMV2019-07-18T13:55:00Z44.558.9223.019.06.2129.940945VFRSPECI475.02019-07-18 14:22:34 L18Lf¯•/)Y5   3LICF 181355Z 02006KT 9999 FEW036 29/13 Q1012 RMK SCT QUK 2 QUL 0 VIS MAR 20 KM MON LIB NC VIS MIN 9999LICF2019-07-18T13:55:00Z38.215.5529.013.02066.2129.88189VFRSPECI51.02019-07-18 14:22:34s¯•.)o5   3LICZ 181355Z 08016KT 9999 FEW020 27/10 Q1012 RMK FEW VIS MIN 9999 WIND THR28 08016KT WIND THR10 08016KT A2991 BLULICZ2019-07-18T13:55:00Z37.3814.9227.010.080166.2129.88189VFRMETAR22.02019-07-18 14:22:34e¯•-)S5   3LIEB 181355Z 13008KT 9999 FEW040 31/21 Q1012 RMK FEW QUK 2 QUL 0 VIS MAR 30 KM MON LIB VIS MIN 9999LIEB2019-07-18T13:55:00Z39.939.7231.021.013086.2129.88189VFRSPECI156.02019-07-18 14:22:34^¯•,)M5   3LIMH 181355Z /////KT 9999 FEW000TCU SCT010 05/M05 Q1027 RMK BKN MON CLD SCT VAL NIL VIS MIN 9999LIMH2019-07-18T13:55:00Z45.937.75.0-5.06.2130.324802VFRSPECI3488.02019-07-18 14:22:34 1 1[¯•3)=5   3LIQC 181355Z 26006KT CAVOK 27/18 Q1013 RMK SKC QUK 2 QUL 1 SW VIS MAR 25 KM VIS MIN 9999LIQC2019-07-18T13:55:00Z40.5514.227.018.026066.2129.911417VFRSPECI269.02019-07-18 14:22:34s¯•2)w5   3LIPS 181355Z /////KT 9999 FEW025TCU SCT100 27/19 Q1012 RMK BKN VIS MIN 9999 WIND THR26 15004KT WIND THR08 17004KT BLULIPS2019-07-18T13:55:00Z45.6712.0827.019.06.2129.88189VFRSPECI41.02019-07-18 14:22:34q¯•1)q5   3LIPI 181355Z /////KT 9999 FEW090 28/12 Q1011 RMK BKN SCT140 VIS MIN 9999 WIND THR06 23008KT WIND THR24 23012KT BLULIPI2019-07-18T13:55:00Z45.9713.0528.012.06.2129.852362VFRSPECI53.02019-07-18 14:22:34x¯•0)w5   3LIPL 181355Z 17005KT 9999 SCT035TCU 29/20 Q1011 RMK BKN SCT200 VIS MIN 9999 WIND THR31 17005KT WIND THR13 17003KT BLULIPL2019-07-18T13:55:00Z45.4210.2729.020.017056.2129.852362VFRSPECI92.02019-07-18 14:22:34 ª,8ˆªX¯•7)?5   3LIRT 181355Z 29004KT 250V350 9999 FEW003 21/06 Q1016 RMK SCT MON LIB VAL NIL VIS MIN 9999LIRT2019-07-18T13:55:00Z41.0315.2221.06.029046.2130.0VFRSPECI1093.02019-07-18 14:22:34*¯•6(a5   3LIRK 181355Z AUTO 31008KT //// 17/08 Q1022LIRK2019-07-18T13:55:00Z42.4712.9717.08.0310830.177166TRUESPECI1875.02019-07-18 14:22:34n¯•5)e5   3LIRE 181355Z 24009KT CAVOK 27/21 Q1012 RMK SCT SCT200 VIS MIN 9999 WIND THR13 25009KT WIND THR31 /////KT BLULIRE2019-07-18T13:55:00Z41.6312.4227.021.024096.2129.88189VFRSPECI12.02019-07-18 14:22:34N¯•4)'5   3LIQO 181355Z VRB03KT CAVOK 29/07 Q1014 RMK SCT SCT190 VAL NIL NC VIS MIN 9999LIQO2019-07-18T13:55:00Z42.3711.1729.07.0036.2129.940945VFRSPECI632.02019-07-18 14:22:34 Xÿ 5XW¯•;)55   3LIVR 181355Z 12007KT 9999 FEW025 14/07 Q1020 RMK BKN SCT060 MON CLD SCT VIS MIN 9999LIVR2019-07-18T13:55:00Z46.2811.7714.07.012076.2130.11811VFRSPECI2006.02019-07-18 14:22:34e¯•:)S5   3LIVT 181355Z 28006KT CAVOK 28/19 Q1012 RMK SCT FEW080 SCT160 QUK 0 QUL 0 VIS MAR 20 KM VIS MIN 9999LIVT2019-07-18T13:55:00Z45.6813.7528.019.028066.2129.88189VFRSPECI20.02019-07-18 14:22:34Y¯•9)75   3LIMY 181355Z 31006KT 260V010 9999 SCT025 26/20 Q1014 RMK BKN VAL FOSCHIA VIS MIN 9999LIMY2019-07-18T13:55:00Z44.257.7826.020.031066.2129.940945VFRSPECI1742.02019-07-18 14:22:34{¯•8)}5   3LIPA 181355Z 19007KT 9999 FEW050 BKN090 26/17 Q1012 RMK BKN VIS MIN 9999 WIND THR05 /////KT WIND THR23 /////KT A2989 BLULIPA2019-07-18T13:55:00Z46.0212.5826.017.019076.2129.88189VFRSPECI126.02019-07-18 14:22:34 ‚0@G‚?¯•?)5   3LIVE 181355Z 20006KT 9999 SCT025 17/07 Q1016 RMK SCT VIS MIN 9999LIVE2019-07-18T13:55:00Z46.8510.517.07.020066.2130.0VFRSPECI1800.02019-07-18 14:22:34s¯•>)i5    3LIVF 181355Z 06006KT 9999 VCSH FEW030CB FEW034TCU 25/09 Q1012 RETS RMK BKN SCT220 MON LIB VAL NIL VIS MIN 9999LIVF2019-07-18T13:55:00Z43.5212.7225.09.06066.2129.88189VCSHVFRSPECI574.02019-07-18 14:22:34j¯•=)c5   3LIVM 181355Z 08007KT 9999 FEW040 28/19 Q1012 RMK OVC SCT100 BKN180 QUK 2 QUL 1 E VIS MAR 28 KM VIS MIN 9999LIVM2019-07-18T13:55:00Z44.4512.328.019.08076.2129.88189VFRSPECI6.02019-07-18 14:22:34J¯•<)5   3LIVO 181355Z 17005KT 9999 SCT028 SCT030 21/09 Q1014 RMK BKN VIS MIN 9999LIVO2019-07-18T13:55:00Z46.513.5721.09.017056.2129.940945VFRSPECI778.02019-07-18 14:22:34 ¯2Wz¯E¯•C(5    3KBWD 181355Z AUTO 18013KT 10SM FEW020 27/20 A3003 RMK AO1KBWD2019-07-18T13:55:00Z31.8-98.9527.020.01801310.030.029528TRUETRUEVFRSPECI423.02019-07-18 14:22:34W¯•B)95   3LIRX 181355Z 00000KT 9999 FEW005 27/14 Q1012 RMK SCT SCT200 VIS MIN 9999 VIS MAR 30 KMLIRX2019-07-18T13:55:00Z42.7310.3827.014.0006.2129.88189VFRSPECI297.02019-07-18 14:22:34U¯•A)/5   3LIVC 181355Z 21005KT 9999 BKN002 13/09 Q1022 RMK BKN MON LIB VAL NIL VIS MIN 9999LIVC2019-07-18T13:55:00Z44.210.6813.09.021056.2130.177166LIFRSPECI2173.02019-07-18 14:22:34H¯•@)5   3LIVD 181355Z /////KT 9999 SCT030 22/04 Q1017 RMK BKN SCT070 VIS MIN 9999LIVD2019-07-18T13:55:00Z46.7212.2222.04.06.2130.029528VFRSPECI1226.02019-07-18 14:22:34 ª8V…ªU¯•G)5    3KLVN 181355Z AUTO 00000KT 10SM BKN030 OVC034 23/23 A2973 RMK AO2 LTG DSNTKLVN2019-07-18T13:55:00Z44.63-93.2323.023.00010.029.731298TRUETRUEMVFRMETAR293.02019-07-18 14:22:34K¯•F) 5    3KCPC 181355Z AUTO 22006KT 10SM CLR 29/23 A3002 RMK AO2 T02940227KCPC2019-07-18T13:55:00Z34.28-78.7229.422.7220610.030.02067TRUETRUEVFRMETAR29.02019-07-18 14:22:34\¯•E)/5    3KCBE 181355Z AUTO 00000KT 10SM SCT032 BKN038 OVC048 25/23 A2999 RMK AO2 T02510232KCBE2019-07-18T13:55:00Z39.62-78.7725.123.20010.029.991142TRUETRUEVFRMETAR236.02019-07-18 14:22:34B¯•D(y5    3KBWP 181355Z AUTO 19006KT 10SM CLR 22/16 A2966 RMK AO1KBWP2019-07-18T13:55:00Z46.25-96.6222.016.0190610.029.660433TRUETRUEVFRMETAR295.02019-07-18 14:22:34 Es‘n¯•K)c5   3LIED 181355Z 33015KT 9999 SCT030 31/15 Q1010 RMK SCT VIS MIN 9999 WIND THR35 34016KT WIND THR17 /////KT BLULIED2019-07-18T13:55:00Z39.358.9731.015.0330156.2129.822834VFRMETAR28.02019-07-18 14:22:34\¯•J)'5     3KEBS 181355Z AUTO 00000KT 10SM FEW005 FEW032 FEW065 25/24 A2973 RMK AO2 P0011KEBS2019-07-18T13:55:00Z42.42-93.8725.024.00010.029.731298TRUETRUEVFR0.11METAR342.02019-07-18 14:22:34L¯•I) 5    3KCTZ 181355Z AUTO 23007KT 10SM CLR 30/24 A3001 RMK AO2 T03040241KCTZ2019-07-18T13:55:00Z34.98-78.3730.424.1230710.030.008858TRUETRUEVFRMETAR45.02019-07-18 14:22:345¯•H(m5     3KRAW 181355Z AUTO 21012KT 10SM CLR A2993 RMK AO2KRAW2019-07-18T13:55:00Z38.35-93.352101210.029.929134TRUETRUEVFRMETAR285.02019-07-18 14:22:34 4i†Ð,¯•P(e5   3OIBB 181351Z 00000KT CAVOK 34/23 Q0995 A2941OIBB2019-07-18T13:51:00Z28.9750.8234.023.0006.2129.379921VFRMETAR19.02019-07-18 14:22:340¯•O(e5   3OICK 181351Z 29012KT 9999 SCT090 39/04 Q1007OICK2019-07-18T13:51:00Z33.4348.2839.04.0290126.2129.734253VFRMETAR1155.02019-07-18 14:22:34]¯•N)A5   3LIVP 181355Z 18004KT 9999 SCT030TCU 14/07 Q1020 RMK BKN MON W CLD SCT VAL NIL VIS MIN 9999LIVP2019-07-18T13:55:00Z46.1511.0314.07.018046.2130.11811VFRMETAR2129.02019-07-18 14:22:34E¯•M)5   3EBBL 181355Z 25011KT 9999 FEW070 SCT120 BKN210 24/11 Q1011 BLU BLUEBBL2019-07-18T13:55:00Z51.175.4724.011.0250116.2129.852362VFRMETAR64.02019-07-18 14:22:34F¯•L)5   3EBFS 181355Z 25011KT 9999 FEW038 SCT120 BKN210 23/11 Q1013 BLU BLUEBFS2019-07-18T13:55:00Z50.224.6523.011.0250116.2129.911417VFRMETAR299.02019-07-18 14:22:34 Mf²ýM*¯•U(Y5   3OITU 181350Z 11010KT CAVOK 32/06 Q1008OITU2019-07-18T13:50:00Z39.3344.4332.06.0110106.2129.763779VFRMETAR1364.02019-07-18 14:22:34/¯•T(e5   3OIGK 181350Z 25004KT CAVOK 34/05 Q1013 A2992OIGK2019-07-18T13:50:00Z34.2847.1234.05.025046.2129.911417VFRMETAR1322.02019-07-18 14:22:34.¯•S(e5   3LIMZ 181350Z 33005KT 9999 FEW040 26/18 Q1013LIMZ2019-07-18T13:50:00Z44.537.6226.018.033056.2129.911417VFRMETAR380.02019-07-18 14:22:34-¯•R(c5   3KBYH 181350Z 22005KT 8SM OVC150 27/25 A3003KBYH2019-07-18T13:50:00Z35.97-89.9527.025.022058.030.029528VFRMETAR78.02019-07-18 14:22:34a¯•Q)95    3K24A 181350Z AUTO 00000KT 10SM OVC003 21/20 A3019 RMK AO2 LTG DSNT SE AND NW T02060205K24A2019-07-18T13:50:00Z35.32-83.220.620.50010.030.188976TRUETRUELIFRMETAR871.02019-07-18 14:22:34 %Q‘Âæ%;¯•Z({5    3EGXS 181350Z AUTO 24009KT 9999 // BKN050/// 21/10 Q1008EGXS2019-07-18T13:50:00Z53.480.1521.010.024096.2129.763779TRUEVFRMETAR3.02019-07-18 14:22:34V¯•Y)35   3ENMS 181350Z 20010KT 160V230 9999 SCT060 23/08 Q1008 RMK WIND 412FT 15008KT 090V210ENMS2019-07-18T13:50:00Z65.7813.2223.08.0200106.2129.763779VFRMETAR70.02019-07-18 14:22:34I¯•X)5    3EGQK 181350Z AUTO 27012KT 9999 FEW042/// SCT048/// 20/12 Q1000 RERAEGQK2019-07-18T13:50:00Z57.65-3.5720.012.0270126.2129.52756TRUEVFRSPECI7.02019-07-18 14:22:34:¯•W(u5    3EGXZ 181350Z AUTO 25015KT 9999 BKN060/// 19/10 Q1008EGXZ2019-07-18T13:50:00Z54.2-1.3819.010.0250156.2129.763779TRUEVFRMETAR28.02019-07-18 14:22:34)¯•V(Y5   3AZUH 181350Z 21012KT CAVOK 35/05 Q1006AZUH2019-07-18T13:50:00Z39.1845.4535.05.0210126.2129.704725VFRMETAR855.02019-07-18 14:22:34 Ê;…²Êb¯•^)+5      3PAWG 181427Z 02003KT 3SM -RA BR SCT012 OVC016 13/13 A2977 RMK AO2 RAB1359 P0000PAWG2019-07-18T14:27:00Z56.48-132.3713.013.02033.029.769686TRUE-RA BRMVFR0.005SPECI11.02019-07-18 14:33:39M¯•])5    3PARS 181427Z AUTO 25005KT 10SM OVC011 13/12 A2995 RMK AO2 $PARS2019-07-18T14:27:00Z61.77-161.3213.012.0250510.029.949802TRUETRUETRUEMVFRSPECI16.02019-07-18 14:33:390¯•\(e5   3KSUN 181347Z 31009KT 10SM FEW140 13/06 A3003KSUN2019-07-18T13:47:00Z43.5-114.2813.06.0310910.030.029528VFRMETAR1620.02019-07-18 14:22:34?¯•[(y5    3KHOE 181350Z AUTO 00000KT 10SM CLR 28/24 A3010 RMK AO2KHOE2019-07-18T13:50:00Z31.05-82.7828.024.00010.030.100393TRUETRUEVFRSPECI57.02019-07-18 14:22:34 4#øW¯•b)5     3PAWM 181426Z AUTO 17003KT 1/4SM FG BKN001 11/10 A2984 RMK AO2 PNO $PAWM2019-07-18T14:26:00Z64.68-163.4211.010.017030.2529.840551TRUETRUETRUEFGLIFRSPECI82.02019-07-18 14:33:39‚%¯•a)‚-5      3KORD 181427Z 26004KT 4SM -TSRA BR FEW005 SCT042CB OVC120 22/22 A2993 RMK AO2 LTG DSNT ALQDS PRESRR OCNL LTGICCG OHD TS OHD MOV E P0022 T02220217KORD2019-07-18T14:27:00Z41.98-87.9322.221.726044.029.929134TRUE-TSRA BRMVFR0.22SPECI200.02019-07-18 14:33:39‚ ¯•`)‚5     3KMIW 181427Z AUTO VRB03KT 10SM FEW027 FEW046 BKN110 25/23 A2977 RMK AO2 LTG DSNT NE AND E RAB02E24 TSB03E21 P0000 T02500233KMIW2019-07-18T14:27:00Z42.12-92.9225.023.30310.029.769686TRUETRUEVFR0.005SPECI296.02019-07-18 14:33:39F¯•_)5   3MMIA 181427Z RTD 00000KT 6SM BKN130 22/21 A3004 RMK 6//// 8/03/ HZYMMIA2019-07-18T14:27:00Z19.27-103.5722.021.0006.030.041338VFRMETAR723.02019-07-18 14:33:39 y!Ehyi¯•f)=5     3PAAK 181426Z AUTO 00000KT 3SM -RA BR BKN005 OVC011 09/08 A3039 RMK AO2 CIG 004V008 PNO $PAAK2019-07-18T14:26:00Z52.22-174.29.08.0003.030.389763TRUETRUETRUE-RA BRIFRMETAR17.02019-07-18 14:33:39W¯•e)5     3PFSH 181426Z AUTO 24011KT 3SM BR FEW007 BKN012 OVC024 14/13 A2985 RMK AO2PFSH2019-07-18T14:26:00Z64.37-161.2214.013.0240113.029.84941TRUETRUEBRMVFRMETAR7.02019-07-18 14:33:39V¯•d)5    3KDVP 181426Z AUTO 30003KT 7SM BKN028 BKN036 24/21 A2979 RMK AO2 T02410212KDVP2019-07-18T14:26:00Z43.98-95.7824.121.230037.029.790354TRUETRUEMVFRMETAR495.02019-07-18 14:33:39Y¯•c)+5   3KCRP 181426Z 17014G17KT 10SM FEW021 SCT028 BKN034 29/25 A3001 RMK AO2 T02940250KCRP2019-07-18T14:26:00Z27.77-97.529.425.0170141710.030.008858TRUEVFRSPECI14.02019-07-18 14:33:39 ”+:a”G¯•j)5     3EHBK 181425Z AUTO 27009KT 230V320 9999 NSC 23/13 Q1011 NOSIGEHBK2019-07-18T14:25:00Z50.925.7723.013.027096.2129.852362TRUETRUEVFRMETAR116.02019-07-18 14:33:39S¯•i)/5   3EHAM 181425Z 25013KT 220V290 9999 FEW017 SCT022 20/14 Q1010 TEMPO 7000 -RA BKN020EHAM2019-07-18T14:25:00Z52.324.7820.014.0250136.2129.822834VFRMETAR9.02019-07-18 14:33:39k¯•h)G5    3CYQD 181425Z AUTO 05004KT 010V080 9SM SCT007 OVC013 16/15 A2951 RMK SLP998 DENSITY ALT 1700FTCYQD2019-07-18T14:25:00Z53.97-101.0816.015.05049.029.509842999.8TRUEMVFRSPECI271.02019-07-18 14:33:39O¯•g)5    3K1A5 181425Z AUTO 00000KT 10SM OVC004 23/21 A3017 RMK AO2 T02260210K1A52019-07-18T14:25:00Z35.22-83.4222.621.00010.030.171259TRUETRUELIFRMETAR616.02019-07-18 14:33:39 E4^>Es¯•n)Y5    3EHEH 181425Z AUTO 23009KT 200V310 9999 BKN037 BKN041 OVC085 23/13 Q1011 BLU 24012KT 9999 FEW040 BKN080EHEH2019-07-18T14:25:00Z51.455.3823.013.023096.2129.852362TRUEFEW4000VFRMETAR22.02019-07-18 14:33:39‚¯•m)‚5    3EHKD 181425Z AUTO 23013KT 9999 -RA FEW011 FEW015CB SCT066 BKN095 19/16 Q1010 RERA REDZ BLU 22014KT 9999 SCT013 BKN060 TEMPO FEW013 BKN060EHKD2019-07-18T14:25:00Z52.924.7719.016.0230136.2129.822834TRUE-RABKN9500VFRMETAR14.02019-07-18 14:33:39P¯•l)5     3EHRD 181425Z AUTO 23009KT 180V270 9999 FEW037 BKN046 22/13 Q1010 NOSIGEHRD2019-07-18T14:25:00Z51.954.4522.013.023096.2129.822834TRUETRUEVFRMETAR-5.02019-07-18 14:33:39F¯•k)5     3EHGG 181425Z AUTO 26011KT 200V300 9999 NSC 23/13 Q1009 NOSIGEHGG2019-07-18T14:25:00Z53.126.5723.013.0260116.2129.793306TRUETRUEVFRMETAR4.02019-07-18 14:33:39 ¯,\‡¯R¯•r)5   3KGWW 181425Z AUTO 23010G15KT 10SM CLR 30/25 A2999 RMK AO2 T02950245KGWW2019-07-18T14:25:00Z35.47-77.9729.524.5230101510.029.991142TRUETRUEVFRMETAR41.02019-07-18 14:33:39O¯•q)5    3KHBI 181425Z AUTO 27003KT 10SM SCT075 28/22 A3003 RMK AO2 T02770224KHBI2019-07-18T14:25:00Z35.65-79.927.722.4270310.030.029528TRUETRUEVFRMETAR205.02019-07-18 14:33:39J¯•p) 5    3PAFM 181425Z AUTO 00000KT 10SM BKN031 OVC055 13/11 A2980 RMK AO2PAFM2019-07-18T14:25:00Z67.1-157.8513.011.00010.029.799213TRUETRUEVFRMETAR88.02019-07-18 14:33:39N¯•o)5     3PANA 181425Z AUTO 27005KT 10SM BKN023 OVC046 13/11 RMK AO2 PWINO $PANA2019-07-18T14:25:00Z60.68-161.9813.011.0270510.0TRUETRUETRUETRUEMVFRMETAR5.02019-07-18 14:33:39 ¶9h‹¶O¯•v)5    3KMPO 181425Z AUTO 09004KT 10SM OVC002 21/21 A2998 RMK AO2 T02110211KMPO2019-07-18T14:25:00Z41.13-75.3821.121.190410.029.97933TRUETRUELIFRMETAR577.02019-07-18 14:33:39W¯•u)!5    3KIJD 181425Z AUTO 04010KT 10SM BKN012 OVC019 23/21 A2995 RMK AO2 T02330206KIJD2019-07-18T14:25:00Z41.75-72.1823.320.6401010.029.949802TRUETRUEMVFRMETAR75.02019-07-18 14:33:39K¯•t)5    3EHDL 181425Z AUTO 24011KT 190V290 9999 FEW039 OVC140 23/12 Q1011 BLUEHDL2019-07-18T14:25:00Z52.075.8723.012.0240116.2129.852362TRUEVFRMETAR52.02019-07-18 14:33:39A¯•s(}5    3KCGE 181425Z AUTO 25007KT 9SM FEW023 30/24 A2990 RMK A01KCGE2019-07-18T14:25:00Z38.53-76.0330.024.025079.029.899607TRUETRUEVFRMETAR6.02019-07-18 14:33:39 ”:q”W¯•z)!5    3KTIW 181425Z AUTO 15004KT 10SM FEW007 OVC035 13/12 A3003 RMK AO2 T01280117KTIW2019-07-18T14:25:00Z47.27-122.5812.811.7150410.030.029528TRUETRUEVFRMETAR89.02019-07-18 14:33:39C¯•y)5    3EHGR 181425Z AUTO 24006KT 180V290 9999 OVC036 22/14 Q1011 BLUEHGR2019-07-18T14:25:00Z51.574.9222.014.024066.2129.852362TRUEVFRMETAR13.02019-07-18 14:33:39O¯•x)5    3KPOF 181425Z AUTO 11003KT 10SM FEW008 25/24 A2999 RMK AO2 T02500244KPOF2019-07-18T14:25:00Z36.77-90.3225.024.4110310.029.991142TRUETRUEVFRMETAR99.02019-07-18 14:33:39k¯•w)95      3KRAC 181425Z AUTO 18006KT 2SM +RA BR SCT055 OVC080 23/21 A2997 RMK AO2 P0010 T02280211KRAC2019-07-18T14:25:00Z42.77-87.8222.821.118062.029.970472TRUETRUE+RA BRIFR0.1METAR203.02019-07-18 14:33:39 )Cs`¯•~)A5    3EHLW 181425Z AUTO 26012KT 210V300 9999 SCT085 OVC100 21/15 Q1009 BLU 25012KT CAVOK RMK R23EHLW2019-07-18T14:25:00Z53.225.7521.015.0260126.2129.793306TRUEVFRMETAR2.02019-07-18 14:33:39J¯•})5    3EHVK 181425Z AUTO 25010KT 210V280 9999 FEW039 OVC110 23/13 Q1011 BLUEHVK2019-07-18T14:25:00Z51.635.723.013.0250106.2129.852362TRUEVFRMETAR21.02019-07-18 14:33:39`¯•|)-5    3EHVL 181425Z AUTO 23017KT 9000 -RA FEW009 FEW015CB SCT054 BKN080 18/16 Q1009 BLUEHVL2019-07-18T14:25:00Z53.234.9218.016.0230175.5929.793306TRUE-RABKN8000VFRMETAR5.02019-07-18 14:33:39Q¯•{)#5    3EHWO 181425Z AUTO 23008KT 190V280 9999 FEW033 SCT049 OVC150 22/14 Q1010 BLUEHWO2019-07-18T14:25:00Z51.454.3222.014.023086.2129.822834TRUEVFRMETAR17.02019-07-18 14:33:39 P,BPl¯–)C5     3KOWD 181424Z 04010G25KT 5SM HZ SCT009 OVC022 20/16 A2999 RMK AO2 RAB1355E07 P0000 T02000161KOWD2019-07-18T14:24:00Z42.18-71.1720.016.14010255.029.991142TRUEHZMVFR0.005METAR19.02019-07-18 14:33:39T¯–)5    3PAKI 181424Z AUTO 27007KT 10SM FEW010 SCT018 OVC027 12/11 A3003 RMK AO2PAKI2019-07-18T14:24:00Z59.93-164.0312.011.0270710.030.029528TRUETRUEMVFRSPECI4.02019-07-18 14:33:39‚ ¯–)u5      3KLNR 181424Z AUTO 08007KT 5SM -RA BR FEW045 SCT075 BKN095 21/20 A2979 RMK AO2 LTG DSNT SE-W TSB03E18 P0003 T02110200KLNR2019-07-18T14:24:00Z43.22-90.1821.120.08075.029.790354TRUETRUE-RA BRMVFR0.03SPECI217.02019-07-18 14:33:39N¯•) 5    3KEIK 181424Z AUTO 20003KT 10SM CLR 25/04 A3006 RMK AO2 T02510038KEIK2019-07-18T14:24:00Z40.02-105.0525.13.8200310.030.059055TRUETRUEVFRMETAR1564.02019-07-18 14:33:39 Yç.YO¯–)5    3KESF 181424Z AUTO 23007KT 10SM BKN013 28/25 A3008 RMK AO2 T02830250KESF2019-07-18T14:24:00Z31.4-92.2828.325.0230710.030.079725TRUETRUEMVFRMETAR28.02019-07-18 14:33:39]¯–)+5    3KIMT 181424Z AUTO 32005KT 10SM BKN010 22/20 A2973 RMK AO2 CIG 006V012 T02170200KIMT2019-07-18T14:24:00Z45.82-88.1221.720.0320510.029.731298TRUETRUEMVFRMETAR349.02019-07-18 14:33:39P¯–)5    3KLFK 181424Z AUTO 20005KT 10SM BKN012 27/24 A3007 RMK AO2 T02720239KLFK2019-07-18T14:24:00Z31.23-94.7527.223.9200510.030.070866TRUETRUEMVFRMETAR88.02019-07-18 14:33:39‚¯–)‚5      3KOVS 181424Z AUTO 20005KT 4SM -TSRA BR FEW009 BKN080 OVC110 21/20 A2984 RMK AO2 LTG DSNT W TSE06B09 PRESRR P0006 T02110200KOVS2019-07-18T14:24:00Z43.15-90.6821.120.020054.029.840551TRUETRUE-TSRA BRMVFR0.06METAR202.02019-07-18 14:33:39 z&Eqzq¯– )?5     3RJTR 181423Z AUTO 16003KT 4SM -RA BR BKN002 OVC008 24/23 A2990 RMK AO2 CIG 002V010 SLP124RJTR2019-07-18T14:23:00Z35.52139.424.023.016034.029.8996071012.4TRUETRUE-RA BRLIFRSPECI109.02019-07-18 14:33:39N¯– ))5   3CWLI 181424Z AUTO 29004KT 250V330 ////SM //// FEW004 FEW018 BKN033 07/07 A2979CWLI2019-07-18T14:24:00Z69.58-130.97.07.0290429.790354TRUESPECI102.02019-07-18 14:33:39[¯–))5    3CYHD 181424Z AUTO 21009KT 9SM SCT010 21/19 A2958 RMK SLP019 DENSITY ALT 2700FTCYHD2019-07-18T14:24:00Z49.82-92.7521.019.021099.029.580711001.9TRUEVFRSPECI413.02019-07-18 14:33:39T¯–)!5    3KAQV 181424Z AUTO VRB03KT 10SM FEW007 BKN014 28/24 A3007 RMK AO2 T02780244KAQV2019-07-18T14:24:00Z31.4-93.327.824.40310.030.070866TRUETRUEMVFRMETAR111.02019-07-18 14:33:39 ¨Bo¨A¯–(y5    3K2W6 181423Z AUTO 22008KT 10SM CLR 29/23 A2992 RMK AO1K2W62019-07-18T14:23:00Z38.32-76.5529.023.0220810.029.920275TRUETRUEVFRMETAR44.02019-07-18 14:33:39M¯– )5    3EGXU 181423Z 26011KT 9999 FEW032 BKN055 18/11 Q1008 NOSIG RMK BLU BLUEGXU2019-07-18T14:23:00Z54.05-1.2518.011.0260116.2129.763779TRUEVFRMETAR16.02019-07-18 14:33:39H¯– )5    3KILN 181423Z AUTO 22005KT 8SM FEW006 26/23 A3000 RMK AO2 T02610233KILN2019-07-18T14:23:00Z39.43-83.826.123.322058.030.0TRUETRUEVFRSPECI322.02019-07-18 14:33:39j¯– )?5      3KFRG 181423Z 17006KT 6SM -RA BR BKN009 OVC016 24/23 A2992 RMK AO2 RAB1354 P0001 T02440228KFRG2019-07-18T14:23:00Z40.73-73.4224.422.817066.029.920275TRUE-RA BRIFR0.01SPECI21.02019-07-18 14:33:39 _4_O¯–)5    3KBUF 181423Z 10005KT 10SM BKN011 BKN030 24/20 A2996 RMK AO2 T02390200KBUF2019-07-18T14:23:00Z42.93-78.7323.920.0100510.029.958662TRUEMVFRSPECI211.02019-07-18 14:33:39^¯–)/5    3KBKW 181423Z AUTO 23007KT 10SM SCT008 BKN018 OVC028 23/21 A3010 RMK AO2 T02280206KBKW2019-07-18T14:23:00Z37.8-81.1222.820.6230710.030.100393TRUETRUEMVFRSPECI764.02019-07-18 14:33:39s¯–)M5     3CYZH 181423Z AUTO 25008KT 9SM -RA BKN019 BKN070 OVC082 13/12 A2952 RMK SLP003 DENSITY ALT 2500FTCYZH2019-07-18T14:23:00Z55.28-114.7713.012.025089.029.5187021000.3TRUE-RAMVFRSPECI581.02019-07-18 14:33:39i¯–)=5    3KTCM 181423Z AUTO 19004KT 8SM SCT007 OVC017 13/13 A3003 RMK AO2 RAB11E22DZB22E23 SLPNO $KTCM2019-07-18T14:23:00Z47.12-122.4713.013.019048.030.029528TRUETRUETRUEMVFRSPECI98.02019-07-18 14:33:39 †ÿL†@¯–({5    3CYED 181423Z AUTO 27002KT 9SM FEW006 OVC010 14/13 A2953CYED2019-07-18T14:23:00Z53.67-113.4714.013.027029.029.530512TRUEMVFRSPECI688.02019-07-18 14:33:39J¯–)5     3PAKP 181423Z AUTO 04007KT 1/2SM FG OVC003 09/08 A2975 RMK AO2PAKP2019-07-18T14:23:00Z68.13-151.739.08.04070.529.749016TRUETRUEFGLIFRSPECI642.02019-07-18 14:33:39]¯–)/5    3KCGS 181423Z AUTO 26006KT 10SM SCT028 SCT042 OVC050 30/22 A2990 RMK AO1 T02950218KCGS2019-07-18T14:23:00Z38.98-76.9229.521.8260610.029.899607TRUETRUEVFRMETAR15.02019-07-18 14:33:39{¯–)]5      3KBDR 181423Z 12006KT 2 1/2SM RA BR SCT022 OVC045 23/22 A2992 RMK AO2 VIS 1 1/2V5 RAB11 P0003 T02330222 $KBDR2019-07-18T14:23:00Z41.17-73.1323.322.212062.529.920275TRUETRUERA BRIFR0.03SPECI7.02019-07-18 14:33:39 søFsM¯–) 5    3KPWT 181422Z AUTO 06004KT 10SM FEW016 BKN030 13/12 A3004 RMK AO2KPWT2019-07-18T14:22:00Z47.5-122.7513.012.060410.030.041338TRUETRUEMVFRSPECI147.02019-07-18 14:33:39M¯–)5    3EGOV 181422Z 21014KT 9999 FEW035 SCT060 17/13 Q1009 NOSIG RMK BLU BLUEGOV2019-07-18T14:22:00Z53.25-4.5317.013.0210146.2129.793306TRUEVFRMETAR11.02019-07-18 14:33:39Y¯–)5    3KHOP 181422Z AUTO 00000KT 10SM SCT010 25/24 A3003 RMK AO2 DZB13E22 SLP166KHOP2019-07-18T14:22:00Z36.67-87.525.024.00010.030.0295281016.6TRUETRUEVFRSPECI174.02019-07-18 14:33:39‚¯–)o5    3CYIV 181423Z 13003KT 080V150 3SM -SHRA BR BKN006 OVC050 17/16 A2951 RMK SF5SC3 TCU EMBD SLP997 DENSITY ALT 1700FTCYIV2019-07-18T14:23:00Z53.85-94.6517.016.013033.029.509842999.7-SHRA BRIFRSPECI237.02019-07-18 14:33:39  PvS¯–)5     3KZZV 181422Z AUTO 19004KT 1 3/4SM BR OVC002 23/22 A3000 RMK AO2 T02330217KZZV2019-07-18T14:22:00Z39.95-81.923.321.719041.7530.0TRUETRUEBRLIFRSPECI268.02019-07-18 14:33:39T¯–)!5    3KBFD 181422Z AUTO VRB05KT 10SM SCT010 OVC016 24/21 A3002 RMK AO2 T02390206KBFD2019-07-18T14:22:00Z41.8-78.6323.920.60510.030.02067TRUETRUEMVFRSPECI647.02019-07-18 14:33:39J¯–) 5     3YWGT 181422Z AUTO 14003KT 9999 -SHRA BKN026 OVC029 07/07 Q1020YWGT2019-07-18T14:22:00Z-36.42146.37.07.014036.2130.11811TRUE-SHRAMVFRSPECI153.02019-07-18 14:33:39Z¯–)#5    3KMLF 181422Z AUTO 20011KT 10SM CLR 22/01 A3011 RMK AO2 WSHFT 1408 T02220006KMLF2019-07-18T14:22:00Z38.42-113.0222.20.62001110.030.109253TRUETRUEVFRSPECI1534.02019-07-18 14:33:39 ®'Z®\¯–")/5    3KFIG 181422Z AUTO 00000KT 10SM BKN015 BKN020 OVC026 24/21 A2998 RMK AO2 T02440211KFIG2019-07-18T14:22:00Z41.05-78.4224.421.10010.029.97933TRUETRUEMVFRSPECI462.02019-07-18 14:33:39D¯–!) 5    3KHLN 181422Z VRB03KT 10SM FEW002 18/08 A2985 RMK AO2 T01780078KHLN2019-07-18T14:22:00Z46.6-111.9817.87.80310.029.84941TRUEVFRSPECI1182.02019-07-18 14:33:39G¯– ) 5     3KPIT 181422Z VRB05KT 5SM BR OVC005 23/22 A2999 RMK AO2 T02280217KPIT2019-07-18T14:22:00Z40.5-80.2722.821.7055.029.991142TRUEBRIFRSPECI357.02019-07-18 14:33:39S¯–)#5    3KRME 181422Z 12004KT 9SM FEW017 BKN023 BKN028 25/21 A2996 RMK AO2 T02500211KRME2019-07-18T14:22:00Z43.22-75.425.021.112049.029.958662TRUEMVFRSPECI154.02019-07-18 14:33:39 N%(NNz¯–&)i5     3RJBB 181421Z AUTO 19003KT 3300 RA BR SCT002 SCT050 BKN060 //////TCU 23/23 Q1013 RMK A2991 RI004 TCU OHD MOV NERJBB2019-07-18T14:21:00Z34.42135.2523.023.019032.0529.911417TRUERA BRIFRSPECI8.02019-07-18 14:33:39T¯–%)%5    3EGVP 181422Z 27011KT 9999 FEW044 SCT120 BKN160 21/10 Q1011 NOSIG RMK BLU BLUEGVP2019-07-18T14:22:00Z51.13-1.5721.010.0270116.2129.852362TRUEVFRMETAR91.02019-07-18 14:33:39w¯–$)a5     3KCQX 181422Z AUTO 00000KT 8SM BKN006 BKN012 OVC017 24/23 A2995 RMK AO2 RAE1355 CIG 003V010 P0000 T02390228KCQX2019-07-18T14:22:00Z41.68-70.023.922.8008.029.949802TRUETRUEIFR0.005SPECI19.02019-07-18 14:33:39U¯–#)%5    3KCKB 181422Z 29004KT 10SM SCT012 BKN021 BKN030 26/22 A3001 RMK AO2 T02610217KCKB2019-07-18T14:22:00Z39.3-80.2226.121.7290410.030.008858TRUEMVFRSPECI360.02019-07-18 14:33:39 i÷'BiS¯–*)5    3KFME 181421Z AUTO 29006KT 10SM SCT023 SCT050 BKN055 28/25 A2992 RMK AO1KFME2019-07-18T14:21:00Z39.08-76.7728.025.0290610.029.920275TRUETRUEVFRMETAR46.02019-07-18 14:33:39_¯–))%5      3PASK 181421Z AUTO 00000KT 6SM -RA BR FEW016 OVC030 13/13 A2979 RMK AO2 P0000PASK2019-07-18T14:21:00Z66.6-160.013.013.0006.029.790354TRUETRUE-RA BRMVFR0.005SPECI8.02019-07-18 14:33:39J¯–()5    3EGXC 181421Z 27010KT 9999 FEW048 BKN070 22/08 Q1008 NOSIG RMK BLU BLUEGXC2019-07-18T14:21:00Z53.1-0.1722.08.0270106.2129.763779TRUEVFRMETAR7.02019-07-18 14:33:39‚¯–')]5       3PACD 181421Z AUTO 30016KT 4SM -RA BR FEW007 BKN019 OVC029 11/09 A3018 RMK AO2 RAB14 P0000 T01060094 TSNOPACD2019-07-18T14:21:00Z55.2-162.7210.69.4300164.030.180119TRUETRUETRUE-RA BRMVFR0.005SPECI30.02019-07-18 14:33:39 p&HpR¯–.)5    3KCSV 181421Z AUTO 29012KT 10SM BKN016 25/21 A3014 RMK AO2 T02500211KCSV2019-07-18T14:21:00Z35.95-85.0825.021.12901210.030.138779TRUETRUEMVFRSPECI570.02019-07-18 14:33:39X¯–-)5     3KAVX 181421Z AUTO 00000KT 3SM BR OVC002 16/15 A3001 RMK AO2 T01560150 $KAVX2019-07-18T14:21:00Z33.4-118.4215.615.0003.030.008858TRUETRUETRUEBRLIFRSPECI482.02019-07-18 14:33:39o¯–,)E5  3CYYR 181421Z 33010G15KT 15SM FEW020 SCT030 BKN060 OVC100 12/07 A2954 RMK SC2SC2SC3AC1 SLP005CYYR2019-07-18T14:21:00Z53.32-60.4212.07.0330101515.029.539371000.5OVC10000VFRSPECI49.02019-07-18 14:33:39_¯–+)'5    3CYOD 181421Z 20006KT 5SM -SHRA BR SCT012 OVC033 14/13 A2951 RMK SF3SC5 SLP996CYOD2019-07-18T14:21:00Z54.4-110.2814.013.020065.029.509842999.6-SHRA BRMVFRSPECI544.02019-07-18 14:33:39 $<k¬ä$:¯–3(u5    3EDDF 181420Z 20011KT 090V240 CAVOK 28/11 Q1011 NOSIGEDDF2019-07-18T14:20:00Z50.058.628.011.0200116.2129.852362TRUEVFRMETAR113.02019-07-18 14:33:39B¯–2) 5   3ETSI 181420Z 27010KT 9999 FEW080 28/08 Q1012 BLU+BLU+ TEMPO BLUETSI2019-07-18T14:20:00Z48.7211.5228.08.0270106.2129.88189VFRMETAR370.02019-07-18 14:33:399¯–1(}5   3EKSP 181421Z 11006KT CAVOK 21/13 Q1011 RMK SCT050 BKN180EKSP2019-07-18T14:21:00Z55.229.2721.013.011066.2129.852362VFRSPECI40.02019-07-18 14:33:39K¯–0)5    3EGYD 181421Z 26011KT 9999 FEW048 BKN070 21/09 Q1008 NOSIG RMK BLU BLUEGYD2019-07-18T14:21:00Z53.03-0.521.09.0260116.2129.763779TRUEVFRMETAR67.02019-07-18 14:33:39>¯–/(}5    3EGVN 181421Z 31009KT CAVOK 21/10 Q1010 NOSIG RMK BLU BLUEGVN2019-07-18T14:21:00Z51.77-1.5821.010.031096.2129.822834TRUEVFRMETAR88.02019-07-18 14:33:39  ?ˆ¹û U¯–8) 5    3PAEH 181420Z AUTO 30014KT 10SM OVC008 11/10 A3007 RMK AO2 SLP184PAEH2019-07-18T14:20:00Z58.65-162.0711.010.03001410.030.0708661018.4TRUETRUEIFRSPECI161.02019-07-18 14:33:398¯–7(q5    3LOWL 181420Z 29012KT 9999 FEW070 27/09 Q1012 NOSIGLOWL2019-07-18T14:20:00Z48.2214.1827.09.0290126.2129.88189TRUEVFRMETAR313.02019-07-18 14:33:39I¯–6)5    3LOWW 181420Z 01003KT 310V070 9999 FEW050CB SCT090 25/12 Q1012 NOSIGLOWW2019-07-18T14:20:00Z48.1216.5725.012.01036.2129.88189TRUEVFRMETAR190.02019-07-18 14:33:391¯–5(i5   3EDMA 181420Z 33007KT 300V360 CAVOK 25/10 Q1013EDMA2019-07-18T14:20:00Z48.4210.9225.010.033076.2129.911417VFRMETAR463.02019-07-18 14:33:39;¯–4)5   3ETNL 181420Z VRB02KT 9999 FEW065 BKN082 25/07 Q1011 BLU BLUETNL2019-07-18T14:20:00Z53.9212.2725.07.0026.2129.852362VFRMETAR40.02019-07-18 14:33:39 ã4h´ãK¯–<)5    3LOWI 181420Z 08011KT 9999 FEW070 FEW070TCU SCT140 25/11 Q1013 NOSIGLOWI2019-07-18T14:20:00Z47.2711.3325.011.080116.2129.911417TRUEVFRMETAR581.02019-07-18 14:33:39.¯–;(e5   3ESGG 181420Z 23010KT 9999 SCT049 22/10 Q1012ESGG2019-07-18T14:20:00Z57.6712.322.010.0230106.2129.88189VFRMETAR169.02019-07-18 14:33:39F¯–:)5    3EBAW 181420Z 23008KT 190V260 9999 SCT040 SCT043 23/13 Q1011 NOSIGEBAW2019-07-18T14:20:00Z51.24.4723.013.023086.2129.852362TRUEVFRMETAR14.02019-07-18 14:33:39F¯–9)5   3LOWS 181420Z 15012KT 9999 FEW060 BKN300 23/13 Q1013 TEMPO 32007KTLOWS2019-07-18T14:20:00Z47.7813.0223.013.0150126.2129.911417VFRSPECI430.02019-07-18 14:33:39 ´Aw´=¯–@) 5   3ENSL 181420Z AUTO 19019KT 9999NDV OVC005/// 14/13 Q1002 W12/S3ENSL2019-07-18T14:20:00Z58.371.914.013.01901929.586615TRUEMETAR50.02019-07-18 14:33:39D¯–?)5   3ENLE 181420Z 24011KT 9999 7000SE SCT004 BKN018 13/12 Q1006 W14/S3ENLE2019-07-18T14:20:00Z56.533.2213.012.0240116.2129.704725MVFRMETAR3.02019-07-18 14:33:39I¯–>)5    3LOWK 181420Z 02006KT 9999 FEW055 FEW060CB BKN130 25/15 Q1013 NOSIGLOWK2019-07-18T14:20:00Z46.6514.3225.015.02066.2129.911417TRUEVFRMETAR441.02019-07-18 14:33:39j¯–=)K5   3LOWG 181420Z 07011KT 040V100 9999 FEW050 FEW050CB SCT090 BKN300 23/13 Q1013 TEMPO 25012KT -TSRALOWG2019-07-18T14:20:00Z47.015.4223.013.070116.2129.911417BKN30000VFRSPECI347.02019-07-18 14:33:39 0_–ҁ4¯–E(s5   3ENNE 181420Z 04016KT 9999 SCT008 11/10 Q1008 W///S3ENNE2019-07-18T14:20:00Z66.038.0811.010.040166.2129.763779VFRMETAR10.02019-07-18 14:33:39>¯–D) 5   3ENQR 181420Z AUTO 15028KT 1700NDV OVC003/// 14/13 Q1002 W///S5ENQR2019-07-18T14:20:00Z61.352.2214.013.01502829.586615TRUEMETAR10.02019-07-18 14:33:39C¯–C)5    3ENSE 181420Z AUTO 16031KT 7000NDV DZ OVC002/// 14/13 Q1002 W///S/ENSE2019-07-18T14:20:00Z61.452.1514.013.01603129.586615TRUEDZMETAR10.02019-07-18 14:33:39K¯–B)5    3ENSF 181420Z AUTO 15029KT 3300NDV -RA BR BKN004/// 14/13 Q1002 W///S4ENSF2019-07-18T14:20:00Z61.251.8514.013.01502929.586615TRUE-RA BRMETAR10.02019-07-18 14:33:39J¯–A)5    3ENFB 181420Z AUTO 15030KT 3500NDV -RA BR BKN004/// 14/13 Q1002 W///S4ENFB2019-07-18T14:20:00Z61.21.8314.013.01503029.586615TRUE-RA BRMETAR10.02019-07-18 14:33:39 @gšÕ5¯–J(i5    3LIMW 181420Z AUTO 10017KT 9999 NCD 29/13 Q1011LIMW2019-07-18T14:20:00Z45.737.3729.013.0100176.2129.852362TRUEVFRMETAR546.02019-07-18 14:33:39?¯–I)5   3ENKR 181420Z 15007KT CAVOK 17/07 Q1018 RMK WIND 731FT 14011KTENKR2019-07-18T14:20:00Z69.7229.8817.07.015076.2130.059055VFRMETAR91.02019-07-18 14:33:39G¯–H))5   3ENLA 181420Z AUTO 16001KT 9999NDV -SHRA FEW012/// BKN034/// 14/13 Q//// W///S3ENLA2019-07-18T14:20:00Z57.12.8314.013.01601TRUE-SHRAMETAR4.02019-07-18 14:33:39S¯–G)/5    3ENQA 181420Z AUTO 15039KT 3800NDV -RA FEW008/// OVC029/// 14/13 Q1004 RERA W12/S5ENQA2019-07-18T14:20:00Z60.653.7214.013.01503929.64567TRUE-RAMETAR20.02019-07-18 14:33:39:¯–F(y5    3ENHM 181420Z 15022KT 3600 BR OVC005 14/13 Q1002 W14/S4ENHM2019-07-18T14:20:00Z59.572.2314.013.0150222.2429.586615BRIFRMETAR10.02019-07-18 14:33:39 ƒLšæ8ƒ/¯–O(i5   3LIPH 181420Z 18006KT 150V210 CAVOK 27/16 Q1012LIPH2019-07-18T14:20:00Z45.6312.1727.016.018066.2129.88189VFRMETAR23.02019-07-18 14:33:39(¯–N(Y5   3LICJ 181420Z 36007KT CAVOK 26/19 Q1013LICJ2019-07-18T14:20:00Z38.1713.0826.019.036076.2129.911417VFRMETAR34.02019-07-18 14:33:39.¯–M(e5   3LICC 181420Z 10012KT 9999 FEW040 28/17 Q1012LICC2019-07-18T14:20:00Z37.4715.0528.017.0100126.2129.88189VFRMETAR17.02019-07-18 14:33:39,¯–L(e5   3LIBR 181420Z 02006KT 9999 FEW020 26/17 Q1012LIBR2019-07-18T14:20:00Z40.6517.9526.017.02066.2129.88189VFRMETAR10.02019-07-18 14:33:39.¯–K(i5   3LIBD 181420Z 09009KT 060V120 CAVOK 28/13 Q1012LIBD2019-07-18T14:20:00Z41.1216.7728.013.09096.2129.88189VFRMETAR44.02019-07-18 14:33:39 J8‹ÂJ0¯–T(i5   3EDFM 181420Z 16006KT 110V210 CAVOK 28/10 Q1011EDFM2019-07-18T14:20:00Z49.478.5228.010.016066.2129.852362VFRMETAR100.02019-07-18 14:33:39<¯–S(5    3LIPZ 181420Z 19006KT 9999 FEW035 SCT065 24/16 Q1012 NOSIGLIPZ2019-07-18T14:20:00Z45.512.3524.016.019066.2129.88189TRUEVFRMETAR6.02019-07-18 14:33:39C¯–R) 5    3LIPR 181420Z 04005KT 010V070 9999 TS FEW015CB SCT030 25/18 Q1012LIPR2019-07-18T14:20:00Z44.0212.6225.018.04056.2129.88189TSVFRMETAR13.02019-07-18 14:33:39'¯–Q(Y5   3LIPQ 181420Z 23009KT CAVOK 28/15 Q1012LIPQ2019-07-18T14:20:00Z45.8213.4728.015.023096.2129.88189VFRMETAR12.02019-07-18 14:33:39B¯–P) 5   3LIPE 181420Z 23005KT 180V270 8000 FEW050 SCT070 24/19 Q1012 RERALIPE2019-07-18T14:20:00Z44.5211.324.019.023054.9729.88189MVFRMETAR42.02019-07-18 14:33:39  5u«ó M¯–Y)5    3ESND 181420Z AUTO 18007KT 130V230 9999 SCT080/// BKN130/// 24/06 Q1010ESND2019-07-18T14:20:00Z62.0514.4224.06.018076.2129.822834TRUEVFRMETAR359.02019-07-18 14:33:392¯–X)5  3ESUP 181420Z AUTO VRB03KT //// R11///// OVC074/// 18/04 Q////ESUP2019-07-18T14:20:00Z67.2523.0718.04.003TRUEMETAR165.02019-07-18 14:33:39D¯–W)5    3ESST 181420Z AUTO 19007KT 150V220 9999 SCT062/// 23/10 Q1011ESST2019-07-18T14:20:00Z60.1512.9823.010.019076.2129.852362TRUEVFRMETAR120.02019-07-18 14:33:39:¯–V(}5      3ESNV 181420Z AUTO 19006KT 9999 -DZ OVC067/// ///// Q1013ESNV2019-07-18T14:20:00Z64.5816.8319066.2129.911417TRUE-DZVFRMETAR348.02019-07-18 14:33:39E¯–U) 5    3ESNL 181420Z AUTO 13007KT 9999 FEW027/// BKN080/// 20/08 Q1013ESNL2019-07-18T14:20:00Z64.5518.7220.08.013076.2129.911417TRUEVFRMETAR214.02019-07-18 14:33:39 €Kžç4€.¯–^(e5   3LGAD 181420Z 32007KT 9999 FEW020 30/12 Q1011LGAD2019-07-18T14:20:00Z37.9221.2730.012.032076.2129.852362VFRMETAR12.02019-07-18 14:33:39-¯–](e5   3LGKL 181420Z 13005KT 9999 SCT030 28/15 Q1011LGKL2019-07-18T14:20:00Z37.0722.0228.015.013056.2129.852362VFRMETAR8.02019-07-18 14:33:391¯–\(i5   3LGKO 181420Z 33010KT 280V010 CAVOK 29/17 Q1008LGKO2019-07-18T14:20:00Z36.827.0829.017.0330106.2129.763779VFRMETAR125.02019-07-18 14:33:39'¯–[(Y5   3LGLM 181420Z 33006KT CAVOK 30/12 Q1010LGLM2019-07-18T14:20:00Z39.9225.2330.012.033066.2129.822834VFRMETAR5.02019-07-18 14:33:39/¯–Z(e5   3LGSA 181420Z 33006KT 9999 FEW030 28/17 Q1011LGSA2019-07-18T14:20:00Z35.5324.1328.017.033066.2129.852362VFRMETAR135.02019-07-18 14:33:39 ~N ì:~6¯–c(u5   3LGMT 181420Z 32012KT 270V360 9999 FEW025 31/11 Q1009LGMT2019-07-18T14:20:00Z39.0526.631.011.0320126.2129.793306VFRMETAR17.02019-07-18 14:33:39,¯–b(e5   3LGPZ 181420Z 26009KT 9999 FEW030 28/21 Q1012LGPZ2019-07-18T14:20:00Z38.9220.7728.021.026096.2129.88189VFRMETAR4.02019-07-18 14:33:39.¯–a(e5   3LGRX 181420Z 26005KT 9999 FEW030 30/15 Q1011LGRX2019-07-18T14:20:00Z38.1721.4230.015.026056.2129.852362VFRMETAR15.02019-07-18 14:33:39(¯–`(Y5   3LGSR 181420Z 36016KT CAVOK 28/14 Q1010LGSR2019-07-18T14:20:00Z36.425.4828.014.0360166.2129.822834VFRMETAR40.02019-07-18 14:33:39,¯–_(e5   3LGZA 181420Z 04004KT 9999 FEW025 31/14 Q1011LGZA2019-07-18T14:20:00Z37.7520.8731.014.04046.2129.852362VFRMETAR3.02019-07-18 14:33:39 Mè+&¯–h(Y5   3LGSM 181420Z 01009KT CAVOK 28/15 Q1007LGSM2019-07-18T14:20:00Z37.6826.9228.015.01096.2129.734253VFRMETAR6.02019-07-18 14:33:397¯–g(q5    3LGTS 181420Z 22007KT 9999 FEW025 31/12 Q1010 NOSIGLGTS2019-07-18T14:20:00Z40.5222.9731.012.022076.2129.822834TRUEVFRMETAR7.02019-07-18 14:33:39/¯–f(e5   3LGEL 181420Z 16006KT 9999 BKN025 30/13 Q1009LGEL2019-07-18T14:20:00Z38.0723.5530.013.016066.2129.793306MVFRMETAR31.02019-07-18 14:33:39*¯–e(e5   3LGIO 181420Z /////KT 9999 FEW030 28/13 Q1013LGIO2019-07-18T14:20:00Z39.720.8228.013.06.2129.911417VFRMETAR476.02019-07-18 14:33:39-¯–d(e5   3LGKV 181420Z 23009KT 9999 FEW030 29/17 Q1010LGKV2019-07-18T14:20:00Z40.9224.6229.017.023096.2129.822834VFRMETAR5.02019-07-18 14:33:39 <Ev¼<A¯–m)5    3LIML 181420Z 16006KT 060V220 9999 FEW040 28/16 Q1011 NOSIGLIML2019-07-18T14:20:00Z45.479.2728.016.016066.2129.852362TRUEVFRMETAR103.02019-07-18 14:33:393¯–l(u5   3LIMJ 181420Z 19004KT 160V230 9999 SCT025 25/20 Q1012LIMJ2019-07-18T14:20:00Z44.428.8325.020.019046.2129.88189VFRMETAR3.02019-07-18 14:33:394¯–k(u5   3LIMF 181420Z 05006KT 010V090 9999 FEW045 28/15 Q1012LIMF2019-07-18T14:20:00Z45.227.6528.015.05066.2129.88189VFRMETAR287.02019-07-18 14:33:39I¯–j) 5     3LIME 181420Z VRB02KT 9999 TSRA SCT025CB SCT070 23/20 Q1013 NOSIGLIME2019-07-18T14:20:00Z45.679.6823.020.0026.2129.911417TRUETSRAVFRMETAR237.02019-07-18 14:33:395¯–i(u5   3LIEO 181420Z 07010KT 050V110 9999 FEW030 31/16 Q1011LIEO2019-07-18T14:20:00Z40.889.5231.016.070106.2129.852362VFRMETAR13.02019-07-18 14:33:39 KE‡ÒKA¯–r(5    3KCVH 181420Z AUTO 00000KT 10SM OVC005 13/12 A2998 RMK A01KCVH2019-07-18T14:20:00Z36.9-121.4213.012.00010.029.97933TRUETRUEIFRMETAR70.02019-07-18 14:33:39:¯–q(u5    3EFHK 181420Z 35012KT 320V020 CAVOK 23/09 Q1009 NOSIGEFHK2019-07-18T14:20:00Z60.3224.9723.09.0350126.2129.793306TRUEVFRMETAR56.02019-07-18 14:33:39/¯–p(k5   3LIRQ 181420Z VRB07KT 9999 FEW040TCU 32/13 Q1011LIRQ2019-07-18T14:20:00Z43.7811.1832.013.0076.2129.852362VFRMETAR38.02019-07-18 14:33:398¯–o(u5    3LIRF 181420Z 26009KT 230V300 CAVOK 27/20 Q1012 NOSIGLIRF2019-07-18T14:20:00Z41.7812.2227.020.026096.2129.88189TRUEVFRMETAR3.02019-07-18 14:33:395¯–n(u5   3LIRA 181420Z 20008KT 170V250 9999 FEW040 28/15 Q1012LIRA2019-07-18T14:20:00Z41.812.5828.015.020086.2129.88189VFRMETAR101.02019-07-18 14:33:39 $0~´à$6¯–w(u5   3EGNT 181420Z 26014KT 220V300 9999 FEW035 19/10 Q1006EGNT2019-07-18T14:20:00Z55.02-1.719.010.0260146.2129.704725VFRMETAR81.02019-07-18 14:33:39N¯–v)5     3EFKS 181420Z AUTO 03005KT 340V100 9999 -RA FEW007 OVC029 13/12 Q1014EFKS2019-07-18T14:20:00Z66.029.2313.012.03056.2129.940945TRUE-RAMVFRMETAR263.02019-07-18 14:33:39D¯–u(5    3KUKT 181420Z AUTO 00000KT 10SM OVC011 26/24 A2991 RMK A01KUKT2019-07-18T14:20:00Z40.43-75.3826.024.00010.029.911417TRUETRUEMVFRMETAR160.02019-07-18 14:33:39,¯–t(e5   3EYPA 181420Z VRB04KT 9999 BKN008 18/15 Q1013EYPA2019-07-18T14:20:00Z55.9721.0818.015.0046.2129.911417IFRMETAR10.02019-07-18 14:33:39J¯–s)5    3EYVI 181420Z 31011KT 240V340 9999 SCT042 BKN087 21/11 Q1009 NOSIGEYVI2019-07-18T14:20:00Z54.6325.2821.011.0310116.2129.793306TRUEVFRMETAR197.02019-07-18 14:33:39 )L®è)9¯–|(s5    3EFET 181420Z AUTO 20004KT 180V240 CAVOK 17/05 Q1015EFET2019-07-18T14:20:00Z68.3723.4317.05.020046.2129.970472TRUEVFRMETAR306.02019-07-18 14:33:39@¯–{)5   3EGNM 181420Z 25012KT 220V290 9999 FEW025 SCT028 17/10 Q1008EGNM2019-07-18T14:20:00Z53.87-1.6317.010.0250126.2129.763779VFRMETAR208.02019-07-18 14:33:39Y¯–z))5     3EFKE 181420Z AUTO 18006KT 140V240 9999 VCSH SCT069 SCT086 //////CB 19/11 Q1013EFKE2019-07-18T14:20:00Z65.7724.5719.011.018066.2129.911417TRUEVCSHVFRMETAR15.02019-07-18 14:33:399¯–y(q5    3EGNS 181420Z 21014KT 9999 FEW025 18/13 Q1008 NOSIGEGNS2019-07-18T14:20:00Z54.08-4.6318.013.0210146.2129.763779TRUEVFRMETAR17.02019-07-18 14:33:39.¯–x(e5   3EFKI 181420Z 02007KT 9999 BKN029 18/11 Q1012EFKI2019-07-18T14:20:00Z64.2727.6718.011.02076.2129.88189MVFRMETAR136.02019-07-18 14:33:39 7AƒÇ7F¯—) 5    3EFSA 181420Z AUTO 02006KT 330V070 9999 FEW023 BKN067 19/13 Q1010EFSA2019-07-18T14:20:00Z61.9528.9319.013.02066.2129.822834TRUEVFRMETAR95.02019-07-18 14:33:39>¯—(}5    3EGSS 181420Z AUTO 30008KT 9999 SCT037 BKN045 22/13 Q1010EGSS2019-07-18T14:20:00Z51.880.2222.013.030086.2129.822834TRUEVFRMETAR106.02019-07-18 14:33:396¯–(s5    3EFSI 181420Z AUTO 35006KT 310V020 CAVOK 20/09 Q1012EFSI2019-07-18T14:20:00Z62.722.8320.09.035066.2129.88189TRUEVFRMETAR91.02019-07-18 14:33:398¯–~(u5   3EGTC 181420Z 26010KT 210V290 9999 FEW048 23/11 Q1009EGTC2019-07-18T14:20:00Z52.07-0.6223.011.0260106.2129.793306VFRMETAR111.02019-07-18 14:33:399¯–}(s5    3EFUT 181420Z AUTO 02014KT 350V050 CAVOK 23/09 Q1008EFUT2019-07-18T14:20:00Z60.8826.9223.09.020146.2129.763779TRUEVFRMETAR100.02019-07-18 14:33:39 #M‹£ß#6¯—(u5   3EFJO 181420Z 01008KT 340V050 9999 BKN044 18/14 Q1010EFJO2019-07-18T14:20:00Z62.6729.6218.014.01086.2129.822834VFRMETAR117.02019-07-18 14:33:39>¯—)5   3EFLP 181420Z 01009KT 340V050 9999 FEW040 BKN070 19/14 Q1009EFLP2019-07-18T14:20:00Z61.0728.1319.014.01096.2129.793306VFRMETAR106.02019-07-18 14:33:39b¯—)K5   3EGQS 181420Z 27011KT 9999 SCT030CB SCT048 BKN070 20/13 Q1000 TEMPO 4000 +SHRA RMK BLU TEMPO GRNEGQS2019-07-18T14:20:00Z57.72-3.3220.013.0270116.2129.52756VFRMETAR13.02019-07-18 14:33:39<¯—(}5    3EFMI 181420Z AUTO VRB05KT 9999 FEW049 SCT087 22/12 Q1009EFMI2019-07-18T14:20:00Z61.6827.222.012.0056.2129.793306TRUEVFRMETAR138.02019-07-18 14:33:39-¯—(e5   3EGSC 181420Z 29010KT 9999 SCT034 22/11 Q1009EGSC2019-07-18T14:20:00Z52.20.1722.011.0290106.2129.793306VFRMETAR15.02019-07-18 14:33:39 [L•Î[9¯— (s5    3EFKK 181420Z AUTO 35013KT 320V020 CAVOK 19/07 Q1013EFKK2019-07-18T14:20:00Z63.7223.1319.07.0350136.2129.911417TRUEVFRMETAR25.02019-07-18 14:33:39.¯— (e5   3EGPN 181420Z 26020KT 9999 FEW030 18/13 Q1003EGPN2019-07-18T14:20:00Z56.45-3.0218.013.0260206.2129.616142VFRMETAR4.02019-07-18 14:33:39A¯— )5    3EGPO 181420Z 26012KT 9999 VCSH FEW008 SCT018CB 15/13 Q1000EGPO2019-07-18T14:20:00Z58.22-6.3215.013.0260126.2129.52756VCSHVFRMETAR13.02019-07-18 14:33:391¯—(c5    3EFPO 181420Z AUTO 32011KT CAVOK 21/10 Q1011EFPO2019-07-18T14:20:00Z61.4721.821.010.0320116.2129.852362TRUEVFRMETAR17.02019-07-18 14:33:39.¯—(e5   3EGPU 181420Z 25018KT 9999 SCT027 15/14 Q1003EGPU2019-07-18T14:20:00Z56.5-6.8715.014.0250186.2129.616142VFRMETAR12.02019-07-18 14:33:39 4C…Ç4W¯—)+5    3EGPF 181420Z AUTO 25017KT 220V280 9999 BKN029/// BKN036/// //////CB 18/12 Q1005EGPF2019-07-18T14:20:00Z55.87-4.4218.012.0250176.2129.675198TRUEMVFRMETAR8.02019-07-18 14:33:390¯—(c5    3EFKU 181420Z AUTO 34008KT CAVOK 21/09 Q1011EFKU2019-07-18T14:20:00Z63.0227.821.09.034086.2129.852362TRUEVFRMETAR102.02019-07-18 14:33:398¯—(y5   3EGPL 181420Z 25014KT 9999 FEW012TCU SCT018 16/13 Q1001EGPL2019-07-18T14:20:00Z57.47-7.3716.013.0250146.2129.557087VFRMETAR6.02019-07-18 14:33:398¯— (s5    3EFHA 181420Z AUTO 33008KT 290V010 CAVOK 21/07 Q1011EFHA2019-07-18T14:20:00Z61.8524.821.07.033086.2129.852362TRUEVFRMETAR145.02019-07-18 14:33:397¯— (q5    3EGPM 181420Z 25009KT 9999 FEW015 16/13 Q1001 NOSIGEGPM2019-07-18T14:20:00Z60.42-1.316.013.025096.2129.557087TRUEVFRMETAR22.02019-07-18 14:33:39 ';t­Û'.¯—(e5   3EGNJ 181420Z 27012KT 9999 SCT045 21/09 Q1008EGNJ2019-07-18T14:20:00Z53.57-0.3521.09.0270126.2129.763779VFRMETAR31.02019-07-18 14:33:39L¯—)5    3EGOS 181420Z 25017KT 9999 FEW040 SCT060 19/10 Q1009 NOSIG RMK BLU BLUEGOS2019-07-18T14:20:00Z52.8-2.6719.010.0250176.2129.793306TRUEVFRMETAR76.02019-07-18 14:33:39A¯—)5    3EGPC 181420Z 17006KT 9999 VCSH FEW012CB SCT020 15/13 Q1001EGPC2019-07-18T14:20:00Z58.45-3.0715.013.017066.2129.557087VCSHVFRMETAR39.02019-07-18 14:33:39A¯—)5    3EGPE 181420Z 23013KT 9999 VCSH FEW020CB SCT039 18/13 Q1001EGPE2019-07-18T14:20:00Z57.52-4.0318.013.0230136.2129.557087VCSHVFRMETAR9.02019-07-18 14:33:39?¯—(5    3EFJY 181420Z AUTO 36009KT 330V030 9999 FEW045 21/10 Q1011EFJY2019-07-18T14:20:00Z62.425.6821.010.036096.2129.852362TRUEVFRMETAR145.02019-07-18 14:33:39 WK˜å WC¯—)5    3EGLF 181420Z AUTO 27009KT 240V330 9999 FEW040/// 21/12 Q1011EGLF2019-07-18T14:20:00Z51.28-0.7721.012.027096.2129.852362TRUEVFRMETAR65.02019-07-18 14:33:39?¯—(}5    3EGLL 181420Z AUTO 25011KT 9999 FEW038 SCT044 23/12 Q1010EGLL2019-07-18T14:20:00Z51.48-0.4523.012.0250116.2129.822834TRUEVFRMETAR24.02019-07-18 14:33:39-¯—(e5   3EGMC 181420Z 25013KT 9999 FEW035 21/13 Q1010EGMC2019-07-18T14:20:00Z51.570.721.013.0250136.2129.822834VFRMETAR15.02019-07-18 14:33:39-¯—(e5   3EGMD 181420Z 23018KT 9999 FEW018 19/17 Q1011EGMD2019-07-18T14:20:00Z50.950.9219.017.0230186.2129.852362VFRMETAR3.02019-07-18 14:33:39/¯—(e5   3EGNH 181420Z 27018KT 9999 FEW019 19/13 Q1009EGNH2019-07-18T14:20:00Z53.77-3.0219.013.0270186.2129.793306VFRMETAR10.02019-07-18 14:33:39 HC‡¶üH.¯—(e5   3EGJJ 181420Z 27014KT 9999 FEW009 19/15 Q1014EGJJ2019-07-18T14:20:00Z49.22-2.219.015.0270146.2129.940945VFRMETAR84.02019-07-18 14:33:394¯—(s5   3EGKA 181420Z 22015KT 9999 FEW025 SCT032 21/16 Q1011EGKA2019-07-18T14:20:00Z50.83-0.321.016.0220156.2129.852362VFRMETAR2.02019-07-18 14:33:39K¯—) 5    3KMZH 181420Z AUTO 00000KT 10SM BKN004 BKN090 22/21 A2966 RMK AO2KMZH2019-07-18T14:20:00Z46.42-92.822.021.00010.029.660433TRUETRUELIFRMETAR328.02019-07-18 14:33:396¯—(u5   3EGKB 181420Z 24007KT 190V290 9999 SCT030 19/13 Q1011EGKB2019-07-18T14:20:00Z51.320.0219.013.024076.2129.852362VFRMETAR183.02019-07-18 14:33:397¯—(u5   3EGKK 181420Z 25013KT 220V280 9999 SCT031 21/12 Q1011EGKK2019-07-18T14:20:00Z51.13-0.1721.012.0250136.2129.852362VFRMETAR62.02019-07-18 14:33:39 7DŠÃü7?¯—$(}5    3EGGD 181420Z AUTO 25012KT 9999 FEW027 SCT049 19/11 Q1012EGGD2019-07-18T14:20:00Z51.37-2.7219.011.0250126.2129.88189TRUEVFRMETAR189.02019-07-18 14:33:39A¯—#)5   3EGGP 181420Z 29016KT 9999 FEW022 SCT040 FEW041TCU 20/12 Q1009EGGP2019-07-18T14:20:00Z53.32-2.8520.012.0290166.2129.793306VFRMETAR26.02019-07-18 14:33:39A¯—"(5    3EGGW 181420Z AUTO 27013KT 240V320 9999 SCT042 22/10 Q1010EGGW2019-07-18T14:20:00Z51.87-0.3722.010.0270136.2129.822834TRUEVFRMETAR160.02019-07-18 14:33:394¯—!(u5   3EGHI 181420Z 26009KT 230V300 9999 SCT044 20/09 Q1012EGHI2019-07-18T14:20:00Z50.95-1.3520.09.026096.2129.88189VFRMETAR14.02019-07-18 14:33:396¯— (s5   3EGJB 181420Z 27014KT 9999 FEW008 SCT010 18/14 Q1014EGJB2019-07-18T14:20:00Z49.42-2.618.014.0270146.2129.940945VFRMETAR102.02019-07-18 14:33:39 @F‰Õ@N¯—))%5    3ENQC 181420Z AUTO 14033KT 4500NDV -RA SCT006/// OVC029/// 14/13 Q1004 W///S5ENQC2019-07-18T14:20:00Z60.883.6214.013.01403329.64567TRUE-RAMETAR20.02019-07-18 14:33:39;¯—((u5    3EVRA 181420Z 33010KT 280V360 CAVOK 21/13 Q1010 NOSIGEVRA2019-07-18T14:20:00Z56.9223.9721.013.0330106.2129.822834TRUEVFRMETAR10.02019-07-18 14:33:39.¯—'(e5   3EGBB 181420Z 28011KT 9999 FEW046 20/08 Q1010EGBB2019-07-18T14:20:00Z52.47-1.7520.08.0280116.2129.822834VFRMETAR99.02019-07-18 14:33:397¯—&(o5    3EGCC 181420Z AUTO 24008KT 9999 BKN032 18/12 Q1009EGCC2019-07-18T14:20:00Z53.35-2.2718.012.024086.2129.793306TRUEVFRMETAR78.02019-07-18 14:33:394¯—%(i5    3EGFF 181420Z AUTO 27015KT 9999 NCD 19/12 Q1012EGFF2019-07-18T14:20:00Z51.38-3.3519.012.0270156.2129.88189TRUEVFRMETAR67.02019-07-18 14:33:39 PB…ÍP8¯—.(q5    3LGAV 181420Z 08010KT 9999 FEW020 28/11 Q1011 NOSIGLGAV2019-07-18T14:20:00Z37.9323.9528.011.080106.2129.852362TRUEVFRMETAR94.02019-07-18 14:33:399¯—-(q5    3LGIR 181420Z 32015KT 9999 FEW020 27/15 Q1010 NOSIGLGIR2019-07-18T14:20:00Z35.3225.1727.015.0320156.2129.822834TRUEVFRMETAR39.02019-07-18 14:33:392¯—,(i5   3EDJA 181420Z 26011KT 230V290 CAVOK 24/10 Q1014EDJA2019-07-18T14:20:00Z47.9810.2324.010.0260116.2129.940945VFRMETAR633.02019-07-18 14:33:397¯—+(q5    3LGRP 181420Z 24014KT 9999 FEW020 28/21 Q1006 NOSIGLGRP2019-07-18T14:20:00Z36.428.0828.021.0240146.2129.704725TRUEVFRMETAR5.02019-07-18 14:33:398¯—*(q5    3LGKR 181420Z 26010KT 9999 FEW030 29/13 Q1011 NOSIGLGKR2019-07-18T14:20:00Z39.6219.9229.013.0260106.2129.852362TRUEVFRMETAR2.02019-07-18 14:33:39 C,vÂCK¯—3)5    3EGDY 181420Z 28010KT 9999 FEW040 SCT140 21/10 Q1012 NOSIG RMK BLU BLUEGDY2019-07-18T14:20:00Z51.0-2.6221.010.0280106.2129.88189TRUEVFRMETAR23.02019-07-18 14:33:39(¯—2(Y5   3LGSY 181420Z 32008KT CAVOK 27/18 Q1011LGSY2019-07-18T14:20:00Z38.9724.4827.018.032086.2129.852362VFRMETAR15.02019-07-18 14:33:39.¯—1(e5   3LGAL 181420Z 24011KT 9999 SCT025 30/18 Q1010LGAL2019-07-18T14:20:00Z40.8525.9530.018.0240116.2129.822834VFRMETAR3.02019-07-18 14:33:390¯—0(i5   3EDTY 181420Z 29011KT 260V320 CAVOK 26/08 Q1013EDTY2019-07-18T14:20:00Z49.129.7826.08.0290116.2129.911417VFRMETAR400.02019-07-18 14:33:39N¯—/) 5     3KHAF 181420Z AUTO 14008KT 1 1/4SM BR OVC003 13/12 A2996 RMK AO2KHAF2019-07-18T14:20:00Z37.52-122.513.012.014081.2529.958662TRUETRUEBRLIFRSPECI21.02019-07-18 14:33:39 Û-T—ہ6¯—7(u5   3EGHH 181420Z 31011KT 270V340 9999 SCT039 22/10 Q1012EGHH2019-07-18T14:20:00Z50.78-1.8322.010.0310116.2129.88189VFRMETAR11.02019-07-18 14:33:397¯—6(u5   3EGOW 181420Z 25014KT 9999 SCT028 20/14 Q1009 RMK BLUEGOW2019-07-18T14:20:00Z53.58-3.0520.014.0250146.2129.793306VFRMETAR12.02019-07-18 14:33:39S¯—5)5   3EGDM 181420Z 28011G21KT 9999 FEW040 SCT140 21/10 Q1011 NOSIG RMK BLU BLUEGDM2019-07-18T14:20:00Z51.17-1.7521.010.028011216.2129.852362TRUEVFRMETAR124.02019-07-18 14:33:39M¯—4)5    3EGXE 181420Z 25016KT 9999 FEW040 BKN065 20/10 Q1007 NOSIG RMK BLU BLUEGXE2019-07-18T14:20:00Z54.28-1.5220.010.0250166.2129.734253TRUEVFRMETAR40.02019-07-18 14:33:39 Hʁ0¯—<(i5   3LIPX 181420Z 13005KT 030V200 CAVOK 28/17 Q1011LIPX2019-07-18T14:20:00Z45.3810.8728.017.013056.2129.852362VFRMETAR68.02019-07-18 14:33:39/¯—;(e5   3EGNV 181420Z 24012KT 9999 SCT036 19/10 Q1007EGNV2019-07-18T14:20:00Z54.52-1.4219.010.0240126.2129.734253VFRMETAR37.02019-07-18 14:33:39C¯—:)5    3ESKM 181420Z AUTO 20008KT 150V240 9999 FEW066/// 24/09 Q1010ESKM2019-07-18T14:20:00Z60.9714.5224.09.020086.2129.822834TRUEVFRMETAR193.02019-07-18 14:33:395¯—9(q5    3LIMC 181420Z VRB03KT 9999 BKN050 28/16 Q1012 NOSIGLIMC2019-07-18T14:20:00Z45.628.7228.016.0036.2129.88189TRUEVFRMETAR211.02019-07-18 14:33:39w¯—8)=5      3RJTY 181420Z AUTO 21004KT 10SM -DZ BKN010 23/22 A2995 RMK AO2 RAE11DZB20 SLP139 FZRANO $RJTY2019-07-18T14:20:00Z35.75139.3323.022.0210410.029.9498021013.9TRUETRUETRUETRUE-DZMVFRSPECI139.02019-07-18 14:33:39 8L‰Æü8>¯—A)5   3ETHF 181420Z 25007KT 9999 SCT070 SCT330 26/08 Q1011 BLU+BLU+ETHF2019-07-18T14:20:00Z51.129.2726.08.025076.2129.852362VFRMETAR181.02019-07-18 14:33:39D¯—@)5   3ETHS 181420Z 21006KT 9999 FEW065 SCT090 BKN170 25/08 Q1010 BLU BLUETHS2019-07-18T14:20:00Z52.9210.1825.08.021066.2129.822834VFRMETAR88.02019-07-18 14:33:39=¯—?)5   3ETMN 181420Z 19005KT 9999 FEW045 BKN120 23/11 Q1010 BLU BLUETMN2019-07-18T14:20:00Z53.778.6723.011.019056.2129.822834VFRMETAR31.02019-07-18 14:33:39=¯—>(5    3EGLC 181420Z AUTO 24010KT 210V270 9999 SCT041 22/12 Q1010EGLC2019-07-18T14:20:00Z51.50.0522.012.0240106.2129.822834TRUEVFRMETAR5.02019-07-18 14:33:39.¯—=(e5   3EGJA 181420Z 26012KT 9999 FEW015 18/15 Q1014EGJA2019-07-18T14:20:00Z49.72-2.218.015.0260126.2129.940945VFRMETAR71.02019-07-18 14:33:39 ,i¤Ó7¯—F(w5   3ETSL 181420Z 23008KT 9999 FEW060 26/08 Q1013 BLU+BLU+ETSL2019-07-18T14:20:00Z48.1710.8726.08.023086.2129.911417VFRMETAR562.02019-07-18 14:33:39K¯—E)5   3ETSN 181420Z 27011KT 9999 FEW070 SCT100 26/10 Q1013 BLU+BLU+ TEMPO BLUETSN2019-07-18T14:20:00Z48.7211.2226.010.0270116.2129.911417VFRMETAR387.02019-07-18 14:33:39?¯—D) 5   3ETGG 181420Z 06005KT 9999 FEW050 SCT170 BKN200 23/14 Q1011 BLU+ETGG2019-07-18T14:20:00Z54.839.523.014.06056.2129.852362VFRMETAR33.02019-07-18 14:33:39=¯—C)5   3ETHB 181420Z 25005KT 9999 FEW060 BKN330 25/10 Q1010 BLU+BLUETHB2019-07-18T14:20:00Z52.279.0725.010.025056.2129.822834VFRMETAR78.02019-07-18 14:33:39N¯—B)'5   3ETHC 181420Z 13007KT 9999 SCT060 SCT090 BKN170 26/09 Q1010 BLU BLU+ TEMPO BLUETHC2019-07-18T14:20:00Z52.610.0226.09.013076.2129.822834VFRMETAR52.02019-07-18 14:33:39 É2Z–ɁG¯—J)5   3ETHA 181420Z 27016KT 9999 FEW060 SCT320 24/07 Q1015 BLU+FCST CANCELETHA2019-07-18T14:20:00Z47.8210.8724.07.0270166.2129.970472VFRMETAR760.02019-07-18 14:33:39>¯—I)5   3ETHL 181420Z 29007KT 9999 FEW060 SCT310 26/06 Q1013 BLU+BLU+ETHL2019-07-18T14:20:00Z48.229.9226.06.029076.2129.911417VFRMETAR549.02019-07-18 14:33:39R¯—H)5   3ETNN 181420Z 28011G22KT 9999 -SHRA SCT050TCU BKN080 24/13 Q1011 BLU BLUETNN2019-07-18T14:20:00Z50.826.6724.013.028011226.2129.852362-SHRAVFRMETAR135.02019-07-18 14:33:39H¯—G)5   3ETSB 181420Z 27009KT 9999 FEW050 BKN090 23/09 Q1013 BLU BLU+ TEMPO BLUETSB2019-07-18T14:20:00Z50.177.0723.09.027096.2129.911417VFRMETAR486.02019-07-18 14:33:39 B}¾ôO¯—O)5    3KRUQ 181420Z AUTO 24005KT 10SM BKN085 28/22 A3002 RMK AO2 T02760222KRUQ2019-07-18T14:20:00Z35.65-80.5227.622.2240510.030.02067TRUETRUEVFRMETAR236.02019-07-18 14:33:39D¯—N)5    3KVUJ 181420Z AUTO 10SM SCT070 29/22 A3005 RMK AO2 T02940220KVUJ2019-07-18T14:20:00Z35.42-80.1529.422.010.030.050198TRUETRUEVFRMETAR186.02019-07-18 14:33:399¯—M(q5    3LCRA 181420Z 26014KT 9999 FEW025 28/21 Q1006 NOSIGLCRA2019-07-18T14:20:00Z34.5732.9728.021.0260146.2129.704725TRUEVFRMETAR23.02019-07-18 14:33:39?¯—L(5    3EFOU 181420Z AUTO 33009KT 290V010 9999 FEW026 18/10 Q1013EFOU2019-07-18T14:20:00Z64.9225.3718.010.033096.2129.911417TRUEVFRMETAR15.02019-07-18 14:33:398¯—K(q5    3LLBG 181420Z 29011KT 9999 FEW035 31/20 Q1008 NOSIGLLBG2019-07-18T14:20:00Z32.034.8831.020.0290116.2129.763779TRUEVFRMETAR49.02019-07-18 14:33:39 ¾.f“¾O¯—S)5   3KMQI 181420Z AUTO 23015G19KT 10SM CLR 30/26 A2998 RMK AO2 T03000255KMQI2019-07-18T14:20:00Z35.92-75.730.025.5230151910.029.97933TRUETRUEVFRMETAR4.02019-07-18 14:33:39M¯—R) 5    3KMWK 181420Z AUTO 29004KT 10SM CLR 29/23 A3005 RMK AO2 T02870231KMWK2019-07-18T14:20:00Z36.47-80.5528.723.1290410.030.050198TRUETRUEVFRMETAR380.02019-07-18 14:33:39B¯—Q)5    3KONX 181420Z AUTO 10SM BKN014 29/26 A2997 RMK AO2 T02870259KONX2019-07-18T14:20:00Z36.4-76.0228.725.910.029.970472TRUETRUEMVFRMETAR5.02019-07-18 14:33:39L¯—P) 5    3KRCZ 181420Z AUTO 29004KT 10SM CLR 29/19 A3002 RMK AO2 T02890194KRCZ2019-07-18T14:20:00Z34.88-79.7728.919.4290410.030.02067TRUETRUEVFRMETAR109.02019-07-18 14:33:39 N;0*NV¯—W)!5    3KMMK 181420Z AUTO 05005KT 10SM SCT014 OVC024 26/22 A2993 RMK AO2 T02610217KMMK2019-07-18T14:20:00Z41.52-72.8326.121.750510.029.929134TRUETRUEMVFRSPECI31.02019-07-18 14:33:39‚¯—V)i5      3KUGN 181420Z 32005KT 2 1/2SM -RA BR BKN008 OVC060 22/21 A2995 RMK AO2 LTG DSNT SE AND S PRESRR P0006 T02220211KUGN2019-07-18T14:20:00Z42.42-87.8722.221.132052.529.949802TRUE-RA BRIFR0.06SPECI222.02019-07-18 14:33:39‚¯—U)k5      3KWST 181420Z AUTO 16006KT 5SM -RA BR BKN003 BKN014 OVC033 23/23 A2995 RMK AO2 RAB00 CIG 001V010 P0000 T02330228KWST2019-07-18T14:20:00Z41.35-71.823.322.816065.029.949802TRUETRUE-RA BRLIFR0.005SPECI21.02019-07-18 14:33:39?¯—T(w5    3KLHZ 181420Z AUTO 26005KT 7SM CLR 28/22 A3002 RMK AO2KLHZ2019-07-18T14:20:00Z36.02-78.3328.022.026057.030.02067TRUETRUEVFRMETAR113.02019-07-18 14:33:39 ´)X€´F¯—[(5    3KACQ 181420Z AUTO 16009KT 10SM OVC017 23/20 A2973 RMK AO2KACQ2019-07-18T14:20:00Z44.07-93.5523.020.0160910.029.731298TRUETRUEMVFRSPECI343.02019-07-18 14:33:39R¯—Z)5    3KDMW 181420Z AUTO 25003KT 10SM SCT016 SCT047 OVC060 28/24 A2993 RMK AO2KDMW2019-07-18T14:20:00Z39.6-77.028.024.0250310.029.929134TRUETRUEVFRMETAR241.02019-07-18 14:33:39K¯—Y) 5    3KFFA 181420Z AUTO 22007KT 10SM CLR 30/25 A2996 RMK AO2 T03010252KFFA2019-07-18T14:20:00Z36.02-75.6730.125.2220710.029.958662TRUETRUEVFRMETAR4.02019-07-18 14:33:39Q¯—X)5     3KFWN 181420Z AUTO 03006KT 6SM BR OVC006 23/22 A2993 RMK AO2 T02330217KFWN2019-07-18T14:20:00Z41.2-74.6323.321.73066.029.929134TRUETRUEBRIFRSPECI133.02019-07-18 14:33:39 ÆF{Ɓ/¯—_(e5   3EGNC 181420Z 25018KT 9999 SCT033 18/12 Q1006EGNC2019-07-18T14:20:00Z54.93-2.8218.012.0250186.2129.704725VFRMETAR26.02019-07-18 14:33:39E¯—^)5   3ETNH 181420Z 23005KT 9999 FEW040 SCT160 BKN240 24/11 Q1010 BLU+BLU+ETNH2019-07-18T14:20:00Z54.329.5524.011.023056.2129.822834VFRMETAR17.02019-07-18 14:33:39N¯—])'5   3ETNW 181420Z 22009KT 9999 FEW060 SCT160 BKN220 26/08 Q1010 BLU+BLU+ TEMPO BLUETNW2019-07-18T14:20:00Z52.459.4226.08.022096.2129.822834VFRMETAR70.02019-07-18 14:33:39`¯—\)55     3LOXZ 181420Z 26008KT 40KM VCSH FEW060CU FEW060CB SCT120AC BKN250CI 22/11 Q1013 NOSIGLOXZ2019-07-18T14:20:00Z47.214.7522.011.0260824.8629.911417TRUEVCSHVFRMETAR682.02019-07-18 14:33:39 =vºôO¯—d)'5   3ETNS 181420Z 21004KT 9999 SCT045 SCT160 BKN240 24/11 Q1011 BLU+BLU+ BECMG BLUETNS2019-07-18T14:20:00Z54.479.5224.011.021046.2129.852362VFRMETAR25.02019-07-18 14:33:39@¯—c) 5   3ETNT 181420Z 20009KT 9999 FEW045 BKN140 BKN250 25/10 Q1009 BLUETNT2019-07-18T14:20:00Z53.537.6725.010.020096.2129.793306VFRMETAR12.02019-07-18 14:33:396¯—b(w5   3ETSH 181420Z 16006KT 9999 SCT070 26/09 Q1011 BLU+BLU+ETSH2019-07-18T14:20:00Z51.7713.1726.09.016066.2129.852362VFRMETAR79.02019-07-18 14:33:39A¯—a) 5   3ETWM 181420Z 20006KT 9999 SCT061 SCT075 BKN280 26/10 Q1009 BLU+ETWM2019-07-18T14:20:00Z52.727.3326.010.020066.2129.793306VFRMETAR21.02019-07-18 14:33:39=¯—`(}5    3PKWA 181420Z AUTO 10SM CLR 28/23 A2982 RMK AO2 T02770231PKWA2019-07-18T14:20:00Z8.72167.7227.723.110.029.819881TRUETRUEVFRMETAR8.02019-07-18 14:33:39 CD…´øC/¯—i(i5   3EDVE 181420Z 21005KT 170V240 CAVOK 25/08 Q1011EDVE2019-07-18T14:20:00Z52.3210.5525.08.021056.2129.852362VFRMETAR88.02019-07-18 14:33:396¯—h(s5   3EGEC 181420Z 26011KT 9999 FEW018 SCT048 16/13 Q1006EGEC2019-07-18T14:20:00Z55.43-5.6816.013.0260116.2129.704725VFRMETAR13.02019-07-18 14:33:39K¯—g)5    3EGYM 181420Z 28006KT 9999 FEW020 BKN050 20/14 Q1009 NOSIG RMK BLU BLUEGYM2019-07-18T14:20:00Z52.630.5720.014.028066.2129.793306TRUEVFRMETAR23.02019-07-18 14:33:399¯—f(y5    3EVLA 181420Z AUTO 31007KT 280V340 9999 NCD 19/15 Q1012EVLA2019-07-18T14:20:00Z56.5221.119.015.031076.2129.88189TRUEVFRMETAR4.02019-07-18 14:33:396¯—e(o5    3EVVA 181420Z AUTO 33010KT 9999 FEW006 17/15 Q1012EVVA2019-07-18T14:20:00Z57.3521.5517.015.0330106.2129.88189TRUEVFRMETAR6.02019-07-18 14:33:39 |Ræ1|/¯—n(i5   3EDHL 181420Z 12005KT 080V170 CAVOK 25/11 Q1011EDHL2019-07-18T14:20:00Z53.810.7225.011.012056.2129.852362VFRMETAR16.02019-07-18 14:33:39/¯—m(i5   3EDLP 181420Z 24005KT 150V310 CAVOK 25/09 Q1011EDLP2019-07-18T14:20:00Z51.628.6225.09.024056.2129.852362VFRMETAR213.02019-07-18 14:33:391¯—l(i5   3EDLW 181420Z 24013KT 220V280 CAVOK 25/11 Q1011EDLW2019-07-18T14:20:00Z51.527.6225.011.0240136.2129.852362VFRMETAR127.02019-07-18 14:33:39/¯—k(i5   3EDNY 181420Z 24009KT 200V300 CAVOK 27/09 Q1014EDNY2019-07-18T14:20:00Z47.679.5227.09.024096.2129.940945VFRMETAR424.02019-07-18 14:33:39(¯—j(Y5   3EDQM 181420Z 26011KT CAVOK 24/07 Q1013EDQM2019-07-18T14:20:00Z50.311.8524.07.0260116.2129.911417VFRMETAR568.02019-07-18 14:33:39 FUŠÍF5¯—s(s5   3EGHC 181420Z 26009KT 9999 FEW018 BKN045 18/14 Q1014EGHC2019-07-18T14:20:00Z50.1-5.6718.014.026096.2129.940945VFRMETAR122.02019-07-18 14:33:39F¯—r) 5    3ESNZ 181420Z AUTO 12013KT 9999 BKN092/// BKN110/// 18/13 Q1010ESNZ2019-07-18T14:20:00Z63.1714.518.013.0120136.2129.822834TRUEVFRMETAR370.02019-07-18 14:33:397¯—q(u5   3EGHQ 181420Z 26010KT 230V290 9999 SCT030 18/13 Q1014EGHQ2019-07-18T14:20:00Z50.43-5.018.013.0260106.2129.940945VFRMETAR119.02019-07-18 14:33:39E¯—p) 5    3ESUT 181420Z AUTO 16012KT 9999 BKN037/// OVC055/// 16/08 Q1011ESUT2019-07-18T14:20:00Z65.815.0816.08.0160126.2129.852362TRUEVFRMETAR463.02019-07-18 14:33:39%¯—o(Y5   3EDHI 181420Z VRB02KT CAVOK 24/11 Q1010EDHI2019-07-18T14:20:00Z53.539.8324.011.0026.2129.822834VFRMETAR13.02019-07-18 14:33:39 UJÙU5¯—x(s5   3ESNN 181420Z 15008KT 9999 FEW013 SCT090 16/12 Q1013ESNN2019-07-18T14:20:00Z62.5217.4316.012.015086.2129.911417VFRMETAR10.02019-07-18 14:33:39C¯—w)5    3ESNO 181420Z AUTO 16006KT 120V210 9999 BKN140/// 18/08 Q1013ESNO2019-07-18T14:20:00Z63.3818.9718.08.016066.2129.911417TRUEVFRMETAR103.02019-07-18 14:33:39>¯—v)5   3ESNQ 181420Z 17008KT 140V200 9999 FEW040 BKN070 16/07 Q1014ESNQ2019-07-18T14:20:00Z67.8220.3216.07.017086.2129.940945VFRMETAR452.02019-07-18 14:33:39'¯—u(Y5   3ESNS 181420Z 08008KT CAVOK 18/10 Q1014ESNS2019-07-18T14:20:00Z64.6221.0718.010.08086.2129.940945VFRMETAR49.02019-07-18 14:33:390¯—t(i5   3ESNU 181420Z 12006KT 080V160 CAVOK 19/10 Q1014ESNU2019-07-18T14:20:00Z63.7820.2719.010.012066.2129.940945VFRMETAR14.02019-07-18 14:33:39 VNzÄ V.¯—}(i5   3ESTA 181420Z 28006KT 230V330 CAVOK 23/08 Q1012ESTA2019-07-18T14:20:00Z56.2812.8323.08.028066.2129.88189VFRMETAR47.02019-07-18 14:33:394¯—|(u5   3ESTL 181420Z AUTO 20008KT 9999 ///////// 24/08 Q1012ESTL2019-07-18T14:20:00Z56.0713.224.08.020086.2129.88189TRUEMETAR43.02019-07-18 14:33:390¯—{(i5   3ESNG 181420Z 13006KT 100V170 CAVOK 17/06 Q1014ESNG2019-07-18T14:20:00Z67.1320.8217.06.013066.2129.940945VFRMETAR310.02019-07-18 14:33:39N¯—z)5    3ESNK 181420Z AUTO 17009KT 9999 FEW047/// SCT110/// OVC140/// 19/09 Q1013ESNK2019-07-18T14:20:00Z63.0317.7719.09.017096.2129.911417TRUEVFRMETAR19.02019-07-18 14:33:39,¯—y(e5   3EGCK 181420Z 23013KT 9999 FEW037 19/14 Q1010EGCK2019-07-18T14:20:00Z53.14.3319.014.0230136.2129.822834VFRMETAR0.02019-07-18 14:33:39 ŽK—é<Ž(¯˜(Y5   3ESMK 181420Z 15010KT CAVOK 24/13 Q1012ESMK2019-07-18T14:20:00Z55.9214.0724.013.0150106.2129.88189VFRMETAR23.02019-07-18 14:33:39'¯˜(Y5   3ESMQ 181420Z 14008KT CAVOK 22/13 Q1013ESMQ2019-07-18T14:20:00Z56.6816.322.013.014086.2129.911417VFRMETAR16.02019-07-18 14:33:39(¯˜(Y5   3ESMS 181420Z 22009KT CAVOK 23/08 Q1013ESMS2019-07-18T14:20:00Z55.5313.3723.08.022096.2129.911417VFRMETAR106.02019-07-18 14:33:39.¯—(i5   3ESMT 181420Z 26005KT 220V320 CAVOK 23/08 Q1012ESMT2019-07-18T14:20:00Z56.6712.8223.08.026056.2129.88189VFRMETAR30.02019-07-18 14:33:39/¯—~(i5   3ESMX 181420Z 12004KT 070V220 CAVOK 24/08 Q1012ESMX2019-07-18T14:20:00Z56.9214.7224.08.012046.2129.88189VFRMETAR186.02019-07-18 14:33:39 J8…ÐJB¯˜)5    3ESOW 181420Z AUTO 18006KT 150V240 9999 FEW074/// 24/10 Q1012ESOW2019-07-18T14:20:00Z59.5716.6224.010.018066.2129.88189TRUEVFRMETAR31.02019-07-18 14:33:398¯˜(u5    3ESSA 181420Z 16003KT 090V230 CAVOK 22/09 Q1012 NOSIGESSA2019-07-18T14:20:00Z59.6317.9322.09.016036.2129.88189TRUEVFRMETAR61.02019-07-18 14:33:39/¯˜(i5   3ESGJ 181420Z 08005KT 060V120 CAVOK 23/10 Q1012ESGJ2019-07-18T14:20:00Z57.7714.0723.010.08056.2129.88189VFRMETAR232.02019-07-18 14:33:39-¯˜(o5  3CWZQ 181420Z AUTO 32012KT 18/13 RMK AO1 T01820130CWZQ2019-07-18T14:20:00Z46.53-61.0518.213.032012TRUETRUEMETAR17.02019-07-18 14:33:39B¯˜)5    3ESGT 181420Z AUTO 09005KT 040V120 9999 BKN049/// 22/13 Q1011ESGT2019-07-18T14:20:00Z58.3212.3322.013.09056.2129.852362TRUEVFRMETAR41.02019-07-18 14:33:39 ŒL ì6Œ$¯˜ (Y5   3ESSP 181420Z 00000KT CAVOK 23/12 Q1012ESSP2019-07-18T14:20:00Z58.5716.2523.012.0006.2129.88189VFRMETAR8.02019-07-18 14:33:390¯˜ (i5   3ESSV 181420Z 34006KT 270V010 CAVOK 19/12 Q1013ESSV2019-07-18T14:20:00Z57.6718.3519.012.034066.2129.911417VFRMETAR47.02019-07-18 14:33:39.¯˜ (i5   3ESOE 181420Z 21004KT 120V280 CAVOK 25/08 Q1012ESOE2019-07-18T14:20:00Z59.2215.0525.08.021046.2129.88189VFRMETAR57.02019-07-18 14:33:39&¯˜ (Y5   3ESKN 181420Z 15008KT CAVOK 21/11 Q1012ESKN2019-07-18T14:20:00Z58.7816.921.011.015086.2129.88189VFRMETAR43.02019-07-18 14:33:39.¯˜(e5   3ESOK 181420Z 21008KT 9999 FEW040 23/10 Q1012ESOK2019-07-18T14:20:00Z59.4513.3323.010.021086.2129.88189VFRMETAR107.02019-07-18 14:33:39 =K…Øý=:¯˜(u5    3EETN 181420Z 31010KT 280V340 CAVOK 22/11 Q1009 NOSIGEETN2019-07-18T14:20:00Z59.424.8222.011.0310106.2129.793306TRUEVFRMETAR40.02019-07-18 14:33:39U¯˜)-5    3EKKA 181420Z AUTO 18008KT 150V230 9999 FEW050/// SCT070/// BKN089/// 24/12 Q1010EKKA2019-07-18T14:20:00Z56.39.1224.012.018086.2129.822834TRUEVFRMETAR52.02019-07-18 14:33:39'¯˜(Y5   3ESSB 181420Z 14005KT CAVOK 22/13 Q1012ESSB2019-07-18T14:20:00Z59.3517.9322.013.014056.2129.88189VFRMETAR11.02019-07-18 14:33:39@¯˜)5    3ESSD 181420Z AUTO VRB04KT 060V250 9999 FEW150/// 24/06 Q1011ESSD2019-07-18T14:20:00Z60.4215.524.06.0046.2129.852362TRUEVFRMETAR161.02019-07-18 14:33:39/¯˜ (e5   3EGTK 181420Z 29010KT 9999 SCT046 20/10 Q1010EGTK2019-07-18T14:20:00Z51.83-1.3220.010.0290106.2129.822834VFRMETAR82.02019-07-18 14:33:39 CJ‹Æ CA¯˜)5    3ESIA 181420Z AUTO 10005KT 080V180 9999 BKN086/// 22/10 Q1012ESIA2019-07-18T14:20:00Z58.5214.522.010.010056.2129.88189TRUEVFRMETAR94.02019-07-18 14:33:396¯˜(u5    3ESCM 181420Z AUTO VRB01KT 9999 SCT098/// 24/12 Q1012ESCM2019-07-18T14:20:00Z59.8717.624.012.0016.2129.88189TRUEVFRMETAR41.02019-07-18 14:33:39?¯˜(w5    3KW29 181420Z AUTO 25006KT 7SM CLR 28/25 A2989 RMK AO2KW292019-07-18T14:20:00Z38.98-76.3328.025.025067.029.890747TRUETRUEVFRMETAR15.02019-07-18 14:33:399¯˜(u5    3EKVG 181420Z AUTO 12009KT 9999 BKN008/// 13/12 Q0998EKVG2019-07-18T14:20:00Z62.07-7.313.012.012096.2129.468504TRUEIFRMETAR85.02019-07-18 14:33:390¯˜(i5   3EYKA 181420Z 31005KT 230V020 CAVOK 23/10 Q1010EYKA2019-07-18T14:20:00Z54.9724.0823.010.031056.2129.822834VFRMETAR77.02019-07-18 14:33:39 28oºñ29¯˜(u5    3ESIB 181420Z AUTO 05005KT 9999 OVC088/// 20/16 Q1011ESIB2019-07-18T14:20:00Z58.4212.6820.016.05056.2129.852362TRUEVFRMETAR74.02019-07-18 14:33:39C¯˜(5    3KMDS 181420Z AUTO 00000KT 10SM BKN005 23/23 A2978 RMK AO2KMDS2019-07-18T14:20:00Z44.02-97.0823.023.00010.029.778543TRUETRUEIFRMETAR524.02019-07-18 14:33:39/¯˜(i5   3ESPA 181420Z 16004KT 140V200 CAVOK 19/08 Q1014ESPA2019-07-18T14:20:00Z65.5322.1219.08.016046.2129.940945VFRMETAR34.02019-07-18 14:33:39C¯˜)5    3ESPE 181420Z AUTO 16003KT 110V230 9999 BKN086/// 19/08 Q1014ESPE2019-07-18T14:20:00Z65.8820.1519.08.016036.2129.940945TRUEVFRMETAR182.02019-07-18 14:33:39B¯˜)5    3ESSL 181420Z AUTO 36003KT 300V040 9999 OVC098/// 23/11 Q1012ESSL2019-07-18T14:20:00Z58.3815.6723.011.036036.2129.88189TRUEVFRMETAR52.02019-07-18 14:33:39 DR”ÂÿD5¯˜ (u5   3EDAH 181420Z 06009KT 030V090 9999 FEW048 23/10 Q1013EDAH2019-07-18T14:20:00Z53.8714.1523.010.06096.2129.911417VFRMETAR28.02019-07-18 14:33:39=¯˜(y5    3KEDJ 181420Z AUTO 23004KT 10SM CLR 26/23 A3000 RMK AO1KEDJ2019-07-18T14:20:00Z40.37-83.8226.023.0230410.030.0TRUETRUEVFRSPECI342.02019-07-18 14:33:39L¯˜)5    3EGVA 181420Z 27014KT 9999 FEW048 BKN065 21/09 Q1010 NOSIG RMK BLU BLUEGVA2019-07-18T14:20:00Z51.67-1.7721.09.0270146.2129.822834TRUEVFRMETAR87.02019-07-18 14:33:398¯˜(u5    3ESCF 181420Z AUTO VRB01KT 9999 OVC092/// 22/12 Q1012ESCF2019-07-18T14:20:00Z58.3815.5222.012.0016.2129.88189TRUEVFRMETAR117.02019-07-18 14:33:39(¯˜(Y5   3ESDF 181420Z 18008KT CAVOK 21/13 Q1013ESDF2019-07-18T14:20:00Z56.2715.2721.013.018086.2129.911417VFRMETAR74.02019-07-18 14:33:39 [¦æL¯˜%)5    3EKEB 181420Z AUTO 19006KT 150V220 9999 SCT150/// SCT170/// 20/13 Q1011EKEB2019-07-18T14:20:00Z55.528.5520.013.019066.2129.852362TRUEVFRMETAR29.02019-07-18 14:33:39:¯˜$(y5    3EKRS 181420Z AUTO 21009KT 160V260 9999 NCD 23/11 Q1012EKRS2019-07-18T14:20:00Z55.4211.823.011.021096.2129.88189TRUEVFRMETAR34.02019-07-18 14:33:39/¯˜#(i5   3ENAL 181420Z 28006KT 240V310 CAVOK 16/12 Q1006ENAL2019-07-18T14:20:00Z62.576.1216.012.028066.2129.704725VFRMETAR22.02019-07-18 14:33:394¯˜"(s5   3EKSB 181420Z 13010KT 9999 FEW030 BKN220 21/13 Q1011EKSB2019-07-18T14:20:00Z54.979.821.013.0130106.2129.852362VFRMETAR23.02019-07-18 14:33:39e¯˜!)55    3CYXZ 181420Z 18004KT 12SM -SHRA OVC023 19/17 A2975 RMK SC8 SLP078 DENSITY ALT 1900FTCYXZ2019-07-18T14:20:00Z47.97-84.7719.017.0180412.029.7490161007.8-SHRAMVFRSPECI287.02019-07-18 14:33:39 ½8k½>¯˜)) 5   3EKAH 181420Z AUTO 17007KT 120V240 9999NDV FEW110/// 23/12 Q1012EKAH2019-07-18T14:20:00Z56.2810.6223.012.0170729.88189TRUESPECI25.02019-07-18 14:33:39d¯˜()O5    3ENDU 181420Z 00000KT 9999 FEW030TCU 21/06 Q1012 NOSIG RMK WIND 1100FT 06004KT WIND 2200FT 03006KTENDU2019-07-18T14:20:00Z69.0318.5521.06.0006.2129.88189TRUEVFRMETAR79.02019-07-18 14:33:39G¯˜')5     3EKCH 181420Z AUTO 16010KT 140V200 9999 NCD 21/11 Q1013 NOSIGEKCH2019-07-18T14:20:00Z55.6212.6721.011.0160106.2129.911417TRUETRUEVFRMETAR5.02019-07-18 14:33:39B¯˜&) 5    3ENFL 181420Z 16004KT 9999 -RA FEW007 SCT035 BKN045 14/12 Q1007ENFL2019-07-18T14:20:00Z61.575.0214.012.016046.2129.734253-RAVFRMETAR9.02019-07-18 14:33:39Y8”8@HPX`hpx€ˆ˜ ¨°¸ÀÈÐØàèðø (08@HPX`hpx€ˆ˜ ¨°¸ÀÈÐØàèðø (08@HPX`hpx€ˆ˜ ¨°¸ÀÈÐØàèðø ¨°¸ÀÈÐØàèðø:¯–|;¯—<¯—=¯— >¯—?¯—@¯—A¯—B¯—$C¯—)D¯—.E¯—3:¯–|;¯—<¯—=¯— >¯—?¯—@¯—A¯—B¯—$C¯—)D¯—.E¯—3F¯—7G¯—<H¯—AI¯—FJ¯—JK¯—OL¯—SM¯—WN¯—[O¯—_P¯—dQ¯—iR¯—nS¯—sT¯—xU¯—}V¯˜W¯˜X¯˜ Y¯˜Z¯˜[¯˜\¯˜ ]¯˜%^¯˜)`¯˜.a¯˜3b¯˜8c¯˜=d¯˜Be¯˜Ff¯˜Kg¯˜Ph¯˜Ui¯˜Zj¯˜_k¯˜dl¯˜im¯˜nn¯˜so¯˜wp¯˜|q¯™r¯™s¯™ t¯™u¯™v¯™w¯™x¯™"y¯™&z¯™*{¯™.|¯™2}¯™6~¯™:¯™>€¯™B¯™F‚¯™Jƒ¯™N„¯™R…¯™V†¯™Z‡¯™^ˆ¯™b‰¯™fŠ¯™j‹¯™nŒ¯™r¯™vŽ¯™z¯™~¯š‘¯š’¯š “¯š gRÂg'¯˜.(Y5   3ENAN 181420Z 03011KT CAVOK 12/07 Q1014ENAN2019-07-18T14:20:00Z69.2816.1312.07.030116.2129.940945VFRMETAR14.02019-07-18 14:33:39(¯˜-(Y5   3EKRK 181420Z 13010KT CAVOK 21/12 Q1012EKRK2019-07-18T14:20:00Z55.5712.1221.012.0130106.2129.88189VFRMETAR44.02019-07-18 14:33:39H¯˜,)5    3ENBL 181420Z 23004KT 200V260 9999 -SHRA FEW045 SCT065 16/14 Q1007ENBL2019-07-18T14:20:00Z61.45.7716.014.023046.2129.734253-SHRAVFRMETAR150.02019-07-18 14:33:39<¯˜+(y5    3EKRN 181420Z AUTO 22004KT 190V250 9999 NCD 20/16 Q1013EKRN2019-07-18T14:20:00Z55.0714.7520.016.022046.2129.911417TRUEVFRMETAR16.02019-07-18 14:33:39(¯˜*(Y5   3ENBN 181420Z 35012KT CAVOK 20/10 Q1008ENBN2019-07-18T14:20:00Z65.4712.2220.010.0350126.2129.763779VFRMETAR9.02019-07-18 14:33:39 e7‚Öe/¯˜3(i5   3EDSB 181420Z 29004KT 230V360 CAVOK 28/12 Q1012EDSB2019-07-18T14:20:00Z48.788.0828.012.029046.2129.88189VFRMETAR124.02019-07-18 14:33:396¯˜2(u5   3EDFH 181420Z 28012KT 240V320 9999 FEW040 23/09 Q1013EDFH2019-07-18T14:20:00Z49.957.2723.09.0280126.2129.911417VFRMETAR498.02019-07-18 14:33:39&¯˜1(Y5   3EDGS 181420Z 25009KT CAVOK 22/09 Q1013EDGS2019-07-18T14:20:00Z50.78.0822.09.025096.2129.911417VFRMETAR602.02019-07-18 14:33:39/¯˜0(i5   3EDLV 181420Z 26010KT 220V300 CAVOK 25/11 Q1011EDLV2019-07-18T14:20:00Z51.66.1525.011.0260106.2129.852362VFRMETAR32.02019-07-18 14:33:39C¯˜/)5    3LIRN 181420Z 21010KT 180V240 9999 FEW030TCU 27/17 Q1012 NOSIGLIRN2019-07-18T14:20:00Z40.8814.327.017.0210106.2129.88189TRUEVFRMETAR72.02019-07-18 14:33:39 LKˆÌLE¯˜8) 5    3EGUW 181420Z 31010KT 9999 SCT030 21/15 Q1009 NOSIG RMK BLU BLUEGUW2019-07-18T14:20:00Z52.120.9721.015.0310106.2129.793306TRUEVFRMETAR87.02019-07-18 14:33:39/¯˜7(e5   3EGNO 181420Z 26016KT 9999 SCT024 19/13 Q1009EGNO2019-07-18T14:20:00Z53.75-2.8819.013.0260166.2129.793306VFRMETAR17.02019-07-18 14:33:396¯˜6(s5   3EGNR 181420Z 24015KT 9999 FEW020 SCT040 20/11 Q1010EGNR2019-07-18T14:20:00Z53.17-2.9720.011.0240156.2129.822834VFRMETAR10.02019-07-18 14:33:39=¯˜5)5   3EGXT 181420Z 27009KT 9999 FEW045 BKN050 21/09 Q1009 RMK BLUEGXT2019-07-18T14:20:00Z52.62-0.4721.09.027096.2129.793306VFRMETAR84.02019-07-18 14:33:39/¯˜4(i5   3EDTL 181420Z 22006KT 170V290 CAVOK 29/10 Q1012EDTL2019-07-18T14:20:00Z48.377.8329.010.022066.2129.88189VFRMETAR156.02019-07-18 14:33:39 9;†¼þ9?¯˜=) 5   3ENNA 181420Z 36007KT CAVOK 14/08 Q1017 RMK WIND 1800FT 13004KTENNA2019-07-18T14:20:00Z70.0724.9714.08.036076.2130.029528VFRMETAR8.02019-07-18 14:33:398¯˜<)5   3LSME 181420Z AUTO VRB02G12KT 9999NDV FEW085 27/08 Q1014 RMKLSME2019-07-18T14:20:00Z47.18.327.08.0021229.940945TRUEMETAR427.02019-07-18 14:33:39D¯˜;)5    3ENGC 181420Z 18035KT 2500 -RA BR BKN003 13/13 Q1002 W12/S5ENGC2019-07-18T14:20:00Z61.022.0213.013.0180351.5529.586615-RA BRLIFRMETAR10.02019-07-18 14:33:39/¯˜:(e5   3EGPI 181420Z 25012KT 9999 FEW024 16/13 Q1005EGPI2019-07-18T14:20:00Z55.68-6.2516.013.0250126.2129.675198VFRMETAR18.02019-07-18 14:33:39?¯˜9(}5    3EGUB 181420Z 28011KT CAVOK 22/10 Q1010 NOSIG RMK BLU BLUEGUB2019-07-18T14:20:00Z51.62-1.0722.010.0280116.2129.822834TRUEVFRMETAR63.02019-07-18 14:33:39 >Sw³ú>6¯˜B(w5   3LSMA 181420Z 05006KT 9999 FEW110 27/11 Q1014 RMK BLU+LSMA2019-07-18T14:20:00Z46.958.2827.011.05066.2129.940945VFRMETAR444.02019-07-18 14:33:393¯˜A(s5   3ENML 181420Z 22008KT 9999 FEW040 SCT150 22/13 Q1005ENML2019-07-18T14:20:00Z62.757.2722.013.022086.2129.675198VFRMETAR3.02019-07-18 14:33:39>¯˜@)5   3LSMD 181420Z 23004KT 150V310 9999 FEW090 27/07 Q1014 RMK BLU+LSMD2019-07-18T14:20:00Z47.48.6527.07.023046.2129.940945VFRMETAR448.02019-07-18 14:33:39V¯˜?)35   3ENMS 181420Z 20010KT 160V230 9999 SCT060 23/08 Q1008 RMK WIND 412FT 15008KT 090V210ENMS2019-07-18T14:20:00Z65.7813.2223.08.0200106.2129.763779VFRMETAR70.02019-07-18 14:33:39'¯˜>([5   3ENNM 181420Z 004011KT CAVOK 24/12 Q1007ENNM2019-07-18T14:20:00Z64.4711.5724.012.04116.2129.734253VFRMETAR2.02019-07-18 14:33:39 Þ=kœÞ8¯˜F(u5    3EKYT 181420Z AUTO 13011KT 9999 FEW120/// 23/12 Q1010EKYT2019-07-18T14:20:00Z57.19.8723.012.0130116.2129.822834TRUEVFRMETAR3.02019-07-18 14:33:39I¯˜E)5    3ENHF 181420Z 07010KT 9999 FEW034 14/09 Q1015 RMK WIND 1254FT 10010KTENHF2019-07-18T14:20:00Z70.6723.6714.09.070106.2129.970472VFR1.0METAR81.02019-07-18 14:33:39L¯˜D)5    3EKBI 181420Z AUTO 14006KT 100V170 9999 BKN046/// BKN190/// 21/14 Q1011EKBI2019-07-18T14:20:00Z55.729.1521.014.014066.2129.852362TRUEVFRMETAR66.02019-07-18 14:33:39=¯˜C)5   3ENKB 181420Z VRB03KT CAVOK 22/10 Q1006 RMK WIND 745FT 36005KTENKB2019-07-18T14:20:00Z63.127.8222.010.0036.2129.704725VFRMETAR62.02019-07-18 14:33:39 *išàF¯˜K)5    3LSGG 181420Z 09005KT 040V130 9999 FEW070 OVC250 28/08 Q1014 NOSIGLSGG2019-07-18T14:20:00Z46.256.1228.08.09056.2129.940945TRUEVFRMETAR416.02019-07-18 14:33:394¯˜J(u5   3LSGS 181420Z 23008KT 170V260 9999 SCT090 30/08 Q1012LSGS2019-07-18T14:20:00Z46.227.3230.08.023086.2129.88189VFRMETAR481.02019-07-18 14:33:39I¯˜I)5    3LSZA 181420Z 18005KT 120V220 9999 FEW050TCU SCT055 29/16 Q1012 NOSIGLSZA2019-07-18T14:20:00Z46.08.9229.016.018056.2129.88189TRUEVFRMETAR276.02019-07-18 14:33:39;¯˜H(5    3LSZB 181420Z VRB02KT 9999 FEW090 SCT200 27/09 Q1014 NOSIGLSZB2019-07-18T14:20:00Z46.927.527.09.0026.2129.940945TRUEVFRMETAR505.02019-07-18 14:33:39P¯˜G)5    3KBCB 181420Z AUTO 27003KT 10SM OVC037 25/22 A3011 RMK AO2 T02500223KBCB2019-07-18T14:20:00Z37.22-80.4225.022.3270310.030.109253TRUETRUEVFRSPECI650.02019-07-18 14:33:39 YLÜY?¯˜P)5    3ENTO 181420Z 17009KT 140V210 9999 SCT022 18/12 Q1012 NOSIGENTO2019-07-18T14:20:00Z59.210.2718.012.017096.2129.88189TRUEVFRMETAR88.02019-07-18 14:33:398¯˜O(u5    3EDDR 181420Z 28007KT 250V310 CAVOK 26/10 Q1012 NOSIGEDDR2019-07-18T14:20:00Z49.227.126.010.028076.2129.88189TRUEVFRMETAR320.02019-07-18 14:33:39-¯˜N(e5   3ENVD 181420Z 07012KT 9999 FEW030 15/09 Q1018ENVD2019-07-18T14:20:00Z70.0729.8515.09.070126.2130.059055VFRMETAR39.02019-07-18 14:33:397¯˜M(u5    3EDDW 181420Z 17005KT 110V220 CAVOK 25/10 Q1010 NOSIGEDDW2019-07-18T14:20:00Z53.038.825.010.017056.2129.822834TRUEVFRMETAR5.02019-07-18 14:33:39.¯˜L(c5    3LSGC 181420Z AUTO VRB04KT CAVOK 21/08 Q1017LSGC2019-07-18T14:20:00Z47.086.821.08.0046.2130.029528TRUEVFRMETAR1027.02019-07-18 14:33:39 /@r´ç/2¯˜U(e5    3EDDE 181420Z 25012KT CAVOK 25/07 Q1012 NOSIGEDDE2019-07-18T14:20:00Z50.9810.9725.07.0250126.2129.88189TRUEVFRMETAR323.02019-07-18 14:33:39G¯˜T)5   3ENSR 181420Z 34008KT CAVOK 14/09 Q1015 RMK WIND 1119FT 05004KT 020V080ENSR2019-07-18T14:20:00Z69.7720.9714.09.034086.2129.970472VFRMETAR6.02019-07-18 14:33:398¯˜S(u5    3EDDG 181420Z 22008KT 170V250 CAVOK 26/10 Q1010 NOSIGEDDG2019-07-18T14:20:00Z52.137.726.010.022086.2129.822834TRUEVFRMETAR52.02019-07-18 14:33:39H¯˜R)5   3ENST 181420Z 36006KT 320V030 CAVOK 22/12 Q1008 RMK WIND 300FT 03006KTENST2019-07-18T14:20:00Z65.9712.4722.012.036066.2129.763779VFRMETAR17.02019-07-18 14:33:39:¯˜Q(u5    3EDDP 181420Z 23009KT 190V260 CAVOK 28/09 Q1011 NOSIGEDDP2019-07-18T14:20:00Z51.4312.2328.09.023096.2129.852362TRUEVFRMETAR149.02019-07-18 14:33:39 d=ˆÝ(d>¯˜Z)5   3ENSH 181420Z 01010KT CAVOK 19/09 Q1011 RMK WIND 150FT 36012KTENSH2019-07-18T14:20:00Z68.2514.6719.09.010106.2129.852362VFRMETAR9.02019-07-18 14:33:39/¯˜Y(e5    3EDDB 181420Z VRB03KT CAVOK 26/08 Q1011 NOSIGEDDB2019-07-18T14:20:00Z52.3813.5326.08.0036.2129.852362TRUEVFRMETAR48.02019-07-18 14:33:39%¯˜X(Y5   3ENSK 181420Z 07012KT CAVOK 15/09 Q1012ENSK2019-07-18T14:20:00Z68.5715.0215.09.070126.2129.88189VFRMETAR3.02019-07-18 14:33:39/¯˜W(e5    3EDDC 181420Z VRB05KT CAVOK 26/08 Q1012 NOSIGEDDC2019-07-18T14:20:00Z51.1313.7526.08.0056.2129.88189TRUEVFRMETAR226.02019-07-18 14:33:39=¯˜V)5   3ENSO 181420Z 15014KT 9999 FEW016 SCT030 BKN060 18/12 Q1006ENSO2019-07-18T14:20:00Z59.785.3318.012.0150146.2129.704725VFRMETAR49.02019-07-18 14:33:39 -Bg¨í-:¯˜_(u5    3EDDS 181420Z 31010KT 230V340 CAVOK 28/08 Q1013 NOSIGEDDS2019-07-18T14:20:00Z48.679.2228.08.0310106.2129.911417TRUEVFRMETAR419.02019-07-18 14:33:395¯˜^(u5   3ENRY 181420Z 21009KT 150V230 9999 FEW020 18/12 Q1012ENRY2019-07-18T14:20:00Z59.3710.7718.012.021096.2129.88189VFRMETAR53.02019-07-18 14:33:399¯˜](u5    3EDDT 181420Z 19005KT 130V240 CAVOK 26/06 Q1011 NOSIGEDDT2019-07-18T14:20:00Z52.5713.3226.06.019056.2129.852362TRUEVFRMETAR37.02019-07-18 14:33:39U¯˜\)35   3ENSG 181420Z 24008KT 200V290 9999 SCT065 SCT150 20/08 Q1007 RMK WIND 3806FT 23012KTENSG2019-07-18T14:20:00Z61.137.1220.08.024086.2129.734253VFRMETAR497.02019-07-18 14:33:398¯˜[(u5    3EDDV 181420Z 24006KT 160V300 CAVOK 27/08 Q1011 NOSIGEDDV2019-07-18T14:20:00Z52.479.6827.08.024066.2129.852362TRUEVFRMETAR54.02019-07-18 14:33:39 aT–ßa7¯˜d(y5   3ENRA 181420Z 16012KT 9999 FEW035TCU SCT080 23/08 Q1009ENRA2019-07-18T14:20:00Z66.3714.323.08.0160126.2129.793306VFRMETAR70.02019-07-18 14:33:39;¯˜c(w5    3EDDM 181420Z 26007KT 9999 FEW070TCU 26/09 Q1013 NOSIGEDDM2019-07-18T14:20:00Z48.3511.8226.09.026076.2129.911417TRUEVFRMETAR447.02019-07-18 14:33:391¯˜b(i5   3ENRO 181420Z 17010KT 130V210 CAVOK 21/07 Q1008ENRO2019-07-18T14:20:00Z62.5711.3321.07.0170106.2129.763779VFRMETAR626.02019-07-18 14:33:398¯˜a(u5    3EDDN 181420Z 25006KT 200V320 CAVOK 27/09 Q1012 NOSIGEDDN2019-07-18T14:20:00Z49.511.0827.09.025066.2129.88189TRUEVFRMETAR312.02019-07-18 14:33:39&¯˜`(Y5   3ENRS 181420Z 03011KT CAVOK 12/09 Q1011ENRS2019-07-18T14:20:00Z67.5212.0812.09.030116.2129.852362VFRMETAR4.02019-07-18 14:33:39 9B{Äø99¯˜i(u5    3EDDH 181420Z 20005KT 110V250 CAVOK 24/11 Q1010 NOSIGEDDH2019-07-18T14:20:00Z53.6310.024.011.020056.2129.822834TRUEVFRMETAR16.02019-07-18 14:33:39F¯˜h)5    3ENOA 181420Z 16039KT 4000 -SHRA BR OVC003 14/13 Q1002 W///S/ENOA2019-07-18T14:20:00Z60.52.8314.013.0160392.4929.586615-SHRA BRLIFRMETAR5.02019-07-18 14:33:391¯˜g(e5    3EDDK 181420Z 34005KT CAVOK 24/13 Q1011 NOSIGEDDK2019-07-18T14:20:00Z50.877.1524.013.034056.2129.852362TRUEVFRMETAR99.02019-07-18 14:33:39A¯˜f)5    3ENOL 181420Z 35010KT 9999 FEW040TCU SCT110 23/12 Q1006 NOSIGENOL2019-07-18T14:20:00Z63.79.5823.012.0350106.2129.704725TRUEVFRMETAR7.02019-07-18 14:33:398¯˜e(u5    3EDDL 181420Z 26008KT 230V300 CAVOK 25/12 Q1011 NOSIGEDDL2019-07-18T14:20:00Z51.36.7725.012.026086.2129.852362TRUEVFRMETAR44.02019-07-18 14:33:39 9w«Ý9¯˜n(u5    3LSZH 181420Z 27004KT 190V360 CAVOK 27/08 Q1014 NOSIGLSZH2019-07-18T14:20:00Z47.488.5327.08.027046.2129.940945TRUEVFRMETAR432.02019-07-18 14:33:39H¯˜m)5   3LSZL 181420Z 25004KT 210V290 9999 FEW040 SCT060CB 28/18 Q1012 RMK BLU+LSZL2019-07-18T14:20:00Z46.178.8828.018.025046.2129.88189VFRMETAR600.02019-07-18 14:33:39F¯˜l) 5    3LSZR 181420Z 05005KT 350V080 9999 FEW060 25/12 Q1014 NOSIG RMK JLSZR2019-07-18T14:20:00Z47.489.5725.012.05056.2129.940945TRUEVFRMETAR398.02019-07-18 14:33:39<¯˜k)5   3LSZS 181420Z 01006KT 320V040 9999 BKN065 18/03 Q1018 RMK RLSZS2019-07-18T14:20:00Z46.539.8818.03.01066.2130.059055VFRMETAR1706.02019-07-18 14:33:39A¯˜j(y5    3KDTL 181420Z AUTO 24005KT 10SM CLR 22/17 A2969 RMK AO2KDTL2019-07-18T14:20:00Z46.82-95.8722.017.0240510.029.68996TRUETRUEVFRMETAR426.02019-07-18 14:33:39 #I•ºà#7¯˜s(s5   3EGAA 181420Z 25014KT 9999 FEW023 BKN029 18/14 Q1007EGAA2019-07-18T14:20:00Z54.63-6.2218.014.0250146.2129.734253MVFRMETAR81.02019-07-18 14:33:39T¯˜r)%5    3EGWU 181420Z 26013KT 9999 FEW045 SCT050 BKN250 22/10 Q1010 NOSIG RMK BLU BLUEGWU2019-07-18T14:20:00Z51.55-0.4222.010.0260136.2129.822834TRUEVFRMETAR40.02019-07-18 14:33:39U¯˜q)%5    3EGVO 181420Z 27011KT 9999 FEW045 SCT140 BKN250 21/11 Q1011 NOSIG RMK BLU BLUEGVO2019-07-18T14:20:00Z51.23-0.9521.011.0270116.2129.852362TRUEVFRMETAR123.02019-07-18 14:33:39.¯˜p(e5   3EGCN 181420Z 26012KT 9999 FEW035 20/10 Q1009EGCN2019-07-18T14:20:00Z53.48-1.020.010.0260126.2129.793306VFRMETAR17.02019-07-18 14:33:391¯˜o(e5    3LSZG 181420Z 25006KT CAVOK 27/09 Q1014 NOSIGLSZG2019-07-18T14:20:00Z47.177.4227.09.025066.2129.940945TRUEVFRMETAR430.02019-07-18 14:33:39 ÌByÀ́n¯˜w)C5      3KHON 181420Z AUTO 12008KT 10SM -RA SCT011 SCT036 BKN120 21/19 A2969 RMK AO2 P0002 T02060194KHON2019-07-18T14:20:00Z44.38-98.2320.619.4120810.029.68996TRUETRUE-RAVFR0.02SPECI390.02019-07-18 14:33:393¯˜v(s5   3ENHE 181420Z 07017KT 9999 FEW005 11/10 Q1008 W///S3ENHE2019-07-18T14:20:00Z65.332.3311.010.070176.2129.763779VFRMETAR1.02019-07-18 14:33:39C¯˜u)5    3ESGR 181420Z AUTO 13006KT 100V160 9999 OVC090/// 22/11 Q1012ESGR2019-07-18T14:20:00Z58.4513.9722.011.013066.2129.88189TRUEVFRMETAR105.02019-07-18 14:33:398¯˜t(s5    3EFKT 181420Z AUTO 13006KT 040V190 CAVOK 18/05 Q1015EFKT2019-07-18T14:20:00Z67.724.8518.05.013066.2129.970472TRUEVFRMETAR643.02019-07-18 14:33:39 ND‰ÆN.¯˜|(e5   3EGPK 181420Z 22015KT 9999 SCT022 17/12 Q1006EGPK2019-07-18T14:20:00Z55.5-4.5717.012.0220156.2129.704725VFRMETAR20.02019-07-18 14:33:39>¯˜{)5    3KHLG 181420Z 00000KT 8SM BKN006 24/22 A3000 RMK AO2 T02390217KHLG2019-07-18T14:20:00Z40.17-80.6523.921.7008.030.0TRUEIFRSPECI372.02019-07-18 14:33:39=¯˜z)5   3EGSH 181420Z 33005KT 250V050 9999 FEW016 SCT026 21/15 Q1009EGSH2019-07-18T14:20:00Z52.681.2821.015.033056.2129.793306VFRMETAR36.02019-07-18 14:33:395¯˜y(u5   3EGTE 181420Z 28009KT 230V320 9999 SCT042 20/10 Q1012EGTE2019-07-18T14:20:00Z50.72-3.4220.010.028096.2129.88189VFRMETAR30.02019-07-18 14:33:396¯˜x(u5   3EGAC 181420Z 25010KT 230V300 9999 FEW027 18/13 Q1007EGAC2019-07-18T14:20:00Z54.62-5.8718.013.0250106.2129.734253VFRMETAR5.02019-07-18 14:33:39 &o›éG¯™) 5    3EGPA 181420Z 19008KT 160V230 9999 VCSH FEW005 SCT016 16/13 Q1001EGPA2019-07-18T14:20:00Z58.95-2.8816.013.019086.2129.557087VCSHVFRMETAR21.02019-07-18 14:33:39,¯™(e5   3EGPB 181420Z 22006KT 9999 FEW001 15/13 Q1001EGPB2019-07-18T14:20:00Z59.87-1.315.013.022066.2129.557087VFRMETAR5.02019-07-18 14:33:39N¯˜)5    3EGPD 181420Z 15008KT 120V180 9999 4500S VCSH FEW020CB SCT043 17/14 Q1002EGPD2019-07-18T14:20:00Z57.2-2.2217.014.015086.2129.586615VCSHVFRMETAR65.02019-07-18 14:33:391¯˜~(k5   3EGPH 181420Z 25015KT 9999 SCT024TCU 19/12 Q1004EGPH2019-07-18T14:20:00Z55.95-3.3519.012.0250156.2129.64567VFRMETAR41.02019-07-18 14:33:39T¯˜})%5    3KAGC 181420Z 00000KT 10SM SCT013 BKN018 BKN023 26/22 A2999 RMK AO2 T02560222KAGC2019-07-18T14:20:00Z40.35-79.9225.622.20010.029.991142TRUEMVFRSPECI389.02019-07-18 14:33:39 7KƒË 7P¯™)5   3KPZQ 181420Z AUTO 20009G17KT 10SM CLR 26/18 A2985 RMK AO2 T02560182KPZQ2019-07-18T14:20:00Z45.4-83.8225.618.220091710.029.84941TRUETRUEVFRSPECI204.02019-07-18 14:33:398¯™(q5    3ELLX 181420Z 28013KT 9999 FEW035 22/11 Q1013 NOSIGELLX2019-07-18T14:20:00Z49.636.222.011.0280136.2129.911417TRUEVFRMETAR379.02019-07-18 14:33:392¯™(i5   3EDMO 181420Z 27011KT 230V320 CAVOK 25/10 Q1014EDMO2019-07-18T14:20:00Z48.0711.2725.010.0270116.2129.940945VFRMETAR600.02019-07-18 14:33:39B¯™(5    3VNKT 181420Z 20004KT 7000 FEW015 SCT030 24/22 Q1010 NOSIGVNKT2019-07-18T14:20:00Z27.6885.3724.022.020044.3529.822834TRUEMVFRSPECI1337.02019-07-18 14:33:39/¯™(e5   3EGNX 181420Z 28011KT 9999 BKN048 19/10 Q1009EGNX2019-07-18T14:20:00Z52.82-1.3219.010.0280116.2129.793306VFRMETAR94.02019-07-18 14:33:39 uSé-u2¯™ (e5    3EBLG 181420Z 28010KT CAVOK 23/10 Q1012 NOSIGEBLG2019-07-18T14:20:00Z50.635.4523.010.0280106.2129.88189TRUEVFRMETAR178.02019-07-18 14:33:396¯™ (q5    3EBOS 181420Z 23015KT 9999 BKN022 20/14 Q1012 NOSIGEBOS2019-07-18T14:20:00Z51.22.8720.014.0230156.2129.88189TRUEMVFRMETAR5.02019-07-18 14:33:39.¯™ (i5   3EDLN 181420Z 26008KT 220V310 CAVOK 24/13 Q1011EDLN2019-07-18T14:20:00Z51.236.524.013.026086.2129.852362VFRMETAR38.02019-07-18 14:33:390¯™(i5   3EDVK 181420Z 30005KT 230V010 CAVOK 24/11 Q1011EDVK2019-07-18T14:20:00Z51.389.3724.011.030056.2129.852362VFRMETAR285.02019-07-18 14:33:39'¯™(Y5   3EDXW 181420Z 24008KT CAVOK 21/14 Q1011EDXW2019-07-18T14:20:00Z54.928.3321.014.024086.2129.852362VFRMETAR20.02019-07-18 14:33:39 Â:pŒÂD¯™)5    3EGAE 181420Z 27018KT 9999 -SHRA FEW018TCU SCT025 18/13 Q1006EGAE2019-07-18T14:20:00Z55.03-7.1518.013.0270186.2129.704725-SHRAVFRMETAR9.02019-07-18 14:33:39^¯™)'5   3KUTS 181420Z AUTO 20012G17KT 10SM BKN014 BKN021 28/24 A3006 RMK AO2 T02830244KUTS2019-07-18T14:20:00Z30.75-95.5828.324.4200121710.030.059055TRUETRUEMVFRSPECI104.02019-07-18 14:33:39D¯™ )5    3EBBR 181420Z 25008KT 220V280 9999 FEW040 SCT044 22/13 Q1012 NOSIGEBBR2019-07-18T14:20:00Z50.94.522.013.025086.2129.88189TRUEVFRMETAR58.02019-07-18 14:33:39@¯™ )5    3EBCI 181420Z 25008KT 200V300 9999 FEW030 23/12 Q1012 NOSIGEBCI2019-07-18T14:20:00Z50.474.4523.012.025086.2129.88189TRUEVFRMETAR192.02019-07-18 14:33:39 FEb²öF*¯™(Y5   3LGMK 181420Z 35019KT CAVOK 27/13 Q1010LGMK2019-07-18T14:20:00Z37.4325.3527.013.0350196.2129.822834VFRMETAR123.02019-07-18 14:33:396¯™(u5   3LIEA 181420Z 24012KT 220V280 9999 FEW030 29/22 Q1013LIEA2019-07-18T14:20:00Z40.628.2729.022.0240126.2129.911417VFRMETAR23.02019-07-18 14:33:39*¯™(e5   3LIEE 181420Z VRB04KT 9999 FEW035 32/14 Q1011LIEE2019-07-18T14:20:00Z39.259.0732.014.0046.2129.852362VFRMETAR4.02019-07-18 14:33:39]¯™)?5   3EGDR 181420Z 24010KT 9999 FEW024 SCT050 BKN120 18/13 Q1014 TEMPO SCT024 RMK BLU TEMPO WHTEGDR2019-07-18T14:20:00Z50.08-5.2518.013.0240106.2129.940945VFRMETAR82.02019-07-18 14:33:395¯™(u5   3EGBJ 181420Z 25007KT 210V290 9999 FEW038 20/12 Q1010EGBJ2019-07-18T14:20:00Z51.9-2.1720.012.025076.2129.822834VFRMETAR29.02019-07-18 14:33:39 Q·æK¯™)5    3LZTT 181419Z 15007KT 130V190 9999 -TSRA SCT042 SCT050CB 19/09 Q1015LZTT2019-07-18T14:19:00Z49.0720.2519.09.015076.2129.970472-TSRAVFRSPECI707.02019-07-18 14:33:39K¯™) 5    3KTEW 181419Z AUTO 00000KT 10SM CLR 27/23 A2994 RMK AO2 T02650226KTEW2019-07-18T14:19:00Z42.57-84.4226.522.60010.029.940945TRUETRUEVFRMETAR280.02019-07-18 14:33:39`¯™)35    3KTDR 181419Z AUTO 00000KT 10SM SCT017 BKN055 32/25 A3010 RMK AO2 LTG DSNT S SLPNO $KTDR2019-07-18T14:19:00Z30.05-85.5232.025.00010.030.100393TRUETRUETRUEVFRSPECI5.02019-07-18 14:33:39.¯™(e5   3LGBL 181420Z 11010KT 9999 FEW030 29/16 Q1011LGBL2019-07-18T14:20:00Z39.2222.829.016.0110106.2129.852362VFRMETAR26.02019-07-18 14:33:39)¯™(Y5   3LGKP 181420Z 32023KT CAVOK 27/18 Q1008LGKP2019-07-18T14:20:00Z35.4227.1527.018.0320236.2129.763779VFRMETAR20.02019-07-18 14:33:39 ¶D~¶B¯™(y5    3KDXX 181419Z AUTO 18004KT 10SM CLR 26/20 A2970 RMK AO2KDXX2019-07-18T14:19:00Z44.98-96.1826.020.0180410.029.698818TRUETRUEVFRMETAR330.02019-07-18 14:33:39@¯™(5    3PASI 181419Z 00000KT 4SM -RA BR SCT005 OVC019 13/13 A2973PASI2019-07-18T14:19:00Z57.07-135.3513.013.0004.029.731298-RA BRMVFRSPECI5.02019-07-18 14:33:39T¯™)5    3KAUM 181419Z AUTO 15010KT 10SM BKN016 24/19 A2974 RMK AO2 LTG DSNT SEKAUM2019-07-18T14:19:00Z43.67-92.9224.019.01501010.029.740158TRUETRUEMVFRSPECI375.02019-07-18 14:33:39\¯™)/5    3KDRM 181419Z AUTO 15007KT 10SM SCT037 SCT044 BKN065 21/15 A2985 RMK AO2 T02120152KDRM2019-07-18T14:19:00Z46.0-83.7521.215.2150710.029.84941TRUETRUEVFRSPECI204.02019-07-18 14:33:39 :t¦à>¯™"(}5    3EGXW 181419Z 28010KT CAVOK 20/09 Q1008 NOSIG RMK BLU BLUEGXW2019-07-18T14:19:00Z53.18-0.5220.09.0280106.2129.763779TRUEVFRMETAR70.02019-07-18 14:33:39@¯™!(y5    3KLJF 181419Z AUTO 28004KT 10SM CLR 27/23 A2971 RMK AO2KLJF2019-07-18T14:19:00Z45.1-94.5227.023.0280410.029.71063TRUETRUEVFRMETAR348.02019-07-18 14:33:39H¯™ ) 5    3KAVP 181419Z 00000KT 2SM -RA BR SCT005 BKN010 OVC019 24/23 A2994KAVP2019-07-18T14:19:00Z41.33-75.7224.023.0002.029.940945-RA BRIFRSPECI291.02019-07-18 14:33:39@¯™)5   3KMKG 181419Z 25008KT 10SM SCT009 BKN023 BKN100 25/22 A2991KMKG2019-07-18T14:19:00Z43.17-86.2325.022.0250810.029.911417MVFRSPECI191.02019-07-18 14:33:39@¯™(y5    3KCQM 181419Z AUTO 00000KT 10SM CLR 21/20 A2965 RMK AO2KCQM2019-07-18T14:19:00Z47.82-92.6821.020.00010.029.648623TRUETRUEVFRSPECI404.02019-07-18 14:33:39 \6d>\\¯™&)'5    3CWHN 181418Z AUTO 04003KT 350V080 9SM FEW004 FEW015 FEW025 FEW036 16/16 A2948CWHN2019-07-18T14:18:00Z54.88-109.9716.016.04039.029.480314TRUEFEW3600VFRSPECI636.02019-07-18 14:33:39‚ ¯™%)‚35     3KPBI 181418Z 13012KT 10SM TS SCT028CB SCT035 SCT250 31/23 A3010 RMK AO2 LTG DSNT ALQDS TSB16 OCNL LTGICCG SW TS SW MOV NW CB DSNT ALQDS T03060233 $KPBI2019-07-18T14:18:00Z26.68-80.130.623.31301210.030.100393TRUETRUETSVFRSPECI6.02019-07-18 14:33:39L¯™$) 5    3KOSC 181418Z AUTO 19005KT 10SM CLR 24/17 A2989 RMK AO2 T02410174KOSC2019-07-18T14:18:00Z44.45-83.424.117.4190510.029.890747TRUETRUEVFRSPECI193.02019-07-18 14:33:39D¯™#)5    3KSLI 181419Z 23003KT 10SM OVC015 19/15 A2998 RMK AO2A SLPNOKSLI2019-07-18T14:19:00Z33.77-118.0319.015.0230310.029.97933TRUEMVFRSPECI11.02019-07-18 14:33:39  9g A¯™*(y5    3KOWX 181417Z AUTO 21009KT 10SM CLR 26/22 A2998 RMK AO1KOWX2019-07-18T14:17:00Z41.03-83.9826.022.0210910.029.97933TRUETRUEVFRSPECI233.02019-07-18 14:33:39L¯™)) 5    3KOXD 181417Z AUTO 24003KT 10SM CLR 29/26 A2999 RMK AO2 T02870255KOXD2019-07-18T14:17:00Z39.5-84.7828.725.5240310.029.991142TRUETRUEVFRMETAR317.02019-07-18 14:33:39S¯™()5   3KDZB 181417Z AUTO 20008G15KT 10SM BKN021 BKN026 28/22 A3005 RMK AO2KDZB2019-07-18T14:17:00Z30.53-98.3728.022.020081510.030.050198TRUETRUEMVFRMETAR334.02019-07-18 14:33:39h¯™')K5    3RJOS 181417Z 16005KT 8000 -SHRA FEW008 SCT015 OVC030 22/22 Q1012 RMK 2ST008 3CU015 8CU030 A2991RJOS2019-07-18T14:17:00Z34.12134.6222.022.016054.9729.88189-SHRAMVFRSPECI11.02019-07-18 14:33:39 m :mG¯™.) 5    3KCIR 181415Z AUTO 20007KT 10SM CLR 24/23 A3000 RMK AO2 T02420228KCIR2019-07-18T14:15:00Z37.07-89.2224.222.8200710.030.0TRUETRUEVFRMETAR98.02019-07-18 14:33:39K¯™-) 5    3KTOC 181415Z AUTO 25007KT 10SM CLR 30/22 A3007 RMK AO2 T03020222KTOC2019-07-18T14:15:00Z34.6-83.330.222.2250710.030.070866TRUETRUEVFRSPECI304.02019-07-18 14:33:39‚¯™,)‚5    3RJTL 181415Z 21004KT 170V270 5000 +SHRA BR SCT010 BKN020 FEW020CB 25/24 Q1013 RMK 3ST010 7CU020 2CB020 A2992 CB OHD MOV NERJTL2019-07-18T14:15:00Z35.78140.0225.024.021043.1129.911417+SHRA BRMVFRSPECI33.02019-07-18 14:33:39b¯™+)/5   3KFKA 181416Z AUTO 16016G20KT 10SM OVC025 22/19 A2976 RMK AO2 LTG DSNT E T02150191KFKA2019-07-18T14:16:00Z43.68-92.1721.519.1160162010.029.760826TRUETRUEMVFRMETAR389.02019-07-18 14:33:39 Ô9h¨ÔN¯™2)5    3KCTY 181415Z AUTO 14003KT 10SM SCT010 30/27 A3011 RMK AO2 T02970268KCTY2019-07-18T14:15:00Z29.63-83.129.726.8140310.030.109253TRUETRUEVFRMETAR13.02019-07-18 14:33:39:¯™1(w5   3KCVC 181415Z AUTO 27005KT CLR 30/23 A3009 RMK AO2 PNOKCVC2019-07-18T14:15:00Z33.63-83.8530.023.0270530.088583TRUETRUEMETAR247.02019-07-18 14:33:39K¯™0) 5    3KCXE 181415Z AUTO 27007KT 10SM CLR 29/22 A2998 RMK AO1 T02850221KCXE2019-07-18T14:15:00Z36.78-78.528.522.1270710.029.97933TRUETRUEVFRMETAR153.02019-07-18 14:33:39A¯™/(y5    3KDBN 181415Z AUTO 28004KT 10SM CLR 32/21 A3010 RMK AO2KDBN2019-07-18T14:15:00Z32.57-82.9832.021.0280410.030.100393TRUETRUEVFRMETAR94.02019-07-18 14:33:39 Ä,T‚ā8¯™6(u5    3LIRP 181415Z 27008KT 230V290 CAVOK 28/17 Q1012 NOSIGLIRP2019-07-18T14:15:00Z43.6710.3728.017.027086.2129.88189TRUEVFRMETAR2.02019-07-18 14:33:39L¯™5) 5    3KCKF 181415Z AUTO 28005KT 10SM CLR 30/23 A3010 RMK AO2 T03010226KCKF2019-07-18T14:15:00Z31.98-83.7730.122.6280510.030.100393TRUETRUEVFRMETAR91.02019-07-18 14:33:39R¯™4)5   3KCOM 181415Z AUTO 19015G18KT 10SM CLR 27/20 A3004 RMK AO2 T02700195KCOM2019-07-18T14:15:00Z31.83-99.427.019.5190151810.030.041338TRUETRUEVFRMETAR517.02019-07-18 14:33:39N¯™3) 5    3KCQB 181415Z AUTO 20010KT 10SM CLR 29/23 A2996 RMK AO2 T02890228KCQB2019-07-18T14:15:00Z35.72-96.8228.922.82001010.029.958662TRUETRUEVFRMETAR300.02019-07-18 14:33:39 Â&S€Â8¯™:(}5     3CMGB 181415Z AUTO 02002KT 23/ RMK AO1 SLP159 T0226 58004CMGB2019-07-18T14:15:00Z45.37-72.7722.62021015.9TRUETRUE-0.4METAR86.02019-07-18 14:33:39M¯™9) 5    3KHSG 181415Z AUTO 07003KT 10SM CLR 24/09 A2988 RMK AO2 T02380093KHSG2019-07-18T14:15:00Z43.72-108.3823.89.370310.029.878937TRUETRUEVFRMETAR1494.02019-07-18 14:33:39M¯™8) 5    3KJCA 181415Z AUTO 23009KT 10SM CLR 27/24 A3009 RMK AO2 T02720237KJCA2019-07-18T14:15:00Z34.18-83.5727.223.7230910.030.088583TRUETRUEVFRSPECI290.02019-07-18 14:33:39T¯™7)!5    3KY49 181415Z AUTO 00000KT 10SM SCT070 SCT080 20/18 A2967 RMK AO2 T01980182KY492019-07-18T14:15:00Z47.13-94.6519.818.20010.029.66929TRUETRUEVFRMETAR416.02019-07-18 14:33:39 ±%W„±M¯™>) 5    3KGBG 181415Z AUTO 23008KT 10SM CLR 27/23 A2986 RMK AO2 T02670225KGBG2019-07-18T14:15:00Z40.93-90.4326.722.5230810.029.861221TRUETRUEVFRMETAR233.02019-07-18 14:33:39M¯™=) 5    3KGGP 181415Z AUTO 23006KT 10SM SCT055 SCT070 27/24 A2995 RMK AO2KGGP2019-07-18T14:15:00Z40.72-86.3727.024.0230610.029.949802TRUETRUEVFRMETAR225.02019-07-18 14:33:39H¯™<) 5    3KGHG 181415Z AUTO VRB05KT 10SM BKN008 OVC011 21/20 A2997 RMK AO2KGHG2019-07-18T14:15:00Z42.1-70.6721.020.00510.029.970472TRUETRUEIFRMETAR4.02019-07-18 14:33:39U¯™;)5   3KGIC 181415Z AUTO 25011G17KT 10SM SCT055 OVC080 17/10 A2993 RMK AO1KGIC2019-07-18T14:15:00Z45.95-116.1217.010.0250111710.029.929134TRUETRUEVFRMETAR1009.02019-07-18 14:33:39 É-]›ÉL¯™B)5   3KF44 181415Z AUTO 19008G14KT 10SM OVC014 27/23 A3004 RMK AO2KF442019-07-18T14:15:00Z32.17-95.8327.023.019081410.030.041338TRUETRUEMVFRMETAR135.02019-07-18 14:33:39<¯™A(y5    3KF70 181415Z AUTO 00000KT 10SM CLR 17/14 A3000 RMK AO1KF702019-07-18T14:15:00Z33.57-117.1317.014.00010.030.0TRUETRUEVFRMETAR412.02019-07-18 14:33:39J¯™@) 5    3KFKN 181415Z AUTO 21005KT 10SM CLR 30/25 A2996 RMK AO2 T02960246KFKN2019-07-18T14:15:00Z36.7-76.929.624.6210510.029.958662TRUETRUEVFRMETAR12.02019-07-18 14:33:39M¯™?) 5    3KFVX 181415Z AUTO 23005KT 10SM CLR 29/23 A2994 RMK AO2 T02910232KFVX2019-07-18T14:15:00Z37.35-78.4229.123.2230510.029.940945TRUETRUEVFRMETAR125.02019-07-18 14:33:39 ©'K}©N¯™F)5    3KELA 181415Z AUTO 16005KT 10SM SCT018 30/27 A3005 RMK AO2 T02990265KELA2019-07-18T14:15:00Z29.6-96.3229.926.5160510.030.050198TRUETRUEVFRMETAR56.02019-07-18 14:33:39H¯™E(5   3KEQA 181415Z AUTO 21015G24KT 10SM CLR 30/21 A2987 RMK AO2KEQA2019-07-18T14:15:00Z37.78-96.8230.021.0210152410.029.870079TRUETRUEVFRMETAR420.02019-07-18 14:33:39V¯™D)!5    3KEZF 181415Z AUTO 21005KT 10SM BKN065 BKN070 30/25 A2991 RMK AO2 T03030246KEZF2019-07-18T14:15:00Z38.27-77.4530.324.6210510.029.911417TRUETRUEVFRMETAR26.02019-07-18 14:33:39S¯™C)5   3KEZZ 181415Z AUTO 21017G24KT 10SM CLR 29/22 A2987 RMK AO2 T02850224KEZZ2019-07-18T14:15:00Z39.72-94.2828.522.4210172410.029.870079TRUETRUEVFRMETAR317.02019-07-18 14:33:39 «,V„«S¯™J)5   3KE11 181415Z AUTO 20012G19KT 10SM CLR 27/16 A3002 RMK AO2 T02730160KE112019-07-18T14:15:00Z32.33-102.5327.316.0200121910.030.02067TRUETRUEVFRMETAR967.02019-07-18 14:33:39L¯™I) 5    3KEBA 181415Z AUTO 29007KT 10SM CLR 30/24 A3008 RMK AO2 T02950235KEBA2019-07-18T14:15:00Z34.1-82.8229.523.5290710.030.079725TRUETRUEVFRMETAR184.02019-07-18 14:33:39P¯™H)5   3KEBG 181415Z AUTO 17010G15KT 10SM SCT021 30/24 A3000 RMK AO2 T03040238KEBG2019-07-18T14:15:00Z26.45-98.1330.423.8170101510.030.0TRUETRUEVFRMETAR24.02019-07-18 14:33:39N¯™G) 5    3KEHA 181415Z AUTO 23015KT 10SM CLR 28/18 A2991 RMK AO2 T02800182KEHA2019-07-18T14:15:00Z37.0-101.928.018.22301510.029.911417TRUETRUEVFRMETAR1099.02019-07-18 14:33:39 É;`‚Ɂ3¯™N(m5     3KDCY 181415Z AUTO 25004KT 10SM CLR A2999 RMK AO2KDCY2019-07-18T14:15:00Z38.7-87.13250410.029.991142TRUETRUEVFRMETAR144.02019-07-18 14:33:39X¯™M)%5     3KDRI 181415Z AUTO 00000KT 4SM BR SCT006 SCT011 28/27 A3010 RMK AO2 T02800271KDRI2019-07-18T14:15:00Z30.83-93.3328.027.1004.030.100393TRUETRUEBRMVFRMETAR63.02019-07-18 14:33:39U¯™L)5   3KDUX 181415Z AUTO 19014G20KT 10SM CLR 27/16 A2997 RMK AO2 T02690156KDUX2019-07-18T14:15:00Z35.85-102.0226.915.6190142010.029.970472TRUETRUEVFRMETAR1129.02019-07-18 14:33:39?¯™K(y5    3KDVO 181415Z AUTO 00000KT 10SM CLR 15/13 A2992 RMK AO2KDVO2019-07-18T14:15:00Z38.15-122.5515.013.00010.029.920275TRUETRUEVFRMETAR1.02019-07-18 14:33:39 šCsšS¯™R)5   3KPPA 181415Z AUTO 19020G25KT 10SM CLR 28/17 A2996 RMK AO2 T02820165KPPA2019-07-18T14:15:00Z35.62-101.028.216.5190202510.029.958662TRUETRUEVFRSPECI989.02019-07-18 14:33:39J¯™Q) 5    3KRLD 181415Z AUTO 00000KT 10SM CLR 20/13 A2990 RMK AO2 T02040129KRLD2019-07-18T14:15:00Z46.3-119.320.412.90010.029.899607TRUETRUEVFRSPECI120.02019-07-18 14:33:39T¯™P)5   3KSWW 181415Z AUTO 18017G25KT 10SM CLR 27/20 A3003 RMK AO2 T02730201KSWW2019-07-18T14:15:00Z32.47-100.4727.320.1180172510.030.029528TRUETRUEVFRSPECI727.02019-07-18 14:33:39]¯™O)'5   3KT20 181415Z AUTO 17009G14KT 10SM BKN011 BKN017 28/26 A3004 RMK AO2 T02840258KT202019-07-18T14:15:00Z29.52-97.4728.425.817091410.030.041338TRUETRUEMVFRSPECI108.02019-07-18 14:33:39 È:f‘ȁC¯™V(y5    3KTSP 181415Z AUTO 13003KT 10SM CLR 15/08 A3008 RMK AO2KTSP2019-07-18T14:15:00Z35.13-118.4315.08.0130310.030.079725TRUETRUEVFRSPECI1220.02019-07-18 14:33:39O¯™U)5    3KIKG 181415Z AUTO 14009KT 10SM SCT022 30/26 A3001 RMK AO2 T03010255KIKG2019-07-18T14:15:00Z27.55-98.0330.125.5140910.030.008858TRUETRUEVFRSPECI40.02019-07-18 14:33:39N¯™T) 5    3KONM 181415Z AUTO 15006KT 10SM CLR 24/11 A3013 RMK AO2 T02420111KONM2019-07-18T14:15:00Z34.02-106.924.211.1150610.030.129921TRUETRUEVFRSPECI1410.02019-07-18 14:33:39@¯™S(y5    3KPNA 181415Z AUTO 28003KT 10SM CLR 13/06 A3015 RMK AO2KPNA2019-07-18T14:15:00Z42.8-109.813.06.0280310.030.15059TRUETRUEVFRSPECI2160.02019-07-18 14:33:39 µ-fµT¯™Z)5   3KEAN 181415Z AUTO 24010G14KT 10SM CLR 25/06 A2994 RMK AO2 T02520061KEAN2019-07-18T14:15:00Z42.05-104.9325.26.1240101410.029.940945TRUETRUEVFRMETAR1456.02019-07-18 14:33:39Q¯™Y)5    3KT82 181415Z AUTO 21009KT 10SM OVC021 26/20 A3007 RMK AO2 T02590198KT822019-07-18T14:15:00Z30.25-98.9225.919.8210910.030.070866TRUETRUEMVFRSPECI517.02019-07-18 14:33:39A¯™X(y5    3KTEX 181415Z AUTO 14004KT 10SM CLR 15/00 A3046 RMK AO2KTEX2019-07-18T14:15:00Z37.95-107.915.00.0140410.030.46063TRUETRUEVFRSPECI2769.02019-07-18 14:33:39M¯™W) 5    3KTMT 181415Z AUTO 23003KT 10SM CLR 15/01 A3014 RMK AO2 T01480011KTMT2019-07-18T14:15:00Z39.47-117.214.81.1230310.030.138779TRUETRUEVFRMETAR1748.02019-07-18 14:33:39 ¤ Px¤N¯™^) 5    3KPPQ 181415Z AUTO 22013KT 10SM CLR 28/25 A2991 RMK AO2 T02800245KPPQ2019-07-18T14:15:00Z39.63-90.7828.024.52201310.029.911417TRUETRUEVFRSPECI216.02019-07-18 14:33:39R¯™])5   3KTAZ 181415Z AUTO 23009G15KT 10SM CLR 27/23 A2995 RMK AO2 T02670233KTAZ2019-07-18T14:15:00Z39.53-89.3326.723.323091510.029.949802TRUETRUEVFRSPECI190.02019-07-18 14:33:395¯™\(m5     3KRAW 181415Z AUTO 22015KT 10SM CLR A2993 RMK AO2KRAW2019-07-18T14:15:00Z38.35-93.352201510.029.929134TRUETRUEVFRMETAR285.02019-07-18 14:33:39o¯™[)K5   3KARV 181415Z AUTO 24012G15KT 10SM SCT048 SCT065 25/21 A2974 RMK AO2 LTG DSNT W AND NW T02500208KARV2019-07-18T14:15:00Z45.92-89.7225.020.8240121510.029.740158TRUETRUEVFRSPECI496.02019-07-18 14:33:39 §4bx§K¯™b) 5    3KCPC 181415Z AUTO 22007KT 10SM CLR 29/23 A3002 RMK AO2 T02930229KCPC2019-07-18T14:15:00Z34.28-78.7229.322.9220710.030.02067TRUETRUEVFRMETAR29.02019-07-18 14:33:39d¯™a)35      3KHTO 181415Z AUTO 00000KT 7SM -RA BKN004 OVC009 23/22 A2993 RMK AO2 P0001 T02300224KHTO2019-07-18T14:15:00Z40.95-72.2523.022.4007.029.929134TRUETRUE-RALIFR0.01SPECI17.02019-07-18 14:33:39L¯™`) 5    3KMLE 181415Z AUTO 21005KT 10SM CLR 29/23 A2976 RMK AO2 T02900225KMLE2019-07-18T14:15:00Z41.2-96.1229.022.5210510.029.760826TRUETRUEVFRSPECI320.02019-07-18 14:33:39F¯™_(}5   3KGLY 181415Z AUTO 21010G18KT 8SM CLR 29/24 A2992 RMK AO2KGLY2019-07-18T14:15:00Z38.35-93.6829.024.021010188.029.920275TRUETRUEVFRMETAR251.02019-07-18 14:33:39 o96EoP¯™f)5    3LHKE 181415Z 14004KT 9999 FEW043 BKN053 BKN083 20/14 Q1013 NOSIG RMK BLULHKE2019-07-18T14:15:00Z46.9219.7520.014.014046.2129.911417TRUEVFRMETAR115.02019-07-18 14:33:39k¯™e)I5    3KVYS 181415Z AUTO 06006KT 10SM SCT018 OVC024 22/21 A2991 RMK AO2 LTG DSNT NE THRU SE T02240212KVYS2019-07-18T14:15:00Z41.35-89.1522.421.260610.029.911417TRUETRUEMVFRSPECI199.02019-07-18 14:33:39}¯™d)_5      3KC09 181415Z AUTO 05005KT 4SM TSRA SCT019 BKN024 OVC065 22/22 A2992 RMK AO2 LTG DSNT ALQS P0006 T02240221KC092019-07-18T14:15:00Z41.43-88.4222.422.15054.029.920275TRUETRUETSRAMVFR0.06SPECI178.02019-07-18 14:33:39A¯™c(y5    3KBWP 181415Z AUTO 22003KT 10SM CLR 22/16 A2967 RMK AO1KBWP2019-07-18T14:15:00Z46.25-96.6222.016.0220310.029.66929TRUETRUEVFRMETAR295.02019-07-18 14:33:39 ÈAlÈB¯™j(}5    3KEBS 181415Z AUTO 33004KT 9SM FEW120 26/25 A2971 RMK AO2KEBS2019-07-18T14:15:00Z42.42-93.8726.025.033049.029.71063TRUETRUEVFRMETAR342.02019-07-18 14:33:39V¯™i)!5    3KCBE 181415Z AUTO 01003KT 10SM SCT039 OVC050 26/23 A2999 RMK AO2 T02570235KCBE2019-07-18T14:15:00Z39.62-78.7725.723.510310.029.991142TRUETRUEVFRMETAR236.02019-07-18 14:33:39O¯™h)5     3KW43 181415Z AUTO 12003KT 10SM CLR 21/17 A2986 RMK AO2 PWINOKW432019-07-18T14:15:00Z44.67-104.5721.017.0120310.029.861221TRUETRUETRUEVFRSPECI1300.02019-07-18 14:33:399¯™g(q5    3LMML 181415Z 28011KT 9999 FEW023 28/18 Q1013 NOSIGLMML2019-07-18T14:15:00Z35.8514.4728.018.0280116.2129.911417TRUEVFRMETAR91.02019-07-18 14:33:39 Ã3]…Á<¯™n(q5   3KFWZ 181415Z AUTO 21006KT 10SM 16/02 A3013 RMK AO2KFWZ2019-07-18T14:15:00Z42.52-108.7816.02.0210610.030.129921TRUETRUESPECI2588.02019-07-18 14:33:39R¯™m)5   3KGDJ 181415Z AUTO 17012G17KT 10SM CLR 28/21 A3002 RMK AO2 T02820208KGDJ2019-07-18T14:15:00Z32.45-97.8228.220.8170121710.030.02067TRUETRUEVFRSPECI237.02019-07-18 14:33:39P¯™l) 5    3KGNC 181415Z AUTO 20013KT 10SM CLR 27/15 A3005 RMK AO2 T02700149KGNC2019-07-18T14:15:00Z32.68-102.6527.014.92001310.030.050198TRUETRUEVFRSPECI1010.02019-07-18 14:33:39G¯™k) 5    3KCTZ 181415Z AUTO 22005KT 10SM CLR 31/24 A3000 RMK AO2 T03080243KCTZ2019-07-18T14:15:00Z34.98-78.3730.824.3220510.030.0TRUETRUEVFRMETAR45.02019-07-18 14:33:39 ”6gœ”‚¯™r)e5      3KDKB 181415Z AUTO 09007KT 3SM /VCTSRA SCT003 SCT008 OVC011 22/22 A2993 RMK AO2 LTG DSNT ALQS P0007 T02170217KDKB2019-07-18T14:15:00Z41.93-88.721.721.79073.029.929134TRUETRUEVCTS RAMVFR0.07SPECI279.02019-07-18 14:33:39E¯™q({5    3KDTA 181415Z AUTO 17016KT 10SM CLR 25/M02 A3007 RMK AO1KDTA2019-07-18T14:15:00Z39.38-112.525.0-2.01701610.030.070866TRUETRUEVFRSPECI1402.02019-07-18 14:33:39I¯™p(5   3KDUB 181415Z AUTO 30013G23KT 10SM CLR 19/03 A3006 RMK AO2KDUB2019-07-18T14:15:00Z43.55-109.6819.03.0300132310.030.059055TRUETRUEVFRSPECI2224.02019-07-18 14:33:39D¯™o(y5    3KEMM 181415Z AUTO 24010KT 10SM CLR 17/02 A3017 RMK AO2KEMM2019-07-18T14:15:00Z41.82-110.5517.02.02401010.030.171259TRUETRUEVFRSPECI2220.02019-07-18 14:33:39 µX‘µV¯™v)+5    3LHSN 181415Z 23004KT 9999 FEW030 SCT050 BKN083 19/17 Q1014 RESHRA NOSIG RMK BLULHSN2019-07-18T14:15:00Z47.1220.2319.017.023046.2129.940945TRUEVFRMETAR98.02019-07-18 14:33:39A¯™u(y5    3KAFO 181415Z AUTO 00000KT 10SM CLR 12/06 A3011 RMK AO2KAFO2019-07-18T14:15:00Z42.72-110.9512.06.00010.030.109253TRUETRUEVFRSPECI1897.02019-07-18 14:33:39>¯™t({5    3KBKD 181415Z AUTO 7SM CLR 28/20 A2999 RMK AO2 T02820199KBKD2019-07-18T14:15:00Z32.72-98.8828.219.97.029.991142TRUETRUEVFRSPECI392.02019-07-18 14:33:39^¯™s)'5   3KCVB 181415Z AUTO 15010G14KT 10SM BKN016 BKN023 28/22 A3005 RMK AO2 T02790217KCVB2019-07-18T14:15:00Z29.35-98.8527.921.7150101410.030.050198TRUETRUEMVFRSPECI235.02019-07-18 14:33:39 À3aÀG¯™z(5   3KMYZ 181415Z AUTO 18009G14KT 10SM CLR 28/22 A2980 RMK AO2KMYZ2019-07-18T14:15:00Z39.85-96.6328.022.018091410.029.799213TRUETRUEVFRSPECI319.02019-07-18 14:33:40N¯™y) 5    3KIDP 181415Z AUTO 21016KT 10SM CLR 29/24 A2992 RMK AO2 T02880237KIDP2019-07-18T14:15:00Z37.17-95.7828.823.72101610.029.920275TRUETRUEVFRSPECI251.02019-07-18 14:33:40L¯™x) 5    3KEZM 181415Z AUTO 32004KT 10SM CLR 32/22 A3011 RMK AO2 T03160223KEZM2019-07-18T14:15:00Z32.22-83.1331.622.3320410.030.109253TRUETRUEVFRSPECI93.02019-07-18 14:33:40G¯™w(5   3KTVK 181415Z AUTO 21014G20KT 10SM CLR 28/24 A2983 RMK AO2KTVK2019-07-18T14:15:00Z40.68-92.928.024.0210142010.029.828741TRUETRUEVFRSPECI314.02019-07-18 14:33:39 Ë<jœËK¯™~) 5    3KCCO 181415Z AUTO 00000KT 10SM CLR 29/25 A3011 RMK AO2 T02910253KCCO2019-07-18T14:15:00Z33.32-84.7729.125.30010.030.109253TRUETRUEVFRSPECI296.02019-07-18 14:33:40H¯™}(5   3K1F0 181415Z AUTO 19011G14KT 10SM CLR 28/19 A2999 RMK AO2K1F02019-07-18T14:15:00Z34.15-97.1228.019.0190111410.029.991142TRUETRUEVFRSPECI257.02019-07-18 14:33:40L¯™|) 5    3KAZE 181415Z AUTO 34003KT 10SM CLR 31/22 A3008 RMK AO2 T03110221KAZE2019-07-18T14:15:00Z31.88-82.6531.122.1340310.030.079725TRUETRUEVFRSPECI78.02019-07-18 14:33:40>¯™{(y5    3KMGR 181415Z AUTO 00000KT 10SM CLR 28/24 A3010 RMK AO2KMGR2019-07-18T14:15:00Z31.08-83.828.024.00010.030.100393TRUETRUEVFRSPECI90.02019-07-18 14:33:40 ¦.Yƒ¦W¯š)!5    3KRBO 181415Z AUTO 17012KT 10SM SCT020 SCT025 30/25 A3001 RMK AO2 T02950246KRBO2019-07-18T14:15:00Z27.78-97.6829.524.61701210.030.008858TRUETRUEVFRMETAR24.02019-07-18 14:33:40P¯š)5    3KPSK 181415Z AUTO 28006KT 10SM OVC031 26/22 A3010 RMK AO2 T02600215KPSK2019-07-18T14:15:00Z37.12-80.6726.021.5280610.030.100393TRUETRUEVFRSPECI642.02019-07-18 14:33:40O¯š)%5     3KPPO 181415Z AUTO 00000KT 10SM SCT050 SCT120 A2994 RMK AO2 LTG DSNT W AND NWKPPO2019-07-18T14:15:00Z41.57-86.730010.029.940945TRUETRUEVFRMETAR248.02019-07-18 14:33:40L¯™) 5    3KBMC 181415Z AUTO 00000KT 10SM CLR 21/11 A2998 RMK AO1 T02100106KBMC2019-07-18T14:15:00Z41.55-112.0721.010.60010.029.97933TRUETRUEVFRMETAR1288.02019-07-18 14:33:40 µ-e}µB¯š(5    3KHZR 181414Z AUTO 00000KT 10SM SCT014 28/26 A3009 RMK AO2KHZR2019-07-18T14:14:00Z30.72-91.4828.026.00010.030.088583TRUETRUEVFRSPECI12.02019-07-18 14:33:40b¯š)%5     3KETB 181415Z AUTO 19017G23KT 10SM RA SCT075 OVC100 21/20 A2978 RMK AO2 P0003KETB2019-07-18T14:15:00Z43.42-88.1321.020.0190172310.029.778543TRUETRUERAVFR0.03METAR270.02019-07-18 14:33:40B¯š(y5    3KCUL 181415Z AUTO 21004KT 10SM CLR 25/22 A2999 RMK AO2KCUL2019-07-18T14:15:00Z38.08-88.1225.022.0210410.029.991142TRUETRUEVFRSPECI118.02019-07-18 14:33:40M¯š) 5    3KNY0 181415Z AUTO 15004KT 10SM SCT014 OVC032 22/22 A2999 RMK AO2KNY02019-07-18T14:15:00Z42.98-74.3322.022.0150410.029.991142TRUETRUEVFRSPECI271.02019-07-18 14:33:40 Ä;c‘āG¯š )5    3MSLP 181410Z 05004KT 360V090 9999 FEW020 SCT073 28/24 Q1012 NOSIGMSLP2019-07-18T14:10:00Z13.43-89.0528.024.05046.2129.88189TRUEVFRMETAR25.02019-07-18 14:33:40L¯š )5   3KHSP 181412Z AUTO 28010G14KT 7SM OVC002 21/21 A3014 RMK AO2KHSP2019-07-18T14:12:00Z37.95-79.8221.021.028010147.030.138779TRUETRUELIFRSPECI1156.02019-07-18 14:33:40R¯š) 5    3KPOE 181413Z AUTO 18003KT 10SM OVC008 26/25 A3007 RMK AO2 SLP181KPOE2019-07-18T14:13:00Z31.05-93.226.025.0180310.030.0708661018.1TRUETRUEIFRSPECI101.02019-07-18 14:33:40?¯š)5   3KFDK 181414Z 28008KT 10SM BKN022 BKN040 OVC060 29/24 A2994KFDK2019-07-18T14:14:00Z39.42-77.3729.024.0280810.029.940945MVFRSPECI92.02019-07-18 14:33:40 °:^‚°L¯š) 5    3KRPH 181410Z AUTO 18006KT 10SM CLR 28/21 A2998 RMK AO2 T02800212KRPH2019-07-18T14:10:00Z33.12-98.5528.021.2180610.029.97933TRUETRUEVFRMETAR342.02019-07-18 14:33:40V¯š )5    3KRQO 181410Z AUTO 19018G23KT 5SM HZ CLR 29/21 A2996 RMK AO2 T02870214KRQO2019-07-18T14:10:00Z35.47-98.028.721.419018235.029.958662TRUETRUEHZMVFRSPECI432.02019-07-18 14:33:40V¯š )!5    3KSHD 181410Z AUTO 28004KT 10SM SCT043 BKN080 28/21 A2999 RMK AO2 T02840205KSHD2019-07-18T14:10:00Z38.27-78.928.420.5280410.029.991142TRUETRUEVFRSPECI366.02019-07-18 14:33:40@¯š (y5    3KVES 181410Z AUTO 23005KT 10SM CLR 27/25 A2998 RMK AO2KVES2019-07-18T14:10:00Z40.2-84.5327.025.0230510.029.97933TRUETRUEVFRMETAR307.02019-07-18 14:33:40 ¼:fŠ¼H¯š(5   3KHII 181410Z AUTO 14012G15KT 10SM CLR 33/07 A2986 RMK AO2KHII2019-07-18T14:10:00Z34.57-114.3733.07.0140121510.029.861221TRUETRUEVFRMETAR238.02019-07-18 14:33:40V¯š)!5    3KLWB 181410Z AUTO 28007KT 10SM SCT035 BKN043 25/21 A3008 RMK AO2 T02490206KLWB2019-07-18T14:10:00Z37.87-80.424.920.6280710.030.079725TRUETRUEVFRMETAR702.02019-07-18 14:33:40N¯š)5   3KNOW 181410Z AUTO 28009G16KT 10SM CLR 14/09 A3002 RMK AO2 T01420090KNOW2019-07-18T14:10:00Z48.13-123.414.29.028091610.030.02067TRUETRUEVFRMETAR4.02019-07-18 14:33:40@¯š(}5    3KOXI 181410Z AUTO 10SM SCT050 SCT065 26/22 A2992 RMK AO1KOXI2019-07-18T14:10:00Z41.33-86.6726.022.010.029.920275TRUETRUEVFRMETAR209.02019-07-18 14:33:40 ·,gŸ·b¯š)75    3KC75 181410Z AUTO 27006KT 10SM BKN070 BKN090 26/22 A2988 RMK AO2 LTG DSNT N T02640221KC752019-07-18T14:10:00Z41.02-89.3826.422.1270610.029.878937TRUETRUEVFRSPECI173.02019-07-18 14:33:40B¯š(y5    3KACJ 181410Z AUTO 26005KT 10SM CLR 32/22 A3011 RMK AO2KACJ2019-07-18T14:10:00Z32.12-84.1832.022.0260510.030.109253TRUETRUEVFRSPECI143.02019-07-18 14:33:40?¯š(y5    3KHOE 181410Z AUTO 00000KT 10SM CLR 29/23 A3010 RMK AO2KHOE2019-07-18T14:10:00Z31.05-82.7829.023.00010.030.100393TRUETRUEVFRMETAR57.02019-07-18 14:33:40N¯š) 5    3KPEZ 181410Z AUTO 18010KT 10SM CLR 28/22 A3003 RMK AO2 T02810223KPEZ2019-07-18T14:10:00Z28.95-98.5228.122.31801010.030.029528TRUETRUEVFRSPECI132.02019-07-18 14:33:40 Î!a“΁?¯š(5    3VCRI 181410Z 26013KT 9999 BKN018 BKN080 26/25 Q1006 NOSIGVCRI2019-07-18T14:10:00Z6.2881.1326.025.0260136.2129.704725TRUEMVFRMETAR7.02019-07-18 14:33:40H¯š(5   3KAQO 181410Z AUTO 18014G20KT 10SM CLR 28/21 A3007 RMK AO2KAQO2019-07-18T14:10:00Z30.78-98.6728.021.0180142010.030.070866TRUETRUEVFRMETAR336.02019-07-18 14:33:40:¯š(s5    3KDKR 181410Z AUTO 19007KT 27/25 A3009 RMK AO2 PWINOKDKR2019-07-18T14:10:00Z31.3-95.427.025.0190730.088583TRUETRUETRUESPECI106.02019-07-18 14:33:40Y¯š)+5    3K24A 181410Z AUTO 00000KT 10SM OVC005 21/21 A3018 RMK AO2 LTG DSNT SE T02100206K24A2019-07-18T14:10:00Z35.32-83.221.020.60010.030.180119TRUETRUEIFRMETAR871.02019-07-18 14:33:40 —5k—N¯š)5    3KGVE 181410Z AUTO 00000KT 10SM OVC070 30/25 A2993 RMK AO1 T02950246KGVE2019-07-18T14:10:00Z38.15-78.1729.524.60010.029.929134TRUETRUEVFRSPECI138.02019-07-18 14:33:40D¯š)5    3KI16 181410Z AUTO 10SM OVC014 25/22 A3011 RMK AO2 T02490222KI162019-07-18T14:10:00Z37.6-81.5724.922.210.030.109253TRUETRUEMVFRMETAR544.02019-07-18 14:33:40K¯š) 5    3KDWX 181410Z AUTO 00000KT 10SM CLR 15/04 A3017 RMK AO2 T01470041KDWX2019-07-18T14:10:00Z41.03-107.514.74.10010.030.171259TRUETRUEVFRMETAR1996.02019-07-18 14:33:40t¯š)O5  !  3VCBI 181410Z 26011G30KT 200V360 8000 -SHRA VCTS SCT012 BKN018 FEW020CB 27/23 Q1007 NOSIG RMK NW/WVCBI2019-07-18T14:10:00Z7.1779.8727.023.026011304.9729.734253TRUE-SHRA VCTSMVFRSPECI8.02019-07-18 14:33:40 ‡%S[‡N¯š") 5    3KOGA 181410Z AUTO 24004KT 10SM CLR 22/21 A2983 RMK AO2 T02170214KOGA2019-07-18T14:10:00Z41.12-101.7721.721.4240410.029.828741TRUETRUEVFRMETAR999.02019-07-18 14:33:40r¯š!)U5     3KLOT 181410Z AUTO 09003KT 1SM +TSRA BKN011 BKN017 OVC022 22/21 A2995 RMK AO2 LTG DSNT ALQS T02200214KLOT2019-07-18T14:10:00Z41.6-88.122.021.49031.029.949802TRUETRUE+TSRAIFRMETAR205.02019-07-18 14:33:40L¯š )5     3KIIY 181410Z AUTO 28006KT 10SM CLR 30/22 A3007 RMK AO2 TSNOKIIY2019-07-18T14:10:00Z33.78-82.8230.022.0280610.030.070866TRUETRUETRUEVFRSPECI197.02019-07-18 14:33:40U¯š)!5    3KJFZ 181410Z AUTO 00000KT 10SM SCT008 OVC013 22/20 A3014 RMK AO2 T02170204KJFZ2019-07-18T14:10:00Z37.07-81.821.720.40010.030.138779TRUETRUEMVFRSPECI809.02019-07-18 14:33:40 *-dšã*3¯š'(s5   3PLCH 181400Z 00000KT 9999 SCT020 BKN042 27/24 Q1007PLCH2019-07-18T14:00:00Z1.98-157.3527.024.0006.2129.734253VFRMETAR3.02019-07-18 14:33:401¯š&(q5     3FNLU 181400Z 27008KT 8000 FEW023 24/// Q1011 NOSIGFNLU2019-07-18T14:00:00Z-8.8313.2227084.9729.852362TRUEMVFRSPECI70.02019-07-18 14:33:40D¯š%(5    3KLVN 181404Z AUTO 00000KT 10SM OVC030 23/23 A2974 RMK AO2KLVN2019-07-18T14:04:00Z44.63-93.2323.023.00010.029.740158TRUETRUEMVFRMETAR293.02019-07-18 14:33:40C¯š$(w5     3KEHY 181410Z AUTO 10SM CLR 22/M02 A3011 RMK AO2 PWINOKEHY2019-07-18T14:10:00Z41.73-106.4722.0-2.010.030.109253TRUETRUETRUEVFRMETAR2225.02019-07-18 14:33:40M¯š#) 5    3KOLY 181410Z AUTO 22004KT 10SM CLR 27/23 A2999 RMK AO2 T02690231KOLY2019-07-18T14:10:00Z38.72-88.1826.923.1220410.029.991142TRUETRUEVFRMETAR147.02019-07-18 14:33:40 ³ X~³E¯š+) 5    3CWWX 181400Z AUTO 24007KT 21/14 RMK AO1 SLP125 T02100135 55004CWWX2019-07-18T14:00:00Z45.32-81.7321.013.524071012.5TRUETRUE-0.4METAR181.02019-07-18 14:33:40T¯š*)-5    3CWHP 181400Z AUTO 30013KT 19/08 RMK AO1 PK WND 30022/1329 SLP081 T01920081 58006CWHP2019-07-18T14:00:00Z49.07-61.719.28.1300131008.1TRUETRUE-0.6METAR4.02019-07-18 14:33:40B¯š)) 5    3CWND 181400Z AUTO 36008KT 06/05 RMK AO1 SLP068 T00630053 51009CWND2019-07-18T14:00:00Z69.63-135.436.35.336081006.8TRUETRUE0.9METAR12.02019-07-18 14:33:40Z¯š()15     3CXTV 181400Z AUTO 03006KT 11/11 RMK AO1 6PAST HR 1006 SLP089 P0002 T01120108 50009CXTV2019-07-18T14:00:00Z68.75-133.511.210.83061008.9TRUETRUE0.90.02METAR85.02019-07-18 14:33:40 ©-o{©L¯š/)5    3CWME 181400Z AUTO 21008KT 12/11 RMK AO1 0PAST HR M P0004 T01240109 50040CWME2019-07-18T14:00:00Z52.18-127.4712.410.92108TRUETRUE4.00.04METAR32.02019-07-18 14:33:40n¯š.)U5     3CWRU 181400Z AUTO 29009KT 13/12 RMK AO1 4PAST HR 1008 PK WND 28019/1305 SLP157 P0002 T01320124 50004CWRU2019-07-18T14:00:00Z50.12-127.9313.212.429091015.7TRUETRUE0.40.02METAR98.02019-07-18 14:33:408¯š-(}5     3CWZL 181400Z AUTO 28008KT 14/ RMK AO1 SLP126 T0136 53009CWZL2019-07-18T14:00:00Z53.03-131.613.628081012.6TRUETRUE0.9METAR17.02019-07-18 14:33:40M¯š,)!5   3CWZV 181400Z AUTO 29018KT 12/10 RMK AO1 PK WND 29023/1300 SLP134 T01200099CWZV2019-07-18T14:00:00Z51.93-131.0212.09.9290181013.4TRUETRUEMETAR92.02019-07-18 14:33:40 2kâ2*¯š4(e5   3DTTK 181400Z 01///KT 9999 SCT023 34/15 Q1011DTTK2019-07-18T14:00:00Z35.6710.0834.015.06.2129.852362VFRMETAR68.02019-07-18 14:33:405¯š3(u5   3DTTR 181400Z 15003KT 080V220 9999 FEW023 38/10 Q1009DTTR2019-07-18T14:00:00Z31.79.2738.010.015036.2129.793306VFRMETAR259.02019-07-18 14:33:40H¯š2)5   3VRMM 181400Z 28019KT 9000 SCT017TCU OVC110 29/24 Q1008 TEMPO 4000 -SHRAVRMM2019-07-18T14:00:00Z4.273.5229.024.0280195.5929.763779VFRSPECI2.02019-07-18 14:33:40.¯š1(o5  3CXDP 181400Z AUTO 23004KT 13/12 RMK AO1 T01250115CXDP2019-07-18T14:00:00Z54.32-113.9512.511.52304TRUETRUEMETAR614.02019-07-18 14:33:40[¯š0)15     3CWJO 181400Z AUTO 02002KT 18/13 RMK AO1 0PAST HR 0000 SLP189 P0004 T01820127 50010CWJO2019-07-18T14:00:00Z48.43-71.1518.212.72021018.9TRUETRUE1.00.04METAR133.02019-07-18 14:33:40 Á9pªÁc¯š8)C5    3CZFA 181436Z VRB02KT 1SM BR BKN210 09/09 A2973 RMK FG5CI1 VIS W 5 SLP086 DENSITY ALT 2400FTCZFA2019-07-18T14:36:00Z62.2-133.379.09.0021.029.7312981008.6BRIFRSPECI717.02019-07-18 14:41:06@¯š7(y5    3K04V 181436Z AUTO 00000KT 10SM CLR 17/02 A3034 RMK AO2K04V2019-07-18T14:36:00Z38.1-106.1717.02.00010.030.339567TRUETRUEVFRMETAR2385.02019-07-18 14:41:06C¯š6(y5    3K2V6 181439Z AUTO 29011KT 10SM CLR 28/01 A2991 RMK AO2K2V62019-07-18T14:39:00Z40.1-102.7228.01.02901110.029.911417TRUETRUEVFRMETAR1261.02019-07-18 14:41:06A¯š5(y5    3KFYG 181355Z AUTO 22005KT 10SM CLR 28/24 A2994 RMK AO2KFYG2019-07-18T13:55:00Z38.58-91.028.024.0220510.029.940945TRUETRUEVFRMETAR149.02019-07-18 14:33:40   >w Q¯š<)5    3K1S5 181435Z AUTO 28005KT 10SM SCT050 19/11 A2992 RMK AO2 T01850106K1S52019-07-18T14:35:00Z46.33-119.9718.510.6280510.029.920275TRUETRUEVFRMETAR234.02019-07-18 14:41:06A¯š;(y5    3K96D 181435Z AUTO 26004KT 10SM CLR 23/18 A2957 RMK AO2K96D2019-07-18T14:35:00Z48.93-97.923.018.0260410.029.568897TRUETRUEVFRSPECI290.02019-07-18 14:41:06E¯š:(5    3KFDW 181435Z AUTO 25005KT 10SM SCT022 28/23 A3004 RMK AO1KFDW2019-07-18T14:35:00Z34.32-81.1228.023.0250510.030.041338TRUETRUEVFRMETAR176.02019-07-18 14:41:06q¯š9)M5   3CYKL 181436Z AUTO 33011G20KT 290V360 9SM SCT021 BKN029 14/08 A2980 RMK SLP107 DENSITY ALT 2000FTCYKL2019-07-18T14:36:00Z54.78-66.8214.08.033011209.029.7992131010.7TRUEMVFRSPECI521.02019-07-18 14:41:06 Ô+c›ÔA¯š@(y5    3KBNL 181435Z AUTO 23008KT 10SM CLR 31/22 A3006 RMK AO2KBNL2019-07-18T14:35:00Z33.25-81.3831.022.0230810.030.059055TRUETRUEVFRSPECI75.02019-07-18 14:41:06B¯š?(5    3KBDN 181435Z AUTO 00000KT 10SM FEW046 16/11 A3002 RMK AO2KBDN2019-07-18T14:35:00Z44.1-121.216.011.00010.030.02067TRUETRUEVFRMETAR1055.02019-07-18 14:41:06B¯š>(y5    3KANQ 181435Z AUTO 20005KT 10SM CLR 27/23 A2993 RMK AO2KANQ2019-07-18T14:35:00Z41.63-85.0827.023.0200510.029.929134TRUETRUEVFRSPECI303.02019-07-18 14:41:06O¯š=)5    3KAIK 181435Z AUTO 24010KT 10SM CLR 30/21 A3009 RMK AO2 LTG DSNT SKAIK2019-07-18T14:35:00Z33.65-81.6830.021.02401010.030.088583TRUETRUEVFRSPECI161.02019-07-18 14:41:06 Ë5n²Ëa¯šD)95    3KRCX 181435Z AUTO 22006KT 10SM BKN055 OVC080 23/21 A2978 RMK AO2 LTG DSNT NE T02300209KRCX2019-07-18T14:35:00Z45.5-91.023.020.9220610.029.778543TRUETRUEVFRMETAR377.02019-07-18 14:41:066¯šC(o5   3KLKR 181435Z AUTO 29003KT CLR 28/23 A3003 RMK AO2KLKR2019-07-18T14:35:00Z34.72-80.8528.023.0290330.029528TRUETRUEMETAR149.02019-07-18 14:41:06A¯šB(y5    3KDYB 181435Z AUTO 22003KT 10SM CLR 30/23 A3006 RMK AO1KDYB2019-07-18T14:35:00Z33.07-80.2830.023.0220310.030.059055TRUETRUEVFRSPECI18.02019-07-18 14:41:06E¯šA(5    3KBRY 181435Z AUTO 20003KT 10SM BKN017 26/22 A3001 RMK AO1KBRY2019-07-18T14:35:00Z37.82-85.526.022.0200310.030.008858TRUETRUEMVFRSPECI204.02019-07-18 14:41:06 Ó2k¬ÓS¯šH)5   3KPTS 181435Z AUTO 22015G24KT 10SM CLR 28/24 A2992 RMK AO2 T02820238KPTS2019-07-18T14:35:00Z37.45-94.7328.223.8220152410.029.920275TRUETRUEVFRSPECI290.02019-07-18 14:41:069¯šG(5    3KSIF 181435Z AUTO CLR 30/21 A3000 RMK AO2 T03020210 PWINOKSIF2019-07-18T14:35:00Z36.43-79.8530.221.030.0TRUETRUETRUESPECI211.02019-07-18 14:41:06A¯šF)5     3KSIK 181435Z AUTO 00000KT 10SM -RA CLR 25/23 A3000 RMK AO2KSIK2019-07-18T14:35:00Z36.9-89.5725.023.00010.030.0TRUETRUE-RAVFRSPECI96.02019-07-18 14:41:06H¯šE)5   3KSUZ 181435Z AUTO 24007G13KT 9SM SCT013 29/25 A3002 RMK A01KSUZ2019-07-18T14:35:00Z34.58-92.4829.025.02407139.030.02067TRUETRUEVFRSPECI119.02019-07-18 14:41:06 Ö:sÖA¯šL(y5    3KJNX 181435Z AUTO 23005KT 10SM CLR 30/25 A2999 RMK AO2KJNX2019-07-18T14:35:00Z35.53-78.3830.025.0230510.029.991142TRUETRUEVFRSPECI50.02019-07-18 14:41:06P¯šK)5    3KMCX 181435Z AUTO 22005KT 10SM SCT070 29/22 A2993 RMK AO2 T02860218KMCX2019-07-18T14:35:00Z40.72-86.7728.621.8220510.029.929134TRUETRUEVFRSPECI206.02019-07-18 14:41:06A¯šJ(y5    3KO22 181435Z AUTO 00000KT 10SM CLR 20/15 A2997 RMK A01KO222019-07-18T14:35:00Z38.03-120.4220.015.00010.029.970472TRUETRUEVFRMETAR646.02019-07-18 14:41:06@¯šI(w5    3KPLD 181435Z AUTO 22006KT 7SM CLR 28/20 A2994 RMK AO2KPLD2019-07-18T14:35:00Z40.45-84.9828.020.022067.029.940945TRUETRUEVFRSPECI282.02019-07-18 14:41:06 °9c‘°[¯šP)+5    3KLUM 181435Z AUTO 20006KT 10SM OVC050 22/18 A2974 RMK AO2 LTG DSNT NE T02160184KLUM2019-07-18T14:35:00Z44.9-91.8721.618.4200610.029.740158TRUETRUEVFRSPECI273.02019-07-18 14:41:06L¯šO) 5    3KLQK 181435Z AUTO 29005KT 10SM CLR 28/24 A3006 RMK AO2 T02800244KLQK2019-07-18T14:35:00Z34.82-82.728.024.4290510.030.059055TRUETRUEVFRSPECI309.02019-07-18 14:41:06P¯šN)5    3KEZS 181435Z AUTO 17005KT 10SM SCT006 24/22 A2976 RMK AO2 T02370220KEZS2019-07-18T14:35:00Z44.78-88.5723.722.0170510.029.760826TRUETRUEVFRSPECI248.02019-07-18 14:41:06A¯šM(y5    3KGGE 181435Z AUTO 25007KT 10SM CLR 30/22 A3005 RMK AO2KGGE2019-07-18T14:35:00Z33.32-79.3230.022.0250710.030.050198TRUETRUEVFRSPECI12.02019-07-18 14:41:06 Ç7fÇC¯šT(y5    3KEOK 181435Z AUTO 22014KT 10SM CLR 27/24 A2984 RMK AO2KEOK2019-07-18T14:35:00Z40.47-91.4227.024.02201410.029.840551TRUETRUEVFRSPECI205.02019-07-18 14:41:06P¯šS)5    3KGGI 181435Z AUTO 22005KT 10SM SCT100 28/23 A2981 RMK AO2 T02770231KGGI2019-07-18T14:35:00Z41.72-92.7327.723.1220510.029.811024TRUETRUEVFRSPECI307.02019-07-18 14:41:06K¯šR) 5    3KHNZ 181435Z AUTO 00000KT 10SM CLR 29/21 A2999 RMK AO2 T02850210KHNZ2019-07-18T14:35:00Z36.37-78.5328.521.00010.029.991142TRUETRUEVFRSPECI161.02019-07-18 14:41:06C¯šQ(}5    3KI43 181435Z AUTO 25004KT 7SM OVC005 24/22 A3001 RMK AO2KI432019-07-18T14:35:00Z38.98-82.5824.022.025047.030.008858TRUETRUEIFRSPECI221.02019-07-18 14:41:06 Ž.j^ŽJ¯šX(5   3KALM 181435Z AUTO 17013G17KT 10SM CLR 25/14 A3009 RMK AO2KALM2019-07-18T14:35:00Z32.82-105.9725.014.0170131710.030.088583TRUETRUEVFRMETAR1279.02019-07-18 14:41:06‚¯šW)g5     3KD25 181435Z AUTO 26011G16KT 4SM +TSRA SCT009 BKN014 OVC029 21/21 A2979 RMK AO2 LTG DSNT ALQS P0018 T02050205KD252019-07-18T14:35:00Z46.12-89.8820.520.526011164.029.790354TRUETRUE+TSRAMVFR0.18SPECI491.02019-07-18 14:41:06>¯šV)5     3KD55 181435Z AUTO 24007KT 10SM FEW100 FEW120 A2961 RMK AO2KD552019-07-18T14:35:00Z48.75-98.4240710.029.610237TRUETRUEVFRSPECI491.02019-07-18 14:41:06L¯šU) 5    3KEHO 181435Z AUTO 23007KT 10SM CLR 29/22 A3004 RMK AO2 T02870222KEHO2019-07-18T14:35:00Z35.25-81.628.722.2230710.030.041338TRUETRUEVFRSPECI258.02019-07-18 14:41:06 ­:z¨­u¯š\)U5    3KPBH 181435Z AUTO 25006G14KT 10SM VCTS SCT017 OVC050 22/20 A2976 RMK AO2 LTG DSNT N AND NE T02220202KPBH2019-07-18T14:35:00Z45.7-90.422.220.225061410.029.760826TRUETRUEVCTSVFRSPECI449.02019-07-18 14:41:06L¯š[) 5    3KPEA 181435Z AUTO 22007KT 10SM CLR 29/22 A2979 RMK AO2 T02880223KPEA2019-07-18T14:35:00Z41.4-92.9528.822.3220710.029.790354TRUETRUEVFRSPECI270.02019-07-18 14:41:06:¯šZ(y5    3KPGV 181435Z AUTO 23007KT 10SM CLR 30/23 A3000 RMK AO2KPGV2019-07-18T14:35:00Z35.62-77.430.023.0230710.030.0TRUETRUEVFRSPECI8.02019-07-18 14:41:06@¯šY(y5    3K2J9 181435Z AUTO 26005KT 10SM CLR 29/24 A3010 RMK AO2K2J92019-07-18T14:35:00Z30.6-84.5529.024.0260510.030.100393TRUETRUEVFRSPECI69.02019-07-18 14:41:06 ¼,e“¼Q¯š`)5   3KSUT 181435Z AUTO 24011G15KT 10SM CLR 31/24 A3003 RMK AO2 T03050240KSUT2019-07-18T14:35:00Z33.93-78.0830.524.0240111510.030.029528TRUETRUEVFRSPECI8.02019-07-18 14:41:06L¯š_) 5    3KPSO 181435Z AUTO 00000KT 10SM CLR 18/03 A3034 RMK AO2 T01800030KPSO2019-07-18T14:35:00Z37.28-107.0518.03.00010.030.339567TRUETRUEVFRMETAR2334.02019-07-18 14:41:06A¯š^(y5    3KMNI 181435Z AUTO 27005KT 10SM CLR 29/22 A3004 RMK AO2KMNI2019-07-18T14:35:00Z33.58-80.2229.022.0270510.030.041338TRUETRUEVFRSPECI32.02019-07-18 14:41:06N¯š]) 5    3KOIN 181435Z AUTO 18004KT 10SM CLR 25/19 A2984 RMK AO1 T02530193KOIN2019-07-18T14:35:00Z39.83-100.5325.319.3180410.029.840551TRUETRUEVFRSPECI824.02019-07-18 14:41:06 Ó:|±ÓX¯šd)5     3KRRL 181435Z AUTO 21009KT 10SM SCT016 24/21 A2979 RMK AO2 T02360205 TSNOKRRL2019-07-18T14:35:00Z45.2-89.7223.620.5210910.029.790354TRUETRUETRUEVFRSPECI401.02019-07-18 14:41:06E¯šc(5    3KSDC 181435Z AUTO 34003KT 10SM BKN013 23/20 A2998 RMK AO2KSDC2019-07-18T14:35:00Z43.23-77.1223.020.0340310.029.97933TRUETRUEMVFRSPECI129.02019-07-18 14:41:068¯šb(o5   3KSEM 181435Z AUTO 29005KT 9SM 29/23 A3008 RMK AO2KSEM2019-07-18T14:35:00Z32.35-86.9829.023.029059.030.079725TRUETRUESPECI51.02019-07-18 14:41:06@¯ša({5    3KSTF 181435Z AUTO 26007KT CLR 28/23 A3008 RMK AO2 PWINOKSTF2019-07-18T14:35:00Z33.43-88.8528.023.0260730.079725TRUETRUETRUESPECI102.02019-07-18 14:41:06 °3k°K¯šh) 5    3KCMD 181435Z AUTO 00000KT 10SM CLR 26/23 A3013 RMK AO2 T02610231KCMD2019-07-18T14:35:00Z34.27-86.8526.123.10010.030.129921TRUETRUEVFRMETAR294.02019-07-18 14:41:06d¯šg)95    3CYQD 181435Z AUTO 05005KT 010V090 9SM OVC011 16/15 A2951 RMK SLP998 DENSITY ALT 1700FTCYQD2019-07-18T14:35:00Z53.97-101.0816.015.05059.029.509842999.8TRUEMVFRSPECI271.02019-07-18 14:41:06B¯šf(y5    3KGPH 181435Z AUTO 24005KT 10SM CLR 29/21 A2987 RMK AO2KGPH2019-07-18T14:35:00Z39.33-94.3229.021.0240510.029.870079TRUETRUEVFRSPECI235.02019-07-18 14:41:06G¯še(5   3KRCM 181435Z AUTO 20013G21KT 10SM CLR 28/22 A2989 RMK AO2KRCM2019-07-18T14:35:00Z38.78-93.828.022.0200132110.029.890747TRUETRUEVFRSPECI244.02019-07-18 14:41:06 Þ9q©ÞE¯šl(5   3KCKM 181435Z AUTO 24003G12KT 10SM CLR 30/28 A3005 RMK A01KCKM2019-07-18T14:35:00Z34.3-90.5230.028.024031210.030.050198TRUETRUEVFRMETAR53.02019-07-18 14:41:06B¯šk(y5    3KCKN 181435Z AUTO 20005KT 10SM CLR 21/19 A2963 RMK AO2KCKN2019-07-18T14:35:00Z47.85-96.6221.019.0200510.029.630905TRUETRUEVFRMETAR273.02019-07-18 14:41:06B¯šj(y5    3KCLS 181435Z AUTO 22005KT 10SM CLR 15/13 A3005 RMK AO2KCLS2019-07-18T14:35:00Z46.68-122.9815.013.0220510.030.050198TRUETRUEVFRMETAR54.02019-07-18 14:41:06A¯ši(y5    3KCLW 181435Z AUTO 14004KT 10SM CLR 30/21 A3010 RMK AO2KCLW2019-07-18T14:35:00Z27.98-82.7530.021.0140410.030.100393TRUETRUEVFRMETAR22.02019-07-18 14:41:06 ·'ZŠ·M¯šp) 5    3KCFJ 181435Z AUTO 23005KT 10SM CLR 28/22 A2996 RMK AO2 T02800224KCFJ2019-07-18T14:35:00Z39.98-86.9228.022.4230510.029.958662TRUETRUEVFRMETAR244.02019-07-18 14:41:06J¯šo)5    3KCGC 181435Z AUTO 00000KT 10SM CLR 29/21 A3011 RMK AO2 LTG DSNT WKCGC2019-07-18T14:35:00Z28.87-82.5729.021.00010.030.109253TRUETRUEVFRMETAR3.02019-07-18 14:41:06G¯šn(5   3KCIN 181435Z AUTO 30009G14KT 10SM CLR 28/23 A2968 RMK AO2KCIN2019-07-18T14:35:00Z42.03-94.7728.023.030091410.029.681103TRUETRUEVFRMETAR375.02019-07-18 14:41:06S¯šm)5     3KCKC 181435Z AUTO 00000KT 4SM BR OVC002 20/18 A2970 RMK AO2 LTG DSNT SKCKC2019-07-18T14:35:00Z47.83-90.3720.018.0004.029.698818TRUETRUEBRLIFRMETAR548.02019-07-18 14:41:06 ;h©âA¯šu(w5    3KCBF 181435Z AUTO 21013KT 9SM CLR 27/26 A2975 RMK AO2KCBF2019-07-18T14:35:00Z41.27-95.7727.026.0210139.029.749016TRUETRUEVFRMETAR382.02019-07-18 14:41:06A¯št(y5    3KCCA 181435Z AUTO 26005KT 10SM CLR 29/25 A3001 RMK AO2KCCA2019-07-18T14:35:00Z35.6-92.4529.025.0260510.030.008858TRUETRUEVFRMETAR157.02019-07-18 14:41:069¯šs(k5    3KCCU 181435Z AUTO 10SM CLR 15/M03 A3061 RMK AO2KCCU2019-07-18T14:35:00Z39.48-106.1515.0-3.010.030.611221TRUETRUEVFRMETAR3680.02019-07-18 14:41:06M¯šr) 5    3KCCY 181435Z AUTO 13011KT 9SM SCT005 BKN010 23/23 A2977 RMK AO2KCCY2019-07-18T14:35:00Z43.07-92.6223.023.0130119.029.769686TRUETRUEMVFRMETAR343.02019-07-18 14:41:06?¯šq(w5    3KCDN 181435Z AUTO 24008KT 9SM CLR 31/23 A3003 RMK AO2KCDN2019-07-18T14:35:00Z34.28-80.5731.023.024089.030.029528TRUETRUEVFRMETAR92.02019-07-18 14:41:06 ß9s«ßF¯šy(}5   3KBKN 181435Z AUTO 20017G24KT 9SM CLR 32/23 A2991 RMK AO2KBKN2019-07-18T14:35:00Z36.75-97.3532.023.020017249.029.911417TRUETRUEVFRMETAR314.02019-07-18 14:41:06B¯šx(y5    3KBNW 181435Z AUTO 10006KT 10SM CLR 27/26 A2974 RMK AO2KBNW2019-07-18T14:35:00Z42.03-93.8327.026.0100610.029.740158TRUETRUEVFRMETAR354.02019-07-18 14:41:06@¯šw(y5    3KBVU 181435Z AUTO 00000KT 10SM CLR 29/02 A2994 RMK AO2KBVU2019-07-18T14:35:00Z35.95-114.8729.02.00010.029.940945TRUETRUEVFRMETAR671.02019-07-18 14:41:06A¯šv(y5    3KBXK 181435Z AUTO 00000KT 10SM CLR 30/15 A2993 RMK A01KBXK2019-07-18T14:35:00Z33.42-112.6830.015.00010.029.929134TRUETRUEVFRMETAR315.02019-07-18 14:41:06 Ñ-e™ÑB¯š}(y5    3KAWG 181435Z AUTO 21006KT 10SM CLR 28/17 A2981 RMK AO2KAWG2019-07-18T14:35:00Z41.27-91.6728.017.0210610.029.811024TRUETRUEVFRMETAR230.02019-07-18 14:41:06F¯š|(5    3KAXA 181435Z AUTO 25007KT 10SM OVC016 26/25 A2974 RMK A01KAXA2019-07-18T14:35:00Z43.07-94.2726.025.0250710.029.740158TRUETRUEMVFRMETAR372.02019-07-18 14:41:06B¯š{(y5    3KBAC 181435Z AUTO 23006KT 10SM CLR 22/20 A2966 RMK AO2KBAC2019-07-18T14:35:00Z46.93-98.0222.020.0230610.029.660433TRUETRUEVFRMETAR427.02019-07-18 14:41:06M¯šz) 5    3KBAX 181435Z AUTO 19008KT 10SM CLR 26/19 A2991 RMK AO2 T02640187KBAX2019-07-18T14:35:00Z43.78-82.9826.418.7190810.029.911417TRUETRUEVFRMETAR234.02019-07-18 14:41:06 ß/n£ß>¯›(w5    3KARW 181435Z AUTO 27004KT 7SM CLR 30/23 A3006 RMK AO2KARW2019-07-18T14:35:00Z32.42-80.6330.023.027047.030.059055TRUETRUEVFRMETAR4.02019-07-18 14:41:06E¯›(y5    3KATS 181435Z AUTO 23016KT 10SM CLR 32/14 A2999 RMK AO2KATS2019-07-18T14:35:00Z32.85-104.4732.014.02301610.029.991142TRUETRUEVFRMETAR1081.02019-07-18 14:41:06;¯š(}5     3KAVC 181435Z AUTO 22008KT 200V270 10SM CLR A3002 RMK AO2KAVC2019-07-18T14:35:00Z36.68-78.03220810.030.02067TRUETRUEVFRMETAR135.02019-07-18 14:41:06K¯š~) 5    3KAVQ 181435Z AUTO 00000KT 10SM CLR 30/13 A2999 RMK AO2 T02970131KAVQ2019-07-18T14:35:00Z32.4-111.2229.713.10010.029.991142TRUETRUEVFRMETAR619.02019-07-18 14:41:06 »1^‘»P¯›)5    3KAIG 181435Z AUTO 25009KT 10SM BKN009 23/21 A2980 RMK AO2 T02270210KAIG2019-07-18T14:35:00Z45.15-89.1222.721.0250910.029.799213TRUETRUEIFRMETAR464.02019-07-18 14:41:06G¯›(5   3KAIO 181435Z AUTO 20009G18KT 10SM CLR 26/25 A2974 RMK AO2KAIO2019-07-18T14:35:00Z41.38-95.0326.025.020091810.029.740158TRUETRUEVFRMETAR360.02019-07-18 14:41:06M¯›) 5    3KAMN 181435Z AUTO 20009KT 10SM CLR 27/21 A2991 RMK AO2 T02650211KAMN2019-07-18T14:35:00Z43.32-84.6826.521.1200910.029.911417TRUETRUEVFRMETAR230.02019-07-18 14:41:06I¯›)5     3KAQX 181435Z AUTO VRB05KT 10SM CLR 31/23 A3005 RMK AO2 TSNOKAQX2019-07-18T14:35:00Z32.98-81.2731.023.00510.030.050198TRUETRUETRUEVFRMETAR49.02019-07-18 14:41:06 9s™Ñ.¯› (e5    3K7L2 181435Z AUTO 23006KT 10SM A2973 RMK AO2K7L22019-07-18T14:35:00Z46.22-100.25230610.029.731298TRUETRUEMETAR543.02019-07-18 14:41:06B¯› (y5    3K9D7 181435Z AUTO 22009KT 10SM CLR 23/18 A2961 RMK AO2K9D72019-07-18T14:35:00Z48.48-99.2323.018.0220910.029.610237TRUETRUEVFRMETAR452.02019-07-18 14:41:06T¯›)!5    3KACB 181435Z AUTO 00000KT 10SM BKN032 OVC043 26/21 A2983 RMK AO2 T02600205KACB2019-07-18T14:35:00Z44.98-85.226.020.50010.029.828741TRUETRUEVFRMETAR190.02019-07-18 14:41:06@¯›(y5    3KADC 181435Z AUTO 00000KT 10SM CLR 23/19 A2968 RMK AO2KADC2019-07-18T14:35:00Z46.45-95.2223.019.00010.029.681103TRUETRUEVFRMETAR418.02019-07-18 14:41:06A¯›(y5    3KADU 181435Z AUTO 22005KT 10SM CLR 26/23 A2975 RMK AO2KADU2019-07-18T14:35:00Z41.7-94.9226.023.0220510.029.749016TRUETRUEVFRMETAR392.02019-07-18 14:41:06 Í7fÍ:¯›(s5    3K5H4 181435Z AUTO 25012G20KT 10SM CLR A2964 RMK AO2K5H42019-07-18T14:35:00Z47.78-99.93250122010.029.639763TRUETRUEVFRMETAR490.02019-07-18 14:41:06S¯› )5    3K6B9 181435Z AUTO 00000KT 10SM FEW017 SCT023 BKN030 25/21 A2997 RMK AO2K6B92019-07-18T14:35:00Z42.92-76.4325.021.00010.029.970472TRUETRUEMVFRMETAR316.02019-07-18 14:41:06K¯› ) 5    3K6L4 181435Z AUTO 00000KT 10SM BKN009 OVC013 24/23 A3006 RMK AO2K6L42019-07-18T14:35:00Z37.85-81.9224.023.00010.030.059055TRUETRUEIFRMETAR508.02019-07-18 14:41:06C¯› (y5    3K74V 181435Z AUTO 10003KT 10SM CLR 20/03 A3009 RMK AO2K74V2019-07-18T14:35:00Z40.28-110.0520.03.0100310.030.088583TRUETRUEVFRMETAR1576.02019-07-18 14:41:06 Î/jÎI¯›)5     3K42J 181435Z AUTO 20004KT 9SM CLR 28/23 A3011 RMK A01 TSNOK42J2019-07-18T14:35:00Z29.85-82.0528.023.020049.030.109253TRUETRUETRUEVFRMETAR60.02019-07-18 14:41:06G¯›(5   3K46D 181435Z AUTO 24008G14KT 10SM CLR 23/19 A2965 RMK AO2K46D2019-07-18T14:35:00Z47.45-99.1523.019.024081410.029.648623TRUETRUEVFRMETAR490.02019-07-18 14:41:06?¯›(y5    3K4A6 181435Z AUTO 00000KT 10SM CLR 26/25 A3010 RMK AO2K4A62019-07-18T14:35:00Z34.68-86.026.025.00010.030.100393TRUETRUEVFRMETAR198.02019-07-18 14:41:06K¯›)5     3K4M9 181435Z AUTO 19005KT 10SM CLR 26/26 A2999 RMK AO2 PWINOK4M92019-07-18T14:35:00Z36.4-90.6526.026.0190510.029.991142TRUETRUETRUEVFRMETAR90.02019-07-18 14:41:06 ¦-dy¦M¯›)5     3K2D5 181435Z AUTO 19008KT 10SM CLR 22/22 A2968 RMK AO2 PWINOK2D52019-07-18T14:35:00Z46.17-98.0822.022.0190810.029.681103TRUETRUETRUEVFRMETAR407.02019-07-18 14:41:06e¯›)75     3K2P2 181435Z AUTO 18005KT 10SM -DZ SCT012 SCT060 BKN110 22/21 A2973 RMK AO2 T02170205K2P22019-07-18T14:35:00Z45.38-86.9221.720.5180510.029.731298TRUETRUE-DZVFRMETAR199.02019-07-18 14:41:06C¯›(y5    3K33V 181435Z AUTO 15006KT 10SM CLR 16/02 A3028 RMK AO1K33V2019-07-18T14:35:00Z40.75-106.2816.02.0150610.030.280512TRUETRUEVFRMETAR2484.02019-07-18 14:41:06M¯›) 5    3K3LF 181435Z AUTO 20009KT 10SM CLR 26/23 A2996 RMK AO2 T02600230K3LF2019-07-18T14:35:00Z39.17-89.6726.023.0200910.029.958662TRUETRUEVFRMETAR210.02019-07-18 14:41:06 :q¨âG¯›(5   3K08D 181435Z AUTO 26014G19KT 10SM CLR 21/13 A2965 RMK AO2K08D2019-07-18T14:35:00Z48.3-102.421.013.0260141910.029.648623TRUETRUEVFRMETAR684.02019-07-18 14:41:06@¯›(y5    3K0S9 181435Z AUTO VRB04KT 10SM CLR 15/12 A3001 RMK AO2K0S92019-07-18T14:35:00Z48.05-122.8215.012.00410.030.008858TRUETRUEVFRMETAR33.02019-07-18 14:41:06C¯›(y5    3K1V6 181435Z AUTO 27012KT 10SM CLR 30/02 A3007 RMK AO2K1V62019-07-18T14:35:00Z38.43-105.130.02.02701210.030.070866TRUETRUEVFRMETAR1658.02019-07-18 14:41:06C¯›(y5    3K20U 181435Z AUTO 31009KT 10SM CLR 21/14 A2976 RMK AO2K20U2019-07-18T14:35:00Z46.93-103.9821.014.0310910.029.760826TRUETRUEVFRMETAR840.02019-07-18 14:41:06@¯›(y5    3K24J 181435Z AUTO 26004KT 10SM CLR 30/26 A3010 RMK A01K24J2019-07-18T14:35:00Z30.3-83.0330.026.0260410.030.100393TRUETRUEVFRMETAR32.02019-07-18 14:41:06 ¾,^Œ¾H¯›(5   3KCLK 181435Z AUTO 19015G22KT 10SM CLR 28/18 A2994 RMK AO2KCLK2019-07-18T14:35:00Z35.53-98.9328.018.0190152210.029.940945TRUETRUEVFRMETAR492.02019-07-18 14:41:06L¯›)5    3KDCM 181435Z AUTO 00000KT 10SM CLR 28/21 A3004 RMK AO2 LTG DSNT SEKDCM2019-07-18T14:35:00Z34.78-81.228.021.00010.030.041338TRUETRUEVFRMETAR200.02019-07-18 14:41:06H¯›(5   3KLBO 181435Z AUTO 23010G19KT 10SM CLR 28/23 A2999 RMK AO2KLBO2019-07-18T14:35:00Z37.65-92.6528.023.0230101910.029.991142TRUETRUEVFRMETAR403.02019-07-18 14:41:06N¯›) 5    3K06D 181435Z AUTO 23011KT 10SM FEW085 OVC110 19/17 A2960 RMK AO2K06D2019-07-18T14:35:00Z48.88-99.6219.017.02301110.029.601377TRUETRUEVFRMETAR556.02019-07-18 14:41:06 È8j£ÈU¯›#)!5    3KDYT 181435Z AUTO 00000KT 7SM BKN004 BKN095 18/15 A2968 RMK AO2 LTG DSNT EKDYT2019-07-18T14:35:00Z46.72-92.0318.015.0007.029.681103TRUETRUELIFRMETAR186.02019-07-18 14:41:06A¯›"(y5    3KCMR 181435Z AUTO 21009KT 10SM CLR 22/09 A3030 RMK AO2KCMR2019-07-18T14:35:00Z35.3-112.222.09.0210910.030.301182TRUETRUEVFRMETAR2036.02019-07-18 14:41:06H¯›!(5   3KCNC 181435Z AUTO 22016G24KT 10SM CLR 29/24 A2978 RMK AO2KCNC2019-07-18T14:35:00Z41.02-93.3729.024.0220162410.029.778543TRUETRUEVFRMETAR320.02019-07-18 14:41:06B¯› (y5    3KVNW 181435Z AUTO 22007KT 10SM CLR 28/23 A2996 RMK AO2KVNW2019-07-18T14:35:00Z40.87-84.6228.023.0220710.029.958662TRUETRUEVFRSPECI239.02019-07-18 14:41:06 ¶)Kƒ¶G¯›'(5   3KIKV 181435Z AUTO 22006G11KT 10SM CLR 30/24 A2976 RMK AO2KIKV2019-07-18T14:35:00Z41.68-93.5730.024.022061110.029.760826TRUETRUEVFRMETAR275.02019-07-18 14:41:06B¯›&(y5    3KGHW 181435Z AUTO 20003KT 10SM CLR 24/20 A2970 RMK AO2KGHW2019-07-18T14:35:00Z45.63-95.3224.020.0200310.029.698818TRUETRUEVFRMETAR425.02019-07-18 14:41:06X¯›%)!5    3KGCD 181435Z AUTO 26004KT 10SM SCT045 OVC050 17/10 A3002 RMK AO2 T01730101KGCD2019-07-18T14:35:00Z44.38-118.9717.310.1260410.030.02067TRUETRUEVFRMETAR1127.02019-07-18 14:41:06Q¯›$)5    3KGEV 181435Z AUTO 30004KT 10SM OVC016 22/19 A3016 RMK AO2 T02240191KGEV2019-07-18T14:35:00Z36.43-81.4222.419.1300410.030.159449TRUETRUEMVFRMETAR969.02019-07-18 14:41:06 Í1f›ÍH¯›+(5   3KICL 181435Z AUTO 21014G22KT 10SM CLR 30/24 A2978 RMK AO2KICL2019-07-18T14:35:00Z40.72-95.0230.024.0210142210.029.778543TRUETRUEVFRMETAR303.02019-07-18 14:41:06E¯›*(5    3KI67 181435Z AUTO 20003KT 10SM SCT013 27/23 A2997 RMK AO1KI672019-07-18T14:35:00Z39.25-84.7827.023.0200310.029.970472TRUETRUEVFRMETAR178.02019-07-18 14:41:06E¯›)(5    3KHYX 181435Z AUTO 19009KT 10SM SCT048 27/18 A2990 RMK AO2KHYX2019-07-18T14:35:00Z43.43-83.8727.018.0190910.029.899607TRUETRUEVFRMETAR183.02019-07-18 14:41:06I¯›((5   3KHZE 181435Z AUTO 26010G15KT 10SM CLR 23/16 A2968 RMK AO2KHZE2019-07-18T14:35:00Z47.28-101.5823.016.0260101510.029.681103TRUETRUEVFRMETAR553.02019-07-18 14:41:06Y8ï8@HPX`hpx€ˆ˜ ¨°¸ÀÈÐØàèðø (08@HPX`hpx€ˆ˜ ¨°¸ÀÈÐØàèðø (08@HPX`hpx€ˆ˜ ¨°¸ÀÈÐØàèðø ¨°¸ÀÈÐØàèðø•¯š–¯š—¯š˜¯š"™¯š'š¯š+›¯š/œ¯š4¯š8ž¯š<Ÿ¯š@ ¯šD•¯š–¯š—¯š˜¯š"™¯š'š¯š+›¯š/œ¯š4¯š8ž¯š<Ÿ¯š@ ¯šD¡¯šH¢¯šL£¯šP¤¯šT¥¯šX¦¯š\§¯š`¨¯šd©¯šhª¯šl«¯šp¬¯šu­¯šy®¯š}¯¯›°¯›±¯› ²¯›³¯›´¯›µ¯›¶¯›·¯›#¸¯›'¹¯›+»¯›/¼¯›4½¯›8¾¯›<¿¯›@À¯›DÁ¯›H¯›LQį›Uů›YƯ›]ǯ›aȯ›fɯ›jʯ›o˯›s̯›wͯ›{ߝ›ϯœЯœѯœ Ò¯œÓ¯œÔ¯œÕ¯œÖ¯œ ׯœ$دœ(Ù¯œ,Ú¯œ0Û¯œ4ܯœ8ݯœ<Þ¯œ@߯œD௝œHᯝœL⯝œP㯝œT䯝œX寝œ\毝œ`篝œe话œj鯝œoꯝœs믝œx쯝œ|í¯ ¿6T~¿9¯›/(w5    3KDPL 181435Z AUTO 21005KT 7SM CLR 31/24 A3000 RMK AO2KDPL2019-07-18T14:35:00Z35.0-77.9731.024.021057.030.0TRUETRUEVFRMETAR42.02019-07-18 14:41:06P¯›.)5    3KDUH 181435Z AUTO 22007KT 10SM SCT055 28/24 A2994 RMK AO2 T02800237KDUH2019-07-18T14:35:00Z41.73-83.6528.023.7220710.029.940945TRUETRUEVFRMETAR204.02019-07-18 14:41:06\¯›-)'5     3KIIB 181435Z AUTO 09004KT 10SM RA SCT005 OVC018 24/23 A2983 RMK AO2 T02390227KIIB2019-07-18T14:35:00Z42.45-91.9523.922.790410.029.828741TRUETRUERAMVFRMETAR298.02019-07-18 14:41:06D¯›,(5    3KIDI 181435Z AUTO 00000KT 10SM OVC017 24/22 A3003 RMK A01KIDI2019-07-18T14:35:00Z40.62-79.0824.022.00010.030.029528TRUETRUEMVFRMETAR429.02019-07-18 14:41:06 7o­åF¯›4(}5    3KD57 181435Z AUTO 29007KT 10SM 20/14 A2970 RMK AO2 PWINOKD572019-07-18T14:35:00Z46.82-101.8720.014.0290710.029.698818TRUETRUETRUEMETAR637.02019-07-18 14:41:06B¯›3(y5    3KD60 181435Z AUTO 26014KT 10SM CLR 19/15 A2967 RMK AO2KD602019-07-18T14:35:00Z48.38-102.919.015.02601410.029.66929TRUETRUEVFRMETAR693.02019-07-18 14:41:06<¯›2(q5   3KDEH 181435Z AUTO 14011KT 10SM 20/20 A2978 RMK AO2KDEH2019-07-18T14:35:00Z43.27-91.7220.020.01401110.029.778543TRUETRUEMETAR353.02019-07-18 14:41:06B¯›1(y5    3KDLZ 181435Z AUTO 20005KT 10SM CLR 27/22 A2999 RMK AO2KDLZ2019-07-18T14:35:00Z40.28-83.1227.022.0200510.029.991142TRUETRUEVFRMETAR289.02019-07-18 14:41:06C¯›0(y5    3KDNA 181435Z AUTO 22006KT 10SM CLR 23/16 A3010 RMK AO2KDNA2019-07-18T14:35:00Z31.88-106.723.016.0220610.030.100393TRUETRUEVFRMETAR1253.02019-07-18 14:41:06 È2k¢ÈT¯›8)5    3KCQW 181435Z AUTO 22005KT 10SM CLR 29/23 A3001 RMK AO2 LTG DSNT S AND SWKCQW2019-07-18T14:35:00Z34.72-79.9529.023.0220510.030.008858TRUETRUEVFRMETAR73.02019-07-18 14:41:06C¯›7(y5    3KCSQ 181435Z AUTO 22016KT 10SM CLR 29/23 A2978 RMK AO2KCSQ2019-07-18T14:35:00Z41.02-94.3729.023.02201610.029.778543TRUETRUEVFRMETAR394.02019-07-18 14:41:06A¯›6(5    3KCVH 181435Z AUTO 00000KT 10SM OVC005 13/12 A2998 RMK A01KCVH2019-07-18T14:35:00Z36.9-121.4213.012.00010.029.97933TRUETRUEIFRMETAR70.02019-07-18 14:41:06H¯›5(5   3KD50 181435Z AUTO 27013G19KT 10SM CLR 20/12 A2963 RMK AO2KD502019-07-18T14:35:00Z48.93-103.320.012.0270131910.029.630905TRUETRUEVFRMETAR595.02019-07-18 14:41:06 ½+p›½X¯›<)!5    3KJSO 181435Z AUTO 20007KT 10SM BKN011 OVC018 27/23 A3009 RMK AO2 T02720239KJSO2019-07-18T14:35:00Z31.87-95.2227.223.9200710.030.088583TRUETRUEMVFRMETAR206.02019-07-18 14:41:06O¯›;) 5    3KJHN 181435Z AUTO 25008KT 10SM CLR 28/17 A2988 RMK AO2 T02770174KJHN2019-07-18T14:35:00Z37.58-101.7327.717.4250810.029.878937TRUETRUEVFRMETAR1013.02019-07-18 14:41:065¯›:(i5    3KJFX 181435Z AUTO 10SM CLR 29/24 A3009 RMK AO2KJFX2019-07-18T14:35:00Z33.9-87.3229.024.010.030.088583TRUETRUEVFRMETAR148.02019-07-18 14:41:06O¯›9) 5    3KCPT 181435Z AUTO 19015KT 10SM BKN020 BKN025 28/23 A3004 RMK AO2KCPT2019-07-18T14:35:00Z32.35-97.4328.023.01901510.030.041338TRUETRUEMVFRMETAR260.02019-07-18 14:41:06 Á9j•ÁN¯›@)5     3KHNR 181435Z AUTO 23010KT 10SM CLR 26/25 A2977 RMK AO2 PWINOKHNR2019-07-18T14:35:00Z41.58-95.3326.025.02301010.029.769686TRUETRUETRUEVFRMETAR375.02019-07-18 14:41:06O¯›?) 5    3KHQG 181435Z AUTO 22013KT 10SM CLR 28/18 A2989 RMK AO2 T02750178KHQG2019-07-18T14:35:00Z37.17-101.3727.517.82201310.029.890747TRUETRUEVFRMETAR956.02019-07-18 14:41:06I¯›>)5    3KJYL 181435Z AUTO 30003KT CLR 32/23 A3007 RMK AO2 T03220231 PWINOKJYL2019-07-18T14:35:00Z32.65-81.632.223.1300330.070866TRUETRUETRUEMETAR57.02019-07-18 14:41:06A¯›=(5    3KJVW 181435Z AUTO VRB04KT 10SM SCT013 29/27 A3009 RMK AO2KJVW2019-07-18T14:35:00Z32.3-90.4229.027.00410.030.088583TRUETRUEVFRMETAR76.02019-07-18 14:41:06 ¯6S‚¯M¯›D) 5     3KHAF 181435Z AUTO 15008KT 1 1/2SM BR OVC003 13/13 A2996 RMK AO2KHAF2019-07-18T14:35:00Z37.52-122.513.013.015081.529.958662TRUETRUEBRLIFRMETAR21.02019-07-18 14:41:06K¯›C) 5    3KHCO 181435Z AUTO 00000KT 10SM SCT070 SCT080 23/19 A2957 RMK AO2KHCO2019-07-18T14:35:00Z48.75-96.9323.019.00010.029.568897TRUETRUEVFRMETAR250.02019-07-18 14:41:06]¯›B)15    3KHEG 181435Z AUTO 18003KT 8SM SCT023 BKN028 29/22 A3013 RMK AO2 LTG DSNT SE AND SWKHEG2019-07-18T14:35:00Z30.28-81.829.022.018038.030.129921TRUETRUEMVFRMETAR27.02019-07-18 14:41:06D¯›A(y5    3KHEQ 181435Z AUTO 31007KT 10SM CLR 31/10 A2987 RMK AO2KHEQ2019-07-18T14:35:00Z40.57-102.2831.010.0310710.029.870079TRUETRUEVFRMETAR1137.02019-07-18 14:41:06 À3]€À:¯›H(q5   3KGWR 181435Z AUTO 24009KT 10SM 23/20 A2967 RMK A01KGWR2019-07-18T14:35:00Z46.22-97.6523.020.0240910.029.66929TRUETRUEMETAR386.02019-07-18 14:41:06W¯›G)!5    3KGYB 181435Z AUTO 18008KT 10SM SCT018 SCT023 30/24 A3005 RMK AO2 T02970242KGYB2019-07-18T14:35:00Z30.17-96.9829.724.2180810.030.050198TRUETRUEVFRMETAR148.02019-07-18 14:41:06P¯›F)5    3KGYL 181435Z AUTO 18004KT 10SM SCT012 25/22 A2972 RMK AO2 T02540224KGYL2019-07-18T14:35:00Z44.77-94.0825.422.4180410.029.719488TRUETRUEVFRMETAR302.02019-07-18 14:41:06G¯›E(5   3KGZL 181435Z AUTO 22013G17KT 10SM CLR 30/22 A2999 RMK AO2KGZL2019-07-18T14:35:00Z35.28-95.130.022.0220131710.029.991142TRUETRUEVFRMETAR183.02019-07-18 14:41:06 Ç-Z˜ÇK¯›L)5     3KL18 181435Z AUTO 27003KT 5SM BR OVC004 16/15 A2999 RMK AO2KL182019-07-18T14:35:00Z33.35-117.2516.015.027035.029.991142TRUETRUEBRLIFRMETAR216.02019-07-18 14:41:06<¯›K(w5    3KJZI 181435Z AUTO 24006KT 9SM CLR 31/25 A3006 RMK AO2KJZI2019-07-18T14:35:00Z32.7-80.031.025.024069.030.059055TRUETRUEVFRMETAR6.02019-07-18 14:41:06M¯›J) 5    3KJYM 181435Z AUTO 18006KT 10SM CLR 26/23 A2994 RMK AO2 T02620225KJYM2019-07-18T14:35:00Z41.92-84.5826.222.5180610.029.940945TRUETRUEVFRMETAR360.02019-07-18 14:41:06M¯›I) 5    3KGNT 181435Z AUTO 36005KT 10SM CLR 23/08 A3030 RMK AO2 T02290075KGNT2019-07-18T14:35:00Z35.17-107.922.97.5360510.030.301182TRUETRUEVFRMETAR1987.02019-07-18 14:41:06 $8u°ë$A¯›Q(y5    3KLXL 181435Z AUTO 23004KT 10SM CLR 23/21 A2969 RMK AO2KLXL2019-07-18T14:35:00Z45.95-94.3323.021.0230410.029.68996TRUETRUEVFRMETAR342.02019-07-18 14:41:06?¯›P(y5    3KLRJ 181435Z AUTO 00000KT 10SM CLR 27/25 A2970 RMK AO2KLRJ2019-07-18T14:35:00Z42.77-96.227.025.00010.029.698818TRUETRUEVFRMETAR365.02019-07-18 14:41:06?¯›O(w5    3KLUX 181435Z AUTO 25004KT 7SM CLR 28/23 A3004 RMK AO2KLUX2019-07-18T14:35:00Z34.5-81.9528.023.025047.030.041338TRUETRUEVFRMETAR213.02019-07-18 14:41:06=¯›N(y5    3KKY8 181435Z AUTO 23006KT 10SM CLR 27/27 A3000 RMK A01KKY82019-07-18T14:35:00Z37.95-86.8727.027.0230610.030.0TRUETRUEVFRMETAR126.02019-07-18 14:41:06B¯›M(y5    3KL08 181435Z AUTO 19003KT 10SM CLR 28/06 A2987 RMK AO2KL082019-07-18T14:35:00Z33.27-116.3228.06.0190310.029.870079TRUETRUEVFRMETAR159.02019-07-18 14:41:06 Í:]–́C¯›U(y5    3KMAN 181435Z AUTO 32008KT 10SM CLR 22/10 A2996 RMK A01KMAN2019-07-18T14:35:00Z43.58-116.5222.010.0320810.029.958662TRUETRUEVFRMETAR774.02019-07-18 14:41:06A¯›T(y5    3KM40 181435Z AUTO 26008KT 10SM CLR 29/20 A3008 RMK AO2KM402019-07-18T14:35:00Z33.87-88.4829.020.0260810.030.079725TRUETRUEVFRMETAR69.02019-07-18 14:41:06W¯›S)5     3KM25 181435Z AUTO 19005KT 10SM SCT009 BKN110 24/23 A3001 RMK AO2 PWINOKM252019-07-18T14:35:00Z36.77-88.5824.023.0190510.030.008858TRUETRUETRUEVFRMETAR160.02019-07-18 14:41:06@¯›R(y5    3KLYV 181435Z AUTO 00000KT 10SM CLR 25/21 A2975 RMK AO2KLYV2019-07-18T14:35:00Z43.62-96.2225.021.00010.029.749016TRUETRUEVFRMETAR436.02019-07-18 14:41:06 ƒ<ijƒa¯›Y)35     3KLDM 181435Z AUTO 15010KT 7SM RA SCT041 BKN060 OVC100 23/21 A2980 RMK AO2 T02250214KLDM2019-07-18T14:35:00Z43.97-86.422.521.4150107.029.799213TRUETRUERAVFRMETAR197.02019-07-18 14:41:06y¯›X)]5     3KLNL 181435Z AUTO 24005KT 10SM VCTS SCT060 BKN080 BKN090 24/18 A2976 RMK AO2 LTG DSNT W THRU N T02370182KLNL2019-07-18T14:35:00Z46.15-89.2223.718.2240510.029.760826TRUETRUEVCTSVFRMETAR520.02019-07-18 14:41:06M¯›W) 5    3KMRN 181435Z AUTO 28007KT 10SM CLR 29/19 A3008 RMK AO2 T02940185KMRN2019-07-18T14:35:00Z35.82-81.6229.418.5280710.030.079725TRUETRUEVFRMETAR387.02019-07-18 14:41:06>¯›V)5     3KMGC 181435Z AUTO 31005KT 10SM BKN047 OVC055 A2996 RMK AO2KMGC2019-07-18T14:35:00Z41.7-86.82310510.029.958662TRUETRUEVFRMETAR200.02019-07-18 14:41:06 ±-TŽ±W¯›])5   3KOLZ 181435Z AUTO 13007G13KT 8SM BKN005 BKN015 BKN021 21/21 A2984 RMK A01KOLZ2019-07-18T14:35:00Z42.67-91.9721.021.01307138.029.840551TRUETRUEIFRMETAR328.02019-07-18 14:41:06@¯›\(y5    3KMUT 181435Z AUTO 00000KT 10SM CLR 28/23 A2984 RMK AO2KMUT2019-07-18T14:35:00Z41.37-91.1528.023.00010.029.840551TRUETRUEVFRMETAR167.02019-07-18 14:41:06S¯›[)5    3KMXO 181435Z AUTO 08008KT 10SM SCT032 SCT042 SCT120 23/23 A2983 RMK AO2KMXO2019-07-18T14:35:00Z42.22-91.1723.023.080810.029.828741TRUETRUEVFRMETAR259.02019-07-18 14:41:06M¯›Z) 5     3KL52 181435Z AUTO 28004KT 1 1/4SM BR OVC002 14/13 A2999 RMK A01KL522019-07-18T14:35:00Z35.1-120.6214.013.028041.2529.991142TRUETRUEBRLIFRMETAR4.02019-07-18 14:41:06 À7e“ÀM¯›a) 5    3KPCZ 181435Z AUTO 20004KT 10SM CLR 24/23 A2978 RMK AO2 T02360225KPCZ2019-07-18T14:35:00Z44.33-89.0223.622.5200410.029.778543TRUETRUEVFRMETAR252.02019-07-18 14:41:06L¯›`) 5    3KONZ 181435Z AUTO 19005KT 10SM CLR 26/21 A2994 RMK AO2 T02550207KONZ2019-07-18T14:35:00Z42.1-83.1525.520.7190510.029.940945TRUETRUEVFRMETAR180.02019-07-18 14:41:06L¯›_) 5    3KOCW 181435Z AUTO 23009KT 10SM CLR 31/24 A2999 RMK AO2 T03140242KOCW2019-07-18T14:35:00Z35.57-77.0531.424.2230910.029.991142TRUETRUEVFRMETAR12.02019-07-18 14:41:06C¯›^(}5    3KSHL 181435Z AUTO 30003KT 9SM FEW008 26/26 A2973 RMK AO2KSHL2019-07-18T14:35:00Z43.22-95.8226.026.030039.029.731298TRUETRUEVFRMETAR432.02019-07-18 14:41:06 8e˜ÛC¯›f(5    3KOQN 181435Z AUTO 00000KT 10SM OVC100 28/23 A2991 RMK AO2KOQN2019-07-18T14:35:00Z39.98-75.5828.023.00010.029.911417TRUETRUEVFRMETAR142.02019-07-18 14:41:067¯›e(u5   3KORS 181435Z AUTO 17006KT OVC075 15/11 A2999 RMK AO2KORS2019-07-18T14:35:00Z48.7-122.9215.011.0170629.991142TRUETRUEMETAR9.02019-07-18 14:41:06G¯›d(5   3KOXV 181435Z AUTO 23009G16KT 10SM CLR 29/24 A2977 RMK AO2KOXV2019-07-18T14:35:00Z41.28-93.1229.024.023091610.029.769686TRUETRUEVFRMETAR283.02019-07-18 14:41:06M¯›c) 5    3KOZW 181435Z AUTO 19005KT 10SM CLR 26/20 A2994 RMK AO2 T02630200KOZW2019-07-18T14:35:00Z42.62-83.9726.320.0190510.029.940945TRUETRUEVFRMETAR293.02019-07-18 14:41:06B¯›b(y5    3KPAN 181435Z AUTO 00000KT 10SM CLR 24/11 A3022 RMK AO2KPAN2019-07-18T14:35:00Z34.25-111.3324.011.00010.030.221457TRUETRUEVFRMETAR1572.02019-07-18 14:41:06 ¯&I¯L¯›j)5    3KPMH 181435Z AUTO 27003KT 10SM OVC012 25/23 A3000 RMK AO2 T02530225KPMH2019-07-18T14:35:00Z38.83-82.8525.322.5270310.030.0TRUETRUEMVFRMETAR202.02019-07-18 14:41:06B¯›i(y5    3KPQN 181435Z AUTO 24006KT 10SM CLR 24/23 A2978 RMK AO2KPQN2019-07-18T14:35:00Z43.97-96.3224.023.0240610.029.778543TRUETRUEVFRMETAR529.02019-07-18 14:41:06W¯›h)!5    3KPVB 181435Z AUTO 13009KT 10SM SCT003 BKN060 21/21 A2987 RMK AO1 T02070207KPVB2019-07-18T14:35:00Z42.68-90.4320.720.7130910.029.870079TRUETRUEVFRMETAR313.02019-07-18 14:41:06T¯›g)5   3KPYX 181435Z AUTO 20018G22KT 10SM CLR 29/16 A2990 RMK AO2 T02900164KPYX2019-07-18T14:35:00Z36.42-100.7529.016.4200182210.029.899607TRUETRUEVFRMETAR889.02019-07-18 14:41:06 :t¦ÝB¯›o(y5    3KRKR 181435Z AUTO 20009KT 10SM CLR 30/22 A2999 RMK AO2KRKR2019-07-18T14:35:00Z35.02-94.6230.022.0200910.029.991142TRUETRUEVFRMETAR138.02019-07-18 14:41:06C¯›n(y5    3KRDK 181435Z AUTO 20015KT 10SM CLR 29/23 A2976 RMK AO2KRDK2019-07-18T14:35:00Z41.02-95.2729.023.02001510.029.760826TRUETRUEVFRMETAR318.02019-07-18 14:41:06H¯›m(5   3KRCE 181435Z AUTO 20013G23KT 10SM CLR 29/21 A2994 RMK AO2KRCE2019-07-18T14:35:00Z35.48-97.8229.021.0200132310.029.940945TRUETRUEVFRMETAR413.02019-07-18 14:41:06@¯›l(y5    3KPHN 181435Z AUTO 00000KT 10SM CLR 27/18 A2995 RMK AO2KPHN2019-07-18T14:35:00Z42.92-82.5227.018.00010.029.949802TRUETRUEVFRMETAR198.02019-07-18 14:41:06@¯›k(y5    3KPLR 181435Z AUTO VRB04KT 10SM CLR 29/27 A3010 RMK A01KPLR2019-07-18T14:35:00Z33.57-86.2529.027.00410.030.100393TRUETRUEVFRMETAR148.02019-07-18 14:41:06 -JxU¯›s)5    3K2G4 181435Z AUTO 28005KT 10SM SCT006 BKN019 OVC027 20/20 A3007 RMK AO1K2G42019-07-18T14:35:00Z39.58-79.3320.020.0280510.030.070866TRUETRUEMVFRMETAR894.02019-07-18 14:41:06L¯›r) 5    3KRNP 181435Z AUTO 19007KT 10SM CLR 27/21 A2992 RMK AO2 T02650206KRNP2019-07-18T14:35:00Z43.0-84.1326.520.6190710.029.920275TRUETRUEVFRMETAR224.02019-07-18 14:41:06]¯›q)/5    3KRQB 181435Z AUTO 22006KT 10SM SCT018 BKN034 OVC047 25/22 A2991 RMK AO2 T02500215KRQB2019-07-18T14:35:00Z43.72-85.525.021.5220610.029.911417TRUETRUEVFRMETAR302.02019-07-18 14:41:06M¯›p) 5    3KRMY 181435Z AUTO 17003KT 10SM CLR 26/26 A2993 RMK AO2 T02570257KRMY2019-07-18T14:35:00Z42.23-84.9525.725.7170310.029.929134TRUETRUEVFRMETAR287.02019-07-18 14:41:06 ·*QŠ·M¯›w) 5    3KSLH 181435Z AUTO 19005KT 10SM CLR 27/20 A2980 RMK AO2 T02670202KSLH2019-07-18T14:35:00Z45.65-84.5226.720.2190510.029.799213TRUETRUEVFRMETAR195.02019-07-18 14:41:06A¯›v(y5    3KSMS 181435Z AUTO 26010KT 10SM CLR 31/24 A3004 RMK AO2KSMS2019-07-18T14:35:00Z34.0-80.3731.024.02601010.030.041338TRUETRUEVFRMETAR56.02019-07-18 14:41:06S¯›u)5    3KSNC 181435Z AUTO 08006KT 10SM SCT008 SCT012 OVC018 26/23 A2994 RMK AO2KSNC2019-07-18T14:35:00Z41.38-72.526.023.080610.029.940945TRUETRUEMVFRMETAR127.02019-07-18 14:41:06P¯›t)5    3KANK 181435Z AUTO 34005KT 10SM CLR 18/M01 A3037 RMK AO1 T01801008KANK2019-07-18T14:35:00Z38.53-106.0518.0-0.8340510.030.369095TRUETRUEVFRSPECI2293.02019-07-18 14:41:06 ×9b×@¯›{(y5    3KMAO 181435Z AUTO 23006KT 10SM CLR 30/23 A3002 RMK AO2KMAO2019-07-18T14:35:00Z34.18-79.3330.023.0230610.030.02067TRUETRUEVFRMETAR28.02019-07-18 14:41:06?¯›z(y5    3KSOW 181435Z AUTO 00000KT 10SM CLR 23/09 A3031 RMK AO2KSOW2019-07-18T14:35:00Z34.27-110.023.09.00010.030.31004TRUETRUEVFRMETAR1954.02019-07-18 14:41:06Q¯›y)5    3KSTE 181435Z AUTO 21009KT 10SM BKN012 22/21 A2982 RMK AO2 T02240211KSTE2019-07-18T14:35:00Z44.55-89.5322.421.1210910.029.819881TRUETRUEMVFRMETAR338.02019-07-18 14:41:06A¯›x(y5    3KSLB 181435Z AUTO 24005KT 10SM CLR 28/24 A2970 RMK AO2KSLB2019-07-18T14:35:00Z42.6-95.2228.024.0240510.029.698818TRUETRUEVFRMETAR454.02019-07-18 14:41:06 ¯,Z“¯^¯›)5    3KTOB 181435Z AUTO 16015G18KT 10SM SCT017 BKN024 23/19 A2973 RMK AO2 PWINOKTOB2019-07-18T14:35:00Z44.02-92.8223.019.0160151810.029.731298TRUETRUETRUEMVFRMETAR398.02019-07-18 14:41:06A¯›~(y5    3KSVE 181435Z AUTO 00000KT 10SM CLR 18/09 A3007 RMK AO2KSVE2019-07-18T14:35:00Z40.37-120.5718.09.00010.030.070866TRUETRUEVFRMETAR1263.02019-07-18 14:41:06L¯›}) 5    3KSVH 181435Z AUTO 19004KT 10SM CLR 30/22 A3002 RMK AO2 T02950218KSVH2019-07-18T14:35:00Z35.75-80.9529.521.8190410.030.02067TRUETRUEVFRMETAR294.02019-07-18 14:41:06N¯›|) 5    3KSXU 181435Z AUTO 29008KT 10SM CLR 28/08 A3003 RMK AO2 T02800075KSXU2019-07-18T14:35:00Z34.93-104.6528.07.5290810.030.029528TRUETRUEVFRMETAR1460.02019-07-18 14:41:06 Ç/j ÇS¯œ)5    3KTFP 181435Z AUTO 17013KT 10SM SCT019 32/26 A3001 RMK AO2 T03160257 PNOKTFP2019-07-18T14:35:00Z27.92-97.2231.625.71701310.030.008858TRUETRUEVFRMETAR6.02019-07-18 14:41:06D¯œ(}5     3KTKX 181435Z AUTO 20006KT 6SM BR CLR 28/27 A2999 RMK AO2KTKX2019-07-18T14:35:00Z36.22-90.0228.027.020066.029.991142TRUETRUEBRVFRMETAR80.02019-07-18 14:41:06?¯œ(y5    3KTME 181435Z AUTO 20008KT 10SM CLR 31/25 A3005 RMK AO2KTME2019-07-18T14:35:00Z29.8-95.931.025.0200810.030.050198TRUETRUEVFRMETAR51.02019-07-18 14:41:06K¯œ)5     3KTNU 181435Z AUTO VRB04KT 10SM CLR 28/25 A2977 RMK AO2 PWINOKTNU2019-07-18T14:35:00Z41.67-93.0228.025.00410.029.769686TRUETRUETRUEVFRMETAR290.02019-07-18 14:41:06 Ä5k’āH¯œ(5   3KTVY 181435Z AUTO 19015G23KT 10SM CLR 28/01 A2998 RMK AO2KTVY2019-07-18T14:35:00Z40.62-112.3528.01.0190152310.029.97933TRUETRUEVFRMETAR1317.02019-07-18 14:41:06S¯œ)5   3KU42 181435Z AUTO 15017G21KT 10SM CLR 26/04 A3002 RMK AO1 T02600040KU422019-07-18T14:35:00Z40.62-111.9826.04.0150172110.030.02067TRUETRUEVFRMETAR1402.02019-07-18 14:41:06D¯œ(5    3KUKT 181435Z AUTO 00000KT 10SM OVC011 26/24 A2992 RMK A01KUKT2019-07-18T14:35:00Z40.43-75.3826.024.00010.029.920275TRUETRUEMVFRMETAR160.02019-07-18 14:41:06E¯œ(5    3KSYM 181435Z AUTO 23006KT 10SM OVC006 25/23 A3005 RMK AO2KSYM2019-07-18T14:35:00Z38.22-83.5825.023.0230610.030.050198TRUETRUEIFRMETAR313.02019-07-18 14:41:06 ®-\ˆ®T¯œ )#5    3KAQV 181435Z AUTO VRB04KT 10SM FEW012 SCT018 29/24 A3007 RMK AO2 T02940244 KAQV2019-07-18T14:35:00Z31.4-93.329.424.40410.030.070866TRUETRUEVFRSPECI111.02019-07-18 14:41:06N¯œ ) 5    3KTQK 181435Z AUTO 20012KT 10SM CLR 26/18 A2985 RMK AO1 T02550183KTQK2019-07-18T14:35:00Z38.47-100.8825.518.32001210.029.84941TRUETRUEVFRMETAR904.02019-07-18 14:41:06K¯œ ) 5    3KTTA 181435Z AUTO 26004KT 10SM CLR 30/22 A2999 RMK AO2 T02950223KTTA2019-07-18T14:35:00Z35.58-79.129.522.3260410.029.991142TRUETRUEVFRMETAR75.02019-07-18 14:41:06M¯œ) 5    3KTTF 181435Z AUTO 17004KT 10SM CLR 28/23 A2993 RMK AO2 T02750232KTTF2019-07-18T14:35:00Z41.93-83.4227.523.2170410.029.929134TRUETRUEVFRMETAR188.02019-07-18 14:41:06 8s­åC¯œ(y5    3KFFL 181435Z AUTO 23010KT 10SM CLR 29/23 A2981 RMK A01KFFL2019-07-18T14:35:00Z41.03-91.9729.023.02301010.029.811024TRUETRUEVFRMETAR244.02019-07-18 14:41:06B¯œ(y5    3KFFM 181435Z AUTO 19003KT 10SM CLR 22/17 A2968 RMK AO2KFFM2019-07-18T14:35:00Z46.28-96.1522.017.0190310.029.681103TRUETRUEVFRMETAR361.02019-07-18 14:41:06@¯œ)5    3KFMH 181435Z 00000KT 8SM BKN013 OVC019 25/22 A2994 RMK AO2KFMH2019-07-18T14:35:00Z41.63-70.5225.022.0008.029.940945TRUEMVFRMETAR40.02019-07-18 14:41:06?¯œ (5    3KFRH 181435Z AUTO 25004KT 10SM SCT012 26/21 A3000 RMK AO1KFRH2019-07-18T14:35:00Z38.5-86.6326.021.0250410.030.0TRUETRUEVFRMETAR241.02019-07-18 14:41:06B¯œ (y5    3KFSW 181435Z AUTO 22011KT 10SM CLR 28/24 A2985 RMK AO2KFSW2019-07-18T14:35:00Z40.67-91.3228.024.02201110.029.84941TRUETRUEVFRMETAR221.02019-07-18 14:41:06 Œ'QUŒC¯œ(y5    3K2V5 181435Z AUTO 30007KT 10SM CLR 26/12 A2988 RMK AO2K2V52019-07-18T14:35:00Z40.1-102.2526.012.0300710.029.878937TRUETRUEVFRMETAR1118.02019-07-18 14:41:06v¯œ)E5      3KUNU 181435Z AUTO 16022G30KT 10SM -RA SCT100 BKN120 21/20 A2975 RMK AO2 P0002 T02100200 TSNOKUNU2019-07-18T14:35:00Z43.42-88.721.020.0160223010.029.749016TRUETRUETRUE-RAVFR0.02METAR285.02019-07-18 14:41:06P¯œ)5    3KELO 181435Z AUTO 00000KT 10SM BKN004 21/21 A2967 RMK AO2 LTG DSNT NEKELO2019-07-18T14:35:00Z47.82-91.8221.021.00010.029.66929TRUETRUELIFRMETAR443.02019-07-18 14:41:06S¯œ)5   3KF05 181435Z AUTO 20017G22KT 10SM CLR 30/21 A2994 RMK AO1 T03000205KF052019-07-18T14:35:00Z34.23-99.2830.020.5200172210.029.940945TRUETRUEVFRMETAR386.02019-07-18 14:41:06 Õ8g ÕE¯œ(5    3KULM 181435Z AUTO 22006KT 10SM OVC017 24/21 A2975 RMK AO2KULM2019-07-18T14:35:00Z44.32-94.524.021.0220610.029.749016TRUETRUEMVFRMETAR308.02019-07-18 14:41:06A¯œ(y5    3KW63 181435Z AUTO 25006KT 10SM CLR 30/22 A2997 RMK AO1KW632019-07-18T14:35:00Z36.6-78.5530.022.0250610.029.970472TRUETRUEVFRMETAR129.02019-07-18 14:41:06K¯œ) 5    3KW96 181435Z AUTO 23004KT 10SM CLR 29/24 A2992 RMK AO1 T02920239KW962019-07-18T14:35:00Z37.5-77.1229.223.9230410.029.920275TRUETRUEVFRMETAR37.02019-07-18 14:41:06B¯œ(y5    3KY19 181435Z AUTO 23007KT 10SM CLR 19/20 A2970 RMK AO2KY192019-07-18T14:35:00Z46.77-100.919.020.0230710.029.698818TRUETRUEVFRMETAR593.02019-07-18 14:41:06 ¯-e’¯]¯œ)35     3KSUW 181435Z AUTO 00000KT 5SM BR SCT002 BKN008 OVC100 18/18 A2967 RMK AO2 T01820182KSUW2019-07-18T14:35:00Z46.68-92.118.218.2005.029.66929TRUETRUEBRIFRMETAR206.02019-07-18 14:41:06M¯œ) 5    3KVTI 181435Z AUTO 17007KT 10SM CLR 27/23 A2981 RMK AO2 T02720233KVTI2019-07-18T14:35:00Z42.22-92.0227.223.3170710.029.811024TRUETRUEVFRSPECI255.02019-07-18 14:41:06B¯œ(y5    3K2C8 181435Z AUTO 22003KT 10SM CLR 22/18 A2957 RMK AO2K2C82019-07-18T14:35:00Z48.78-97.6322.018.0220310.029.568897TRUETRUEVFRMETAR272.02019-07-18 14:41:06M¯œ) 5    3KAID 181435Z AUTO 20007KT 10SM CLR 29/24 A2997 RMK AO2 T02860240KAID2019-07-18T14:35:00Z40.12-85.6228.624.0200710.029.970472TRUETRUEVFRSPECI280.02019-07-18 14:41:06 ‹.=h‹W¯œ )!5    3KY51 181435Z AUTO 20010KT 10SM SCT008 BKN060 20/20 A2982 RMK AO1 T02030203KY512019-07-18T14:35:00Z43.58-90.920.320.32001010.029.819881TRUETRUEVFRSPECI394.02019-07-18 14:41:06O¯œ) 5    3KMHL 181435Z AUTO 29009G18KT 10SM CLR 28/23 A2989 RMK AO2 TSNOKMHL2019-07-18T14:35:00Z39.1-93.228.023.029091810.029.890747TRUETRUETRUEVFRSPECI237.02019-07-18 14:41:06k¯œ)G5    3KRPD 181435Z AUTO 20008KT 10SM SCT014 BKN023 OVC050 23/21 A2976 RMK AO2 LTG DSNT NE T02250210KRPD2019-07-18T14:35:00Z45.42-91.7722.521.0200810.029.760826TRUETRUEMVFRMETAR338.02019-07-18 14:41:06L¯œ) 5    3KDYA 181435Z AUTO 24004KT 10SM CLR 29/24 A3008 RMK AO2 T02920239KDYA2019-07-18T14:35:00Z32.47-87.9529.223.9240410.030.079725TRUETRUEVFRMETAR34.02019-07-18 14:41:06 Ü<t±ÜO¯œ$)5    3KMCJ 181435Z AUTO 00000KT 9SM SCT019 BKN024 BKN030 30/24 A3004 RMK A01KMCJ2019-07-18T14:35:00Z29.72-95.430.024.0009.030.041338TRUETRUEMVFRMETAR69.02019-07-18 14:41:06=¯œ#(y5    3KRID 181435Z AUTO 22005KT 10SM CLR 27/27 A3000 RMK AO2KRID2019-07-18T14:35:00Z39.75-84.8527.027.0220510.030.0TRUETRUEVFRSPECI348.02019-07-18 14:41:06B¯œ"(y5    3KSPF 181435Z AUTO VRB03KT 10SM CLR 22/17 A2984 RMK AO2KSPF2019-07-18T14:35:00Z44.47-103.7722.017.00310.029.840551TRUETRUEVFRSPECI1188.02019-07-18 14:41:06>¯œ!(y5    3KVDF 181435Z AUTO 00000KT 10SM CLR 30/23 A3011 RMK AO2KVDF2019-07-18T14:35:00Z28.02-82.3330.023.00010.030.109253TRUETRUEVFRSPECI7.02019-07-18 14:41:06 Ï2j¢ÏM¯œ() 5    3KC62 181435Z AUTO 18006KT 10SM CLR 27/23 A2995 RMK AO2 T02760231KC622019-07-18T14:35:00Z41.47-85.2527.623.1180610.029.949802TRUETRUEVFRMETAR306.02019-07-18 14:41:06B¯œ'(}5    3K27K 181435Z AUTO 24007KT 7SM OVC006 24/23 A3002 RMK AO1K27K2019-07-18T14:35:00Z38.23-84.4324.023.024077.030.02067TRUETRUEIFRMETAR289.02019-07-18 14:41:06B¯œ&(y5    3KEOE 181435Z AUTO 24009KT 10SM CLR 30/24 A3007 RMK AO2KEOE2019-07-18T14:35:00Z34.32-81.6330.024.0240910.030.070866TRUETRUEVFRSPECI174.02019-07-18 14:41:06H¯œ%(5   3KLRY 181435Z AUTO 21011G16KT 10SM CLR 30/23 A2991 RMK AO2KLRY2019-07-18T14:35:00Z38.62-94.3530.023.0210111610.029.911417TRUETRUEVFRSPECI279.02019-07-18 14:41:06 Ã2k˜ÃO¯œ,)5    3KSGS 181435Z AUTO 16004KT 10SM SCT038 24/21 A2971 RMK AO2 T02390214KSGS2019-07-18T14:35:00Z44.87-93.0323.921.4160410.029.71063TRUETRUEVFRMETAR250.02019-07-18 14:41:06M¯œ+)5    3KLDJ 181435Z AUTO 00000KT 10SM OVC012 25/23 A2991 RMK AO2 T02500230KLDJ2019-07-18T14:35:00Z40.62-74.2525.023.00010.029.911417TRUETRUEMVFRMETAR7.02019-07-18 14:41:06A¯œ*(y5    3KIXA 181435Z AUTO 23009KT 10SM CLR 28/26 A2997 RMK AO2KIXA2019-07-18T14:35:00Z36.33-77.6328.026.0230910.029.970472TRUETRUEVFRMETAR44.02019-07-18 14:41:06H¯œ)) 5    3KINF 181435Z AUTO 00000KT 7SM CLR 28/25 A3011 RMK AO2 LTG DSNT WKINF2019-07-18T14:35:00Z28.8-82.3228.025.0007.030.109253TRUETRUEVFRMETAR15.02019-07-18 14:41:06 ¢9mj¢B¯œ0(y5    3KSPA 181435Z AUTO 26005KT 10SM CLR 27/22 A3004 RMK AO2KSPA2019-07-18T14:35:00Z34.92-81.9327.022.0260510.030.041338TRUETRUEVFRSPECI303.02019-07-18 14:41:06}¯œ/)[5     3KRRT 181435Z AUTO 19009G15KT 7SM TSRA SCT017 SCT035 BKN041 20/18 A2961 RMK AO2 LTG DSNT NE THRU S P0001KRRT2019-07-18T14:35:00Z48.93-95.3320.018.01909157.029.610237TRUETRUETSRAVFR0.01METAR327.02019-07-18 14:41:06F¯œ.(5    3KRUG 181435Z AUTO 22009KT 10SM FEW080 21/19 A2959 RMK AO2KRUG2019-07-18T14:35:00Z48.38-100.0221.019.0220910.029.589567TRUETRUEVFRMETAR472.02019-07-18 14:41:06A¯œ-(y5    3KS33 181435Z AUTO 03004KT 10SM CLR 17/11 A3002 RMK AO2KS332019-07-18T14:35:00Z44.67-121.1517.011.030410.030.02067TRUETRUEVFRMETAR743.02019-07-18 14:41:06 q;e_qh¯œ4)C5  3CYSB 181434Z 19011G17KT 20SM SCT020 BKN240 22/16 A2992 RMK SC3CI2 SLP134 DENSITY ALT 2300FTCYSB2019-07-18T14:34:00Z46.63-80.822.016.0190111720.029.9202751013.4VFRSPECI348.02019-07-18 14:41:06‚¯œ3)m5   3CYVP 181434Z 27012G19KT 230V300 15SM -RA BKN052 BKN095 BKN150 16/10 A2973 RMK SC5AC1AC1 SLP070 DENSITY ALT 500FTCYVP2019-07-18T14:34:00Z58.12-68.4216.010.0270121915.029.7312981007.0-RAVFRSPECI60.02019-07-18 14:41:06P¯œ2)5    3K3D2 181435Z AUTO 25004KT 10SM SCT095 21/20 A2973 RMK AO2 T02130201K3D22019-07-18T14:35:00Z45.13-87.1821.320.1250410.029.731298TRUETRUEVFRSPECI234.02019-07-18 14:41:06?¯œ1(w5    3KS32 181435Z AUTO 24007KT 9SM CLR 21/19 A2965 RMK AO2KS322019-07-18T14:35:00Z47.42-98.121.019.024079.029.648623TRUETRUEVFRMETAR684.02019-07-18 14:41:06 U!UF¯œ8)5    3CYGT 181433Z 11009KT 2SM BR OVC001 04/04 A2945 RMK ST8 SLP980CYGT2019-07-18T14:33:00Z69.37-81.824.04.011092.029.450787998.0BRLIFRSPECI51.02019-07-18 14:41:06\¯œ7)%5     3PAOU 181433Z AUTO 30013KT 10SM SCT026 OVC033 11/10 A3015 RMK AO2 RAE22 P0000PAOU2019-07-18T14:33:00Z56.0-161.1711.010.03001310.030.15059TRUETRUEVFR0.005SPECI4.02019-07-18 14:41:06‚¯œ6)‚5      3KOVS 181434Z AUTO 00000KT 1 1/2SM TSRA BR SCT009 BKN036 OVC100 21/19 A2984 RMK AO2 LTG DSNT N AND W TSE06B09 P0011 T02110194KOVS2019-07-18T14:34:00Z43.15-90.6821.119.4001.529.840551TRUETRUETSRA BRIFR0.11SPECI202.02019-07-18 14:41:06`¯œ5)35    3KAAF 181434Z AUTO 00000KT 10SM FEW027 SCT034 BKN043 31/24 A3009 RMK AO2 T03060239 $KAAF2019-07-18T14:34:00Z29.73-85.0330.623.90010.030.088583TRUETRUETRUEVFRSPECI5.02019-07-18 14:41:06 }:J}G¯œ<) 5    3KNFL 181433Z 23003KT 10SM SCT250 22/07 A3001 RMK AO2 T02170067KNFL2019-07-18T14:33:00Z39.42-118.721.76.7230310.030.008858TRUEVFRSPECI1199.02019-07-18 14:41:06j¯œ;)M5   3CYXL 181433Z 23009KT 170V250 15SM SCT013 BKN200 22/18 A2957 RMK CF4CI1 SLP016 DENSITY ALT 2800FTCYXL2019-07-18T14:33:00Z50.12-91.922.018.0230915.029.5688971001.6VFRSPECI390.02019-07-18 14:41:06[¯œ:)!5     3KBTP 181433Z AUTO 24005KT 7SM OVC004 22/21 A3001 RMK AO2 CIG 003V007 P0001KBTP2019-07-18T14:33:00Z40.77-79.9522.021.024057.030.008858TRUETRUELIFR0.01SPECI380.02019-07-18 14:41:06_¯œ9)+5    3EHVL 181433Z AUTO 24018KT 9000 DZ SCT009 BKN010 FEW015CB BKN070 18/16 Q1009 GRNEHVL2019-07-18T14:33:00Z53.234.9218.016.0240185.5929.793306TRUEDZBKN7000MVFRSPECI5.02019-07-18 14:41:06 ¹&U¹N¯œ@)5    3KESF 181433Z AUTO 21005KT 10SM SCT013 29/25 A3008 RMK AO2 T02890250KESF2019-07-18T14:33:00Z31.4-92.2828.925.0210510.030.079725TRUETRUEVFRSPECI28.02019-07-18 14:41:06B¯œ?(y5    3KFOZ 181433Z AUTO 23010KT 10SM CLR 20/19 A2971 RMK AO2KFOZ2019-07-18T14:33:00Z47.77-93.6520.019.02301010.029.71063TRUETRUEVFRSPECI411.02019-07-18 14:41:06K¯œ>)5     3PAKP 181433Z AUTO 05006KT 3/4SM BR OVC003 09/08 A2975 RMK AO2PAKP2019-07-18T14:33:00Z68.13-151.739.08.05060.7529.749016TRUETRUEBRLIFRSPECI642.02019-07-18 14:41:06T¯œ=)5    3CYPR 181433Z AUTO VRB02KT 9SM SCT016 BKN047 BKN055 13/11 A2985 RMK SLP112CYPR2019-07-18T14:33:00Z54.28-130.4213.011.0029.029.849411011.2TRUEVFRSPECI34.02019-07-18 14:41:06 `"$D`^¯œD)/5    3KPIR 181433Z AUTO 09008KT 10SM FEW009 BKN014 BKN070 23/21 A2969 RMK AO2 T02280206KPIR2019-07-18T14:33:00Z44.38-100.2822.820.690810.029.68996TRUETRUEMVFRSPECI526.02019-07-18 14:41:06Z¯œC)#5    3KMLF 181433Z AUTO 20011KT 10SM CLR 23/01 A3011 RMK AO2 WSHFT 1419 T02280006KMLF2019-07-18T14:33:00Z38.42-113.0222.80.62001110.030.109253TRUETRUEVFRSPECI1534.02019-07-18 14:41:06x¯œB)]5     3KASX 181433Z AUTO 22004KT 10SM FEW016 BKN033 BKN110 22/20 A2971 RMK AO2 LTG DSNT E RAE16 P0001 T02220200KASX2019-07-18T14:33:00Z46.55-90.9222.220.0220410.029.71063TRUETRUEVFR0.01SPECI251.02019-07-18 14:41:06X¯œA)!5    3KCSV 181433Z AUTO 29011KT 10SM SCT016 BKN042 26/21 A3014 RMK AO2 T02560211KCSV2019-07-18T14:33:00Z35.95-85.0825.621.12901110.030.138779TRUETRUEVFRSPECI570.02019-07-18 14:41:06 m.*dmq¯œH)]5    3CYVM 181433Z 03005KT 1 1/2SM VCFG FEW002 BKN004 BKN006 05/05 A2949 RMK FG2SF1ST4ST1 SF TR VIS S 6 SLP989CYVM2019-07-18T14:33:00Z67.53-64.025.05.03051.529.489174998.9VCFGLIFRSPECI6.02019-07-18 14:41:06@¯œG(y5    3KORB 181433Z AUTO 00000KT 10SM CLR 21/19 A2963 RMK AO2KORB2019-07-18T14:33:00Z48.02-92.8721.019.00010.029.630905TRUETRUEVFRMETAR397.02019-07-18 14:41:06~¯œF)i5    3KTCM 181433Z AUTO 17004KT 9SM BKN007 OVC015 13/13 A3003 RMK AO2 RAB11E22DZB22E23 CIG 007V017 BKN V SCT SLPNO $KTCM2019-07-18T14:33:00Z47.12-122.4713.013.017049.030.029528TRUETRUETRUEIFRSPECI98.02019-07-18 14:41:06L¯œE) 5     3KVBG 181433Z 00000KT 3SM BR OVC005 13/13 A2998 RMK AO2A SLP156KVBG2019-07-18T14:33:00Z34.73-120.5813.013.0003.029.979331015.6TRUEBRIFRSPECI112.02019-07-18 14:41:06 M$)-MZ¯œL)5   3KNBT 181432Z AUTO 21015G21KT 10SM SCT021 30/26 A3001 RMK AO2 T03000256 $KNBT2019-07-18T14:32:00Z35.02-76.4730.025.6210152110.030.008858TRUETRUETRUEVFRSPECI5.02019-07-18 14:41:06v¯œK)Y5    3CYFO 181432Z 05007KT 040V110 4SM -DZ BR BKN005 OVC013 16/15 A2953 RMK SF5ST3 SLP006 DENSITY ALT 1800FTCYFO2019-07-18T14:32:00Z54.67-101.6716.015.05074.029.5305121000.6-DZ BRIFRSPECI304.02019-07-18 14:41:06u¯œJ)W5    3CYZG 181432Z 23031KT 12SM -DZ BKN012 OVC068 12/10 A2951 RMK ST5AC3 WND SHFT SLP004 DENSITY ALT 1100FTCYZG2019-07-18T14:32:00Z62.17-75.6712.010.02303112.029.5098421000.4-DZMVFRSPECI226.02019-07-18 14:41:06V¯œI)5    3KDLF 181433Z 15015KT 10SM BKN016 OVC021 27/22 A3000 RMK AO2A SLP145 $KDLF2019-07-18T14:33:00Z29.37-100.7727.022.01501510.030.01014.5TRUETRUEMVFRSPECI330.02019-07-18 14:41:06 Z@bZ‚¯œP)‚5    3RJTL 181432Z 19006KT 160V240 8000 SHRA SCT008 BKN020 FEW020CB 25/24 Q1012 RMK 3ST008 7CU020 2CB020 A2990 CB 10KM NE MOV NERJTL2019-07-18T14:32:00Z35.78140.0225.024.019064.9729.88189SHRAMVFRSPECI33.02019-07-18 14:41:06X¯œO)!5    3KISW 181432Z AUTO 18007KT 10SM SCT009 BKN014 23/21 A2980 RMK AO2 T02280206KISW2019-07-18T14:32:00Z44.37-89.8322.820.6180710.029.799213TRUETRUEMVFRSPECI307.02019-07-18 14:41:06Q¯œN)5     3KPNE 181432Z 11005KT 6SM HZ BKN011 OVC018 28/24 A2990 RMK AO2 T02830244KPNE2019-07-18T14:32:00Z40.08-75.0228.324.411056.029.899607TRUEHZMVFRSPECI28.02019-07-18 14:41:06c¯œM)-5    3CYHE 181432Z AUTO 28012G20KT 9SM -RA BKN050 BKN060 BKN082 15/11 A2992 RMK SLP134CYHE2019-07-18T14:32:00Z49.37-121.515.011.028012209.029.9202751013.4TRUE-RAVFRSPECI39.02019-07-18 14:41:06 †%[ˆ†|¯œT)_5      3KDPA 181431Z 07004KT 2SM -TSRA BR SCT004 BKN012 OVC032 23/21 A2994 RMK AO2 LTG DSNT ALQDS P0027 T02280211KDPA2019-07-18T14:31:00Z41.92-88.2522.821.17042.029.940945TRUE-TSRA BRIFR0.27SPECI231.02019-07-18 14:41:06M¯œS)5    3KEST 181432Z AUTO 22006KT 8SM OVC006 24/23 A2974 RMK AO2 T02390228KEST2019-07-18T14:32:00Z43.4-94.7523.922.822068.029.740158TRUETRUEIFRSPECI401.02019-07-18 14:41:06D¯œR(5    3KXVG 181432Z AUTO 24003KT 10SM SCT085 22/19 A2966 RMK AO2KXVG2019-07-18T14:32:00Z46.98-94.222.019.0240310.029.660433TRUETRUEVFRSPECI407.02019-07-18 14:41:06U¯œQ)#5    3KBKB 181432Z AUTO VRB06KT 10SM SCT013 BKN022 29/24 A3006 RMK AO2 T02890244 KBKB2019-07-18T14:32:00Z31.0-92.9228.924.40610.030.059055TRUETRUEMVFRSPECI94.02019-07-18 14:41:06 p.AKpU¯œX)#5     3PADM 181431Z AUTO 24008KT 2 1/2SM BR OVC004 12/12 A3000 RMK AO2 VIS 1 1/2V4PADM2019-07-18T14:31:00Z61.87-162.0312.012.024082.530.0TRUETRUEBRLIFRSPECI31.02019-07-18 14:41:06p¯œW)E5      3KBKX 181431Z AUTO 11006KT 7SM -RA OVC005 22/22 A2976 RMK AO2 LTG DSNT NE TSB10E25RAB06 P0000KBKX2019-07-18T14:31:00Z44.28-96.8222.022.011067.029.760826TRUETRUE-RAIFR0.005SPECI502.02019-07-18 14:41:06g¯œV)/5      3KBID 181431Z AUTO 22003KT 6SM -RA BR OVC003 22/22 A2996 RMK AO2 CIG 003V006 P0008KBID2019-07-18T14:31:00Z41.17-71.5822.022.022036.029.958662TRUETRUE-RA BRLIFR0.08SPECI33.02019-07-18 14:41:06L¯œU)5    3SEMC 181431Z 12003KT 8000 BCFG BKN013 OVC080 19/18 Q1022 RMK A3020SEMC2019-07-18T14:31:00Z-2.3-78.1219.018.012034.9730.177166BCFGMVFRSPECI1052.02019-07-18 14:41:06 ª)XsªC¯œ\(y5    3KMNH 181431Z AUTO 24005KT 10SM CLR 23/06 A3021 RMK AO2KMNH2019-07-18T14:31:00Z39.22-104.6523.06.0240510.030.209646TRUETRUEVFRMETAR2152.02019-07-18 14:41:06_¯œ[))5   3KPVC 181431Z AUTO 06011G21KT 10SM OVC008 21/19 A2996 RMK AO2 CIG 004V010 PNO $KPVC2019-07-18T14:31:00Z42.07-70.2221.019.060112110.029.958662TRUETRUETRUEIFRSPECI2.02019-07-18 14:41:06K¯œZ)5   3K4BM 181431Z AUTO 24009G14KT 10SM CLR 12/M06 A3058 RMK AO2K4BM2019-07-18T14:31:00Z39.05-105.5212.0-6.024091410.030.578741TRUETRUEVFRMETAR3438.02019-07-18 14:41:06Q¯œY)5    3KFKL 181431Z AUTO VRB03KT 10SM OVC004 21/21 A3001 RMK AO2 CIG 002V006KFKL2019-07-18T14:31:00Z41.37-79.8721.021.00310.030.008858TRUETRUELIFRSPECI469.02019-07-18 14:41:06 †Ej†^¯œ`)55     3KGKJ 181431Z AUTO 00000KT 10SM OVC005 22/21 A3000 RMK AO2 CIG 003V006 T02220206 TSNOKGKJ2019-07-18T14:31:00Z41.63-80.2222.220.60010.030.0TRUETRUETRUEIFRSPECI428.02019-07-18 14:41:06U¯œ_)%5    3KHGR 181431Z 30005KT 10SM SCT014 BKN022 OVC075 27/26 A2992 RMK AO2 T02720256KHGR2019-07-18T14:31:00Z39.7-77.7327.225.6300510.029.920275TRUEMVFRSPECI224.02019-07-18 14:41:06I¯œ^)5    3KMDT 181431Z 00000KT 7SM BKN015 OVC021 27/23 A2990 RMK AO2 T02670228KMDT2019-07-18T14:31:00Z40.2-76.7726.722.8007.029.899607TRUEMVFRSPECI95.02019-07-18 14:41:06f¯œ])K5    3RJOP 181431Z 13004KT 6000 -SHRA FEW015 BKN030 BKN050 23/21 Q1012 RMK 2CU015 6CU030 7SC050 A2990RJOP2019-07-18T14:31:00Z34.0134.6223.021.013043.7329.88189-SHRAMVFRSPECI6.02019-07-18 14:41:06 @En®î@(¯œe(Y5   3LEMI 181430Z 14007KT CAVOK 31/13 Q1015LEMI2019-07-18T14:30:00Z37.8-1.1231.013.014076.2129.970472VFRMETAR193.02019-07-18 14:41:06:¯œd(q5    3VOHY 181430Z 27003KT 6000 SCT015 31/24 Q1005 NOSIGVOHY2019-07-18T14:30:00Z17.4578.4531.024.027033.7329.675198TRUEMVFRMETAR545.02019-07-18 14:41:06:¯œc(y5    3LFGA 181430Z AUTO 11005KT 030V160 9000 NSC 28/11 Q1012LFGA2019-07-18T14:30:00Z48.17.3528.011.011055.5929.88189TRUEVFRMETAR191.02019-07-18 14:41:06Q¯œb)5     3LFBU 181430Z AUTO 25008KT 220V280 9999 FEW044 OVC056 24/13 Q1017 NOSIGLFBU2019-07-18T14:30:00Z45.720.2224.013.025086.2130.029528TRUETRUEVFRMETAR133.02019-07-18 14:41:065¯œa(u5   3LEBG 181430Z 05007KT 010V100 9999 FEW025 26/07 Q1019LEBG2019-07-18T14:30:00Z42.37-3.6226.07.05076.2130.088583VFRMETAR891.02019-07-18 14:41:06 fK•×$f8¯œj(u5   3LEPP 181430Z 32014KT 290V360 9999 FEW035 24/13 Q1018LEPP2019-07-18T14:30:00Z42.77-1.6524.013.0320146.2130.059055VFRMETAR459.02019-07-18 14:41:06-¯œi(e5   3LEXJ 181430Z 36004KT 9999 FEW027 23/17 Q1019LEXJ2019-07-18T14:30:00Z43.42-3.8223.017.036046.2130.088583VFRMETAR6.02019-07-18 14:41:068¯œh(u5    3LELC 181430Z 11008KT 070V150 CAVOK 29/20 Q1014 NOSIGLELC2019-07-18T14:30:00Z37.77-0.829.020.011086.2129.940945TRUEVFRMETAR3.02019-07-18 14:41:060¯œg(i5   3LELN 181430Z 21005KT 160V290 CAVOK 27/06 Q1018LELN2019-07-18T14:30:00Z42.57-5.6527.06.021056.2130.059055VFRMETAR914.02019-07-18 14:41:06/¯œf(i5   3GEML 181430Z 06006KT 020V100 CAVOK 26/18 Q1014GEML2019-07-18T14:30:00Z35.27-2.9526.018.06066.2129.940945VFRMETAR55.02019-07-18 14:41:06 BD‡ÄB?¯œo(5    3VOBL 181430Z 27006KT 6000 SCT012 SCT080 27/20 Q1009 NOSIGVOBL2019-07-18T14:30:00Z13.277.727.020.027063.7329.793306TRUEMVFRMETAR915.02019-07-18 14:41:067¯œn(s5   3VOTP 181430Z 32002KT 6000 FEW020 SCT100 35/22 Q1001VOTP2019-07-18T14:30:00Z13.6379.5535.022.032023.7329.557087MVFRMETAR107.02019-07-18 14:41:06=¯œm)5   3VASU 181430Z 20007KT 6000 FEW020 30/25 Q1002 TEMPO 4000 HZVASU2019-07-18T14:30:00Z21.1272.7330.025.020073.7329.586615MVFRMETAR5.02019-07-18 14:41:067¯œl(y5    3LECH 181430Z AUTO 13010KT 080V170 9999 NCD 27/18 Q1016LECH2019-07-18T14:30:00Z40.20.0727.018.0130106.2130.0TRUEVFRMETAR337.02019-07-18 14:41:066¯œk(i5    3LETL 181430Z AUTO 34004KT 9999 NCD 29/10 Q1018LETL2019-07-18T14:30:00Z40.42-1.2229.010.034046.2130.059055TRUEVFRMETAR1013.02019-07-18 14:41:06 Ô/bÔ3¯œs(e5    3VTUI 181430Z 15003KT CAVOK 31/27 Q1003 NOSIGVTUI2019-07-18T14:30:00Z17.2104.1231.027.015036.2129.616142TRUEVFRMETAR172.02019-07-18 14:41:06O¯œr)5     3VOCB 181430Z 20010KT 5000 BR FEW010 SCT015 BKN080 25/22 Q1007 NOSIGVOCB2019-07-18T14:30:00Z11.0277.0325.022.0200103.1129.734253TRUEBRMVFRMETAR399.02019-07-18 14:41:06G¯œq)5    3VABB 181430Z 25008KT 4000 HZ SCT020 SCT025 30/25 Q1003 BECMG 3000 HZVABB2019-07-18T14:30:00Z19.172.8730.025.025082.4929.616142HZIFRMETAR8.02019-07-18 14:41:06K¯œp)5     3VOBZ 181430Z 00000KT 3000 BR SCT018 FEW030CB BKN080 27/25 Q1000 NOSIGVOBZ2019-07-18T14:30:00Z16.5280.7827.025.0001.8629.52756TRUEBRIFRMETAR24.02019-07-18 14:41:06 5kˆÃ(¯œx(Y5   3GMTT 181430Z 32010KT CAVOK 25/16 Q1013GMTT2019-07-18T14:30:00Z35.72-5.925.016.0320106.2129.911417VFRMETAR21.02019-07-18 14:41:06?¯œw(5    3VTSM 181430Z 30008KT 9999 FEW020 SCT100 27/24 Q1008 NOSIGVTSM2019-07-18T14:30:00Z9.55100.0727.024.030086.2129.763779TRUEVFRMETAR17.02019-07-18 14:41:06]¯œv)%5    3VOKN 181430Z 32005KT 4000 HZ FEW008 SCT012 FEW025CB BKN080 25/24 Q1006 NOSIGVOKN2019-07-18T14:30:00Z11.9275.5525.024.032052.4929.704725TRUEHZBKN8000IFRMETAR105.02019-07-18 14:41:06D¯œu)5     3VIDP 181430Z 00000KT 3500 HZ FEW040 SCT100 29/23 Q1001 NOSIGVIDP2019-07-18T14:30:00Z28.5777.1229.023.0002.1729.557087TRUEHZIFRMETAR233.02019-07-18 14:41:06E¯œt)5     3VILK 181430Z 30005KT 3500 HZ SCT020 BKN200 33/27 Q1000 NOSIGVILK2019-07-18T14:30:00Z26.7580.8733.027.030052.1729.52756TRUEHZIFRMETAR128.02019-07-18 14:41:06 Cc^¯œ|)?5    3LFQQ 181430Z AUTO 25014KT 9999 FEW026 BKN034 OVC044 21/15 Q1012 TEMPO 4000 SHRA BKN025TCULFQQ2019-07-18T14:30:00Z50.573.121.015.0250146.2129.88189TRUEVFRSPECI52.02019-07-18 14:41:06Z¯œ{)'5     3LFRB 181430Z AUTO 26007KT 220V320 9999 BKN028 BKN038 OVC044 20/13 Q1015 NOSIGLFRB2019-07-18T14:30:00Z48.45-4.4220.013.026076.2129.970472TRUETRUEMVFRMETAR103.02019-07-18 14:41:06V¯œz)!5   3UMGG 181430Z 28005G08MPS 9999 BKN023CB BKN100 19/16 Q1008 R28/290050 NOSIGUMGG2019-07-18T14:30:00Z52.5331.0219.016.028010166.2129.763779TRUEMVFRSPECI144.02019-07-18 14:41:06[¯œy)-5   3UMMS 181430Z 30006G10MPS 9999 BKN038CB 19/14 Q1007 R31R/190060 R31L/190055 NOSIGUMMS2019-07-18T14:30:00Z53.8828.0319.014.030012196.2129.734253TRUEVFRSPECI205.02019-07-18 14:41:06 A¶øW¯)-5    3LFBH 181430Z AUTO 23012KT 9999 FEW026 BKN032 BKN045 23/15 Q1017 TEMPO 28015G25KTLFBH2019-07-18T14:30:00Z46.18-1.223.015.0230126.2130.029528TRUEVFRSPECI10.02019-07-18 14:41:068¯(u5    3LFLL 181430Z 02008KT 330V070 CAVOK 29/09 Q1013 NOSIGLFLL2019-07-18T14:30:00Z45.725.0729.09.02086.2129.911417TRUEVFRMETAR240.02019-07-18 14:41:06E¯œ)5    3LFMN 181430Z 09008KT 9999 FEW016 FEW040CB BKN260 26/21 Q1012 NOSIGLFMN2019-07-18T14:30:00Z43.637.226.021.09086.2129.88189TRUEVFRMETAR10.02019-07-18 14:41:06:¯œ~(u5    3LFPG 181430Z 23011KT 190V260 CAVOK 27/09 Q1013 NOSIGLFPG2019-07-18T14:30:00Z49.022.5227.09.0230116.2129.911417TRUEVFRMETAR109.02019-07-18 14:41:069¯œ}(u5    3LFPO 181430Z 23014KT 200V260 CAVOK 28/09 Q1013 NOSIGLFPO2019-07-18T14:30:00Z48.722.3828.09.0230146.2129.911417TRUEVFRMETAR96.02019-07-18 14:41:06 ?o¦æA¯(5     3LFKB 181430Z AUTO 10007KT 070V150 CAVOK 28/17 Q1012 NOSIGLFKB2019-07-18T14:30:00Z42.539.4728.017.010076.2129.88189TRUETRUEVFRMETAR12.02019-07-18 14:41:06:¯(o5     3LFLB 181430Z AUTO 36008KT CAVOK 29/13 Q1012 NOSIGLFLB2019-07-18T14:30:00Z45.635.8729.013.036086.2129.88189TRUETRUEVFRMETAR239.02019-07-18 14:41:06C¯)5    3LFML 181430Z AUTO 24019KT CAVOK 32/15 Q1011 TEMPO 28015G25KTLFML2019-07-18T14:30:00Z43.455.2232.015.0240196.2129.852362TRUEVFRSPECI36.02019-07-18 14:41:06J¯) 5     3LFCR 181430Z AUTO 30009KT 230V350 9999 FEW047 22/10 Q1018 NOSIGLFCR2019-07-18T14:30:00Z44.382.4722.010.030096.2130.059055TRUETRUEVFRMETAR580.02019-07-18 14:41:06;¯(o5     3LFBD 181430Z AUTO 27010KT CAVOK 26/13 Q1018 NOSIGLFBD2019-07-18T14:30:00Z44.82-0.726.013.0270106.2130.059055TRUETRUEVFRMETAR61.02019-07-18 14:41:06 Ä"^ÄC¯ (5     3LFBO 181430Z AUTO 27008KT 160V320 CAVOK 27/11 Q1017 NOSIGLFBO2019-07-18T14:30:00Z43.621.3727.011.027086.2130.029528TRUETRUEVFRMETAR153.02019-07-18 14:41:06K¯ ) 5     3LFBP 181430Z AUTO 36005KT 260V050 9999 BKN049 24/14 Q1018 NOSIGLFBP2019-07-18T14:30:00Z43.37-0.4224.014.036056.2130.059055TRUETRUEVFRMETAR185.02019-07-18 14:41:06>¯({5     3LFBT 181430Z AUTO VRB05KT 9999 BKN042 24/15 Q1019 NOSIGLFBT2019-07-18T14:30:00Z43.170.024.015.0056.2130.088583TRUETRUEVFRMETAR363.02019-07-18 14:41:06X¯)'5     3LFBZ 181430Z AUTO 30009KT 250V350 9999 FEW031 SCT110 BKN220 23/17 Q1019 NOSIGLFBZ2019-07-18T14:30:00Z43.47-1.5223.017.030096.2130.088583TRUETRUEVFRMETAR71.02019-07-18 14:41:06 Æ0r˜ÆL¯)5    3LFJL 181430Z AUTO 28013KT CAVOK 27/09 Q1012 TEMPO 30015G25KT SCT065TCULFJL2019-07-18T14:30:00Z48.976.2527.09.0280136.2129.88189TRUEVFRSPECI264.02019-07-18 14:41:06T¯ )'5    3LFRS 181430Z AUTO 22010KT 9999 OVC008 21/18 Q1015 TEMPO 4500 -RA BECMG SCT020LFRS2019-07-18T14:30:00Z47.17-1.621.018.0220106.2129.970472TRUEIFRSPECI27.02019-07-18 14:41:068¯ (5   3LFBI 181430Z AUTO 24013KT 210V270 9999 ////// 26/12 Q1016LFBI2019-07-18T14:30:00Z46.570.3226.012.0240136.2130.0TRUESPECI120.02019-07-18 14:41:06J¯ ) 5     3LFBL 181430Z AUTO 24009KT 200V290 9999 BKN044 22/12 Q1018 NOSIGLFBL2019-07-18T14:30:00Z45.871.1722.012.024096.2130.059055TRUETRUEVFRMETAR402.02019-07-18 14:41:06 ²Aj’²Z¯)55    3LFAT 181430Z AUTO 26011KT 230V300 9999 BKN009 OVC068 19/16 Q1012 BECMG SCT013 BKN040LFAT2019-07-18T14:30:00Z50.521.6219.016.0260116.2129.88189TRUEIFRSPECI14.02019-07-18 14:41:06R¯)5     3LFRD 181430Z AUTO 33010KT 9999 BKN027 BKN040 OVC046 20/12 Q1014 NOSIGLFRD2019-07-18T14:30:00Z48.58-2.0720.012.0330106.2129.940945TRUETRUEMVFRMETAR59.02019-07-18 14:41:06Q¯)5     3LFRN 181430Z AUTO 32008KT 9999 FEW017 BKN028 OVC035 20/17 Q1014 NOSIGLFRN2019-07-18T14:30:00Z48.07-1.7220.017.032086.2129.940945TRUETRUEMVFRMETAR37.02019-07-18 14:41:069¯(u5    3LFSB 181430Z 26006KT 220V310 CAVOK 30/10 Q1013 NOSIGLFSB2019-07-18T14:30:00Z47.67.5230.010.026066.2129.911417TRUEVFRMETAR271.02019-07-18 14:41:06 °![˜°b¯)-5   3VOTV 181430Z 32010G20KT 2000 -RA SCT010 SCT015 FEW025CB BKN080 25/23 Q1007 NOSIGVOTV2019-07-18T14:30:00Z8.4776.9525.023.032010201.2429.734253TRUE-RABKN8000IFRMETAR8.02019-07-18 14:41:06=¯(w5     3VOHS 181430Z 23004KT 6000 HZ SCT015 29/22 Q1005 NOSIGVOHS2019-07-18T14:30:00Z17.2378.4329.022.023043.7329.675198TRUEHZMVFRMETAR1.02019-07-18 14:41:06@¯)5    3LEIB 181430Z 22008KT 180V250 9999 FEW030 28/20 Q1015 NOSIGLEIB2019-07-18T14:30:00Z38.871.3728.020.022086.2129.970472TRUEVFRMETAR12.02019-07-18 14:41:06Y¯)15    3LFAQ 181430Z AUTO 27013KT 9999 FEW033 OVC042 21/15 Q1013 TEMPO 4000 SHRA BKN025TCULFAQ2019-07-18T14:30:00Z49.972.721.015.0270136.2129.911417TRUEVFRMETAR111.02019-07-18 14:41:06 ]DÏ]7¯(u5   3LZSL 181430Z 17005KT 120V240 9999 FEW052 24/10 Q1013LZSL2019-07-18T14:30:00Z48.6319.1324.010.017056.2129.911417VFRMETAR313.02019-07-18 14:41:06/¯(i5   3LZZI 181430Z 05007KT 010V070 CAVOK 24/09 Q1013LZZI2019-07-18T14:30:00Z49.2318.6224.09.05076.2129.911417VFRMETAR311.02019-07-18 14:41:06;¯(w5    3LCLK 181430Z 23019KT 9999 FEW035TCU 30/21 Q1005 NOSIGLCLK2019-07-18T14:30:00Z34.8733.6230.021.0230196.2129.675198TRUEVFRMETAR2.02019-07-18 14:41:06.¯(e5   3LCPH 181430Z 28012KT 9999 FEW017 29/21 Q1007LCPH2019-07-18T14:30:00Z34.7232.4729.021.0280126.2129.734253VFRMETAR8.02019-07-18 14:41:066¯(q5    3WAMM 181430Z VRB02KT 9999 FEW022 24/21 Q1010 NOSIGWAMM2019-07-18T14:30:00Z1.55124.9224.021.0026.2129.822834TRUEVFRMETAR80.02019-07-18 14:41:06 cT’Þ(c?¯ (u5     3NTAA 181430Z AUTO 09004KT 9999 NCD 20/15 Q1013 NOSIGNTAA2019-07-18T14:30:00Z-17.55-149.6220.015.09046.2129.911417TRUETRUEVFRMETAR2.02019-07-18 14:41:060¯(e5    3LKMT 181430Z VRB04KT CAVOK 26/08 Q1013 NOSIGLKMT2019-07-18T14:30:00Z49.6718.1226.08.0046.2129.911417TRUEVFRMETAR256.02019-07-18 14:41:06.¯(e5    3LKPR 181430Z VRB02KT CAVOK 25/08 Q1012 NOSIGLKPR2019-07-18T14:30:00Z50.114.2725.08.0026.2129.88189TRUEVFRMETAR365.02019-07-18 14:41:06<¯)5   3LKTB 181430Z VRB02KT CAVOK 27/10 Q1012 TEMPO SHRA SCT045TCULKTB2019-07-18T14:30:00Z49.1316.6827.010.0026.2129.88189VFRSPECI246.02019-07-18 14:41:06&¯(Y5   3LZPP 181430Z VRB03KT CAVOK 27/10 Q1012LZPP2019-07-18T14:30:00Z48.6217.8327.010.0036.2129.88189VFRMETAR161.02019-07-18 14:41:06 KLØKA¯%)5    3LYPG 181430Z 22006KT 170V260 9999 FEW040 31/10 Q1011 NOSIGLYPG2019-07-18T14:30:00Z42.3719.2531.010.022066.2129.852362TRUEVFRMETAR43.02019-07-18 14:41:06@¯$)5    3LYTV 181430Z 21003KT 150V260 9999 FEW040 30/14 Q1011 NOSIGLYTV2019-07-18T14:30:00Z42.3818.7230.014.021036.2129.852362TRUEVFRMETAR5.02019-07-18 14:41:06/¯#(u5   3LYUZ 181430Z 06004KT 340V140 9999 SCT023 23/12 Q1016LYUZ2019-07-18T14:30:00Z43.919.723.012.06046.2130.0VFRMETAR904.02019-07-18 14:41:069¯"(u5    3LYVR 181430Z 29006KT 220V320 CAVOK 28/12 Q1012 NOSIGLYVR2019-07-18T14:30:00Z45.1321.3228.012.029066.2129.88189TRUEVFRMETAR85.02019-07-18 14:41:06.¯!(e5   3BIKF 181430Z 03014KT 9999 FEW025 17/11 Q1001BIKF2019-07-18T14:30:00Z63.98-22.617.011.030146.2129.557087VFRMETAR54.02019-07-18 14:41:06 J:~À J;¯*(o5     3OTBD 181430Z AUTO 36007KT CAVOK 37/21 Q0997 NOSIGOTBD2019-07-18T14:30:00Z25.2551.5737.021.036076.2129.438976TRUETRUEVFRMETAR10.02019-07-18 14:41:06/¯)(e5    3LYBE 181430Z VRB04KT CAVOK 28/13 Q1012 NOSIGLYBE2019-07-18T14:30:00Z44.8220.2828.013.0046.2129.88189TRUEVFRMETAR99.02019-07-18 14:41:068¯((u5    3LYBT 181430Z 01005KT 330V040 CAVOK 28/14 Q1012 NOSIGLYBT2019-07-18T14:30:00Z44.9320.2528.014.01056.2129.88189TRUEVFRMETAR80.02019-07-18 14:41:066¯'(q5    3LYKV 181430Z VRB03KT 9999 SCT043 29/14 Q1012 NOSIGLYKV2019-07-18T14:30:00Z43.8220.5829.014.0036.2129.88189TRUEVFRMETAR209.02019-07-18 14:41:06@¯&)5    3LYNI 181430Z 31008KT 270V340 9999 FEW040 29/09 Q1012 NOSIGLYNI2019-07-18T14:30:00Z43.3221.8829.09.031086.2129.88189TRUEVFRMETAR202.02019-07-18 14:41:06 5BƒÅý5B¯/(5     3LFLS 181430Z AUTO 31007KT 260V360 CAVOK 29/08 Q1014 NOSIGLFLS2019-07-18T14:30:00Z45.375.3229.08.031076.2129.940945TRUETRUEVFRMETAR386.02019-07-18 14:41:06B¯.(5     3LFLC 181430Z AUTO 27008KT 230V320 CAVOK 28/05 Q1015 NOSIGLFLC2019-07-18T14:30:00Z45.773.1728.05.027086.2129.970472TRUETRUEVFRMETAR330.02019-07-18 14:41:068¯-(o5     3LFKJ 181430Z AUTO 22010KT CAVOK 28/22 Q1012 NOSIGLFKJ2019-07-18T14:30:00Z41.928.828.022.0220106.2129.88189TRUETRUEVFRMETAR9.02019-07-18 14:41:069¯,(o5     3LFKF 181430Z AUTO 23014KT CAVOK 31/18 Q1012 NOSIGLFKF2019-07-18T14:30:00Z41.59.0831.018.0230146.2129.88189TRUETRUEVFRMETAR23.02019-07-18 14:41:068¯+(o5     3LFKC 181430Z AUTO 01011KT CAVOK 27/18 Q1012 NOSIGLFKC2019-07-18T14:30:00Z42.528.827.018.010116.2129.88189TRUETRUEVFRMETAR58.02019-07-18 14:41:06  B·î H¯4(5    3KGUS 181430Z 23011KT 10SM BKN065 30/26 A2993 RMK SLP131 $KGUS2019-07-18T14:30:00Z40.63-86.1530.026.02301110.029.9291341013.1TRUEVFRSPECI247.02019-07-18 14:41:06C¯3(5     3LFYR 181430Z AUTO 24011KT 180V290 CAVOK 27/12 Q1014 NOSIGLFYR2019-07-18T14:30:00Z47.321.6727.012.0240116.2129.940945TRUETRUEVFRMETAR86.02019-07-18 14:41:06D¯2(5     3LFSO 181430Z AUTO 26010KT 220V330 CAVOK 29/10 Q1013 NOSIGLFSO2019-07-18T14:30:00Z48.575.9729.010.0260106.2129.911417TRUETRUEVFRMETAR350.02019-07-18 14:41:06;¯1(}5   3LFSX 181430Z AUTO 25008KT 220V280 9999 ///CB 27/12 Q1013LFSX2019-07-18T14:30:00Z47.776.3327.012.025086.2129.911417TRUESPECI273.02019-07-18 14:41:068¯0(s5    3LFSI 181430Z AUTO 24012KT 200V270 CAVOK 27/09 Q1013LFSI2019-07-18T14:30:00Z48.624.927.09.0240126.2129.911417TRUEVFRMETAR140.02019-07-18 14:41:06 ‰A–ê<‰-¯9(i5   3EPSC 181430Z 14006KT 090V180 CAVOK 24/07 Q1012EPSC2019-07-18T14:30:00Z53.5814.924.07.014066.2129.88189VFRMETAR47.02019-07-18 14:41:06(¯8(Y5   3EPSY 181430Z 01008KT CAVOK 22/11 Q1013EPSY2019-07-18T14:30:00Z53.4720.9322.011.01086.2129.911417VFRMETAR141.02019-07-18 14:41:06&¯7(Y5   3EPWR 181430Z 16007KT CAVOK 25/08 Q1012EPWR2019-07-18T14:30:00Z51.116.8725.08.016076.2129.88189VFRMETAR121.02019-07-18 14:41:06%¯6(Y5   3EPZG 181430Z 10002KT CAVOK 26/08 Q1012EPZG2019-07-18T14:30:00Z52.1315.826.08.010026.2129.88189VFRMETAR59.02019-07-18 14:41:069¯5(u5    3VHHH 181430Z 25006KT 190V260 CAVOK 30/24 Q1000 NOSIGVHHH2019-07-18T14:30:00Z22.32113.9230.024.025066.2129.52756TRUEVFRMETAR9.02019-07-18 14:41:06 €J”è@€:¯>(u5    3EPWA 181430Z 28003KT 210V360 CAVOK 22/08 Q1013 NOSIGEPWA2019-07-18T14:30:00Z52.1720.9722.08.028036.2129.911417TRUEVFRMETAR107.02019-07-18 14:41:06"¯=(Y5   3EPBY 181430Z VRB05KT CAVOK 24/07 Q1012EPBY2019-07-18T14:30:00Z53.118.024.07.0056.2129.88189VFRMETAR71.02019-07-18 14:41:06&¯<(Y5   3EPKT 181430Z VRB05KT CAVOK 25/06 Q1013EPKT2019-07-18T14:30:00Z50.4719.0825.06.0056.2129.911417VFRMETAR284.02019-07-18 14:41:060¯;(i5   3EPLB 181430Z 29006KT 220V340 CAVOK 24/09 Q1013EPLB2019-07-18T14:30:00Z51.2322.7224.09.029066.2129.911417VFRMETAR206.02019-07-18 14:41:060¯:(i5   3EPMO 181430Z 28007KT 220V320 CAVOK 24/08 Q1013EPMO2019-07-18T14:30:00Z52.4520.6524.08.028076.2129.911417VFRMETAR104.02019-07-18 14:41:06 K¡÷<7¯C(u5   3EPGD 181430Z 06010KT 020V090 9999 FEW025 19/13 Q1014EPGD2019-07-18T14:30:00Z54.3718.4719.013.060106.2129.940945VFRMETAR138.02019-07-18 14:41:065¯B(u5   3EPKK 181430Z 36003KT 320V080 9999 FEW066 23/08 Q1013EPKK2019-07-18T14:30:00Z50.0719.823.08.036036.2129.911417VFRMETAR237.02019-07-18 14:41:06$¯A(Y5   3EPLL 181430Z VRB04KT CAVOK 25/04 Q1012EPLL2019-07-18T14:30:00Z51.7219.425.04.0046.2129.88189VFRMETAR184.02019-07-18 14:41:06$¯@(Y5   3EPPO 181430Z VRB04KT CAVOK 26/07 Q1012EPPO2019-07-18T14:30:00Z52.4216.8226.07.0046.2129.88189VFRMETAR92.02019-07-18 14:41:06/¯?(i5   3EPRZ 181430Z 32005KT 290V020 CAVOK 24/07 Q1013EPRZ2019-07-18T14:30:00Z50.122.0524.07.032056.2129.911417VFRMETAR202.02019-07-18 14:41:06 È2e—ȁI¯G)5    3UKDE 181430Z 30005MPS 270V340 CAVOK 26/09 Q1010 R02R/090070 NOSIGUKDE2019-07-18T14:30:00Z47.8735.3226.09.0300106.2129.822834TRUEVFRSPECI113.02019-07-18 14:41:06H¯F) 5    3UKDD 181430Z 31005MPS 270V340 CAVOK 26/10 Q1010 R26/090070 NOSIGUKDD2019-07-18T14:30:00Z48.3735.126.010.0310106.2129.822834TRUEVFRSPECI149.02019-07-18 14:41:06G¯E) 5    3UKLL 181430Z 26004MPS 240V300 CAVOK 22/09 Q1014 R31/CLRD// NOSIGUKLL2019-07-18T14:30:00Z49.8223.9322.09.026086.2129.940945TRUEVFRSPECI325.02019-07-18 14:41:06H¯D) 5    3UKDR 181430Z 31005MPS 270V340 CAVOK 24/08 Q1011 R36/09//70 NOSIGUKDR2019-07-18T14:30:00Z48.0533.2224.08.0310106.2129.852362TRUEVFRSPECI124.02019-07-18 14:41:06 ÙCs©ÙJ¯K) 5     3LFRL 181430Z AUTO 29010KT 9999 SCT033 OVC040 20/13 Q1015 NOSIGLFRL2019-07-18T14:30:00Z48.27-4.4220.013.0290106.2129.970472TRUETRUEVFRMETAR82.02019-07-18 14:41:06D¯J(5     3LFOA 181430Z AUTO 25012KT 220V300 CAVOK 26/12 Q1015 NOSIGLFOA2019-07-18T14:30:00Z47.032.6326.012.0250126.2129.970472TRUETRUEVFRMETAR179.02019-07-18 14:41:06J¯I)5    3LFPV 181430Z AUTO 25012KT 210V270 CAVOK 26/11 Q1013 TEMPO SCT060TCULFPV2019-07-18T14:30:00Z48.772.226.011.0250126.2129.911417TRUEVFRSPECI179.02019-07-18 14:41:067¯H(q5    3LQBK 181430Z 32006KT 9999 SCT043 27/17 Q1012 NOSIGLQBK2019-07-18T14:30:00Z44.9317.327.017.032066.2129.88189TRUEVFRMETAR122.02019-07-18 14:41:06 – W`–D¯O(5     3LFOC 181430Z AUTO 23013KT 190V260 CAVOK 28/12 Q1014 NOSIGLFOC2019-07-18T14:30:00Z48.031.3728.012.0230136.2129.940945TRUETRUEVFRMETAR127.02019-07-18 14:41:06q¯N)_5    3LFOE 181430Z AUTO 24010KT 210V270 9999 FEW022 SCT036 BKN043 22/16 Q1014 TEMPO 4000 -SHRA SCT020 BKN030TCULFOE2019-07-18T14:30:00Z49.021.2222.016.0240106.2129.940945TRUEVFRSPECI146.02019-07-18 14:41:06C¯M(5     3LFOJ 181430Z AUTO 24014KT 200V260 CAVOK 27/09 Q1013 NOSIGLFOJ2019-07-18T14:30:00Z47.971.7527.09.0240146.2129.911417TRUETRUEVFRMETAR125.02019-07-18 14:41:06Z¯L)'5     3LFRJ 181430Z AUTO 30009KT 270V340 9999 BKN029 BKN039 OVC047 20/13 Q1015 NOSIGLFRJ2019-07-18T14:30:00Z48.52-4.1520.013.030096.2129.970472TRUETRUEMVFRMETAR115.02019-07-18 14:41:06 ,4k©ô,B¯T(5     3LFBM 181430Z AUTO 24007KT 180V290 CAVOK 26/14 Q1018 NOSIGLFBM2019-07-18T14:30:00Z43.92-0.526.014.024076.2130.059055TRUETRUEVFRMETAR63.02019-07-18 14:41:06/¯S(c5    3LFKS 181430Z AUTO 12009KT CAVOK 29/21 Q1011LFKS2019-07-18T14:30:00Z41.929.429.021.012096.2129.852362TRUEVFRMETAR22.02019-07-18 14:41:06<¯R(5   3LFMC 181430Z AUTO 10014KT 070V130 9999 ////// 29/18 Q1011LFMC2019-07-18T14:30:00Z43.376.3729.018.0100146.2129.852362TRUEMETAR78.02019-07-18 14:41:06C¯Q(5     3LFMO 181430Z AUTO 32010KT 280V360 CAVOK 34/10 Q1011 NOSIGLFMO2019-07-18T14:30:00Z44.124.8734.010.0320106.2129.852362TRUETRUEVFRMETAR55.02019-07-18 14:41:06F¯P)5    3LFMY 181430Z AUTO 33012KT 300V360 CAVOK 33/07 Q1011 BECMG 24012KTLFMY2019-07-18T14:30:00Z43.65.0833.07.0330126.2129.852362TRUEVFRMETAR60.02019-07-18 14:41:06 (_Ö7¯Y(u5    3LRBS 181430Z 03004KT 320V110 CAVOK 28/14 Q1012 NOSIGLRBS2019-07-18T14:30:00Z44.526.0828.014.03046.2129.88189TRUEVFRMETAR91.02019-07-18 14:41:064¯X(e5    3LRCK 181430Z 11010KT CAVOK 25/16 Q1013 NOSIGLRCK2019-07-18T14:30:00Z44.3728.4825.016.0110106.2129.911417TRUEVFRMETAR108.02019-07-18 14:41:06I¯W)5    3LQSA 181430Z 29009KT 250V310 9999 TS FEW030CB 25/14 Q1013 BECMG NSWLQSA2019-07-18T14:30:00Z43.8218.3225.014.029096.2129.911417TSVFRSPECI511.02019-07-18 14:41:06C¯V(5     3LFBC 181430Z AUTO 27008KT 230V320 CAVOK 25/12 Q1018 NOSIGLFBC2019-07-18T14:30:00Z44.52-1.1225.012.027086.2130.059055TRUETRUEVFRMETAR33.02019-07-18 14:41:06R¯U)5     3LFBG 181430Z AUTO 24012KT 210V280 9999 FEW045 OVC056 25/12 Q1017 NOSIGLFBG2019-07-18T14:30:00Z45.67-0.3225.012.0240126.2130.029528TRUETRUEVFRMETAR31.02019-07-18 14:41:06 TBsÈ T2¯^(i5   3LPPT 181430Z 34015KT 300V360 CAVOK 28/12 Q1015LPPT2019-07-18T14:30:00Z38.77-9.1228.012.0340156.2129.970472VFRMETAR123.02019-07-18 14:41:066¯](s5   3LPCS 181430Z 35026KT 9999 FEW014 24/14 Q1015 WS R35LPCS2019-07-18T14:30:00Z38.73-9.3524.014.0350266.2129.970472VFRMETAR99.02019-07-18 14:41:06%¯\(Y5   3LRTR 181430Z VRB03KT CAVOK 28/10 Q1012LRTR2019-07-18T14:30:00Z45.8221.3328.010.0036.2129.88189VFRMETAR88.02019-07-18 14:41:06I¯[)5    3LRSB 181430Z 14005KT 110V210 9999 FEW053 SCT072 25/10 Q1014 NOSIGLRSB2019-07-18T14:30:00Z45.7824.0825.010.014056.2129.940945TRUEVFRMETAR444.02019-07-18 14:41:068¯Z(u5    3LROP 181430Z 10003KT 040V180 CAVOK 28/12 Q1012 NOSIGLROP2019-07-18T14:30:00Z44.5726.128.012.010036.2129.88189TRUEVFRMETAR95.02019-07-18 14:41:06 tK¡å0t6¯c(w5   3LRTM 181430Z VRB01KT 9999 FEW045 FEW048CB 25/10 Q1013LRTM2019-07-18T14:30:00Z46.4724.4225.010.0016.2129.911417VFRMETAR309.02019-07-18 14:41:06/¯b(i5   3LPFR 181430Z 22008KT 190V250 CAVOK 22/16 Q1014LPFR2019-07-18T14:30:00Z37.02-7.9722.016.022086.2129.940945VFRMETAR4.02019-07-18 14:41:066¯a(u5   3LPMA 181430Z 02015KT 340V050 9999 SCT016 24/16 Q1021LPMA2019-07-18T14:30:00Z32.7-16.7724.016.020156.2130.147638VFRMETAR55.02019-07-18 14:41:06$¯`(Y5   3LPPR 181430Z 34015KT CAVOK 23/17 Q1016LPPR2019-07-18T14:30:00Z41.22-8.6723.017.0340156.2130.0VFRMETAR73.02019-07-18 14:41:06/¯_(e5   3LPPS 181430Z 01017KT 9999 SCT015 23/16 Q1021LPPS2019-07-18T14:30:00Z33.07-16.3523.016.010176.2130.147638VFRMETAR82.02019-07-18 14:41:06 uS¤à$u)¯h(Y5   3LRAR 181430Z 33005KT CAVOK 27/11 Q1013LRAR2019-07-18T14:30:00Z46.1821.2727.011.033056.2129.911417VFRMETAR118.02019-07-18 14:41:066¯g(u5   3LRBM 181430Z 29006KT 260V320 9999 FEW050 26/07 Q1013LRBM2019-07-18T14:30:00Z47.6723.4726.07.029066.2129.911417VFRMETAR185.02019-07-18 14:41:06>¯f)5   3LRCL 181430Z 35005KT 280V070 9999 SCT055 SCT063 25/08 Q1013LRCL2019-07-18T14:30:00Z46.7823.6825.08.035056.2129.911417VFRMETAR413.02019-07-18 14:41:06)¯e(Y5   3LROD 181430Z 26008KT CAVOK 25/11 Q1013LROD2019-07-18T14:30:00Z47.0321.9225.011.026086.2129.911417VFRMETAR140.02019-07-18 14:41:06'¯d(Y5   3LRSM 181430Z 03006KT CAVOK 24/10 Q1013LRSM2019-07-18T14:30:00Z47.722.8824.010.03066.2129.911417VFRMETAR124.02019-07-18 14:41:06 “S¥÷B“)¯m(Y5   3LRBC 181430Z 10002KT CAVOK 26/12 Q1013LRBC2019-07-18T14:30:00Z46.5226.9226.012.010026.2129.911417VFRMETAR185.02019-07-18 14:41:06/¯l(i5   3LRCV 181430Z 08004KT 030V170 CAVOK 26/13 Q1012LRCV2019-07-18T14:30:00Z44.3223.8826.013.08046.2129.88189VFRMETAR191.02019-07-18 14:41:06(¯k(Y5   3LRIA 181430Z 36006KT CAVOK 25/08 Q1013LRIA2019-07-18T14:30:00Z47.1727.6225.08.036066.2129.911417VFRMETAR104.02019-07-18 14:41:06(¯j(Y5   3LRSV 181430Z 34006KT CAVOK 21/09 Q1014LRSV2019-07-18T14:30:00Z47.6826.3521.09.034066.2129.940945VFRMETAR351.02019-07-18 14:41:06'¯i(Y5   3LRTC 181430Z 13011KT CAVOK 26/13 Q1012LRTC2019-07-18T14:30:00Z45.0728.7226.013.0130116.2129.88189VFRMETAR6.02019-07-18 14:41:06 +8{Åõ+D¯r)5     3VIJP 181430Z 00000KT 3000 HZ SCT030 SCT100 26/24 Q1002 NOSIGVIJP2019-07-18T14:30:00Z26.8275.7826.024.0001.8629.586615TRUEHZIFRMETAR390.02019-07-18 14:41:06J¯q)5    3VOMD 181430Z 29008KT 6000 SCT018 FEW025CB BKN090 30/22 Q1003 NOSIGVOMD2019-07-18T14:30:00Z9.8278.0730.022.029083.7329.616142TRUEMVFRMETAR131.02019-07-18 14:41:060¯p(e5   3LPAZ 181430Z 27008KT 9999 FEW024 23/16 Q1026LPAZ2019-07-18T14:30:00Z36.97-25.1723.016.027086.2130.295275VFRMETAR100.02019-07-18 14:41:067¯o(u5   3LPFL 181430Z 24004KT 180V290 9999 FEW018 26/20 Q1024LPFL2019-07-18T14:30:00Z39.45-31.1226.020.024046.2130.236221VFRMETAR29.02019-07-18 14:41:06B¯n)5   3LPHR 181430Z 25011KT 9999 FEW010 FEW014TCU BKN035 24/22 Q1025LPHR2019-07-18T14:30:00Z38.52-28.7224.022.0250116.2130.265747VFRMETAR41.02019-07-18 14:41:06 O>‚¾ O7¯w(q5    3DTNH 181430Z 11017KT 9999 FEW026 29/19 Q1012 NOSIGDTNH2019-07-18T14:30:00Z36.0710.4329.019.0110176.2129.88189TRUEVFRMETAR2.02019-07-18 14:41:06,¯v(e5   3DTTA 181430Z 02013KT 9999 FEW030 31/18 Q1012DTTA2019-07-18T14:30:00Z36.8510.2231.018.020136.2129.88189VFRMETAR4.02019-07-18 14:41:06>¯u)5    3DTTJ 181430Z 06006KT 030V090 9999 FEW033 31/15 Q1012 NOSIGDTTJ2019-07-18T14:30:00Z33.8710.7731.015.06066.2129.88189TRUEVFRMETAR4.02019-07-18 14:41:066¯t(k5    3RKSI 181430Z 33003KT 6000 NSC 23/17 Q1008 NOSIGRKSI2019-07-18T14:30:00Z37.47126.4523.017.033033.7329.763779TRUEMVFRMETAR7.02019-07-18 14:41:06<¯s(w5     3VGHS 181430Z 19004KT 4000 HZ FEW015 30/25 Q1001 NOSIGVGHS2019-07-18T14:30:00Z23.8590.430.025.019042.4929.557087TRUEHZIFRMETAR10.02019-07-18 14:41:06 ^M—Ú^6¯|(s5    3LFQA 181430Z AUTO 24010KT 220V280 CAVOK 26/09 Q1012LFQA2019-07-18T14:30:00Z49.24.1526.09.0240106.2129.88189TRUEVFRMETAR95.02019-07-18 14:41:06:¯{(s5    3LFQB 181430Z AUTO 23011KT 200V260 CAVOK 28/12 Q1013LFQB2019-07-18T14:30:00Z48.324.0228.012.0230116.2129.911417TRUEVFRMETAR118.02019-07-18 14:41:067¯z(s5    3LFSN 181430Z AUTO 25007KT 170V290 CAVOK 29/08 Q1012LFSN2019-07-18T14:30:00Z48.676.2229.08.025076.2129.88189TRUEVFRMETAR217.02019-07-18 14:41:060¯y(e5   3LPPD 181430Z 25012KT 9999 FEW020 23/18 Q1026LPPD2019-07-18T14:30:00Z37.72-25.6823.018.0250126.2130.295275VFRMETAR72.02019-07-18 14:41:06-¯x(e5   3DTMB 181430Z 08018KT 8000 SCT026 30/21 Q1012DTMB2019-07-18T14:30:00Z35.7710.7530.021.080184.9729.88189MVFRMETAR2.02019-07-18 14:41:06 Ä!Cyā/¯ž(c5    3LFLU 181430Z AUTO 02010KT CAVOK 31/07 Q1012LFLU2019-07-18T14:30:00Z44.924.9831.07.020106.2129.88189TRUEVFRMETAR160.02019-07-18 14:41:06D¯(5     3LFLX 181430Z AUTO 24014KT 190V270 CAVOK 26/11 Q1015 NOSIGLFLX2019-07-18T14:30:00Z46.851.7226.011.0240146.2129.970472TRUETRUEVFRMETAR157.02019-07-18 14:41:06X¯~)'5     3LFOH 181430Z AUTO 28007KT 240V330 9999 SCT014 BKN045 OVC056 20/16 Q1013 NOSIGLFOH2019-07-18T14:30:00Z49.520.0720.016.028076.2129.911417TRUETRUEVFRMETAR103.02019-07-18 14:41:06Y¯})'5     3LFOP 181430Z AUTO 23006KT 200V260 9999 BKN019 BKN025 OVC045 20/16 Q1014 NOSIGLFOP2019-07-18T14:30:00Z49.371.1720.016.023066.2129.940945TRUETRUEMVFRMETAR157.02019-07-18 14:41:06 æ8v¹æM¯ž) 5     3LFRC 181430Z AUTO 29012KT 270V340 9999 BKN022 19/13 Q1013 NOSIGLFRC2019-07-18T14:30:00Z49.63-1.4719.013.0290126.2129.911417TRUETRUEMVFRMETAR138.02019-07-18 14:41:067¯ž(o5     3LFBA 181430Z AUTO VRB05KT CAVOK 28/13 Q1017 NOSIGLFBA2019-07-18T14:30:00Z44.170.628.013.0056.2130.029528TRUETRUEVFRMETAR60.02019-07-18 14:41:06<¯ž(o5     3LFCK 181430Z AUTO 29012KT CAVOK 25/11 Q1018 NOSIGLFCK2019-07-18T14:30:00Z43.552.2825.011.0290126.2130.059055TRUETRUEVFRMETAR240.02019-07-18 14:41:06B¯ž(5     3LFLP 181430Z AUTO 35008KT 320V040 CAVOK 29/08 Q1013 NOSIGLFLP2019-07-18T14:30:00Z45.926.0829.08.035086.2129.911417TRUETRUEVFRMETAR463.02019-07-18 14:41:06 Ì$`˜ÌF¯ž) 5    3LFRU 181430Z AUTO 33009KT 9999 BKN030 BKN037 BKN047 20/14 Q1014LFRU2019-07-18T14:30:00Z48.6-3.8220.014.033096.2129.940945TRUEMVFRMETAR86.02019-07-18 14:41:06B¯ž(5     3LFBE 181430Z AUTO 28007KT 200V340 CAVOK 27/11 Q1017 NOSIGLFBE2019-07-18T14:30:00Z44.820.5227.011.028076.2130.029528TRUETRUEVFRMETAR52.02019-07-18 14:41:06>¯ž(}5    3LFJR 181430Z AUTO 25014KT 9999 BKN036 OVC046 25/15 Q1015LFJR2019-07-18T14:30:00Z47.57-0.325.015.0250146.2129.970472TRUEVFRMETAR60.02019-07-18 14:41:06V¯ž))5    3LFPN 181430Z AUTO 27010KT 230V290 CAVOK 27/12 Q1013 TEMPO 28015G25KT SCT060TCULFPN2019-07-18T14:30:00Z48.752.1227.012.0270106.2129.911417TRUEVFRSPECI164.02019-07-18 14:41:06 Ì(_•ÌC¯ž (5     3LFMH 181430Z AUTO 36009KT 320V040 CAVOK 27/11 Q1014 NOSIGLFMH2019-07-18T14:30:00Z45.524.2827.011.036096.2129.940945TRUETRUEVFRMETAR402.02019-07-18 14:41:06D¯ž (5     3LFOT 181430Z AUTO 25011KT 220V280 CAVOK 26/12 Q1015 NOSIGLFOT2019-07-18T14:30:00Z47.430.7226.012.0250116.2129.970472TRUETRUEVFRMETAR108.02019-07-18 14:41:06C¯ž (5     3LFGJ 181430Z AUTO 25009KT 220V280 CAVOK 28/11 Q1013 NOSIGLFGJ2019-07-18T14:30:00Z47.055.4328.011.025096.2129.911417TRUETRUEVFRMETAR196.02019-07-18 14:41:06R¯ž )5     3LFRK 181430Z AUTO 27011KT 240V300 9999 SCT036 OVC047 22/14 Q1013 NOSIGLFRK2019-07-18T14:30:00Z49.17-0.4522.014.0270116.2129.911417TRUETRUEVFRMETAR67.02019-07-18 14:41:06 E4m¥øE-¯ž(i5   3LEHC 181430Z 20010KT 150V250 CAVOK 30/10 Q1016LEHC2019-07-18T14:30:00Z42.08-0.3230.010.0200106.2130.0VFRMETAR539.02019-07-18 14:41:06'¯ž(Y5   3LEBA 181430Z 22003KT CAVOK 36/12 Q1012LEBA2019-07-18T14:30:00Z37.85-4.8236.012.022036.2129.88189VFRMETAR92.02019-07-18 14:41:06B¯ž)5    3LEAS 181430Z 33006KT 260V020 9999 FEW020 21/14 Q1019 NOSIGLEAS2019-07-18T14:30:00Z43.53-6.0221.014.033066.2130.088583TRUEVFRMETAR134.02019-07-18 14:41:06A¯ž)5    3LEBB 181430Z 32005KT 280V060 9999 SCT034 25/16 Q1019 NOSIGLEBB2019-07-18T14:30:00Z43.28-2.9225.016.032056.2130.088583TRUEVFRMETAR34.02019-07-18 14:41:06F¯ž )5    3LFMD 181430Z AUTO 15007KT 100V180 CAVOK 27/20 Q1012 TEMPO FEW050CBLFMD2019-07-18T14:30:00Z43.536.9527.020.015076.2129.88189TRUEVFRSPECI9.02019-07-18 14:41:06 FJˆÉF;¯ž(u5    3NCRG 181430Z AUTO 07009KT 9999 BKN022/// 23/20 Q1014NCRG2019-07-18T14:30:00Z-21.2-159.8223.020.07096.2129.940945TRUEMVFRMETAR7.02019-07-18 14:41:06<¯ž({5    3UBBB 181430Z 17008KT CAVOK 29/19 Q1004 R88/CLRD// NOSIGUBBB2019-07-18T14:30:00Z40.4550.0729.019.017086.2129.64567TRUEVFRSPECI-6.02019-07-18 14:41:069¯ž(y5   3LQTZ 181430Z 12008KT 9999 FEW040TCU FEW045 29/17 Q1011LQTZ2019-07-18T14:30:00Z44.4718.7329.017.012086.2129.852362VFRMETAR306.02019-07-18 14:41:06<¯ž(y5    3LEBT 181430Z AUTO 12009KT 040V160 9999 NCD 30/15 Q1014LEBT2019-07-18T14:30:00Z39.58-0.4530.015.012096.2129.940945TRUEVFRMETAR50.02019-07-18 14:41:060¯ž(s5   3LESU 181430Z 21012KT 9999 FEW065 SCT075 27/16 Q1016LESU2019-07-18T14:30:00Z42.331.427.016.0210126.2130.0VFRMETAR800.02019-07-18 14:41:06 BJ•ÊB;¯ž(o5     3LFMI 181430Z AUTO 26016KT CAVOK 33/11 Q1011 NOSIGLFMI2019-07-18T14:30:00Z43.524.9233.011.0260166.2129.852362TRUETRUEVFRMETAR24.02019-07-18 14:41:06A¯ž)5     3VEGT 181430Z 00000KT 4000 BR FEW020 SCT100 32/28 Q1000 NOSIGVEGT2019-07-18T14:30:00Z26.191.5832.028.0002.4929.52756TRUEBRIFRMETAR54.02019-07-18 14:41:06E¯ž)5     3VORY 181430Z 28005KT 5000 HZ FEW020 BKN090 31/24 Q1001 NOSIGVORY2019-07-18T14:30:00Z17.181.8231.024.028053.1129.557087TRUEHZMVFRMETAR46.02019-07-18 14:41:06/¯ž(i5    3LEBR 181430Z AUTO 31017KT 9999 NCD 29/06 Q1016LEBR2019-07-18T14:30:00Z42.2-1.4329.06.0310176.2130.0TRUEVFRMETAR295.02019-07-18 14:41:060¯ž(i5   3LEVS 181430Z 20007KT 160V260 CAVOK 35/08 Q1015LEVS2019-07-18T14:30:00Z40.37-3.7735.08.020076.2129.970472VFRMETAR687.02019-07-18 14:41:06 ÎB|¤ÎP¯ž)5    3LFOV 181430Z AUTO 24010KT 210V270 9999 FEW016 SCT026 BKN038 21/18 Q1014LFOV2019-07-18T14:30:00Z48.03-0.7521.018.0240106.2129.940945TRUEVFRMETAR101.02019-07-18 14:41:06R¯ž)+5    3LFRI 181430Z AUTO 24010KT 190V270 9999 OVC023 21/16 Q1016 TEMPO 4500 -RA OVC012LFRI2019-07-18T14:30:00Z46.7-1.3721.016.0240106.2130.0TRUEMVFRMETAR91.02019-07-18 14:41:06@¯ž(y5    3KAQP 181430Z AUTO 18005KT 10SM CLR 24/19 A2969 RMK AO2KAQP2019-07-18T14:30:00Z45.22-96.024.019.0180510.029.68996TRUETRUEVFRMETAR311.02019-07-18 14:41:068¯ž(u5   3SPJR 181430Z 14005KT 090V230 9999 FEW030 18/07 Q1030SPJR2019-07-18T14:30:00Z-7.12-78.4718.07.014056.2130.413385VFRMETAR2622.02019-07-18 14:41:06 ±1g—±`¯ž#)C5    3VANP 181430Z 09008KT 3000 -RA SCT020 FEW030CB SCT100 27/23 Q1004 TEMPO 1500 TSRA 05015G25KTVANP2019-07-18T14:30:00Z21.0879.0527.023.09081.8629.64567-RAIFRMETAR310.02019-07-18 14:41:06J¯ž")5     3VOCI 181430Z 22003KT 4000 BR FEW010 SCT012 BKN080 26/25 Q1006 NOSIGVOCI2019-07-18T14:30:00Z10.1576.426.025.022032.4929.704725TRUEBRIFRMETAR8.02019-07-18 14:41:06D¯ž!)5     3VERC 181430Z 00000KT 3000 HZ SCT018 BKN100 28/23 Q1005 NOSIGVERC2019-07-18T14:30:00Z23.3285.3228.023.0001.8629.675198TRUEHZIFRMETAR652.02019-07-18 14:41:06I¯ž )5    3VOTR 181430Z 26006KT 6000 SCT016 FEW025CB BKN100 29/25 Q1004 NOSIGVOTR2019-07-18T14:30:00Z10.7778.7229.025.026063.7329.64567TRUEMVFRMETAR88.02019-07-18 14:41:06 <?ƒË<C¯ž()5    3ZYTL 181430Z 13004MPS 110V170 9999 SCT016 25/21 Q1008 NOSIGZYTL2019-07-18T14:30:00Z38.97121.5325.021.013086.2129.763779TRUEVFRMETAR97.02019-07-18 14:41:06@¯ž'(}5    3ZYTX 181430Z 18002MPS 150V210 6000 NSC 25/23 Q1008 NOSIGZYTX2019-07-18T14:30:00Z41.63123.4825.023.018043.7329.763779TRUEMVFRMETAR35.02019-07-18 14:41:062¯ž&(s5    3LESB 181430Z AUTO 21013KT 180V240 CAVOK 30/10 Q1016LESB2019-07-18T14:30:00Z39.62.730.010.0210136.2130.0TRUEVFRMETAR48.02019-07-18 14:41:066¯ž%(u5   3LELL 181430Z 12010KT 080V150 9999 FEW040 29/20 Q1014LELL2019-07-18T14:30:00Z41.522.129.020.0120106.2129.940945VFRMETAR250.02019-07-18 14:41:06;¯ž$(w5     3VECC 181430Z 16009KT 4000 HZ FEW020 31/26 Q1000 NOSIGVECC2019-07-18T14:30:00Z22.6588.4331.026.016092.4929.52756TRUEHZIFRMETAR6.02019-07-18 14:41:06 2>ºò2:¯ž-(w5    3ZGGG 181430Z 10002MPS 080V140 CAVOK 30/25 Q0999 NOSIGZGGG2019-07-18T14:30:00Z23.4113.330.025.010046.2129.498032TRUEVFRMETAR15.02019-07-18 14:41:06B¯ž,)5    3ZSHC 181430Z 07003MPS 050V110 9999 SCT017 28/27 Q1001 NOSIGZSHC2019-07-18T14:30:00Z30.22120.4328.027.07066.2129.557087TRUEVFRMETAR43.02019-07-18 14:41:06A¯ž+)5    3ZSPD 181430Z 06005MPS 020V080 9999 BKN006 27/26 Q1001 NOSIGZSPD2019-07-18T14:30:00Z31.15121.827.026.060106.2129.557087TRUEIFRMETAR4.02019-07-18 14:41:067¯ž*(s5    3ZSSS 181430Z 07003MPS 9999 SCT016 28/25 Q1001 NOSIGZSSS2019-07-18T14:30:00Z31.2121.3328.025.07066.2129.557087TRUEVFRMETAR7.02019-07-18 14:41:06<¯ž)(w5    3ZWWW 181430Z 23002MPS 160V250 CAVOK 32/12 Q1007 NOSIGZWWW2019-07-18T14:30:00Z43.8887.4732.012.023046.2129.734253TRUEVFRMETAR654.02019-07-18 14:41:06 ô<¹ô?¯ž1(}5    3LFRO 181430Z AUTO 29010KT 9999 FEW028 OVC150 20/13 Q1015LFRO2019-07-18T14:30:00Z48.75-3.4720.013.0290106.2129.970472TRUEVFRMETAR89.02019-07-18 14:41:06@¯ž0(}5    3ZBAA 181430Z 11004MPS 070V140 8000 NSC 27/22 Q1006 NOSIGZBAA2019-07-18T14:30:00Z40.07116.5827.022.011084.9729.704725TRUEMVFRMETAR30.02019-07-18 14:41:067¯ž/(m5    3ZBTJ 181430Z 12003MPS 8000 NSC 26/21 Q1006 NOSIGZBTJ2019-07-18T14:30:00Z39.12117.3526.021.012064.9729.704725TRUEMVFRMETAR3.02019-07-18 14:41:06>¯ž.(s5     3ZBYN 181430Z 08005MPS 5000 HZ NSC 26/18 Q1009 NOSIGZBYN2019-07-18T14:30:00Z37.77112.6326.018.080103.1129.793306TRUEHZMVFRMETAR779.02019-07-18 14:41:06 ¸N€¸B¯ž5)5     3VIAR 181430Z 00000KT 2200 HZ FEW040 SCT100 31/25 Q1001 NOSIGVIAR2019-07-18T14:30:00Z31.774.831.025.0001.3729.557087TRUEHZIFRMETAR234.02019-07-18 14:41:06H¯ž4) 5    3UKBB 181430Z 26005MPS 230V290 CAVOK 22/11 Q1010 R88/CLRD// NOSIGUKBB2019-07-18T14:30:00Z50.3330.922.011.0260106.2129.822834TRUEVFRSPECI119.02019-07-18 14:41:06?¯ž3(}5    3UKHH 181430Z 27005MPS CAVOK 24/07 Q1009 R25/0///81 NOSIGUKHH2019-07-18T14:30:00Z49.9236.2824.07.0270106.2129.793306TRUEVFRSPECI155.02019-07-18 14:41:06g¯ž2)O5    3LFRM 181430Z AUTO 23011KT 200V270 9999 BKN046 BKN052 OVC072 25/14 Q1014 TEMPO 4500 SHRA SCT020TCULFRM2019-07-18T14:30:00Z47.950.225.014.0230116.2129.940945TRUEVFRMETAR52.02019-07-18 14:41:06Y8J8@HPX`hpx€ˆ˜ ¨°¸ÀÈÐØàèðø (08@HPX`hpx€ˆ˜ ¨°¸ÀÈÐØàèðø (08@HPX`hpx€ˆ˜ ¨°¸ÀÈÐØàèðø ¨°¸ÀÈÐØàèðø𯝝ñ¯ò¯󯝝ô¯ õ¯%ö¯*÷¯/ø¯4ù¯9ú¯>û¯C𯝝ñ¯ò¯󯝝ô¯ õ¯%ö¯*÷¯/ø¯4ù¯9ú¯>û¯Cü¯Gý¯Kþ¯Oÿ¯T¯Y¯^¯c¯h¯m¯r¯w¯|¯ž ¯ž ¯ž ¯ž  ¯ž ¯ž¯ž¯ž¯ž#¯ž(¯ž-¯ž1¯ž5¯ž9¯ž>¯žC¯žG¯žL¯žP¯žT¯žX¯ž\¯ža ¯žf!¯žk"¯žp#¯žu$¯žy%¯ž~&¯Ÿ'¯Ÿ(¯Ÿ )¯Ÿ*¯Ÿ+¯Ÿ,¯Ÿ!-¯Ÿ&.¯Ÿ*/¯Ÿ.0¯Ÿ21¯Ÿ72¯Ÿ<3¯Ÿ@4¯ŸD5¯ŸI6¯ŸM7¯ŸR8¯ŸV9¯Ÿ[:¯Ÿ`;¯Ÿd<¯Ÿh=¯Ÿl>¯Ÿp?¯Ÿt@¯ŸwA¯Ÿ{B¯ŸC¯ D¯ E¯  F¯ G¯ H¯ I¯  ¹D}¹>¯ž9(w5   3VABO 181430Z 22011G21KT 6000 FEW020 33/23 Q1000 NOSIGVABO2019-07-18T14:30:00Z22.3373.2233.023.022011213.7329.52756TRUEMVFRMETAR39.02019-07-18 14:41:06A¯ž8)5     3VEPT 181430Z 00000KT 3500 HZ FEW018 SCT100 31/28 Q1000 NOSIGVEPT2019-07-18T14:30:00Z25.685.0831.028.0002.1729.52756TRUEHZIFRMETAR60.02019-07-18 14:41:06N¯ž7)5     3VOMM 181430Z 19009KT 5000 HZ SCT018 FEW025CB SCT080 32/26 Q1002 NOSIGVOMM2019-07-18T14:30:00Z13.080.1732.026.019093.1129.586615TRUEHZMVFRMETAR16.02019-07-18 14:41:06b¯ž6)55   3VOCL 181430Z 34007KT 5000 BR FEW008 SCT012 FEW025CB BKN080 27/26 Q1006 TEMPO 3000 RAVOCL2019-07-18T14:30:00Z11.1375.9527.026.034073.1129.704725BRBKN8000MVFRMETAR104.02019-07-18 14:41:06 '2Yšá'4¯ž>(e5    3LEVX 181430Z 27011KT CAVOK 25/18 Q1018 NOSIGLEVX2019-07-18T14:30:00Z42.22-8.6225.018.0270116.2130.059055TRUEVFRMETAR256.02019-07-18 14:41:063¯ž=(k5   3LEZL 181430Z VRB05G15KT CAVOK 34/13 Q1012 NOSIGLEZL2019-07-18T14:30:00Z37.42-5.934.013.005156.2129.88189TRUEVFRMETAR31.02019-07-18 14:41:069¯ž<(s5    3LEAG 181430Z AUTO 14006KT 060V190 CAVOK 26/15 Q1013LEAG2019-07-18T14:30:00Z36.12-5.4526.015.014066.2129.911417TRUEVFRMETAR32.02019-07-18 14:41:06S¯ž;)%5    3LFRZ 181430Z AUTO 20011KT 9999 BKN009 BKN034 BKN044 19/17 Q1015 BECMG SCT020LFRZ2019-07-18T14:30:00Z47.32-2.1719.017.0200116.2129.970472TRUEIFRMETAR4.02019-07-18 14:41:06H¯ž:) 5    3LFRV 181430Z AUTO 26007KT 210V330 9999 SCT027 OVC049 22/15 Q1014LFRV2019-07-18T14:30:00Z47.72-2.7222.015.026076.2129.940945TRUEVFRMETAR133.02019-07-18 14:41:06 -9|¾-M¯žC) 5    3KCNB 181430Z AUTO 31003KT 10SM CLR 24/19 A2973 RMK AO2 T02350192KCNB2019-07-18T14:30:00Z44.73-96.2723.519.2310310.029.731298TRUETRUEVFRSPECI364.02019-07-18 14:41:068¯žB(q5    3LEMD 181430Z 31004KT 9999 FEW080 36/09 Q1014 NOSIGLEMD2019-07-18T14:30:00Z40.48-3.5736.09.031046.2129.940945TRUEVFRMETAR582.02019-07-18 14:41:068¯žA(u5    3LEMG 181430Z 11005KT 070V170 CAVOK 25/18 Q1014 NOSIGLEMG2019-07-18T14:30:00Z36.67-4.525.018.011056.2129.940945TRUEVFRMETAR7.02019-07-18 14:41:067¯ž@(q5    3LEPA 181430Z 24013KT 9999 FEW030 30/18 Q1015 NOSIGLEPA2019-07-18T14:30:00Z39.532.7230.018.0240136.2129.970472TRUEVFRMETAR8.02019-07-18 14:41:06A¯ž?)5    3LEVC 181430Z 12012KT 070V160 9999 FEW025 29/19 Q1014 NOSIGLEVC2019-07-18T14:30:00Z39.5-0.4729.019.0120126.2129.940945TRUEVFRMETAR62.02019-07-18 14:41:06 ¦5e†¦Z¯žG)-5    3SPZO 181430Z 10003KT 9999 SCT050 BKN100 10/03 Q1036 NOSIG RMK BIRD HAZARD RWY 28SPZO2019-07-18T14:30:00Z-13.55-71.9710.03.010036.2130.590551TRUEVFRSPECI3249.02019-07-18 14:41:06Y¯žF)+5    3ZMUB 181430Z 15004MPS 9999 FEW030CB BKN033 19/13 Q1009 NOSIG RMK QFE650.4 67 NTZMUB2019-07-18T14:30:00Z47.83106.7819.013.015086.2129.793306TRUEVFRSPECI1330.02019-07-18 14:41:06J¯žE)5    3TAPA 181430Z 10011KT 050V130 9999 FEW018 SCT020 30/24 Q1018 NOSIGTAPA2019-07-18T14:30:00Z17.12-61.7830.024.0100116.2130.059055TRUEVFRMETAR14.02019-07-18 14:41:06E¯žD)5   3GLRB 181430Z 30006KT 9999 BKN018 FEW026CB 30/24 Q1014 RMK CB-SE-WGLRB2019-07-18T14:30:00Z6.25-10.3330.024.030066.2129.940945MVFRMETAR18.02019-07-18 14:41:06 %S˜Îû%P¯žL)5    3UATG 181430Z 02009MPS CAVOK 37/13 Q1002 R32/CLRD70 NOSIG RMK QFE753/1005UATG2019-07-18T14:30:00Z47.1251.8337.013.020176.2129.586615TRUEVFRSPECI-22.02019-07-18 14:41:06M¯žK)5    3UATT 181430Z 17007MPS CAVOK 34/12 Q1007 R13/70D NOSIG RMK QFE736/0982UATT2019-07-18T14:30:00Z50.2557.234.012.0170146.2129.734253TRUEVFRMETAR227.02019-07-18 14:41:06D¯žJ)5    3UAUU 181430Z 17003MPS CAVOK 31/10 Q1010 NOSIG RMK QFE742/0989UAUU2019-07-18T14:30:00Z53.263.5531.010.017066.2129.822834TRUEVFRSPECI182.02019-07-18 14:41:065¯žI(u5   3DAAG 181430Z 07012KT 030V100 9999 FEW026 30/19 Q1014DAAG2019-07-18T14:30:00Z36.723.2230.019.070126.2129.940945VFRMETAR25.02019-07-18 14:41:06'¯žH(k5   3DAAT 181430Z 05005G15KT 6000 SCT046 39/// Q1016DAAT2019-07-18T14:30:00Z22.825.47505153.7330.0MVFRSPECI1377.02019-07-18 14:41:06 œ,HsœQ¯žP)#5    3UASK 181430Z 02003MPS 9999 NSC 21/16 Q1008 R30/090060 NOSIG RMK QFE731/0975UASK2019-07-18T14:30:00Z50.0382.521.016.02066.2129.763779TRUEVFRMETAR286.02019-07-18 14:41:06O¯žO)5    3UASP 181430Z 36003MPS CAVOK 26/17 Q1009 R03/0///70 NOSIG RMK QFE746/0995UASP2019-07-18T14:30:00Z52.277.0726.017.036066.2129.793306TRUEVFRSPECI125.02019-07-18 14:41:06^¯žN);5    3UARR 181430Z 29004MPS 9999 SCT050CB BKN100 32/14 Q1005 R22/CLRD70 NOSIG RMK QFE750/1000UARR2019-07-18T14:30:00Z51.1551.5332.014.029086.2129.675198TRUEVFRSPECI38.02019-07-18 14:41:06N¯žM)5    3UATE 181430Z 01008MPS CAVOK 36/16 Q1002 R30/0///70 NOSIG RMK QFE750/1000UATE2019-07-18T14:30:00Z43.8751.136.016.010166.2129.586615TRUEVFRSPECI22.02019-07-18 14:41:06 &PtQ¯žT)5    3UACK 181430Z 35003MPS CAVOK 24/11 Q1013 R02/090070 NOSIG RMK QFE735/0981UACK2019-07-18T14:30:00Z53.3269.5824.011.035066.2129.911417TRUEVFRSPECI2547.02019-07-18 14:41:06V¯žS)-5    3UAII 181430Z 04002MPS 360V060 CAVOK 39/06 Q1002 R10/0///70 NOSIG RMK QFE716/0955UAII2019-07-18T14:30:00Z42.3769.4839.06.04046.2129.586615TRUEVFRSPECI422.02019-07-18 14:41:06P¯žR)5    3UAKK 181430Z 04006MPS CAVOK 26/11 Q1011 R05/0///70 NOSIG RMK QFE711/0948UAKK2019-07-18T14:30:00Z49.6773.3326.011.040126.2129.852362TRUEVFRSPECI538.02019-07-18 14:41:06T¯žQ)-5    3UAOO 181430Z 34003MPS 300V360 CAVOK 37/06 Q1004 R05/CLRD70 NOSIG RMK QFE741/0988UAOO2019-07-18T14:30:00Z44.765.637.06.034066.2129.64567TRUEVFRSPECI129.02019-07-18 14:41:06 ½,U½>¯žX(}5    3UKOO 181430Z 31006MPS CAVOK 28/06 Q1011 R34/090060 NOSIGUKOO2019-07-18T14:30:00Z46.4230.6828.06.0310126.2129.852362TRUEVFRSPECI35.02019-07-18 14:41:06N¯žW)5    3UAAA 181430Z 16003MPS 130V190 9999 FEW100 29/12 Q1005 R88/CLRD65 NOSIGUAAA2019-07-18T14:30:00Z43.3577.0329.012.016066.2129.675198TRUEVFRSPECI681.02019-07-18 14:41:06Q¯žV)#5    3UADD 181430Z 34002MPS 9999 NSC 34/04 Q1005 R13/0///65 NOSIG RMK QFE697/0930UADD2019-07-18T14:30:00Z42.8571.334.04.034046.2129.675198TRUEVFRSPECI665.02019-07-18 14:41:06N¯žU)5    3UACC 181430Z 03005MPS CAVOK 27/07 Q1012 R04/0///70 NOSIG RMK QFE727/0970UACC2019-07-18T14:30:00Z51.0271.4727.07.030106.2129.88189TRUEVFRMETAR355.02019-07-18 14:41:06 Ç.bŠÇ=¯ž\)5   3EIME 181430Z 24016KT 9999 FEW020 SCT040 BKN060 20/11 Q1008EIME2019-07-18T14:30:00Z53.3-6.4520.011.0240166.2129.763779VFRMETAR93.02019-07-18 14:41:06R¯ž[)#5    3UTDD 181430Z 20002MPS 9999 NSC 36/08 Q1002 R09/CLRD// NOSIG RMK QFE684/0912UTDD2019-07-18T14:30:00Z38.5368.8236.08.020046.2129.586615TRUEVFRMETAR803.02019-07-18 14:41:06F¯žZ)5   3UTDK 181430Z VRB01MPS 9999 NSC 36/13 Q1001 R01/09//70 RMK QFE694/0925UTDK2019-07-18T14:30:00Z37.9869.836.013.0026.2129.557087VFRMETAR699.02019-07-18 14:41:06L¯žY)5   3UTDT 181430Z 13002MPS 9999 FEW200 34/15 Q0998 R35/////// RMK QFE710/0947UTDT2019-07-18T14:30:00Z37.8768.8734.015.013046.2129.468504VFRMETAR449.02019-07-18 14:41:06 !<ˆ«à!9¯ža(}5     3CMGB 181430Z AUTO 36002KT 22/ RMK AO1 SLP159 T0222 58004CMGB2019-07-18T14:30:00Z45.37-72.7722.236021015.9TRUETRUE-0.4METAR86.02019-07-18 14:41:06E¯ž`)5     3OPMT 181430Z 05004KT 4000 FU SCT040 BKN100 31/24 Q0998 NOSIGOPMT2019-07-18T14:30:00Z30.1871.4231.024.05042.4929.468504TRUEFUIFRSPECI123.02019-07-18 14:41:06W¯ž_)5     3KSMP 181430Z AUTO 25007KT 190V290 1/4SM -RA FG BKN003 OVC008 07/05 A3002KSMP2019-07-18T14:30:00Z47.28-121.337.05.025070.2530.02067TRUE-RA FGLIFRSPECI1208.02019-07-18 14:41:06.¯ž^(e5   3EIDL 181430Z 25019KT 9999 SCT016 17/12 Q1006EIDL2019-07-18T14:30:00Z55.05-8.3317.012.0250196.2129.704725VFRMETAR9.02019-07-18 14:41:06>¯ž])5   3EIKY 181430Z 27008KT 240V330 9999 FEW028 SCT044 17/12 Q1011EIKY2019-07-18T14:30:00Z52.18-9.5217.012.027086.2129.852362VFRMETAR34.02019-07-18 14:41:06 …D–æ7…,¯žf(e5   3DABB 181430Z 01017KT 9999 FEW026 28/20 Q1013DABB2019-07-18T14:30:00Z36.827.8228.020.010176.2129.911417VFRMETAR4.02019-07-18 14:41:06)¯že(e5   3DABC 181430Z 34012KT 9999 FEW040 31/07 Q1016DABC2019-07-18T14:30:00Z36.276.6231.07.0340126.2130.0VFRMETAR694.02019-07-18 14:41:06*¯žd(Y5   3DAON 181430Z 34014KT CAVOK 30/13 Q1013DAON2019-07-18T14:30:00Z35.02-1.4730.013.0340146.2129.911417VFRMETAR247.02019-07-18 14:41:06(¯žc(Y5   3DAOO 181430Z 33015KT CAVOK 26/18 Q1013DAOO2019-07-18T14:30:00Z35.62-0.626.018.0330156.2129.911417VFRMETAR90.02019-07-18 14:41:066¯žb(s5   3DAUH 181430Z 34010KT 9999 SCT040 SCT100 40/11 Q1010DAUH2019-07-18T14:30:00Z31.676.1540.011.0340106.2129.822834VFRMETAR142.02019-07-18 14:41:06 Hy¶á?¯žk)5    3UDYZ 181430Z 21005KT 9999 NSC 36/03 Q1004 R09/010070 NOSIGUDYZ2019-07-18T14:30:00Z40.1544.436.03.021056.2129.64567TRUEVFRMETAR865.02019-07-18 14:41:06O¯žj)5    3UDSG 181430Z 14004KT 070V170 9000 FEW049CB 31/01 Q1010 R02/CLRD70 NOSIGUDSG2019-07-18T14:30:00Z40.7543.8731.01.014045.5929.822834TRUEVFRMETAR1524.02019-07-18 14:41:06=¯ži(}5    3UCFM 181430Z 08003MPS CAVOK 34/04 Q1005 R26/0///95 NOSIGUCFM2019-07-18T14:30:00Z43.0774.4834.04.08066.2129.675198TRUEVFRMETAR633.02019-07-18 14:41:06I¯žh)5    3UCFO 181430Z 22002MPS 180V290 9999 NSC 32/15 Q1006 R12/0///95 NOSIGUCFO2019-07-18T14:30:00Z40.672.832.015.022046.2129.704725TRUEVFRMETAR884.02019-07-18 14:41:062¯žg(e5    3OBBI 181430Z 33010KT CAVOK 38/14 Q0997 NOSIGOBBI2019-07-18T14:30:00Z26.2750.6338.014.0330106.2129.438976TRUEVFRMETAR2.02019-07-18 14:41:06 (v­îJ¯žp) 5     3LFSL 181430Z AUTO 25006KT 190V330 9999 BKN049 24/12 Q1018 NOSIGLFSL2019-07-18T14:30:00Z45.031.4824.012.025066.2130.059055TRUETRUEVFRMETAR310.02019-07-18 14:41:069¯žo(s5    3LFSG 181430Z AUTO 24009KT 220V290 CAVOK 27/11 Q1013LFSG2019-07-18T14:30:00Z48.336.0727.011.024096.2129.911417TRUEVFRMETAR330.02019-07-18 14:41:06C¯žn(5     3LFLY 181430Z AUTO 34005KT 280V020 CAVOK 29/11 Q1013 NOSIGLFLY2019-07-18T14:30:00Z45.724.9529.011.034056.2129.911417TRUETRUEVFRMETAR201.02019-07-18 14:41:06,¯žm(i5   3LELO 181430Z 29006KT 240V360 CAVOK 29/10 Q1016LELO2019-07-18T14:30:00Z42.45-2.3229.010.029066.2130.0VFRMETAR363.02019-07-18 14:41:06R¯žl)#5    3UTDL 181430Z 23004MPS 9999 NSC 33/16 Q1002 R26/CLRD70 NOSIG RMK QFE714/0952UTDL2019-07-18T14:30:00Z40.2269.733.016.023086.2129.586615TRUEVFRMETAR442.02019-07-18 14:41:06 /2n§à/+¯žu(e5   3LEJR 181430Z VRB05KT 9999 FEW020 32/17 Q1012LEJR2019-07-18T14:30:00Z36.75-6.0732.017.0056.2129.88189VFRMETAR30.02019-07-18 14:41:06A¯žt(y5    3K20V 181430Z AUTO 00000KT 10SM CLR 13/02 A3030 RMK AO2K20V2019-07-18T14:30:00Z40.05-106.3713.02.00010.030.301182TRUETRUEVFRMETAR2259.02019-07-18 14:41:06A¯žs(y5    3KBDU 181430Z AUTO 00000KT 10SM CLR 25/06 A3003 RMK AO2KBDU2019-07-18T14:30:00Z40.03-105.2325.06.00010.030.029528TRUETRUEVFRMETAR1612.02019-07-18 14:41:06>¯žr(u5     3LFMP 181430Z AUTO 31021KT 9999 NCD 28/14 Q1014 NOSIGLFMP2019-07-18T14:30:00Z42.722.8728.014.0310216.2129.940945TRUETRUEVFRMETAR48.02019-07-18 14:41:06H¯žq)5    3LFMV 181430Z AUTO 33010KT 300V360 CAVOK 34/09 Q1011 BECMG 24010G25KTLFMV2019-07-18T14:30:00Z43.94.934.09.0330106.2129.852362TRUEVFRSPECI38.02019-07-18 14:41:06 šAzqšQ¯žy)5    3KMCB 181430Z AUTO 25003KT 10SM BKN014 28/24 A3011 RMK AO2 T02830244KMCB2019-07-18T14:30:00Z31.18-90.4728.324.4250310.030.109253TRUETRUEMVFRSPECI124.02019-07-18 14:41:06‚¯žx)q5      3KWST 181430Z AUTO 14006KT 2 1/2SM BR SCT001 BKN005 OVC014 23/23 A2995 RMK AO2 RAB00E24 CIG 003V008 P0000 T02280228KWST2019-07-18T14:30:00Z41.35-71.822.822.814062.529.949802TRUETRUEBRIFR0.005SPECI21.02019-07-18 14:41:06A¯žw)5    3LECO 181430Z 02007KT 340V060 9999 SCT025 22/17 Q1019 NOSIGLECO2019-07-18T14:30:00Z43.28-8.3722.017.02076.2130.088583TRUEVFRMETAR103.02019-07-18 14:41:069¯žv(q5    3WADL 181430Z 14005KT 7000 SCT016 25/22 Q1012 NOSIGWADL2019-07-18T14:30:00Z-8.75116.2825.022.014054.3529.88189TRUEMVFRMETAR97.02019-07-18 14:41:06 XCá#XE¯ž~)5   3LJCE 181430Z 04005KT 360V080 9999 FEW040 FEW045CB SCT200 27/15 Q1012LJCE2019-07-18T14:30:00Z45.915.5227.015.04056.2129.88189VFRMETAR155.02019-07-18 14:41:068¯ž}({5   3LESA 181430Z 01005KT 310V110 9999 FEW045TCU 31/12 Q1017LESA2019-07-18T14:30:00Z40.95-5.531.012.01056.2130.029528VFRMETAR795.02019-07-18 14:41:06&¯ž|(Y5   3LEVD 181430Z VRB05KT CAVOK 29/06 Q1018LEVD2019-07-18T14:30:00Z41.72-4.8329.06.0056.2130.059055VFRMETAR854.02019-07-18 14:41:060¯ž{(i5   3LEDA 181430Z 21007KT 150V260 CAVOK 30/15 Q1015LEDA2019-07-18T14:30:00Z41.730.5330.015.021076.2129.970472VFRMETAR350.02019-07-18 14:41:067¯žz(u5   3LEGE 181430Z 18013KT 150V210 9999 SCT030 27/19 Q1014LEGE2019-07-18T14:30:00Z41.882.7727.019.0180136.2129.940945VFRMETAR129.02019-07-18 14:41:06 *0g®ï*?¯Ÿ)5   3GCLA 181430Z 03017KT 010V070 9999 FEW025 SCT036 24/16 Q1019GCLA2019-07-18T14:30:00Z28.62-17.7524.016.030176.2130.088583VFRMETAR31.02019-07-18 14:41:069¯Ÿ(w5   3GCLP 181430Z 01026G36KT 9999 FEW030 26/16 Q1016 NOSIGGCLP2019-07-18T14:30:00Z27.92-15.3726.016.01026366.2130.0TRUEVFRMETAR25.02019-07-18 14:41:063¯Ÿ(u5   3GCRR 181430Z 35019KT 320V030 9999 SCT030 26/17 Q1016GCRR2019-07-18T14:30:00Z28.93-13.5826.017.0350196.2130.0VFRMETAR40.02019-07-18 14:41:06C¯Ÿ)5    3GCTS 181430Z 10019KT 070V130 9999 FEW030 26/16 Q1017 NOSIGGCTS2019-07-18T14:30:00Z28.05-16.5726.016.0100196.2130.029528TRUEVFRMETAR72.02019-07-18 14:41:06J¯ž) 5    3GCXO 181430Z 30020KT 9999 FEW008 SCT012 BKN020 19/15 Q1020 NOSIGGCXO2019-07-18T14:30:00Z28.48-16.3519.015.0300206.2130.11811TRUEMVFRMETAR632.02019-07-18 14:41:06 &H’Óþ&R¯Ÿ)5     3LFRQ 181430Z AUTO 27012KT 230V300 9999 FEW033 BKN046 22/13 Q1015 NOSIGLFRQ2019-07-18T14:30:00Z47.97-4.1722.013.0270126.2129.970472TRUETRUEVFRMETAR94.02019-07-18 14:41:06O¯Ÿ)5    3LFRT 181430Z AUTO 31008KT 280V340 9999 BKN036 BKN043 BKN056 22/14 Q1014LFRT2019-07-18T14:30:00Z48.52-2.8522.014.031086.2129.940945TRUEVFRMETAR136.02019-07-18 14:41:069¯Ÿ(s5    3LFSD 181430Z AUTO 25008KT 210V290 CAVOK 28/11 Q1013LFSD2019-07-18T14:30:00Z47.275.0728.011.025086.2129.911417TRUEVFRMETAR227.02019-07-18 14:41:060¯Ÿ(e5   3GCHI 181430Z 35022KT 9999 FEW030 25/16 Q1019GCHI2019-07-18T14:30:00Z27.82-17.8725.016.0350226.2130.088583VFRMETAR30.02019-07-18 14:41:062¯Ÿ(u5   3GCFV 181430Z 02020KT 340V050 9999 FEW034 27/15 Q1016GCFV2019-07-18T14:30:00Z28.43-13.8727.015.020206.2130.0VFRMETAR23.02019-07-18 14:41:06 %)k­î%C¯Ÿ (5     3LFLN 181430Z AUTO 28010KT 250V320 CAVOK 27/09 Q1015 NOSIGLFLN2019-07-18T14:30:00Z46.424.0227.09.0280106.2129.970472TRUETRUEVFRMETAR244.02019-07-18 14:41:069¯Ÿ (s5    3LFOZ 181430Z AUTO 26012KT 220V300 CAVOK 27/12 Q1014LFOZ2019-07-18T14:30:00Z47.92.1727.012.0260126.2129.940945TRUEVFRMETAR121.02019-07-18 14:41:068¯Ÿ (s5    3LFPM 181430Z AUTO 25013KT 220V290 CAVOK 27/09 Q1013LFPM2019-07-18T14:30:00Z48.622.6727.09.0250136.2129.911417TRUEVFRMETAR92.02019-07-18 14:41:068¯Ÿ (s5    3LFPT 181430Z AUTO 28012KT 240V340 CAVOK 24/13 Q1013LFPT2019-07-18T14:30:00Z49.12.0324.013.0280126.2129.911417TRUEVFRMETAR99.02019-07-18 14:41:06Q¯Ÿ )5     3LFRH 181430Z AUTO 26015KT 9999 FEW035 BKN048 BKN180 22/15 Q1015 NOSIGLFRH2019-07-18T14:30:00Z47.77-3.4522.015.0260156.2129.970472TRUETRUEVFRMETAR44.02019-07-18 14:41:06 7k›Ú6¯Ÿ(u5   3LERS 181430Z 18011KT 120V220 9999 FEW040 30/17 Q1014LERS2019-07-18T14:30:00Z41.131.1730.017.0180116.2129.940945VFRMETAR76.02019-07-18 14:41:06;¯Ÿ)5   3LESO 181430Z 01006KT 290V070 9999 FEW030 SCT040 23/16 Q1019LESO2019-07-18T14:30:00Z43.35-1.823.016.01066.2130.088583VFRMETAR8.02019-07-18 14:41:06J¯Ÿ)5    3LJLJ 181430Z 26008KT 9999 FEW050CB SCT100 BKN220 23/12 Q1013 NOSIGLJLJ2019-07-18T14:30:00Z46.2214.4723.012.026086.2129.911417TRUEVFRMETAR385.02019-07-18 14:41:06F¯Ÿ)5   3LJMB 181430Z 20006KT 170V240 9999 FEW050 SCT080 BKN150 25/14 Q1013LJMB2019-07-18T14:30:00Z46.4715.6725.014.020066.2129.911417VFRMETAR265.02019-07-18 14:41:06C¯Ÿ)5   3LJPZ 181430Z 32005KT 280V350 9999 FEW050 SCT140 BKN170 28/16 Q1012LJPZ2019-07-18T14:30:00Z45.4713.6228.016.032056.2129.88189VFRMETAR2.02019-07-18 14:41:06 WE“ËW7¯Ÿ(u5   3LEVT 181430Z 05010KT 010V090 9999 FEW040 24/13 Q1019LEVT2019-07-18T14:30:00Z42.87-2.7224.013.050106.2130.088583VFRMETAR509.02019-07-18 14:41:061¯Ÿ(i5   3LEZG 181430Z 30013KT 270V330 CAVOK 30/09 Q1015LEZG2019-07-18T14:30:00Z41.67-1.0230.09.0300136.2129.970472VFRMETAR258.02019-07-18 14:41:06B¯Ÿ)5    3LEST 181430Z 35007KT 320V070 9999 FEW026 24/17 Q1019 NOSIGLEST2019-07-18T14:30:00Z42.88-8.4224.017.035076.2130.088583TRUEVFRMETAR367.02019-07-18 14:41:06,¯Ÿ(e5   3LEGR 181430Z VRB05KT 9999 FEW080 36/08 Q1014LEGR2019-07-18T14:30:00Z37.17-3.7736.08.0056.2129.940945VFRMETAR559.02019-07-18 14:41:065¯Ÿ(u5   3LEMH 181430Z 17008KT 100V210 9999 FEW038 28/19 Q1015LEMH2019-07-18T14:30:00Z39.874.2228.019.017086.2129.970472VFRMETAR82.02019-07-18 14:41:06 7;{Æ7F¯Ÿ) 5    3UKKK 181430Z 27006MPS 9999 FEW049 21/11 Q1010 R26/CLRD70 NOSIGUKKK2019-07-18T14:30:00Z50.430.4521.011.0270126.2129.822834TRUEVFRMETAR179.02019-07-18 14:41:06=¯Ÿ(}5    3UKKM 181430Z AUTO 26004MPS 230V290 9999 VCSH 21/09 Q1010UKKM2019-07-18T14:30:00Z50.630.221.09.026086.2129.822834TRUEVCSHMETAR157.02019-07-18 14:41:06/¯Ÿ(i5   3LKKV 181430Z 23005KT 160V290 CAVOK 23/07 Q1013LKKV2019-07-18T14:30:00Z50.212.9223.07.023056.2129.911417VFRMETAR604.02019-07-18 14:41:06:¯Ÿ(u5    3LEAL 181430Z 10009KT 050V150 CAVOK 29/19 Q1014 NOSIGLEAL2019-07-18T14:30:00Z38.27-0.5529.019.010096.2129.940945TRUEVFRMETAR31.02019-07-18 14:41:06?¯Ÿ)5    3LEBL 181430Z 18008KT 140V220 9999 FEW040 28/20 Q1014 NOSIGLEBL2019-07-18T14:30:00Z41.272.0728.020.018086.2129.940945TRUEVFRMETAR6.02019-07-18 14:41:06 Al¬ß:¯Ÿ!(q5     3VAAH 181430Z 21008KT 4000 FU NSC 34/24 Q1001 NOSIGVAAH2019-07-18T14:30:00Z23.0772.6234.024.021082.4929.557087TRUEFUIFRMETAR55.02019-07-18 14:41:06G¯Ÿ ) 5     3VEBS 181430Z 09002KT 5000 HZ SCT018 FEW030CB 29/27 Q1001 NOSIGVEBS2019-07-18T14:30:00Z20.2585.8229.027.09023.1129.557087TRUEHZMVFRMETAR46.02019-07-18 14:41:06:¯Ÿ(}5    3UKOH 181430Z VRB01MPS CAVOK 28/08 Q1010 R03/CLRD// NOSIGUKOH2019-07-18T14:30:00Z46.6732.528.08.0026.2129.822834TRUEVFRMETAR45.02019-07-18 14:41:06O¯Ÿ)5    3UKWW 181430Z 30005MPS 260V330 9999 SCT033CB 21/11 Q1012 R31/0///65 NOSIGUKWW2019-07-18T14:30:00Z49.2528.621.011.0300106.2129.88189TRUEVFRMETAR293.02019-07-18 14:41:069¯Ÿ(q5    3WIII 181430Z 11006KT 8000 FEW020 27/20 Q1009 NOSIGWIII2019-07-18T14:30:00Z-6.13106.6727.020.011064.9729.793306TRUEMVFRMETAR8.02019-07-18 14:41:06 @}¹ðR¯Ÿ&)!5    3VOGO 181430Z 24007KT 5000 VCSH SCT010 BKN090 27/25 Q1005 TEMPO 4000 -RA/DZVOGO2019-07-18T14:30:00Z15.3873.8327.025.024073.1129.675198VCSHMVFRMETAR52.02019-07-18 14:41:06C¯Ÿ%)5     3NZCH 181430Z AUTO 07008KT 9999 BKN095/// 09/04 Q1000 NOSIGNZCH2019-07-18T14:30:00Z-43.47172.559.04.07086.2129.52756TRUETRUEVFRMETAR34.02019-07-18 14:41:06>¯Ÿ$(u5     3NZWN 181430Z AUTO 36012KT 9999 NCD 10/08 Q1005 NOSIGNZWN2019-07-18T14:30:00Z-41.32174.810.08.0360126.2129.675198TRUETRUEVFRMETAR7.02019-07-18 14:41:06=¯Ÿ#(u5     3NZAA 181430Z AUTO 02008KT 9999 NCD 12/11 Q1007 NOSIGNZAA2019-07-18T14:30:00Z-37.02174.812.011.02086.2129.734253TRUETRUEVFRMETAR6.02019-07-18 14:41:06:¯Ÿ"(y5    3VABV 181430Z 19011KT 4000 FU FEW025 SCT080 31/25 Q1001VABV2019-07-18T14:30:00Z21.7572.231.025.0190112.4929.557087FUIFRMETAR11.02019-07-18 14:41:06 Ò1h¡ÒI¯Ÿ*)5    3EINN 181430Z 24016KT 9999 FEW020CB SCT026 BKN060 18/11 Q1010 NOSIGEINN2019-07-18T14:30:00Z52.7-8.9218.011.0240166.2129.822834TRUEVFRMETAR20.02019-07-18 14:41:06A¯Ÿ)(5    3EICK 181430Z 26013KT 9999 SCT026 BKN060 19/11 Q1011 NOSIGEICK2019-07-18T14:30:00Z51.85-8.4719.011.0260136.2129.852362TRUEVFRMETAR162.02019-07-18 14:41:06C¯Ÿ()5    3EIKN 181430Z 27016KT 9999 FEW020CB SCT026 16/10 Q1009 NOSIGEIKN2019-07-18T14:30:00Z53.92-8.8216.010.0270166.2129.793306TRUEVFRMETAR64.02019-07-18 14:41:06I¯Ÿ')5    3CWPF 181430Z AUTO 26010G16KT 14/10 RMK AO1 SLP153 T01440099 51008CWPF2019-07-18T14:30:00Z48.43-123.4314.49.926010161015.3TRUETRUE0.8METAR12.02019-07-18 14:41:06 Å-Y’ŁG¯Ÿ.) 5    3UKLI 181430Z 32003MPS 260V010 CAVOK 23/09 Q1013 R28/090070 NOSIGUKLI2019-07-18T14:30:00Z48.8824.6823.09.032066.2129.911417TRUEVFRMETAR280.02019-07-18 14:41:06A¯Ÿ-)5    3UKLU 181430Z VRB01MPS 9999 NSC 25/10 Q1013 R10/090070 NOSIGUKLU2019-07-18T14:30:00Z48.6322.2725.010.0026.2129.911417TRUEVFRMETAR117.02019-07-18 14:41:06N¯Ÿ,) 5    3KOWA 181430Z AUTO 16007KT 10SM BKN012 OVC021 23/22 A2973 RMK AO2KOWA2019-07-18T14:30:00Z44.12-93.2523.022.0160710.029.731298TRUETRUEMVFRMETAR350.02019-07-18 14:41:06M¯Ÿ+)5   3EIDW 181430Z 26009G19KT 200V290 9999 FEW025 SCT040 19/10 Q1008 NOSIGEIDW2019-07-18T14:30:00Z53.42-6.2519.010.02609196.2129.763779TRUEVFRMETAR85.02019-07-18 14:41:06 ç5i¥ç8¯Ÿ2(q5    3LUKK 181430Z 33008KT CAVOK 25/08 Q1013 R26/D NOSIGLUKK2019-07-18T14:30:00Z46.9328.9325.08.033086.2129.911417TRUEVFRMETAR122.02019-07-18 14:41:06>¯Ÿ1(w5    3FAOR 181430Z 20005KT 170V230 CAVOK 19/M06 Q1026 NOSIGFAOR2019-07-18T14:30:00Z-26.1228.2219.0-6.020056.2130.295275TRUEVFRMETAR1700.02019-07-18 14:41:06F¯Ÿ0(}5   3KWYS 181430Z AUTO 22010G18KT 9SM CLR 16/07 A3002 RMK AO2KWYS2019-07-18T14:30:00Z44.67-111.1216.07.022010189.030.02067TRUETRUEVFRMETAR2025.02019-07-18 14:41:06E¯Ÿ/) 5    3UKLR 181430Z 32006MPS 9999 SCT026 21/09 Q1013 R29/090070 NOSIGUKLR2019-07-18T14:30:00Z50.626.1321.09.0320126.2129.911417TRUEVFRMETAR230.02019-07-18 14:41:06 ;'k°ó;2¯Ÿ7(g5   3OITT 181430Z 27010KT CAVOK 33/M02 Q1011 A2987OITT2019-07-18T14:30:00Z38.1346.2333.0-2.0270106.2129.852362VFRMETAR1361.02019-07-18 14:41:067¯Ÿ6(s5   3OIZH 181430Z 03010KT 9999 FEW045 38/M02 Q1006 A2971OIZH2019-07-18T14:30:00Z29.4760.9238.0-2.030106.2129.704725VFRMETAR1370.02019-07-18 14:41:065¯Ÿ5(q5    3LWSK 181430Z VRB02KT 9999 FEW060 30/09 Q1012 NOSIGLWSK2019-07-18T14:30:00Z41.9721.6330.09.0026.2129.88189TRUEVFRMETAR239.02019-07-18 14:41:066¯Ÿ4(q5    3FOOL 181430Z 26006KT 9999 FEW011 28/23 Q1011 NOSIGFOOL2019-07-18T14:30:00Z0.459.4228.023.026066.2129.852362TRUEVFRMETAR15.02019-07-18 14:41:06S¯Ÿ3)%5    3UBBN 181430Z 14008KT 9999 NSC 38/04 Q1002 R14R/CLRD// NOSIG RMK MT OP QFE678UBBN2019-07-18T14:30:00Z39.1845.4538.04.014086.2129.586615TRUEVFRMETAR873.02019-07-18 14:41:06 mL‹Ü)m6¯Ÿ<(s5   3OIFM 181430Z 03008KT 9999 SCT040 38/M04 Q1010 A2983OIFM2019-07-18T14:30:00Z32.7551.8738.0-4.03086.2129.822834VFRMETAR1542.02019-07-18 14:41:06-¯Ÿ;(e5   3OIGG 181430Z 03004KT 9999 FEW025 29/21 Q1003OIGG2019-07-18T14:30:00Z37.3349.629.021.03046.2129.616142VFRMETAR-13.02019-07-18 14:41:06)¯Ÿ:(Y5   3OIIE 181430Z 11012KT CAVOK 41/01 Q1004OIIE2019-07-18T14:30:00Z35.4251.1541.01.0110126.2129.64567VFRMETAR1008.02019-07-18 14:41:06;¯Ÿ9(w5    3OIKB 181430Z 14010KT 5000 HZ SCT030 34/28 Q0995 A2940OIKB2019-07-18T14:30:00Z27.2256.3734.028.0140103.1129.379921HZMVFRMETAR10.02019-07-18 14:41:06.¯Ÿ8(e5   3OIMM 181430Z 06012KT CAVOK 36/04 Q1010 A2982OIMM2019-07-18T14:30:00Z36.2359.6236.04.060126.2129.822834VFRMETAR980.02019-07-18 14:41:06 Û9^Û.¯Ÿ@(e5   3LWOH 181430Z 17005KT 9999 FEW050 24/09 Q1014LWOH2019-07-18T14:30:00Z41.1820.7524.09.017056.2129.940945VFRMETAR761.02019-07-18 14:41:06I¯Ÿ?) 5    3VOML 181430Z 27006KT 6000 FEW012 SCT020 BKN080 26/23 Q1006 NOSIGVOML2019-07-18T14:30:00Z12.9774.8826.023.027063.7329.704725TRUEMVFRMETAR103.02019-07-18 14:41:06U¯Ÿ>)95    3SOCA 181430Z AUTO 00000KT CAVOK 27/24 Q1016 TEMPO VRB15G25KT 1000 TSRA SCT005 SCT012CBSOCA2019-07-18T14:30:00Z4.82-52.3727.024.0006.2130.0TRUEVFRMETAR9.02019-07-18 14:41:06A¯Ÿ=(5    3NWWW 181430Z AUTO 15002KT CAVOK 14/13 Q1015 TEMPO 2000 BRNWWW2019-07-18T14:30:00Z-22.02166.2214.013.015026.2129.970472TRUEVFRSPECI16.02019-07-18 14:41:06 Æ$R’ƁF¯ŸD)5     3LBGO 181430Z AUTO 28004KT 250V330 9999 NCD 29/15 Q1012 NOSIGLBGO2019-07-18T14:30:00Z43.1525.7229.015.028046.2129.88189TRUETRUEVFRMETAR86.02019-07-18 14:41:06:¯ŸC(u5    3LZIB 181430Z 12004KT 080V160 CAVOK 27/12 Q1012 NOSIGLZIB2019-07-18T14:30:00Z48.1717.2227.012.012046.2129.88189TRUEVFRMETAR134.02019-07-18 14:41:06L¯ŸB)5    3LZKZ 181430Z 24005KT 210V270 9999 FEW040TCU SCT062 23/10 Q1013 NOSIGLZKZ2019-07-18T14:30:00Z48.6721.2323.010.024056.2129.911417TRUEVFRMETAR232.02019-07-18 14:41:06V¯ŸA))5    3LZTT 181430Z 16007KT 130V200 9999 -TSRA FEW028 SCT044CB 19/09 Q1015 TEMPO TSRALZTT2019-07-18T14:30:00Z49.0720.2519.09.016076.2129.970472-TSRAVFRSPECI707.02019-07-18 14:41:06 "3u°ô"L¯ŸI)5    3YPXM 181430Z AUTO 11011KT 9999 // BKN014 23/21 Q1012 RF00/0/000/2YPXM2019-07-18T14:30:00Z-10.45105.6723.021.0110116.2129.88189TRUEMVFRMETAR259.02019-07-18 14:41:066¯ŸH(q5    3LBSF 181430Z VRB03KT 9999 SCT060 27/11 Q1013 NOSIGLBSF2019-07-18T14:30:00Z42.723.4227.011.0036.2129.911417TRUEVFRMETAR530.02019-07-18 14:41:06?¯ŸG(5    3LBWN 181430Z 11013KT 9999 FEW026 SCT040 26/19 Q1012 NOSIGLBWN2019-07-18T14:30:00Z43.2227.8226.019.0110136.2129.88189TRUEVFRMETAR43.02019-07-18 14:41:068¯ŸF(q5    3LBBG 181430Z 11011KT 9999 FEW043 26/19 Q1012 NOSIGLBBG2019-07-18T14:30:00Z42.5727.5226.019.0110116.2129.88189TRUEVFRMETAR28.02019-07-18 14:41:06G¯ŸE)5     3LBPD 181430Z AUTO 28006KT 220V340 9999 NCD 29/10 Q1011 NOSIGLBPD2019-07-18T14:30:00Z42.1324.829.010.028066.2129.852362TRUETRUEVFRMETAR185.02019-07-18 14:41:06 »E|»;¯ŸM({5     3FMCZ 181430Z AUTO 15009KT 9999 FEW028 26/20 Q1016 NOSIGFMCZ2019-07-18T14:30:00Z-12.845.2726.020.015096.2130.0TRUETRUEVFRMETAR7.02019-07-18 14:41:06C¯ŸL)5    3YPJT 181430Z AUTO 03004KT 9999 // SCT018 12/12 Q1016 RF00.0/001.0YPJT2019-07-18T14:30:00Z-32.1115.8812.012.03046.2130.0TRUEVFRSPECI30.02019-07-18 14:41:06D¯ŸK)5    3GOBD 181430Z 30015KT 270V330 8000 FEW020 30/22 Q1014 NOSIGGOBD2019-07-18T14:30:00Z14.67-17.0730.022.0300154.9729.940945TRUEMVFRMETAR88.02019-07-18 14:41:06k¯ŸJ)U5    3TFFF 181430Z AUTO 10013KT 9999 BKN024 BKN033 BKN043 30/25 Q1017 TEMPO VRB15G25KT 1200 -TSRA BKN015CBTFFF2019-07-18T14:30:00Z14.6-61.030.025.0100136.2130.029528TRUEMVFRMETAR5.02019-07-18 14:41:06 RFÉ R2¯ŸR(e5    3GMFF 181430Z 03007KT CAVOK 32/10 Q1013 NOSIGGMFF2019-07-18T14:30:00Z33.92-4.9732.010.03076.2129.911417TRUEVFRMETAR579.02019-07-18 14:41:069¯ŸQ(q5    3GMME 181430Z 34012KT 9999 FEW026 23/15 Q1013 NOSIGGMME2019-07-18T14:30:00Z34.03-6.7723.015.0340126.2129.911417TRUEVFRMETAR75.02019-07-18 14:41:06A¯ŸP(5     3LFTW 181430Z AUTO 33008KT 280V020 CAVOK 34/09 Q1011 NOSIGLFTW2019-07-18T14:30:00Z43.754.4234.09.033086.2129.852362TRUETRUEVFRMETAR96.02019-07-18 14:41:060¯ŸO(i5   3LEAM 181430Z 19008KT 160V230 CAVOK 26/20 Q1013LEAM2019-07-18T14:30:00Z36.85-2.3726.020.019086.2129.911417VFRMETAR21.02019-07-18 14:41:064¯ŸN(k5    3OPPS 181430Z 05008KT 7000 HZ FEW030 30/24 Q1001OPPS2019-07-18T14:30:00Z34.0271.5230.024.05084.3529.557087HZMVFRMETAR360.02019-07-18 14:41:06 Ä;l…ā;¯ŸV(u5    3LHBP 181430Z 18005KT 150V220 CAVOK 23/16 Q1013 NOSIGLHBP2019-07-18T14:30:00Z47.4219.2723.016.018056.2129.911417TRUEVFRMETAR185.02019-07-18 14:41:06a¯ŸU)+5      3PAWG 181430Z 00000KT 5SM -RA BR FEW009 OVC014 13/13 A2977 RMK AO2 RAB1359 P0000PAWG2019-07-18T14:30:00Z56.48-132.3713.013.0005.029.769686TRUE-RA BRMVFR0.005METAR11.02019-07-18 14:41:06I¯ŸT)5    3WSSS 181430Z 17010KT 130V190 9999 FEW020 BKN300 29/22 Q1009 NOSIGWSSS2019-07-18T14:30:00Z1.37103.9729.022.0170106.2129.793306TRUEVFRMETAR16.02019-07-18 14:41:06?¯ŸS({5    3GMAD 181430Z 23013KT 200V280 8000 NSC 27/15 Q1010 NOSIGGMAD2019-07-18T14:30:00Z30.32-9.4227.015.0230134.9729.822834TRUEMVFRMETAR74.02019-07-18 14:41:06 *Z“Ü*,¯Ÿ[(e5   3LDRI 181430Z VRB03KT 9999 FEW050 27/14 Q1011LDRI2019-07-18T14:30:00Z45.2214.5727.014.0036.2129.852362VFRMETAR85.02019-07-18 14:41:061¯ŸZ(e5    3LDSP 181430Z 22008KT CAVOK 29/16 Q1011 NOSIGLDSP2019-07-18T14:30:00Z43.5216.329.016.022086.2129.852362TRUEVFRMETAR21.02019-07-18 14:41:06A¯ŸY)5    3LDZA 181430Z 22004KT 130V290 9999 FEW045 28/17 Q1012 NOSIGLDZA2019-07-18T14:30:00Z45.7216.0728.017.022046.2129.88189TRUEVFRMETAR107.02019-07-18 14:41:068¯ŸX(u5    3LDZD 181430Z 28009KT 240V320 CAVOK 29/13 Q1012 NOSIGLDZD2019-07-18T14:30:00Z44.115.3729.013.028096.2129.88189TRUEVFRMETAR84.02019-07-18 14:41:06b¯ŸW)?5    3TFFR 181430Z AUTO 14014KT 9999 FEW029 SCT035 BKN047 30/24 Q1017 TEMPO 3000 SHRA BKN020TCUTFFR2019-07-18T14:30:00Z16.27-61.5330.024.0140146.2130.029528TRUEVFRMETAR11.02019-07-18 14:41:06 /B‡Áñ/<¯Ÿ`(u5    3GMMN 181430Z 35011KT 310V020 CAVOK 26/16 Q1013 NOSIGGMMN2019-07-18T14:30:00Z33.37-7.5726.016.0350116.2129.911417TRUEVFRMETAR206.02019-07-18 14:41:06J¯Ÿ_)5    3FMMI 181430Z 15007KT 120V180 9999 SCT020 BKN023 15/09 Q1025 NOSIGFMMI2019-07-18T14:30:00Z-18.847.4715.09.015076.2130.265747TRUEMVFRMETAR1276.02019-07-18 14:41:06@¯Ÿ^)5   3LDDU 181430Z 25005KT 200V330 CAVOK 26/18 Q1013 TEMPO 29008KTLDDU2019-07-18T14:30:00Z42.5718.2726.018.025056.2129.911417VFRSPECI165.02019-07-18 14:41:065¯Ÿ](u5   3LDOS 181430Z 08005KT 050V120 9999 FEW047 28/14 Q1011LDOS2019-07-18T14:30:00Z45.4718.8228.014.08056.2129.852362VFRMETAR89.02019-07-18 14:41:068¯Ÿ\(q5    3LDPL 181430Z 29012KT 9999 FEW058 28/11 Q1012 NOSIGLDPL2019-07-18T14:30:00Z44.8813.9228.011.0290126.2129.88189TRUEVFRMETAR63.02019-07-18 14:41:06 ²9wƒ²K¯Ÿd)5    3LFMU 181430Z AUTO 29017KT 260V320 CAVOK 31/10 Q1013 TEMPO 30015G25KTLFMU2019-07-18T14:30:00Z43.323.3531.010.0290176.2129.911417TRUEVFRSPECI17.02019-07-18 14:41:06n¯Ÿc)Q5     3LFOB 181430Z AUTO 27012KT 9999 4700 -RA BKN030 BKN035 OVC043 20/15 Q1013 TEMPO 4000 SHRA BKN025TCULFOB2019-07-18T14:30:00Z49.472.1220.015.0270126.2129.911417TRUE-RAMVFRSPECI111.02019-07-18 14:41:06<¯Ÿb(o5     3LFOK 181430Z AUTO 27015KT CAVOK 26/10 Q1013 NOSIGLFOK2019-07-18T14:30:00Z48.784.1826.010.0270156.2129.911417TRUETRUEVFRMETAR162.02019-07-18 14:41:06A¯Ÿa(5     3LFPB 181430Z AUTO 22011KT 190V250 CAVOK 28/09 Q1012 NOSIGLFPB2019-07-18T14:30:00Z48.972.4528.09.0220116.2129.88189TRUETRUEVFRMETAR65.02019-07-18 14:41:06 Ä1_™ÄO¯Ÿh)5    3LFST 181430Z AUTO 18006KT 090V240 CAVOK 28/12 Q1012 TEMPO FEW060CB BKN080LFST2019-07-18T14:30:00Z48.537.6228.012.018066.2129.88189TRUEVFRSPECI154.02019-07-18 14:41:06@¯Ÿg(5     3LFTH 181430Z AUTO 11008KT 030V150 CAVOK 27/21 Q1011 NOSIGLFTH2019-07-18T14:30:00Z43.16.1527.021.011086.2129.852362TRUETRUEVFRMETAR4.02019-07-18 14:41:06L¯Ÿf)5    3LFMK 181430Z AUTO 28016KT 250V310 CAVOK 26/12 Q1017 TEMPO 29015G27KTLFMK2019-07-18T14:30:00Z43.222.3226.012.0280166.2130.029528TRUEVFRSPECI130.02019-07-18 14:41:06I¯Ÿe)5    3LFMT 181430Z AUTO 30008KT 260V350 CAVOK 33/10 Q1011 TEMPO 30015G25KTLFMT2019-07-18T14:30:00Z43.573.9733.010.030086.2129.852362TRUEVFRSPECI6.02019-07-18 14:41:06 ™!`j™K¯Ÿl)5   3K5SM 181429Z AUTO 22009G21KT 10SM CLR 12/M03 A3054 RMK AO2K5SM2019-07-18T14:29:00Z39.43-107.3812.0-3.022092110.030.540354TRUETRUEVFRMETAR3232.02019-07-18 14:41:06p¯Ÿk)E5     3KHOP 181429Z AUTO 00000KT 10SM -DZ BKN010 25/24 A3003 RMK AO2 DZB13E22DZB28 BKN V FEW SLP166KHOP2019-07-18T14:29:00Z36.67-87.525.024.00010.030.0295281016.6TRUETRUE-DZMVFRSPECI174.02019-07-18 14:41:06;¯Ÿj(u5    3GMMX 181430Z 34007KT 280V070 CAVOK 31/12 Q1013 NOSIGGMMX2019-07-18T14:30:00Z31.62-8.0231.012.034076.2129.911417TRUEVFRMETAR466.02019-07-18 14:41:06Y¯Ÿi)'5     3LFRG 181430Z AUTO 25008KT 230V290 9999 BKN019 BKN025 OVC052 20/16 Q1014 NOSIGLFRG2019-07-18T14:30:00Z49.370.1520.016.025086.2129.940945TRUETRUEMVFRMETAR146.02019-07-18 14:41:06 —En—Q¯Ÿp)5    3KCVG 181429Z 22006KT 10SM SCT010 28/24 A2999 RMK AO2 SCT V BKN T02780239KCVG2019-07-18T14:29:00Z39.05-84.6727.823.9220610.029.991142TRUEVFRMETAR269.02019-07-18 14:41:06Q¯Ÿo)5    3KBMQ 181429Z AUTO 19012KT 10SM SCT019 27/21 A3007 RMK AO2 T02670211KBMQ2019-07-18T14:29:00Z30.73-98.2326.721.11901210.030.070866TRUETRUEVFRMETAR389.02019-07-18 14:41:06S¯Ÿn)5    3CYTE 181429Z 26007KT 3/4SM -DZ BR VV002 07/07 A2941 RMK FG8 SLP964CYTE2019-07-18T14:29:00Z64.22-76.527.07.026070.7529.409449996.4-DZ BRLIFR200SPECI47.02019-07-18 14:41:06\¯Ÿm)'5     3CBBC 181429Z AUTO VRB02KT 9SM -RA FEW015 SCT041 BKN070 14/12 A2991 RMK SLP131CBBC2019-07-18T14:29:00Z52.18-128.1514.012.0029.029.9114171013.1TRUE-RAVFRSPECI43.02019-07-18 14:41:06 ]-`†]‚#¯Ÿt)‚!5      3KMDW 181429Z 18003KT 3SM +TSRA BR SCT029 BKN048CB OVC065 23/23 A2993 RMK AO2 LTG DSNT ALQDS FRQ LTGICCG OHD TS OHD MOV E P0036 T02280228 $KMDW2019-07-18T14:29:00Z41.78-87.7522.822.818033.029.929134TRUETRUE+TSRA BRMVFR0.36METAR188.02019-07-18 14:41:06T¯Ÿs)!5    3KHZY 181429Z AUTO VRB03KT 10SM SCT014 BKN022 26/23 A2998 RMK AO2 T02560228KHZY2019-07-18T14:29:00Z41.78-80.725.622.80310.029.97933TRUETRUEMVFRMETAR276.02019-07-18 14:41:06G¯Ÿr) 5    3KDTN 181429Z 23011KT 10SM SCT018 29/23 A3006 RMK AO2 T02890233KDTN2019-07-18T14:29:00Z32.55-93.7528.923.32301110.030.059055TRUEVFRMETAR53.02019-07-18 14:41:06M¯Ÿq)5    3KCKB 181429Z 25007KT 10SM FEW012 SCT030 27/22 A3001 RMK AO2 T02720217KCKB2019-07-18T14:29:00Z39.3-80.2227.221.7250710.030.008858TRUEVFRMETAR360.02019-07-18 14:41:06 00`¯Ÿw)75    3CYAT 181428Z AUTO 13005KT 080V150 9SM OVC095 16/13 A2969 RMK SLP057 DENSITY ALT 300FTCYAT2019-07-18T14:28:00Z52.93-82.4316.013.013059.029.689961005.7TRUEVFRSPECI9.02019-07-18 14:41:06¯Ÿv)c5    3CYNE 181428Z AUTO 05003KT 010V100 9SM BKN010 BKN025 BKN034 OVC065 18/16 A2951 RMK SLP998 DENSITY ALT 1600FTCYNE2019-07-18T14:28:00Z53.97-97.8218.016.05039.029.509842999.8TRUEOVC6500MVFRSPECI223.02019-07-18 14:41:06_¯Ÿu)!5     3KGTB 181428Z AUTO 08004KT 10SM -DZ OVC070 25/19 A2996 RMK AO2 DZB28 SLP142KGTB2019-07-18T14:28:00Z44.07-75.7225.019.080410.029.9586621014.2TRUETRUE-DZVFRSPECI207.02019-07-18 14:41:06 (Þ '(y¯Ÿ{)[5      3KUGN 181428Z 32006KT 2SM -RA BR BKN030 OVC065 22/21 A2997 RMK AO2 LTG DSNT SE-SW PRESRR P0011 T02220211KUGN2019-07-18T14:28:00Z42.42-87.8722.221.132062.029.970472TRUE-RA BRIFR0.11METAR222.02019-07-18 14:41:06]¯Ÿz))5     3PAVL 181428Z AUTO 21009KT 7SM SCT008 BKN012 11/08 A2973 RMK AO2 T01060083 TSNOPAVL2019-07-18T14:28:00Z67.73-164.5510.68.321097.029.731298TRUETRUETRUEMVFRMETAR3.02019-07-18 14:41:06N¯Ÿy)5    3KCXO 181428Z 18009KT 10SM SCT015 BKN022 29/25 A3005 RMK AO2 T02940250KCXO2019-07-18T14:28:00Z30.35-95.4229.425.0180910.030.050198TRUEMVFRMETAR75.02019-07-18 14:41:06‚¯Ÿx)‚5   3CYXC 181428Z 16006KT 20SM VCSH FEW002 SCT040CB BKN090 BKN130 10/09 A2977 RMK SF1CB3AC1AC2 CB SH SE-SW VIS 10 SLP080 DENSITY ALT 3500FTCYXC2019-07-18T14:28:00Z49.6-115.7710.09.0160620.029.7696861008.0VCSHBKN13000VFRSPECI939.02019-07-18 14:41:06 ~4a\~X¯Ÿ)%5     3KACV 181427Z AUTO 31004KT 4SM BR BKN007 OVC013 17/16 A2998 RMK AO2 T01670156KACV2019-07-18T14:27:00Z40.98-124.116.715.631044.029.97933TRUETRUEBRIFRSPECI67.02019-07-18 14:41:06¯Ÿ~)c5       3PAGY 181427Z AUTO 00000KT 1 1/4SM BR BKN020 OVC080 13/12 A2968 RMK AO2 VIS 1/4V5 RAE09 P0000 T01280122 TSNOPAGY2019-07-18T14:27:00Z59.47-135.312.812.2001.2529.681103TRUETRUETRUEBRIFR0.005SPECI5.02019-07-18 14:41:06M¯Ÿ})5     3KPHD 181428Z AUTO 00000KT 3SM BR OVC003 24/22 A3000 RMK AO2 T02390217KPHD2019-07-18T14:28:00Z40.47-81.4223.921.7003.030.0TRUETRUEBRLIFRMETAR272.02019-07-18 14:41:06F¯Ÿ|) 5    3KSGR 181428Z 18011KT 10SM SCT019 30/26 A3004 RMK AO2 T03000256KSGR2019-07-18T14:28:00Z29.62-95.6530.025.61801110.030.041338TRUEVFRMETAR2.02019-07-18 14:41:06 "EiF¯ ) 5    3KLEX 181427Z 26008KT 10SM OVC015 27/23 A3002 RMK AO2 T02720228KLEX2019-07-18T14:27:00Z38.03-84.627.222.8260810.030.02067TRUEMVFRSPECI300.02019-07-18 14:41:06V¯ )%5    3KDXR 181427Z 10005KT 10SM SCT015 BKN020 OVC034 24/22 A2995 RMK AO2 T02440217KDXR2019-07-18T14:27:00Z41.37-73.4824.421.7100510.029.949802TRUEMVFRSPECI139.02019-07-18 14:41:06W¯ )5   3KDRT 181427Z AUTO 12009G16KT 10SM BKN020 28/22 A2999 RMK AO2 T02780222KDRT2019-07-18T14:27:00Z29.37-100.9227.822.212091610.029.991142TRUETRUEMVFRSPECI313.02019-07-18 14:41:06X¯ )%5    3KDUJ 181427Z AUTO 26005KT 10SM SCT008 OVC014 23/20 A3000 RMK AO2 T02280200 $KDUJ2019-07-18T14:27:00Z41.17-78.922.820.0260510.030.0TRUETRUETRUEMVFRSPECI554.02019-07-18 14:41:06 ‘'Iu‘^¯ )'5   3KUTS 181427Z AUTO 19010G18KT 10SM SCT014 BKN021 29/24 A3006 RMK AO2 T02890239KUTS2019-07-18T14:27:00Z30.75-95.5828.923.9190101810.030.059055TRUETRUEMVFRSPECI104.02019-07-18 14:41:06N¯ )5    3KTVR 181427Z AUTO VRB03KT 10SM BKN013 29/26 A3008 RMK AO2 T02890256KTVR2019-07-18T14:27:00Z32.35-91.0328.925.60310.030.079725TRUETRUEMVFRSPECI26.02019-07-18 14:41:06X¯ )%5      3KTEB 181427Z 10003KT 6SM BR OVC006 24/23 A2990 RMK AO2 RAE21 P0011 T02440228KTEB2019-07-18T14:27:00Z40.87-74.0524.422.810036.029.899607TRUEBRIFR0.11SPECI7.02019-07-18 14:41:06S¯ )5     3KPYM 181427Z AUTO 01013KT 1SM BR OVC002 21/20 A2996 RMK AO2 T02060200KPYM2019-07-18T14:27:00Z41.92-70.7320.620.010131.029.958662TRUETRUEBRLIFRSPECI43.02019-07-18 14:41:06 l,Wtl‚¯  )[5    3ETAD 181426Z AUTO 26005KT 9999 FEW011 FEW060 SCT070 SCT090 BKN180 23/10 A2991 RMK AO2 RAB12E26 SLP110 $ETAD2019-07-18T14:26:00Z49.986.723.010.026056.2129.9114171011.0TRUETRUETRUESCT9000VFRSPECI365.02019-07-18 14:41:06]¯  )35   3KRST 181427Z 15013G23KT 10SM SCT021 23/19 A2973 RMK AO2 PK WND 15029/1355 T02280194KRST2019-07-18T14:27:00Z43.9-92.522.819.4150132310.029.731298TRUEVFRSPECI403.02019-07-18 14:41:06O¯  )5    3KFZY 181427Z AUTO VRB03KT 10SM BKN016 26/20 A2996 RMK AO2 T02560200KFZY2019-07-18T14:27:00Z43.35-76.3825.620.00310.029.958662TRUETRUEMVFRSPECI138.02019-07-18 14:41:06N¯ )5     3KZZV 181427Z AUTO 22004KT 3SM BR OVC002 23/22 A3000 RMK AO2 T02330222KZZV2019-07-18T14:27:00Z39.95-81.923.322.222043.030.0TRUETRUEBRLIFRSPECI268.02019-07-18 14:41:06 Ž 9<Ž(¯ (Y5   3OIAW 181426Z 20004KT CAVOK 47/12 Q0993OIAW2019-07-18T14:26:00Z31.3248.7747.012.020046.2129.320866VFRMETAR22.02019-07-18 14:41:06w¯ )S5    3CZPC 181426Z AUTO 29019G24KT 9SM -RA BKN055 OVC070 11/07 A2970 RMK PRESRR SLP053 DENSITY ALT 4600FTCZPC2019-07-18T14:26:00Z49.52-114.011.07.029019249.029.6988181005.3TRUE-RAVFRSPECI1190.02019-07-18 14:41:06K¯  )5    3EGYP 181426Z 18020KT 9999 -SN BKN006 BKN012 02/01 Q0986 TEMPO BKN007EGYP2019-07-18T14:26:00Z-51.82-58.452.01.0180206.2129.114174-SNIFRMETAR74.02019-07-18 14:41:06p¯  );5   3RODN 181426Z AUTO 14019G27KT 9SM BKN015 OVC023 29/26 A2962 RMK AO2 CIG 014V023 SLP035 $RODN2019-07-18T14:26:00Z26.35127.7729.026.014019279.029.6190951003.5TRUETRUETRUEMVFRSPECI45.02019-07-18 14:41:06 “/Pt“[¯ ))5     3EHFZ 181425Z AUTO VRB17KT 6000 +DZRA FEW005 SCT007 BKN028 16/15 Q1009 W///H///EHFZ2019-07-18T14:25:00Z54.124.0216.015.00173.7329.793306TRUE+DZ +RAMVFRMETAR50.02019-07-18 14:41:06V¯ )+5    3EHDV 181425Z AUTO 27013KT 240V300 9999 FEW009/// SCT013/// 16/13 Q1008 W///H///EHDV2019-07-18T14:25:00Z54.322.9316.013.0270136.2129.763779TRUEVFRMETAR50.02019-07-18 14:41:06Y¯ )/5    3EHAK 181425Z AUTO 19013KT 9999 FEW002/// BKN012/// OVC017/// 16/15 Q1007 W///H///EHAK2019-07-18T14:25:00Z55.423.8216.015.0190136.2129.734253TRUEMVFRMETAR50.02019-07-18 14:41:06K¯ )5    3EHFS 181425Z AUTO 28011KT 250V310 9999 OVC035/// 20/16 Q1010 W///H///EHFS2019-07-18T14:25:00Z51.453.620.016.0280116.2129.822834TRUEVFRMETAR32.02019-07-18 14:41:06 Æ>c¤ÆX¯ )/5    3EHJA 181425Z AUTO 25011KT 9999 FEW005/// SCT021/// BKN034/// 16/13 Q1009 W///H///EHJA2019-07-18T14:25:00Z53.822.9516.013.0250116.2129.793306TRUEVFRMETAR50.02019-07-18 14:41:069¯ )5  3EHJR 181425Z AUTO 26006KT //// // ///////// 16/16 Q//// RE// W16/H6EHJR2019-07-18T14:25:00Z53.223.2216.016.02606TRUEMETAR50.02019-07-18 14:41:06U¯ );5   3EHHW 181425Z AUTO 22005KT 190V260 //// // FEW041/// BKN046/// 18/15 Q1009 RE// W///H///EHHW2019-07-18T14:25:00Z54.036.0318.015.0220529.793306TRUEMETAR0.02019-07-18 14:41:06<¯ ({5    3EHFD 181425Z AUTO 21016KT 9999 NSC 16/15 Q1008 W///H///EHFD2019-07-18T14:25:00Z54.854.716.015.0210166.2129.763779TRUEVFRMETAR50.02019-07-18 14:41:06 ³Oˆ³O¯ )5    3EHPG 181425Z AUTO 21023KT 9999 SCT005 BKN006 OVC007 17/16 Q1009 W///H///EHPG2019-07-18T14:25:00Z52.373.3517.016.0210236.2129.793306TRUEIFRMETAR50.02019-07-18 14:41:06A¯ )5   3EHMA 181425Z AUTO 26013KT //// // FEW048 20/15 Q1010 RE// W///H///EHMA2019-07-18T14:25:00Z53.55.9520.015.02601329.822834TRUEMETAR50.02019-07-18 14:41:06C¯ )5     3EHMG 181425Z AUTO 23017KT 9000 DZ NSC 17/16 Q1010 W///H///EHMG2019-07-18T14:25:00Z53.624.9717.016.0230175.5929.822834TRUEDZVFRMETAR50.02019-07-18 14:41:06b¯ )35     3EHKV 181425Z AUTO 20015KT 5000 -RADZ FEW001 SCT003 BKN004 16/16 Q1009 RERA W///H///EHKV2019-07-18T14:25:00Z53.273.6316.016.0200153.1129.793306TRUE-RA -DZLIFRMETAR50.02019-07-18 14:41:06 º!\–ºV¯ ) 5    3PACZ 181425Z AUTO 24011KT 10SM BKN003 10/10 A2994 RMK AO2 SLP140PACZ2019-07-18T14:25:00Z61.78-166.0310.010.02401110.029.9409451014.0TRUETRUELIFRSPECI146.02019-07-18 14:41:06@¯ )5   3EHSC 181425Z AUTO 24018KT 9999 ///////// 18/16 Q1010 W18/H10EHSC2019-07-18T14:25:00Z51.933.6718.016.0240186.2129.822834TRUEMETAR50.02019-07-18 14:41:06?¯ )5   3EHSA 181425Z AUTO 20022KT 9999 ///////// 18/16 Q1010 W16/H13EHSA2019-07-18T14:25:00Z52.03.2818.016.0200226.2129.822834TRUEMETAR50.02019-07-18 14:41:06Y¯ ))5     3EHQE 181425Z AUTO 18016KT 8000 -RA FEW008 SCT015CB OVC043 17/16 Q1010 W///H///EHQE2019-07-18T14:25:00Z52.924.1517.016.0180164.9729.822834TRUE-RAMVFRMETAR50.02019-07-18 14:41:06 æ=l­æA¯ #)5    3OPIS 181425Z 11006KT 4000 HZ FEW040 FEW100 28/24 Q1002 RH81OPIS2019-07-18T14:25:00Z33.5572.8328.024.011062.4929.586615HZIFRMETAR537.02019-07-18 14:41:069¯ "(q5    3OPKC 181425Z 21013KT 6000 SCT030 31/23 Q1000 NOSIGOPKC2019-07-18T14:25:00Z24.8867.1731.023.0210133.7329.52756TRUEMVFRMETAR22.02019-07-18 14:41:06K¯ !)5    3OPLA 181425Z 14010KT 5000 FU FEW100 32/23 Q1000 RMK QFE975 RMK A29.54OPLA2019-07-18T14:25:00Z31.5274.432.023.0140103.1129.52756FUMVFRMETAR217.02019-07-18 14:41:06=¯  (5   3OISS 181425Z 18008KT 6000 FEW040 SCT200 35/06 Q1007 A2976OISS2019-07-18T14:25:00Z29.5252.5735.06.018083.7329.734253MVFRMETAR1491.02019-07-18 14:41:06 bÿ5mb‚¯ ')}5    3CYQK 181421Z 22009KT 160V250 2SM TSRA OVC031CB 20/19 A2958 RMK CB8 OCNL LTGCGCC ALQDS MOVG ENE SLP018 DENSITY ALT 2600FTCYQK2019-07-18T14:21:00Z49.77-94.3720.019.022092.029.580711001.8TSRAIFRSPECI411.02019-07-18 14:41:06B¯ &({5    3K7BM 181423Z AUTO 00000KT 10SM CLR 18/M04 A3046 RMK AO2K7BM2019-07-18T14:23:00Z38.78-106.2218.0-4.00010.030.46063TRUETRUEVFRMETAR2995.02019-07-18 14:41:06D¯ %({5    3KCPW 181424Z AUTO 20004KT 10SM CLR 12/M02 A3070 RMK AO2KCPW2019-07-18T14:24:00Z37.45-106.812.0-2.0200410.030.699802TRUETRUEVFRMETAR3584.02019-07-18 14:41:06{¯ $)i5     3RJBB 181424Z AUTO 19003KT 2500 RA BR BKN003 BKN070 OVC090 //////TCU 23/23 Q1013 RMK A2991 RI004 TCU OHD MOV NERJBB2019-07-18T14:24:00Z34.42135.2523.023.019031.5529.911417TRUERA BRLIFRSPECI8.02019-07-18 14:41:06 Gþã G<¯ +(}5    3EGEO 181420Z 23014KT 9999 VCSH FEW014 SCT027 15/13 Q1004EGEO2019-07-18T14:20:00Z56.47-5.415.013.0230146.2129.64567VCSHVFRMETAR6.02019-07-18 14:41:06T¯ *))5    3LTCC 181420Z 21011KT 170V250 CAVOK 34/06 Q1004 NOSIG RMK RWY16 22012KT 190V250LTCC2019-07-18T14:20:00Z37.8740.234.06.0210116.2129.64567TRUEVFRSPECI677.02019-07-18 14:41:06‚¯ ))‚5  3ROAH 181421Z 16024G37KT 9000 -SHRA FEW017 BKN025 FEW025CB BKN090 29/26 Q1002 RMK 1CU017 5CU025 1CB025 7AC090 A2960 CB 10KM N MOV NROAH2019-07-18T14:21:00Z26.17127.6529.026.016024375.5929.586615-SHRABKN9000MVFRMETAR8.02019-07-18 14:41:06|¯ ()o5    3RJAH 181421Z 19004KT 4000 -SHRA BR FEW006 SCT020 BKN080 24/23 Q1012 RMK 1ST006 3CU020 7AC080 A2990 VIS S-SW 3000MRJAH2019-07-18T14:21:00Z36.17140.4224.023.019042.4929.88189-SHRA BRIFRMETAR35.02019-07-18 14:41:06 €$R‡€‚¯ /)w5     3LTCE 181420Z 20011KT 180V240 9999 FEW030TCU SCT035 26/04 Q1012 NOSIG RMK RWY08R 18015KT RWY26R 21016KT RWY08L 19015KTLTCE2019-07-18T14:20:00Z39.9541.1726.04.0200116.2129.88189TRUEVFR-1.6SPECI1758.02019-07-18 14:41:06E¯ .) 5    3LTAG 181420Z 05005KT 9999 SCT030 BKN100 22/22 Q1006 RESHRA NOSIGLTAG2019-07-18T14:20:00Z37.035.4222.022.05056.2129.704725TRUEVFRMETAR66.02019-07-18 14:41:06L¯ -) 5    3KGNB 181420Z AUTO 00000KT 10SM CLR 11/02 A3034 RMK AO2 T01050019KGNB2019-07-18T14:20:00Z40.08-105.9210.51.90010.030.339567TRUETRUEVFRMETAR2500.02019-07-18 14:41:06V¯ ,)'5    3LTAU 181420Z 17006KT 9999 FEW030CB BKN035 20/15 Q1011 NOSIG RMK RWY07 15006KTLTAU2019-07-18T14:20:00Z38.7735.4720.015.017066.2129.852362TRUEVFRSPECI1054.02019-07-18 14:41:06 c89bcy¯ 3)s5    3LTAI 181420Z 19010KT 9999 FEW030 30/18 Q1005 NOSIG RMK RWY18C 18009KT 140V200 RWY36R 17009KT 140V200 RWY18L 19009KTLTAI2019-07-18T14:20:00Z36.930.830.018.0190106.2129.675198TRUEVFRSPECI54.02019-07-18 14:41:06Q¯ 2)#5    3LTAF 181420Z 06006KT 9999 SCT035 BKN100 26/22 Q1006 NOSIG RMK RWY23 09006KTLTAF2019-07-18T14:20:00Z36.9735.2826.022.06066.2129.704725TRUEVFRSPECI20.02019-07-18 14:41:06y¯ 1)q5    3LTAC 181420Z 05013KT 020V080 9999 SCT040 BKN100 22/11 Q1012 NOSIG RMK RWY21L 04014KT RWY03L 05014KT RWY21R 05014KTLTAC2019-07-18T14:20:00Z40.1232.9722.011.050136.2129.88189TRUEVFRSPECI949.02019-07-18 14:41:06B¯ 0) 5   3LTCJ 181420Z 26012KT 9999 FEW100 33/13 Q1004 RMK RWY20 25013KTLTCJ2019-07-18T14:20:00Z37.9341.1233.013.0260126.2129.64567VFRSPECI540.02019-07-18 14:41:06 hChhz¯ 7)s5    3LTBA 181420Z 03010KT 340V070 CAVOK 29/11 Q1011 NOSIG RMK RWY17L 04010KT 010V070 RWY05 36012KT RWY23 05010KT 020V110LTBA2019-07-18T14:20:00Z40.9728.8229.011.030106.2129.852362TRUEVFRSPECI37.02019-07-18 14:41:06U¯ 6)%5    3LTBJ 181420Z 36015KT 330V030 9999 FEW030 32/12 Q1007 NOSIG RMK RWY16 35014KTLTBJ2019-07-18T14:20:00Z38.2827.1532.012.0360156.2129.734253TRUEVFRSPECI120.02019-07-18 14:41:06R¯ 5))5   3LTAZ 181420Z 33008KT 9999 FEW030CB SCT035 BKN100 22/15 Q1011 RMK RWY29 35010KTLTAZ2019-07-18T14:20:00Z38.7734.5522.015.033086.2129.852362VFRSPECI945.02019-07-18 14:41:06_¯ 4)95    3LTAJ 181420Z 24014KT 9999 FEW040 SCT100 29/14 Q1007 NOSIG RMK RWY10 24010G23KT 210V280LTAJ2019-07-18T14:20:00Z36.9537.4829.014.0240146.2129.734253TRUEVFRSPECI855.02019-07-18 14:41:06 ¦'Wn¦B¯ ;) 5   3LTCS 181420Z 22014KT 9999 SCT040 29/11 Q1008 RMK RWY22 24014KTLTCS2019-07-18T14:20:00Z37.4538.929.011.0220146.2129.763779VFRMETAR825.02019-07-18 14:41:06c¯ :)Q5   3LTCG 181420Z 23008KT 9999 FEW020CB BKN035 24/20 Q1009 TEMPO TL1600 -TSRA RMK RWY29 24005KT 200V270LTCG2019-07-18T14:20:00Z41.039.824.020.023086.2129.793306VFRSPECI30.02019-07-18 14:41:06J¯ 9)5    3LTBS 181420Z 20011KT 9999 FEW030 27/21 Q1006 NOSIG RMK RWY19 18013KTLTBS2019-07-18T14:20:00Z36.728.7727.021.0200116.2129.704725TRUEVFRSPECI2.02019-07-18 14:41:06S¯ 8)#5    3LTBR 181420Z 36007KT 9999 SCT035 BKN100 25/16 Q1011 NOSIG RMK RWY07 35007KTLTBR2019-07-18T14:20:00Z40.2529.5725.016.036076.2129.852362TRUEVFRSPECI232.02019-07-18 14:41:06 m>mK¯ ?)5    3LTFE 181420Z 25012KT 9999 FEW035 33/14 Q1005 NOSIG RMK RWY10 24014KTLTFE2019-07-18T14:20:00Z37.2527.6733.014.0250126.2129.675198TRUEVFRSPECI6.02019-07-18 14:41:06Q¯ >)%5    3LTFJ 181420Z 03014KT 350V060 9999 SCT035 27/15 Q1011 NOSIG RMK RWY24 01011KTLTFJ2019-07-18T14:20:00Z40.929.327.015.030146.2129.852362TRUEVFRSPECI98.02019-07-18 14:41:06{¯ =)w5    3LTFM 181420Z 05011KT CAVOK 25/14 Q1012 NOSIG RMK RWY17L 03009KT 010V070 RWY34L 03010KT 350V060 RWY16R 03008KT 320V120LTFM2019-07-18T14:20:00Z41.2728.7525.014.050116.2129.88189TRUEVFRMETAR99.02019-07-18 14:41:06d¯ <)I5    3LCEN 181420Z 03011KT 350V050 9999 FEW025TCU SCT030 30/20 Q1006 NOSIG RMK RWY11 31009KT 270V350LCEN2019-07-18T14:20:00Z35.1333.530.020.030116.2129.704725TRUEVFRSPECI91.02019-07-18 14:41:06 #)t±ò#I¯ D)5   3ETHN 181420Z 27011KT 9999 FEW060 SCT140 25/07 Q1013 BLU+BLU+ BECMG BLUETHN2019-07-18T14:20:00Z49.389.9725.07.0270116.2129.911417VFRMETAR473.02019-07-18 14:41:069¯ C(w5    3LXGB 181420Z 06006KT 9999 7000E SKC 26/16 Q1013 NOSIGLXGB2019-07-18T14:20:00Z36.13-5.3326.016.06066.2129.911417TRUEVFRSPECI5.02019-07-18 14:41:06=¯ B)5   3OIII 181420Z 12006KT 9999 FEW045 SCT100 40/M00 Q1007 A2975OIII2019-07-18T14:20:00Z35.6851.340.00.012066.2129.734253VFRMETAR1191.02019-07-18 14:41:06/¯ A(e5   3OIYY 181420Z 32010KT 9999 FEW050 41/01 Q1006OIYY2019-07-18T14:20:00Z31.954.2841.01.0320106.2129.704725VFRMETAR1236.02019-07-18 14:41:06Q¯ @))5   3LTFC 181420Z 05005KT 360V100 9999 BKN035 25/14 Q1011 RMK RWY23 05004KT 360V090LTFC2019-07-18T14:20:00Z37.8730.3825.014.05056.2129.852362VFRSPECI864.02019-07-18 14:41:06 ¤/\v¤L¯ H)5   3KC99 181417Z AUTO 28010G20KT 10SM CLR 13/M06 A3049 RMK AO2KC992019-07-18T14:17:00Z29.87-105.5513.0-6.0280102010.030.490158TRUETRUEVFRMETAR3320.02019-07-18 14:41:06`¯ G)E5   3LTAP 181420Z 21004KT 9999 FEW032CB BKN040 18/12 Q1011 BECMG TL1450 02012KT RMK RWY23 22005KTLTAP2019-07-18T14:20:00Z40.8335.5218.012.021046.2129.852362VFRSPECI535.02019-07-18 14:41:06M¯ F)5    3LTAT 181420Z 25015KT 9999 SCT035 29/10 Q1006 NOSIG RMK RWY03 28011KTLTAT2019-07-18T14:20:00Z38.4238.0729.010.0250156.2129.704725TRUEVFRSPECI849.02019-07-18 14:41:06K¯ E)5   3LTBU 181420Z 03014KT 360V060 CAVOK 28/13 Q1012 RMK RWY22 06011KT 020V080LTBU2019-07-18T14:20:00Z41.1227.9228.013.030146.2129.88189VFRSPECI173.02019-07-18 14:41:06 *7€Âô*D¯ M(5     3LHDC 181415Z AUTO 25004KT 190V290 CAVOK 26/10 Q1013 NOSIGLHDC2019-07-18T14:15:00Z47.4721.6226.010.025046.2129.911417TRUETRUEVFRMETAR112.02019-07-18 14:41:06H¯ L)5    3LHPA 181415Z 00000KT 9999 SCT047TCU BKN200 27/12 Q1012 NOSIG RMK BLULHPA2019-07-18T14:15:00Z47.3517.527.012.0006.2129.88189TRUEVFRMETAR148.02019-07-18 14:41:068¯ K(y5   3LHPP 181415Z 14004KT 9999 FEW046TCU SCT200 26/15 Q1012LHPP2019-07-18T14:15:00Z45.9818.2326.015.014046.2129.88189VFRMETAR305.02019-07-18 14:41:061¯ J(i5   3LHPR 181415Z 15010KT 100V170 CAVOK 27/14 Q1012LHPR2019-07-18T14:15:00Z47.6317.8227.014.0150106.2129.88189VFRMETAR129.02019-07-18 14:41:06C¯ I(5     3LHSM 181415Z AUTO 23003KT 170V300 CAVOK 26/16 Q1012 NOSIGLHSM2019-07-18T14:15:00Z46.6817.1726.016.023036.2129.88189TRUETRUEVFRMETAR125.02019-07-18 14:41:06 13|Ç1]¯ R)35    3CWOE 181400Z AUTO 24012G20KT 20/05 RMK AO1 PK WND 24020/1357 SLP025 T02030047 56006CWOE2019-07-18T14:00:00Z49.12-110.4720.34.724012201002.5TRUETRUE-0.6METAR935.02019-07-18 14:41:06-¯ Q(o5  3CZPS 181400Z AUTO 27007KT 12/12 RMK AO1 T01240123CZPS2019-07-18T14:00:00Z52.43-113.612.412.32707TRUETRUEMETAR965.02019-07-18 14:41:06/¯ P(i5   3FQVL 181400Z 05006KT 010V100 CAVOK 25/15 Q1019FQVL2019-07-18T14:00:00Z-22.035.3225.015.05066.2130.088583VFRMETAR21.02019-07-18 14:41:061¯ O(e5    3HELX 181400Z 32008KT CAVOK 46/17 Q1003 NOSIGHELX2019-07-18T14:00:00Z25.6732.746.017.032086.2129.616142TRUEVFRMETAR88.02019-07-18 14:41:06G¯ N(5   3KBWD 181415Z AUTO 17013G17KT 10SM CLR 27/20 A3003 RMK AO1KBWD2019-07-18T14:15:00Z31.8-98.9527.020.0170131710.030.029528TRUETRUEVFRMETAR423.02019-07-18 14:41:06 *"Z—â*2¯ W(e5    3HESG 181400Z 35014KT CAVOK 43/14 Q1004 NOSIGHESG2019-07-18T14:00:00Z26.3331.7543.014.0350146.2129.64567TRUEVFRMETAR70.02019-07-18 14:41:06/¯ V(e5    3HEMA 181400Z 00000KT CAVOK 36/20 Q1004 NOSIGHEMA2019-07-18T14:00:00Z25.5534.5836.020.0006.2129.64567TRUEVFRMETAR77.02019-07-18 14:41:06=¯ U(u5     3GQNO 181400Z 29021KT 4500 BLDU NSC 27/21 Q1011 NOSIGGQNO2019-07-18T14:00:00Z18.3-15.9727.021.0290212.829.852362TRUEBLDUIFRMETAR4.02019-07-18 14:41:06B¯ T)5  3CXDB 181400Z AUTO 23013KT 16/05 RMK AO1 PK WND 24021/1358 T01590051CXDB2019-07-18T14:00:00Z49.05-112.8215.95.123013TRUETRUEMETAR1310.02019-07-18 14:41:06X¯ S)35    3CXRB 181400Z AUTO 04016G21KT 07/04 RMK AO1 PK WND 03023/1318 SLP032 T00710037 50003CXRB2019-07-18T14:00:00Z74.72-94.987.13.74016211003.2TRUETRUE0.3METAR68.02019-07-18 14:41:06 _JŒÓ_2¯ \(e5    3HEPS 181400Z 33012KT CAVOK 30/23 Q1008 NOSIGHEPS2019-07-18T14:00:00Z31.2832.2530.023.0330126.2129.763779TRUEVFRMETAR6.02019-07-18 14:41:066¯ [(k5    3HESH 181400Z 13006KT 8000 NSC 39/26 Q1003 NOSIGHESH2019-07-18T14:00:00Z27.9734.3839.026.013064.9729.616142TRUEMVFRMETAR50.02019-07-18 14:41:063¯ Z(e5    3HEAT 181400Z 34010KT CAVOK 41/19 Q1009 NOSIGHEAT2019-07-18T14:00:00Z27.0531.0241.019.0340106.2129.793306TRUEVFRMETAR70.02019-07-18 14:41:068¯ Y(q5    3HEBA 181400Z 35012KT 9999 FEW020 30/20 Q1009 NOSIGHEBA2019-07-18T14:00:00Z30.9229.730.020.0350126.2129.793306TRUEVFRMETAR54.02019-07-18 14:41:060¯ X(e5    3HEBL 181400Z 07004KT CAVOK 45/05 Q1004 NOSIGHEBL2019-07-18T14:00:00Z22.3831.6245.05.07046.2129.64567TRUEVFRMETAR188.02019-07-18 14:41:06 WEˆË W0¯ a(e5   3KASG 181448Z 20015KT 10SM FEW023 29/25 A3002KASG2019-07-18T14:48:00Z36.17-94.1229.025.02001510.030.02067VFRMETAR412.02019-07-18 14:51:078¯ `(q5    3HEMM 181400Z 34008KT 9999 SCT020 30/20 Q1011 NOSIGHEMM2019-07-18T14:00:00Z31.3227.2230.020.034086.2129.852362TRUEVFRMETAR30.02019-07-18 14:41:067¯ _(q5    3HEAX 181400Z 35009KT 9999 FEW020 30/20 Q1009 NOSIGHEAX2019-07-18T14:00:00Z31.1829.9330.020.035096.2129.793306TRUEVFRMETAR7.02019-07-18 14:41:067¯ ^(q5    3HESN 181400Z 21006KT 9999 FEW025 47/02 Q1004 NOSIGHESN2019-07-18T14:00:00Z23.9732.8247.02.021066.2129.64567TRUEVFRMETAR194.02019-07-18 14:41:065¯ ](k5    3HEGN 181400Z 34007KT 8000 NSC 42/14 Q1003 NOSIGHEGN2019-07-18T14:00:00Z27.1833.842.014.034074.9729.616142TRUEMVFRMETAR14.02019-07-18 14:41:06 >:k·ù>5¯ f(k5  3KADS 181447Z 21012G18KT 10SM SCT026 29/21 A3002KADS2019-07-18T14:47:00Z32.97-96.8229.021.0210121810.030.02067VFRMETAR196.02019-07-18 14:51:078¯ e(s5   3KGYR 181447Z 21006KT 10SM FEW150 SCT250 31/14 A2993KGYR2019-07-18T14:47:00Z33.42-112.3731.014.0210610.029.929134VFRMETAR295.02019-07-18 14:51:07.¯ d(e5   3KSAW 181447Z 24008KT 10SM SCT110 23/18 A2971KSAW2019-07-18T14:47:00Z46.35-87.423.018.0240810.029.71063VFRMETAR372.02019-07-18 14:51:07I¯ c) 5   3YLHI 181448Z AUTO 23015G25KT 9999 // SCT037 SCT070 17/11 Q1013YLHI2019-07-18T14:48:00Z-31.53159.0717.011.023015256.2129.911417TRUEVFRSPECI2.02019-07-18 14:51:07@¯ b)5    3YMAV 181448Z AUTO 28014KT 6000 // BKN021 OVC026 12/10 Q1016YMAV2019-07-18T14:48:00Z-38.03144.4812.010.0280143.7330.0TRUEMVFRSPECI8.02019-07-18 14:51:07 ‰OIn‰_¯ j)5    3PAPN 181447Z AUTO 28018G24KT 5SM BR OVC005 13/12 A2999 RMK AO2 PWINO $PAPN2019-07-18T14:47:00Z57.58-157.5713.012.028018245.029.991142TRUETRUETRUETRUEBRIFRSPECI18.02019-07-18 14:51:07U¯ i)!5     3KBTP 181447Z AUTO 26005KT 8SM OVC006 22/22 A3000 RMK AO2 CIG 003V009 P0001KBTP2019-07-18T14:47:00Z40.77-79.9522.022.026058.030.0TRUETRUEIFR0.01SPECI380.02019-07-18 14:51:07‚¯ h){5   3CYQT 181447Z VRB02KT 10SM FEW004 BKN006 BKN017 19/17 A2966 RMK ST2SC3SC1 VIS SW QUAD 2 1/2 BR SLP046 DENSITY ALT 1600FTCYQT2019-07-18T14:47:00Z48.37-89.3219.017.00210.029.6604331004.6IFRSPECI199.02019-07-18 14:51:07+¯ g(_5   3KEVB 181447Z 20004KT 10SM CLR 30/23 A3011KEVB2019-07-18T14:47:00Z29.05-80.9530.023.0200410.030.109253VFRMETAR3.02019-07-18 14:51:07 Æd¡ÆU¯ n)5    3CBBC 181446Z AUTO VRB04KT 9SM FEW014 SCT055 BKN071 14/12 A2992 RMK SLP133CBBC2019-07-18T14:46:00Z52.18-128.1514.012.0049.029.9202751013.3TRUEVFRSPECI43.02019-07-18 14:51:07=¯ m(}5    3KSUA 181447Z 00000KT 5SM -TSRA SCT015 BKN025 25/23 A3013KSUA2019-07-18T14:47:00Z27.18-80.2225.023.0005.030.129921-TSRAMVFRMETAR6.02019-07-18 14:51:07-¯ l(_5   3KGYH 181447Z 23007KT 10SM CLR 29/24 A3006KGYH2019-07-18T14:47:00Z34.75-82.3829.024.0230710.030.059055VFRMETAR292.02019-07-18 14:51:07c¯ k)/5      3PABA 181447Z AUTO 07009KT 10SM SCT006 OVC036 06/04 A2986 RMK AO2 RAE00 P0000 TSNOPABA2019-07-18T14:47:00Z70.13-143.586.04.070910.029.861221TRUETRUETRUEVFR0.005SPECI2.02019-07-18 14:51:07 R-@IRq¯ r)Q5    3KBOS 181446Z 06015G21KT 10SM BKN023 BKN030 OVC036 21/16 A2999 RMK AO2 RAE40 BINOVC P0000 T02060156KBOS2019-07-18T14:46:00Z42.37-71.0220.615.660152110.029.991142TRUEMVFR0.005SPECI6.02019-07-18 14:51:07q¯ q)U5  3CYVP 181446Z 27010G18KT 15SM SCT045 BKN058 BKN100 16/10 A2973 RMK SC4SC2AC1 SLP070 DENSITY ALT 500FTCYVP2019-07-18T14:46:00Z58.12-68.4216.010.0270101815.029.7312981007.0VFRSPECI60.02019-07-18 14:51:07g¯ p))5     3KDOV 181446Z AUTO 25007KT 10SM SCT023 BKN033 30/25 A2988 RMK AO2 SLP121 TSNO $KDOV2019-07-18T14:46:00Z39.12-75.4730.025.0250710.029.8789371012.1TRUETRUETRUETRUEVFRSPECI9.02019-07-18 14:51:07M¯ o) 5    3KCNB 181446Z AUTO 23005KT 10SM CLR 23/19 A2976 RMK AO2 T02310193KCNB2019-07-18T14:46:00Z44.73-96.2723.119.3230510.029.760826TRUETRUEVFRSPECI364.02019-07-18 14:51:07 ­%E_­,¯ v(_5   3KRYN 181445Z 00000KT 10SM CLR 28/16 A3004KRYN2019-07-18T14:45:00Z32.15-111.1728.016.00010.030.041338VFRMETAR737.02019-07-18 14:51:07`¯ u)%5   3KTRL 181446Z AUTO 18018G23KT 10SM BKN022 29/23 A3002 RMK AO2 T02940233 PNO $KTRL2019-07-18T14:46:00Z32.72-96.2729.423.3180182310.030.02067TRUETRUETRUEMVFRSPECI145.02019-07-18 14:51:07Z¯ t)#5    3KMLF 181446Z AUTO 20011KT 10SM CLR 23/01 A3012 RMK AO2 WSHFT 1432 T02330011KMLF2019-07-18T14:46:00Z38.42-113.0223.31.12001110.030.121063TRUETRUEVFRSPECI1534.02019-07-18 14:51:07U¯ s)%5    3KMGW 181446Z 22005KT 10SM BKN014 BKN023 OVC038 25/22 A3002 RMK AO2 T02500217KMGW2019-07-18T14:46:00Z39.65-79.9225.021.7220510.030.02067TRUEMVFRSPECI378.02019-07-18 14:51:07 9FÍ9H¯ {)5   3PAKU 181445Z 08010KT 10SM R06/P6000FT SCT007 BKN080 BKN110 06/05 A2984PAKU2019-07-18T14:45:00Z70.32-149.586.05.0801010.029.840551VFRMETAR2.02019-07-18 14:51:07@¯ z)5    3KMMU 181445Z 08003KT 7SM BR BKN006 BKN015 OVC036 25/25 A2992KMMU2019-07-18T14:45:00Z40.78-74.4225.025.08037.029.920275BRIFRMETAR57.02019-07-18 14:51:07.¯ y(_5   3KOUN 181445Z 18014KT 10SM CLR 29/21 A2994KOUN2019-07-18T14:45:00Z35.25-97.4729.021.01801410.029.940945VFRMETAR357.02019-07-18 14:51:07?¯ x)5   3KSCH 181445Z 03003KT 10SM BKN015 BKN038 OVC070 24/20 A2997KSCH2019-07-18T14:45:00Z42.85-73.9224.020.030310.029.970472MVFRMETAR115.02019-07-18 14:51:074¯ w(s5   3PALP 181445Z 07012KT 10SM SCT007 BKN120 06/04 A2983PALP2019-07-18T14:45:00Z70.33-150.936.04.0701210.029.828741VFRMETAR5.02019-07-18 14:51:07 É7|žÉO¯ )5    3KHBI 181445Z AUTO 22003KT 10SM BKN075 28/22 A3003 RMK AO2 T02820223KHBI2019-07-18T14:45:00Z35.65-79.928.222.3220310.030.029528TRUETRUEVFRSPECI205.02019-07-18 14:51:07X¯ ~)!5    3KIMT 181445Z AUTO 29003KT 10SM FEW007 BKN013 22/20 A2972 RMK AO2 T02220200KIMT2019-07-18T14:45:00Z45.82-88.1222.220.0290310.029.719488TRUETRUEMVFRSPECI349.02019-07-18 14:51:075¯ }(s5   3KATW 181445Z 00000KT 10SM FEW009 BKN100 23/22 A2977KATW2019-07-18T14:45:00Z44.27-88.5223.022.00010.029.769686VFRMETAR280.02019-07-18 14:51:07C¯ |(5    3KCGE 181445Z AUTO 23004KT 10SM FEW023 30/25 A2989 RMK A01KCGE2019-07-18T14:45:00Z38.53-76.0330.025.0230410.029.890747TRUETRUEVFRSPECI6.02019-07-18 14:51:07 ¥.o·¥‚ ¯¡)s5      3KPWK 181445Z 27008KT 3/4SM +TSRA BR FEW021 BKN026 OVC046 23/21 A2997 RMK AO2 LTG DSNT ALQDS TSB33 P0027 T02330211 $KPWK2019-07-18T14:45:00Z42.12-87.923.321.127080.7529.970472TRUETRUE+TSRA BRLIFR0.27SPECI203.02019-07-18 14:51:072¯¡(e5  3KBBG 181445Z 22010G18KT 10SM SKC 29/23 A3001KBBG2019-07-18T14:45:00Z36.53-93.229.023.0220101810.030.008858VFRMETAR397.02019-07-18 14:51:079¯¡(q5   3KVVV 181445Z AUTO 21004KT 10SM 24/19 A2971 RMK AO2KVVV2019-07-18T14:45:00Z45.3-96.4224.019.0210410.029.71063TRUETRUESPECI335.02019-07-18 14:51:07L¯¡) 5    3KGWW 181445Z AUTO 22009KT 10SM CLR 30/25 A2999 RMK AO2 T03010245KGWW2019-07-18T14:45:00Z35.47-77.9730.124.5220910.029.991142TRUETRUEVFRSPECI41.02019-07-18 14:51:07 ñ \F¯¡) 5    3KLEX 181445Z 25006KT 10SM OVC013 27/23 A3002 RMK AO2 T02720228KLEX2019-07-18T14:45:00Z38.03-84.627.222.8250610.030.02067TRUEMVFRSPECI300.02019-07-18 14:51:07+¯¡(_5   3KMER 181445Z 00000KT 10SM SKC 23/17 A2989KMER2019-07-18T14:45:00Z37.38-120.5723.017.00010.029.890747VFRMETAR57.02019-07-18 14:51:07^¯¡)/5    3KMGJ 181445Z AUTO 04007KT 10SM SCT008 BKN014 OVC029 23/22 A2993 RMK AO2 T02330222KMGJ2019-07-18T14:45:00Z41.52-74.2723.322.240710.029.929134TRUETRUEMVFRSPECI108.02019-07-18 14:51:07‚ ¯¡)s5      3KOVS 181445Z AUTO VRB03KT 4SM -TSRA BR FEW010 SCT038 BKN070 21/20 A2985 RMK AO2 LTG DSNT N TSE06B09 P0013 T02110200KOVS2019-07-18T14:45:00Z43.15-90.6821.120.0034.029.84941TRUETRUE-TSRA BRMVFR0.13SPECI202.02019-07-18 14:51:07 &I“܁?¯¡ )5    3PAEL 181445Z 00000KT 9SM -RA OVC012 13/12 A2970 RMK NOSPECIPAEL2019-07-18T14:45:00Z58.2-136.3513.012.0009.029.698818-RAMVFRSPECI3.02019-07-18 14:51:071¯¡ (i5    3KBAK 181445Z 20005KT 5SM BR OVC007 26/23 A2998KBAK2019-07-18T14:45:00Z39.27-85.926.023.020055.029.97933BRIFRMETAR200.02019-07-18 14:51:070¯¡ (e5   3KCGF 181445Z 28005KT 10SM BKN180 27/20 A2997KCGF2019-07-18T14:45:00Z41.57-81.4727.020.0280510.029.970472VFRMETAR268.02019-07-18 14:51:07W¯¡ )!5    3KDYL 181445Z AUTO 02004KT 10SM FEW008 OVC014 27/24 A2990 RMK AO2 T02720239KDYL2019-07-18T14:45:00Z40.33-75.1227.223.920410.029.899607TRUETRUEMVFRSPECI117.02019-07-18 14:51:07T¯¡)5    3KHWV 181445Z AUTO 16005KT 8SM BKN005 OVC012 25/23 A2993 RMK AO2 T02500233KHWV2019-07-18T14:45:00Z40.82-72.8725.023.316058.029.929134TRUETRUEIFRSPECI21.02019-07-18 14:51:07 ÇEIyǁ,¯¡(e5   3KMWA 181445Z 21010KT 20SM OVC250 26/23 A3000KMWA2019-07-18T14:45:00Z37.77-89.0226.023.02101020.030.0VFRMETAR144.02019-07-18 14:51:07J¯¡)5    3CWPF 181445Z AUTO 26010G15KT 15/10 RMK AO1 SLP154 T01460101 52010CWPF2019-07-18T14:45:00Z48.43-123.4314.610.126010151015.4TRUETRUE1.0METAR12.02019-07-18 14:51:07v¯¡)Q5     3KTCM 181445Z AUTO 17004KT 10SM -RA BKN007 OVC013 13/13 A3003 RMK AO2 RAB11E22DZB22E23RAB45 SLPNO $KTCM2019-07-18T14:45:00Z47.12-122.4713.013.0170410.030.029528TRUETRUETRUE-RAIFRSPECI98.02019-07-18 14:51:075¯¡ (i5    3KMWC 181445Z 16013KT 5SM RA OVC110 21/19 A2988KMWC2019-07-18T14:45:00Z43.12-88.0321.019.0160135.029.878937RAMVFRMETAR227.02019-07-18 14:51:07 @,c°ò@,¯¡(c5   3KEMT 181445Z 00000KT 8SM OVC015 20/16 A2998KEMT2019-07-18T14:45:00Z34.07-118.0220.016.0008.029.97933MVFRMETAR90.02019-07-18 14:51:078¯¡(w5    3KSWF 181445Z 05006KT 5SM BR BKN005 BKN040 24/24 A2994KSWF2019-07-18T14:45:00Z41.5-74.0824.024.05065.029.940945BRIFRMETAR150.02019-07-18 14:51:07-¯¡(_5   3KMHR 181445Z 21004KT 10SM SKC 20/14 A2987KMHR2019-07-18T14:45:00Z38.53-121.2820.014.0210410.029.870079VFRMETAR29.02019-07-18 14:51:07C¯¡(5    3KUES 181445Z 16008KT 5SM -RA BR SCT065 OVC085 21/20 A2990KUES2019-07-18T14:45:00Z43.05-88.2521.020.016085.029.899607-RA BRMVFRMETAR278.02019-07-18 14:51:07N¯¡)5    3K1A5 181445Z AUTO 00000KT 10SM OVC006 23/21 A3017 RMK AO2 T02300210K1A52019-07-18T14:45:00Z35.22-83.4223.021.00010.030.171259TRUETRUEIFRSPECI616.02019-07-18 14:51:07 0Jxc¯¡)95     3PAQT 181444Z AUTO 07009KT 10SM BKN009 BKN075 OVC120 06/04 A2984 RMK AO2 T00610044 TSNOPAQT2019-07-18T14:44:00Z70.22-151.06.14.470910.029.840551TRUETRUETRUEIFRSPECI12.02019-07-18 14:51:07L¯¡) 5    3KHEZ 181444Z AUTO 25007KT 10SM BKN018 BKN024 29/25 A3010 RMK AO2KHEZ2019-07-18T14:44:00Z31.62-91.329.025.0250710.030.100393TRUETRUEMVFRSPECI83.02019-07-18 14:51:07`¯¡)/5     3CYAT 181444Z AUTO 13007KT 9SM -RA OVC100 16/13 A2968 RMK SLP053 DENSITY ALT 400FTCYAT2019-07-18T14:44:00Z52.93-82.4316.013.013079.029.6811031005.3TRUE-RAVFRSPECI9.02019-07-18 14:51:07J¯¡)5     3PAKP 181444Z AUTO 06006KT 1/2SM FG OVC003 09/08 A2975 RMK AO2PAKP2019-07-18T14:44:00Z68.13-151.739.08.06060.529.749016TRUETRUEFGLIFRSPECI642.02019-07-18 14:51:07 _.M_h¯¡)?5    3KOWD 181444Z 05006G16KT 10SM BKN011 OVC021 20/16 A2999 RMK AO2 RAB1355E07 P0000 T02000161KOWD2019-07-18T14:44:00Z42.18-71.1720.016.15061610.029.991142TRUEMVFR0.005SPECI19.02019-07-18 14:51:07[¯¡)15     3KFPR 181444Z 00000KT 10SM VCTS CLR 29/24 A3012 RMK AO2 LTG DSNT SE AND S T02890239KFPR2019-07-18T14:44:00Z27.5-80.3828.923.90010.030.121063TRUEVCTSVFRSPECI13.02019-07-18 14:51:07_¯¡)/5    3KAUW 181444Z AUTO 21009KT 10SM FEW012 BKN022 OVC028 23/21 A2977 RMK AO2 T02280206KAUW2019-07-18T14:44:00Z44.93-89.6222.820.6210910.029.769686TRUETRUEMVFRSPECI362.02019-07-18 14:51:07g¯¡);5      3KDBQ 181444Z 12008KT 5SM RA BR SCT004 BKN035 OVC110 21/21 A2986 RMK AO2 P0008 T02110206KDBQ2019-07-18T14:44:00Z42.4-90.721.120.612085.029.861221TRUERA BRMVFR0.08SPECI326.02019-07-18 14:51:07 C#*5Cl¯¡!)M5   3CYXZ 181443Z 24004KT 170V280 12SM BKN021 OVC034 19/18 A2974 RMK SC6SC2 SLP074 DENSITY ALT 1900FTCYXZ2019-07-18T14:43:00Z47.97-84.7719.018.0240412.029.7401581007.4MVFRSPECI287.02019-07-18 14:51:07o¯¡ )G5      3PASI 181444Z 14003KT 4SM -RA BR SCT006 OVC010 13/13 A2973 RMK AO2 CIG 009V013 P0002 T01330128PASI2019-07-18T14:44:00Z57.07-135.3513.312.814034.029.731298TRUE-RA BRMVFR0.02SPECI5.02019-07-18 14:51:07s¯¡)]5   3MMPR 181444Z 00000KT 15SM FEW020 BKN090 BKN250 28/24 A2992 RMK SLP129 52011 955 8/138 DSNTS CB 3-4 QUADSMMPR2019-07-18T14:44:00Z20.67-105.2528.024.00015.029.9202751012.9VFR1.1SPECI6.02019-07-18 14:51:07W¯¡)!5    3KVSF 181444Z AUTO 16008KT 10SM BKN031 OVC050 24/16 A3001 RMK AO2 T02440156KVSF2019-07-18T14:44:00Z43.35-72.5224.415.6160810.030.008858TRUETRUEVFRSPECI175.02019-07-18 14:51:07 Ä0w”āJ¯¡%) 5    3K2W6 181443Z AUTO 21008KT 190V260 10SM CLR 30/23 A2992 RMK AO1K2W62019-07-18T14:43:00Z38.32-76.5530.023.0210810.029.920275TRUETRUEVFRSPECI44.02019-07-18 14:51:07]¯¡$)/5    3KCGS 181443Z AUTO 29008KT 10SM SCT032 SCT041 BKN050 30/22 A2989 RMK AO1 T03040219KCGS2019-07-18T14:43:00Z38.98-76.9230.421.9290810.029.890747TRUETRUEVFRSPECI15.02019-07-18 14:51:073¯¡#(s5     3SCTE 181443Z 01013KT 9999 SCT008 BKN046 Q1023 NOSIGSCTE2019-07-18T14:43:00Z-41.42-73.0710136.2130.206694TRUEVFRSPECI86.02019-07-18 14:51:07J¯¡") 5     3PADM 181443Z AUTO 24009KT 1 1/4SM BR OVC004 12/12 A3000 RMK AO2PADM2019-07-18T14:43:00Z61.87-162.0312.012.024091.2530.0TRUETRUEBRLIFRSPECI31.02019-07-18 14:51:07 k;[kkz¯¡))U5       3PAGY 181442Z AUTO 00000KT 1SM -RA BR BKN021 OVC080 13/12 A2967 RMK AO2 RAE09B29 P0000 T01280122 TSNOPAGY2019-07-18T14:42:00Z59.47-135.312.812.2001.029.66929TRUETRUETRUE-RA BRIFR0.005SPECI5.02019-07-18 14:51:07j¯¡()?5   3CYKL 181443Z AUTO 32017G22KT 300V360 9SM BKN026 13/08 A2981 RMK SLP108 DENSITY ALT 2000FTCYKL2019-07-18T14:43:00Z54.78-66.8213.08.032017229.029.8110241010.8TRUEMVFRSPECI521.02019-07-18 14:51:07Z¯¡')/5    3RJTL 181443Z 18008KT 9999 -SHRA SCT008 BKN020 25/24 Q1012 RMK 3ST008 7CU020 A2990RJTL2019-07-18T14:43:00Z35.78140.0225.024.018086.2129.88189-SHRAMVFRSPECI33.02019-07-18 14:51:07?¯¡&({5   3KHST 181443Z 12006KT 10SM SCT031 31/24 A3008 RMK SLP189KHST2019-07-18T14:43:00Z25.47-80.3731.024.0120610.030.0797251018.9VFRSPECI2.02019-07-18 14:51:07 o4[of¯¡-)/5    3KMUI 181442Z 00000KT 10SM SCT015 BKN028 BKN037 OVC047 27/23 A2991 RMK AO2A SLP128KMUI2019-07-18T14:42:00Z40.42-76.5727.023.00010.029.9114171012.8TRUEOVC4700MVFRSPECI149.02019-07-18 14:51:07S¯¡,)5    3KFME 181442Z AUTO 27006KT 10SM SCT024 BKN043 OVC050 27/24 A2992 RMK AO1KFME2019-07-18T14:42:00Z39.08-76.7727.024.0270610.029.920275TRUETRUEVFRSPECI46.02019-07-18 14:51:07X¯¡+))5     3RCKH 181442Z 06006KT 9999 -RA FEW012 BKN018 BKN040 28/27 Q0997 NOSIG RMK A2944RCKH2019-07-18T14:42:00Z22.57120.3328.027.06066.2129.438976TRUE-RAMVFRSPECI9.02019-07-18 14:51:07h¯¡*)C5     3KTRI 181442Z 27006KT 10SM SCT014 SCT020 OVC060 26/22 A3009 RMK AO2 RAB25E35 P0000 T02560217KTRI2019-07-18T14:42:00Z36.48-82.425.621.7270610.030.088583TRUEVFR0.005SPECI474.02019-07-18 14:51:07 M  =Mj¯¡1)K5   3CYXU 181442Z 14006KT 100V170 8SM SCT010 OVC018 25/22 A2996 RMK SF3SC5 SLP141 DENSITY ALT 2200FTCYXU2019-07-18T14:42:00Z43.02-81.1525.022.014068.029.9586621014.1MVFRSPECI278.02019-07-18 14:51:07]¯¡0)95     3KACK 181442Z 00000KT 1SM R24/P6000FT BR BKN005 23/22 A2994 RMK AO2 RAE17 T02330222 PNOKACK2019-07-18T14:42:00Z41.25-70.0723.322.2001.029.940945TRUEBRIFRSPECI16.02019-07-18 14:51:07z¯¡/)c5     3KCQX 181442Z AUTO 00000KT 10SM FEW005 BKN010 OVC040 24/23 A2995 RMK AO2 RAE1355 CIG 008V013 P0000 T02440228KCQX2019-07-18T14:42:00Z41.68-70.024.422.80010.029.949802TRUETRUEMVFR0.005SPECI19.02019-07-18 14:51:07Z¯¡.)5    3KGTB 181442Z AUTO 00000KT 10SM OVC070 25/19 A2996 RMK AO2 DZB28E42 SLP142KGTB2019-07-18T14:42:00Z44.07-75.7225.019.00010.029.9586621014.2TRUETRUEVFRSPECI207.02019-07-18 14:51:07 J$IJF¯¡5) 5    3KERI 181442Z 08003KT 10SM FEW012 27/21 A2995 RMK AO2 T02670211KERI2019-07-18T14:42:00Z42.08-80.1826.721.180310.029.949802TRUEVFRSPECI222.02019-07-18 14:51:07‚-¯¡4)‚C5      3KORD 181442Z 00000KT 2SM R10L/5500VP6000FT +TSRA BR FEW005 SCT035CB OVC070 22/22 A2995 RMK AO2 LTG DSNT ALQDS OCNL LTGICCG OHD TS OHD MOV E P0025 T02220217KORD2019-07-18T14:42:00Z41.98-87.9322.221.7002.029.949802TRUE+TSRA BRIFR0.25SPECI200.02019-07-18 14:51:07U¯¡3)5    3KOCH 181442Z AUTO 24006KT 10SM BKN016 BKN021 OVC026 27/24 A3008 RMK AO2KOCH2019-07-18T14:42:00Z31.57-94.7227.024.0240610.030.079725TRUETRUEMVFRMETAR108.02019-07-18 14:51:07V¯¡2)5    3PAMK 181442Z AUTO 28011KT 10SM SCT013 BKN023 OVC030 13/11 A2990 RMK AO2PAMK2019-07-18T14:42:00Z63.48-162.1213.011.02801110.029.899607TRUETRUEMVFRMETAR28.02019-07-18 14:51:07 6, .6r¯¡9)A5     3PAIW 181441Z AUTO 19019G24KT 1SM -RA BR OVC002 10/09 A2979 RMK AO2 PK WND 19027/1414 P0000PAIW2019-07-18T14:41:00Z65.62-168.110.09.019019241.029.790354TRUETRUE-RA BRLIFR0.005METAR7.02019-07-18 14:51:07X¯¡8)5     3KCWI 181441Z AUTO 11015KT 10SM FEW027 25/22 A2986 RMK AO2 RAE06 P0000KCWI2019-07-18T14:41:00Z41.82-90.3225.022.01101510.029.861221TRUETRUEVFR0.005METAR216.02019-07-18 14:51:07‚¯¡7)‚+5     3KRFD 181442Z 13008KT 10SM SCT006 SCT027 OVC060 23/22 A2990 RMK AO2 LTG DSNT NW-NE RAE27 TSE39 OCNL LTGIC DSNT N CB DSNT N MOV E P0007 T02280222KRFD2019-07-18T14:42:00Z42.2-89.122.822.2130810.029.899607TRUEVFR0.07SPECI221.02019-07-18 14:51:07N¯¡6) 5    3KEIK 181442Z AUTO 20005KT 10SM CLR 27/02 A3006 RMK AO2 T02700024KEIK2019-07-18T14:42:00Z40.02-105.0527.02.4200510.030.059055TRUETRUEVFRMETAR1564.02019-07-18 14:51:07 œGcœA¯¡=) 5    3KSDF 181441Z VRB03KT 10SM BKN015 27/22 A3000 RMK AO2 T02670217KSDF2019-07-18T14:41:00Z38.18-85.7326.721.70310.030.0TRUEMVFRMETAR146.02019-07-18 14:51:07^¯¡<)/5    3KUUU 181441Z AUTO 34005KT 10SM FEW009 BKN021 OVC026 25/23 A2995 RMK AO2 T02500228KUUU2019-07-18T14:41:00Z41.53-71.2825.022.8340510.029.949802TRUETRUEMVFRMETAR51.02019-07-18 14:51:07H¯¡;)5    3MSLP 181441Z 11003KT 050V150 9999 FEW023 SCT073 30/24 Q1012 NOSIGMSLP2019-07-18T14:41:00Z13.43-89.0530.024.011036.2129.88189TRUEVFRSPECI25.02019-07-18 14:51:07e¯¡:)-5      3PAWN 181441Z AUTO 21004KT 10SM -RA BKN016 OVC026 10/09 A2977 RMK AO2 RAB28 P0000PAWN2019-07-18T14:41:00Z67.57-162.9810.09.0210410.029.769686TRUETRUE-RAMVFR0.005METAR30.02019-07-18 14:51:07Y8¥8@HPX`hpx€ˆ˜ ¨°¸ÀÈÐØàèðø (08@HPX`hpx€ˆ˜ ¨°¸ÀÈÐØàèðø (08@HPX`hpx€ˆ˜ ¨°¸ÀÈÐØàèðø ¨°¸ÀÈÐØàèðøK¯ #L¯ 'M¯ +N¯ /O¯ 3P¯ 7Q¯ ;R¯ ?S¯ DT¯ HU¯ MV¯ RK¯ #L¯ 'M¯ +N¯ /O¯ 3P¯ 7Q¯ ;R¯ ?S¯ DT¯ HU¯ MV¯ RW¯ WX¯ \Y¯ aZ¯ f[¯ j\¯ n]¯ r^¯ v_¯ {`¯ a¯¡b¯¡c¯¡ d¯¡e¯¡f¯¡g¯¡h¯¡!i¯¡%j¯¡)k¯¡-l¯¡1m¯¡5n¯¡9o¯¡=q¯¡Ar¯¡Es¯¡It¯¡Mu¯¡Qv¯¡Uw¯¡Yx¯¡]y¯¡az¯¡e{¯¡i|¯¡m}¯¡q~¯¡u¯¡y€¯¡}¯¢‚¯¢ƒ¯¢ „¯¢ …¯¢†¯¢‡¯¢ˆ¯¢‰¯¢!Š¯¢%‹¯¢)Œ¯¢-¯¢1Ž¯¢5¯¢9¯¢=‘¯¢A’¯¢E“¯¢I”¯¢M•¯¢Q–¯¢U—¯¢Y˜¯¢]™¯¢aš¯¢e›¯¢iœ¯¢m¯¢qž¯¢uŸ¯¢y ¯¢}¡¯£¢¯££¯£ ¤¯£ xCxE¯¡A(5    3KVWU 181440Z AUTO 20004KT 10SM SCT013 21/19 A2963 RMK AO2KVWU2019-07-18T14:40:00Z48.15-94.5221.019.0200410.029.630905TRUETRUEVFRSPECI360.02019-07-18 14:51:07P¯¡@)5    3KBRD 181441Z AUTO 25006KT 10SM BKN014 25/21 A2968 RMK AO2 T02500206KBRD2019-07-18T14:41:00Z46.4-94.1325.020.6250610.029.681103TRUETRUEMVFRMETAR372.02019-07-18 14:51:07}¯¡?)a5      3KENW 181441Z 13012KT 4SM -RA BR SCT047 BKN075 OVC110 23/23 A2992 RMK AO2 LTG DSNT S AND SW P0021 T02280228KENW2019-07-18T14:41:00Z42.6-87.9322.822.8130124.029.920275TRUE-RA BRMVFR0.21METAR219.02019-07-18 14:51:07^¯¡>)/5    3KPIR 181441Z AUTO 08009KT 10SM FEW009 SCT014 BKN070 23/21 A2970 RMK AO2 T02280206KPIR2019-07-18T14:41:00Z44.38-100.2822.820.680910.029.698818TRUETRUEVFRMETAR526.02019-07-18 14:51:07 ØB{±ØS¯¡E)5    3KFFA 181440Z AUTO 22006KT 190V250 10SM CLR 31/25 A2996 RMK AO2 T03060252KFFA2019-07-18T14:40:00Z36.02-75.6730.625.2220610.029.958662TRUETRUEVFRSPECI4.02019-07-18 14:51:07D¯¡D(5    3KUKT 181440Z AUTO 00000KT 10SM OVC011 26/24 A2992 RMK A01KUKT2019-07-18T14:40:00Z40.43-75.3826.024.00010.029.920275TRUETRUEMVFRMETAR160.02019-07-18 14:51:07A¯¡C(5    3KCVH 181440Z AUTO 00000KT 10SM OVC005 13/12 A2998 RMK A01KCVH2019-07-18T14:40:00Z36.9-121.4213.012.00010.029.97933TRUETRUEIFRMETAR70.02019-07-18 14:51:078¯¡B(o5   3KMCC 181440Z AUTO 18007KT 8SM 21/13 A2989 RMK AO2KMCC2019-07-18T14:40:00Z38.67-121.421.013.018078.029.890747TRUETRUEMETAR23.02019-07-18 14:51:07 Å9rŸÅT¯¡I)!5    3KMQI 181440Z AUTO 24013KT 10SM SCT021 SCT028 31/26 A2998 RMK AO2 T03070255KMQI2019-07-18T14:40:00Z35.92-75.730.725.52401310.029.97933TRUETRUEVFRSPECI4.02019-07-18 14:51:07M¯¡H) 5    3KMWK 181440Z AUTO 25005KT 10SM CLR 29/23 A3005 RMK AO2 T02900233KMWK2019-07-18T14:40:00Z36.47-80.5529.023.3250510.030.050198TRUETRUEVFRSPECI380.02019-07-18 14:51:07A¯¡G)5    3KONX 181440Z AUTO 10SM SCT016 30/26 A2997 RMK AO2 T02950260KONX2019-07-18T14:40:00Z36.4-76.0229.526.010.029.970472TRUETRUEVFRSPECI5.02019-07-18 14:51:07A¯¡F(5    3KDMW 181440Z AUTO 00000KT 10SM OVC050 28/24 A2992 RMK AO2KDMW2019-07-18T14:40:00Z39.6-77.028.024.00010.029.920275TRUETRUEVFRSPECI241.02019-07-18 14:51:07 Å;hŒÅA¯¡M(y5    3KW29 181440Z AUTO 26005KT 10SM CLR 29/25 A2989 RMK AO2KW292019-07-18T14:40:00Z38.98-76.3329.025.0260510.029.890747TRUETRUEVFRSPECI15.02019-07-18 14:51:07V¯¡L)!5    3KRUQ 181440Z AUTO 27004KT 10SM SCT075 SCT085 28/22 A3002 RMK AO2 T02820221KRUQ2019-07-18T14:40:00Z35.65-80.5228.222.1270410.030.02067TRUETRUEVFRSPECI236.02019-07-18 14:51:07M¯¡K) 5    3KRCZ 181440Z AUTO 24005KT 10SM CLR 30/19 A3001 RMK AO2 T02960193KRCZ2019-07-18T14:40:00Z34.88-79.7729.619.3240510.030.008858TRUETRUEVFRSPECI109.02019-07-18 14:51:07?¯¡J(w5    3KLHZ 181440Z AUTO 22007KT 7SM CLR 29/23 A3002 RMK AO2KLHZ2019-07-18T14:40:00Z36.02-78.3329.023.022077.030.02067TRUETRUEVFRSPECI113.02019-07-18 14:51:07 ‰*D~‰o¯¡Q)A5      3KARR 181440Z 13005KT 1SM -TSRA BR BKN004 BKN027 OVC060 22/22 A2992 RMK AO2 P0009 T02220217KARR2019-07-18T14:40:00Z41.77-88.4822.221.713051.029.920275TRUE-TSRA BRLIFR0.09METAR215.02019-07-18 14:51:07@¯¡P(5    3KEDJ 181440Z AUTO 20004KT 10SM FEW016 27/24 A3000 RMK AO1KEDJ2019-07-18T14:40:00Z40.37-83.8227.024.0200410.030.0TRUETRUEVFRSPECI342.02019-07-18 14:51:07`¯¡O)=5   3CYWL 181440Z VRB02KT 15SM BKN057 OVC100 08/06 A2983 RMK ST7AC1 SLP111 DENSITY ALT 3100FTCYWL2019-07-18T14:40:00Z52.18-122.078.06.00215.029.8287411011.1VFRSPECI940.02019-07-18 14:51:07P¯¡N)5    3KVUJ 181440Z AUTO 23004KT 10SM SCT070 30/22 A3005 RMK AO2 T03010222KVUJ2019-07-18T14:40:00Z35.42-80.1530.122.2230410.030.050198TRUETRUEVFRSPECI186.02019-07-18 14:51:07 o 6KoV¯¡U)!5    3KLFK 181440Z AUTO 17005KT 10SM SCT012 SCT023 28/24 A3006 RMK AO2 T02780239KLFK2019-07-18T14:40:00Z31.23-94.7527.823.9170510.030.059055TRUETRUEVFRMETAR88.02019-07-18 14:51:07e¯¡T)75      3KAVP 181440Z 00000KT 2 1/2SM -RA BR SCT008 OVC019 24/23 A2993 RMK AO2 P0004 T02390228KAVP2019-07-18T14:40:00Z41.33-75.7223.922.8002.529.929134TRUE-RA BRIFR0.04METAR291.02019-07-18 14:51:07O¯¡S)5    3KBML 181440Z AUTO VRB03KT 10SM BKN023 22/15 A3004 RMK AO2 T02170150KBML2019-07-18T14:40:00Z44.58-71.1821.715.00310.030.041338TRUETRUEMVFRMETAR345.02019-07-18 14:51:07o¯¡R)O5     3KACV 181440Z AUTO 32004KT 1 3/4SM R32/3500VP6000FT BR BKN003 OVC009 16/16 A2998 RMK AO2 T01610156KACV2019-07-18T14:40:00Z40.98-124.116.115.632041.7529.97933TRUETRUEBRLIFRMETAR67.02019-07-18 14:51:07 Š#8uŠe¯¡Y)95    3CYRV 181440Z AUTO 14004KT 130V200 9SM OVC065 12/11 A2976 RMK SLP083 DENSITY ALT 1600FTCYRV2019-07-18T14:40:00Z50.97-118.1712.011.014049.029.7608261008.3TRUEVFRSPECI443.02019-07-18 14:51:07=¯¡X(y5    3KMHV 181440Z AUTO 21009KT 10SM CLR 24/08 A3000 RMK A01KMHV2019-07-18T14:40:00Z35.07-118.1524.08.0210910.030.0TRUETRUEVFRMETAR849.02019-07-18 14:51:07e¯¡W)95     3KEKN 181440Z AUTO 00000KT 10SM FEW020 SCT027 BKN042 25/20 A3005 RMK AO2 T02500200 TSNOKEKN2019-07-18T14:40:00Z38.88-79.8525.020.00010.030.050198TRUETRUETRUEVFRMETAR603.02019-07-18 14:51:07W¯¡V)!5    3KISW 181440Z AUTO 18007KT 10SM FEW009 FEW014 23/20 A2980 RMK AO2 T02280200KISW2019-07-18T14:40:00Z44.37-89.8322.820.0180710.029.799213TRUETRUEVFRMETAR307.02019-07-18 14:51:07 N%&NA¯¡](y5    3KMVH 181440Z AUTO VRB03KT 10SM CLR 18/10 A2985 RMK AO2KMVH2019-07-18T14:40:00Z46.83-108.9318.010.00310.029.84941TRUETRUEVFRMETAR1355.02019-07-18 14:51:07‚ ¯¡\)w5     3KMSN 181440Z 19013G28KT 10SM -RA BKN009 OVC110 22/21 A2985 RMK AO2 PK WND 16031/1401 LTG DSNT SE-SW P0004 T02220206 $KMSN2019-07-18T14:40:00Z43.13-89.3522.220.6190132810.029.84941TRUETRUE-RAIFR0.04METAR261.02019-07-18 14:51:07y¯¡[)S5      3KRAC 181440Z AUTO 14008KT 3SM RA BR FEW055 BKN075 OVC110 23/21 A2993 RMK AO2 PRESFR P0015 T02280211KRAC2019-07-18T14:40:00Z42.77-87.8222.821.114083.029.929134TRUETRUERA BRMVFR0.15METAR203.02019-07-18 14:51:07U¯¡Z)%5    3KVCT 181440Z 15014KT 10SM SCT024 BKN029 BKN035 32/24 A3002 RMK AO2 T03170239KVCT2019-07-18T14:40:00Z28.87-96.9331.723.91501410.030.02067TRUEMVFRMETAR31.02019-07-18 14:51:07 ¦Ry¦M¯¡a) 5    3KJYM 181440Z AUTO 18004KT 10SM CLR 26/23 A2994 RMK AO2 T02620225KJYM2019-07-18T14:40:00Z41.92-84.5826.222.5180410.029.940945TRUETRUEVFRMETAR360.02019-07-18 14:51:07S¯¡`) 5   3KPRX 181440Z AUTO 20014G20KT 10SM BKN021 28/23 A3003 RMK AO2 $KPRX2019-07-18T14:40:00Z33.62-95.4528.023.0200142010.030.029528TRUETRUETRUEMVFRMETAR167.02019-07-18 14:51:07D¯¡_(5    3PACM 181440Z AUTO 15004KT 10SM OVC015 11/09 A2997 RMK AO2PACM2019-07-18T14:40:00Z61.85-165.5711.09.0150410.029.970472TRUETRUEMVFRMETAR4.02019-07-18 14:51:07^¯¡^)%5     3PAAK 181440Z AUTO 00000KT 4SM -RA BR SCT005 OVC011 09/08 A3039 RMK AO2 PNO $PAAK2019-07-18T14:40:00Z52.22-174.29.08.0004.030.389763TRUETRUETRUE-RA BRMVFRMETAR17.02019-07-18 14:51:07 Ð.[ƒÐ-¯¡e(o5  3CWZQ 181440Z AUTO 32012KT 18/13 RMK AO1 T01820129CWZQ2019-07-18T14:40:00Z46.53-61.0518.212.932012TRUETRUEMETAR17.02019-07-18 14:51:07R¯¡d)5    3PFSH 181440Z AUTO 27014KT 8SM FEW007 BKN017 OVC022 14/12 A2985 RMK AO2PFSH2019-07-18T14:40:00Z64.37-161.2214.012.0270148.029.84941TRUETRUEMVFRMETAR7.02019-07-18 14:51:07M¯¡c) 5     3KHAF 181440Z AUTO 15007KT 1 1/2SM BR OVC003 13/13 A2997 RMK AO2KHAF2019-07-18T14:40:00Z37.52-122.513.013.015071.529.970472TRUETRUEBRLIFRMETAR21.02019-07-18 14:51:07L¯¡b)5    3KJES 181440Z AUTO 00000KT 10SM CLR 32/23 A3008 RMK AO2 LTG DSNT SWKJES2019-07-18T14:40:00Z31.55-81.8832.023.00010.030.079725TRUETRUEVFRMETAR33.02019-07-18 14:51:07 |#9q|o¯¡i)I5    3CYQH 181440Z 25004KT 25SM -SHRA BKN060 OVC090 13/12 A2968 RMK SC6AC2 SLP057 DENSITY ALT 2900FTCYQH2019-07-18T14:40:00Z60.12-128.8213.012.0250425.029.6811031005.7-SHRAVFRSPECI690.02019-07-18 14:51:07B¯¡h(y5    3KBBB 181440Z AUTO 21007KT 10SM CLR 26/20 A2970 RMK AO2KBBB2019-07-18T14:40:00Z45.32-95.6526.020.0210710.029.698818TRUETRUEVFRSPECI317.02019-07-18 14:51:07d¯¡g)/5    3KHOP 181440Z AUTO 26003KT 10SM BKN010 25/24 A3003 RMK AO2 DZB13E22DZB28E40 SLP166KHOP2019-07-18T14:40:00Z36.67-87.525.024.0260310.030.0295281016.6TRUETRUEMVFRSPECI174.02019-07-18 14:51:07W¯¡f)!5    3KISQ 181440Z AUTO 19007KT 10SM BKN008 OVC014 20/19 A2976 RMK AO2 T02000189KISQ2019-07-18T14:40:00Z45.97-86.1720.018.9190710.029.760826TRUETRUEIFRSPECI209.02019-07-18 14:51:07 =P†c¯¡m)55   3KERY 181439Z AUTO 19011G16KT 10SM SCT017 BKN055 OVC065 22/20 A2979 RMK AO2 T02210196KERY2019-07-18T14:39:00Z46.3-85.4522.119.6190111610.029.790354TRUETRUEVFRSPECI265.02019-07-18 14:51:07D¯¡l(y5    3KSTK 181440Z AUTO 20005KT 10SM CLR 23/15 A2992 RMK AO2KSTK2019-07-18T14:40:00Z40.62-103.2723.015.0200510.029.920275TRUETRUEVFRSPECI1231.02019-07-18 14:51:07g¯¡k)A5    3CYEG 181440Z 31006KT 6SM BR BKN004 OVC008 13/12 A2954 RMK SF6SC2 SLP009 DENSITY ALT 3100FTCYEG2019-07-18T14:40:00Z53.28-113.5713.012.031066.029.539371000.9BRLIFRSPECI723.02019-07-18 14:51:07=¯¡j(}5    3PKWA 181440Z AUTO 10SM CLR 28/23 A2982 RMK AO2 T02770232PKWA2019-07-18T14:40:00Z8.72167.7227.723.210.029.819881TRUETRUEVFRSPECI8.02019-07-18 14:51:07 eù08eM¯¡q) 5    3KVLL 181439Z AUTO 20005KT 10SM CLR 28/15 A2995 RMK AO2 T02780146KVLL2019-07-18T14:39:00Z42.55-83.1827.814.6200510.029.949802TRUETRUEVFRSPECI222.02019-07-18 14:51:07r¯¡p)K5      3KWST 181439Z AUTO 14004KT 1 1/4SM BR BKN001 OVC005 23/23 A2995 RMK AO2 RAB00E24 P0000 T02280228KWST2019-07-18T14:39:00Z41.35-71.822.822.814041.2529.949802TRUETRUEBRLIFR0.005METAR21.02019-07-18 14:51:07C¯¡o(5    3KPIB 181439Z AUTO 00000KT 10SM BKN015 29/26 A3010 RMK AO2KPIB2019-07-18T14:39:00Z31.47-89.3229.026.00010.030.100393TRUETRUEMVFRMETAR91.02019-07-18 14:51:07‚¯¡n)m5   3CYCP 181439Z VRB02KT 15SM FEW006 SCT040 BKN065TCU BKN140 11/09 A2978 RMK SF1SC2TCU3AC1 SLP093 DENSITY ALT 2500FTCYCP2019-07-18T14:39:00Z52.13-119.2811.09.00215.029.7785431009.3BKN14000VFRSPECI683.02019-07-18 14:51:07 X+XM¯¡u)5   3KDZB 181439Z AUTO 17014G21KT 10SM BKN023 28/21 A3005 RMK AO2KDZB2019-07-18T14:39:00Z30.53-98.3728.021.0170142110.030.050198TRUETRUEMVFRMETAR334.02019-07-18 14:51:07c¯¡t)/5    3EHVL 181439Z AUTO 24018KT 9000 DZRA SCT008 BKN009 BKN011 FEW015CB 18/16 Q1010 GRNEHVL2019-07-18T14:39:00Z53.234.9218.016.0240185.5929.822834TRUEDZ RAFEW1500IFRSPECI5.02019-07-18 14:51:07f¯¡s)95    3KTDR 181439Z AUTO 25004KT 10SM BKN021 32/25 A3009 RMK AO2 LTG DSNT S BKN V SCT SLPNO $KTDR2019-07-18T14:39:00Z30.05-85.5232.025.0250410.030.088583TRUETRUETRUEMVFRMETAR5.02019-07-18 14:51:07z¯¡r)U5      3PHTO 181439Z AUTO 23004KT 10SM SCT027 SCT035 BKN042 22/17 A3003 RMK AO2 RAE1356 P0000 T02220172 TSNOPHTO2019-07-18T14:39:00Z19.72-155.0522.217.2230410.030.029528TRUETRUETRUEVFR0.005METAR12.02019-07-18 14:51:07 «Hlƒ«R¯¡y)5    3KEEN 181439Z AUTO 05009KT 10SM FEW028 BKN060 23/16 A3001 RMK AO2 $KEEN2019-07-18T14:39:00Z42.88-72.2723.016.050910.030.008858TRUETRUETRUEVFRMETAR149.02019-07-18 14:51:07c¯¡x)55     3KFKS 181439Z AUTO 19004KT 7SM -RA BKN013 BKN043 OVC060 24/21 A2982 RMK AO2 T02400208KFKS2019-07-18T14:39:00Z44.63-86.224.020.819047.029.819881TRUETRUE-RAMVFRMETAR193.02019-07-18 14:51:07V¯¡w)!5    3KGFL 181439Z AUTO 02005KT 10SM SCT026 OVC036 24/18 A2997 RMK AO2 T02440178KGFL2019-07-18T14:39:00Z43.33-73.6224.417.820510.029.970472TRUETRUEVFRMETAR103.02019-07-18 14:51:072¯¡v(s5   3CYUA 181439Z AUTO 30008KT ////SM OVC004 09/09 A2982CYUA2019-07-18T14:39:00Z68.95-137.289.09.0300829.819881TRUESPECI38.02019-07-18 14:51:07 £-Yv£M¯¡}) 5    3KOEB 181439Z AUTO 19003KT 10SM CLR 26/24 A2993 RMK AO2 T02640240KOEB2019-07-18T14:39:00Z41.92-85.0326.424.0190310.029.929134TRUETRUEVFRMETAR292.02019-07-18 14:51:07]¯¡|)'5      3PAWG 181439Z 00000KT 10SM -RA FEW009 OVC016 13/12 A2977 RMK AO2 RAB1359 P0000PAWG2019-07-18T14:39:00Z56.48-132.3713.012.00010.029.769686TRUE-RAMVFR0.005METAR11.02019-07-18 14:51:07N¯¡{) 5    3KACQ 181439Z AUTO 19006KT 10SM SCT010 OVC017 23/21 A2974 RMK AO2KACQ2019-07-18T14:39:00Z44.07-93.5523.021.0190610.029.740158TRUETRUEMVFRMETAR343.02019-07-18 14:51:07M¯¡z) 5    3KCDA 181439Z AUTO 16004KT 10SM CLR 22/16 A3005 RMK AO2 T02180157KCDA2019-07-18T14:39:00Z44.57-72.0221.815.7160410.030.050198TRUETRUEVFRMETAR363.02019-07-18 14:51:07 ®?x®D¯¢(5    3KMZH 181438Z AUTO 18003KT 10SM SCT006 23/21 A2966 RMK AO2KMZH2019-07-18T14:38:00Z46.42-92.823.021.0180310.029.660433TRUETRUEVFRMETAR328.02019-07-18 14:51:07A¯¢(y5    3KLJF 181438Z AUTO 18003KT 10SM CLR 29/23 A2970 RMK AO2KLJF2019-07-18T14:38:00Z45.1-94.5229.023.0180310.029.698818TRUETRUEVFRMETAR348.02019-07-18 14:51:07K¯¡) 5    3KPEX 181438Z AUTO 00000KT 10SM CLR 25/22 A2970 RMK AO2 T02480218KPEX2019-07-18T14:38:00Z45.37-94.7324.821.80010.029.698818TRUETRUEVFRMETAR360.02019-07-18 14:51:07j¯¡~)?5   3KFKA 181438Z AUTO 16013G21KT 10SM BKN025 BKN030 22/19 A2976 RMK AO2 LTG DSNT SW T02190191KFKA2019-07-18T14:38:00Z43.68-92.1721.919.1160132110.029.760826TRUETRUEMVFRSPECI389.02019-07-18 14:51:07 ™.Su™V¯¢)!5    3KROS 181438Z AUTO 15005KT 10SM SCT009 SCT043 24/21 A2970 RMK AO2 T02380206KROS2019-07-18T14:38:00Z45.7-92.9523.820.6150510.029.698818TRUETRUEVFRMETAR281.02019-07-18 14:51:07X¯¢)5     3KROX 181438Z AUTO 21007KT 10SM CLR 19/16 A2959 RMK AO2 LTG DSNT NE P0001KROX2019-07-18T14:38:00Z48.85-95.719.016.0210710.029.589567TRUETRUEVFR0.01METAR323.02019-07-18 14:51:07U¯¢)5   3KSJX 181438Z AUTO 21012G16KT 10SM OVC070 23/19 A2980 RMK AO2 T02260190KSJX2019-07-18T14:38:00Z45.7-85.5722.619.0210121610.029.799213TRUETRUEVFRMETAR204.02019-07-18 14:51:07L¯¢) 5    3KIRS 181438Z AUTO 22005KT 10SM CLR 27/25 A2993 RMK AO2 T02700248KIRS2019-07-18T14:38:00Z41.8-85.4327.024.8220510.029.929134TRUETRUEVFRMETAR282.02019-07-18 14:51:07 ²/]•²]¯¢ )'5    3CWHN 181438Z AUTO 05004KT 360V080 9SM BKN003 BKN036 OVC045 OVC097 16/16 A2948CWHN2019-07-18T14:38:00Z54.88-109.9716.016.05049.029.480314TRUEOVC9700LIFRSPECI636.02019-07-18 14:51:07B¯¢(y5    3KJKJ 181438Z AUTO 21004KT 10SM CLR 22/17 A2966 RMK AO2KJKJ2019-07-18T14:38:00Z46.83-96.6722.017.0210410.029.660433TRUETRUEVFRMETAR280.02019-07-18 14:51:07L¯¢) 5    3KPZQ 181438Z AUTO 20011KT 10SM CLR 27/19 A2985 RMK AO2 T02650190KPZQ2019-07-18T14:38:00Z45.4-83.8226.519.02001110.029.84941TRUETRUEVFRMETAR204.02019-07-18 14:51:07K¯¢) 5    3KRGK 181438Z AUTO 00000KT 10SM BKN036 OVC042 23/19 A2973 RMK AO2KRGK2019-07-18T14:38:00Z44.58-92.4823.019.00010.029.731298TRUETRUEVFRMETAR239.02019-07-18 14:51:07 ¯/_‚¯M¯¢ ) 5    3KFPK 181438Z AUTO 19006KT 10SM CLR 26/23 A2992 RMK AO2 T02630227KFPK2019-07-18T14:38:00Z42.57-84.8226.322.7190610.029.920275TRUETRUEVFRMETAR272.02019-07-18 14:51:07W¯¢ )!5    3KY70 181438Z AUTO 19007KT 10SM BKN090 BKN120 27/21 A2991 RMK AO2 T02650208KY702019-07-18T14:38:00Z42.93-85.0726.520.8190710.029.911417TRUETRUEVFRMETAR250.02019-07-18 14:51:07J¯¢ ) 5    3K7N0 181438Z AUTO 00000KT 10SM BKN023 BKN029 31/25 A3009 RMK AO2K7N02019-07-18T14:38:00Z29.95-90.0731.025.00010.030.088583TRUETRUEMVFRMETAR0.02019-07-18 14:51:07K¯¢ )5    3KNLC 181438Z 00000KT 10SM SCT230 23/10 A2989 RMK AO2 RH/44 T02280100KNLC2019-07-18T14:38:00Z36.32-119.9522.810.00010.029.890747TRUEVFRSPECI72.02019-07-18 14:51:07 ´8Uy´?¯¢(y5    3KDXX 181438Z AUTO 00000KT 10SM CLR 26/20 A2971 RMK AO2KDXX2019-07-18T14:38:00Z44.98-96.1826.020.00010.029.71063TRUETRUEVFRMETAR330.02019-07-18 14:51:07V¯¢)%5    3KIAG 181438Z 17006KT 10SM BKN015 BKN023 BKN031 25/21 A2994 RMK AO2 T02500206KIAG2019-07-18T14:38:00Z43.12-78.9325.020.6170610.029.940945TRUEMVFRMETAR182.02019-07-18 14:51:07]¯¢)/5    3KDRM 181438Z AUTO 15006KT 10SM SCT039 SCT065 BKN075 22/16 A2984 RMK AO2 T02150157KDRM2019-07-18T14:38:00Z46.0-83.7521.515.7150610.029.840551TRUETRUEVFRMETAR204.02019-07-18 14:51:07B¯¢(y5    3KFOZ 181438Z AUTO 23010KT 10SM CLR 20/19 A2971 RMK AO2KFOZ2019-07-18T14:38:00Z47.77-93.6520.019.02301010.029.71063TRUETRUEVFRMETAR411.02019-07-18 14:51:07 øHC¯¢)5    3KBUR 181438Z 00000KT 7SM OVC015 19/16 A2998 RMK AO2 T01940156KBUR2019-07-18T14:38:00Z34.2-118.3719.415.6007.029.97933TRUEMVFRMETAR217.02019-07-18 14:51:07C¯¢(5    3KCQM 181438Z AUTO 00000KT 10SM SCT033 21/20 A2965 RMK AO2KCQM2019-07-18T14:38:00Z47.82-92.6821.020.00010.029.648623TRUETRUEVFRMETAR404.02019-07-18 14:51:07a¯¢)55   3KCVX 181438Z AUTO 20009G16KT 10SM SCT031 SCT048 BKN060 26/20 A2985 RMK AO2 T02550202KCVX2019-07-18T14:38:00Z45.3-85.2725.520.220091610.029.84941TRUETRUEVFRMETAR204.02019-07-18 14:51:07‚¯¢)c5   #   3KDPA 181438Z 11007KT 2SM VCTS -RA BR BKN006 OVC030 23/21 A2994 RMK AO2 LTG DSNT ALQDS TSE38 P0027 T02280211KDPA2019-07-18T14:38:00Z41.92-88.2522.821.111072.029.940945TRUEVCTS -RA BRIFR0.27METAR231.02019-07-18 14:51:07 ´9f}´C¯¢(y5    3KFSE 181437Z AUTO 20013KT 10SM CLR 22/18 A2965 RMK AO2KFSE2019-07-18T14:37:00Z47.58-95.7722.018.02001310.029.648623TRUETRUEVFRMETAR389.02019-07-18 14:51:07c¯¢)55     3KFFX 181437Z AUTO 25005KT 10SM RA BKN014 BKN050 OVC090 24/22 A2991 RMK AO2 T02410222KFFX2019-07-18T14:37:00Z43.43-86.024.122.2250510.029.911417TRUETRUERAMVFRMETAR236.02019-07-18 14:51:07M¯¢)5    3KTVR 181438Z AUTO VRB03KT 10SM SCT014 29/25 A3008 RMK AO2 T02890250KTVR2019-07-18T14:38:00Z32.35-91.0328.925.00310.030.079725TRUETRUEVFRMETAR26.02019-07-18 14:51:07A¯¢(y5    3KTGI 181438Z AUTO 21013KT 10SM CLR 30/26 A2991 RMK AO1KTGI2019-07-18T14:38:00Z37.82-75.9830.026.02101310.029.911417TRUETRUEVFRMETAR2.02019-07-18 14:51:07 ©(bŒ©]¯¢)!5     3PAWM 181437Z AUTO 20003KT 1/2SM FG BKN001 BKN006 10/10 A2984 RMK AO2 PNO $PAWM2019-07-18T14:37:00Z64.68-163.4210.010.020030.529.840551TRUETRUETRUEFGLIFRSPECI82.02019-07-18 14:51:07P¯¢)5    3KD95 181437Z AUTO 20006KT 10SM SCT100 28/17 A2995 RMK AO2 T02810167KD952019-07-18T14:37:00Z43.07-83.2728.116.7200610.029.949802TRUETRUEVFRMETAR255.02019-07-18 14:51:07@¯¢(y5    3KAXV 181437Z AUTO 19006KT 10SM CLR 27/22 A2997 RMK AO2KAXV2019-07-18T14:37:00Z40.5-84.327.022.0190610.029.970472TRUETRUEVFRMETAR279.02019-07-18 14:51:07R¯¢)5    3KHAI 181437Z AUTO 00000KT 7SM BKN060 BKN070 27/24 A2993 RMK AO2 T02700243KHAI2019-07-18T14:37:00Z41.97-85.627.024.3007.029.929134TRUETRUEVFRMETAR251.02019-07-18 14:51:07 Å-WÅB¯¢!(y5    3KDTL 181437Z AUTO 22005KT 10SM CLR 23/17 A2968 RMK AO2KDTL2019-07-18T14:37:00Z46.82-95.8723.017.0220510.029.681103TRUETRUEVFRMETAR426.02019-07-18 14:51:07D¯¢ (5    3KPNM 181437Z AUTO 20003KT 10SM SCT018 27/22 A2970 RMK AO2KPNM2019-07-18T14:37:00Z45.57-93.627.022.0200310.029.698818TRUETRUEVFRMETAR298.02019-07-18 14:51:07P¯¢)5    3KPTN 181437Z AUTO 00000KT 10SM FEW018 SCT022 BKN036 29/26 A3009 RMK AO2KPTN2019-07-18T14:37:00Z29.72-91.3229.026.00010.030.088583TRUETRUEVFRMETAR3.02019-07-18 14:51:07M¯¢) 5    3KPWT 181437Z AUTO 06004KT 10SM BKN016 BKN030 13/12 A3004 RMK AO2KPWT2019-07-18T14:37:00Z47.5-122.7513.012.060410.030.041338TRUETRUEMVFRMETAR147.02019-07-18 14:51:07 ‚/^f‚^¯¢%)'5    3CYOD 181437Z 25006KT 6SM -SHRA BR SCT012 OVC033 14/14 A2950 RMK SF3SC5 SLP995CYOD2019-07-18T14:37:00Z54.4-110.2814.014.025066.029.500984999.5-SHRA BRVFRSPECI544.02019-07-18 14:51:07r¯¢$)O5      3KTWM 181437Z AUTO 00000KT 5SM -RA SCT002 BKN100 18/16 A2967 RMK AO2 P0002 LTG DSNT W AND NW P0002KTWM2019-07-18T14:37:00Z47.03-91.7518.016.0005.029.66929TRUETRUE-RAMVFR0.02METAR328.02019-07-18 14:51:07K¯¢#) 5    3KTEW 181437Z AUTO 00000KT 10SM CLR 27/23 A2994 RMK AO2 T02680229KTEW2019-07-18T14:37:00Z42.57-84.4226.822.90010.029.940945TRUETRUEVFRMETAR280.02019-07-18 14:51:07K¯¢") 5    3KGDB 181437Z AUTO 01005KT 10SM CLR 26/23 A2969 RMK AO2 T02600225KGDB2019-07-18T14:37:00Z44.75-95.5526.022.510510.029.68996TRUETRUEVFRMETAR319.02019-07-18 14:51:07 ‹I}‹l¯¢));5      3KMEH 181437Z AUTO 4SM -RA BR SCT009 OVC017 13/11 A3001 RMK AO2 RAE12B31 P0002 T01280111KMEH2019-07-18T14:37:00Z45.52-118.4212.811.14.030.008858TRUETRUE-RA BRMVFR0.02METAR1136.02019-07-18 14:51:07F¯¢() 5    3KAEX 181437Z 20004KT 10SM SCT012 27/25 A3006 RMK AO2 T02720250KAEX2019-07-18T14:37:00Z31.33-92.5727.225.0200410.030.059055TRUEVFRMETAR27.02019-07-18 14:51:07B¯¢'(y5    3KMOX 181437Z AUTO 18008KT 10SM CLR 24/21 A2964 RMK AO2KMOX2019-07-18T14:37:00Z45.57-95.9724.021.0180810.029.639763TRUETRUEVFRMETAR344.02019-07-18 14:51:07i¯¢&)G5    3CYBR 181437Z 25009KT 15SM TS BKN042CB OVC090 18/16 A2958 RMK CB5AC3 SLP021 DENSITY ALT 2500FTCYBR2019-07-18T14:37:00Z49.92-99.9518.016.0250915.029.580711002.1TSVFRSPECI409.02019-07-18 14:51:07 w:_–w‚¯¢-)‚5     3KVPZ 181437Z AUTO 27007G17KT 10SM TSRA FEW037 SCT050 BKN060 24/22 A2995 RMK AO2 LTG DSNT N AND S AND NW RAB29 TSB31 P0002 T02440217KVPZ2019-07-18T14:37:00Z41.45-87.024.421.727071710.029.949802TRUETRUETSRAVFR0.02METAR231.02019-07-18 14:51:07C¯¢,(5    3KMWM 181437Z AUTO 26006KT 10SM OVC007 24/22 A2976 RMK AO2KMWM2019-07-18T14:37:00Z43.9-95.124.022.0260610.029.760826TRUETRUEIFRMETAR430.02019-07-18 14:51:07U¯¢+)5    3PAPH 181437Z AUTO 29010KT 10SM FEW013 SCT025 OVC045 12/11 A3007 RMK AO2PAPH2019-07-18T14:37:00Z56.95-158.6212.011.02901010.030.070866TRUETRUEVFRMETAR29.02019-07-18 14:51:07@¯¢*(y5    3K4I3 181437Z AUTO 00000KT 10SM CLR 28/25 A3001 RMK AO2K4I32019-07-18T14:37:00Z40.33-82.5328.025.00010.030.008858TRUETRUEVFRMETAR363.02019-07-18 14:51:07 ¤,Mz¤P¯¢1)5    3KELD 181437Z AUTO 19009KT 10SM BKN016 29/25 A3007 RMK AO2 T02890250KELD2019-07-18T14:37:00Z33.22-92.8228.925.0190910.030.070866TRUETRUEMVFRMETAR81.02019-07-18 14:51:07M¯¢0)5    3KHFD 181437Z 04010KT 10SM BKN012 OVC018 25/22 A2992 RMK AO2 T02500217KHFD2019-07-18T14:37:00Z41.73-72.6525.021.7401010.029.920275TRUEMVFRMETAR4.02019-07-18 14:51:07Y¯¢/)/5    3KHWD 181437Z 00000KT 10SM BKN010 BKN014 16/13 A2993 RMK AO2 CIG 009V013 T01610133KHWD2019-07-18T14:37:00Z37.67-122.1216.113.30010.029.929134TRUEMVFRMETAR21.02019-07-18 14:51:07N¯¢.)5    3KI69 181437Z AUTO 00000KT 10SM SCT014 28/25 A3001 RMK AO2 T02770245KI692019-07-18T14:37:00Z39.08-84.2227.724.50010.030.008858TRUETRUEVFRMETAR255.02019-07-18 14:51:07 Ð5h›ÐE¯¢5(5    3KAIT 181436Z AUTO 23007KT 10SM SCT013 24/20 A2966 RMK AO2KAIT2019-07-18T14:36:00Z46.53-93.6724.020.0230710.029.660433TRUETRUEVFRMETAR367.02019-07-18 14:51:07G¯¢4) 5    3KHKS 181436Z 24005KT 10SM SCT015 29/26 A3010 RMK AO2 T02940256KHKS2019-07-18T14:36:00Z32.33-90.2229.425.6240510.030.100393TRUEVFRMETAR108.02019-07-18 14:51:07G¯¢3)5   3KGKY 181436Z 18013G24KT 10SM FEW002 28/22 A3000 RMK AO2 T02780217KGKY2019-07-18T14:36:00Z32.67-97.127.821.7180132410.030.0TRUEVFRMETAR192.02019-07-18 14:51:07E¯¢2)5    3KHYI 181437Z 20013KT 10SM FEW017 SCT023 29/23 A3005 RMK AO2KHYI2019-07-18T14:37:00Z29.88-97.8729.023.02001310.030.050198TRUEVFRMETAR182.02019-07-18 14:51:07 $>kU¯¢9)!5    3KCOQ 181436Z AUTO 17004KT 7SM BKN002 OVC090 21/19 A2968 RMK AO2 LTG DSNT EKCOQ2019-07-18T14:36:00Z46.7-92.521.019.017047.029.681103TRUETRUELIFRMETAR390.02019-07-18 14:51:07M¯¢8) 5    3KCFS 181436Z AUTO 17005KT 10SM CLR 28/19 A2991 RMK AO2 T02770189KCFS2019-07-18T14:36:00Z43.47-83.4527.718.9170510.029.911417TRUETRUEVFRMETAR214.02019-07-18 14:51:07`¯¢7)/5    3KCAD 181436Z AUTO 21012KT 10SM SCT016 BKN025 BKN039 26/21 A2988 RMK AO2 T02580211KCAD2019-07-18T14:36:00Z44.27-85.4225.821.12101210.029.878937TRUETRUEMVFRMETAR398.02019-07-18 14:51:07V¯¢6)!5    3KOXD 181436Z AUTO 22003KT 10SM SCT019 SCT035 29/26 A2999 RMK AO2 T02930261KOXD2019-07-18T14:36:00Z39.5-84.7829.326.1220310.029.991142TRUETRUEVFRSPECI317.02019-07-18 14:51:07 ÎE€Î,¯¢=(e5    3K21D 181436Z AUTO 16007KT 10SM A2973 RMK AO2K21D2019-07-18T14:36:00Z45.0-92.85160710.029.731298TRUETRUEMETAR285.02019-07-18 14:51:07?¯¢<(y5    3KMVE 181436Z AUTO 00000KT 10SM CLR 26/18 A2969 RMK AO2KMVE2019-07-18T14:36:00Z44.97-95.7226.018.00010.029.68996TRUETRUEVFRMETAR315.02019-07-18 14:51:07L¯¢;) 5    3KOSC 181436Z AUTO 18006KT 10SM CLR 25/18 A2988 RMK AO2 T02480176KOSC2019-07-18T14:36:00Z44.45-83.424.817.6180610.029.878937TRUETRUEVFRMETAR193.02019-07-18 14:51:07c¯¢:)35     3PASN 181436Z AUTO 27013KT 9SM OVC010 09/08 A3018 RMK AO2 CIG 008V013 T00940078 TSNOPASN2019-07-18T14:36:00Z57.15-170.229.47.8270139.030.180119TRUETRUETRUEMVFRMETAR29.02019-07-18 14:51:07 ¤.[ˆ¤^¯¢A)/5    3KMCD 181436Z AUTO 12003KT 10SM SCT038 BKN047 OVC055 24/18 A2981 RMK AO2 T02360175KMCD2019-07-18T14:36:00Z45.85-84.6323.617.5120310.029.811024TRUETRUEVFRMETAR226.02019-07-18 14:51:07M¯¢@) 5    3KIKW 181436Z AUTO 19005KT 10SM CLR 27/21 A2989 RMK AO2 T02700208KIKW2019-07-18T14:36:00Z43.67-84.2727.020.8190510.029.890747TRUETRUEVFRMETAR194.02019-07-18 14:51:07M¯¢?) 5    3KRMY 181436Z AUTO 17003KT 10SM CLR 26/26 A2993 RMK AO2 T02570257KRMY2019-07-18T14:36:00Z42.23-84.9525.725.7170310.029.929134TRUETRUEVFRMETAR287.02019-07-18 14:51:07L¯¢>) 5    3KRZT 181436Z AUTO 00000KT 10SM SCT015 BKN021 27/23 A2999 RMK AO2KRZT2019-07-18T14:36:00Z39.43-83.0227.023.00010.029.991142TRUETRUEMVFRMETAR221.02019-07-18 14:51:07 }7ev}s¯¢E)O5    3KBAD 181436Z AUTO 21007KT 10SM SCT018 BKN024 28/24 A3005 RMK AO2 CIG 016V024 CIG 019 RWY33 SLP177KBAD2019-07-18T14:36:00Z32.5-93.6728.024.0210710.030.0501981017.7TRUETRUEMVFRSPECI51.02019-07-18 14:51:07i¯¢D)-5   3KPAM 181436Z COR AUTO 26006KT 10SM SCT021 31/25 A3008 RMK AO2A SLP189 $ COR 1439KPAM2019-07-18T14:36:00Z30.07-85.5731.025.0260610.030.0797251018.9TRUETRUETRUETRUEVFRMETAR5.02019-07-18 14:51:07L¯¢C) 5    3KONZ 181436Z AUTO 18005KT 10SM CLR 26/21 A2994 RMK AO2 T02550208KONZ2019-07-18T14:36:00Z42.1-83.1525.520.8180510.029.940945TRUETRUEVFRMETAR180.02019-07-18 14:51:07C¯¢B)5   3KMGG 181436Z AUTO 00000KT 10SM 27/22 A2971 RMK AO2 T02700224KMGG2019-07-18T14:36:00Z45.23-93.9827.022.40010.029.71063TRUETRUEMETAR313.02019-07-18 14:51:07 »*Yƒ»B¯¢I(y5    3KGHW 181436Z AUTO 20003KT 10SM CLR 24/19 A2970 RMK AO2KGHW2019-07-18T14:36:00Z45.63-95.3224.019.0200310.029.698818TRUETRUEVFRMETAR425.02019-07-18 14:51:07P¯¢H)5    3KELO 181436Z AUTO 00000KT 10SM BKN004 21/21 A2967 RMK AO2 LTG DSNT NEKELO2019-07-18T14:36:00Z47.82-91.8221.021.00010.029.66929TRUETRUELIFRMETAR443.02019-07-18 14:51:07K¯¢G) 5    3KEFK 181436Z AUTO 00000KT 10SM CLR 20/16 A3004 RMK AO2 T02000160KEFK2019-07-18T14:36:00Z44.88-72.2320.016.00010.030.041338TRUETRUEVFRMETAR284.02019-07-18 14:51:07P¯¢F)5    3KDUH 181436Z AUTO 21006KT 10SM SCT055 28/24 A2994 RMK AO2 T02800237KDUH2019-07-18T14:36:00Z41.73-83.6528.023.7210610.029.940945TRUETRUEVFRMETAR204.02019-07-18 14:51:07 ½/Yƒ½@¯¢M(5    3KI23 181436Z AUTO 23005KT 10SM SCT015 27/23 A3000 RMK AO1KI232019-07-18T14:36:00Z39.57-83.4227.023.0230510.030.0TRUETRUEVFRMETAR299.02019-07-18 14:51:07P¯¢L)5    3KHCD 181436Z AUTO 20005KT 10SM SCT011 26/23 A2973 RMK AO2 T02600227KHCD2019-07-18T14:36:00Z44.87-94.3826.022.7200510.029.731298TRUETRUEVFRMETAR323.02019-07-18 14:51:07P¯¢K)5    3KGYL 181436Z AUTO 19005KT 10SM SCT012 25/22 A2972 RMK AO2 T02540224KGYL2019-07-18T14:36:00Z44.77-94.0825.422.4190510.029.719488TRUETRUEVFRMETAR302.02019-07-18 14:51:07K¯¢J) 5    3KFSO 181436Z AUTO 34003KT 10SM CLR 25/16 A3001 RMK AO2 T02480159KFSO2019-07-18T14:36:00Z44.93-73.124.815.9340310.030.008858TRUETRUEVFRMETAR70.02019-07-18 14:51:07 °/Bƒ°M¯¢Q)5    3KBJI 181436Z AUTO 00000KT 10SM SCT070 21/19 A2966 RMK AO2 T02100189KBJI2019-07-18T14:36:00Z47.5-94.9221.018.90010.029.660433TRUETRUEVFRMETAR420.02019-07-18 14:51:079¯¢P(y5    3KCFE 181436Z 10SM SCT013 26/21 A2971 RMK AO2 T02560207KCFE2019-07-18T14:36:00Z45.17-93.8525.620.710.029.71063TRUEVFRMETAR295.02019-07-18 14:51:07g¯¢O);5   3KAUM 181436Z AUTO 16007G16KT 123V183 10SM SCT009 OVC016 24/19 A2974 RMK AO2 LTG DSNT SEKAUM2019-07-18T14:36:00Z43.67-92.9224.019.016071610.029.740158TRUETRUEMVFRMETAR375.02019-07-18 14:51:07K¯¢N) 5    3KHCO 181436Z AUTO 00000KT 10SM SCT070 SCT080 23/19 A2957 RMK AO2KHCO2019-07-18T14:36:00Z48.75-96.9323.019.00010.029.568897TRUETRUEVFRMETAR250.02019-07-18 14:51:07 ©Pp©A¯¢U(y5    3KLXL 181436Z AUTO 24005KT 10SM CLR 23/21 A2969 RMK AO2KLXL2019-07-18T14:36:00Z45.95-94.3323.021.0240510.029.68996TRUETRUEVFRMETAR342.02019-07-18 14:51:07Z¯¢T)5     3KMRT 181436Z AUTO 23005KT 10SM SCT015 27/22 A2999 RMK AO2 P0001 T02700224KMRT2019-07-18T14:36:00Z40.22-83.3527.022.4230510.029.991142TRUETRUEVFR0.01METAR312.02019-07-18 14:51:07E¯¢S(5    3KJMR 181436Z AUTO 23007KT 10SM SCT041 24/20 A2970 RMK AO2KJMR2019-07-18T14:36:00Z45.88-93.2724.020.0230710.029.698818TRUETRUEVFRMETAR309.02019-07-18 14:51:07_¯¢R)/5    3KLWA 181436Z AUTO 25010KT 10SM BKN042 BKN048 OVC070 26/23 A2993 RMK AO2 T02600225KLWA2019-07-18T14:36:00Z42.35-86.2526.022.52501010.029.929134TRUETRUEVFRMETAR203.02019-07-18 14:51:07 ¶#Q~¶B¯¢Y(y5    3KPQN 181436Z AUTO 24007KT 10SM CLR 24/23 A2978 RMK AO2KPQN2019-07-18T14:36:00Z43.97-96.3224.023.0240710.029.778543TRUETRUEVFRMETAR529.02019-07-18 14:51:07M¯¢X) 5    3KOZW 181436Z AUTO 19006KT 10SM CLR 26/20 A2994 RMK AO2 T02640200KOZW2019-07-18T14:36:00Z42.62-83.9726.420.0190610.029.940945TRUETRUEVFRMETAR293.02019-07-18 14:51:07L¯¢W)5    3KPMH 181436Z AUTO 29003KT 10SM OVC014 25/23 A3000 RMK AO2 T02530225KPMH2019-07-18T14:36:00Z38.83-82.8525.322.5290310.030.0TRUETRUEMVFRMETAR202.02019-07-18 14:51:07W¯¢V)5     3KPOV 181436Z AUTO 28006KT 10SM CLR 26/18 A2999 RMK AO2 T02590184 PWINOKPOV2019-07-18T14:36:00Z41.22-81.2525.918.4280610.029.991142TRUETRUETRUEVFRMETAR365.02019-07-18 14:51:07 “.K‚“i¯¢]);5     3PAOO 181436Z AUTO 22006KT 7SM BKN010 OVC015 11/11 A3001 RMK AO2 RAE24 CIG 008V012 P0000PAOO2019-07-18T14:36:00Z60.53-165.1211.011.022067.030.008858TRUETRUEMVFR0.005SPECI18.02019-07-18 14:51:07C¯¢\(5    3K22N 181436Z AUTO 00000KT 10SM OVC016 26/23 A2992 RMK AO2K22N2019-07-18T14:36:00Z40.8-75.7726.023.00010.029.920275TRUETRUEMVFRMETAR163.02019-07-18 14:51:07]¯¢[)/5    3KRQB 181436Z AUTO 22005KT 10SM SCT018 BKN034 OVC047 25/22 A2991 RMK AO2 T02500215KRQB2019-07-18T14:36:00Z43.72-85.525.021.5220510.029.911417TRUETRUEVFRMETAR302.02019-07-18 14:51:07L¯¢Z) 5    3KRNP 181436Z AUTO 19007KT 10SM CLR 27/21 A2992 RMK AO2 T02650207KRNP2019-07-18T14:36:00Z43.0-84.1326.520.7190710.029.920275TRUETRUEVFRMETAR224.02019-07-18 14:51:07 ¯%Rt¯?¯¢a(y5    3KSAZ 181436Z AUTO 00000KT 10SM CLR 24/18 A2968 RMK AO2KSAZ2019-07-18T14:36:00Z46.37-94.824.018.00010.029.681103TRUETRUEVFRMETAR392.02019-07-18 14:51:07X¯¢`)5     3KTOB 181436Z AUTO 16016KT 10SM SCT017 SCT024 23/19 A2973 RMK AO2 PWINOKTOB2019-07-18T14:36:00Z44.02-92.8223.019.01601610.029.731298TRUETRUETRUEVFRMETAR398.02019-07-18 14:51:07M¯¢_) 5    3KTTF 181436Z AUTO 18005KT 10SM CLR 28/23 A2993 RMK AO2 T02750232KTTF2019-07-18T14:36:00Z41.93-83.4227.523.2180510.029.929134TRUETRUEVFRMETAR188.02019-07-18 14:51:07U¯¢^)5    3PAGH 181436Z AUTO 24003KT 10SM BKN030 BKN035 OVC043 13/12 A2980 RMK AO2PAGH2019-07-18T14:36:00Z66.88-157.1713.012.0240310.029.799213TRUETRUEMVFRSPECI60.02019-07-18 14:51:07 ›$^‹›j¯¢e)O5   3CYKD 181436Z 33008KT 300V360 15SM SCT010 BKN055 BKN120 13/12 A2980 RMK SC4SC1AC2 CF ASOCTD SLP094CYKD2019-07-18T14:36:00Z68.22-135.013.012.0330815.029.7992131009.4VFRSPECI7.02019-07-18 14:51:07M¯¢d) 5    3KAMN 181436Z AUTO 21009KT 10SM CLR 27/21 A2991 RMK AO2 T02650210KAMN2019-07-18T14:36:00Z43.32-84.6826.521.0210910.029.911417TRUETRUEVFRMETAR230.02019-07-18 14:51:07@¯¢c(y5    3KADC 181436Z AUTO 00000KT 10SM CLR 23/19 A2968 RMK AO2KADC2019-07-18T14:36:00Z46.45-95.2223.019.00010.029.681103TRUETRUEVFRMETAR418.02019-07-18 14:51:07V¯¢b)!5    3KACB 181436Z AUTO 22003KT 10SM BKN032 OVC043 26/21 A2983 RMK AO2 T02600205KACB2019-07-18T14:36:00Z44.98-85.226.020.5220310.029.828741TRUETRUEVFRMETAR190.02019-07-18 14:51:07 Ã'`ÃD¯¢i(5    3KHZX 181436Z AUTO 20005KT 10SM SCT070 24/21 A2967 RMK AO2KHZX2019-07-18T14:36:00Z46.62-93.3224.021.0200510.029.66929TRUETRUEVFRMETAR374.02019-07-18 14:51:07M¯¢h) 5    3KBAX 181436Z AUTO 19008KT 10SM CLR 27/19 A2991 RMK AO2 T02650187KBAX2019-07-18T14:36:00Z43.78-82.9826.518.7190810.029.911417TRUETRUEVFRMETAR234.02019-07-18 14:51:07A¯¢g(y5    3KCBG 181436Z AUTO 15006KT 10SM CLR 28/21 A2969 RMK AO2KCBG2019-07-18T14:36:00Z45.57-93.2728.021.0150610.029.68996TRUETRUEVFRMETAR287.02019-07-18 14:51:07S¯¢f)5     3KCKC 181436Z AUTO 00000KT 4SM BR OVC002 20/18 A2970 RMK AO2 LTG DSNT SKCKC2019-07-18T14:36:00Z47.83-90.3720.018.0004.029.698818TRUETRUEBRLIFRMETAR548.02019-07-18 14:51:07 ƒ>jƒa¯¢m)35     3KOBE 181435Z AUTO 00000KT 10SM VCTS SCT019 SCT044 29/24 A3011 RMK AO2 LTG DSNT ALQSKOBE2019-07-18T14:35:00Z27.27-80.8529.024.00010.030.109253TRUETRUEVCTSVFRMETAR11.02019-07-18 14:51:07N¯¢l) 5    3KOEL 181435Z AUTO 22012KT 10SM CLR 27/18 A2985 RMK AO1 T02660177KOEL2019-07-18T14:35:00Z39.12-100.8226.617.72201210.029.84941TRUETRUEVFRMETAR929.02019-07-18 14:51:07U¯¢k)5   3KOEO 181435Z AUTO 18009G16KT 10SM OVC010 24/22 A2974 RMK AO2 T02390219KOEO2019-07-18T14:35:00Z45.32-92.723.921.918091610.029.740158TRUETRUEMVFRMETAR275.02019-07-18 14:51:07a¯¢j)15   3CYBB 181436Z CCA 36014G21KT 5SM -DZ BR BKN005 OVC020 06/05 A2943 RMK ST5SC3 SLP969CYBB2019-07-18T14:36:00Z68.52-89.826.05.036014215.029.430119996.9-DZ BRIFRSPECI15.02019-07-18 14:51:07 Ñ=ošÑC¯¢q(y5    3KM75 181435Z AUTO 25005KT 10SM CLR 20/11 A2966 RMK A01KM752019-07-18T14:35:00Z48.37-107.9220.011.0250510.029.660433TRUETRUEVFRMETAR687.02019-07-18 14:51:07O¯¢p) 5     3KMBO 181435Z AUTO 26005KT 10SM BKN016 28/26 A3009 RMK AO2 PWINOKMBO2019-07-18T14:35:00Z32.43-90.128.026.0260510.030.088583TRUETRUETRUEMVFRMETAR99.02019-07-18 14:51:07H¯¢o(5   3KWWR 181435Z AUTO 15016G21KT 10SM CLR 29/16 A2992 RMK AO2KWWR2019-07-18T14:35:00Z36.45-99.5229.016.0150162110.029.920275TRUETRUEVFRMETAR667.02019-07-18 14:51:07=¯¢n(w5    3KO69 181435Z AUTO 00000KT 8SM CLR 14/14 A2992 RMK A01KO692019-07-18T14:35:00Z38.25-122.614.014.0008.029.920275TRUETRUEVFRMETAR28.02019-07-18 14:51:07 ¦5aŠ¦^¯¢u)'5   3KLXY 181435Z AUTO 20010G21KT 10SM BKN018 OVC026 28/23 A3004 RMK AO2 T02770234KLXY2019-07-18T14:35:00Z31.63-96.5227.723.4200102110.030.041338TRUETRUEMVFRMETAR166.02019-07-18 14:51:07Q¯¢t)5   3KLZZ 181435Z AUTO 19010G17KT 10SM CLR 27/21 A3003 RMK AO2 T02700211KLZZ2019-07-18T14:35:00Z31.1-98.227.021.1190101710.030.029528TRUETRUEVFRMETAR371.02019-07-18 14:51:07N¯¢s) 5    3KM08 181435Z AUTO 23010KT 10SM FEW025 FEW033 30/25 A3005 RMK A01KM082019-07-18T14:35:00Z35.22-89.0530.025.02301010.030.050198TRUETRUEVFRMETAR152.02019-07-18 14:51:07E¯¢r(5    3KM54 181435Z AUTO 24006KT 10SM FEW075 26/22 A3004 RMK A01KM542019-07-18T14:35:00Z36.18-86.3226.022.0240610.030.041338TRUETRUEVFRMETAR180.02019-07-18 14:51:07 »0Tƒ»B¯¢y(y5    3KLHM 181435Z AUTO 17005KT 10SM CLR 21/12 A2987 RMK AO1KLHM2019-07-18T14:35:00Z38.92-121.3521.012.0170510.029.870079TRUETRUEVFRMETAR37.02019-07-18 14:51:07K¯¢x) 5    3KLMO 181435Z AUTO 00000KT 10SM CLR 26/04 A3002 RMK AO2 T02630036KLMO2019-07-18T14:35:00Z40.17-105.1726.33.60010.030.02067TRUETRUEVFRMETAR1541.02019-07-18 14:51:07V¯¢w)5   3KLNC 181435Z AUTO 19014G20KT 10SM SCT020 27/22 A3003 RMK AO2 T02740223KLNC2019-07-18T14:35:00Z32.58-96.7227.422.3190142010.030.029528TRUETRUEVFRMETAR153.02019-07-18 14:51:07J¯¢v) 5    3KLUG 181435Z AUTO VRB04KT 10SM FEW100 FEW120 27/24 A3007 RMK A01KLUG2019-07-18T14:35:00Z35.52-86.827.024.00410.030.070866TRUETRUEVFRMETAR219.02019-07-18 14:51:07 ¡W~¡W¯¢})5   3KJWY 181435Z AUTO 20016G21KT 10SM BKN020 28/22 A3003 RMK AO2 T02790221KJWY2019-07-18T14:35:00Z32.45-96.9227.922.1200162110.030.029528TRUETRUEMVFRMETAR217.02019-07-18 14:51:07S¯¢|)5   3KK88 181435Z AUTO 20017G22KT 10SM CLR 29/23 A2991 RMK AO1 T02860227KK882019-07-18T14:35:00Z37.87-95.3828.622.7200172210.029.911417TRUETRUEVFRMETAR309.02019-07-18 14:51:07A¯¢{(y5    3KKNB 181435Z AUTO 00000KT 10SM CLR 20/02 A3020 RMK A01KKNB2019-07-18T14:35:00Z37.02-112.5320.02.00010.030.200787TRUETRUEVFRMETAR1484.02019-07-18 14:51:07\¯¢z)'5   3KLHB 181435Z AUTO 17012G16KT 10SM SCT016 SCT024 28/25 A3005 RMK AO2 T02840249KLHB2019-07-18T14:35:00Z30.87-96.6228.424.9170121610.030.050198TRUETRUEVFRMETAR87.02019-07-18 14:51:07 Ó:cœÓC¯£(5    3KJAU 181435Z AUTO VRB04KT 10SM FEW047 29/21 A3010 RMK A01KJAU2019-07-18T14:35:00Z36.33-84.1729.021.00410.030.100393TRUETRUEVFRMETAR360.02019-07-18 14:51:07A¯£(y5    3KJTC 181435Z AUTO 00000KT 10SM CLR 21/09 A3035 RMK AO2KJTC2019-07-18T14:35:00Z34.13-109.3221.09.00010.030.351377TRUETRUEVFRMETAR2150.02019-07-18 14:51:07Q¯¢)5    3KJVY 181435Z AUTO 24005KT 10SM OVC011 26/23 A2999 RMK AO2 T02600230KJVY2019-07-18T14:35:00Z38.37-85.7326.023.0240510.029.991142TRUETRUEMVFRMETAR145.02019-07-18 14:51:07@¯¢~(y5    3KJWN 181435Z AUTO VRB05KT 10SM CLR 28/24 A3003 RMK A01KJWN2019-07-18T14:35:00Z36.18-86.8828.024.00510.030.029528TRUETRUEVFRMETAR151.02019-07-18 14:51:07 Ò<ežÒF¯£(5    3KMBT 181435Z AUTO 21004KT 10SM BKN015 26/23 A3005 RMK A01KMBT2019-07-18T14:35:00Z35.88-86.3826.023.0210410.030.050198TRUETRUEMVFRMETAR188.02019-07-18 14:51:07A¯£(}5    3KIMS 181435Z AUTO 00000KT 7SM BKN008 26/25 A3001 RMK AO1KIMS2019-07-18T14:35:00Z38.75-85.4726.025.0007.030.008858TRUETRUEIFRMETAR250.02019-07-18 14:51:07Q¯£)5   3KINJ 181435Z AUTO 18017G22KT 10SM CLR 27/24 A3002 RMK AO2 T02730238KINJ2019-07-18T14:35:00Z32.08-97.127.323.8180172210.030.02067TRUETRUEVFRMETAR209.02019-07-18 14:51:07>¯£(y5    3KIZA 181435Z AUTO 00000KT 1/2SM FG 12/11 A2999 RMK AO2KIZA2019-07-18T14:35:00Z34.6-120.0712.011.0000.529.991142TRUETRUEFGMETAR205.02019-07-18 14:51:07 ¬ Cr¬@¯£ (y5    3K05U 181435Z AUTO 21005KT 10SM CLR 21/02 A3015 RMK A01K05U2019-07-18T14:35:00Z39.6-116.021.02.0210510.030.15059TRUETRUEVFRMETAR1816.02019-07-18 14:51:07K¯£) 5    3K04W 181435Z AUTO 16006KT 10SM SCT013 SCT060 25/22 A2969 RMK AO2K04W2019-07-18T14:35:00Z46.02-92.925.022.0160610.029.68996TRUETRUEVFRMETAR311.02019-07-18 14:51:07A¯£(y5    3KMEV 181435Z AUTO 00000KT 10SM CLR 17/08 A3009 RMK AO2KMEV2019-07-18T14:35:00Z38.98-119.7517.08.00010.030.088583TRUETRUEVFRMETAR1439.02019-07-18 14:51:07p¯£)S5    3KMDZ 181435Z AUTO 20011KT 10SM BKN016 BKN021 OVC025 22/19 A2979 RMK AO2 LTG DSNT N AND NE T02180191KMDZ2019-07-18T14:35:00Z45.1-90.321.819.12001110.029.790354TRUETRUEMVFRMETAR448.02019-07-18 14:51:07 «.V}«L¯£ ) 5    3K1M5 181435Z AUTO 28005KT 10SM SCT019 SCT024 27/23 A3005 RMK A01K1M52019-07-18T14:35:00Z36.6-86.4827.023.0280510.030.050198TRUETRUEVFRMETAR250.02019-07-18 14:51:07S¯£ )5   3K1K1 181435Z AUTO 20016G29KT 10SM CLR 29/21 A2986 RMK AO2 T02870209K1K12019-07-18T14:35:00Z37.77-97.1228.720.9200162910.029.861221TRUETRUEVFRMETAR416.02019-07-18 14:51:07R¯£ )5   3K13K 181435Z AUTO 20019G25KT 10SM CLR 29/23 A2988 RMK AO2 T02920227K13K2019-07-18T14:35:00Z37.85-96.329.222.7200192510.029.878937TRUETRUEVFRMETAR369.02019-07-18 14:51:07L¯£ ) 5    3K0A9 181435Z AUTO 00000KT 10SM BKN011 OVC017 25/23 A3009 RMK AO2K0A92019-07-18T14:35:00Z36.37-82.1725.023.00010.030.088583TRUETRUEMVFRMETAR486.02019-07-18 14:51:07 Æ7j¡ÆU¯£)5   3K5T9 181435Z AUTO 14008G15KT 120V180 10SM BKN021 29/22 A3001 RMK A01K5T92019-07-18T14:35:00Z28.85-100.5229.022.014081510.030.008858TRUETRUEMVFRMETAR270.02019-07-18 14:51:07C¯£(y5    3K6S0 181435Z AUTO 24008KT 10SM CLR 20/10 A2987 RMK A01K6S02019-07-18T14:35:00Z45.8-109.9720.010.0240810.029.870079TRUETRUEVFRMETAR1363.02019-07-18 14:51:07G¯£(5    3K6S5 181435Z AUTO 21007KT 10SM OVC065 18/10 A2988 RMK AO2K6S52019-07-18T14:35:00Z46.25-114.1318.010.0210710.029.878937TRUETRUEVFRMETAR1110.02019-07-18 14:51:07C¯£(y5    3K1U7 181435Z AUTO 35003KT 10SM CLR 16/09 A3008 RMK A01K1U72019-07-18T14:35:00Z42.25-111.3316.09.0350310.030.079725TRUETRUEVFRMETAR1807.02019-07-18 14:51:07 ¯#Sv¯A¯£(y5    3K54A 181435Z AUTO 10007KT 10SM CLR 29/24 A3011 RMK AO2K54A2019-07-18T14:35:00Z26.85-82.2529.024.0100710.030.109253TRUETRUEVFRMETAR14.02019-07-18 14:51:07W¯£)#5    3K54J 181435Z AUTO 25005KT 10SM CLR 30/24 A3010 RMK AO2 LTG DSNT S T03000235K54J2019-07-18T14:35:00Z30.73-86.1530.023.5250510.030.100393TRUETRUEVFRMETAR88.02019-07-18 14:51:07J¯£) 5    3K5M9 181435Z AUTO 00000KT 10SM CLR 23/22 A3002 RMK AO2 T02320222K5M92019-07-18T14:35:00Z37.33-88.1223.222.20010.030.02067TRUETRUEVFRMETAR199.02019-07-18 14:51:07W¯£)!5    3K5R8 181435Z AUTO 18006KT 10SM BKN017 BKN023 29/24 A3007 RMK AO2 T02900244K5R82019-07-18T14:35:00Z30.43-93.4729.024.4180610.030.070866TRUETRUEMVFRMETAR24.02019-07-18 14:51:07 “6,d“K¯£) 5    3K49A 181435Z AUTO 00000KT 10SM CLR 27/22 A3016 RMK AO2 T02660221K49A2019-07-18T14:35:00Z34.63-84.5326.622.10010.030.159449TRUETRUEVFRMETAR453.02019-07-18 14:51:07B¯£(y5    3K4O4 181435Z AUTO 22009KT 10SM CLR 28/22 A3001 RMK AO2K4O42019-07-18T14:35:00Z33.92-94.8728.022.0220910.030.008858TRUETRUEVFRMETAR144.02019-07-18 14:51:07‚¯£)i5      3K4R5 181435Z AUTO 11004KT 4SM -TSRA SCT014 SCT025 OVC055 22/21 A2965 RMK AO2 LTG DSNT E AND SE P0019 T02150211K4R52019-07-18T14:35:00Z46.78-90.7721.521.111044.029.648623TRUETRUE-TSRAMVFR0.19METAR198.02019-07-18 14:51:07D¯£)5     3K4S1 181435Z AUTO 36008KT 5SM BR BKN050 17/15 A3000 RMK AO2K4S12019-07-18T14:35:00Z42.42-124.4217.015.036085.030.0TRUETRUEBRMVFRMETAR5.02019-07-18 14:51:07 Æ9RˆÆ<¯£(u5   3K3K8 181435Z AUTO 19017G22KT CLR 29/19 A2989 RMK AO2K3K82019-07-18T14:35:00Z37.22-99.3329.019.0190172229.890747TRUETRUEMETAR636.02019-07-18 14:51:07D¯£(5    3K3S8 181435Z AUTO 34007KT 10SM BKN050 19/14 A3004 RMK AO2K3S82019-07-18T14:35:00Z42.5-123.419.014.0340710.030.041338TRUETRUEVFRMETAR343.02019-07-18 14:51:07a¯£)75    3K40J 181435Z AUTO 28004KT 10SM SCT020 31/26 A3011 RMK AO2 LTG DSNT S AND SW T03080258K40J2019-07-18T14:35:00Z30.07-83.5730.825.8280410.030.109253TRUETRUEVFRMETAR13.02019-07-18 14:51:07A¯£(y5    3K46U 181435Z AUTO 00000KT 10SM CLR 15/08 A3008 RMK A01K46U2019-07-18T14:35:00Z43.18-111.0515.08.00010.030.079725TRUETRUEVFRMETAR1717.02019-07-18 14:51:07 Õ-dœÕA¯£!(5    3K2LS 181435Z AUTO VRB04KT 10SM FEW019 30/24 A3010 RMK AO2K2LS2019-07-18T14:35:00Z29.42-90.330.024.00410.030.100393TRUETRUEVFRMETAR-2.02019-07-18 14:51:07B¯£ (y5    3K2M2 181435Z AUTO 24005KT 10SM CLR 26/24 A3008 RMK A01K2M22019-07-18T14:35:00Z35.23-87.2526.024.0240510.030.079725TRUETRUEVFRMETAR286.02019-07-18 14:51:07C¯£(5    3K33N 181435Z AUTO 21004KT 10SM FEW022 30/25 A2989 RMK A01K33N2019-07-18T14:35:00Z39.22-75.630.025.0210410.029.890747TRUETRUEVFRMETAR17.02019-07-18 14:51:07M¯£)5    3K3J7 181435Z AUTO 27003KT 10SM CLR 30/23 A3007 RMK AO2 LTG DSNT SK3J72019-07-18T14:35:00Z33.6-83.1330.023.0270310.030.070866TRUETRUEVFRMETAR206.02019-07-18 14:51:07 ¬/Yˆ¬V¯£%)!5    3K8W2 181435Z AUTO 21003KT 10SM SCT032 SCT080 29/22 A2994 RMK AO1 T02860222K8W22019-07-18T14:35:00Z38.65-78.728.622.2210310.029.940945TRUETRUEVFRMETAR297.02019-07-18 14:51:07K¯£$) 5    3K8A3 181435Z AUTO 23008KT 210V270 10SM CLR 27/22 A3008 RMK A01K8A32019-07-18T14:35:00Z36.42-85.3227.022.0230810.030.079725TRUETRUEVFRMETAR419.02019-07-18 14:51:07P¯£#)5    3K7W4 181435Z AUTO 24004KT 10SM SCT070 30/24 A2992 RMK AO1 T02970236K7W42019-07-18T14:35:00Z37.97-77.7529.723.6240410.029.920275TRUETRUEVFRMETAR106.02019-07-18 14:51:07K¯£") 5    3K2A0 181435Z AUTO VRB04KT 10SM FEW065 SCT120 27/24 A3007 RMK A01K2A02019-07-18T14:35:00Z35.48-84.9327.024.00410.030.070866TRUETRUEVFRMETAR219.02019-07-18 14:51:07 Š/f`ŠP¯£))5    3KFGX 181435Z AUTO 28008KT 10SM OVC009 26/25 A3003 RMK AO2 T02620247KFGX2019-07-18T14:35:00Z38.55-83.7526.224.7280810.030.029528TRUETRUEIFRMETAR278.02019-07-18 14:51:07‚¯£()g5      3KAFK 181435Z AUTO 21009KT 7SM TSRA SCT065 SCT085 BKN110 27/23 A2979 RMK AO2 LTG DSNT NE AND E P0002 T02670230KAFK2019-07-18T14:35:00Z40.6-95.8526.723.021097.029.790354TRUETRUETSRAVFR0.02METAR354.02019-07-18 14:51:07C¯£'(y5    3KA39 181435Z AUTO 20003KT 10SM CLR 31/15 A2999 RMK AO2KA392019-07-18T14:35:00Z32.98-111.9231.015.0200310.029.991142TRUETRUEVFRMETAR396.02019-07-18 14:51:07K¯£&) 5    3K9A5 181435Z AUTO 28003KT 7SM CLR 28/21 A3010 RMK AO2 T02810207K9A52019-07-18T14:35:00Z34.68-85.2828.120.728037.030.100393TRUETRUEVFRMETAR237.02019-07-18 14:51:07 Ú:g¡ÚA¯£-(y5    3KFYE 181435Z AUTO 22007KT 10SM CLR 28/25 A3004 RMK A01KFYE2019-07-18T14:35:00Z35.2-89.3828.025.0220710.030.041338TRUETRUEVFRMETAR133.02019-07-18 14:51:07@¯£,(y5    3KFWB 181435Z AUTO 23008KT 10SM CLR 28/24 A3001 RMK AO2KFWB2019-07-18T14:35:00Z36.7-93.428.024.0230810.030.008858TRUETRUEVFRMETAR406.02019-07-18 14:51:07M¯£+) 5    3KFRR 181435Z AUTO 31006KT 10SM SCT034 BKN100 29/23 A2993 RMK AO1KFRR2019-07-18T14:35:00Z38.92-78.2529.023.0310610.029.929134TRUETRUEVFRMETAR216.02019-07-18 14:51:07@¯£*(y5    3KFQD 181435Z AUTO 00000KT 10SM CLR 28/22 A3006 RMK AO2KFQD2019-07-18T14:35:00Z35.42-81.9328.022.00010.030.059055TRUETRUEVFRMETAR329.02019-07-18 14:51:07 ­4P­L¯£1) 5    3KGCY 181435Z AUTO 26006KT 10SM BKN008 OVC014 25/23 A3009 RMK A01KGCY2019-07-18T14:35:00Z36.2-82.8225.023.0260610.030.088583TRUETRUEIFRMETAR490.02019-07-18 14:51:07K¯£0)5     3KGAF 181435Z AUTO 25010KT 9SM CLR 25/19 A2959 RMK AO2 PWINOKGAF2019-07-18T14:35:00Z48.4-97.3725.019.0250109.029.589567TRUETRUETRUEVFRMETAR252.02019-07-18 14:51:07^¯£/)75    3KGAO 181435Z AUTO 00000KT 10SM SCT021 SCT041 30/29 A3008 RMK AO2 LTG DSNT E T03000289KGAO2019-07-18T14:35:00Z29.45-90.2730.028.90010.030.079725TRUETRUEVFRMETAR1.02019-07-18 14:51:07F¯£.(5    3KFYM 181435Z AUTO 23004KT 10SM BKN025 25/23 A3010 RMK A01KFYM2019-07-18T14:35:00Z35.07-86.5725.023.0230410.030.100393TRUETRUEMVFRMETAR300.02019-07-18 14:51:07 º*O‚ºB¯£5(y5    3KGOO 181435Z AUTO 12004KT 10SM CLR 22/12 A3001 RMK A01KGOO2019-07-18T14:35:00Z39.22-121.022.012.0120410.030.008858TRUETRUEVFRMETAR962.02019-07-18 14:51:07G¯£4(5   3KGMJ 181435Z AUTO 21015G20KT 10SM CLR 30/22 A2997 RMK AO2KGMJ2019-07-18T14:35:00Z36.6-94.7330.022.0210152010.029.970472TRUETRUEVFRMETAR254.02019-07-18 14:51:07U¯£3)5    3KGLW 181435Z AUTO 26007KT 240V330 10SM CLR 27/22 A3004 RMK AO2 T02720215KGLW2019-07-18T14:35:00Z37.03-85.9527.221.5260710.030.041338TRUETRUEVFRMETAR218.02019-07-18 14:51:07P¯£2)5   3KGKT 181435Z AUTO VRB04G10KT 10SM FEW021 SCT028 29/23 A3007 RMK A01KGKT2019-07-18T14:35:00Z35.85-83.5329.023.0041010.030.070866TRUETRUEVFRMETAR309.02019-07-18 14:51:07 Ý9p©ÝF¯£9(5   3KHFJ 181435Z AUTO 21013G19KT 10SM CLR 28/23 A2998 RMK AO2KHFJ2019-07-18T14:35:00Z36.9-94.0228.023.0210131910.029.97933TRUETRUEVFRMETAR401.02019-07-18 14:51:07A¯£8(w5  3KH71 181435Z AUTO 20013G18KT 10SM 29/24 A2994 RMK AO2KH712019-07-18T14:35:00Z36.22-95.3329.024.0200131810.029.940945TRUETRUEMETAR190.02019-07-18 14:51:07C¯£7(5    3KGZS 181435Z AUTO 00000KT 10SM FEW013 27/24 A3007 RMK A01KGZS2019-07-18T14:35:00Z35.15-87.0527.024.00010.030.070866TRUETRUEVFRMETAR209.02019-07-18 14:51:07A¯£6(y5    3KGWB 181435Z AUTO 21004KT 10SM CLR 28/23 A2995 RMK AO2KGWB2019-07-18T14:35:00Z41.3-85.0728.023.0210410.029.949802TRUETRUEVFRMETAR269.02019-07-18 14:51:07 Å#XŽÅC¯£=(5    3KVNC 181435Z AUTO 14005KT 10SM OVC070 31/25 A3011 RMK AO2KVNC2019-07-18T14:35:00Z27.07-82.4331.025.0140510.030.109253TRUETRUEVFRMETAR6.02019-07-18 14:51:07D¯£<(5    3KVKS 181435Z AUTO 24006KT 10SM FEW018 29/26 A3008 RMK A01KVKS2019-07-18T14:35:00Z32.23-90.9329.026.0240610.030.079725TRUETRUEVFRMETAR32.02019-07-18 14:51:07E¯£;(5    3KHPT 181435Z AUTO 25008KT 10SM SCT065 24/21 A2972 RMK AO2KHPT2019-07-18T14:35:00Z42.58-93.2324.021.0250810.029.719488TRUETRUEVFRMETAR358.02019-07-18 14:51:07W¯£:)!5    3KHFY 181435Z AUTO 23003KT 10SM SCT011 BKN065 27/25 A2997 RMK AO2 T02740249KHFY2019-07-18T14:35:00Z39.63-86.0827.424.9230310.029.970472TRUETRUEVFRMETAR251.02019-07-18 14:51:07 L[V¯£A)!5    3KF17 181435Z AUTO 19007KT 10SM SCT017 SCT022 28/23 A3008 RMK AO2 T02760230KF172019-07-18T14:35:00Z31.83-94.1527.623.0190710.030.079725TRUETRUEVFRMETAR97.02019-07-18 14:51:07k¯£@)C5     3KF45 181435Z AUTO 33005KT 10SM VCTS SCT025 BKN030 BKN041 29/24 A3012 RMK AO2 LTG DSNT ALQDSKF452019-07-18T14:35:00Z26.85-80.2229.024.0330510.030.121063TRUETRUEVCTSMVFRMETAR7.02019-07-18 14:51:07J¯£?) 5    3KW75 181435Z AUTO 21005KT 10SM CLR 30/26 A2992 RMK AO1 T03000256KW752019-07-18T14:35:00Z37.6-76.4530.025.6210510.029.920275TRUETRUEVFRMETAR9.02019-07-18 14:51:07^¯£>)55   3KW13 181435Z AUTO 26003G16KT 10SM SCT028 BKN037 BKN075 28/22 A3000 RMK AO1 T02770216KW132019-07-18T14:35:00Z38.08-78.9527.721.626031610.030.0TRUETRUEVFRMETAR443.02019-07-18 14:51:07 ¸.]‹¸M¯£E)5   3KEKS 181435Z AUTO 34006G13KT 10SM FEW085 16/10 A2997 RMK AO2KEKS2019-07-18T14:35:00Z45.27-111.6516.010.034061310.029.970472TRUETRUEVFRMETAR1641.02019-07-18 14:51:07L¯£D) 5    3KENL 181435Z AUTO 20007KT 10SM CLR 26/23 A2997 RMK AO2 T02640228KENL2019-07-18T14:35:00Z38.52-89.126.422.8200710.029.970472TRUETRUEVFRMETAR163.02019-07-18 14:51:07K¯£C) 5    3KXSA 181435Z AUTO 25008KT 10SM CLR 31/25 A2992 RMK AO2 T03050247KXSA2019-07-18T14:35:00Z37.87-76.930.524.7250810.029.920275TRUETRUEVFRMETAR42.02019-07-18 14:51:07L¯£B) 5    3KEXX 181435Z AUTO 23004KT 10SM CLR 29/24 A3001 RMK AO2 T02900244KEXX2019-07-18T14:35:00Z35.78-80.329.024.4230410.030.008858TRUETRUEVFRMETAR223.02019-07-18 14:51:07 ­?s­@¯£I(}5    3KAJZ 181435Z AUTO 10SM CLR 23/01 A3015 RMK AO2 T02320010KAJZ2019-07-18T14:35:00Z38.78-108.0723.21.010.030.15059TRUETRUEVFRMETAR1583.02019-07-18 14:51:07F¯£H(}5    3KECS 181435Z AUTO 15004KT 7SM BKN003 20/17 A2986 RMK AO2KECS2019-07-18T14:35:00Z43.88-104.3220.017.015047.029.861221TRUETRUELIFRMETAR1273.02019-07-18 14:51:07B¯£G(y5    3KEDU 181435Z AUTO 17005KT 10SM CLR 19/13 A2986 RMK AO1KEDU2019-07-18T14:35:00Z38.53-121.7819.013.0170510.029.861221TRUETRUEVFRMETAR21.02019-07-18 14:51:07s¯£F)G5      3KEFT 181435Z AUTO 10006KT 7SM VCTSRA OVC003 21/20 A2991 RMK AO2 LTG DSNT ALQS P0008 T02090204KEFT2019-07-18T14:35:00Z42.62-89.620.920.410067.029.911417TRUETRUEVCTSRALIFR0.08METAR331.02019-07-18 14:51:07 0Su_¯£M))5   3K9MN 181435Z AUTO 16010G19KT 130V200 10SM BKN021 23/20 A2974 RMK AO1 T02320198K9MN2019-07-18T14:35:00Z44.02-92.4823.219.8160101910.029.740158TRUETRUEMVFRMETAR355.02019-07-18 14:51:07X¯£L)#5    3KALX 181435Z AUTO 25005KT 10SM CLR 30/24 A3010 RMK AO2 LTG DSNT S T02990239KALX2019-07-18T14:35:00Z32.92-85.9729.923.9250510.030.100393TRUETRUEVFRMETAR209.02019-07-18 14:51:07W¯£K)!5    3KY23 181435Z AUTO 20005KT 10SM BKN029 OVC036 23/21 A2975 RMK AO2 T02250205KY232019-07-18T14:35:00Z45.3-91.6322.520.5200510.029.749016TRUETRUEMVFRMETAR322.02019-07-18 14:51:07J¯£J) 5    3KAJR 181435Z AUTO 30003KT 7SM CLR 28/22 A3010 RMK AO2 T02750222KAJR2019-07-18T14:35:00Z34.5-83.5527.522.230037.030.100393TRUETRUEVFRMETAR441.02019-07-18 14:51:07 ¨$[}¨O¯£Q)5    3KARM 181435Z AUTO 17007KT 10SM SCT017 30/24 A3005 RMK AO2 T02950240KARM2019-07-18T14:35:00Z29.25-96.1529.524.0170710.030.050198TRUETRUEVFRMETAR31.02019-07-18 14:51:07X¯£P)#5    3KASN 181435Z AUTO 27003KT 10SM CLR 28/25 A3010 RMK AO2 LTG DSNT S T02810251KASN2019-07-18T14:35:00Z33.57-86.0528.125.1270310.030.100393TRUETRUEVFRMETAR162.02019-07-18 14:51:07C¯£O(y5    3KAVK 181435Z AUTO 20017KT 10SM CLR 31/20 A2987 RMK AO2KAVK2019-07-18T14:35:00Z36.77-98.6731.020.02001710.029.870079TRUETRUEVFRMETAR449.02019-07-18 14:51:07V¯£N)!5    3KAXH 181435Z AUTO 20005KT 10SM SCT019 SCT036 29/26 A3006 RMK AO2 T02940255KAXH2019-07-18T14:35:00Z29.52-95.4829.425.5200510.030.059055TRUETRUEVFRMETAR21.02019-07-18 14:51:07 È8_tȁ&¯£U(]5    3KPCM 181435Z AUTO 10SM CLR A3013 RMK AO2KPCM2019-07-18T14:35:00Z28.0-82.1710.030.129921TRUETRUEVFRMETAR47.02019-07-18 14:51:07e¯£T)E5    3KAPS 181435Z AUTO 00000KT 10SM SCT025 BKN033 BKN039 33/27 A3009 RMK AO2 LTG DSNT E T03310269KAPS2019-07-18T14:35:00Z30.08-90.5833.126.90010.030.088583TRUETRUEVFRMETAR2.02019-07-18 14:51:07S¯£S)5   3KAPY 181435Z AUTO 14011G15KT 10SM CLR 30/19 A2999 RMK AO2 T02990195KAPY2019-07-18T14:35:00Z26.97-99.2529.919.5140111510.029.991142TRUETRUEVFRMETAR129.02019-07-18 14:51:07B¯£R(5   3KAQR 181435Z AUTO 19010G14KT 10SM CLR 28/21 A3000 RMK AO2KAQR2019-07-18T14:35:00Z34.4-96.1528.021.0190101410.030.0TRUETRUEVFRMETAR189.02019-07-18 14:51:07 › Em›L¯£Y)5    3K2I0 181435Z AUTO 00000KT 10SM SCT090 27/22 A3002 RMK AO2 T02650223K2I02019-07-18T14:35:00Z37.35-87.426.522.30010.030.02067TRUETRUEVFRMETAR134.02019-07-18 14:51:07R¯£X)5   3KBEC 181435Z AUTO 20019G26KT 10SM CLR 28/21 A2987 RMK AO2 T02820211KBEC2019-07-18T14:35:00Z37.7-97.2228.221.1200192610.029.870079TRUETRUEVFRMETAR429.02019-07-18 14:51:07A¯£W(y5    3KAZC 181435Z AUTO 00000KT 10SM CLR 22/06 A3018 RMK AO2KAZC2019-07-18T14:35:00Z36.97-113.0222.06.00010.030.180119TRUETRUEVFRMETAR1486.02019-07-18 14:51:07n¯£V)S5    3KBCK 181435Z AUTO 00000KT 10SM SCT013 SCT019 OVC080 22/21 A2977 RMK AO2 LTG DSNT SE AND S T02240210KBCK2019-07-18T14:35:00Z44.25-90.8522.421.00010.029.769686TRUETRUEVFRMETAR255.02019-07-18 14:51:07 Ï/TÏ:¯£](s5    3KRAW 181435Z AUTO 21015G21KT 10SM CLR A2993 RMK AO2KRAW2019-07-18T14:35:00Z38.35-93.35210152110.029.929134TRUETRUEVFRSPECI285.02019-07-18 14:51:07?¯£\(y5    3KBWP 181435Z AUTO 00000KT 10SM CLR 22/16 A2967 RMK AO1KBWP2019-07-18T14:35:00Z46.25-96.6222.016.00010.029.66929TRUETRUEVFRSPECI295.02019-07-18 14:51:07U¯£[)!5    3KCBE 181435Z AUTO 00000KT 10SM SCT034 OVC050 26/24 A2999 RMK AO2 T02600235KCBE2019-07-18T14:35:00Z39.62-78.7726.023.50010.029.991142TRUETRUEVFRSPECI236.02019-07-18 14:51:07K¯£Z) 5    3KCPC 181435Z AUTO 21005KT 10SM CLR 29/23 A3002 RMK AO2 T02930231KCPC2019-07-18T14:35:00Z34.28-78.7229.323.1210510.030.02067TRUETRUEVFRSPECI29.02019-07-18 14:51:07 ¸8cŽ¸P¯£a)5   3KEBS 181435Z AUTO 18008G15KT 150V210 10SM CLR 27/25 A2973 RMK AO2KEBS2019-07-18T14:35:00Z42.42-93.8727.025.018081510.029.731298TRUETRUEVFRSPECI342.02019-07-18 14:51:07O¯£`)5    3KCTZ 181435Z AUTO 22008KT 200V260 10SM CLR 31/24 A3000 RMK AO2 T03070238KCTZ2019-07-18T14:35:00Z34.98-78.3730.723.8220810.030.0TRUETRUEVFRSPECI45.02019-07-18 14:51:07O¯£_)5    3KBYY 181435Z AUTO 18008KT 10SM SCT024 32/25 A3004 RMK AO2 T03200256KBYY2019-07-18T14:35:00Z28.97-95.8732.025.6180810.030.041338TRUETRUEVFRMETAR14.02019-07-18 14:51:07B¯£^(y5    3KC83 181435Z AUTO 22004KT 10SM CLR 22/12 A2988 RMK AO2KC832019-07-18T14:35:00Z37.83-121.6222.012.0220410.029.878937TRUETRUEVFRMETAR24.02019-07-18 14:51:07 •%Hi•N¯£e) 5    3KONM 181435Z AUTO 15006KT 10SM CLR 25/11 A3013 RMK AO2 T02490112KONM2019-07-18T14:35:00Z34.02-106.924.911.2150610.030.129921TRUETRUEVFRMETAR1410.02019-07-18 14:51:07Y¯£d)55     3KPPO 181435Z AUTO 28004KT 10SM SCT050 SCT070 BKN075 A2995 RMK AO2 LTG DSNT S THRU NWKPPO2019-07-18T14:35:00Z41.57-86.73280410.029.949802TRUETRUEVFRSPECI248.02019-07-18 14:51:07W¯£c)!5    3KPSK 181435Z AUTO 28007KT 10SM SCT031 OVC037 26/22 A3009 RMK AO2 T02620217KPSK2019-07-18T14:35:00Z37.12-80.6726.221.7280710.030.088583TRUETRUEVFRMETAR642.02019-07-18 14:51:07U¯£b)5   3KRBO 181435Z AUTO 16015G18KT 10SM SCT024 30/24 A3001 RMK AO2 T02960239KRBO2019-07-18T14:35:00Z27.78-97.6829.623.9160151810.030.008858TRUETRUEVFRMETAR24.02019-07-18 14:51:07 ×7f×0¯£i(a5   3KFWZ 181435Z AUTO 10SM 17/02 A3013 RMK AO2KFWZ2019-07-18T14:35:00Z42.52-108.7817.02.010.030.129921TRUETRUEMETAR2588.02019-07-18 14:51:07S¯£h)5   3KIDP 181435Z AUTO 20016G21KT 10SM CLR 29/24 A2991 RMK AO2 T02940238KIDP2019-07-18T14:35:00Z37.17-95.7829.423.8200162110.029.911417TRUETRUEVFRMETAR251.02019-07-18 14:51:07K¯£g)5    3KMGR 181435Z AUTO 00000KT 10SM CLR 28/24 A3010 RMK AO2 LTG DSNT SWKMGR2019-07-18T14:35:00Z31.08-83.828.024.00010.030.100393TRUETRUEVFRMETAR90.02019-07-18 14:51:07C¯£f(y5    3KMYZ 181435Z AUTO 19011KT 10SM CLR 28/22 A2979 RMK AO2KMYZ2019-07-18T14:35:00Z39.85-96.6328.022.01901110.029.790354TRUETRUEVFRMETAR319.02019-07-18 14:51:07 ƒ"1WƒN¯£m)5    3KCKP 181435Z AUTO 00000KT 10SM BKN110 28/26 A2972 RMK AO2 T02750258KCKP2019-07-18T14:35:00Z42.73-95.5527.525.80010.029.719488TRUETRUEVFRMETAR374.02019-07-18 14:51:07T¯£l)5   3KEAN 181435Z AUTO 24010G17KT 10SM CLR 26/06 A2994 RMK AO2 T02600058KEAN2019-07-18T14:35:00Z42.05-104.9326.05.8240101710.029.940945TRUETRUEVFRMETAR1456.02019-07-18 14:51:07k¯£k)55     3KETB 181435Z AUTO 18021G28KT 10SM -RA SCT050 SCT075 BKN090 21/20 A2970 RMK AO2 P0004KETB2019-07-18T14:35:00Z43.42-88.1321.020.0180212810.029.698818TRUETRUE-RAVFR0.04SPECI270.02019-07-18 14:51:07X¯£j)%5    3KEZM 181435Z AUTO 29007KT 10SM CLR 32/23 A3010 RMK AO2 LTG DSNT SW T03240225KEZM2019-07-18T14:35:00Z32.22-83.1332.422.5290710.030.100393TRUETRUEVFRMETAR93.02019-07-18 14:51:07 Ø5pŸØA¯£q(y5    3KAFO 181435Z AUTO 00000KT 10SM CLR 14/06 A3011 RMK AO2KAFO2019-07-18T14:35:00Z42.72-110.9514.06.00010.030.109253TRUETRUEVFRMETAR1897.02019-07-18 14:51:07K¯£p)5     3KCBK 181435Z AUTO 00000KT 10SM CLR 25/16 A2985 RMK AO2 PWINOKCBK2019-07-18T14:35:00Z39.43-101.0525.016.00010.029.84941TRUETRUETRUEVFRMETAR971.02019-07-18 14:51:07?¯£o(}5     3KCCB 181435Z AUTO 00000KT 6SM HZ CLR 19/15 A3000 RMK AO2KCCB2019-07-18T14:35:00Z34.12-117.6819.015.0006.030.0TRUETRUEHZVFRMETAR440.02019-07-18 14:51:07E¯£n(5    3KCEY 181435Z AUTO 21008KT 10SM BKN120 24/24 A3001 RMK AO1KCEY2019-07-18T14:35:00Z36.67-88.3724.024.0210810.030.008858TRUETRUEVFRMETAR176.02019-07-18 14:51:07 †óL†@¯£u(}5    3KBKD 181435Z AUTO 10SM CLR 29/20 A2999 RMK AO2 T02900198KBKD2019-07-18T14:35:00Z32.72-98.8829.019.810.029.991142TRUETRUEVFRMETAR392.02019-07-18 14:51:07L¯£t) 5    3KBPG 181435Z AUTO 17018KT 7SM CLR 27/19 A3002 RMK AO2 T02710190KBPG2019-07-18T14:35:00Z32.22-101.5227.119.0170187.030.02067TRUETRUEVFRMETAR784.02019-07-18 14:51:07O¯£s)5    3KBQP 181435Z AUTO 24004KT 10SM SCT017 30/25 A3007 RMK AO2 T02970251KBQP2019-07-18T14:35:00Z32.75-91.8829.725.1240410.030.070866TRUETRUEVFRMETAR51.02019-07-18 14:51:07‚¯£r)u5      3KC09 181435Z AUTO 00000KT 1SM +TSRA BKN009 BKN015 OVC020 23/22 A2991 RMK AO2 VIS 1/4V5 LTG DSNT ALQS P0031 T02250222KC092019-07-18T14:35:00Z41.43-88.4222.522.2001.029.911417TRUETRUE+TSRAIFR0.31METAR178.02019-07-18 14:51:07 ƒ&[YƒP¯£y) 5     3KMJQ 181435Z AUTO 27006KT 10SM SCT003 25/22 A2976 RMK AO2 PWINOKMJQ2019-07-18T14:35:00Z43.63-94.9725.022.0270610.029.760826TRUETRUETRUEVFRMETAR441.02019-07-18 14:51:07|¯£x)c5    3KARV 181435Z AUTO 27008G16KT 10SM TS SCT065 BKN075 BKN090 25/21 A2977 RMK AO2 LTG DSNT NW THRU NE T02500211KARV2019-07-18T14:35:00Z45.92-89.7225.021.127081610.029.769686TRUETRUETSVFRMETAR496.02019-07-18 14:51:07E¯£w)5   3KAXX 181435Z AUTO 00000KT 10SM 12/06 A3039 RMK AO2 T01190063KAXX2019-07-18T14:35:00Z36.42-105.2811.96.30010.030.389763TRUETRUEMETAR2548.02019-07-18 14:51:07T¯£v)5    3KBHC 181435Z AUTO 25003KT 10SM CLR 30/23 A3008 RMK AO2 LTG DSNT SE AND SWKBHC2019-07-18T14:35:00Z31.72-82.430.023.0250310.030.079725TRUETRUEVFRMETAR61.02019-07-18 14:51:07 ÚGv¦ÚF¯£}(5    3KDKX 181435Z AUTO 23008KT 10SM BKN019 28/24 A3007 RMK A01KDKX2019-07-18T14:35:00Z35.97-83.8728.024.0230810.030.070866TRUETRUEMVFRMETAR254.02019-07-18 14:51:07J¯£|) 5    3KDLO 181435Z AUTO 00000KT 10SM CLR 21/06 A2990 RMK AO2 T02080056KDLO2019-07-18T14:35:00Z35.75-119.2320.85.60010.029.899607TRUETRUEVFRMETAR96.02019-07-18 14:51:07K¯£{) 5    3KDNV 181435Z AUTO 22009KT 10SM CLR 28/23 A2993 RMK AO2 T02770234KDNV2019-07-18T14:35:00Z40.2-87.627.723.4220910.029.929134TRUETRUEVFRMETAR212.02019-07-18 14:51:073¯£z(m5     3KMFV 181435Z AUTO 22007KT 10SM CLR A2993 RMK AO2KMFV2019-07-18T14:35:00Z37.63-75.77220710.029.929134TRUETRUEVFRMETAR15.02019-07-18 14:51:07 Ê4j‘ʁA¯¤(y5    3KCRX 181435Z AUTO 25007KT 10SM CLR 30/24 A3005 RMK AO2KCRX2019-07-18T14:35:00Z34.92-88.630.024.0250710.030.050198TRUETRUEVFRMETAR130.02019-07-18 14:51:07S¯¤)'5    3KCWV 181435Z AUTO 00000KT CLR 31/25 A3008 RMK AO2 LTG DSNT SW T03070246 PWINOKCWV2019-07-18T14:35:00Z32.2-81.8730.724.60030.079725TRUETRUETRUEMETAR33.02019-07-18 14:51:07D¯£(}5   3KCXW 181435Z AUTO 21006G11KT 9SM CLR 31/26 A2999 RMK A01KCXW2019-07-18T14:35:00Z35.02-92.5531.026.02106119.029.991142TRUETRUEVFRMETAR84.02019-07-18 14:51:07F¯£~(5    3KCZT 181435Z AUTO 14010KT 10SM SCT026 29/21 A2999 RMK AO2KCZT2019-07-18T14:35:00Z28.52-99.8229.021.01401010.029.991142TRUETRUEVFRMETAR183.02019-07-18 14:51:07 Í1x£ÍP¯¤)5   3KMRC 181435Z AUTO VRB05G10KT 10SM FEW015 FEW080 28/27 A3005 RMK A01KMRC2019-07-18T14:35:00Z35.55-87.1828.027.0051010.030.050198TRUETRUEVFRMETAR208.02019-07-18 14:51:07O¯¤)5    3KMLJ 181435Z AUTO 31005KT 10SM CLR 31/22 A3007 RMK AO2 LTG DSNT NEKMLJ2019-07-18T14:35:00Z33.15-83.2331.022.0310510.030.070866TRUETRUEVFRMETAR117.02019-07-18 14:51:073¯¤(g5    3KMKS 181435Z AUTO 7SM CLR 30/24 A3005 RMK AO2KMKS2019-07-18T14:35:00Z33.18-80.0330.024.07.030.050198TRUETRUEVFRMETAR23.02019-07-18 14:51:07I¯¤) 5    3KCPK 181435Z AUTO 22006KT 7SM CLR 29/24 A2995 RMK AO2 T02930240KCPK2019-07-18T14:35:00Z36.67-76.3229.324.022067.029.949802TRUETRUEVFRMETAR6.02019-07-18 14:51:07 ³7c‡³N¯¤ ) 5    3KMNV 181435Z AUTO 25006KT 10SM BKN017 BKN024 27/24 A3009 RMK A01KMNV2019-07-18T14:35:00Z35.55-84.3827.024.0250610.030.088583TRUETRUEMVFRMETAR314.02019-07-18 14:51:07V¯¤)5   3KMNZ 181435Z AUTO 19016G22KT 10SM SCT018 27/22 A3004 RMK AO2 T02730216KMNZ2019-07-18T14:35:00Z31.67-98.1527.321.6190162210.030.041338TRUETRUEVFRMETAR396.02019-07-18 14:51:07N¯¤) 5    3KMOR 181435Z AUTO 28005KT 10SM BKN013 OVC020 26/24 A3007 RMK A01KMOR2019-07-18T14:35:00Z36.18-83.3726.024.0280510.030.070866TRUETRUEMVFRMETAR400.02019-07-18 14:51:07C¯¤(y5    3KMPZ 181435Z AUTO 22010KT 10SM CLR 28/25 A2982 RMK AO2KMPZ2019-07-18T14:35:00Z40.95-91.5228.025.02201010.029.819881TRUETRUEVFRMETAR224.02019-07-18 14:51:07 ÀUŠÀD¯¤ (5    3KOLE 181435Z AUTO 00000KT 10SM OVC010 21/21 A3003 RMK AO2KOLE2019-07-18T14:35:00Z42.23-78.3721.021.00010.030.029528TRUETRUEMVFRMETAR651.02019-07-18 14:51:07E¯¤ (5    3KOMH 181435Z AUTO 20003KT 10SM OVC070 30/22 A2992 RMK AO2KOMH2019-07-18T14:35:00Z38.25-78.0530.022.0200310.029.920275TRUETRUEVFRMETAR142.02019-07-18 14:51:07D¯¤ (5    3KMMI 181435Z AUTO 26006KT 10SM SCT019 28/23 A3010 RMK A01KMMI2019-07-18T14:35:00Z35.4-84.5728.023.0260610.030.100393TRUETRUEVFRMETAR266.02019-07-18 14:51:07[¯¤ )'5   3KMNE 181435Z AUTO 21009G14KT 10SM BKN018 BKN023 29/24 A3008 RMK AO2 T02860243KMNE2019-07-18T14:35:00Z32.65-93.328.624.321091410.030.079725TRUETRUEMVFRMETAR85.02019-07-18 14:51:07 Â/N‡Â?¯¤(y5    3KPTD 181435Z AUTO VRB06KT 10SM CLR 23/17 A2998 RMK AO2KPTD2019-07-18T14:35:00Z44.68-74.9523.017.00610.029.97933TRUETRUEVFRMETAR144.02019-07-18 14:51:07A¯¤(y5    3KPVE 181435Z AUTO 24006KT 10SM CLR 27/25 A3005 RMK A01KPVE2019-07-18T14:35:00Z35.65-88.227.025.0240610.030.050198TRUETRUEVFRMETAR149.02019-07-18 14:51:07[¯¤)'5   3PAUT 181435Z AUTO 31014G19KT 10SM SCT005 OVC023 09/08 A3026 RMK AO2 T00860081PAUT2019-07-18T14:35:00Z54.15-165.68.68.1310141910.030.259842TRUETRUEMVFRMETAR25.02019-07-18 14:51:07K¯¤) 5    3KOKZ 181435Z AUTO 22003KT 7SM CLR 28/19 A3008 RMK AO2 T02810193KOKZ2019-07-18T14:35:00Z32.97-82.8328.119.322037.030.079725TRUETRUEVFRMETAR134.02019-07-18 14:51:07 Æ.UŽÆB¯¤(y5    3KPCW 181435Z AUTO 19005KT 10SM CLR 27/23 A2994 RMK AO2KPCW2019-07-18T14:35:00Z41.52-82.8727.023.0190510.029.940945TRUETRUEVFRMETAR178.02019-07-18 14:51:07A¯¤(y5    3KPHT 181435Z AUTO 24009KT 10SM CLR 26/25 A3002 RMK A01KPHT2019-07-18T14:35:00Z36.33-88.3826.025.0240910.030.02067TRUETRUEVFRMETAR177.02019-07-18 14:51:07S¯¤)5   3KPMV 181435Z AUTO 19011G17KT 10SM CLR 27/23 A2977 RMK AO2 T02710231KPMV2019-07-18T14:35:00Z40.95-95.9227.123.1190111710.029.769686TRUETRUEVFRMETAR367.02019-07-18 14:51:07L¯¤) 5    3KPTB 181435Z AUTO 23007KT 10SM CLR 30/23 A2995 RMK AO2 T03020229KPTB2019-07-18T14:35:00Z37.17-77.5230.222.9230710.029.949802TRUETRUEVFRMETAR59.02019-07-18 14:51:07  -Px R¯¤)5      3KMRJ 181435Z AUTO 15012KT 10SM BKN003 BKN075 21/ A2985 RMK AO2 P0001KMRJ2019-07-18T14:35:00Z42.88-90.2321.01501210.029.84941TRUETRUELIFR0.01METAR359.02019-07-18 14:51:07R¯¤)5    3KN38 181435Z AUTO 03005KT 10SM BKN018 BKN022 OVC029 23/22 A2998 RMK AO2KN382019-07-18T14:35:00Z41.73-77.423.022.030510.029.97933TRUETRUEMVFRMETAR577.02019-07-18 14:51:07W¯¤)5     3KOWP 181435Z AUTO 20006KT 10SM CLR 30/23 A2995 RMK AO2 T03040234 PWINOKOWP2019-07-18T14:35:00Z36.18-96.1530.423.4200610.029.949802TRUETRUETRUEVFRMETAR272.02019-07-18 14:51:07M¯¤) 5    3KPCD 181435Z AUTO 16006KT 10SM CLR 26/22 A2997 RMK AO2 T02550224KPCD2019-07-18T14:35:00Z37.87-89.8725.522.4160610.029.970472TRUETRUEVFRMETAR113.02019-07-18 14:51:07 ¡M{¡T¯¤)5    3KSBO 181435Z AUTO 00000KT 10SM CLR 32/23 A3008 RMK AO2 LTG DSNT NE AND NWKSBO2019-07-18T14:35:00Z32.62-82.3732.023.00010.030.079725TRUETRUEVFRMETAR100.02019-07-18 14:51:07L¯¤) 5    3KSBS 181435Z AUTO 00000KT 10SM CLR 13/05 A3021 RMK AO1 T01280046KSBS2019-07-18T14:35:00Z40.52-106.8712.84.60010.030.209646TRUETRUEVFRMETAR2096.02019-07-18 14:51:07H¯¤(5   3KOZS 181435Z AUTO 22010G17KT 10SM CLR 29/22 A2995 RMK AO2KOZS2019-07-18T14:35:00Z37.97-92.6829.022.0220101710.029.949802TRUETRUEVFRMETAR324.02019-07-18 14:51:07_¯¤)/5    3KPBX 181435Z AUTO 24004KT 10SM SCT011 BKN024 BKN032 26/25 A3006 RMK AO2 T02560250KPBX2019-07-18T14:35:00Z37.57-82.5725.625.0240410.030.059055TRUETRUEMVFRMETAR449.02019-07-18 14:51:07 }.Kd}a¯¤!)75    3KSEF 181435Z AUTO 16003KT 10SM CLR 29/24 A3012 RMK AO2 LTG DSNT E SE AND NW T02920238KSEF2019-07-18T14:35:00Z27.45-81.3529.223.8160310.030.121063TRUETRUEVFRMETAR19.02019-07-18 14:51:07a¯¤ )75    3KREG 181435Z AUTO 22003KT 10SM BKN019 BKN027 30/25 A3008 RMK AO2 LTG DSNT E T02990249KREG2019-07-18T14:35:00Z30.17-90.9329.924.9220310.030.079725TRUETRUEMVFRMETAR4.02019-07-18 14:51:07]¯¤)'5   3KRWV 181435Z AUTO 18010G18KT 10SM SCT015 BKN022 29/24 A3005 RMK AO2 T02890243KRWV2019-07-18T14:35:00Z30.52-96.728.924.3180101810.030.050198TRUETRUEMVFRMETAR119.02019-07-18 14:51:07L¯¤) 5    3KSAR 181435Z AUTO 19007KT 10SM CLR 25/23 A2999 RMK AO2 T02530231KSAR2019-07-18T14:35:00Z38.15-89.725.323.1190710.029.991142TRUETRUEVFRMETAR164.02019-07-18 14:51:07 ².Jy²A¯¤%(y5    3KTEX 181435Z AUTO 14005KT 10SM CLR 15/00 A3046 RMK AO2KTEX2019-07-18T14:35:00Z37.95-107.915.00.0140510.030.46063TRUETRUEVFRMETAR2769.02019-07-18 14:51:07K¯¤$) 5    3KTOC 181435Z AUTO 28004KT 10SM CLR 31/22 A3007 RMK AO2 T03110221KTOC2019-07-18T14:35:00Z34.6-83.331.122.1280410.030.070866TRUETRUEVFRMETAR304.02019-07-18 14:51:07^¯¤#)/5    3KVYS 181435Z AUTO 09003KT 10SM OVC024 23/21 A2991 RMK AO2 LTG DSNT ALQS T02270214KVYS2019-07-18T14:35:00Z41.35-89.1522.721.490310.029.911417TRUETRUEMVFRSPECI199.02019-07-18 14:51:07L¯¤") 5    3K41U 181435Z AUTO 00000KT 10SM CLR 16/03 A3016 RMK AO1 T01570032K41U2019-07-18T14:35:00Z39.33-111.7215.73.20010.030.159449TRUETRUEVFRMETAR1676.02019-07-18 14:51:07Y88@HPX`hpx€ˆ˜ ¨°¸ÀÈÐØàèðø (08@HPX`hpx€ˆ˜ ¨°¸ÀÈÐØàèðø (08@HPX`hpx€ˆ˜ ¨°¸ÀÈÐØàèðø ¨°¸ÀÈÐØàèðø¦¯£§¯£¨¯£©¯£!ª¯£%«¯£)¬¯£-­¯£1®¯£5¯¯£9°¯£=±¯£A¦¯£§¯£¨¯£©¯£!ª¯£%«¯£)¬¯£-­¯£1®¯£5¯¯£9°¯£=±¯£A²¯£E³¯£I´¯£Mµ¯£Q¶¯£U·¯£Y¸¯£]¹¯£aº¯£e»¯£i¼¯£m½¯£q¾¯£u¿¯£yÀ¯£}Á¯¤¯¤ į¤ ů¤Ư¤ǯ¤ȯ¤ɯ¤!ʯ¤%̯¤)ͯ¤-ߝ¤1ϯ¤5Я¤9ѯ¤=Ò¯¤AÓ¯¤EÔ¯¤IÕ¯¤MÖ¯¤Qׯ¤Uد¤YÙ¯¤]Ú¯¤aÛ¯¤eܯ¤iݯ¤mÞ¯¤q߯¤u௝¤yᯝ¤}⯝¥㯝¥䯝¥ 寝¥ 毝¥篝¥话¥鯝¥ꯝ¥!믝¥%쯝¥)í¯¥-¥1ﯝ¥5𯝥9ñ¯¥=ò¯¥A󯝥Eô¯¥Iõ¯¥Mö¯¥Q÷¯¥Uø¯¥Yù¯¥]ú¯¥aû¯¥eü¯¥iý¯¥mþ¯¥qÿ¯¥u ».Jƒ»B¯¤)(y5    3KCNI 181435Z AUTO 27004KT 10SM CLR 27/22 A3013 RMK AO2KCNI2019-07-18T14:35:00Z34.32-84.4227.022.0270410.030.129921TRUETRUEVFRMETAR372.02019-07-18 14:51:07A¯¤((y5    3KCUL 181435Z AUTO 24003KT 10SM CLR 26/22 A2998 RMK AO2KCUL2019-07-18T14:35:00Z38.08-88.1226.022.0240310.029.97933TRUETRUEVFRMETAR118.02019-07-18 14:51:07^¯¤')'5   3KCVB 181435Z AUTO 17012G17KT 10SM SCT018 BKN023 28/21 A3005 RMK AO2 T02800211KCVB2019-07-18T14:35:00Z29.35-98.8528.021.1170121710.030.050198TRUETRUEMVFRMETAR235.02019-07-18 14:51:07L¯¤&) 5    3KD73 181435Z AUTO 28005KT 10SM CLR 29/24 A3009 RMK AO2 T02850239KD732019-07-18T14:35:00Z33.78-83.728.523.9280510.030.088583TRUETRUEVFRMETAR267.02019-07-18 14:51:07 °+c„°N¯¤-) 5    3KRGA 181435Z AUTO 23005KT 10SM BKN011 OVC020 26/24 A3003 RMK AO2KRGA2019-07-18T14:35:00Z37.63-84.3326.024.0230510.030.029528TRUETRUEMVFRMETAR305.02019-07-18 14:51:07Y¯¤,)%5    3KPXE 181435Z AUTO 27008KT 10SM CLR 32/23 A3009 RMK AO2 LTG DSNT SW T03160229KPXE2019-07-18T14:35:00Z32.52-83.7731.622.9270810.030.088583TRUETRUEVFRMETAR127.02019-07-18 14:51:07B¯¤+(y5    3KTCY 181435Z AUTO 34003KT 10SM CLR 22/12 A2988 RMK A01KTCY2019-07-18T14:35:00Z37.68-121.4322.012.0340310.029.878937TRUETRUEVFRMETAR59.02019-07-18 14:51:07O¯¤*)5    3KCJR 181435Z AUTO 28003KT 10SM OVC070 30/21 A2992 RMK AO2 T03030214KCJR2019-07-18T14:35:00Z38.53-77.8730.321.4280310.029.920275TRUETRUEVFRMETAR97.02019-07-18 14:51:07 ½I½L¯¤1) 5    3KRKW 181435Z AUTO VRB05KT 10SM BKN013 BKN018 26/22 A3011 RMK A01KRKW2019-07-18T14:35:00Z35.92-84.6826.022.00510.030.109253TRUETRUEMVFRMETAR508.02019-07-18 14:51:074¯¤0(o5   3KPMU 181435Z AUTO 24006KT CLR 28/25 A3005 RMK AO2KPMU2019-07-18T14:35:00Z34.37-89.928.025.0240630.050198TRUETRUEMETAR67.02019-07-18 14:51:07N¯¤/)5    3KPKV 181435Z AUTO 18007KT 10SM SCT021 30/25 A3003 RMK AO2 T03020253KPKV2019-07-18T14:35:00Z28.65-96.6830.225.3180710.030.029528TRUETRUEVFRMETAR9.02019-07-18 14:51:07]¯¤.)'5   3KERV 181435Z AUTO 18013G19KT 10SM SCT019 SCT026 26/21 A3007 RMK AO2 T02610214KERV2019-07-18T14:35:00Z29.98-99.0826.121.4180131910.030.070866TRUETRUEVFRMETAR510.02019-07-18 14:51:07 ¬!T¬M¯¤5) 5    3KSLO 181435Z AUTO 21007KT 10SM CLR 27/24 A2997 RMK AO2 T02740235KSLO2019-07-18T14:35:00Z38.65-88.9727.423.5210710.029.970472TRUETRUEVFRMETAR175.02019-07-18 14:51:07O¯¤4) 5    3KSOA 181435Z AUTO 12014KT 10SM SCT019 SCT024 26/20 A3010 RMK AO2KSOA2019-07-18T14:35:00Z30.58-100.6526.020.01201410.030.100393TRUETRUEVFRMETAR652.02019-07-18 14:51:07G¯¤3(5   3KSZT 181435Z AUTO 24007G15KT 10SM CLR 17/10 A2980 RMK AO2KSZT2019-07-18T14:35:00Z48.3-116.5717.010.024071510.029.799213TRUETRUEVFRMETAR648.02019-07-18 14:51:07Y¯¤2)%5    3K2J3 181435Z AUTO 27005KT 10SM CLR 31/24 A3007 RMK AO2 LTG DSNT SW T03060239K2J32019-07-18T14:35:00Z32.98-82.3830.623.9270510.030.070866TRUETRUEVFRMETAR100.02019-07-18 14:51:07 ‰$SX‰I¯¤9) 5    3KLNQ 181435Z AUTO 00000KT 10SM CLR 30/25 A3010 RMK AO2 T02970249KLNQ2019-07-18T14:35:00Z29.35-89.4329.724.90010.030.100393TRUETRUEVFRMETAR1.02019-07-18 14:51:07u¯¤8)I5      3KDKB 181435Z AUTO 11006KT 7SM -VCTSRA OVC003 22/22 A2992 RMK AO2 LTG DSNT ALQS P0010 T02200220KDKB2019-07-18T14:35:00Z41.93-88.722.022.011067.029.920275TRUETRUEVCTS -RALIFR0.1METAR279.02019-07-18 14:51:07K¯¤7)5   3KDTA 181435Z AUTO 17018G22KT 10SM CLR 26/M01 A3007 RMK AO1KDTA2019-07-18T14:35:00Z39.38-112.526.0-1.0170182210.030.070866TRUETRUEVFRMETAR1402.02019-07-18 14:51:07V¯¤6)%5    3KDQH 181435Z AUTO 00000KT 10SM CLR 29/24 A3010 RMK AO2 LTG DSNT SW T02930236KDQH2019-07-18T14:35:00Z31.48-82.8729.323.60010.030.100393TRUETRUEVFRMETAR78.02019-07-18 14:51:07 ³-Z‹³R¯¤=)5   3KELK 181435Z AUTO 20019G22KT 10SM CLR 28/21 A2993 RMK AO2 T02750205KELK2019-07-18T14:35:00Z35.43-99.427.520.5200192210.029.929134TRUETRUEVFRMETAR610.02019-07-18 14:51:07I¯¤<(5   3KEMM 181435Z AUTO 24011G17KT 10SM CLR 19/00 A3017 RMK AO2KEMM2019-07-18T14:35:00Z41.82-110.5519.00.0240111710.030.171259TRUETRUEVFRMETAR2220.02019-07-18 14:51:07M¯¤;) 5    3KJZP 181435Z AUTO 35006KT 10SM CLR 27/21 A3016 RMK AO2 T02650207KJZP2019-07-18T14:35:00Z34.45-84.4726.520.7350610.030.159449TRUETRUEVFRMETAR468.02019-07-18 14:51:07M¯¤:) 5    3KLKU 181435Z AUTO 27006KT 10SM CLR 29/23 A2997 RMK AO2 T02950234KLKU2019-07-18T14:35:00Z38.02-77.9729.523.4270610.029.970472TRUETRUEVFRMETAR150.02019-07-18 14:51:07 ©4e€©Q¯¤A)5   3KSFQ 181435Z AUTO 22011G17KT 10SM CLR 30/24 A2996 RMK AO2 T02970242KSFQ2019-07-18T14:35:00Z36.68-76.629.724.2220111710.029.958662TRUETRUEVFRMETAR22.02019-07-18 14:51:07_¯¤@)/5    3KSJS 181435Z AUTO 24003KT 10SM SCT012 BKN025 BKN030 25/24 A3004 RMK AO2 T02530236KSJS2019-07-18T14:35:00Z37.75-82.6325.323.6240310.030.041338TRUETRUEMVFRMETAR372.02019-07-18 14:51:07I¯¤?(5   3KDUB 181435Z AUTO 27017G23KT 10SM CLR 20/03 A3006 RMK AO2KDUB2019-07-18T14:35:00Z43.55-109.6820.03.0270172310.030.059055TRUETRUEVFRMETAR2224.02019-07-18 14:51:07F¯¤>(5    3KDVK 181435Z AUTO 24007KT 10SM OVC019 28/22 A3005 RMK AO2KDVK2019-07-18T14:35:00Z37.58-84.7728.022.0240710.030.050198TRUETRUEMVFRMETAR312.02019-07-18 14:51:07 ¨0R{¨M¯¤E) 5    3KPRG 181435Z AUTO 23010KT 10SM CLR 29/24 A2997 RMK AO2 T02860244KPRG2019-07-18T14:35:00Z39.7-87.6728.624.42301010.029.970472TRUETRUEVFRSPECI199.02019-07-18 14:51:07Q¯¤D)5   3KPTT 181435Z AUTO 20022G25KT 10SM CLR 30/19 A2985 RMK AO2 T02950186KPTT2019-07-18T14:35:00Z37.7-98.7529.518.6200222510.029.84941TRUETRUEVFRMETAR595.02019-07-18 14:51:07X¯¤C)#5    3KRCR 181435Z AUTO 23006KT 10SM SCT060 SCT070 29/24 A2994 RMK AO2 LTG DSNT WKRCR2019-07-18T14:35:00Z41.07-86.1829.024.0230610.029.940945TRUETRUEVFRSPECI241.02019-07-18 14:51:07J¯¤B) 5    3KRLD 181435Z AUTO 00000KT 10SM CLR 21/13 A2990 RMK AO2 T02090125KRLD2019-07-18T14:35:00Z46.3-119.320.912.50010.029.899607TRUETRUEVFRMETAR120.02019-07-18 14:51:07  ,Sf @¯¤I(y5    3KPNA 181435Z AUTO 29003KT 10SM CLR 15/06 A3015 RMK AO2KPNA2019-07-18T14:35:00Z42.8-109.815.06.0290310.030.15059TRUETRUEVFRMETAR2160.02019-07-18 14:51:07g¯¤H)E5    3KPNT 181435Z AUTO 00000KT 10SM BKN065 BKN075 29/23 A2992 RMK AO2 LTG DSNT N AND NE T02850232KPNT2019-07-18T14:35:00Z40.92-88.6228.523.20010.029.920275TRUETRUEVFRMETAR201.02019-07-18 14:51:07S¯¤G)5   3KPPA 181435Z AUTO 20017G23KT 10SM CLR 29/16 A2996 RMK AO2 T02850163KPPA2019-07-18T14:35:00Z35.62-101.028.516.3200172310.029.958662TRUETRUEVFRMETAR989.02019-07-18 14:51:07N¯¤F) 5    3KPPQ 181435Z AUTO 22010KT 10SM CLR 28/25 A2991 RMK AO2 T02800245KPPQ2019-07-18T14:35:00Z39.63-90.7828.024.52201010.029.911417TRUETRUEVFRMETAR216.02019-07-18 14:51:07 ¼-_¼K¯¤M)5    3KM30 181435Z AUTO 25003KT 10SM SCT120 25/23 A3000 RMK AO2 T02500227KM302019-07-18T14:35:00Z37.18-88.7525.022.7250310.030.0TRUETRUEVFRMETAR117.02019-07-18 14:51:07L¯¤L) 5    3KMLE 181435Z AUTO 20006KT 10SM CLR 30/23 A2976 RMK AO2 T03000228KMLE2019-07-18T14:35:00Z41.2-96.1230.022.8200610.029.760826TRUETRUEVFRMETAR320.02019-07-18 14:51:07H¯¤K(5   3KOJA 181435Z AUTO 20014G20KT 10SM CLR 28/21 A2994 RMK AO2KOJA2019-07-18T14:35:00Z35.55-98.6728.021.0200142010.029.940945TRUETRUEVFRMETAR490.02019-07-18 14:51:07M¯¤J) 5    3KPEQ 181435Z AUTO 12003KT 10SM CLR 30/15 A2998 RMK AO2 T03000147KPEQ2019-07-18T14:35:00Z31.38-103.5230.014.7120310.029.97933TRUETRUEVFRMETAR797.02019-07-18 14:51:07 µ.[}µB¯¤Q(y5    3KJYR 181435Z AUTO 17011KT 10SM CLR 28/22 A2977 RMK AO2KJYR2019-07-18T14:35:00Z40.9-97.6228.022.01701110.029.769686TRUETRUEVFRMETAR509.02019-07-18 14:51:07X¯¤P)%5    3KLGC 181435Z AUTO 27004KT 10SM CLR 30/23 A3010 RMK AO2 LTG DSNT SW T02990231KLGC2019-07-18T14:35:00Z33.0-85.0729.923.1270410.030.100393TRUETRUEVFRMETAR211.02019-07-18 14:51:07M¯¤O) 5    3KLNP 181435Z AUTO 24007KT 10SM SCT015 BKN025 24/20 A3015 RMK AO2KLNP2019-07-18T14:35:00Z36.97-82.5224.020.0240710.030.15059TRUETRUEMVFRMETAR817.02019-07-18 14:51:07L¯¤N) 5    3KLVL 181435Z AUTO 22004KT 10SM CLR 30/23 A2996 RMK AO1 T03000232KLVL2019-07-18T14:35:00Z36.78-77.830.023.2220410.029.958662TRUETRUEVFRMETAR100.02019-07-18 14:51:07 ž,XožK¯¤U)5    3KIKG 181435Z AUTO 15010KT 10SM SCT024 31/25 A3000 RMK AO2 T03110251KIKG2019-07-18T14:35:00Z27.55-98.0331.125.11501010.030.0TRUETRUEVFRMETAR40.02019-07-18 14:51:07c¯¤T)95    3KIKK 181435Z AUTO 24006KT 10SM BKN085 27/22 A2992 RMK AO2 LTG DSNT NW THRU E T02710221KIKK2019-07-18T14:35:00Z41.07-87.8527.122.1240610.029.920275TRUETRUEVFRMETAR192.02019-07-18 14:51:07N¯¤S)%5     3KIYA 181435Z AUTO 00000KT 10SM BKN018 BKN025 BKN030 A3008 RMK AO2 LTG DSNT EKIYA2019-07-18T14:35:00Z29.98-92.080010.030.079725TRUETRUEMVFRMETAR5.02019-07-18 14:51:07N¯¤R) 5    3KJYO 181435Z AUTO 30008KT 10SM BKN027 BKN035 29/24 A2992 RMK AO2KJYO2019-07-18T14:35:00Z39.07-77.5729.024.0300810.029.920275TRUETRUEMVFRMETAR119.02019-07-18 14:51:07 ¢)^€¢X¯¤Y)!5    3KHMZ 181435Z AUTO 36006KT 10SM BKN029 OVC033 26/21 A2997 RMK AO2 T02570211KHMZ2019-07-18T14:35:00Z40.08-78.5225.721.1360610.029.970472TRUETRUEMVFRMETAR354.02019-07-18 14:51:07X¯¤X)5     3KHTO 181435Z AUTO 00000KT 10SM OVC004 23/22 A2994 RMK AO2 P0001 T02300224KHTO2019-07-18T14:35:00Z40.95-72.2523.022.40010.029.940945TRUETRUELIFR0.01METAR17.02019-07-18 14:51:07E¯¤W(}5     3KHYW 181435Z AUTO 24004KT 5SM HZ CLR 30/23 A3003 RMK AO2KHYW2019-07-18T14:35:00Z33.83-79.1230.023.024045.030.029528TRUETRUEHZMVFRMETAR11.02019-07-18 14:51:07Q¯¤V)5   3KI63 181435Z AUTO 21008G11KT 10SM CLR 28/23 A2987 RMK AO2 T02760231KI632019-07-18T14:35:00Z39.98-90.827.623.121081110.029.870079TRUETRUEVFRMETAR223.02019-07-18 14:51:07 ¡(Pz¡S¯¤])5   3KGDJ 181435Z AUTO 17013G17KT 10SM CLR 28/21 A3003 RMK AO2 T02840207KGDJ2019-07-18T14:35:00Z32.45-97.8228.420.7170131710.030.029528TRUETRUEVFRMETAR237.02019-07-18 14:51:07P¯¤\) 5    3KGNC 181435Z AUTO 21013KT 10SM CLR 28/15 A3005 RMK AO2 T02810146KGNC2019-07-18T14:35:00Z32.68-102.6528.114.62101310.030.050198TRUETRUEVFRMETAR1010.02019-07-18 14:51:07R¯¤[)5   3KHBV 181435Z AUTO 18008G17KT 10SM CLR 29/21 A3001 RMK AO2 T02860211KHBV2019-07-18T14:35:00Z27.35-98.7328.621.118081710.030.008858TRUETRUEVFRMETAR202.02019-07-18 14:51:07R¯¤Z)5   3KHDE 181435Z AUTO 23009G16KT 10SM CLR 27/21 A2978 RMK AO2 T02670206KHDE2019-07-18T14:35:00Z40.45-99.3226.720.623091610.029.778543TRUETRUEVFRMETAR705.02019-07-18 14:51:07 wBpws¯¤a)K5     3KFEP 181435Z AUTO 07004KT 7SM -VCTSRA BKN004 OVC009 21/21 A2994 RMK AO2 LTG DSNT ALQS T02110211KFEP2019-07-18T14:35:00Z42.25-89.5821.121.17047.029.940945TRUETRUEVCTS -RALIFRMETAR262.02019-07-18 14:51:07L¯¤`) 5    3KFWC 181435Z AUTO 23005KT 10SM CLR 27/23 A2998 RMK AO1 T02650234KFWC2019-07-18T14:35:00Z38.38-88.4226.523.4230510.029.97933TRUETRUEVFRMETAR133.02019-07-18 14:51:07Q¯¤_)5   3KFYJ 181435Z AUTO 23010G14KT 10SM CLR 30/25 A2993 RMK AO1 T03010245KFYJ2019-07-18T14:35:00Z37.52-76.7730.124.5230101410.029.929134TRUETRUEVFRMETAR7.02019-07-18 14:51:07a¯¤^)15     3KFZG 181435Z AUTO 00000KT 10SM CLR 32/24 A3010 RMK AO2 LTG DSNT SW T03240239 PWINOKFZG2019-07-18T14:35:00Z31.68-83.2732.423.90010.030.100393TRUETRUETRUEVFRMETAR111.02019-07-18 14:51:07 ³-J~³E¯¤e(5    3KRNC 181435Z AUTO 24007KT 10SM OVC016 25/23 A3009 RMK A01KRNC2019-07-18T14:35:00Z35.7-85.8525.023.0240710.030.088583TRUETRUEMVFRMETAR315.02019-07-18 14:51:07F¯¤d(5    3KSME 181435Z AUTO 23009KT 10SM BKN021 26/22 A3007 RMK AO2KSME2019-07-18T14:35:00Z37.05-84.6226.022.0230910.030.070866TRUETRUEMVFRMETAR283.02019-07-18 14:51:07]¯¤c)+5     3KSFY 181435Z AUTO 08005KT 10SM TS OVC033 22/21 A2987 RMK AO2 LTG DSNT NE AND SEKSFY2019-07-18T14:35:00Z42.05-90.1222.021.080510.029.870079TRUETRUETSVFRMETAR188.02019-07-18 14:51:07M¯¤b) 5    3KETN 181435Z AUTO 17013KT 10SM CLR 27/20 A3002 RMK AO2 T02700205KETN2019-07-18T14:35:00Z32.42-98.8227.020.51701310.030.02067TRUETRUEVFRMETAR446.02019-07-18 14:51:07 ¶-O}¶A¯¤i(y5    3KRTS 181435Z AUTO VRB04KT 10SM CLR 20/07 A3011 RMK AO2KRTS2019-07-18T14:35:00Z39.67-119.8820.07.00410.030.109253TRUETRUEVFRMETAR1540.02019-07-18 14:51:07L¯¤h) 5    3KRSV 181435Z AUTO 24006KT 10SM CLR 27/23 A2998 RMK AO2 T02680229KRSV2019-07-18T14:35:00Z39.02-87.6526.822.9240610.029.97933TRUETRUEVFRMETAR141.02019-07-18 14:51:07X¯¤g)!5    3KRNH 181435Z AUTO 21003KT 10SM SCT021 OVC029 22/20 A2974 RMK AO2 T02200195KRNH2019-07-18T14:35:00Z45.15-92.5322.019.5210310.029.740158TRUETRUEMVFRMETAR304.02019-07-18 14:51:07M¯¤f) 5    3KCKZ 181435Z AUTO 12004KT 10SM BKN008 OVC013 26/26 A2992 RMK AO2KCKZ2019-07-18T14:35:00Z40.38-75.2826.026.0120410.029.920275TRUETRUEIFRMETAR173.02019-07-18 14:51:07 Ñ5m£ÑL¯¤m) 5    3KRZR 181435Z AUTO 25006KT 10SM FEW024 FEW080 28/24 A3009 RMK A01KRZR2019-07-18T14:35:00Z35.22-84.828.024.0250610.030.088583TRUETRUEVFRMETAR263.02019-07-18 14:51:07D¯¤l(5    3KS39 181435Z AUTO 29006KT 10SM FEW048 17/11 A3002 RMK AO2KS392019-07-18T14:35:00Z44.28-120.917.011.0290610.030.02067TRUETRUEVFRMETAR991.02019-07-18 14:51:07B¯¤k(y5    3KSAA 181435Z AUTO 15009KT 10SM CLR 20/02 A3015 RMK AO2KSAA2019-07-18T14:35:00Z41.45-106.8320.02.0150910.030.15059TRUETRUEVFRMETAR2138.02019-07-18 14:51:07E¯¤j(5    3KSCX 181435Z AUTO 26006KT 10SM SCT022 27/22 A3009 RMK A01KSCX2019-07-18T14:35:00Z36.45-84.5827.022.0260610.030.088583TRUETRUEVFRMETAR471.02019-07-18 14:51:07 q<qE¯¤q(5    3KSNH 181435Z AUTO 27008KT 10SM FEW015 29/25 A3006 RMK A01KSNH2019-07-18T14:35:00Z35.17-88.2229.025.0270810.030.059055TRUETRUEVFRMETAR144.02019-07-18 14:51:07S¯¤p)5   3KSNK 181435Z AUTO 19016G23KT 10SM CLR 27/20 A3001 RMK AO2 T02670202KSNK2019-07-18T14:35:00Z32.7-100.9526.720.2190162310.030.008858TRUETRUEVFRMETAR741.02019-07-18 14:51:07‚¯¤o)a5     3KRYV 181435Z AUTO 16014G20KT 10SM -RA SCT100 OVC120 21/21 A2982 RMK AO2 LTG DSNT SW AND NW P0001 T02080208KRYV2019-07-18T14:35:00Z43.17-88.7220.820.8160142010.029.819881TRUETRUE-RAVFR0.01METAR254.02019-07-18 14:51:07^¯¤n)/5    3KRZN 181435Z AUTO 20005KT 10SM SCT015 SCT039 OVC070 25/21 A2972 RMK AO2 T02470209KRZN2019-07-18T14:35:00Z45.82-92.3724.720.9200510.029.719488TRUETRUEVFRMETAR301.02019-07-18 14:51:07 ¨7_…¨W¯¤u)5   3KT20 181435Z AUTO 17010G16KT 10SM OVC017 30/25 A3003 RMK AO2 T02950250KT202019-07-18T14:35:00Z29.52-97.4729.525.0170101610.030.029528TRUETRUEMVFRMETAR108.02019-07-18 14:51:07T¯¤t)5   3KSWW 181435Z AUTO 18018G24KT 10SM CLR 28/20 A3003 RMK AO2 T02770201KSWW2019-07-18T14:35:00Z32.47-100.4727.720.1180182410.030.029528TRUETRUEVFRMETAR727.02019-07-18 14:51:07R¯¤s)5   3KSEP 181435Z AUTO 19008G16KT 10SM CLR 26/21 A3006 RMK AO2 T02640206KSEP2019-07-18T14:35:00Z32.22-98.1726.420.619081610.030.059055TRUETRUEVFRMETAR402.02019-07-18 14:51:07C¯¤r(y5    3KSEZ 181435Z AUTO 09004KT 10SM CLR 26/11 A3018 RMK AO2KSEZ2019-07-18T14:35:00Z34.85-111.7826.011.090410.030.180119TRUETRUEVFRMETAR1473.02019-07-18 14:51:07 ˜Bg˜I¯¤y(5   3KSRR 181435Z AUTO 30012G18KT 10SM CLR 24/07 A3026 RMK AO2KSRR2019-07-18T14:35:00Z33.47-105.5224.07.0300121810.030.259842TRUETRUEVFRMETAR2076.02019-07-18 14:51:07U¯¤x)!5    3KRMN 181435Z AUTO 25003KT 10SM SCT060 OVC075 32/25 A2995 RMK AO2 T03150249KRMN2019-07-18T14:35:00Z38.4-77.4531.524.9250310.029.949802TRUETRUEVFRMETAR65.02019-07-18 14:51:07T¯¤w)5    3KSRB 181435Z AUTO 24006KT 10SM SCT017 BKN050 BKN065 27/23 A3009 RMK A01KSRB2019-07-18T14:35:00Z36.05-85.5327.023.0240610.030.088583TRUETRUEVFRMETAR313.02019-07-18 14:51:07^¯¤v)'5   3KT35 181435Z AUTO 19012G17KT 10SM BKN019 BKN026 29/24 A3003 RMK AO2 T02900236KT352019-07-18T14:35:00Z30.88-96.9729.023.6190121710.030.029528TRUETRUEMVFRMETAR123.02019-07-18 14:51:07 ­*Vx­E¯¤}(5    3KSYI 181435Z AUTO 22004KT 10SM SCT014 26/24 A3008 RMK A01KSYI2019-07-18T14:35:00Z35.57-86.4526.024.0220410.030.079725TRUETRUEVFRMETAR245.02019-07-18 14:51:07X¯¤|)!5    3KMDQ 181435Z AUTO 19004KT 10SM BKN027 BKN120 25/23 A3010 RMK A02 T02500225KMDQ2019-07-18T14:35:00Z34.87-86.5525.022.5190410.030.100393TRUETRUEMVFRMETAR230.02019-07-18 14:51:07N¯¤{) 5    3KSYF 181435Z AUTO 29004KT 10SM CLR 27/11 A2986 RMK AO2 T02680113KSYF2019-07-18T14:35:00Z39.77-101.826.811.3290410.029.861221TRUETRUEVFRMETAR1025.02019-07-18 14:51:07P¯¤z) 5    3KSVC 181435Z AUTO 31014KT 10SM CLR 25/12 A3017 RMK AO2 T02520116KSVC2019-07-18T14:35:00Z32.63-108.1525.211.63101410.030.171259TRUETRUEVFRMETAR1659.02019-07-18 14:51:07 Ó,c›ÓB¯¥(y5    3KUCY 181435Z AUTO 21006KT 10SM CLR 27/25 A3001 RMK A01KUCY2019-07-18T14:35:00Z36.38-88.9827.025.0210610.030.008858TRUETRUEVFRMETAR104.02019-07-18 14:51:07B¯¥(y5    3KUSE 181435Z AUTO 21009KT 10SM CLR 29/29 A2994 RMK AO2KUSE2019-07-18T14:35:00Z41.62-84.1329.029.0210910.029.940945TRUETRUEVFRMETAR238.02019-07-18 14:51:07C¯¤({5    3KUTA 181435Z AUTO 21004KT 10SM 28/25 A3005 RMK AO2 TSNOKUTA2019-07-18T14:35:00Z34.68-90.3528.025.0210410.030.050198TRUETRUETRUEMETAR59.02019-07-18 14:51:07N¯¤~)5    3KVBW 181435Z AUTO 00000KT 10SM OVC042 27/23 A2997 RMK AO1 T02730227KVBW2019-07-18T14:35:00Z38.37-78.9727.322.70010.029.970472TRUETRUEVFRMETAR355.02019-07-18 14:51:07 ¬"Us¬A¯¥)5     3KTMA 181435Z AUTO 22004KT 10SM CLR A3009 RMK AO2 LTG DSNT SWKTMA2019-07-18T14:35:00Z31.43-83.48220410.030.088583TRUETRUEVFRMETAR109.02019-07-18 14:51:07\¯¥)/5    3KTNB 181435Z AUTO 00000KT 10SM BKN014 BKN021 BKN030 22/19 A3016 RMK AO2 T02230185KTNB2019-07-18T14:35:00Z36.2-81.6522.318.50010.030.159449TRUETRUEMVFRMETAR911.02019-07-18 14:51:07G¯¥(5   3KTQH 181435Z AUTO 20011G16KT 10SM CLR 29/22 A2999 RMK AO2KTQH2019-07-18T14:35:00Z35.93-95.029.022.0200111610.029.991142TRUETRUEVFRMETAR266.02019-07-18 14:51:07X¯¥)#5    3KUBE 181435Z AUTO 19008KT 10SM OVC011 21/19 A2974 RMK AO2 LTG DSNT NE AND EKUBE2019-07-18T14:35:00Z45.5-91.9821.019.0190810.029.740158TRUETRUEMVFRMETAR379.02019-07-18 14:51:07 Û8|´ÛS¯¥ )5   3KIJX 181435Z AUTO 21011G17KT 10SM CLR 28/24 A2989 RMK AO2 T02790237KIJX2019-07-18T14:35:00Z39.77-90.2527.923.7210111710.029.890747TRUETRUEVFRMETAR190.02019-07-18 14:51:07B¯¥(5    3KIKT 181435Z AUTO 00000KT 10SM FEW017 33/24 A3012 RMK A01KIKT2019-07-18T14:35:00Z28.52-88.2833.024.00010.030.121063TRUETRUEVFRMETAR25.02019-07-18 14:51:076¯¥(i5    3KTBX 181435Z AUTO 10SM CLR 20/02 A3015 RMK AO2KTBX2019-07-18T14:35:00Z43.47-108.2320.02.010.030.15059TRUETRUEVFRMETAR2225.02019-07-18 14:51:07B¯¥(y5    3KTHA 181435Z AUTO 24005KT 10SM CLR 25/22 A3009 RMK A01KTHA2019-07-18T14:35:00Z35.38-86.2525.022.0240510.030.088583TRUETRUEVFRMETAR331.02019-07-18 14:51:07 ¤Nz¤P¯¥ )5    3KSYN 181435Z AUTO 08004KT 10SM OVC019 23/20 A2973 RMK AO2 T02260202KSYN2019-07-18T14:35:00Z44.47-93.0222.620.280410.029.731298TRUETRUEMVFRMETAR280.02019-07-18 14:51:07N¯¥ ) 5    3KTIP 181435Z AUTO 23010KT 10SM CLR 28/24 A2994 RMK AO2 T02800238KTIP2019-07-18T14:35:00Z40.28-88.1528.023.82301010.029.940945TRUETRUEVFRMETAR225.02019-07-18 14:51:07K¯¥ ) 5    3KTKV 181435Z AUTO 00000KT 10SM CLR 24/20 A2977 RMK AO2 T02390198KTKV2019-07-18T14:35:00Z45.47-89.8223.919.80010.029.769686TRUETRUEVFRMETAR453.02019-07-18 14:51:07[¯¥ )'5   3KTXW 181435Z AUTO 18014G19KT 10SM SCT024 BKN110 30/23 A2998 RMK AO2 T03020234KTXW2019-07-18T14:35:00Z26.18-97.9730.223.4180141910.029.97933TRUETRUEVFRMETAR21.02019-07-18 14:51:07 ¡'O~¡W¯¥)!5    3KRYW 181435Z AUTO 21004KT 10SM BKN017 OVC025 27/22 A3007 RMK AO2 T02650224KRYW2019-07-18T14:35:00Z30.5-97.9726.522.4210410.030.070866TRUETRUEMVFRMETAR376.02019-07-18 14:51:07K¯¥)5    3KS52 181435Z AUTO 34009KT CLR 17/03 A2986 RMK AO2 PWINO T01700027KS522019-07-18T14:35:00Z48.38-120.1517.02.7340929.861221TRUETRUETRUEMETAR520.02019-07-18 14:51:07R¯¥)5    3KSLR 181435Z AUTO 22013KT 10SM BKN019 29/23 A3005 RMK AO2 T02870230KSLR2019-07-18T14:35:00Z33.17-95.6228.723.02201310.030.050198TRUETRUEMVFRMETAR149.02019-07-18 14:51:07S¯¥)5   3KSNL 181435Z AUTO 20014G21KT 10SM CLR 29/22 A2996 RMK AO2 T02900217KSNL2019-07-18T14:35:00Z35.35-96.9529.021.7200142110.029.958662TRUETRUEVFRMETAR327.02019-07-18 14:51:07 Ž+5cŽO¯¥) 5    3KRCV 181435Z AUTO 28010KT 10SM CLR 19/02 A3035 RMK AO2 T01870021KRCV2019-07-18T14:35:00Z37.72-106.3518.72.12801010.030.351377TRUETRUEVFRMETAR2424.02019-07-18 14:51:07L¯¥) 5    3KRNV 181435Z AUTO 24007KT 10SM CLR 29/28 A3005 RMK AO2 T02850276KRNV2019-07-18T14:35:00Z33.77-90.7528.527.6240710.030.050198TRUETRUEVFRMETAR41.02019-07-18 14:51:07p¯¥)I5     3KRPJ 181435Z AUTO 13009KT 10SM BKN003 OVC060 22/22 A2990 RMK AO2 LTG DSNT ALQS P0001 T02200220KRPJ2019-07-18T14:35:00Z41.88-89.0822.022.0130910.029.899607TRUETRUELIFR0.01METAR238.02019-07-18 14:51:07O¯¥)5    3KRSN 181435Z AUTO 21008KT 10SM SCT013 27/23 A3011 RMK AO2 T02690233KRSN2019-07-18T14:35:00Z32.52-92.5826.923.3210810.030.109253TRUETRUEVFRMETAR95.02019-07-18 14:51:07 ¿;t¿K¯¥)5    3KPUJ 181435Z AUTO 00000KT 7SM CLR 28/21 A3012 RMK AO2 LTG DSNT SEKPUJ2019-07-18T14:35:00Z33.92-84.9328.021.0007.030.121063TRUETRUEVFRMETAR393.02019-07-18 14:51:07^¯¥)5    3KPVW 181435Z AUTO 21017G20KT 10SM CLR 27/16 A2999 RMK AO2 T02650157 TSNOKPVW2019-07-18T14:35:00Z34.17-101.7226.515.7210172010.029.991142TRUETRUETRUEVFRMETAR1028.02019-07-18 14:51:07A¯¥(y5    3KRAS 181435Z AUTO 16010KT 10SM CLR 30/26 A3003 RMK AO2KRAS2019-07-18T14:35:00Z27.82-97.0830.026.01601010.030.029528TRUETRUEVFRMETAR2.02019-07-18 14:51:07?¯¥(y5    3KRBW 181435Z AUTO 00000KT 10SM CLR 31/23 A3006 RMK AO2KRBW2019-07-18T14:35:00Z32.92-80.6331.023.00010.030.059055TRUETRUEVFRMETAR31.02019-07-18 14:51:07 ¶#O‡¶K¯¥) 5    3KPLU 181435Z AUTO VRB04KT 10SM FEW044 OVC055 15/12 A3004 RMK AO2KPLU2019-07-18T14:35:00Z47.1-122.2815.012.00410.030.041338TRUETRUEVFRMETAR164.02019-07-18 14:51:07B¯¥(y5    3KPOY 181435Z AUTO 35004KT 10SM CLR 21/05 A2988 RMK AO2KPOY2019-07-18T14:35:00Z44.87-108.821.05.0350410.029.878937TRUETRUEVFRMETAR1552.02019-07-18 14:51:07N¯¥) 5    3KPRS 181435Z AUTO 13005KT 10SM CLR 28/16 A3007 RMK AO2 T02790155KPRS2019-07-18T14:35:00Z29.63-104.3527.915.5130510.030.070866TRUETRUEVFRMETAR896.02019-07-18 14:51:07W¯¥)!5    3KPSN 181435Z AUTO 18008KT 10SM BKN015 BKN022 27/24 A3006 RMK AO2 T02730243KPSN2019-07-18T14:35:00Z31.78-95.727.324.3180810.030.059055TRUETRUEMVFRMETAR129.02019-07-18 14:51:07 œ-TyœW¯¥!)!5    3KJAS 181435Z AUTO 21005KT 10SM BKN012 BKN018 28/26 A3009 RMK AO2 T02810256KJAS2019-07-18T14:35:00Z30.88-94.0328.125.6210510.030.088583TRUETRUEMVFRMETAR65.02019-07-18 14:51:07U¯¥ )5     3KPDC 181435Z AUTO 00000KT 10SM -DZ OVC009 20/20 A2984 RMK AO2 T02030196KPDC2019-07-18T14:35:00Z43.02-91.1220.319.60010.029.840551TRUETRUE-DZIFRMETAR201.02019-07-18 14:51:07S¯¥)5   3KPEZ 181435Z AUTO 18010G18KT 10SM CLR 29/21 A3003 RMK AO2 T02900207KPEZ2019-07-18T14:35:00Z28.95-98.5229.020.7180101810.030.029528TRUETRUEVFRMETAR132.02019-07-18 14:51:07M¯¥) 5    3KPIM 181435Z AUTO 24004KT 10SM CLR 30/24 A3011 RMK AO2 T02960235KPIM2019-07-18T14:35:00Z32.83-84.8829.623.5240410.030.109253TRUETRUEVFRMETAR275.02019-07-18 14:51:07 ©(]–©g¯¥%)G5    3KJKA 181435Z AUTO 00000KT 10SM SCT019 BKN028 BKN032 30/25 A3009 RMK AO2 LTG DSNT SE T03000252KJKA2019-07-18T14:35:00Z30.28-87.6730.025.20010.030.088583TRUETRUEMVFRMETAR5.02019-07-18 14:51:07A¯¥$(y5    3KJGG 181435Z AUTO 22003KT 10SM CLR 31/24 A2994 RMK AO1KJGG2019-07-18T14:35:00Z37.23-76.7231.024.0220310.029.940945TRUETRUEVFRMETAR15.02019-07-18 14:51:07E¯¥#(5    3KJDD 181435Z AUTO 18009KT 10SM BKN019 28/23 A3004 RMK AO2KJDD2019-07-18T14:35:00Z32.75-95.528.023.0180910.030.041338TRUETRUEMVFRMETAR132.02019-07-18 14:51:07R¯¥") 5    3KFTK 181435Z AUTO 26007KT 10SM SCT017 27/22 A3002 RMK AO2 SLP161KFTK2019-07-18T14:35:00Z37.88-85.9727.022.0260710.030.020671016.1TRUETRUEVFRSPECI230.02019-07-18 14:51:07 Œ3HmŒ[¯¥))/5    3KOPL 181435Z AUTO 00000KT 10SM SCT012 BKN026 BKN030 28/25 A3008 RMK AO2 T02830253KOPL2019-07-18T14:35:00Z30.55-92.128.325.30010.030.079725TRUETRUEMVFRMETAR23.02019-07-18 14:51:07U¯¥()5   3KOSA 181435Z AUTO 21012G16KT 10SM SCT017 28/23 A3005 RMK AO1 T02790225KOSA2019-07-18T14:35:00Z33.1-94.9727.922.5210121610.030.050198TRUETRUEVFRMETAR111.02019-07-18 14:51:07e¯¥')95     3KLNA 181435Z AUTO 12007KT 10SM VCTS SCT029 32/24 A3011 RMK AO2 LTG DSNT ALQS T03180244KLNA2019-07-18T14:35:00Z26.6-80.0231.824.4120710.030.109253TRUETRUEVCTSVFRMETAR11.02019-07-18 14:51:07G¯¥&(5   3KJSV 181435Z AUTO 23010G14KT 10SM CLR 30/23 A2999 RMK AO2KJSV2019-07-18T14:35:00Z35.43-94.830.023.0230101410.029.991142TRUETRUEVFRMETAR161.02019-07-18 14:51:07 ¿.]˜¿S¯¥-)5   3KJWG 181435Z AUTO 19014G22KT 10SM CLR 29/21 A2994 RMK AO2 T02910214KJWG2019-07-18T14:35:00Z35.87-98.4229.121.4190142210.029.940945TRUETRUEVFRMETAR472.02019-07-18 14:51:07?¯¥,(w5    3KL35 181435Z AUTO 00000KT 7SM CLR 13/01 A3024 RMK AO2KL352019-07-18T14:35:00Z34.27-116.8513.01.0007.030.239174TRUETRUEVFRMETAR2059.02019-07-18 14:51:07K¯¥+) 5    3KN03 181435Z AUTO 07006KT 10SM SCT015 BKN033 25/20 A2997 RMK AO2KN032019-07-18T14:35:00Z42.6-76.2225.020.070610.029.970472TRUETRUEVFRMETAR366.02019-07-18 14:51:07L¯¥*) 5    3KONL 181435Z AUTO 16009KT 10SM CLR 27/25 A2971 RMK AO2 T02720251KONL2019-07-18T14:35:00Z42.47-98.6727.225.1160910.029.71063TRUETRUEVFRMETAR619.02019-07-18 14:51:07 ª)VªQ¯¥1)5   3KLUD 181435Z AUTO 19012G19KT 7SM CLR 28/20 A3001 RMK AO2 T02810201KLUD2019-07-18T14:35:00Z33.25-97.5828.120.119012197.030.008858TRUETRUEVFRMETAR319.02019-07-18 14:51:07O¯¥0) 5    3KLRU 181435Z AUTO 11003KT 10SM CLR 25/17 A3012 RMK AO2 T02450171KLRU2019-07-18T14:35:00Z32.27-106.9224.517.1110310.030.121063TRUETRUEVFRMETAR1358.02019-07-18 14:51:07M¯¥/) 5    3KLNN 181435Z AUTO 25006KT 10SM CLR 27/17 A2995 RMK AO1 T02660166KLNN2019-07-18T14:35:00Z41.67-81.3726.616.6250610.029.949802TRUETRUEVFRMETAR191.02019-07-18 14:51:07Q¯¥.)5   3K6A1 181435Z AUTO 28004KT 10SM 31/21 A3010 RMK AO2 LTG DSNT S T03130213K6A12019-07-18T14:35:00Z32.57-84.2531.321.3280410.030.100393TRUETRUEMETAR203.02019-07-18 14:51:07 È6]’ȁD¯¥5(5    3KMEZ 181435Z AUTO 21005KT 10SM SCT020 30/26 A3005 RMK AO2KMEZ2019-07-18T14:35:00Z34.55-94.230.026.0210510.030.050198TRUETRUEVFRMETAR329.02019-07-18 14:51:07E¯¥4(5    3KMDS 181435Z AUTO 17006KT 10SM BKN006 23/23 A2978 RMK AO2KMDS2019-07-18T14:35:00Z44.02-97.0823.023.0170610.029.778543TRUETRUEIFRMETAR524.02019-07-18 14:51:07S¯¥3)5   3KLYO 181435Z AUTO 20015G20KT 10SM CLR 28/21 A2981 RMK AO2 T02790206KLYO2019-07-18T14:35:00Z38.35-98.2327.920.6200152010.029.811024TRUETRUEVFRMETAR515.02019-07-18 14:51:07D¯¥2(y5    3KLUV 181435Z AUTO 19018KT 10SM CLR 27/19 A3001 RMK AO2KLUV2019-07-18T14:35:00Z32.75-101.9227.019.01901810.030.008858TRUETRUEVFRMETAR912.02019-07-18 14:51:07 ¼+X†¼D¯¥9)5   3KLAM 181435Z AUTO 00000KT 10SM 22/03 A3029 RMK AO2 T02160025KLAM2019-07-18T14:35:00Z35.87-106.2721.62.50010.030.28937TRUETRUEMETAR2179.02019-07-18 14:51:07L¯¥8) 5    3KLCG 181435Z AUTO 21006KT 10SM CLR 27/24 A2971 RMK AO2 T02730242KLCG2019-07-18T14:35:00Z42.25-96.9827.324.2210610.029.71063TRUETRUEVFRMETAR436.02019-07-18 14:51:07M¯¥7)5    3KLCK 181435Z AUTO 24005KT 7SM SCT007 25/24 A2998 RMK AO2 T02450241KLCK2019-07-18T14:35:00Z39.82-82.9224.524.124057.029.97933TRUETRUEVFRMETAR227.02019-07-18 14:51:07O¯¥6)5    3KLCQ 181435Z AUTO 00000KT 10SM BKN008 27/25 A3012 RMK AO2 LTG DSNT SWKLCQ2019-07-18T14:35:00Z30.18-82.5827.025.00010.030.121063TRUETRUEIFRMETAR61.02019-07-18 14:51:07 £#Q„£[¯¥=)'5   3KBKS 181435Z AUTO 17011G15KT 10SM SCT021 SCT090 31/24 A2999 RMK AO1 T03120235KBKS2019-07-18T14:35:00Z27.2-98.1231.223.5170111510.029.991142TRUETRUEVFRMETAR34.02019-07-18 14:51:07G¯¥<(}5   3KBPC 181435Z AUTO 23019G25KT 7SM CLR 30/15 A2992 RMK AO2KBPC2019-07-18T14:35:00Z35.88-101.0330.015.023019257.029.920275TRUETRUEVFRMETAR845.02019-07-18 14:51:07L¯¥;) 5    3KMMH 181435Z AUTO 00000KT 10SM CLR 14/04 A3025 RMK AO2 T01370038KMMH2019-07-18T14:35:00Z37.62-118.8213.73.80010.030.250984TRUETRUEVFRMETAR2173.02019-07-18 14:51:07W¯¥:)!5    3KMKJ 181435Z AUTO 24007KT 10SM BKN012 OVC020 23/22 A3015 RMK AO2 T02330221KMKJ2019-07-18T14:35:00Z36.88-81.3323.322.1240710.030.15059TRUETRUEMVFRMETAR780.02019-07-18 14:51:07 ».?x»7¯¥A(s5     3KMZZ 181435Z AUTO 22008KT 10SM SCT060 A2996 RMK AO2KMZZ2019-07-18T14:35:00Z40.48-85.68220810.029.958662TRUETRUEVFRMETAR262.02019-07-18 14:51:07A¯¥@(5    3KMIS 181435Z AUTO 00000KT 10SM FEW021 30/25 A3010 RMK A01KMIS2019-07-18T14:35:00Z29.3-88.8530.025.00010.030.100393TRUETRUEVFRMETAR32.02019-07-18 14:51:07i¯¥?)=5      3KBFW 181435Z AUTO 00000KT 2 1/2SM -RA OVC002 18/17 A2966 RMK AO2 P0001 LTG DSNT SE P0001KBFW2019-07-18T14:35:00Z47.25-91.418.017.0002.529.660433TRUETRUE-RALIFR0.01METAR331.02019-07-18 14:51:07L¯¥>) 5    3KBGF 181435Z AUTO 00000KT 10SM FEW017 BKN022 25/22 A3010 RMK A01KBGF2019-07-18T14:35:00Z35.18-86.0725.022.00010.030.100393TRUETRUEMVFRMETAR299.02019-07-18 14:51:07 «/\‰«X¯¥E)#5    3KCCO 181435Z AUTO 27003KT 10SM CLR 31/26 A3011 RMK AO2 LTG DSNT S T03050256KCCO2019-07-18T14:35:00Z33.32-84.7730.525.6270310.030.109253TRUETRUEVFRMETAR296.02019-07-18 14:51:07M¯¥D) 5    3KHSG 181435Z AUTO 09006KT 10SM CLR 24/10 A2988 RMK AO2 T02380097KHSG2019-07-18T14:35:00Z43.72-108.3823.89.790610.029.878937TRUETRUEVFRMETAR1494.02019-07-18 14:51:07M¯¥C) 5    3KJCA 181435Z AUTO 24006KT 10SM CLR 28/24 A3009 RMK AO2 T02770238KJCA2019-07-18T14:35:00Z34.18-83.5727.723.8240610.030.088583TRUETRUEVFRMETAR290.02019-07-18 14:51:07K¯¥B) 5    3KY49 181435Z AUTO 00000KT 10SM CLR 21/19 A2966 RMK AO2 T02100187KY492019-07-18T14:35:00Z47.13-94.6521.018.70010.029.660433TRUETRUEVFRSPECI416.02019-07-18 14:51:07 ¨-a‰¨[¯¥I)!5     3K06C 181435Z AUTO 35003KT 3/4SM OVC006 23/23 A2997 RMK AO2 P0036 T02340228K06C2019-07-18T14:35:00Z41.98-88.123.422.835030.7529.970472TRUETRUELIFR0.36METAR244.02019-07-18 14:51:07R¯¥H)5   3K0F2 181435Z AUTO 17013G17KT 10SM CLR 28/21 A2999 RMK AO2 T02820207K0F22019-07-18T14:35:00Z33.6-97.7828.220.7170131710.029.991142TRUETRUEVFRMETAR336.02019-07-18 14:51:07F¯¥G(5   3K1F0 181435Z AUTO 18009G15KT 10SM CLR 28/19 A2998 RMK AO2K1F02019-07-18T14:35:00Z34.15-97.1228.019.018091510.029.97933TRUETRUEVFRMETAR257.02019-07-18 14:51:07M¯¥F) 5    3KBMC 181435Z AUTO 00000KT 10SM CLR 22/10 A2999 RMK AO1 T02180100KBMC2019-07-18T14:35:00Z41.55-112.0721.810.00010.029.991142TRUETRUEVFRMETAR1288.02019-07-18 14:51:07 ¹%RŠ¹K¯¥M) 5  3KOOA 181435Z AUTO 24011G15KT 10SM 29/23 A2981 RMK AO2 T02900225KOOA2019-07-18T14:35:00Z41.23-92.529.022.5240111510.029.811024TRUETRUEMETAR256.02019-07-18 14:51:07B¯¥L(y5    3KOVL 181435Z AUTO 18004KT 10SM CLR 24/21 A2972 RMK AO2KOVL2019-07-18T14:35:00Z44.78-95.0324.021.0180410.029.719488TRUETRUEVFRMETAR328.02019-07-18 14:51:07M¯¥K)5     3KW43 181435Z AUTO 00000KT 10SM CLR 22/17 A2986 RMK AO2 PWINOKW432019-07-18T14:35:00Z44.67-104.5722.017.00010.029.861221TRUETRUETRUEVFRMETAR1300.02019-07-18 14:51:07U¯¥J)!5    3K0R4 181435Z AUTO 26005KT 10SM BKN009 OVC015 28/26 A3009 RMK AO2 T02770256K0R42019-07-18T14:35:00Z31.57-91.527.725.6260510.030.088583TRUETRUEIFRMETAR17.02019-07-18 14:51:07 Æ'W‚Ɓ6¯¥Q(i5    3K0VG 181435Z AUTO 10SM CLR 25/23 A3010 RMK AO2K0VG2019-07-18T14:35:00Z36.65-83.2225.023.010.030.100393TRUETRUEVFRMETAR430.02019-07-18 14:51:07O¯¥P)5    3K11R 181435Z AUTO 18008KT 10SM SCT020 30/24 A3005 RMK AO2 T02980243K11R2019-07-18T14:35:00Z30.22-96.3729.824.3180810.030.050198TRUETRUEVFRMETAR94.02019-07-18 14:51:07J¯¥O)5   3KHSD 181435Z AUTO 21017G23KT 10SM CLR 30/M12 A2993 RMK A01KHSD2019-07-18T14:35:00Z35.6-97.7230.0-12.0210172310.029.929134TRUETRUEVFRMETAR364.02019-07-18 14:51:07S¯¥N)5   3KMQB 181435Z AUTO 22010G15KT 10SM CLR 27/24 A2988 RMK AO2 T02740235KMQB2019-07-18T14:35:00Z40.52-90.6527.423.5220101510.029.878937TRUETRUEVFRMETAR215.02019-07-18 14:51:07 ¬Y‡¬U¯¥U)5    3K2G9 181435Z AUTO 27007KT 10SM SCT015 BKN022 OVC028 23/20 A3003 RMK AO2K2G92019-07-18T14:35:00Z40.03-79.0223.020.0270710.030.029528TRUETRUEMVFRMETAR693.02019-07-18 14:51:07L¯¥T) 5    3K1H2 181435Z AUTO 20007KT 10SM CLR 28/21 A2998 RMK AO2 T02790210K1H22019-07-18T14:35:00Z39.07-88.5327.921.0200710.029.97933TRUETRUEVFRMETAR179.02019-07-18 14:51:07=¯¥S(w5    3K18H 181435Z AUTO 00000KT 9SM CLR 33/24 A3008 RMK A01K18H2019-07-18T14:35:00Z26.13-92.0333.024.0009.030.079725TRUETRUEVFRMETAR10.02019-07-18 14:51:07^¯¥R)/5    3K1A6 181435Z AUTO 25004KT 10SM SCT021 SCT035 SCT048 27/23 A3007 RMK AO2 T02710228K1A62019-07-18T14:35:00Z36.62-83.7327.122.8250410.030.070866TRUETRUEVFRMETAR352.02019-07-18 14:51:07 È2VÈB¯¥Y(y5    3KXIH 181435Z AUTO 20011KT 10SM CLR 31/24 A3005 RMK A01KXIH2019-07-18T14:35:00Z29.18-94.5231.024.02001110.030.050198TRUETRUEVFRMETAR75.02019-07-18 14:51:07@¯¥X(y5    3KATP 181435Z AUTO 11006KT 10SM CLR 32/25 A3011 RMK A01KATP2019-07-18T14:35:00Z27.2-90.0332.025.0110610.030.109253TRUETRUEVFRMETAR62.02019-07-18 14:51:07V¯¥W)!5    3K3R7 181435Z AUTO 19006KT 10SM BKN016 BKN023 29/25 A3007 RMK AO2 T02940251K3R72019-07-18T14:35:00Z30.25-92.6729.425.1190610.030.070866TRUETRUEMVFRMETAR7.02019-07-18 14:51:07H¯¥V(5   3K3AU 181435Z AUTO 20015G21KT 10SM CLR 28/21 A2987 RMK AO2K3AU2019-07-18T14:35:00Z37.67-97.0828.021.0200152110.029.870079TRUETRUEVFRMETAR405.02019-07-18 14:51:07 Ï:h•Ï@¯¥](}5    3KW31 181435Z AUTO 10SM CLR 29/24 A2997 RMK AO1 T02860238KW312019-07-18T14:35:00Z36.95-78.1828.623.810.029.970472TRUETRUEVFRMETAR162.02019-07-18 14:51:07M¯¥\) 5    3KW78 181435Z AUTO 26004KT 10SM CLR 31/21 A2997 RMK AO1 T03060212KW782019-07-18T14:35:00Z36.68-78.8530.621.2260410.029.970472TRUETRUEVFRMETAR129.02019-07-18 14:51:07L¯¥[) 5    3KW81 181435Z AUTO 25004KT 10SM CLR 30/24 A2995 RMK AO1 T02950238KW812019-07-18T14:35:00Z37.18-78.129.523.8250410.029.949802TRUETRUEVFRMETAR129.02019-07-18 14:51:07@¯¥Z(y5    3KWBF 181435Z AUTO 12005KT 10SM CLR 30/25 A3011 RMK A01KWBF2019-07-18T14:35:00Z26.93-90.530.025.0120510.030.109253TRUETRUEVFRMETAR10.02019-07-18 14:51:07 ‹6aV‹E¯¥a(5    3K6S2 181435Z AUTO 35004KT 10SM OVC046 16/14 A3007 RMK AO2K6S22019-07-18T14:35:00Z43.98-124.1216.014.0350410.030.070866TRUETRUEVFRMETAR16.02019-07-18 14:51:07‚¯¥`)[5      3RJTY 181435Z AUTO 21004KT 10SM -RA BKN008 BKN011 23/22 A2994 RMK AO2 RAE11DZB20E25RAB25 SLP135 FZRANO $RJTY2019-07-18T14:35:00Z35.75139.3323.022.0210410.029.9409451013.5TRUETRUETRUETRUE-RAIFRMETAR139.02019-07-18 14:51:07O¯¥_)5    3KXPY 181435Z AUTO VRB05KT 10SM FEW017 SCT022 SCT029 30/26 A3009 RMK A01KXPY2019-07-18T14:35:00Z29.12-90.230.026.00510.030.088583TRUETRUEVFRMETAR2.02019-07-18 14:51:07D¯¥^(5    3KXLL 181435Z AUTO 00000KT 10SM OVC010 25/25 A2992 RMK AO2KXLL2019-07-18T14:35:00Z40.57-75.4825.025.00010.029.920275TRUETRUEMVFRMETAR122.02019-07-18 14:51:07 ¨"V…¨W¯¥e)#5    3KZPH 181435Z AUTO 16005KT 10SM CLR 29/24 A3012 RMK A02 LTG DSNT W T02870236KZPH2019-07-18T14:35:00Z28.23-82.1528.723.6160510.030.121063TRUETRUEVFRMETAR26.02019-07-18 14:51:07K¯¥d)!5   3ETHC 181435Z 13006KT 9999 SCT060 SCT090 BKN170 25/09 Q1010 BLU FCST CANCELETHC2019-07-18T14:35:00Z52.610.0225.09.013066.2129.822834VFRSPECI52.02019-07-18 14:51:07F¯¥c(}5   3KGLY 181435Z AUTO 22013G17KT 9SM CLR 29/24 A2992 RMK AO2KGLY2019-07-18T14:35:00Z38.35-93.6829.024.022013179.029.920275TRUETRUEVFRSPECI251.02019-07-18 14:51:07X¯¥b)%5    3K48A 181435Z AUTO 25006KT 10SM CLR 32/22 A3008 RMK AO2 LTG DSNT SW T03200223K48A2019-07-18T14:35:00Z32.4-83.2732.022.3250610.030.079725TRUETRUEVFRMETAR115.02019-07-18 14:51:07 ³.Q~³E¯¥i(5    3KXNX 181435Z AUTO 21004KT 10SM SCT020 27/23 A3008 RMK A01KXNX2019-07-18T14:35:00Z36.38-86.4227.023.0210410.030.079725TRUETRUEVFRMETAR178.02019-07-18 14:51:07M¯¥h) 5    3K0V4 181435Z AUTO 26008KT 10SM CLR 32/23 A2996 RMK AO1 T03150230K0V42019-07-18T14:35:00Z37.15-79.0231.523.0260810.029.958662TRUETRUEVFRMETAR182.02019-07-18 14:51:07W¯¥g)#5    3K17J 181435Z AUTO 31004KT 10SM CLR 30/25 A3009 RMK AO2 LTG DSNT S T02990252K17J2019-07-18T14:35:00Z31.07-84.9229.925.2310410.030.088583TRUETRUEVFRMETAR45.02019-07-18 14:51:07L¯¥f) 5    3K0E0 181435Z AUTO 00000KT 10SM CLR 23/10 A3021 RMK AO2 T02320103K0E02019-07-18T14:35:00Z34.98-106.023.210.30010.030.209646TRUETRUEVFRMETAR1890.02019-07-18 14:51:07 «)Xt«C¯¥m(}5    3KEDC 181435Z AUTO 20010KT 9SM SCT017 28/23 A3005 RMK AO2KEDC2019-07-18T14:35:00Z30.4-97.5728.023.0200109.030.050198TRUETRUEVFRMETAR189.02019-07-18 14:51:07^¯¥l)/5    3K3F3 181435Z AUTO 21007KT 10SM BKN017 BKN021 BKN027 30/25 A3011 RMK AO2 T02970252K3F32019-07-18T14:35:00Z32.07-93.7729.725.2210710.030.109253TRUETRUEMVFRMETAR96.02019-07-18 14:51:07K¯¥k) 5    3K2J5 181435Z AUTO 28004KT 10SM CLR 32/23 A3006 RMK AO2 T03200226K2J52019-07-18T14:35:00Z32.9-81.9732.022.6280410.030.059055TRUETRUEVFRMETAR72.02019-07-18 14:51:07Q¯¥j)5    3K28J 181435Z AUTO 00000KT 10SM CLR 28/23 A3012 RMK AO2 LTG DSNT E AND WK28J2019-07-18T14:35:00Z29.65-81.5828.023.00010.030.121063TRUETRUEVFRMETAR15.02019-07-18 14:51:07 œ'\”œr¯¥q)O5   3KDLL 181435Z AUTO 19013G22KT 10SM BKN010 BKN110 21/19 A2979 RMK AO2 LTG DSNT SE THRU SW T02070192KDLL2019-07-18T14:35:00Z43.52-89.7720.719.2190132210.029.790354TRUETRUEMVFRMETAR299.02019-07-18 14:51:07B¯¥p(y5    3KDNN 181435Z AUTO 24003KT 10SM CLR 31/22 A3011 RMK AO2KDNN2019-07-18T14:35:00Z34.72-84.8731.022.0240310.030.109253TRUETRUEVFRSPECI216.02019-07-18 14:51:07E¯¥o(5   3KDNS 181435Z AUTO VRB04G17KT 10SM CLR 28/25 A2973 RMK AO2KDNS2019-07-18T14:35:00Z41.97-95.3728.025.0041710.029.731298TRUETRUEVFRMETAR388.02019-07-18 14:51:07S¯¥n)5   3KECU 181435Z AUTO 15012G18KT 9SM BKN014 BKN021 25/20 A3013 RMK AO2KECU2019-07-18T14:35:00Z29.95-100.1725.020.015012189.030.129921TRUETRUEMVFRMETAR725.02019-07-18 14:51:07 ¢Os¢K¯¥u) 5    3KEYF 181435Z AUTO 21008KT 10SM CLR 31/23 A3001 RMK AO2 T03060229KEYF2019-07-18T14:35:00Z34.6-78.5830.622.9210810.030.008858TRUETRUEVFRSPECI41.02019-07-18 14:51:07V¯¥t)5   3KFLY 181435Z AUTO 32010G18KT 10SM CLR 28/M02 A3019 RMK AO2 T02751025KFLY2019-07-18T14:35:00Z38.95-104.5727.5-2.5320101810.030.188976TRUETRUEVFRMETAR2096.02019-07-18 14:51:07I¯¥s) 5    3KEDN 181435Z AUTO 00000KT 10SM CLR 29/25 A3009 RMK AO2 T02930246KEDN2019-07-18T14:35:00Z31.3-85.929.324.60010.030.088583TRUETRUEVFRSPECI110.02019-07-18 14:51:07\¯¥r)'5   3KEGV 181435Z AUTO 22007G14KT 10SM SCT070 SCT100 24/17 A2974 RMK AO2 T02430168KEGV2019-07-18T14:35:00Z45.93-89.2724.316.822071410.029.740158TRUETRUEVFRMETAR500.02019-07-18 14:51:07 ¹.i¹P¯¥y)5    3KI68 181435Z AUTO 21004KT 10SM SCT014 28/28 A2999 RMK AO1 T02780275KI682019-07-18T14:35:00Z39.47-84.2527.827.5210410.029.991142TRUETRUEVFRMETAR274.02019-07-18 14:51:07T¯¥x)5   3K19S 181435Z AUTO 22012G18KT 10SM CLR 29/18 A2988 RMK AO2 T02920179K19S2019-07-18T14:35:00Z37.48-100.8329.217.9220121810.029.878937TRUETRUEVFRMETAR886.02019-07-18 14:51:07?¯¥w(y5    3KGPC 181435Z AUTO 00000KT 10SM CLR 27/23 A2998 RMK AO2KGPC2019-07-18T14:35:00Z39.63-86.8227.023.00010.029.97933TRUETRUEVFRMETAR257.02019-07-18 14:51:07L¯¥v) 5    3KEMV 181435Z AUTO 20006KT 10SM CLR 30/24 A2997 RMK AO2 T03000236KEMV2019-07-18T14:35:00Z36.68-77.4830.023.6200610.029.970472TRUETRUEVFRSPECI39.02019-07-18 14:51:07